SQLite format 3@ ã>í,ôÖã>-â)ìûöñìvƒ?tablebuoy_nowbuoy_nowCREATE TABLE buoy_now ( STN, LAT, LON, YYYY, MM, DD, hh, minute, WDIR, WSPD, GST, WVHT, DPD, APD, MWD, PRES, PTDY, ATMP, WTMP, DEWP, VIS, TIDE, raw_text DEFAULT '', timestamp TIMESTAMP DEFAULT CURRENT_TIMESTAMP )jƒ7tablebuoybuoyCREATE TABLE buoy ( STN, LAT, LON, YYYY, MM, DD, hh, minute, WDIR, WSPD, GST, WVHT, DPD, APD, MWD, PRES, PTDY, ATMP, WTMP, DEWP, VIS, TIDE, raw_text DEFAULT '', timestamp TIMESTAMP DEFAULT C ú™úôîèâÜÖÐÊľ¸²¬¦ š”Žˆ‚|vpjd^XRLF@:4.(" þøòìæàÚÔÎȼ¶°ª¤ž˜’Œ†€ztnhb\VPJD>82,& üöðêäÞØÒÌÆÀº´®¨¢œ–Š„~xrlf`ZTNHB<60*$ MMMM•”0””'“”’”‘””“~Ž“v“nŒ“f‹“^Š“V‰“Nˆ“F‡“>†“6…“.„“%ƒ“‚““ €“’}~’u}’l|’d{’\z’Ty’Lx’Dw’<v’4u’,t’$s’r’q’ p’o‘|n‘tm‘ll‘dk‘\j‘Ti‘Lh‘Dg‘<f‘4e‘,d‘$c‘b‘a‘ `‘_|^t]l\d[\ZTYLXDW<V4U,T$SRQ PO|NtMlLdK\JTILHDG<F4E,D$CBA @?Ž|>Žt=Žl<Žd;Ž\:ŽT9ŽL8ŽD7Ž<6Ž35Ž*4Ž"3Ž2Ž1Ž0Ž/x.p-h,`+X*P)H(@'8&0%($ #"! ŒxŒpŒhŒ`ŒXŒOŒG˜’< Ø®øðèàØÐÈÀ¸°¨ ˜ˆ€xph`XPH@80( øðèàØÐÈÀ¸°¨ ˜ˆ€xph`XPH@80( øðèàØÐÈÀ¸°¨ ˜ˆ€xph`XPH@80( øðèàØ00$č«Ñ$i«Î$«Ë'#³«È?#X«Å"ý«Â&"¢«¿?"G«¼D!썫¹L!‘«¶]!6«³t ۍ«°^ €«­l %«ªPʍ«§Ho«¤_«¡w¹«žu^«›r«˜s¨«•YM«’)ò«6—«Œ<«‰5፫†M†«ƒm+«€SЍªýnuªû ªø¿ªõ dªò6 ªï<®ªì0Sªéøªæªã"Bªà8獪ÝAŒªÚ21ª×9֍ªÔ {ªÐ{ ªÍjōªÊrjªÈªÅ´ªÁkYª¿þª¼£ª¹Hª¶퍪³-’ª°A7ª­:܍ªª;ª§*&ª¤"ˍª¡8pªž8ª›@ºª˜._ª•-ª’ ©ªŽk Nª‹e 󍪈z ˜ª† =ª‚o ⍩ÿk ‡©ý ,©ú э©÷ v©ô ©ñ, À©îB e©ë6 ©è/¯©åT©â'ù©ß+ž©Ü6C©Ù!荩֍©Òl2©Ïg׍©Ì}|©Ée!©Æzƍ©Ä,k©Â©¾rµ©¼QZ©º:ÿ©·}Ž³¬On±É5I¿¯Â %|­¹~%{«°^ jƒ7tablebuoybuoyCREATE TABLE buoy ( STN, LAT, LON, YYYY, MM, DD, hh, minute, WDIR, WSPD, GST, WVHT, DPD, APD, MWD, PRES, PTDY, ATMP, WTMP, DEWP, VIS, TIDE, raw_text DEFAULT '', timestamp TIMESTAMP DEFAULT CURRENT_TIMESTAMP )vƒ?tablebuoy_nowbuoy_nowCREATE TABLE buoy_now ( STN, LAT, LON, YYYY, MM, DD, hh, minute, WDIR, WSPD, GST, WVHT, DPD, APD, MWD, PRES, PTDY, ATMP, WTMP, DEWP, VIS, TIDE, raw_text DEFAULT '', timestamp TIMESTAMP DEFAULT CURRENT_TIMESTAMP ) nnj…‰}tablemetarmetarCREATE TABLE metar ( raw_text DEFAULT '', station_id, observation_time, latitude, longitude, temp_c, dewpoint_c, wind_dir_degrees, wind_speed_kt, wind_gust_kt, visibility_statute_mi, altim_in_hg, sea_level_pressure_mb, corrected, auto, auto_station, maintenance_indicator_on, no_signal, lightning_sensor_off, freezing_rain_sensor_off, present_weather_sensor_off, wx_string, sky_cover, cloud_base_ft_agl, flight_category, three_hr_pressure_tendency_mb, maxT_c, minT_c, maxT24hr_c, minT24hr_c, precip_in, pcp3hr_in, pcp6hr_in, pcp24hr_in, snow_in, vert_vis_ft, metar_type, elevation_m, timestamp TIMESTAMP DEFAULT CURRENT_TIMESTAMP ) ÊÜ-úôîèâÜÖÐÊÎÉÄ¿ºµ°«¦¡œ—’ˆƒ~ytojd^XRLF@:4.(" þøòìæàÚÔÎȼ¶°ª¤ž˜’Œ†€ztnhb\VPJD>82,& üöðêäÞØÒÌÆÀº´®¨¢œ–Š„~xrlf`ZTNHB<60*$13؃„N؂„J؁„F؀„BØ„>Ø~„:Ø}„6Ø|„2Ø{„.Øz„)Øy„$Øx„ Øw„Øv„Øu„Øt„Øs„ Ør„ØqƒØpƒzØoƒuØnƒpØmƒlØlƒgØkƒcØjƒ^ØiƒYØhƒTØgƒOØfƒJØeƒEØdƒ@Øcƒ;Øbƒ6Øaƒ1Ø`ƒ,Ø_ƒ(Ø^ƒ#Ø]ƒØ\ƒØ[ƒØZƒØYƒ ØXƒØWƒØV‚~ØU‚zØT‚uØS‚qØR‚lØQ‚gØP‚bØO‚]ØN‚XØM‚SØL‚NØK‚IØJ‚DØI‚@ØH‚;ØG‚6ØF‚1ØE‚,ØD‚'ØC‚"ØB‚ØA‚Ø@‚Ø?‚Ø>‚ Ø=‚Ø<Ø;zØ:uØ9pØ8kØ7fØ6aØ5\Ø4WØ3RØ2NØ1IØ0DØ/?Ø.:Ø-5Ø,1Ø+-Ø*)Ø)%Ø(!Ø'Ø&Ø%Ø$Ø# Ø" Ø!Ø Ø{ØvØrØnØjØfØaØ]ØYØUØQØMØIØEØAØ=Ø9Ø5Ø 1Û¼¡yÛKž}Úڛ@Úi—FÙø“2هÙ‹2؇‡d؆„ ‹‹)‡…Štablemetar_nowmetar_nowCREATE TABLE metar_now ( raw_text DEFAULT '', station_id, observation_time, latitude, longitude, temp_c, dewpoint_c, wind_dir_degrees, wind_speed_kt, wind_gust_kt, visibility_statute_mi, altim_in_hg, sea_level_pressure_mb, corrected, auto, auto_station, maintenance_indicator_on, no_signal, lightning_sensor_off, freezing_rain_sensor_off, present_weather_sensor_off, wx_string, sky_cover, cloud_base_ft_agl, flight_category, three_hr_pressure_tendency_mb, maxT_c, minT_c, maxT24hr_c, minT24hr_c, precip_in, pcp3hr_in, pcp6hr_in, pcp24hr_in, snow_in, vert_vis_ft, metar_type, elevation_m, timestamp TIMESTAMP DEFAULT CURRENT_TIMESTAMP )Tƒ tableshipship CREATE TABLE ship (day, dewpoint_c, gust, latitude, longitude, maxgst, sea_level_pressure_mb, station_id, temp_c, wind, raw_text DEFAULT '', timestamp TIMESTAMP DEFAULT CURRENT_TIMESTAMP )hã{øðèàØÐÈÀ¸°¨ ˜ˆ€xph`XPH@80( øðèàØÐÈÀ¸°¨ ˜ˆ€xph`XPH@80( øðèàØÐÈÀ¸°¨ ˜ˆ€xph`XPH@80( øðèàØ Üùƒ¬óÜøƒ¬óÜ÷ƒ¬óÜöƒ¬òrÜõƒ¬òdÜôƒ¬òUÜóƒ¬òFÜòƒ¬ò7Üñƒ¬ò(Üðƒ¬òÜò Üñ~Ü탬ñpÜ샬ñcÜ냬ñVÜꃬñIÜ郬ñ<Ü胬ñ.Ü烬ñ!Ü惬ñÜ僬ñÜ䃬ðyÜレðkÜ⃬ð]ÜწðOÜàƒ¬ðAÜ߃¬ð4Üރ¬ð%Ü݃¬ðÜ܃¬ðÜۃ¬ïxÜڃ¬ïkÜك¬ï]Ü؃¬ïOÜ׃¬ïAÜփ¬ï2ÜՃ¬ï%Üԃ¬ïÜӃ¬ï Ü҃¬î}Üу¬înÜЃ¬îaÜσ¬îSÜ΃¬îFÜ̓¬î9Ü̃¬î,Ü˃¬îÜʃ¬îÜɃ¬îÜȃ¬íxÜǃ¬íkÜƃ¬í]ÜѬíPÜă¬íCÜìí6܃¬í)ÜÁƒ¬íÜÀƒ¬íÜ¿ƒ¬íܾƒ¬ìtܽƒ¬ìgܼƒ¬ìZÜ»ƒ¬ìKܺƒ¬ì:ܹƒ¬ì+ܸƒ¬ìÜ·ƒ¬ìܶƒ¬ìܵƒ¬ësÜ´ƒ¬ëfܳƒ¬ëYܲƒ¬ëLܱƒ¬ë?Ü°ƒ¬ë1ܯƒ¬ë$Ü®ƒ¬ëÜ­ƒ¬ë ܬƒ¬ê}Ü«ƒ¬êqܪƒ¬êdÜ©ƒ¬êWܨƒ¬êH㠃®Ÿ[âŃ®•hâjƒ®‹i⃮‚ᴃ­ø6áYƒ­îuàþƒ­å$ࣃ­ÛYàHƒ­Ò ß탭È4ߒƒ­¾pß7ƒ­µ Þ܃­«Tށƒ­¢Þ&ƒ­˜6Ý˃­ŽgÝdƒ­…(Üýƒ¬ûOÜüƒ¬ñ~2Ýæ ûöñìçâÝØÓÍÇÁ»µ¯©£—‘‹…ysmga[UOIC=71+% ûõïéãÝ 11:32:35I   323/1125.0G1632.5-79.11008.44100427.2200122018-07-23 11:32:35A     323/11G1931.8-74.81013.941002140162018-07-23 11:32:35?     323/11-99.9-109.91012.23232311082018-07-23 11:32:35>    323/119.0-2.0-95.13232221.815082018-07-23 11:32:35:    323/110.2-95.63232121.316062018-07-23 11:32:35>    323/118.41.9-95.33232022.4160102018-07-23 11:32:35@    323/117.9-8.0-110.13231924.1110142018-07-23 11:32:35@    323/117.2-5.0-110.03231824.5110172018-07-23 11:32:35@    323/118.5-2.0-110.03231723.3120142018-07-23 11:32:35?    323/1æ…Cæ…5æ…'æ…æ… æ„~æ„pæ„bæ„Tæ„Fæ„7æ„)æ„æ„ æƒ~æƒpæƒbæƒTæ ƒFæ ƒ8æ ƒ*æ ƒæ ƒæƒæ‚sæ‚eæ‚Wæ‚Iæ‚;æ‚-æ‚æ‚åÿ‚åþråýbåüSåûBåú3åù&åøå÷ åö~åõpåôcåóTåòFåñ9åð+åïåî ââż=u­ŸWFuindexi3buoyCREATE UNIQUE INDEX i3 ON buoy(STN,YYYY,MM,DD,hh,mm)F kindexi2metar_nowCREATE UNIQUE INDEX i2 ON metar_now(station_id)`ƒtableship_nowship_now CREATE TABLE ship_now (day, dewpoint_c, gust, latitude, longitude, maxgst, sea_level_pressure_mb, station_id, temp_c, wind, raw_text DEFAULT '', timestamp TIMESTAMP DEFAULT CURRENT_TIMESTAMP )tƒ;tablestationss`ƒtableship_nowship_now CREATE TABLE ship_now (day, dewpoint_c, gust, latitude, longitude, maxgst, sea_level_pressure_mb, station_id, temp_c, wind, raw_text DEFAULT '', timestamp TIMESTAMP DEFAULT CURRENT_TIMESTAMP )tƒ;tablestationsstations CREATE TABLE stations ( metar TEXT, wmob INT, wmos INT, city TEXT, state TEXT, country TEXT, latitude DOUBLE, longitude DOUBLE, elevation DOUBLE, x DOUBLE, y DOUBLE, z DOUBLE, humor TEXT, source TEXT )B[indexi_metarstations CREATE INDEX i_metar ON stations(metar) ÊêTúôîèâÜÖÐÊÎÉÄ¿º´®¨¢œ–Š„~xrlf`ZTNHB<60*$ úôîèâÜÖÐÊľ¸²¬¦ š”Žˆ‚|vpjd^XRLF@:4.(" þøòìæàÚÔÎȼ¶°ª¤ž˜’Œ†€ztnhb\VPJD>82,& DD檈u橈m樈e槈\榈S楈J椈A棈8梈/案&栈柈枈 杈朇y曇o暇e晇[昇R旇I文@敇7攇.擇$撇摇搇揆|掆r捆h挆^拆T抆I扆?戆5懆+憆!慆愆惆悅~恅u怅læ…cæ~…Zæ}…Qæ|…Hæ{…?æz…6æy…-æx…$æw…æv…æu…æt„æs„vær„mæq„dæp„[æo„Ræn„Jæm„Bæl„9æk„0æj„'æi„æh„æg„ æf„æeƒ{ædƒræcƒiæbƒ`æaƒWæ`ƒOæ_ƒGæ^ƒ>æ]ƒ6æ\ƒ.æ[ƒ'æZƒæYƒæXƒ æWƒæV‚zæU‚qæT‚iæS‚`æR‚XæQ‚OæP‚FæO‚>æN‚6æM‚.æL‚%æK‚æJ‚æI‚ æH‚æG{æFræEiæD`æCYæBQæAIæ@@æ?7æ>.æ=%æ<æ;æ: æ9æ8zæ7ræ6jéãÂ#ér»Sé´}萬qè¤q箝Aç.–c殐歇yòìðòå×É»­Ÿ‘ƒugYK=/!÷éÛÍ¿±£•‡yk]OA3% ûíßÑõ§™‹}oaSE7) ÿñãÕǹ«…{ìì KNBG éìë KMSS ´ìê KMJXìé KMAI <ìè KLOT ìç KLAM Íìæ KJFX_ìå KIGC ^ìä KHRL ,ìã KHCD öìâ KGPT Ãìá KFYV ‹ìà KFGN Sìß KESF ìÞ KECP çìÝ KDNV ²ìÜ KD19 zìÛ KCOS CìÚ KCEW ìÙ KBUR ÔìØ KBIH ™ì× KAWI cìÖ KALY1ìÕ K9W7æìÔ K87Q³ìÓ K62W„ìÒ K4A6cìÑ K36YìÐ K25RåìÏ K13A«ìÎ HSTR!×ìÍ HFFF7ìÌ GUMAìË GCLAÃìÊ FYWBìÉ FQLCVìÈ FLMPìÇ FCOGØìÆ FAMM£ìÅ ETUNwìÄ ESSK4ìà EPSKì ENHEÓìÁ EHMA ñìÀ EGSY[ì¿ EGDYì¾ EDSB×ì½ EBLB§ì¼ DISSfì» DABCìº CYYUïì¹ CYSK¥ì¸ CYLK^ì· CYCQì¶ CXOXïìµ CXBKÛì´ CWVOžì³ CWRHZì² CWMZì± CWIUÊì° CWET€ì¯CWAR4ìï KMJXÊì£îÜʸ¦”‚p^L:(òàμ«™‡ucQ?- ÷æÔ°žŒzhVD2 üêØÆ´¢~õçÙËì7 ¿¼ŸÅ£|DA ì6 ¿¾%ý*þ%åì5 ¿¿ÔA Vì4 ¿ÀЫ“M©Pì3 ¿ÂJ×÷ ÀÛüì2 ¿ÃK÷ñWX1¿ì1 ¿Ä#쇡Ìè ƒì0 ¿Å Ù¦Z= Íì/ ¿Åàp”q#aì. ¿ÆÚȚÛÙ ì- ¿Çóò†ª²-Èì, ¿É+Ÿ;>}ûiì+ ¿Ê Qò­zãì* ¿ËD÷ìN•v*ì) ¿Ì˜\ó}èì( ¿Í½\‚Ÿ„? =ì' ¿Î­Ñ‰p# ì& ¿Ï”UÒ”Zñì% ¿Ð_üð¬Ì€ì$ ¿Ñ"~ª~¶ì# ¿Ñî:þ£_õAì" ¿Ò´Öâ2×Úì! ¿Óh)L¸%ï >ì ¿Ô¥+’ÅÈvì ¿Ôè!%瀕Wì ¿ÕÉV¡/mŒ#ì ¿Övfrí©ôßì ¿×&±F:f Tì ¿×l9Îxõ÷#ì ¿×æã™IÒ½ì ¿ØFÌw¨Ÿ ì ¿Ø’'žùƒ4zì ¿ØÛQWšõGì ¿ÙP«W¿M>ì ¿ÙØ;h#«é Eì ¿ÚNŽhß5 ‡ì ¿Ú½…Ž¿ì ¿Û=ü^‚Ï-0ì ¿Ü¤v“£#ì ¿Ýõ1¡°}{ì ¿ÞÌ\Y%Bì ¿ßÛ]x”>0Lì ¿àõðÕù#Ÿì ¿á³Ña¤Óc>ì ¿âšÉ MªÖì ¿ã›rp‰ÛË#¶ì ¿äà “þðÓìo ?âáU«WsUyì; ?ÃÅbƒy+Ý¡ì: ¿ÂJ×÷ ÀÛüÊëûîÜʸ¦”‚p^L:(òàμª˜†tbP>,öäÒÀ®œŠxfTB0 úèÖIJ Ž| þðâÔë ¿çW†ðŸéÁgëŽ ¿çfØ>‰« ë ¿çy–#8¼ëŒ ¿ç‹ß[J´ë‹ ¿ç™)™ùYG bëŠ ¿ç¬¸@™ Šë‰ ¿ç¿OŒÝ-‰ëˆ ¿çΜ éé¾¸ë‡ ¿çÞóufbõ+ë† ¿çìÍàÎÆ ë… ¿èÓ°%àlÃë„ ¿èið$ ƒëƒ ¿è/…bh® §ë‚ ¿èE5xeŒãë ¿è_ƒLÆé]ë€ ¿èxniôñðë ¿è¡z20£@Êë~ ¿èÊ¢Àžy@ë} ¿èäQ@d«šòë| ¿é ÙÙç¡1 ë{ ¿é.7¶… ;Ûëz ¿éQÃøpG"ëy ¿é}ÙGd¼K ãëx ¿é›‹Ï`qxþëw ¿é¸^·ƒ* ½ëv ¿éÔ­ ß·A Tëu ¿é÷öعTŸët ¿êÐÛä„Iës ¿ê,¢½ áéër ¿êK³Vbª­ëq ¿êt çê͗½ëp ¿êšÞ°ò !1ëo ¿ê¼NÑÄi~ éën ¿êà÷Åè÷ [ëm ¿ë Ñ-p !ël ¿ë8Hó‚J  ëk ¿ë_ÅáõwNëj ¿ë…Å«‘\4ëëi ¿ëJi‚r/ëh ¿ëºíGÀVïëg ¿ëãí>Ò^#ëf ¿ìÿNßÝOAëe ¿ì%c‰g¤ßëd ¿ìRCÈ(ë _ëc ¿ì€'ååëb ¿íT63pÖëa ¿í•{2‡tf¶ëÇ ?Ò¿t‘/õ(ˆë“ ¿Û•à|0Ûieë’ ¿ç¬¸@™ ŠÊëSîÜʸ¦”‚p^L:(òàμª˜†tbP>,öäÒÀ®œŠxfTB0 úèÖIJ Ž|!÷éÛêç ?à1m¸rOGúêæ ?à¤ÉZZêå ?ß­PU¥Ä^…êä ?ß=@©!Àêã ?Þ·Írø!Åêâ ?ÞO=¨òž8êá ?Ýᵇ¼jÁêà ?Ý 43001= 42395< 42360; 42098: 420979 420608 420577 420566 420555 420404 420193 420122 420031 420020 42001/ 41159. 41118- 41117, 41115+ 41114* 41112) 41110( 41108' 41064& 41062% 41060$ 41056# 41053" 41052! 41049 41048 41047 41046 41044 41043 41041 41040 41038 41037 41033 41029 41025 41024 41013 41010 41009 41008 æ) VCBT‚æ( PTCR1:æ' MNPV2òæ& FRDW1¬æ% CG3029dæ$ ALXN6!æ# 51004Ûæ" 46026•æ! 44056KÉåíêÔ¾¨’|dL6  ôÞɶ Št^H2ðÚÄ®˜‚lV@*þèÒ¼¦zdàÎãã4105222/18kP ãâ4104822/21kYåãá4104623/00keÖãà4104323/03kr ãß4104023/06k~|ãÞ4103723/09kìãÝ4103322/12k7ÑãÜ4102522/22k^ãÛ4101323/01kj"ãÚ4100923/04kv)ãÙ4100423/07k‚fãØ3FZO823/02kq¯ã×3ENU523/01kj’ãÖ3396422/17kLãÕ3394723/00khJãÔ3388822/15kDãÓ3368722/12k9)ãÒ3297422/20kX[ãÑ3286822/18kPãÐ3281723/09kåãÏ3267323/00kh=ãÎ3255122/14kA$ãÍ3232322/12k7ÌãÌ3232122/15kD ãË3231922/18kPãÊ3231722/21k\\ãÉ3231523/00kh3ãÈ3230423/03åÅWDJK23/10kmåTFFLT23/04kx;åuPRYC123/00kg²åNMQTT222/17kKAå&GNJT223/02koäÿCHYV223/04kwiäÙBATFR3323/10k3ä´AMOUK1123/07k…„ä6216123/08kŠäf5491123/01kmÅä?4691522/18kPIä4604722/16kFKãç4409923/00khdãæ4104023/06k~| PŠ¡'²;ÅPrŒ? 34102433.837-78.4772018072301082008.012.0MMMMMMMM1008.0MM28.028.5MMMMMM2018-07-23 02:01:21sŒ> 34101333.436-77.74320180723014020014.0MMMMMMMMMM1009.7MM26.427.522.5MMMM2018-07-23 02:01:21tŒ= 34101028.878-78.4852018072301401508.011.0MMMMMMMM1011.2MM27.429.324.2MMMM2018-07-23 02:01:21rŒ< 34100928.501-80.1842018072301401708.010.0MMMMMMMM1011.6MM27.3MM22.9MMMM2018-07-23 02:01:21wŒ; 34100831.400-80.8682018072300501908.09.01.054.21531008.0+0.727.829.223.4MMMM2018-07-23 02:01:21sŒ: 34100432.501-79.0992018072301401906.08.0MMMMMMMM1008.4MM28.528.327.0MMMM2018-07-23 02:01:21pŒ9 34100231.760-74.8402018072301401609.011.0MMMMMMMM1013.2MMMM26.9MMMMMM2018-07-23 02:01:21sŒ8 332ST0-19.639-84.9182018072300301409.0MMMMMMMMMM1019.0MM17.318.813.1MMMM2018-07-23 02:01:21 fˆŸ*µKÜfsŒG 34104321.132-64.8562018072301401005.06.0MMMMMMMM1017.8MM27.328.222.5MMMM2018-07-23 02:01:21lŒF 34104114.329-46.082201807230140907.08.0MMMMMMMM1017.3MMMMMMMMMMMM2018-07-23 02:01:21gŒE 34104014.559-53.073201807230040MMMMMM1.775.693MMMMMMMMMMMMMM2018-07-23 02:01:21rŒD 34103834.141-77.7152018072301081509.012.0MMMMMMMM1007.9MM27.528.2MMMMMM2018-07-23 02:01:21rŒC 34103733.988-77.3622018072301081608.011.0MMMMMMMM1009.7MM28.227.8MMMMMM2018-07-23 02:01:21qŒB 34103332.279-80.4062018072301082306.09.0MMMMMMMM1007.5MM29.229.1MMMMMM2018-07-23 02:01:21rŒA 34102932.803-79.6242018072301082408.011.0MMMMMMMM1007.2MM29.129.0MMMMMM2018-07-23 02:01:21uŒ@ 34102535.005-75.40320180723014017013.015.0MMMMMMMM1011.9MM28.327.425.6MMMM2018-07-23 02:01:21 q‹©7ÅTâqnŒO 34105618.261-65.464201807230130906.07.0MMMMMMMM1015.3MM28.1MMMMMMMM2018-07-23 02:01:21oŒN 34105318.474-66.0992018072301301105.07.0MMMMMMMM1015.3MM28.0MMMMMMMM2018-07-23 02:01:21nŒM 34105218.250-64.763201807230130906.08.0MMMMMMMM1014.9MM28.5MMMMMMMM2018-07-23 02:01:21oŒL 34104927.487-62.9472018072301401006.08.0MMMMMMMM1022.0MMMM27.9MMMMMM2018-07-23 02:01:21oŒK 34104831.860-69.5902018072301401507.09.0MMMMMMMM1020.0MMMM26.8MMMMMM2018-07-23 02:01:21mŒJ 34104727.520-71.5302018072301301707.08.0MMMMMMMM1017.7MMMMMMMMMMMM2018-07-23 02:01:21oŒI 34104623.832-68.4172018072301401004.06.0MMMMMMMM1019.0MMMM28.4MMMMMM2018-07-23 02:01:21rŒH 34104421.597-58.621201807230140907.08.0MMMMMMMM1019.8MM27.327.623.1MMMM2018-07-23 02:01:21 –%¯;Îaó†iŒX 34111518.377-67.280201807230130MMMMMM0.564.813MMMMMM28.7MMMMMM2018-07-23 02:01:21jŒW 34111427.550-80.217201807230130MMMMMM0.964.3357MMMMMM28.4MMMMMM2018-07-23 02:01:21kŒV 34111230.709-81.292201807230130MMMMMM0.7103.6104MMMMMM28.3MMMMMM2018-07-23 02:01:21jŒU 34111034.141-77.717201807230130MMMMMM1.274.4150MMMMMM27.9MMMMMM2018-07-23 02:01:21jŒT 34110833.721-78.015201807230130MMMMMM1.364.9185MMMMMM28.0MMMMMM2018-07-23 02:01:21qŒS 34106434.207-76.9492018072301081607.09.0MMMMMMMM1009.8MM28.227.8MMMMMM2018-07-23 02:01:21sŒR 34106334.782-75.94120180723000017010.013.0MMMMMMMM1010.9+0.827.8MMMMMMMM2018-07-23 02:01:21nŒQ 34106235.778-75.095201807230100MM7.09.0MMMMMMMM1012.2+0.4MMMMMMMMMM2018-07-23 02:01:21gŒP 34106014.824-51.017201807230050MMMMMM1.775.576MMMMMMMMMMMMMM2018-07-23 02:01:21 k“&¹EÏUßkqŒ` 34201230.064-87.5512018072301402607.09.0MMMMMMMM1008.6MM29.1MM27.5MMMM2018-07-23 02:01:21sŒ_ 34200325.930-85.6382018072301402706.08.0MMMMMMMM1013.1MM29.730.026.0MMMM2018-07-23 02:01:21wŒ^ 34200226.091-93.7582018072300502403.04.00.453.81821014.1-0.829.730.723.5MMMM2018-07-23 02:01:21sŒ] 34200125.897-89.6682018072301402807.08.0MMMMMMMM1013.8MM29.930.225.1MMMM2018-07-23 02:01:21qŒ\ 341NT014.824-51.017201807230030908.0MMMMMMMMMM1015.8MM26.426.921.9MMMM2018-07-23 02:01:21jŒ[ 34115934.213-76.946201807230130MMMMMM1.665.1172MMMMMM27.8MMMMMM2018-07-23 02:01:21jŒZ 34111828.609-80.590201807230130MMMMMM0.4105.074MMMMMM27.6MMMMMM2018-07-23 02:01:21jŒY 34111730.000-81.080201807230122MMMMMM1.143.4181MMMMMM27.4MMMMMM2018-07-23 02:01:21 X¦2¶BÎXsŒh 34205522.120-93.9602018072301401503.04.0MMMMMMMM1014.4MM29.630.325.5MMMM2018-07-23 02:01:21qŒg 34204727.897-93.5972018072223002606.07.0MMMMMMMM1013.7-1.2MM30.0MMMMMM2018-07-23 02:01:21qŒf 34204029.208-88.22620180723014026010.013.0MMMMMMMM1010.0MMMM29.5MMMMMM2018-07-23 02:01:21yŒe 34203928.788-86.00820180723005026011.014.02.375.52911008.6-0.929.929.927.0MMMM2018-07-23 02:01:21qŒd 34202326.010-83.0862018072300302906.08.0MMMMMMMM1013.2MM29.930.2MMMMMM2018-07-23 02:01:21lŒc 34202227.505-83.7412018072300302708.010.0MMMMMMMMMMMMMM29.6MMMMMM2018-07-23 02:01:21uŒb 34201927.907-95.3522018072300501705.06.00.653.92071012.7-0.929.429.7MMMMMM2018-07-23 02:01:21pŒa 34201327.173-82.9242018072300302808.010.0MMMMMMMM1011.7MMMM30.1MMMMMM2018-07-23 02:01:21 r¢-ÀSærqŒp 34236026.672-90.4712018072301002708.09.00.94MMMM1013.1-0.7MM29.7MMMMMM2018-07-23 02:01:21jŒo 34209927.345-84.275201807230130MMMMMM1.775.0297MMMMMM29.8MMMMMM2018-07-23 02:01:21jŒn 34209827.590-82.931201807230130MMMMMM1.574.6278MMMMMM30.5MMMMMM2018-07-23 02:01:21jŒm 34209725.700-83.650201807230130MMMMMM1.264.8324MMMMMM30.4MMMMMM2018-07-23 02:01:21rŒl 34208517.860-66.524201807230100907.08.0MMMMMMMM1014.6+2.129.628.5MMMMMM2018-07-23 02:01:21sŒk 34206016.387-63.350201807230140708.010.0MMMMMMMM1015.1MM27.828.223.6MMMM2018-07-23 02:01:21rŒj 34205716.908-81.422201807230140505.06.0MMMMMMMM1014.0MM28.528.226.3MMMM2018-07-23 02:01:21pŒi 34205619.918-84.938201807230140403.04.0MMMMMMMM1015.6MM30.1MM24.5MMMM2018-07-23 02:01:21 <‹œ!¨.´<uŒx 34401842.206-70.1432018072300501407.08.01.064.81081021.6+1.619.2MM19.2MMMM2018-07-23 02:01:21wŒw 34401740.693-72.0492018072300501508.09.02.285.91641018.4+0.922.721.422.2MMMM2018-07-23 02:01:21wŒv 34401436.611-74.8432018072300501607.08.01.885.71461012.6+1.025.624.625.0MMMM2018-07-23 02:01:21vŒu 34401342.346-70.6512018072223501207.08.00.864.5911019.7+0.620.820.120.6MMMM2018-07-23 02:01:21xŒt 34400938.461-74.7032018072300501308.010.01.785.51161013.3+0.825.123.625.1MMMM2018-07-23 02:01:21rŒs 34400840.504-69.248201807230050MMMMMM2.496.81761021.9+1.221.419.9MMMMMM2018-07-23 02:01:21wŒr 34400743.525-70.1412018072300501503.03.01.055.11421022.1+1.718.416.418.4MMMM2018-07-23 02:01:21rŒq 34239526.404-90.7922018072301202608.010.00.84MMMM1013.3MM30.229.4MMMMMM2018-07-23 02:01:21 Qˆ–"®:ÆQr 34403444.103-68.1122018072301041304.05.01.08MMMM1023.7MM14.611.5MM0.4MM2018-07-23 02:01:21qŒ 34403344.055-68.9962018072301041204.04.00.76MMMM1023.5MM15.314.0MMMMMM2018-07-23 02:01:21qŒ~ 34403243.715-69.3552018072301041403.04.01.28MMMM1022.1MM17.614.1MMMMMM2018-07-23 02:01:21qŒ} 34403043.179-70.4262018072301041305.06.01.16MMMM1020.3MM19.619.1MMMMMM2018-07-23 02:01:21qŒ| 34402942.523-70.5662018072301041505.05.01.16MMMM1019.8MM20.819.3MMMMMM2018-07-23 02:01:21wŒ{ 34402744.283-67.3002018072300501606.06.01.095.81721025.3+1.017.116.617.1MMMM2018-07-23 02:01:21uŒz 34402540.251-73.1642018072300501408.09.02.596.51641016.1+1.122.921.0MMMMMM2018-07-23 02:01:21uŒy 34402041.493-70.27920180723014015011.014.0MMMMMMMM1021.5MM23.522.621.8MMMM2018-07-23 02:01:21 r‹ª7ÊVäro 34406338.971-76.4432018072301401104.04.0MMMMMMMM1012.2MM24.8MMMMMMMM2018-07-23 02:01:21o 34406238.556-76.4152018072301401305.06.0MMMMMMMM1011.9MM25.4MMMMMMMM2018-07-23 02:01:21q 34405837.567-76.25720180723014018011.013.0MMMMMMMM1012.7MM26.9MMMMMMMM2018-07-23 02:01:21j 34405636.199-75.715201807230130MMMMMM1.184.9107MMMMMM22.5MMMMMM2018-07-23 02:01:21p 34404238.033-76.3352018072301401708.010.0MMMMMMMM1010.3MM26.7MMMMMMMM2018-07-23 02:01:21n 34404040.956-73.5802018072301201408.010.00.43MMMMMMMM23.6MM22.0MMMM2018-07-23 02:01:21m 34403941.138-72.6552018072301451509.011.00.4MMMMMMMMMM23.0MMMMMMMM2018-07-23 02:01:21r 34403743.491-67.8802018072301041607.08.01.38MMMM1023.8MM19.018.1MM1.6MM2018-07-23 02:01:21 vŽž,½Pãvj 34409139.778-73.769201807230130MMMMMM2.185.8151MMMMMM23.0MMMMMM2018-07-23 02:01:21j 34409041.840-70.329201807230130MMMMMM0.432.5142MMMMMM20.1MMMMMM2018-07-23 02:01:21j 34408937.757-75.334201807230130MMMMMM1.585.2118MMMMMM24.2MMMMMM2018-07-23 02:01:21l  34407237.201-76.2662018072301401509.011.0MMMMMMMMMMMM26.6MMMMMMMM2018-07-23 02:01:21o  34406940.699-73.0872018072301301307.09.0MMMMMMMMMMMM23.825.623.8MMMM2018-07-23 02:01:21v  34406639.568-72.5862018072300501508.010.02.386.41721016.0+1.623.7MM22.9MMMM2018-07-23 02:01:21t  34406540.369-73.7032018072301401409.010.0MMMMMMMM1016.0MM23.723.022.7MMMM2018-07-23 02:01:21o  34406436.998-76.0872018072301401507.09.0MMMMMMMM1010.5MM26.2MMMMMMMM2018-07-23 02:01:21 “'ºMàjôp 34415042.500-64.020201807230100MMMMMM1.48MMMM1029.1+1.320.118.6MMMMMM2018-07-23 02:01:21s 34413944.240-57.1002018072301001804.04.01.18MMMM1032.0+0.723.313.3MMMMMM2018-07-23 02:01:21s 34413742.260-62.0002018072301001804.05.0MMMMMMMM1030.7+1.022.321.5MMMMMM2018-07-23 02:01:21j 34410036.260-75.594201807230145MMMMMM1.485.4120MMMMMM23.9MMMMMM2018-07-23 02:01:21j 34409936.915-75.720201807230130MMMMMM1.554.9148MMMMMM24.5MMMMMM2018-07-23 02:01:21j 34409842.798-70.168201807230136MMMMMM1.465.2141MMMMMM19.7MMMMMM2018-07-23 02:01:21i 34409740.969-71.127201807230113MMMMMM2.210MMMMMMMMMM21.0MMMMMM2018-07-23 02:01:21j 34409535.750-75.330201807230118MMMMMM1.775.4132MMMMMM25.1MMMMMM2018-07-23 02:01:21 K‰(²9ÂKt  34501243.621-77.3992018072300501302.03.00.543.8631012.6+1.823.722.5MMMMMM2018-07-23 02:01:21t 34500844.283-82.416201807230050408.010.00.953.8471009.5-0.018.218.3MMMMMM2018-07-23 02:01:21v 34500742.674-87.026201807230050309.010.01.475.0271012.7+1.121.822.319.4MMMM2018-07-23 02:01:21s 34500647.335-89.7932018072300503304.04.00.453.7801018.8+0.011.68.1MMMMMM2018-07-23 02:01:21r 34500541.677-82.398201807230140105.06.0MMMMMMMM1010.8MM19.924.216.3MMMM2018-07-23 02:01:21r 34500447.585-86.5852018072300503303.03.00.343.3381016.4-0.59.64.1MMMMMM2018-07-23 02:01:21t 34500345.351-82.840201807230050308.010.00.743.5631011.6+0.017.817.0MMMMMM2018-07-23 02:01:21t 34500245.344-86.4112018072301403609.011.0MMMMMMMM1013.4MM19.919.516.2MMMM2018-07-23 02:01:21 ZŒ¢3½FÐZs( 34502942.900-86.272201807230140303.06.00.66MM3481012.4MM18.016.415.9MMMM2018-07-23 02:01:21s' 34502641.983-86.617201807230140503.05.01.16MM3331012.7MM21.021.416.9MMMM2018-07-23 02:01:21t& 34502546.969-88.3982018072301402802.03.00.2MMMMMM1017.0MM17.316.913.3MMMM2018-07-23 02:01:21s% 34502443.973-86.5562018072301403404.06.01.05MM271014.7MM18.418.317.6MMMM2018-07-23 02:01:21l$ 34502347.270-88.6072018072301502002.02.00.33MMMMMMMM7.24.46.1MMMM2018-07-23 02:01:21t# 34502245.403-85.0882018072301401506.07.00.43MM3251014.3MM21.020.220.7MMMM2018-07-23 02:01:21p" 34501444.800-87.760201807230130605.07.0MMMMMMMM1014.9MM23.821.3MMMMMM2018-07-23 02:01:21q! 34501343.100-87.8502018072301073505.07.01.47MMMM1014.6MM20.320.2MMMMMM2018-07-23 02:01:21 V‹¡+¶AËVr0 34514161.180-115.3102018072301003503.04.00.23MMMM1028.2+0.314.2MMMMMMMM2018-07-23 02:01:21s/ 34514050.790-96.7302018072301001806.07.00.22MMMM1013.4-2.922.722.2MMMMMM2018-07-23 02:01:21r. 34513943.250-79.530201807230100906.07.00.97MMMM1011.4+1.721.622.4MMMMMM2018-07-23 02:01:21r- 34513849.540-65.710201807230100803.03.00.67MMMM1021.7-0.414.915.4MMMMMM2018-07-23 02:01:21s, 34513745.540-81.010201807230100909.011.00.94MMMM1012.3+1.419.819.7MMMMMM2018-07-23 02:01:21q+ 34513648.530-86.950201807230100306.06.00.23MMMM1018.1+0.613.65.9MMMMMM2018-07-23 02:01:21s* 34513543.780-76.8702018072301001004.05.00.34MMMM1013.2+1.923.522.1MMMMMM2018-07-23 02:01:21r) 34513242.460-81.220201807230100701.01.00.13MMMM1010.6+1.119.822.8MMMMMM2018-07-23 02:01:21 S‹ž(³=ÉSs8 34515144.500-79.3702018072301001204.04.00.33MMMM1012.6+2.022.222.2MMMMMM2018-07-23 02:01:21q7 34514943.540-82.0702018072300001003.04.00.74MMMM1009.4MM18.919.9MMMMMM2018-07-23 02:01:21s6 34514849.650-94.5002018072301001405.06.00.02MMMM1015.6-2.023.722.2MMMMMM2018-07-23 02:01:21r5 34514742.430-82.680201807230100104.05.0MMMMMMMM1010.4+1.018.521.3MMMMMM2018-07-23 02:01:21s4 34514551.870-96.9702018072301001708.09.00.53MMMM1012.3+0.322.021.5MMMMMM2018-07-23 02:01:21t3 34514453.230-98.2902018072301003009.011.01.26MMMM1010.9-0.316.116.7MMMMMM2018-07-23 02:01:21s2 34514344.940-80.6272018072301001006.08.00.84MMMM1011.9+2.220.319.3MMMMMM2018-07-23 02:01:21r1 34514242.740-79.290201807230100704.06.00.23MMMM1010.9+1.323.023.2MMMMMM2018-07-23 02:01:21 n‹¥5ÅQàno@ 34516742.186-80.137201807230119905.06.00.33MM41010.0MM21.122.5MMMMMM2018-07-23 02:01:21n? 34516541.702-83.261201807230140104.06.00.53MM47MMMM20.024.214.6MMMM2018-07-23 02:01:21q> 34516441.732-81.694201807230100203.0MMMMMMMMMM1010.5+1.318.723.7MMMMMM2018-07-23 02:01:21m= 34516343.986-83.5952018072301403507.08.00.63MM57MMMM18.922.2MMMMMM2018-07-23 02:01:21m< 34516244.988-83.271201807230140508.010.00.83MM99MMMM18.518.8MMMMMM2018-07-23 02:01:21n; 34516143.179-86.3572018072301403303.04.00.53MM321MMMM19.017.7MMMMMM2018-07-23 02:01:21r: 34515943.770-78.980201807230100502.03.00.27MMMM1011.6+1.421.520.7MMMMMM2018-07-23 02:01:21r9 34515446.050-82.640201807230100507.09.00.63MMMM1013.4+1.720.520.6MMMMMM2018-07-23 02:01:21 f‰§4ÁNÛfrH 34517641.550-81.765201807230140203.04.00.54MM291010.8MM20.423.817.8MMMM2018-07-23 02:01:21pG 34517545.825-84.772201807230150306.09.00.32MMMM1014.0MM23.220.7MMMMMM2018-07-23 02:01:21pF 34517442.135-87.6552018072301403305.06.01.57MM344MMMM20.520.320.5MMMM2018-07-23 02:01:21pE 34517346.573-86.5722018072301303105.0MM0.75MM231016.0MM10.415.5MMMMMM2018-07-23 02:01:21pD 34517246.740-85.9802018072301403004.0MM0.5MMMM3531016.9MM11.9MMMMMMMM2018-07-23 02:01:21mC 34517041.755-86.968201807230140702.03.01.36MM4MMMM21.321.618.5MMMM2018-07-23 02:01:21oB 34516941.615-81.821201807230140402.03.00.64MM106MMMM20.323.818.1MMMM2018-07-23 02:01:21tA 34516842.397-86.3312018072301403401.02.00.65MM3271012.7MM18.616.814.8MMMM2018-07-23 02:01:21 k• µAÐ]ãkuP 34600242.612-130.5372018072301403509.012.0MMMMMMMM1026.5MM15.416.112.8MMMM2018-07-23 02:01:21wO 34600156.304-147.92020180723005013010.012.01.874.7MM1024.7-1.312.512.8MMMMMM2018-07-23 02:01:21pN 345T0148.008-87.6662018072301403503.04.0MMMMMMMM1017.6MM8.14.27.0MMMM2018-07-23 02:01:21nM 34518742.491-87.779201807230140MM10.013.00.97MMMMMMMM20.220.1MMMMMM2018-07-23 02:01:21qL 34518344.982-85.8312018072301303506.07.0MMMMMMMM1014.7MM18.716.7MMMMMM2018-07-23 02:01:21hK 34518048.034-87.730201807230130MMMMMM0.343.163MMMMMM4.4MMMMMM2018-07-23 02:01:21rJ 34517844.603-73.3942018072301001605.0MMMMMMMMMM1015.8+0.021.722.6MMMMMM2018-07-23 02:01:21hI 34517741.894-87.613201807230000MMMMMM0.36MMMMMMMMMM18.6MMMMMM2018-07-23 02:01:21 K‰œ#°9ÂKtX 34602533.749-119.0532018072301402807.09.0MMMMMMMM1014.6MM21.421.720.2MMMM2018-07-23 02:01:21tW 34602240.720-124.5312018072301403502.03.0MMMMMMMM1020.1MM12.513.112.5MMMM2018-07-23 02:01:21tV 34601439.233-123.9672018072301401901.02.0MMMMMMMM1018.5MM14.614.614.0MMMM2018-07-23 02:01:21pU 34601338.238-123.3072018072301402804.05.0MMMMMMMM1018.7MMMM15.3MMMMMM2018-07-23 02:01:21vT 34601237.356-122.8812018072300502903.04.01.697.63221019.1-1.116.315.9MMMMMM2018-07-23 02:01:21wS 34601134.956-121.0192018072300503107.09.01.5175.91671017.9-0.916.115.9MMMMMM2018-07-23 02:01:21pR 34600546.140-131.07020180723014033010.011.0MMMMMMMM1027.2MMMMMMMMMMMM2018-07-23 02:01:21tQ 34600450.930-136.1002018072301002700.01.01.27MMMM1031.3-0.614.214.9MMMMMM2018-07-23 02:01:21 A‹› ©/¸At` 34605044.677-124.5152018072301403505.06.0MMMMMMMM1020.7MM12.511.612.4MMMM2018-07-23 02:01:21t_ 34604732.398-119.498201807230050MMMMMM1.5165.52101016.1-1.318.318.7MMMMMM2018-07-23 02:01:21w^ 34604236.785-122.3982018072300503007.08.01.5166.62031017.9-1.016.516.8MMMMMM2018-07-23 02:01:21t] 34603648.350-133.9402018072301003307.09.01.67MMMM1030.6-0.615.115.1MMMMMM2018-07-23 02:01:21x\ 34602946.143-124.4852018072300503408.09.01.575.03241020.5-1.214.214.313.5MMMM2018-07-23 02:01:21t[ 34602835.712-121.858201807230050MMMMMM1.4166.52291017.9-1.216.416.1MMMMMM2018-07-23 02:01:21vZ 34602741.852-124.3822018072300503002.02.01.886.83341019.2-0.811.512.2MMMMMM2018-07-23 02:01:21rY 34602637.754-122.8392018072301403004.06.0MMMMMMMM1019.2MM15.515.7MMMMMM2018-07-23 02:01:21 D‡›"¬0¸Dqh 34607553.983-160.817201807230050MMMMMM1.254.91191012.1-0.8MM11.1MMMMMM2018-07-23 02:01:21ug 34607251.672-172.0882018072300502406.07.01.495.92461017.0-0.69.48.99.3MMMM2018-07-23 02:01:21yf 34606933.674-120.21220180723005029011.013.01.7165.42491016.2-1.517.218.9MMMMMM2018-07-23 02:01:21se 34606652.785-155.047201807230050MMMMMM1.574.91741015.7-1.011.010.4MMMMMM2018-07-23 02:01:21vd 34606060.584-146.8052018072300502301.02.00.385.51691028.4-0.313.815.1MMMMMM2018-07-23 02:01:21tc 34605938.072-129.966201807230140309.012.0MMMMMMMM1021.9MM16.616.714.6MMMM2018-07-23 02:01:21rb 34605434.265-120.47720180723014030012.015.0MMMMMMMM1015.9MMMM17.6MMMMMM2018-07-23 02:01:21va 34605334.252-119.85320180723014026010.012.0MMMMMMMM1014.6MM19.720.518.9MMMM2018-07-23 02:01:21 G‘ %³:ÂGxp 34608632.491-118.0352018072300502909.010.01.3165.01871014.7-1.319.919.8MMMMMM2018-07-23 02:01:21uo 34608555.868-142.4922018072300502303.04.00.885.9MM1030.0-0.612.113.4MMMMMM2018-07-23 02:01:21vn 34608358.300-137.9972018072300503006.07.01.264.82881027.2-0.512.311.0MMMMMM2018-07-23 02:01:21om 34608259.681-143.372201807230050MMMMMM0.986.22351028.2-0.6MMMMMMMMMM2018-07-23 02:01:21xl 34608057.947-150.0422018072300501207.09.01.675.51931025.7-0.912.111.811.8MMMM2018-07-23 02:01:21sk 34607855.556-152.582201807230050MMMMMM1.375.41631018.9-0.811.8MM11.4MMMM2018-07-23 02:01:21xj 34607757.910-154.1752018072300505011.012.00.953.3591021.5-1.012.111.710.9MMMM2018-07-23 02:01:21li 34607659.502-147.9902018072300502401.02.01.187.0220MMMMMMMMMMMMMM2018-07-23 02:01:21 M‡”©5ÁMqx 34609946.986-124.5662018072223503306.0MMMMMMMMMM1021.2MM13.512.9MMMMMM2018-07-23 02:01:21qw 34609844.381-124.9562018072223503406.0MMMMMMMMMM1020.7MM14.412.7MMMMMM2018-07-23 02:01:21qv 34609744.639-124.3042018072223503605.0MMMMMMMMMM1020.1MM11.910.5MMMMMM2018-07-23 02:01:21ru 34609646.173-124.12720180723003034010.012.0MMMMMMMM1021.5MM9.99.8MMMMMM2018-07-23 02:01:21st 34609236.751-122.0292018072301042605.0MMMMMMMMMM1018.3-0.916.816.3MMMMMM2018-07-23 02:01:21ws 34608945.925-125.7712018072300503409.011.01.785.33211022.1-0.815.817.0MMMMMM2018-07-23 02:01:21vr 34608848.334-123.1652018072301202504.05.00.2MM5.2MM1019.6MM15.212.712.4MMMM2018-07-23 02:01:21vq 34608748.493-124.7262018072301202605.05.01.276.02921021.2MM13.613.112.9MMMM2018-07-23 02:01:21 k’#¯<ÑZâktŽ 34614649.340-123.7302018072301002803.04.00.23MMMM1019.5-2.020.419.2MMMMMM2018-07-23 02:01:21u 34614554.370-132.4402018072301002808.010.01.27MMMM1026.1-0.911.911.9MMMMMM2018-07-23 02:01:21t~ 34613149.910-124.9902018072301001601.02.00.13MMMM1020.1-1.520.318.9MMMMMM2018-07-23 02:01:21h} 34612843.293-124.537201807230100203.0MMMMMMMMMMMMMMMMMMMMMMMM2018-07-23 02:01:21p| 34612547.907-122.627201807230134MM5.0MMMMMMMMMM1018.6MM18.9MM12.3MMMM2018-07-23 02:01:21q{ 34611848.724-122.5762018072300552803.0MMMMMMMMMM1018.9MM20.7MM15.5MMMM2018-07-23 02:01:21lz 34611436.723-122.351201807230100MMMMMM1.5177.3213MMMMMM16.6MMMMMM2018-07-23 02:01:21ky 34610859.597-151.829201807230130MMMMMM0.343.0222MMMMMM13.1MMMMMM2018-07-23 02:01:21 F‡™#«3½FtŽ 34620750.870-129.9202018072301003206.07.01.27MMMM1025.8-0.713.913.9MMMMMM2018-07-23 02:01:21sŽ 34620554.190-134.3202018072301003208.010.01.46MMMM1027.8MM12.913.8MMMMMM2018-07-23 02:01:21uŽ 34620451.380-128.7702018072301003207.08.00.818MMMM1024.8-1.113.815.6MMMMMM2018-07-23 02:01:21uŽ 34618552.420-129.7902018072301003107.08.00.818MMMM1025.2-0.913.014.0MMMMMM2018-07-23 02:01:21sŽ 34618453.910-138.8502018072301002904.05.01.018MMMM1030.9MM13.214.1MMMMMM2018-07-23 02:01:21tŽ 34618353.620-131.100201807230100109.010.00.74MMMM1025.9-1.013.014.8MMMMMM2018-07-23 02:01:21tŽ 34618153.830-128.8302018072301002007.08.00.22MMMM1021.7-1.519.818.0MMMMMM2018-07-23 02:01:21vŽ 34614751.830-131.2202018072301003309.011.01.118MMMM1026.2-1.013.714.0MMMMMM2018-07-23 02:01:21 ƒˆ¬>ÏaòƒlŽ 34621933.225-119.882201807230130MMMMMM2.0156.5196MMMMMM18.2MMMMMM2018-07-23 02:01:21lŽ 34621834.454-120.783201807230130MMMMMM1.5176.1205MMMMMM17.3MMMMMM2018-07-23 02:01:21kŽ 34621734.167-119.435201807230121MMMMMM1.664.6276MMMMMM19.4MMMMMM2018-07-23 02:01:21lŽ  34621535.204-120.859201807230127MMMMMM1.1177.0213MMMMMM13.7MMMMMM2018-07-23 02:01:21kŽ  34621437.950-123.472201807230130MMMMMM1.697.6339MMMMMM15.8MMMMMM2018-07-23 02:01:21kŽ  34621340.295-124.732201807230130MMMMMM1.887.2335MMMMMM15.6MMMMMM2018-07-23 02:01:21kŽ  34621146.858-124.244201807230130MMMMMM1.374.9303MMMMMM11.9MMMMMM2018-07-23 02:01:21uŽ  34620852.520-132.6902018072301003208.010.01.47MMMM1027.0-1.013.513.3MMMMMM2018-07-23 02:01:21 ‘"³DÖgú‹lŽ 34624036.626-121.907201807230121MMMMMM0.7176.7358MMMMMM15.3MMMMMM2018-07-23 02:01:21lŽ 34623936.343-122.096201807230130MMMMMM1.4178.0213MMMMMM16.1MMMMMM2018-07-23 02:01:21jŽ 34623737.786-122.634201807230100MMMMMM1.017MMMMMMMMMM16.4MMMMMM2018-07-23 02:01:21lŽ 34623232.530-117.421201807230130MMMMMM1.2175.5204MMMMMM22.7MMMMMM2018-07-23 02:01:21kŽ 34622943.769-124.547201807230123MMMMMM1.986.0327MMMMMM11.2MMMMMM2018-07-23 02:01:21lŽ 34622532.933-117.391201807230051MMMMMM1.2175.9206MMMMMM23.9MMMMMM2018-07-23 02:01:21lŽ 34622433.178-117.472201807230130MMMMMM1.2175.5195MMMMMM24.1MMMMMM2018-07-23 02:01:21lŽ 34622233.618-118.317201807230130MMMMMM1.0174.1215MMMMMM20.9MMMMMM2018-07-23 02:01:21lŽ 34622133.855-118.634201807230130MMMMMM1.5154.7199MMMMMM22.2MMMMMM2018-07-23 02:01:21 ‘#µGØiýŽlŽ" 34625832.752-117.501201807230130MMMMMM1.3155.6199MMMMMM23.7MMMMMM2018-07-23 02:01:21lŽ! 34625633.700-118.201201807230130MMMMMM1.0175.4198MMMMMM19.0MMMMMM2018-07-23 02:01:21iŽ  34625432.868-117.267201807230100MMMMMM0.84MMMMMMMMMM23.3MMMMMM2018-07-23 02:01:21lŽ 34625333.576-118.181201807230130MMMMMM1.1174.6125MMMMMM21.4MMMMMM2018-07-23 02:01:21lŽ 34625133.761-119.559201807230130MMMMMM1.6175.1186MMMMMM19.2MMMMMM2018-07-23 02:01:21kŽ 34624846.129-124.647201807230125MMMMMM1.785.2323MMMMMM15.3MMMMMM2018-07-23 02:01:21kŽ 34624440.896-124.357201807230130MMMMMM1.886.9330MMMMMM13.1MMMMMM2018-07-23 02:01:21kŽ 34624346.216-124.128201807230130MMMMMM1.585.1293MMMMMM15.0MMMMMM2018-07-23 02:01:21lŽ 34624233.220-117.439201807230128MMMMMM1.3175.6219MMMMMM22.8MMMMMM2018-07-23 02:01:21 i‘#·?ÈSÛioŽ* 35100417.602-152.395201807230140807.09.0MMMMMMMMMMMM26.826.924.4MMMM2018-07-23 02:01:21uŽ) 35100319.289-160.569201807230050606.08.01.7176.1511013.6-0.926.727.3MMMMMM2018-07-23 02:01:21rŽ( 35100217.037-157.696201807230140608.010.0MMMMMMMM1012.7MM26.8MM22.6MMMM2018-07-23 02:01:21tŽ' 35100023.538-153.808201807230050708.09.01.665.4681016.9-0.625.325.7MMMMMM2018-07-23 02:01:21uŽ& 346T2946.141-124.5742018072301403408.010.0MMMMMMMM1020.9MM14.715.113.7MMMM2018-07-23 02:01:21iŽ% 34626564.472-165.474201807230100MMMMMM0.57MMMMMMMMMM14.9MMMMMM2018-07-23 02:01:21kŽ$ 34626233.704-119.004201807230130MMMMMM1.454.8265MMMMMM22.2MMMMMM2018-07-23 02:01:21lŽ# 34625934.732-121.664201807230122MMMMMM1.7177.6205MMMMMM17.0MMMMMM2018-07-23 02:01:21 '“&¹Lßp–'lŽ3 35121221.323-158.149201807230130MMMMMM1.0158.5183MMMMMM27.2MMMMMM2018-07-23 02:01:21jŽ2 35121121.297-157.959201807230100MMMMMM0.915MMMMMMMMMM26.9MMMMMM2018-07-23 02:01:21jŽ1 35121021.477-157.756201807230130MMMMMM1.475.254MMMMMM26.4MMMMMM2018-07-23 02:01:21lŽ0 351209-14.264-170.493201807230130MMMMMM1.9106.294MMMMMM28.2MMMMMM2018-07-23 02:01:21jŽ/ 35120822.285-159.574201807230136MMMMMM1.675.167MMMMMM27.2MMMMMM2018-07-23 02:01:21jŽ. 35120721.477-157.752201807230124MMMMMM1.475.260MMMMMM26.2MMMMMM2018-07-23 02:01:21jŽ- 35120619.780-154.970201807230127MMMMMM1.576.168MMMMMM26.7MMMMMM2018-07-23 02:01:21jŽ, 35120521.018-156.425201807230130MMMMMM1.375.143MMMMMM26.3MMMMMM2018-07-23 02:01:21jŽ+ 35120221.415-157.678201807230134MMMMMM1.565.337MMMMMM26.9MMMMMM2018-07-23 02:01:21 ‘%¸NàsŠmŽ< 36203050.250-4.217201807230100MMMMMMMMMMMMMM1017.9MM17.3MM16.0MMMM2018-07-23 02:01:21uŽ; 36202948.720-12.4302018072301002304.6MM0.7MMMMMM1019.1-0.817.318.416.0MMMM2018-07-23 02:01:21nŽ: 36200145.230-5.000201807230100603.6MM0.75MMMM1019.1MM20.8MM17.3MMMM2018-07-23 02:01:21jŽ9 35221115.268145.662201807230130MMMMMM1.685.9239MMMMMM29.5MMMMMM2018-07-23 02:01:21kŽ8 35220213.684144.812201807230130MMMMMM1.5105.9320MMMMMM29.3MMMMMM2018-07-23 02:01:21gŽ7 3522017.083171.392201807230115MMMMMM1.08MMMMMMMMMM29.7MMMMMM2018-07-23 02:01:21jŽ6 35220013.354144.788201807230130MMMMMM1.0105.676MMMMMM29.3MMMMMM2018-07-23 02:01:21iŽ5 351WH022.750-157.917201807230030MMMMMMMMMMMMMMMMMMMM26.0MMMMMM2018-07-23 02:01:21lŽ4 35121320.750-157.003201807230130MMMMMM1.2159.7165MMMMMM27.4MMMMMM2018-07-23 02:01:21 X(±>ËXpŽD 36212453.600-3.600201807230100180MMMMMMMMMMMM1016.0-0.418.4MM16.4MMMM2018-07-23 02:01:21pŽC 36212153.5002.7002018072301002103.6MMMMMMMMMM1016.6+0.117.2MM14.9MMMM2018-07-23 02:01:21pŽB 36211458.3000.0002018072301001104.1MMMMMMMMMM1012.0-1.016.0MM14.5MMMM2018-07-23 02:01:21tŽA 36210750.102-6.1002018072301002703.6MM0.6MMMMMM1019.1-0.318.319.016.1MMMM2018-07-23 02:01:21rŽ@ 36210349.900-2.9002018072301002704.6MM0.5MMMMMM1018.7-0.217.6MM16.411MM2018-07-23 02:01:21uŽ? 36209553.040-15.5302018072301002605.1MM1.2MMMMMM1014.9-0.914.515.112.6MMMM2018-07-23 02:01:21uŽ> 36208151.000-13.5502018072301002106.7MM1.2MMMMMM1016.2-1.017.117.617.1MMMM2018-07-23 02:01:21pŽ= 36205050.000-4.4002018072301002904.1MM0.4MMMMMM1018.5MM18.8MM17.3MMMM2018-07-23 02:01:21 h§4ÁNÚhoŽL 36215053.6000.7002018072301002504.6MM0.3MMMMMM1016.9+0.119.7MMMM11MM2018-07-23 02:01:21qŽK 36214953.7001.1002018072301002206.7MM0.2MMMMMM1016.1-0.218.5MM15.411MM2018-07-23 02:01:21pŽJ 36214853.6001.5002018072301001906.2MMMMMMMMMM1016.1-0.118.2MM15.5MMMM2018-07-23 02:01:21pŽI 36214657.2002.1002018072301002305.7MM0.6MMMMMM1012.5-0.917.1MM16.75MM2018-07-23 02:01:21pŽH 36214553.1022.8002018072301002003.1MM0.3MMMMMM1017.0+0.117.4MM12.32MM2018-07-23 02:01:21qŽG 36214453.4001.7002018072301002006.2MM0.3MMMMMM1016.3-0.119.0MM15.211MM2018-07-23 02:01:21oŽF 36213554.2001.600201807230100170MMMMMMMMMMMM1015.6-0.517.6MM16.4MMMM2018-07-23 02:01:21pŽE 36213058.7001.300201807230100140MMMM0.6MMMMMM1012.4-0.615.9MM13.511MM2018-07-23 02:01:21 d¦0ºEÖdoŽT 36310561.0001.6922018072301002506.7MMMMMMMMMM1010.7+0.314.4MM10.65MM2018-07-23 02:01:21lŽS 36244249.000-16.5002018072301003205.7MMMMMMMMMM1018.5MMMMMMMMMMMM2018-07-23 02:01:21rŽR 36230550.4000.0002018072301002207.7MM0.2MMMMMM1017.9+0.117.617.315.75MM2018-07-23 02:01:21sŽQ 36230451.1021.8002018072301002208.8MM0.1MMMMMM1017.1+0.318.517.816.011MM2018-07-23 02:01:21sŽP 36217051.2402.0002018072301002206.2MM0.0MMMMMM1016.5+1.118.418.116.9MMMM2018-07-23 02:01:21qŽO 36216554.0001.1002018072301001804.1MM0.3MMMMMM1015.7-0.417.8MM15.311MM2018-07-23 02:01:21pŽN 36216457.2000.8002018072301002305.7MMMMMMMMMM1012.0-0.618.4MM16.511MM2018-07-23 02:01:21pŽM 36216347.550-8.4702018072301003102.1MM0.8MMMMMM1020.1MM18.1MM13.9MMMM2018-07-23 02:01:21 hŒ«7ÈQÝhrŽ\ 3AAMC137.772-122.3002018072301302803.15.1MMMMMMMM1018.2MM18.721.6MMMMMM2018-07-23 02:01:21qŽ[ 36404660.483-4.1672018072301002404.1MM1.4MMMMMM1009.9MM11.312.19.8MMMM2018-07-23 02:01:21tŽZ 36404559.070-11.4202018072301002207.2MM1.6MMMMMM1008.0-1.211.713.19.6MMMM2018-07-23 02:01:21lŽY 36311761.4001.1002018072301002406.7MMMMMMMMMM1010.9+0.5MMMMMM11MM2018-07-23 02:01:21qŽX 36311561.6001.3002018072301002307.2MM1.3MMMMMM1010.2+0.511.9MM11.427MM2018-07-23 02:01:21kŽW 36311361.0001.7082018072301002606.2MM1.0MMMMMMMMMM13.2MM10.1MMMM2018-07-23 02:01:21pŽV 36311261.1001.0002018072301002805.7MM1.0MMMMMM1010.6+0.512.6MM8.911MM2018-07-23 02:01:21qŽU 36311059.5001.5002018072301002404.1MM0.9MMMMMM1011.9+0.015.3MM12.511MM2018-07-23 02:01:21 pŽª;ÈSßplŽd 3ALXN644.331-75.934201807230130MMMMMMMMMMMMMM1014.5MMMM23.4MMMMMM2018-07-23 02:01:21qŽc 3ALIA256.898-154.247201807230130904.16.2MMMMMMMM1019.7MM12.411.9MMMMMM2018-07-23 02:01:21rŽb 3AJXA258.287-134.3982018072301441302.64.1MMMMMMMM1022.5MM19.7MM11.4MMMM2018-07-23 02:01:21pŽa 3AGXC133.716-118.2462018072301302407.28.8MMMMMMMM1014.3MM21.9MMMMMMMM2018-07-23 02:01:21lŽ` 3AGCM442.621-82.527201807230130MMMMMMMMMMMMMM1011.2MM17.5MMMMMMMM2018-07-23 02:01:21pŽ_ 3ADKA251.861-176.6372018072301302806.78.2MMMMMMMM1015.9MM9.96.8MMMMMM2018-07-23 02:01:21nŽ^ 3ACYN439.357-74.418201807230130MMMMMMMMMMMMMM1015.1MM24.323.4MMMMMM2018-07-23 02:01:21oŽ] 3ACXS132.559-80.454201807230045MM0.0MMMMMMMMMM1007.0MM26.8MM25.4MMMM2018-07-23 02:01:21 e‹¦2½HÙeqŽl 3APCF129.724-84.9802018072301302802.14.6MMMMMMMM1009.2MM28.930.2MMMMMM2018-07-23 02:01:21lŽk 3APAM238.983-76.479201807230130MMMMMMMMMMMMMM1011.4MM23.5MMMMMMMM2018-07-23 02:01:21rŽj 3ANVC138.915-123.7112018072301302701.52.1MMMMMMMM1019.7MM15.114.6MMMMMM2018-07-23 02:01:21rŽi 3ANTA261.238-149.8902018072301302504.15.7MMMMMMMM1024.8MM15.715.0MMMMMM2018-07-23 02:01:21qŽh 3ANPT227.837-97.0392018072301301505.16.2MMMMMMMM1011.4MM27.729.4MMMMMM2018-07-23 02:01:21nŽg 3ANMN642.018-73.917201807230130MMMMMMMMMMMMMM1017.0MM24.5MM20.9MMMM2018-07-23 02:01:21qŽf 3AMRL129.450-91.3382018072301302402.66.2MMMMMMMM1011.1MM30.232.0MMMMMM2018-07-23 02:01:21rŽe 3AMAA258.915-151.9522018072301301007.79.3MMMMMMMM1025.9MM11.1MM10.7MMMM2018-07-23 02:01:21 t“°DÑ\ètqŽt 3ATKA252.232-174.1732018072301303104.65.1MMMMMMMM1015.3MM11.36.8MMMMMM2018-07-23 02:01:21qŽs 3ATGM144.392-68.2042018072301301506.77.7MMMMMMMM1025.2MM16.513.1MMMMMM2018-07-23 02:01:21rŽr 3ASTO346.207-123.7682018072301302404.65.7MMMMMMMM1019.0MM21.320.6MMMMMM2018-07-23 02:01:21pŽq 3ARPF128.433-82.667201807222354706.28.8MMMMMMMM1011.6MM25.5MMMMMM1.642018-07-23 02:01:21iŽp 3AROP418.480-66.7022018072301301302.12.6MMMMMMMMMMMMMMMMMMMMMM2018-07-23 02:01:21lŽo 3APXF129.791-84.8832018072300452603.1MMMMMMMMMMMMMM28.7MM26.0MMMM2018-07-23 02:01:21qŽn 3APRP713.444144.6572018072301302104.67.2MMMMMMMM1007.0MM29.429.3MMMMMM2018-07-23 02:01:21jŽm 3APNM445.060-83.424201807230140505.17.2MMMMMMMMMMMM18.4MMMMMMMM2018-07-23 02:01:21 p‹£2ÁUápnŽ| 3BDSP139.980-75.079201807230130MMMMMMMMMMMMMM1014.4MM26.427.6MMMMMM2018-07-23 02:01:21qŽ{ 3BDRN440.082-74.8702018072300361402.64.1MMMMMMMM1013.4MM25.527.0MMMMMM2018-07-23 02:01:21iŽz 3BAXC133.766-118.240201807230118MM0.00.5MMMMMMMMMMMMMMMMMMMMMM2018-07-23 02:01:21nŽy 3BATN640.701-74.014201807230130MMMMMMMMMMMMMM1017.0MM24.122.9MMMMMM2018-07-23 02:01:21nŽx 3BARA917.591-61.821201807230130MMMMMMMMMMMMMM1015.4MM26.028.4MMMMMM2018-07-23 02:01:21qŽw 3BABT227.297-97.4052018072301301206.79.8MMMMMMMM1012.4MM28.131.3MMMMMM2018-07-23 02:01:21qŽv 3AWRT228.227-96.7962018072301301706.79.3MMMMMMMM1012.0MM28.431.3MMMMMM2018-07-23 02:01:21rŽu 3AUGA259.378-153.3482018072301301304.65.7MMMMMMMM1026.1MM10.8MM10.8MMMM2018-07-23 02:01:21 {’!¬;Ì]ì{n 3BIGM446.827-87.727201807230140101.53.1MMMMMMMM1016.6MM16.4MMMMMMMM2018-07-23 02:01:21n 3BHRI341.646-87.147201807230140501.52.1MMMMMMMM1013.2MM21.0MMMMMMMM2018-07-23 02:01:21l 3BHBM342.355-71.050201807230130MMMMMMMMMMMMMM1020.4MM24.3MMMMMMMM2018-07-23 02:01:21l 3BGXN343.059-70.8302018072300451101.5MMMMMMMMMMMMMM21.5MM21.0MMMM2018-07-23 02:01:21n 3BGNN440.639-74.146201807230130MMMMMMMMMMMMMM1016.0MM24.024.9MMMMMM2018-07-23 02:01:21rŽ 3BFTN734.717-76.6712018072301301507.211.3MMMMMMMM1010.9MM26.328.2MMMMMM2018-07-23 02:01:21nŽ~ 3BEPB632.374-64.701201807230130901.52.1MMMMMMMM1023.7MMMM27.7MMMMMM2018-07-23 02:01:21kŽ} 3BDVF125.478-80.989201807230100MMMMMMMMMMMMMMMMMMMM32.5MMMM-0.212018-07-23 02:01:21 v‹ ²?Ê[èvo  3BLTM341.704-71.1742018072301301505.79.3MMMMMMMM1020.7MM24.3MMMMMMMM2018-07-23 02:01:21p  3BLTM239.267-76.579201807230130502.63.1MMMMMMMM1011.7MM22.326.2MMMMMM2018-07-23 02:01:21l  3BLTA258.455-135.8892018072301262202.64.1MMMMMMMMMMMM17.5MMMMMMMM2018-07-23 02:01:21r  3BLIF130.393-81.5232018072301302107.29.8MMMMMMMM1008.9MM23.2MM23.25.9MM2018-07-23 02:01:21p 3BLIA260.839-146.8842018072301302201.51.5MMMMMMMM1027.7MM13.9MMMMMMMM2018-07-23 02:01:21k 3BKYF125.119-80.834201807230100MMMMMMMMMMMMMMMMMMMM31.2MMMM-0.452018-07-23 02:01:21h 3BKTL130.190-93.301201807230130MMMMMMMMMMMMMMMMMMMM32.1MMMMMM2018-07-23 02:01:21r 3BISM238.220-76.0392018072301301308.810.8MMMMMMMM1011.8MM26.628.7MMMMMM2018-07-23 02:01:21 p’$°>Í[èpu 3BURL128.905-89.42820180723010027013.414.9MMMMMMMM1010.6-0.029.8MM26.4MMMM2018-07-23 02:01:21p 3BUFN642.878-78.890201807230130701.02.1MMMMMMMM1012.4MM24.5MM14.7MMMM2018-07-23 02:01:21o 3BSLM238.781-76.708201807230030901.0MMMMMMMMMM1011.0MM18.5MM18.2MMMM2018-07-23 02:01:21n 3BSBM444.055-86.514201807230140204.66.7MMMMMMMM1014.6MM18.3MMMMMMMM2018-07-23 02:01:21o 3BRND138.987-75.1132018072301301609.39.8MMMMMMMM1014.1MM24.4MMMMMMMM2018-07-23 02:01:21q 3BRHC341.174-73.1812018072301241205.17.7MMMMMMMM1017.1MM22.923.5MMMMMM2018-07-23 02:01:21k 3BOBF125.027-80.681201807230100MMMMMMMMMMMMMMMMMMMM31.6MMMM-0.302018-07-23 02:01:21k  3BNKF125.087-80.519201807230100MMMMMMMMMMMMMMMMMMMM31.5MMMM-0.582018-07-23 02:01:21 uŒª9ÇVéuq 3CAPL129.768-93.3432018072301302606.28.8MMMMMMMM1011.0MM29.731.1MMMMMM2018-07-23 02:01:21j 3CANF125.422-80.942201807230100MMMMMMMMMMMMMMMMMMMM31.8MMMM0.502018-07-23 02:01:21n 3CAMM238.574-76.069201807230130MMMMMMMMMMMMMM1012.7MM25.126.8MMMMMM2018-07-23 02:01:21o 3BZST226.067-97.1552018072301301604.65.7MMMMMMMM1011.7MM27.4MMMMMMMM2018-07-23 02:01:21n 3BZBM341.524-70.671201807230130MMMMMMMMMMMMMM1021.5MM23.221.9MMMMMM2018-07-23 02:01:21q 3BYGL129.789-90.4202018072301302602.14.1MMMMMMMM1010.6MM29.332.3MMMMMM2018-07-23 02:01:21k 3BWSF125.178-80.438201807230000MMMMMMMMMMMMMMMMMMMM32.0MMMM-0.432018-07-23 02:01:21q 3BUZM341.397-71.0332018072301001309.39.8MMMMMMMM1020.7+1.120.6MMMMMMMM2018-07-23 02:01:21 n•$±<ÉTánp$ 3CHAO343.351-124.3372018072300363401.52.6MMMMMMMM1020.7MMMM11.1MMMMMM2018-07-23 02:01:21p# 3CFWM144.657-67.205201807230130MM0.03.1MMMMMMMM1025.6MM15.911.0MMMMMM2018-07-23 02:01:21r" 3CECC141.746-124.1842018072301302102.12.6MMMMMMMM1019.3MM12.914.2MMMMMM2018-07-23 02:01:21p! 3CDXA256.001-134.1362018072301433004.65.7MMMMMMMM1025.9MM9.7MM8.8MMMM2018-07-23 02:01:21r  3CDRF129.136-83.029201807230100908.29.8MMMMMMMM1012.5+1.722.4MM21.3MMMM2018-07-23 02:01:21p 3CBLO141.981-80.556201807230100603.14.1MMMMMMMM1010.8+1.020.6MMMMMMMM2018-07-23 02:01:21n 3CASM143.656-70.246201807230130MMMMMMMMMMMMMM1023.0MM20.815.7MMMMMM2018-07-23 02:01:21h 3CARL129.933-90.135201807230130MMMMMMMMMMMMMMMMMMMM31.3MMMMMM2018-07-23 02:01:21 z¬<ÍZèzk, 3CHYW148.863-122.759201807230130MMMMMMMMMMMMMM1019.7MMMMMMMMMMMM2018-07-23 02:01:21o+ 3CHYV236.926-76.0072018072301301406.79.3MMMMMMMM1009.3MM25.5MMMMMMMM2018-07-23 02:01:21p* 3CHTS132.781-79.924201807230130603.13.6MMMMMMMM1008.4MM26.629.5MMMMMM2018-07-23 02:01:21l) 3CHSV317.748-64.699201807230130801.03.6MMMMMMMMMMMM27.228.5MMMMMM2018-07-23 02:01:21m( 3CHII241.916-87.5722018072301303307.28.2MMMMMMMMMMMM20.6MM20.2MMMM2018-07-23 02:01:21j' 3CHDS133.661-82.199201807230140202.12.1MMMMMMMMMMMM27.4MMMMMMMM2018-07-23 02:01:21q& 3CHCM239.527-75.8102018072301301201.01.5MMMMMMMM1013.4MM22.826.2MMMMMM2018-07-23 02:01:21p% 3CHBV237.032-76.0832018072301301509.810.8MMMMMMMM1009.9MM26.0MMMMMMMM2018-07-23 02:01:21 lŽ©5ÁMßlp4 3CNDO141.542-81.637201807230130302.64.1MMMMMMMM1010.6MM19.8MM15.8MMMM2018-07-23 02:01:21k3 3CNBF125.702-81.186201807230100MMMMMMMMMMMMMMMMMMMM32.5MMMM-0.202018-07-23 02:01:21q2 3CMTI241.730-87.5382018072301303303.16.2MMMMMMMM1012.5MM20.5MM20.1MMMM2018-07-23 02:01:21q1 3CMAN438.968-74.9602018072301301305.17.2MMMMMMMM1013.5MM24.623.5MMMMMM2018-07-23 02:01:21q0 3CLSM442.471-82.8772018072301003100.53.1MMMMMMMM1011.9+1.118.2MMMMMMMM2018-07-23 02:01:21q/ 3CLKN734.622-76.52520180723010016012.416.0MMMMMMMM1010.5+1.2MMMMMMMMMM2018-07-23 02:01:21n. 3CLBP418.301-65.302201807230130MMMMMMMMMMMMMM1016.2MM28.029.5MMMMMM2018-07-23 02:01:21o- 3CLBF127.736-82.6922018072300542507.79.3MMMMMMMM1010.1MM32.2MMMMMMMM2018-07-23 02:01:21 m­7ÉUâmr< 3CRVA260.558-145.7522018072301302303.14.1MMMMMMMM1027.5MM14.613.2MMMMMM2018-07-23 02:01:21p; 3CRTA130.308-88.1402018072301002608.2MMMMMMMMMM1008.1+1.031.6MMMMMMMM2018-07-23 02:01:21q: 3CPXC135.170-120.741201807230146MM0.01.0MMMMMMMM1018.1MM22.9MM14.7MMMM2018-07-23 02:01:21k9 3CPVM238.995-76.388201807230130MMMMMMMMMMMMMMMMMM24.6MM24.65.9MM2018-07-23 02:01:21s8 3CPTR141.717-71.34520180723013014010.312.9MMMMMMMM1020.3MM23.524.1MMMMMM2018-07-23 02:01:21n7 3CPMW148.860-122.7562018072301301301.01.0MMMMMMMMMMMM18.814.9MMMMMM2018-07-23 02:01:21o6 3COVM238.402-76.3852018072301301304.65.7MMMMMMMM1011.9MM25.0MMMMMMMM2018-07-23 02:01:21m5 3CNII241.856-87.6092018072301453505.18.2MMMMMMMMMMMM20.3MM18.4MMMM2018-07-23 02:01:21 jŽ©5ÃPÜjoD 3DESW147.675-124.485201807230100MMMMMMMMMMMMMM1021.4-1.413.9MMMMMMMM2018-07-23 02:01:21qC 3DELD139.582-75.5892018072301301605.77.2MMMMMMMM1013.5MM25.424.4MMMMMM2018-07-23 02:01:21pB 3DBLN642.494-79.354201807230100505.76.2MMMMMMMM1011.1+1.222.1MMMMMMMM2018-07-23 02:01:21oA 3CWSEC44.233-79.7792018072301402601.03.0MMMMMMMM1038.5MM30.8MMMMMMMM2018-07-23 02:01:21q@ 3CWBF127.978-82.8322018072301302408.89.8MMMMMMMM1011.2MM29.830.9MMMMMM2018-07-23 02:01:21k? 3CWAF125.297-81.013201807230000MMMMMMMMMMMMMMMMMMMM31.9MMMM-0.442018-07-23 02:01:21t> 3CSPA258.199-136.64020180723011031012.915.4MMMMMMMM1028.4MM10.4MM10.4MMMM2018-07-23 02:01:21o= 3CRYV236.888-76.3382018072301302203.66.2MMMMMMMM1010.2MM27.6MMMMMMMM2018-07-23 02:01:21 nŠ±?ÉVánpL 3DRSD139.089-75.4372018072300301303.1MMMMMMMMMM1012.0MM25.1MM25.1MMMM2018-07-23 02:01:21rK 3DRFA260.553-152.1372018072301301904.15.1MMMMMMMM1025.0MM13.9MM10.2MMMM2018-07-23 02:01:21pJ 3DPXC138.056-122.2642018072301302305.76.7MMMMMMMM1016.4MM22.2MMMMMMMM2018-07-23 02:01:21sI 3DPIA130.250-88.0752018072301002606.29.3MMMMMMMM1008.1-0.031.8MM24.0MMMM2018-07-23 02:01:21oH 3DOMV236.962-76.4242018072301301506.28.2MMMMMMMM1010.4MM27.7MMMMMMMM2018-07-23 02:01:21hG 3DMSF130.387-81.559201807230130MMMMMMMMMMMMMMMMMMMM28.8MMMMMM2018-07-23 02:01:21kF 3DKKF125.180-80.490201807230000MMMMMMMMMMMMMMMMMMMM31.6MMMM-0.172018-07-23 02:01:21sE 3DISW347.079-90.7282018072301003501.52.1MMMMMMMM1019.4-0.417.3MM11.2MMMM2018-07-23 02:01:21 `¦1ºHÔ`qT 3EMAT228.710-95.9142018072301301805.76.7MMMMMMMM1012.0MM28.833.1MMMMMM2018-07-23 02:01:21qS 3ELXC136.815-121.7382018072300452903.1MMMMMMMMMM1019.0MM18.9MM15.4MMMM2018-07-23 02:01:21oR 3ELFA258.193-136.347201807230130MMMMMMMMMMMMMM1028.0MM12.210.3MMMMMM2018-07-23 02:01:21tQ 3EINL129.373-91.3842018072301303009.311.8MMMMMMMM1010.9MM30.230.825.4MMMM2018-07-23 02:01:21rP 3EBSW147.602-122.3382018072301303303.16.2MMMMMMMM1019.0MM27.212.7MMMMMM2018-07-23 02:01:21pO 3DULM546.776-92.092201807230130701.02.1MMMMMMMM1018.7MM18.3MM13.6MMMM2018-07-23 02:01:21qN 3DUKN736.184-75.7462018072301301506.27.2MMMMMMMM1011.3MM24.322.1MMMMMM2018-07-23 02:01:21pM 3DTLM445.993-83.898201807230130305.76.2MMMMMMMM1013.1MM21.6MM18.9MMMM2018-07-23 02:01:21 iŒ!¬9ÆSÝiq\ 3FCGT228.943-95.3022018072301302005.16.7MMMMMMMM1012.8MM28.830.5MMMMMM2018-07-23 02:01:21s[ 3FBIS132.685-79.8882018072301002106.78.2MMMMMMMM1008.4+1.129.0MM26.2MMMM2018-07-23 02:01:21pZ 3FAIO141.764-81.281201807230130303.64.1MMMMMMMM1010.6MM20.1MM18.2MMMM2018-07-23 02:01:21pY 3ESPP418.094-65.471201807230130702.14.6MMMMMMMM1015.7MM27.529.0MMMMMM2018-07-23 02:01:21pX 3ERXA258.971-135.2212018072301431802.13.1MMMMMMMM1024.7MM19.3MMMMMMMM2018-07-23 02:01:21rW 3EROA258.971-135.2212018072301242102.63.1MMMMMMMM1021.9MM19.6MM14.6MMMM2018-07-23 02:01:21hV 3EREP142.172-80.098201807230130803.65.1MMMMMMMMMMMMMMMMMMMMMM2018-07-23 02:01:21qU 3EPTT229.481-94.9172018072301302306.78.2MMMMMMMM1011.7MM29.731.5MMMMMM2018-07-23 02:01:21 `‹¢.ºFÒ`od 3FPTM445.619-86.6602018072301403503.16.7MMMMMMMM1014.6MM18.6MMMMMMMM2018-07-23 02:01:21qc 3FPKG132.035-80.9032018072301302301.02.1MMMMMMMM1008.3MM28.529.2MMMMMM2018-07-23 02:01:21qb 3FOXR141.807-71.4012018072301301905.18.8MMMMMMMM1020.2MM23.923.1MMMMMM2018-07-23 02:01:21qa 3FMRF126.647-81.8712018072301302802.12.6MMMMMMMM1012.7MM29.731.6MMMMMM2018-07-23 02:01:21q` 3FMOA130.228-88.02420180723013028010.311.8MMMMMMMM1008.2MM30.3MMMMMMMM2018-07-23 02:01:21r_ 3FILA259.332-151.995201807230130809.311.8MMMMMMMM1025.1MM13.6MM10.2MMMM2018-07-23 02:01:21q^ 3FHPF128.153-82.8012018072300542607.78.8MMMMMMMM1011.1MM30.0MMMMMM2.482018-07-23 02:01:21r] 3FFIA257.272-133.6302018072301002402.12.6MMMMMMMM1024.1-1.318.4MMMMMMMM2018-07-23 02:01:21 {‘©7Î]é{kl 3FRXM341.696-71.180201807230130MMMMMMMMMMMMMMMMMM24.0MM22.55.9MM2018-07-23 02:01:21qk 3FRWL129.552-92.3052018072301302605.16.2MMMMMMMM1011.3MM28.930.1MMMMMM2018-07-23 02:01:21nj 3FRVM341.704-71.164201807230130MMMMMMMMMMMMMM1021.2MM23.923.7MMMMMM2018-07-23 02:01:21fi 3FRFN736.190-75.739201807230000MMMMMM1.07MM81MMMMMMMMMMMMMM2018-07-23 02:01:21oh 3FREL130.106-90.4222018072301302402.14.6MMMMMMMM1009.0MM30.8MMMMMMMM2018-07-23 02:01:21qg 3FRDW148.545-123.012201807230036202.63.6MMMMMMMM1019.6MM25.013.3MMMMMM2018-07-23 02:01:21qf 3FRDF130.675-81.4652018072301302604.66.2MMMMMMMM1009.6MM23.728.3MMMMMM2018-07-23 02:01:21le 3FRCB632.370-64.695201807230130MMMMMMMMMMMMMM1024.0MM26.1MMMMMMMM2018-07-23 02:01:21 v±=ÈRävkt 3GBTF125.167-80.801201807230100MMMMMMMMMMMMMMMMMMMM31.9MMMM-0.322018-07-23 02:01:21ks 3GBIF125.378-81.029201807230100MMMMMMMMMMMMMMMMMMMM32.1MMMM-0.502018-07-23 02:01:21sr 3FWYF125.591-80.0972018072301002206.27.2MMMMMMMM1013.8+0.829.529.6MMMMMM2018-07-23 02:01:21rq 3FTPC137.806-122.4662018072301302605.18.8MMMMMMMM1018.4MM16.317.0MMMMMM2018-07-23 02:01:21qp 3FTGM443.007-82.4222018072301302401.53.1MMMMMMMM1010.6MM17.1MM15.2MMMM2018-07-23 02:01:21jo 3FSTI241.976-87.6482018072300003405.7MMMMMMMMMMMMMM20.1MMMMMMMM2018-07-23 02:01:21nn 3FSNM239.219-76.525201807230130503.14.6MMMMMMMM1011.9MM21.9MMMMMMMM2018-07-23 02:01:21nm 3FSKM239.219-76.528201807230130402.12.6MMMMMMMM1011.8MM22.6MMMMMMMM2018-07-23 02:01:21 k¦9ÅQßkq| 3GRRT229.302-94.8962018072301302207.29.8MMMMMMMM1011.7MM29.431.2MMMMMM2018-07-23 02:01:21o{ 3GRMM446.684-85.9722018072301402904.65.1MMMMMMMM1016.9MM14.4MMMMMMMM2018-07-23 02:01:21qz 3GRIM446.721-87.4122018072301503206.77.2MMMMMMMM1017.2MM14.4MM12.8MMMM2018-07-23 02:01:21qy 3GNJT229.357-94.7252018072301302207.79.3MMMMMMMM1011.1MM29.430.8MMMMMM2018-07-23 02:01:21jx 3GKYF124.627-82.872201807230100MMMMMMMMMMMMMMMMMM30.0MMMMMM0.672018-07-23 02:01:21sw 3GISL129.265-89.95820180723013030010.313.4MMMMMMMM1010.6MM30.430.8MMMMMM2018-07-23 02:01:21pv 3GDXM630.359-88.4202018072300452703.6MMMMMMMMMM1009.0MM32.2MM26.0MMMM2018-07-23 02:01:21nu 3GDMM547.749-90.341201807230130MMMMMMMMMMMMMM1018.2MM18.1MM14.0MMMM2018-07-23 02:01:21 fŽ¨5ÂNÚfq 3HBYC140.767-124.217201807230036202.12.1MMMMMMMM1020.2MM12.114.5MMMMMM2018-07-23 02:01:21q 3HAXA259.234-135.4422018072301441902.13.1MMMMMMMM1023.0MM24.7MM8.3MMMM2018-07-23 02:01:21q 3GUXA258.408-135.7262018072301431303.15.7MMMMMMMM1024.5MM14.8MM9.3MMMM2018-07-23 02:01:21p 3GTXF129.658-81.2332018072300452502.1MMMMMMMMMM1012.0MM22.7MM21.9MMMM2018-07-23 02:01:21p 3GTRM447.179-88.241201807230100MM0.02.1MMMMMMMM1017.6+0.319.2MMMMMMMM2018-07-23 02:01:21q 3GTOT229.311-94.7922018072301302304.69.8MMMMMMMM1011.6MM29.332.5MMMMMM2018-07-23 02:01:21o~ 3GTLM445.211-85.5502018072301403602.63.6MMMMMMMM1013.9MM20.7MMMMMMMM2018-07-23 02:01:21o} 3GSLM444.018-83.537201807230140109.311.3MMMMMMMM1011.5MM19.0MMMMMMMM2018-07-23 02:01:21 j’«7ÃSÞjq  3HRBM443.846-82.6432018072301301104.15.1MMMMMMMM1009.7MM18.3MM17.6MMMM2018-07-23 02:01:21r  3HMSA259.602-151.4172018072301422504.65.7MMMMMMMM1025.2MM13.7MM10.1MMMM2018-07-23 02:01:21m  3HMRA259.601-151.4102018072301302803.6MMMMMMMMMM1025.0MMMMMMMMMMMM2018-07-23 02:01:21q  3HLNM442.773-86.2132018072301303604.14.6MMMMMMMM1012.2MM19.6MM16.1MMMM2018-07-23 02:01:21q 3HIST229.595-94.3902018072301302204.16.7MMMMMMMM1011.7MM29.030.7MMMMMM2018-07-23 02:01:21p 3HHLO141.401-82.545201807230100206.78.2MMMMMMMM1009.8+1.020.3MMMMMMMM2018-07-23 02:01:21q 3HCGN735.209-75.7042018072301301706.78.2MMMMMMMM1011.2MM27.827.8MMMMMM2018-07-23 02:01:21k 3HCEF125.254-80.444201807230000MMMMMMMMMMMMMMMMMMMM31.8MMMM-0.532018-07-23 02:01:21 n’¬8ÂNÜnk 3JAKI241.781-87.5732018072300003604.18.2MMMMMMMMMMMM20.8MMMMMMMM2018-07-23 02:01:21o 3ITKA257.052-135.342201807230130MMMMMMMMMMMMMM1026.4MM17.612.0MMMMMM2018-07-23 02:01:21q 3IRDT227.480-97.3222018072301301307.28.2MMMMMMMM1012.8MM28.132.0MMMMMM2018-07-23 02:01:21s 3IOSN342.967-70.6232018072301001408.89.3MMMMMMMM1021.0+1.420.8MM20.5MMMM2018-07-23 02:01:21q 3ILOH119.730-155.056201807230130204.14.6MMMMMMMM1014.2MM27.326.5MMMMMM2018-07-23 02:01:21n 3ICYA259.927-141.3592018072301422603.13.6MMMMMMMMMMMM14.8MM-1.5MMMM2018-07-23 02:01:21r 3ICAC134.008-118.5002018072301302505.16.2MMMMMMMM1014.1MM20.322.4MMMMMM2018-07-23 02:01:21k  3HREF125.424-81.060201807230100MMMMMMMMMMMMMMMMMMMM32.0MMMM-0.402018-07-23 02:01:21 f«6ÁLÚfq 3KATA130.258-88.21320180723010028010.3MMMMMMMMMM1008.1+0.331.3MMMMMMMM2018-07-23 02:01:21o 3JOXP417.956-66.223201807230045601.0MMMMMMMMMM1016.0MM25.1MM22.5MMMM2018-07-23 02:01:21r 3JNEA258.298-134.4112018072301301601.01.5MMMMMMMM1023.6MM20.711.3MMMMMM2018-07-23 02:01:21r 3JMPN734.213-77.7862018072301301709.310.3MMMMMMMM1009.0MM28.029.3MMMMMM2018-07-23 02:01:21r 3JMLA258.286-134.3902018072301421103.15.1MMMMMMMM1023.1MM22.6MM12.6MMMM2018-07-23 02:01:21q 3JLXA258.298-134.405201807230146MM1.02.1MMMMMMMM1022.6MM28.8MM14.4MMMM2018-07-23 02:01:21k 3JKYF125.053-80.904201807230000MMMMMMMMMMMMMMMMMMMM32.5MMMM-1.172018-07-23 02:01:21p 3JCRN439.535-74.4642018072301301405.1MMMMMMMMMM1015.0MM20.1MM19.1MMMM2018-07-23 02:01:21 bŒ¢.¹EÑbl$ 3KPTV237.165-75.9882018072301301508.810.3MMMMMMMMMMMMMM26.4MMMMMM2018-07-23 02:01:21q# 3KPTN640.811-73.7652018072301301907.29.8MMMMMMMM1017.3MM23.921.6MMMMMM2018-07-23 02:01:21q" 3KNSW342.589-87.8092018072301003607.28.2MMMMMMMM1013.5+0.620.6MMMMMMMM2018-07-23 02:01:21r! 3KLIH120.895-156.469201807230130405.713.4MMMMMMMM1014.2MM25.727.4MMMMMM2018-07-23 02:01:21q  3KGCA255.062-162.3272018072301301303.16.7MMMMMMMM1014.4MM11.09.7MMMMMM2018-07-23 02:01:21r 3KEXA255.352-131.6842018072301441006.28.8MMMMMMMM1024.7MM16.8MM11.9MMMM2018-07-23 02:01:21r 3KECA255.331-131.6252018072301301303.64.6MMMMMMMM1025.1MM15.614.1MMMMMM2018-07-23 02:01:21q 3KDAA257.731-152.511201807230130401.52.6MMMMMMMM1023.4MM11.311.3MMMMMM2018-07-23 02:01:21 €Š§6Ê]î€k, 3LBSF125.214-80.432201807230000MMMMMMMMMMMMMMMMMMMM31.5MMMM-0.492018-07-23 02:01:21l+ 3LAPW147.913-124.637201807230036MMMMMMMMMMMMMM1021.5MMMM9.8MMMMMM2018-07-23 02:01:21j* 3LAMV318.318-64.724201807230130MMMMMMMMMMMMMMMMMM27.729.0MMMMMM2018-07-23 02:01:21i) 3KYWF124.556-81.8082018072301302803.65.1MMMMMMMMMMMMMMMMMMMMMM2018-07-23 02:01:21n( 3KWNW344.465-87.496201807230130101.02.6MMMMMMMM1014.4MM20.6MMMMMMMM2018-07-23 02:01:21k' 3KWJP88.732167.734201807230130MMMMMMMMMMMMMM1009.3MMMM29.4MMMMMM2018-07-23 02:01:21r& 3KWHH120.037-155.8292018072301302202.63.1MMMMMMMM1013.4MM28.128.0MMMMMM2018-07-23 02:01:21s% 3KTNF129.819-83.5942018072301001104.66.2MMMMMMMM1009.8+1.823.8MM22.2MMMM2018-07-23 02:01:21 l¥6ÁNâls4 3LKWF126.613-80.0342018072301302404.16.2MMMMMMMM1014.8MM23.428.823.4MMMM2018-07-23 02:01:21i3 3LJPC132.867-117.2572018072301203203.6MM0.74MMMMMMMMMMMMMMMMMM2018-07-23 02:01:21p2 3LJAC132.867-117.2572018072301303203.13.6MMMMMMMM1014.6MM22.8MMMMMMMM2018-07-23 02:01:21r1 3LIXA258.540-135.0472018072301441604.15.7MMMMMMMM1023.4MM17.4MM10.7MMMM2018-07-23 02:01:21l0 3LDTM443.947-86.441201807230130103.14.6MMMMMMMMMMMM21.2MM17.0MMMM2018-07-23 02:01:21r/ 3LDLC341.306-72.0772018072223551308.810.8MMMMMMMM1019.9MM21.6MM21.1MMMM2018-07-23 02:01:21r. 3LCNA256.058-132.6902018072301103003.13.1MMMMMMMM1022.4MM22.4MM16.8MMMM2018-07-23 02:01:21n- 3LCLL130.224-93.222201807230130MMMMMMMMMMMMMM1010.7MM31.131.5MMMMMM2018-07-23 02:01:21 v’ ²?ÇSãvj< 3LORO141.481-82.195201807230130503.64.6MMMMMMMMMMMM20.4MMMMMMMM2018-07-23 02:01:21m; 3LOPW146.106-122.954201807230130MMMMMMMMMMMMMM1017.3MMMM21.0MMMMMM2018-07-23 02:01:21q: 3LOPL128.885-90.0252018072300523008.811.31.4MMMMMM1011.1MM29.4MMMMMMMM2018-07-23 02:01:21u9 3LONF124.844-80.8642018072301003005.16.2MMMMMMMM1013.4+0.330.532.524.7MMMM2018-07-23 02:01:21p8 3LNDC137.795-122.2812018072301302703.65.7MMMMMMMM1018.0MM18.7MMMMMMMM2018-07-23 02:01:21k7 3LMRF125.556-81.169201807230100MMMMMMMMMMMMMMMMMMMM32.7MMMM-0.372018-07-23 02:01:21o6 3LMFS134.107-81.2712018072301203501.03.1MMMMMMMM1007.5MM26.3MMMMMMMM2018-07-23 02:01:21k5 3LMDF125.176-80.633201807230100MMMMMMMMMMMMMMMMMMMM31.3MMMM-0.292018-07-23 02:01:21  ²DÑdóoD 3LUIT229.076-95.1222018072301302205.78.8MMMMMMMM1012.0MM28.9MMMMMMMM2018-07-23 02:01:21nC 3LTRM446.486-84.302201807230130204.66.2MMMMMMMM1014.1MM22.8MMMMMMMM2018-07-23 02:01:21jB 3LTJF130.379-81.446201807230130MMMMMMMMMMMMMMMMMM22.7MM20.4MMMM2018-07-23 02:01:21pA 3LTBV317.695-64.754201807230130901.03.1MMMMMMMM1016.7MM27.429.2MMMMMM2018-07-23 02:01:21k@ 3LSNF125.235-80.457201807230100MMMMMMMMMMMMMMMMMMMM31.5MMMM-0.582018-07-23 02:01:21k? 3LRKF124.982-80.826201807230000MMMMMMMMMMMMMMMMMMMM33.6MMMM-0.512018-07-23 02:01:21j> 3LRIF125.284-80.894201807230100MMMMMMMMMMMMMMMMMMMM32.8MMMM0.122018-07-23 02:01:21p= 3LPNM445.063-83.429201807230130502.15.1MMMMMMMM1012.5MM18.5MM17.4MMMM2018-07-23 02:01:21 jŒ¥4ÀMÞjqL 3MCGA130.649-88.0582018072301303003.14.1MMMMMMMM1008.5MM32.330.2MMMMMM2018-07-23 02:01:21lK 3MBRM442.975-82.419201807230130MMMMMMMMMMMMMM1010.5MM17.6MMMMMMMM2018-07-23 02:01:21pJ 3MBLA130.437-88.0112018072301002605.7MMMMMMMMMM1007.8+0.332.2MMMMMMMM2018-07-23 02:01:21qI 3MBET228.422-96.3272018072301302006.27.2MMMMMMMM1011.2MM28.433.7MMMMMM2018-07-23 02:01:21nH 3MAXT228.132-97.0342018072301001405.1MMMMMMMMMM1013.0-1.0MMMMMMMMMM2018-07-23 02:01:21pG 3MACM445.777-84.721201807230130305.16.2MMMMMMMM1013.0MM21.6MM20.2MMMM2018-07-23 02:01:21qF 3LWTV237.995-76.4652018072301301706.27.7MMMMMMMM1010.5MM26.625.5MMMMMM2018-07-23 02:01:21qE 3LWSD138.783-75.1192018072301301603.66.7MMMMMMMM1013.6MM24.923.2MMMMMM2018-07-23 02:01:21 vŒ!´FÒ]êvqT 3MGPT229.682-94.9852018072301302203.14.1MMMMMMMM1011.2MM32.731.2MMMMMM2018-07-23 02:01:21pS 3MGIP417.970-67.046201807230130500.51.5MMMMMMMM1015.7MM25.628.8MMMMMM2018-07-23 02:01:21rR 3MEYC136.605-121.8892018072300362503.14.6MMMMMMMM1018.9MM17.516.2MMMMMM2018-07-23 02:01:21qQ 3MDRM143.969-68.1282018072301001308.28.8MMMMMMMM1025.0+1.617.6MMMMMMMM2018-07-23 02:01:21kP 3MDKF125.289-80.396201807230000MMMMMMMMMMMMMMMMMMMM31.7MMMM-0.982018-07-23 02:01:21jO 3MCYI341.729-86.912201807230130302.63.1MMMMMMMMMMMM20.8MMMMMMMM2018-07-23 02:01:21hN 3MCYF127.914-82.425201807230130MMMMMMMMMMMMMMMMMMMM31.0MMMMMM2018-07-23 02:01:21qM 3MCGM446.546-87.3792018072301303401.53.1MMMMMMMM1015.9MM14.9MM11.5MMMM2018-07-23 02:01:21 q”­:ÌYåqq\ 3MOKH121.433-157.790201807230036204.65.7MMMMMMMM1015.6MM26.327.3MMMMMM2018-07-23 02:01:21q[ 3MNPV236.778-76.3022018072301301604.66.2MMMMMMMM1010.5MM26.727.7MMMMMM2018-07-23 02:01:21pZ 3MNMM445.096-87.590201807230130105.76.2MMMMMMMM1014.8MM22.4MM15.9MMMM2018-07-23 02:01:21kY 3MLWW343.045-87.8802018072301403404.15.1MMMMMMMMMMMM20.4MMMMMMMM2018-07-23 02:01:21pX 3MKGM443.227-86.339201807230140104.65.7MMMMMMMM1012.2MM20.2MM17.6MMMM2018-07-23 02:01:21nW 3MISP418.090-67.939201807230130MMMMMMMMMMMMMM1015.8MM24.728.8MMMMMM2018-07-23 02:01:21sV 3MISM143.784-68.85520180723010015010.310.8MMMMMMMM1023.6+1.917.7MMMMMMMM2018-07-23 02:01:21iU 3MHRN640.641-74.1622018072301301405.16.7MMMMMMMMMMMMMMMMMMMMMM2018-07-23 02:01:21 vŒ§4¿Rãvjd 3MRYA255.099-131.1822018072301421701.53.6MMMMMMMMMMMMMMMMMMMMMM2018-07-23 02:01:21lc 3MRSL129.441-92.061201807230000MM11.813.9MMMMMMMMMMMM29.9MMMMMMMM2018-07-23 02:01:21jb 3MROS133.656-78.916201807230130MMMMMMMMMMMMMM1011.5MMMMMMMMMMMM2018-07-23 02:01:21ra 3MRNA258.198-134.2572018072301421102.12.6MMMMMMMM1023.5MM19.3MM10.7MMMM2018-07-23 02:01:21p` 3MRKA261.082-146.6622018072301302008.89.3MMMMMMMM1027.2MM14.3MMMMMMMM2018-07-23 02:01:21q_ 3MRHO141.544-82.7312018072301303604.65.7MMMMMMMM1011.6MM19.9MM16.6MMMM2018-07-23 02:01:21n^ 3MRCP139.809-75.415201807230130MMMMMMMMMMMMMM1013.7MM26.826.8MMMMMM2018-07-23 02:01:21q] 3MQTT227.581-97.2172018072301301306.26.7MMMMMMMM1011.8MM27.126.6MMMMMM2018-07-23 02:01:21 e‹¥6ÂJØepl 3NAXR141.637-71.3392018072300451603.1MMMMMMMMMM1020.0MM23.0MM22.5MMMM2018-07-23 02:01:21ok 3NABM446.087-85.4442018072301403605.17.7MMMMMMMM1014.2MM21.0MMMMMMMM2018-07-23 02:01:21uj 3MZXC138.035-122.1252018072301302706.27.2MMMMMMMM1016.3MM24.622.214.95.9MM2018-07-23 02:01:21qi 3MYPF130.398-81.4282018072301302204.65.7MMMMMMMM1008.1MM22.527.9MMMMMM2018-07-23 02:01:21lh 3MXXA258.301-134.4252018072301452706.79.3MMMMMMMMMMMM25.2MMMMMMMM2018-07-23 02:01:21rg 3MVXA258.364-134.6062018072301442002.63.6MMMMMMMM1023.7MM27.7MM13.3MMMM2018-07-23 02:01:21nf 3MTKN641.048-71.959201807230130MMMMMMMMMMMMMM1019.3MM22.219.7MMMMMM2018-07-23 02:01:21re 3MTBF127.661-82.5942018072301302708.29.3MMMMMMMM1011.1MM29.6MM25.35.9MM2018-07-23 02:01:21 j‹£/¿PÝjpt 3NKLA252.972-168.8552018072301423004.17.7MMMMMMMM1011.4MM8.1MM6.2MMMM2018-07-23 02:01:21ps 3NIWS133.349-79.1892018072300453102.1MMMMMMMMMM1008.0MM26.4MM22.4MMMM2018-07-23 02:01:21lr 3NIAN643.077-79.014201807230130MMMMMMMMMMMMMM1012.4MM22.4MMMMMMMM2018-07-23 02:01:21mq 3NEAW148.367-124.614201807230130MMMMMMMMMMMMMM1020.9MMMM13.1MMMMMM2018-07-23 02:01:21qp 3NCHT229.726-95.2662018072301302301.04.1MMMMMMMM1010.6MM32.632.2MMMMMM2018-07-23 02:01:21qo 3NCDV238.320-77.0372018072301303501.52.1MMMMMMMM1010.4MM22.825.1MMMMMM2018-07-23 02:01:21qn 3NBLP140.137-74.7522018072301301604.16.2MMMMMMMM1015.2MM25.426.1MMMMMM2018-07-23 02:01:21rm 3NBBA336.087-114.728201807230200701.01.50.1MMMMMM1008.1MM38.231.8MMMMMM2018-07-23 02:01:21 l‹¤0½KÚlk| 3NRRF125.338-80.911201807230100MMMMMMMMMMMMMMMMMMMM32.5MMMM-0.182018-07-23 02:01:21n{ 3NPSF126.132-81.807201807230130MMMMMMMMMMMMMM1013.1MM30.531.7MMMMMM2018-07-23 02:01:21oz 3NPDW345.291-86.9772018072301403202.63.1MMMMMMMM1014.9MM17.7MMMMMMMM2018-07-23 02:01:21py 3NMTA264.500-165.4302018072301302701.01.0MMMMMMMM1019.6MM16.0MMMMMMMM2018-07-23 02:01:21qx 3NLNC341.361-72.0902018072301301406.27.2MMMMMMMM1019.1MM22.521.9MMMMMM2018-07-23 02:01:21ow 3NLMA335.458-114.6662018072302001701.52.10.0MMMMMMMMMM37.230.3MMMMMM2018-07-23 02:01:21rv 3NKXA258.255-134.9452018072301451803.66.7MMMMMMMM1021.9MM17.1MM12.2MMMM2018-07-23 02:01:21ru 3NKTA260.683-151.3992018072301302202.62.6MMMMMMMM1025.5MM14.913.3MMMMMM2018-07-23 02:01:21 a‹¤2¾JÕaq‘ 3NWPR141.504-71.3262018072301301205.18.8MMMMMMMM1020.3MM21.820.6MMMMMM2018-07-23 02:01:21r‘ 3NWPO344.613-124.0672018072301003508.29.3MMMMMMMM1019.9-0.610.8MMMMMMMM2018-07-23 02:01:21q‘ 3NWHC341.283-72.9082018072301301403.65.7MMMMMMMM1018.4MM22.925.4MMMMMM2018-07-23 02:01:21q‘ 3NWCL130.027-90.1132018072301302505.79.3MMMMMMMM1009.8MM32.031.9MMMMMM2018-07-23 02:01:21o‘ 3NUET227.832-97.4862018072301301506.28.2MMMMMMMM1012.2MMMM31.7MMMMMM2018-07-23 02:01:21q 3NTKM341.285-70.0962018072301301404.17.7MMMMMMMM1022.1MM21.622.8MMMMMM2018-07-23 02:01:21p~ 3NTBC134.405-119.6922018072300362305.76.2MMMMMMMM1015.1MM20.6MMMMMMMM2018-07-23 02:01:21r} 3NSTP6-14.280-170.688201807230130707.29.8MMMMMMMM1011.5MM27.328.4MMMMMM2018-07-23 02:01:21 |Œ¬=É_ï|p‘  3OKXC137.811-122.3332018072301302703.14.1MMMMMMMM1017.9MM18.6MMMMMMMM2018-07-23 02:01:21m‘  3OHBC133.720-118.273201807230130MMMMMMMMMMMMMM1013.9MMMM19.0MMMMMM2018-07-23 02:01:21g‘  3OCSM238.338-75.070201807222300MMMMMM1.39MM116MMMMMMMMMMMMMM2018-07-23 02:01:21q‘  3OCIM238.328-75.0912018072301301606.29.8MMMMMMMM1013.9MM25.024.6MMMMMM2018-07-23 02:01:21l‘ 3OBXC137.804-122.341201807230130MMMMMMMMMMMMMMMMMM18.4MM15.05.9MM2018-07-23 02:01:21n‘ 3OBLA130.705-88.040201807230130MMMMMMMMMMMMMM1008.4MM32.431.9MMMMMM2018-07-23 02:01:21l‘ 3OBGN644.702-75.494201807230130MMMMMMMMMMMMMM1015.6MM23.7MMMMMMMM2018-07-23 02:01:21q‘ 3NWWH121.954-159.353201807230130406.78.2MMMMMMMM1016.0MM26.227.6MMMMMM2018-07-23 02:01:21 i®:ÆRÞir‘ 3OSTF130.357-89.612201807230050MM0.02.0MMMMMMMM1009.4+0.032.3MM24.6MMMM2018-07-23 02:01:21q‘ 3OSGN643.464-76.5112018072301301303.14.6MMMMMMMM1013.4MM26.6MM18.7MMMM2018-07-23 02:01:21q‘ 3ORIN735.796-75.5482018072301301405.17.2MMMMMMMM1011.7MM27.125.5MMMMMM2018-07-23 02:01:21q‘ 3OPTF127.858-82.5532018072301302605.76.7MMMMMMMM1011.3MM29.831.1MMMMMM2018-07-23 02:01:21q‘ 3OOUH121.303-157.865201807230130603.67.2MMMMMMMM1014.7MM27.427.1MMMMMM2018-07-23 02:01:21j‘ 3OMHC137.801-122.3302018072301302204.66.7MMMMMMMMMMMMMMMMMMMMMM2018-07-23 02:01:21o‘ 3OLSA252.940-168.8702018072301303202.63.6MMMMMMMM1015.8MM8.9MMMMMMMM2018-07-23 02:01:21p‘  3OLCN643.341-78.719201807230100602.62.6MMMMMMMM1012.2+1.420.5MMMMMMMM2018-07-23 02:01:21 iª6ÂOÛio‘ 3PCGT226.072-97.1672018072301301604.66.7MMMMMMMM1013.0MM27.7MMMMMMMM2018-07-23 02:01:21q‘ 3PCBF130.213-85.8802018072301302605.16.2MMMMMMMM1008.6MM28.326.9MMMMMM2018-07-23 02:01:21p‘ 3PBPA258.203-134.148201807230110200.52.6MMMMMMMM1022.9MM19.1MM9.3MMMM2018-07-23 02:01:21q‘ 3PBFW148.464-122.4692018072301303604.6MMMMMMMMMM1019.0MM22.0MM14.8MMMM2018-07-23 02:01:21q‘ 3PACT227.634-97.2372018072301301404.66.7MMMMMMMM1012.4MM28.231.2MMMMMM2018-07-23 02:01:21q‘ 3PACF130.152-85.6672018072301302505.76.7MMMMMMMM1008.7MM29.430.6MMMMMM2018-07-23 02:01:21o‘ 3OWXO141.378-82.508201807230045201.5MMMMMMMMMM1011.0MM20.0MM16.7MMMM2018-07-23 02:01:21m‘ 3OVIA259.440-151.720201807230130MMMMMMMMMMMMMM1025.6MMMM10.4MMMMMM2018-07-23 02:01:21 uŒ¦1ÁTåum‘$ 3PGBP713.428144.7962018072301302101.55.1MMMMMMMM1007.5MMMMMMMMMMMM2018-07-23 02:01:21l‘# 3PFXC133.747-118.2152018072301302304.65.7MMMMMMMMMMMM25.4MMMMMMMM2018-07-23 02:01:21j‘" 3PFDC133.735-118.2412018072301302104.65.7MMMMMMMMMMMMMMMMMMMMMM2018-07-23 02:01:21m‘! 3PEGF126.086-80.116201807230130340MMMMMMMMMMMM1013.6MM27.5MMMMMMMM2018-07-23 02:01:21r‘  3PCOC138.056-122.0392018072301302506.29.3MMMMMMMM1016.0MM25.221.5MMMMMM2018-07-23 02:01:21q‘ 3PCNT228.446-96.3962018072301301806.77.7MMMMMMMM1012.0MM28.430.7MMMMMM2018-07-23 02:01:21o‘ 3PCLM447.276-88.5282018072301401901.02.1MMMMMMMM1021.0MM10.7MMMMMMMM2018-07-23 02:01:21q‘ 3PCLF130.404-87.2112018072301302802.13.1MMMMMMMM1007.8MM31.330.9MMMMMM2018-07-23 02:01:21 w®9ÅYëwq‘, 3PLSF124.693-82.7732018072301002904.65.1MMMMMMMM1014.0+0.330.1MMMMMMMM2018-07-23 02:01:21k‘+ 3PKYF124.918-80.747201807230100MMMMMMMMMMMMMMMMMMMM32.4MMMM-0.402018-07-23 02:01:21i‘* 3PKBW346.672-92.136201807230000602.1MMMMMMMMMMMMMM19.7MMMMMMMM2018-07-23 02:01:21q‘) 3PILM448.223-88.3662018072301003603.64.1MMMMMMMM1019.3+0.018.9MMMMMMMM2018-07-23 02:01:21r‘( 3PILL129.179-89.2592018072301302909.312.4MMMMMMMM1010.5MM29.831.1MMMMMM2018-07-23 02:01:21n‘' 3PILA259.742-149.4702018072301301802.63.1MMMMMMMM1028.0MMMMMMMMMMMM2018-07-23 02:01:21n‘& 3PHBP139.933-75.142201807230130MMMMMMMMMMMMMM1013.6MM26.426.8MMMMMM2018-07-23 02:01:21m‘% 3PGXA257.016-134.6182018072301463107.28.2MMMMMMMMMMMM14.3MM8.9MMMM2018-07-23 02:01:21 rŒª8ÍYårp‘4 3POTA261.060-146.7002018072301302600.51.5MMMMMMMM1028.1MM17.2MMMMMMMM2018-07-23 02:01:21q‘3 3PORT229.867-93.9312018072301302404.14.6MMMMMMMM1011.9MM29.332.0MMMMMM2018-07-23 02:01:21q‘2 3PORO342.739-124.4982018072301303204.15.7MMMMMMMM1019.4MM16.19.4MMMMMM2018-07-23 02:01:21h‘1 3PNLM630.368-88.563201807230130MMMMMMMMMMMMMMMMMMMM30.3MMMMMM2018-07-23 02:01:21o‘0 3PNLM445.968-85.8692018072301303404.66.7MMMMMMMM1014.1MM18.5MMMMMMMM2018-07-23 02:01:21n‘/ 3PMNT226.559-97.424201807230130MMMMMMMMMMMMMM1012.6MM29.031.6MMMMMM2018-07-23 02:01:21n‘. 3PMAF127.638-82.562201807230130MMMMMMMMMMMMMM1011.3MM29.930.6MMMMMM2018-07-23 02:01:21q‘- 3PLXA256.247-134.647201807230130MM0.00.5MMMMMMMM1025.1MM21.411.3MMMMMM2018-07-23 02:01:21 }‘%²>Ñ]ð}p‘< 3PRYC137.996-122.9772018072301302804.66.7MMMMMMMM1018.4MMMM16.4MMMMMM2018-07-23 02:01:21j‘; 3PRUR141.605-71.304201807230130MMMMMMMMMMMMMMMMMM23.4MM22.3MMMM2018-07-23 02:01:21q‘: 3PRTA258.411-134.955201807230110MM0.04.1MMMMMMMM1022.3MM22.2MM14.5MMMM2018-07-23 02:01:21j‘9 3PRJC133.733-118.1862018072301302508.29.3MMMMMMMMMMMMMMMMMMMMMM2018-07-23 02:01:21q‘8 3PRDA270.400-148.5272018072301301004.15.1MMMMMMMM1018.9MM13.19.6MMMMMM2018-07-23 02:01:21p‘7 3PPXC137.906-122.3652018072301301904.14.6MMMMMMMM1017.8MM19.0MMMMMMMM2018-07-23 02:01:21i‘6 3PPTM238.134-76.5332018072301241607.27.7MMMMMMMMMMMMMMMMMMMMMM2018-07-23 02:01:21l‘5 3PPTA130.279-87.556201807230130MMMMMMMMMMMMMM1007.8MM31.7MMMMMMMM2018-07-23 02:01:21 fŒ¤/ºKÞfu‘D 3PTAT227.826-97.0512018072301001506.26.7MMMMMMMM1012.0-1.127.528.726.3MMMM2018-07-23 02:01:21j‘C 3PSXC133.768-118.2262018072301301601.02.1MMMMMMMMMMMMMMMMMMMMMM2018-07-23 02:01:21l‘B 3PSTN642.691-79.048201807230130MMMMMMMMMMMMMM1011.6MM22.0MMMMMMMM2018-07-23 02:01:21r‘A 3PSTL128.932-89.4072018072301302909.315.4MMMMMMMM1011.6MM29.730.5MMMMMM2018-07-23 02:01:21r‘@ 3PSLC135.169-120.7542018072301302703.65.7MMMMMMMM1018.1MM20.317.5MMMMMM2018-07-23 02:01:21q‘? 3PSCM443.420-82.5402018072301002802.63.6MMMMMMMM1010.8+0.617.5MMMMMMMM2018-07-23 02:01:21q‘> 3PSBM144.905-66.9832018072301301703.13.6MMMMMMMM1027.2MM15.211.5MMMMMM2018-07-23 02:01:21q‘= 3PSBC138.040-121.8872018072301303007.710.3MMMMMMMM1015.2MM26.4MMMMMMMM2018-07-23 02:01:21 f‹§0½IÔfk‘L 3PTOA130.671-88.031201807230130MMMMMMMMMMMMMMMMMM32.4MM24.65.9MM2018-07-23 02:01:21r‘K 3PTLA258.346-134.7522018072301423403.14.1MMMMMMMM1023.8MM22.3MM12.4MMMM2018-07-23 02:01:21q‘J 3PTIT226.061-97.2152018072301301506.78.8MMMMMMMM1012.7MM28.829.1MMMMMM2018-07-23 02:01:21p‘I 3PTIM446.485-84.631201807230130203.65.1MMMMMMMM1014.5MM22.1MM12.4MMMM2018-07-23 02:01:21t‘H 3PTGC134.577-120.64820180723010036012.412.9MMMMMMMM1017.5-1.115.8MMMMMMMM2018-07-23 02:01:21o‘G 3PTCR141.638-71.3402018072301301703.16.7MMMMMMMM1020.4MM23.3MMMMMMMM2018-07-23 02:01:21o‘F 3PTBM630.213-88.5052018072301302805.77.7MMMMMMMM1009.6MM29.5MMMMMMMM2018-07-23 02:01:21r‘E 3PTAW148.125-123.4412018072300363207.78.8MMMMMMMM1020.5MM18.211.5MMMMMM2018-07-23 02:01:21 r’¨3ÁTárl‘T 3PXSC137.803-122.397201807230130MMMMMMMMMMMMMMMMMM18.9MM14.65.9MM2018-07-23 02:01:21p‘S 3PXOC137.798-122.3932018072301302502.66.2MMMMMMMM1016.8MM18.4MMMMMMMM2018-07-23 02:01:21j‘R 3PXAC133.764-118.2652018072301303203.65.7MMMMMMMMMMMMMMMMMMMMMM2018-07-23 02:01:21o‘Q 3PWAW343.388-87.8672018072301403202.13.1MMMMMMMM1015.6MM22.1MMMMMMMM2018-07-23 02:01:21r‘P 3PVGF126.092-80.1092018072301243004.112.4MMMMMMMM1013.4MM29.8MM22.3MMMM2018-07-23 02:01:21r‘O 3PVDR141.786-71.3832018072301301608.29.8MMMMMMMM1020.6MM24.2MM23.55.9MM2018-07-23 02:01:21r‘N 3PTWW148.111-122.7602018072301302702.64.6MMMMMMMM1020.1MM25.711.4MMMMMM2018-07-23 02:01:21k‘M 3PTRP418.367-67.2512018072301451001.52.1MMMMMMMMMMMM24.7MMMMMMMM2018-07-23 02:01:21 ~‹§:Ï^ë~j‘\ 3RKXF126.050-81.701201807230045MMMMMMMMMMMMMMMMMM29.4MM25.9MMMM2018-07-23 02:01:21p‘[ 3RIXA258.177-135.0522018072301452505.16.7MMMMMMMM1023.9MM15.1MMMMMMMM2018-07-23 02:01:21n‘Z 3RDYD139.558-75.572201807230130MMMMMMMMMMMMMM1012.8MM25.526.8MMMMMM2018-07-23 02:01:21h‘Y 3RCYF129.800-81.550201807230130MMMMMMMMMMMMMMMMMMMM28.2MMMMMM2018-07-23 02:01:21j‘X 3RCRN643.269-77.626201807230130MMMMMMMMMMMMMM1012.1MMMMMMMMMMMM2018-07-23 02:01:21q‘W 3RCMC137.923-122.410201807230130201.52.1MMMMMMMM1017.1MM20.919.6MMMMMM2018-07-23 02:01:21m‘V 3RCKM446.264-84.1912018072301303503.65.7MMMMMMMM1013.3MMMMMMMMMMMM2018-07-23 02:01:21r‘U 3QPTR141.586-71.4072018072301301508.810.3MMMMMMMM1020.6MM22.823.3MMMMMM2018-07-23 02:01:21 d‹¤2ÀNØdq‘d 3RTAT227.840-97.0722018072301301903.15.7MMMMMMMM1012.4MM27.929.6MMMMMM2018-07-23 02:01:21s‘c 3RSJT226.801-97.47120180723013015010.311.8MMMMMMMM1011.8MM29.531.7MMMMMM2018-07-23 02:01:21o‘b 3RPRN643.263-77.5982018072301002702.13.6MMMMMMMM1012.9MM26.1MMMMMMMM2018-07-23 02:01:21o‘a 3RPLV237.538-76.01420180723013014012.413.9MMMMMMMM1011.6MMMMMMMMMMMM2018-07-23 02:01:21o‘` 3ROBN440.657-74.0652018072301301507.78.8MMMMMMMM1016.5MM24.3MMMMMMMM2018-07-23 02:01:21p‘_ 3ROAM447.867-89.313201807230100303.63.6MMMMMMMM1020.1+0.421.3MMMMMMMM2018-07-23 02:01:21q‘^ 3RLOT229.515-94.5132018072301302405.18.8MMMMMMMM1011.6MM29.130.7MMMMMM2018-07-23 02:01:21r‘] 3RLIT226.262-97.2852018072301301508.210.3MMMMMMMM1012.5MM29.232.2MMMMMM2018-07-23 02:01:21 Z‹¤.¹CÍZp‘l 3SBIO141.629-82.841201807230100102.12.6MMMMMMMM1010.7+1.318.6MMMMMMMM2018-07-23 02:01:21s‘k 3SBEO344.625-124.0452018072301303309.811.3MMMMMMMM1019.5MM12.810.4MMMMMM2018-07-23 02:01:21s‘j 3SBBN236.050-114.7482018072302002101.52.10.2MMMMMM1007.8MM35.729.3MMMMMM2018-07-23 02:01:21r‘i 3SAXG131.418-81.2962018072301002204.1MMMMMMMMMM1007.0+0.026.6MM22.8MMMM2018-07-23 02:01:21s‘h 3SAUF129.857-81.2652018072301002306.28.2MMMMMMMM1010.6+0.822.426.6MMMMMM2018-07-23 02:01:21q‘g 3SAPF127.761-82.6272018072301302603.66.7MMMMMMMM1011.2MM29.831.1MMMMMM2018-07-23 02:01:21p‘f 3SANF124.456-81.877201807230050MMMMMMMMMMMMMM1014.0+0.429.3MM24.4MMMM2018-07-23 02:01:21r‘e 3RTYC137.507-122.2122018072301303206.27.2MMMMMMMM1018.0MM21.524.6MMMMMM2018-07-23 02:01:21 h‹¢2ÂOÛhp‘t 3SFXC138.200-122.0262018072300452807.2MMMMMMMMMM1016.0MM27.4MM9.6MMMM2018-07-23 02:01:21q‘s 3SDRT228.407-96.7122018072301301507.28.8MMMMMMMM1012.0MM29.732.0MMMMMM2018-07-23 02:01:21p‘r 3SDIA258.277-134.3892018072301241401.01.0MMMMMMMM1023.2MM21.1MMMMMMMM2018-07-23 02:01:21m‘q 3SDHN440.467-74.0092018072301301406.28.8MMMMMMMMMMMM23.524.2MMMMMM2018-07-23 02:01:21m‘p 3SDBC132.714-117.174201807230130MMMMMMMMMMMMMM1014.2MMMM23.7MMMMMM2018-07-23 02:01:21r‘o 3SCXA258.205-134.6462018072301452903.64.1MMMMMMMM1023.2MM22.1MM12.3MMMM2018-07-23 02:01:21q‘n 3SBPT229.728-93.8702018072301302303.17.7MMMMMMMM1013.1MM29.133.6MMMMMM2018-07-23 02:01:21r‘m 3SBLM443.810-83.7202018072301001010.311.8MMMMMMMM1010.2+0.418.6MMMMMMMM2018-07-23 02:01:21 _Œ ,¶AÎ_l‘| 3SISA258.177-135.2592018072301222807.28.2MMMMMMMMMMMM16.3MMMMMMMM2018-07-23 02:01:21p‘{ 3SIPF127.862-80.4452018072301301405.1MMMMMMMMMM1013.0MM26.426.6MMMMMM2018-07-23 02:01:21r‘z 3SHXA257.055-135.3492018072301452705.16.2MMMMMMMM1026.2MM17.2MM10.8MMMM2018-07-23 02:01:21s‘y 3SHPF130.058-84.2912018072300542702.63.6MMMMMMMM1008.0MM28.730.4MMMM2.422018-07-23 02:01:21q‘x 3SHBL129.868-89.6732018072301302407.28.8MMMMMMMM1009.8MM30.332.1MMMMMM2018-07-23 02:01:21s‘w 3SGOF129.408-84.8582018072301002708.88.8MMMMMMMM1009.2-0.028.6MM26.1MMMM2018-07-23 02:01:21s‘v 3SGNW343.749-87.6932018072301003504.14.6MMMMMMMM1013.8-0.020.3MM17.2MMMM2018-07-23 02:01:21q‘u 3SGNT228.771-95.6172018072301302006.27.2MMMMMMMM1012.1MM28.830.8MMMMMM2018-07-23 02:01:21 `‰¢0¼HÔ`q’ 3SLXA255.340-131.644201807230146905.77.2MMMMMMMM1025.2MM15.5MM10.6MMMM2018-07-23 02:01:21q’ 3SLMN235.389-114.6212018072302002002.12.60.1MMMMMM1007.8MM41.1MMMMMMMM2018-07-23 02:01:21q’ 3SLIM238.321-76.4522018072301301407.28.2MMMMMMMM1011.1MM26.827.0MMMMMM2018-07-23 02:01:21q’ 3SKXA259.448-135.3262018072301463401.53.1MMMMMMMM1022.9MM22.2MM9.4MMMM2018-07-23 02:01:21o’ 3SKTA259.450-135.327201807230130MMMMMMMMMMMMMM1023.2MM22.510.8MMMMMM2018-07-23 02:01:21p‘ 3SJOM442.098-86.494201807230100301.53.1MMMMMMMM1013.9+1.421.2MMMMMMMM2018-07-23 02:01:21q‘~ 3SJNP418.459-66.1162018072301301006.27.7MMMMMMMM1016.3MM27.828.9MMMMMM2018-07-23 02:01:21t‘} 3SISW148.321-122.8312018072300502502.12.6MMMMMMMM1019.9-1.919.5MM12.7MMMM2018-07-23 02:01:21 oŠ¥1ÂTãoq’  3SRST229.683-94.0332018072301002307.28.8MMMMMMMM1011.9-0.929.2MMMMMMMM2018-07-23 02:01:21n’  3SRLM445.773-84.1372018072300303609.3MMMMMMMMMMMMMM23.121.617.3MMMM2018-07-23 02:01:21k’  3SREF125.352-81.100201807230100MMMMMMMMMMMMMMMMMMMM32.2MMMM-0.482018-07-23 02:01:21l’  3SPLL128.867-90.48320180723000027012.914.4MMMMMMMMMMMMMMMMMM6.5MM2018-07-23 02:01:21q’ 3SPGF126.704-78.9952018072301002105.76.2MMMMMMMM1013.8+2.629.4MMMMMMMM2018-07-23 02:01:21o’ 3SNDP528.215-177.361201807230130MMMMMMMMMMMMMM1020.1MM26.126.0MMMMMM2018-07-23 02:01:21p’ 3SNDA255.336-160.502201807230130503.15.7MMMMMMMM1015.3MM11.29.7MMMMMM2018-07-23 02:01:21s’ 3SMKF124.628-81.1092018072300502505.16.2MMMMMMMM1012.8-0.030.3MM24.0MMMM2018-07-23 02:01:21 }–!¬>Î]î}n’ 3SXHW346.563-90.437201807230140901.02.6MMMMMMMM1018.6MM16.0MMMMMMMM2018-07-23 02:01:21l’ 3SWPV236.943-76.329201807230130MMMMMMMMMMMMMM1010.2MMMM26.7MMMMMM2018-07-23 02:01:21n’ 3SWPM446.501-84.372201807230130406.29.3MMMMMMMM1014.4MM23.2MMMMMMMM2018-07-23 02:01:21m’ 3SWLA260.120-149.427201807230130MMMMMMMMMMMMMM1026.6MMMM13.4MMMMMM2018-07-23 02:01:21k’ 3SVNM442.401-86.2882018072301303600.51.5MMMMMMMMMMMM19.7MMMMMMMM2018-07-23 02:01:21r’ 3STXA257.116-135.3912018072301452702.15.7MMMMMMMM1026.4MM18.5MM10.6MMMM2018-07-23 02:01:21r’ 3STDM447.184-87.2252018072301003204.64.6MMMMMMMM1017.2-0.011.9MM7.8MMMM2018-07-23 02:01:21g’  3SSBN733.841-78.482201807230000MMMMMM0.85MM175MMMMMMMMMMMMMM2018-07-23 02:01:21 ƒ°BÏcñƒk’ 3TCVF125.213-80.533201807230000MMMMMMMMMMMMMMMMMMMM31.7MMMM-0.192018-07-23 02:01:21o’ 3TCNW147.267-122.413201807230130MMMMMMMMMMMMMM1019.0MM27.512.6MMMMMM2018-07-23 02:01:21i’ 3TCMW147.276-122.418201807230130105.15.7MMMMMMMMMMMMMMMMMMMMMM2018-07-23 02:01:21p’ 3TCBM239.213-76.244201807230130801.02.1MMMMMMMM1012.5MM22.425.6MMMMMM2018-07-23 02:01:21k’ 3TBYF125.155-80.722201807230100MMMMMMMMMMMMMMMMMMMM31.3MMMM-0.262018-07-23 02:01:21k’ 3TBIM445.035-83.194201807230120308.210.3MMMMMMMMMMMM18.3MMMMMMMM2018-07-23 02:01:21n’ 3TAWM444.254-83.449201807230140202.67.2MMMMMMMM1011.5MM18.0MMMMMMMM2018-07-23 02:01:21n’ 3TAQT227.815-97.389201807230130MMMMMMMMMMMMMM1011.3MM29.331.0MMMMMM2018-07-23 02:01:21 sŒ°=ÉUãsm’$ 3TLBO345.555-123.919201807230130MMMMMMMMMMMMMM1019.8MMMM12.0MMMMMM2018-07-23 02:01:21o’# 3TKPN642.014-73.9392018072301301502.64.6MMMMMMMMMMMM25.026.921.6MMMM2018-07-23 02:01:21q’" 3TKEA257.779-135.219201807230143805.16.7MMMMMMMM1022.5MM22.7MM11.1MMMM2018-07-23 02:01:21q’! 3TIXC132.575-117.1272018072300452902.6MMMMMMMMMM1016.0MM25.4MM20.3MMMM2018-07-23 02:01:21p’  3THRO141.694-83.473201807230130102.14.6MMMMMMMM1011.4MM19.2MM13.3MMMM2018-07-23 02:01:21k’ 3THRF125.203-80.372201807230000MMMMMMMMMMMMMMMMMMMM31.9MMMM-1.002018-07-23 02:01:21k’ 3THLO141.826-83.1942018072301203405.15.7MMMMMMMMMMMM19.5MMMMMMMM2018-07-23 02:01:21q’ 3TESL129.668-91.2372018072301302502.13.6MMMMMMMM1011.2MM28.631.6MMMMMM2018-07-23 02:01:21 x‹±9ÅXíxr’, 3TXPT229.689-93.8422018072301302407.710.3MMMMMMMM1010.8MM29.131.3MMMMMM2018-07-23 02:01:21h’+ 3TSHF127.929-82.426201807230130303.66.7MMMMMMMMMMMMMMMMMMMMMM2018-07-23 02:01:21j’* 3TRRF125.217-80.650201807230100MMMMMMMMMMMMMMMMMMMM31.5MMMM0.222018-07-23 02:01:21q’) 3TRDF128.416-80.5932018072301301807.79.8MMMMMMMM1012.5MM25.228.2MMMMMM2018-07-23 02:01:21u’( 3TPLM238.899-76.4362018072301001104.14.6MMMMMMMM1012.5+1.524.825.321.7MMMM2018-07-23 02:01:21k’' 3TPEF125.410-80.964201807230000MMMMMMMMMMMMMMMMMMMM32.2MMMM-0.382018-07-23 02:01:21i’& 3TPAF127.933-82.4332018072301183403.65.1MMMMMMMMMMMMMMMMMMMMMM2018-07-23 02:01:21r’% 3TOKW146.707-123.9672018072301303607.28.2MMMMMMMM1019.6MM20.017.3MMMMMM2018-07-23 02:01:21 g’«7ÃOÜgr’4 3VDZA261.125-146.3612018072301302604.15.7MMMMMMMM1027.1MM15.312.6MMMMMM2018-07-23 02:01:21p’3 3VCVA257.125-170.2852018072301302201.53.1MMMMMMMM1011.2MM9.18.0MMMMMM2018-07-23 02:01:21q’2 3VCAT228.640-96.6092018072301301907.27.7MMMMMMMM1012.0MM28.933.2MMMMMM2018-07-23 02:01:21q’1 3VCAF124.711-81.1072018072301302904.15.7MMMMMMMM1013.8MM30.633.1MMMMMM2018-07-23 02:01:21q’0 3VBBA336.132-114.4122018072302001401.01.00.0MMMMMM1008.1MM38.0MMMMMMMM2018-07-23 02:01:21q’/ 3VAKF125.731-80.1622018072301302303.14.1MMMMMMMM1013.0MM30.131.7MMMMMM2018-07-23 02:01:21p’. 3UNLA253.880-166.537201807230130603.64.6MMMMMMMM1014.3MM10.98.1MMMMMM2018-07-23 02:01:21k’- 3ULRA263.872-160.784201807230130MMMMMMMMMMMMMM1018.4MMMMMMMMMMMM2018-07-23 02:01:21 uŽ¦2ÄRçuo’< 3WDSV236.977-76.3152018072301301508.29.3MMMMMMMM1009.5MM27.3MMMMMMMM2018-07-23 02:01:21h’; 3WBYA130.417-87.825201807230130MMMMMMMMMMMMMMMMMMMM32.6MMMMMM2018-07-23 02:01:21o’: 3WAXM341.582-70.525201807230045MM2.1MMMMMMMMMM1021.0MM22.8MM22.5MMMM2018-07-23 02:01:21k’9 3WATS134.335-80.7022018072301303403.64.6MMMMMMMMMMMM26.2MMMMMMMM2018-07-23 02:01:21q’8 3WASD238.873-77.0212018072301302502.62.6MMMMMMMM1011.8MM23.323.7MMMMMM2018-07-23 02:01:21q’7 3WAKP819.291166.6182018072301301104.16.7MMMMMMMM1012.1MM27.430.3MMMMMM2018-07-23 02:01:21q’6 3WAHV237.608-75.6862018072301301507.79.3MMMMMMMM1011.9MM26.127.8MMMMMM2018-07-23 02:01:21o’5 3VENF127.072-82.4532018072301002708.29.3MMMMMMMMMMMM30.130.626.2MMMM2018-07-23 02:01:21 |Œ­?Òað|q’D 3WNEM446.285-84.2102018072301303602.64.1MMMMMMMM1014.0MM22.4MM16.3MMMM2018-07-23 02:01:21n’C 3WLON734.228-77.954201807230130MMMMMMMMMMMMMM1008.5MM27.828.8MMMMMM2018-07-23 02:01:21n’B 3WKXA130.421-87.828201807230045MMMMMMMMMMMMMM1008.0MM31.8MM26.3MMMM2018-07-23 02:01:21j’A 3WIWF125.587-81.044201807230100MMMMMMMMMMMMMMMMMMMM31.9MMMM0.002018-07-23 02:01:21k’@ 3WHRI242.361-87.8132018072301403605.78.2MMMMMMMMMMMM20.2MMMMMMMM2018-07-23 02:01:21n’? 3WFPM446.760-84.970201807230140303.14.6MMMMMMMM1015.2MM20.3MMMMMMMM2018-07-23 02:01:21k’> 3WEXM143.337-70.549201807230100800.5MMMMMMMMMMMMMM19.8MM19.8MMMM2018-07-23 02:01:21q’= 3WELM143.320-70.5632018072301301201.52.1MMMMMMMM1022.6MM19.918.6MMMMMM2018-07-23 02:01:21 z’§7ÉUêzm’L 3YATA259.548-139.733201807230130MMMMMMMMMMMMMM1027.5MMMM15.2MMMMMM2018-07-23 02:01:21h’K 3YABP418.055-65.833201807230130MMMMMMMMMMMMMMMMMM25.4MMMMMMMM2018-07-23 02:01:21q’J 3WYCM630.326-89.3262018072301302902.63.1MMMMMMMM1009.1MM31.431.6MMMMMM2018-07-23 02:01:21k’I 3WWEF125.232-80.938201807230000MMMMMMMMMMMMMMMMMMMM32.1MMMM-0.252018-07-23 02:01:21m’H 3WRBF125.072-80.7352018072301002405.7MMMMMMMMMMMMMMMM31.0MMMM-0.302018-07-23 02:01:21r’G 3WPTW146.904-124.1052018072300363405.76.7MMMMMMMM1021.0MM12.713.8MMMMMM2018-07-23 02:01:21s’F 3WPOW147.662-122.436201807230100305.15.7MMMMMMMM1019.4-1.819.3MM12.1MMMM2018-07-23 02:01:21k’E 3WPLF125.710-81.249201807230100MMMMMMMMMMMMMMMMMMMM32.8MMMM-0.352018-07-23 02:01:21 U¦3½HÏUw’T 34100831.400-80.8682018072304502007.09.00.954.31581008.6-0.426.329.123.0MMMM2018-07-23 05:30:40v’S 34100432.501-79.0992018072304502208.011.01.464.62031007.9MM28.328.225.8MMMM2018-07-23 05:30:40r’R 34100231.760-74.8402018072304501508.010.01.865.11631013.6MMMM26.8MMMMMM2018-07-23 05:30:40s’Q 332ST0-19.639-84.9182018072303301309.0MMMMMMMMMM1020.4MM16.918.813.5MMMM2018-07-23 05:30:40p’P 3YRSV237.414-76.7122018072300451500.5MMMMMMMMMM1011.0MM25.9MM25.9MMMM2018-07-23 02:01:21q’O 3YKTV237.227-76.4792018072301301403.64.6MMMMMMMM1009.8MM27.426.6MMMMMM2018-07-23 02:01:21p’N 3YKRV237.251-76.3422018072301301509.811.8MMMMMMMM1010.9MM26.7MMMMMMMM2018-07-23 02:01:21p’M 3YGNN643.262-79.064201807230100901.02.6MMMMMMMM1011.5+1.721.6MMMMMMMM2018-07-23 02:01:21 Jˆ—"¨4ÀJs’\ 34103733.988-77.36220180723040817010.014.0MMMMMMMM1010.0MM26.827.8MMMMMM2018-07-23 05:30:40q’[ 34103332.279-80.4062018072304082304.07.0MMMMMMMM1007.8MM28.929.1MMMMMM2018-07-23 05:30:40q’Z 34102932.803-79.6242018072304082006.08.0MMMMMMMM1007.5MM28.929.1MMMMMM2018-07-23 05:30:40w’Y 34102535.005-75.40320180723044016012.016.0MMMM5.21321012.6MM28.227.625.4MMMM2018-07-23 05:30:40r’X 34102433.837-78.4772018072304082008.012.0MMMMMMMM1009.2MM28.028.3MMMMMM2018-07-23 05:30:40u’W 34101333.436-77.7432018072304502105.07.01.864.81981011.4MM24.727.521.2MMMM2018-07-23 05:30:40v’V 34101028.878-78.4852018072304502008.010.01.194.81211011.3MM27.829.223.5MMMM2018-07-23 05:30:40u’U 34100928.501-80.18420180723045024011.014.00.843.92001012.6MM26.0MM22.6MMMM2018-07-23 05:30:40 cŠ ¯8ÁI×cq’d 34104831.860-69.5902018072304501507.09.01.875.61511019.8MMMM26.7MMMMMM2018-07-23 05:30:40o’c 34104727.520-71.5302018072304501407.09.01.385.21481017.5MMMMMMMMMMMM2018-07-23 05:30:40u’b 34104623.832-68.4172018072304501006.08.01.395.71211017.5MM27.628.322.8MMMM2018-07-23 05:30:40t’a 34104421.597-58.621201807230450908.010.01.485.4941018.5MM27.227.623.2MMMM2018-07-23 05:30:40t’` 34104321.132-64.8562018072304501206.08.01.585.9961017.2MM27.528.222.8MMMM2018-07-23 05:30:40n’_ 34104114.329-46.082201807230450906.08.01.685.51231015.8MMMMMMMMMMMM2018-07-23 05:30:40g’^ 34104014.559-53.073201807230440MMMMMM1.885.596MMMMMMMMMMMMMM2018-07-23 05:30:40s’] 34103834.141-77.71520180723040814010.013.0MMMMMMMM1009.0MM27.128.1MMMMMM2018-07-23 05:30:40 o¦5ËZåos’l 34106434.207-76.94920180723040818011.014.0MMMMMMMM1010.0MM27.327.7MMMMMM2018-07-23 05:30:40r’k 34106334.782-75.9412018072303001908.010.0MMMMMMMM1011.8+1.027.3MMMMMMMM2018-07-23 05:30:40n’j 34106235.778-75.095201807230400MM7.09.0MMMMMMMM1013.6+1.5MMMMMMMMMM2018-07-23 05:30:40g’i 34106014.824-51.017201807230450MMMMMM1.885.478MMMMMMMMMMMMMM2018-07-23 05:30:40n’h 34105618.261-65.464201807230430705.06.0MMMMMMMM1014.9MM27.7MMMMMMMM2018-07-23 05:30:40s’g 34105318.474-66.0992018072304001005.06.00.99MM641015.3+0.027.728.2MMMMMM2018-07-23 05:30:40n’f 34105218.250-64.763201807230430907.08.0MMMMMMMM1014.7MM28.2MMMMMMMM2018-07-23 05:30:40p’e 34104927.487-62.9472018072304501106.09.01.485.5941020.8MMMM27.9MMMMMM2018-07-23 05:30:40 %“&¹Làs™%q’u 341NT014.824-51.017201807230330907.0MMMMMMMMMM1016.0MM26.026.922.1MMMM2018-07-23 05:30:40j’t 34115934.213-76.946201807230430MMMMMM2.165.0172MMMMMM27.7MMMMMM2018-07-23 05:30:40j’s 34111828.609-80.590201807230430MMMMMM0.3106.070MMMMMM27.5MMMMMM2018-07-23 05:30:40j’r 34111730.000-81.080201807230452MMMMMM1.153.6171MMMMMM26.6MMMMMM2018-07-23 05:30:40i’q 34111518.377-67.280201807230430MMMMMM0.564.311MMMMMM28.7MMMMMM2018-07-23 05:30:40j’p 34111427.550-80.217201807230430MMMMMM0.643.5153MMMMMM28.5MMMMMM2018-07-23 05:30:40j’o 34111230.709-81.292201807230430MMMMMM0.853.7156MMMMMM28.3MMMMMM2018-07-23 05:30:40j’n 34111034.141-77.717201807230430MMMMMM1.454.3161MMMMMM27.8MMMMMM2018-07-23 05:30:40j’m 34110833.721-78.015201807230430MMMMMM1.564.4189MMMMMM28.0MMMMMM2018-07-23 05:30:40 Rˆ– ­5ÆRq’} 34202326.010-83.0862018072304302706.08.0MMMMMMMM1013.3MM29.830.1MMMMMM2018-07-23 05:30:40l’| 34202227.505-83.7412018072304302508.010.0MMMMMMMMMMMMMM29.4MMMMMM2018-07-23 05:30:40u’{ 34201927.907-95.3522018072304501107.08.00.753.61961012.8+0.029.129.6MMMMMM2018-07-23 05:30:40p’z 34201327.173-82.9242018072304302608.010.0MMMMMMMM1011.8MMMM29.9MMMMMM2018-07-23 05:30:40s’y 34201230.064-87.5512018072304503304.05.01.264.92031009.6MM28.2MM26.1MMMM2018-07-23 05:30:40u’x 34200325.930-85.6382018072304502608.09.01.054.32981013.4MM29.630.026.3MMMM2018-07-23 05:30:40w’w 34200226.091-93.7582018072304502105.06.00.453.92001014.6+0.029.330.523.8MMMM2018-07-23 05:30:40u’v 34200125.897-89.6682018072304502706.08.00.953.83101014.5MM29.830.225.3MMMM2018-07-23 05:30:40 R„—"«4¿Rj“ 34209725.700-83.650201807230430MMMMMM1.375.0321MMMMMM30.4MMMMMM2018-07-23 05:30:40r“ 34208517.860-66.524201807230400706.07.0MMMMMMMM1014.8+0.029.228.5MMMMMM2018-07-23 05:30:40t“ 34206016.387-63.350201807230450809.010.01.464.7931015.0MM27.528.123.1MMMM2018-07-23 05:30:40t“ 34205716.908-81.422201807230450502.02.01.295.71071014.3MM28.228.126.5MMMM2018-07-23 05:30:40r“ 34205619.918-84.938201807230450602.03.00.896.21111016.0MM30.0MM24.3MMMM2018-07-23 05:30:40u“ 34205522.120-93.9602018072304501203.03.00.464.01021015.0MM29.430.225.8MMMM2018-07-23 05:30:40r’ 34204029.208-88.2262018072304502609.011.01.243.72661010.4MMMM29.5MMMMMM2018-07-23 05:30:40y’~ 34203928.788-86.00820180723045026011.014.02.475.52841008.7-0.329.729.927.4MMMM2018-07-23 05:30:40 a“&²>ÄO×as“  34401342.346-70.6512018072303501307.08.00.98MMMM1021.3MM20.520.020.5MMMM2018-07-23 05:30:40u“  34400938.461-74.7032018072303501307.08.01.79MMMM1014.9+1.624.922.124.9MMMM2018-07-23 05:30:40r“  34400840.504-69.248201807230450MMMMMM2.497.01641022.9+0.421.120.0MMMMMM2018-07-23 05:30:40w“  34400743.525-70.1412018072304501504.05.01.165.41541022.6+0.018.216.218.2MMMM2018-07-23 05:30:40q“  34239526.404-90.7922018072304202708.09.00.84MMMM1014.1MM30.029.4MMMMMM2018-07-23 05:30:40q“ 34236026.672-90.4712018072304002707.08.00.94MMMM1014.1+1.0MM29.8MMMMMM2018-07-23 05:30:40j“ 34209927.345-84.275201807230430MMMMMM1.775.2289MMMMMM29.7MMMMMM2018-07-23 05:30:40j“ 34209827.590-82.931201807230430MMMMMM1.674.7279MMMMMM30.4MMMMMM2018-07-23 05:30:40 C† “¥+·Cq“ 34403043.179-70.4262018072304041505.06.01.38MMMM1021.0MM19.618.5MMMMMM2018-07-23 05:30:40q“ 34402942.523-70.5662018072304041608.09.01.06MMMM1020.6MM20.919.2MMMMMM2018-07-23 05:30:40w“ 34402744.283-67.3002018072304501605.06.01.185.71571025.8+0.016.914.016.9MMMM2018-07-23 05:30:40s“ 34402540.251-73.1642018072303501407.08.02.38MMMM1017.3+1.222.921.0MMMMMM2018-07-23 05:30:40u“ 34402041.493-70.27920180723044015010.012.0MMMMMMMM1022.1MM23.222.421.5MMMM2018-07-23 05:30:40u“ 34401842.206-70.1432018072304501507.08.01.285.51121022.5+0.321.1MM21.1MMMM2018-07-23 05:30:40x“ 34401740.693-72.0492018072304501509.010.02.295.91791019.4+0.523.021.422.3MMMM2018-07-23 05:30:40w“ 34401436.611-74.8432018072304501508.09.02.186.11661014.0+0.725.624.625.2MMMM2018-07-23 05:30:40 nŒ£.¿NÛnj“ 34405636.199-75.715201807230430MMMMMM1.385.8104MMMMMM22.2MMMMMM2018-07-23 05:30:40p“ 34404238.033-76.3352018072304401508.010.0MMMMMMMM1010.7MM26.6MMMMMMMM2018-07-23 05:30:40n“ 34404040.956-73.5802018072303501506.08.00.2MMMMMMMMMM23.7MM22.5MMMM2018-07-23 05:30:40l“ 34403941.138-72.6552018072304301406.07.00.4MMMMMMMMMM23.0MMMMMMMM2018-07-23 05:30:40r“ 34403743.491-67.8802018072304041606.07.01.58MMMM1024.3MM18.817.7MM1.6MM2018-07-23 05:30:40r“ 34403444.103-68.1122018072304041504.04.01.16MMMM1024.2MM14.411.3MM0.3MM2018-07-23 05:30:40q“ 34403344.055-68.9962018072304041504.05.00.78MMMM1023.8MM15.115.4MMMMMM2018-07-23 05:30:40q“ 34403243.715-69.3552018072304041304.04.01.26MMMM1022.5MM17.313.9MMMMMM2018-07-23 05:30:40 d¨6½EÓdl“% 34407237.201-76.2662018072304401808.010.0MMMMMMMMMMMM26.2MMMMMMMM2018-07-23 05:30:40o“$ 34406940.699-73.0872018072304301207.09.0MMMMMMMMMMMM24.025.324.0MMMM2018-07-23 05:30:40u“# 34406639.568-72.5862018072304501407.09.02.486.61701016.9+0.323.9MM23.9MMMM2018-07-23 05:30:40v“" 34406540.369-73.7032018072304401408.010.0MMMM5.71561016.8MM23.922.922.9MMMM2018-07-23 05:30:40o“! 34406436.998-76.0872018072304401606.08.0MMMMMMMM1010.9MM25.8MMMMMMMM2018-07-23 05:30:40o“  34406338.971-76.4432018072304401507.08.0MMMMMMMM1012.3MM25.8MMMMMMMM2018-07-23 05:30:40p“ 34406238.556-76.4152018072304401909.012.0MMMMMMMM1012.2MM26.8MMMMMMMM2018-07-23 05:30:40p“ 34405837.567-76.2572018072304401709.011.0MMMMMMMM1013.0MM26.5MMMMMMMM2018-07-23 05:30:40 !“&¸KÞq—!s“. 34413742.260-62.0002018072304001805.06.0MMMMMMMM1030.4-0.322.221.3MMMMMM2018-07-23 05:30:40j“- 34410036.260-75.594201807230415MMMMMM1.485.5118MMMMMM23.8MMMMMM2018-07-23 05:30:40j“, 34409936.915-75.720201807230430MMMMMM1.475.2118MMMMMM24.6MMMMMM2018-07-23 05:30:40j“+ 34409842.798-70.168201807230436MMMMMM1.565.1135MMMMMM20.1MMMMMM2018-07-23 05:30:40j“* 34409740.969-71.127201807230443MMMMMM2.196.3165MMMMMM20.9MMMMMM2018-07-23 05:30:40j“) 34409535.750-75.330201807230448MMMMMM1.985.5130MMMMMM25.0MMMMMM2018-07-23 05:30:40k“( 34409139.778-73.769201807230430MMMMMM2.1106.0122MMMMMM22.8MMMMMM2018-07-23 05:30:40j“' 34409041.840-70.329201807230430MMMMMM0.532.6148MMMMMM20.0MMMMMM2018-07-23 05:30:40j“& 34408937.757-75.334201807230430MMMMMM1.785.4121MMMMMM24.4MMMMMM2018-07-23 05:30:40 MŠŸ)²;ÅMu“6 34500742.674-87.026201807230450907.09.01.364.6161012.7+0.020.722.217.8MMMM2018-07-23 05:30:40s“5 34500647.335-89.7932018072304503003.04.00.443.6681018.4-0.411.67.7MMMMMM2018-07-23 05:30:40t“4 34500541.677-82.3982018072304503603.04.00.443.5841011.0MM20.324.116.1MMMM2018-07-23 05:30:40t“3 34500447.585-86.5852018072304503604.04.00.2MM3.1MM1017.1+0.410.63.9MMMMMM2018-07-23 05:30:40s“2 34500345.351-82.840201807230450608.09.00.753.6621012.2+0.017.416.6MMMMMM2018-07-23 05:30:40u“1 34500245.344-86.4112018072304503609.011.01.053.8251013.5MM18.919.416.2MMMM2018-07-23 05:30:40p“0 34415042.500-64.020201807230400MMMMMM1.58MMMM1028.9-0.219.818.5MMMMMM2018-07-23 05:30:40s“/ 34413944.240-57.1002018072304002005.06.01.18MMMM1031.6-0.423.513.4MMMMMM2018-07-23 05:30:40 Q‰(°>ÉQu“> 34502546.969-88.3982018072305002502.02.00.35MMMM1017.0+0.016.216.712.9MMMM2018-07-23 05:30:40r“= 34502443.973-86.5562018072304503206.07.00.84MM31014.3MM17.817.216.6MMMM2018-07-23 05:30:40o“< 34502347.270-88.6072018072304501701.02.00.2MMMMMMMMMM11.44.510.7MMMM2018-07-23 05:30:40u“; 34502245.403-85.088201807230500903.04.00.32MM2941014.7+0.319.320.419.3MMMM2018-07-23 05:30:40r“: 34501444.800-87.760201807230500107.09.0MMMMMMMM1015.2+0.022.921.1MMMMMM2018-07-23 05:30:40q“9 34501343.100-87.8502018072304073505.07.00.96MMMM1014.5MM20.720.3MMMMMM2018-07-23 05:30:40u“8 34501243.621-77.3992018072304501206.07.00.432.71061013.0+0.023.121.9MMMMMM2018-07-23 05:30:40t“7 34500844.283-82.4162018072304501305.06.00.864.2131011.5+1.318.718.6MMMMMM2018-07-23 05:30:40 Pˆš$°;ÅPr“F 34513943.250-79.530201807230400903.04.00.76MMMM1011.6+0.221.722.3MMMMMM2018-07-23 05:30:40s“E 34513849.540-65.7102018072304003202.02.00.77MMMM1021.7+0.014.615.5MMMMMM2018-07-23 05:30:40r“D 34513745.540-81.010201807230400808.09.00.74MMMM1013.3+1.019.919.6MMMMMM2018-07-23 05:30:40q“C 34513648.530-86.950201807230400206.06.00.22MMMM1018.4+0.313.16.0MMMMMM2018-07-23 05:30:40s“B 34513543.780-76.8702018072304001206.09.00.23MMMM1013.8+0.623.021.9MMMMMM2018-07-23 05:30:40r“A 34513242.460-81.220201807230400604.05.00.15MMMM1010.7+0.120.522.7MMMMMM2018-07-23 05:30:40v“@ 34502942.900-86.2722018072305002501.02.00.55MM3171012.2-0.519.216.515.7MMMM2018-07-23 05:30:40u“? 34502641.983-86.617201807230500902.03.01.07MM3491013.2+0.419.221.514.7MMMM2018-07-23 05:30:40 QŠŸ*´=ÇQs“N 34514849.650-94.5002018072304001904.04.00.02MMMM1016.6+1.023.022.0MMMMMM2018-07-23 05:30:40s“M 34514742.430-82.6802018072304003501.01.0MMMMMMMM1011.0+0.618.721.5MMMMMM2018-07-23 05:30:40t“L 34514551.870-96.9702018072304002208.010.00.74MMMM1011.9-0.421.521.5MMMMMM2018-07-23 05:30:40s“K 34514453.230-98.2902018072305002304.05.00.75MMMM1010.8+0.816.916.6MMMMMM2018-07-23 05:30:40r“J 34514344.940-80.627201807230400905.06.00.54MMMM1012.8+0.920.119.2MMMMMM2018-07-23 05:30:40s“I 34514242.740-79.2902018072304001004.05.00.12MMMM1011.4+0.523.623.2MMMMMM2018-07-23 05:30:40r“H 34514161.180-115.3102018072304003103.04.00.22MMMM1028.4+0.213.6MMMMMMMM2018-07-23 05:30:40s“G 34514050.790-96.7302018072304002607.08.00.33MMMM1013.5+0.121.822.1MMMMMM2018-07-23 05:30:40 n‹¡1ÂSßnn“V 34516541.702-83.261201807230500102.03.00.32MM56MMMM19.824.114.4MMMM2018-07-23 05:30:40q“U 34516441.732-81.694201807230400503.0MMMMMMMMMM1010.7+0.019.223.6MMMMMM2018-07-23 05:30:40l“T 34516343.986-83.595201807230440105.06.00.63MM48MMMM19.021.6MMMMMM2018-07-23 05:30:40l“S 34516244.988-83.271201807230440807.09.01.04MM96MMMM18.918.7MMMMMM2018-07-23 05:30:40m“R 34516143.179-86.3572018072304203202.03.00.54MMMMMMMM19.718.1MMMMMM2018-07-23 05:30:40r“Q 34515943.770-78.980201807230400603.04.00.36MMMM1012.1+0.521.320.6MMMMMM2018-07-23 05:30:40r“P 34515446.050-82.640201807230400507.09.00.53MMMM1013.7+0.319.720.5MMMMMM2018-07-23 05:30:40r“O 34515144.500-79.370201807230400906.08.00.12MMMM1013.2+0.621.922.2MMMMMM2018-07-23 05:30:40 eŒ¤3ÀMÜet“^ 34517545.825-84.7722018072305001403.05.00.2MMMMMM1014.0+0.020.020.6MMMMMM2018-07-23 05:30:40n“] 34517442.135-87.6552018072304503204.05.01.26MM6MMMM20.220.220.2MMMM2018-07-23 05:30:40p“\ 34517346.573-86.5722018072304403404.0MM0.63MM421016.4MM10.515.4MMMMMM2018-07-23 05:30:40p“[ 34517246.740-85.9802018072304503003.0MM0.5MMMM3491016.8MM10.4MMMMMMMM2018-07-23 05:30:40n“Z 34517041.755-86.968201807230450803.04.01.47MM12MMMM21.321.716.3MMMM2018-07-23 05:30:40n“Y 34516941.615-81.821201807230450503.05.00.44MM26MMMM20.823.819.1MMMM2018-07-23 05:30:40t“X 34516842.397-86.3312018072304502902.05.00.76MM3261012.9MM18.517.015.6MMMM2018-07-23 05:30:40q“W 34516742.186-80.1372018072304391506.07.00.33MM371010.1MM22.121.9MMMMMM2018-07-23 05:30:40 d‹«8ÉUÜdu“f 34600242.612-130.5372018072304503509.011.02.185.541026.5MM15.216.112.6MMMM2018-07-23 05:30:40v“e 34600156.304-147.9202018072304501809.011.01.774.6MM1023.5-0.612.012.6MMMMMM2018-07-23 05:30:40q“d 345T0148.008-87.666201807230450703.03.00.2MM3.1MM1018.0MM7.04.36.4MMMM2018-07-23 05:30:40l“c 34518742.491-87.779201807230420MM5.05.00.86MMMMMMMM19.720.1MMMMMM2018-07-23 05:30:40p“b 34518344.982-85.831201807230430105.07.0MMMMMMMM1014.5MM17.415.9MMMMMM2018-07-23 05:30:40h“a 34518048.034-87.730201807230430MMMMMM0.342.961MMMMMM4.3MMMMMM2018-07-23 05:30:40r“` 34517844.603-73.3942018072304001804.0MMMMMMMMMM1019.2+3.420.622.4MMMMMM2018-07-23 05:30:40r“_ 34517641.550-81.765201807230450603.04.00.44MM141011.1MM20.723.718.7MMMM2018-07-23 05:30:40 B‰›!¬3¼Bw“n 34602533.749-119.0532018072304502804.05.01.4165.31911015.1MM20.821.620.5MMMM2018-07-23 05:30:40t“m 34602240.720-124.5312018072304503503.04.01.59MMMM1020.6MM11.713.011.7MMMM2018-07-23 05:30:40v“l 34601439.233-123.967201807230450301.02.01.3167.21881019.6MM14.014.913.7MMMM2018-07-23 05:30:40r“k 34601338.238-123.3072018072304502904.05.01.597.93171019.6MMMM15.2MMMMMM2018-07-23 05:30:40w“j 34601237.356-122.8812018072304503003.03.01.3168.22051020.1+0.916.016.5MMMMMM2018-07-23 05:30:40w“i 34601134.956-121.0192018072304503205.06.01.4166.21671018.7+0.716.015.6MMMMMM2018-07-23 05:30:40q“h 34600546.140-131.0702018072304503408.011.01.685.13421027.1MMMMMMMMMMMM2018-07-23 05:30:40t“g 34600450.930-136.1002018072304002800.00.01.27MMMM1030.5-0.813.914.9MMMMMM2018-07-23 05:30:40 <‰™¦,µ<v“v 34605044.677-124.5152018072304503505.07.01.885.93241021.0MM12.511.612.4MMMM2018-07-23 05:30:40t“u 34604732.398-119.498201807230450MMMMMM1.6165.62141016.8+1.018.018.6MMMMMM2018-07-23 05:30:40w“t 34604236.785-122.3982018072304503105.07.01.4166.51981018.9+0.916.316.5MMMMMM2018-07-23 05:30:40t“s 34603648.350-133.9402018072304003307.08.01.47MMMM1030.1-0.514.815.1MMMMMM2018-07-23 05:30:40y“r 34602946.143-124.4852018072304503409.010.01.775.13151020.5+0.313.214.212.8MMMM2018-07-23 05:30:40t“q 34602835.712-121.858201807230450MMMMMM1.3166.21691018.7+0.916.515.4MMMMMM2018-07-23 05:30:40v“p 34602741.852-124.3822018072304501402.03.01.786.33101020.1+0.811.812.0MMMMMM2018-07-23 05:30:40t“o 34602637.754-122.8392018072304503004.05.01.398.63131020.0MM14.815.4MMMMMM2018-07-23 05:30:40 @†–§,´@q“~ 34607553.983-160.817201807230450MMMMMM1.265.01191011.4-0.6MM11.3MMMMMM2018-07-23 05:30:40u“} 34607251.672-172.0882018072304502307.08.01.375.32411015.6-1.19.39.39.3MMMM2018-07-23 05:30:40x“| 34606933.674-120.21220180723035030012.014.01.965.63151016.1+0.016.918.6MMMMMM2018-07-23 05:30:40s“{ 34606652.785-155.047201807230450MMMMMM1.465.21781014.4-0.810.610.3MMMMMM2018-07-23 05:30:40v“z 34606060.584-146.8052018072304502001.02.00.386.01711026.9-1.113.715.2MMMMMM2018-07-23 05:30:40u“y 34605938.072-129.966201807230450308.010.02.396.0261022.5MM16.716.615.0MMMM2018-07-23 05:30:40u“x 34605434.265-120.47720180723045031012.015.01.8164.92171016.4MMMM17.2MMMMMM2018-07-23 05:30:40w“w 34605334.252-119.8532018072304502609.011.01.364.52591014.9MM20.720.218.6MMMM2018-07-23 05:30:40 H‘ $²9ÂHw” 34608632.491-118.0352018072304503005.06.01.4165.61711016.1+1.419.819.7MMMMMM2018-07-23 05:30:40t” 34608555.868-142.4922018072303502002.02.01.08MMMM1029.1-0.912.413.6MMMMMM2018-07-23 05:30:40v” 34608358.300-137.9972018072304503107.08.01.164.82881026.3-0.612.210.7MMMMMM2018-07-23 05:30:40o” 34608259.681-143.372201807230450MMMMMM1.085.92331026.7-1.2MMMMMMMMMM2018-07-23 05:30:40y” 34608057.947-150.0422018072304501109.010.01.885.31911022.9-2.212.211.912.0MMMM2018-07-23 05:30:40s” 34607855.556-152.582201807230450MMMMMM1.264.91201017.9-0.811.3MM10.8MMMM2018-07-23 05:30:40x” 34607757.910-154.1752018072304505010.012.01.253.9531019.2-1.611.811.710.7MMMM2018-07-23 05:30:40l“ 34607659.502-147.9902018072304501302.04.01.186.7220MMMMMMMMMMMMMM2018-07-23 05:30:40 X… ‘¨:ËXp” 34611848.724-122.576201807230355102.0MMMMMMMMMM1018.3MM19.8MM15.0MMMM2018-07-23 05:30:40l”  34611436.723-122.351201807230430MMMMMM1.5178.1213MMMMMM16.5MMMMMM2018-07-23 05:30:40k”  34610859.597-151.829201807230430MMMMMM0.343.2225MMMMMM12.9MMMMMM2018-07-23 05:30:40p”  34609646.173-124.1272018072302303506.07.0MMMMMMMM1020.5MM9.69.8MMMMMM2018-07-23 05:30:40s”  34609236.751-122.0292018072304042704.0MMMMMMMMMM1018.9+0.616.216.1MMMMMM2018-07-23 05:30:40x”  34608945.925-125.77120180723045033010.011.01.865.23231021.6-0.315.517.0MMMMMM2018-07-23 05:30:40v” 34608848.334-123.1652018072304202406.07.00.433.02581019.1MM13.412.011.8MMMM2018-07-23 05:30:40x” 34608748.493-124.7262018072304502502.03.01.275.02801020.6-0.413.512.712.6MMMM2018-07-23 05:30:40 T!ª1ºAÊTs” 34618353.620-131.100201807230400207.08.00.84MMMM1024.8-1.113.114.6MMMMMM2018-07-23 05:30:40t” 34618153.830-128.8302018072304002007.08.00.22MMMM1021.7+0.019.618.2MMMMMM2018-07-23 05:30:40v” 34614751.830-131.22020180723040031010.012.01.35MMMM1025.2-1.013.313.6MMMMMM2018-07-23 05:30:40t” 34614649.340-123.7302018072304003004.05.00.22MMMM1018.7-0.820.819.3MMMMMM2018-07-23 05:30:40v” 34614554.370-132.44020180723040028010.012.01.36MMMM1025.2-0.911.611.3MMMMMM2018-07-23 05:30:40t” 34613149.910-124.9902018072304003202.03.00.13MMMM1019.2-0.919.019.7MMMMMM2018-07-23 05:30:40i” 34612843.293-124.537201807230400701.0MMMMMMMMMMMMMMMM9.8MMMMMM2018-07-23 05:30:40p” 34612547.907-122.627201807230448MM3.0MMMMMMMMMM1018.9MM17.4MM11.0MMMM2018-07-23 05:30:40 Tˆ˜ ©0ÂTk” 34621340.295-124.732201807230500MMMMMM1.887.7333MMMMMM15.5MMMMMM2018-07-23 05:30:40k” 34621146.858-124.244201807230430MMMMMM1.474.8308MMMMMM11.8MMMMMM2018-07-23 05:30:40v” 34620852.520-132.6902018072304003209.012.01.618MMMM1026.1-0.913.413.2MMMMMM2018-07-23 05:30:40t” 34620750.870-129.9202018072304003206.08.01.36MMMM1025.0-0.813.713.8MMMMMM2018-07-23 05:30:40u” 34620554.190-134.3202018072304003208.010.01.56MMMM1027.1-0.713.113.6MMMMMM2018-07-23 05:30:40u” 34620451.380-128.7702018072304003307.010.01.14MMMM1024.1-0.713.515.4MMMMMM2018-07-23 05:30:40u” 34618552.420-129.7902018072304003107.08.00.918MMMM1024.3-0.912.613.7MMMMMM2018-07-23 05:30:40u” 34618453.910-138.8502018072304002702.04.01.018MMMM1030.0-0.913.014.0MMMMMM2018-07-23 05:30:40 ‘$¶GØiûŒl”' 34622532.933-117.391201807230351MMMMMM1.2176.2201MMMMMM24.0MMMMMM2018-07-23 05:30:40l”& 34622433.178-117.472201807230430MMMMMM1.4176.1202MMMMMM23.3MMMMMM2018-07-23 05:30:40k”% 34622233.618-118.317201807230430MMMMMM1.154.6275MMMMMM19.9MMMMMM2018-07-23 05:30:40l”$ 34622133.855-118.634201807230430MMMMMM1.5175.0212MMMMMM21.4MMMMMM2018-07-23 05:30:40l”# 34621933.225-119.882201807230430MMMMMM2.1155.8212MMMMMM18.0MMMMMM2018-07-23 05:30:40l”" 34621834.454-120.783201807230430MMMMMM1.9106.5309MMMMMM17.5MMMMMM2018-07-23 05:30:40k”! 34621734.167-119.435201807230451MMMMMM1.664.8269MMMMMM19.0MMMMMM2018-07-23 05:30:40j”  34621535.204-120.859201807230427MMMMMM1.115MMMMMMMMMM14.2MMMMMM2018-07-23 05:30:40l” 34621437.950-123.472201807230430MMMMMM1.5178.2190MMMMMM15.9MMMMMM2018-07-23 05:30:40 ’#´EÖgù‹k”0 34624846.129-124.647201807230455MMMMMM1.765.3315MMMMMM15.2MMMMMM2018-07-23 05:30:40k”/ 34624440.896-124.357201807230430MMMMMM1.897.1330MMMMMM13.2MMMMMM2018-07-23 05:30:40k”. 34624346.216-124.128201807230430MMMMMM1.485.3306MMMMMM14.3MMMMMM2018-07-23 05:30:40l”- 34624233.220-117.439201807230428MMMMMM1.4176.1216MMMMMM22.2MMMMMM2018-07-23 05:30:40l”, 34624036.626-121.907201807230451MMMMMM0.6175.7352MMMMMM15.1MMMMMM2018-07-23 05:30:40l”+ 34623936.343-122.096201807230430MMMMMM1.3177.5206MMMMMM16.2MMMMMM2018-07-23 05:30:40l”* 34623737.786-122.634201807230430MMMMMM1.0177.1240MMMMMM16.4MMMMMM2018-07-23 05:30:40l”) 34623232.530-117.421201807230430MMMMMM1.3176.3206MMMMMM22.8MMMMMM2018-07-23 05:30:40k”( 34622943.769-124.547201807230453MMMMMM1.785.8323MMMMMM11.3MMMMMM2018-07-23 05:30:40 ‘#µF×hù‹k”9 34626564.472-165.474201807230430MMMMMM0.574.3219MMMMMM15.0MMMMMM2018-07-23 05:30:40k”8 34626339.370-123.912201807230230MMMMMM1.587.4315MMMMMM13.5MMMMMM2018-07-23 05:30:40l”7 34626233.704-119.004201807230430MMMMMM1.6175.4196MMMMMM21.9MMMMMM2018-07-23 05:30:40l”6 34625934.732-121.664201807230452MMMMMM1.7177.6199MMMMMM17.4MMMMMM2018-07-23 05:30:40l”5 34625832.752-117.501201807230430MMMMMM1.2175.7198MMMMMM23.5MMMMMM2018-07-23 05:30:40l”4 34625633.700-118.201201807230430MMMMMM1.1176.5119MMMMMM18.6MMMMMM2018-07-23 05:30:40k”3 34625432.868-117.267201807230430MMMMMM0.954.5294MMMMMM23.4MMMMMM2018-07-23 05:30:40k”2 34625333.576-118.181201807230430MMMMMM1.154.9274MMMMMM20.5MMMMMM2018-07-23 05:30:40l”1 34625133.761-119.559201807230430MMMMMM1.6155.4206MMMMMM18.6MMMMMM2018-07-23 05:30:40 fˆš!¬?Òfi”A 35120619.780-154.970201807230427MMMMMM1.37MMMMMMMMMM26.5MMMMMM2018-07-23 05:30:40j”@ 35120521.018-156.425201807230430MMMMMM1.875.253MMMMMM26.3MMMMMM2018-07-23 05:30:40j”? 35120221.415-157.678201807230434MMMMMM1.575.355MMMMMM26.9MMMMMM2018-07-23 05:30:40r”> 35100417.602-152.395201807230440708.010.0MMMM6.2100MMMM26.626.824.0MMMM2018-07-23 05:30:40v”= 35100319.289-160.569201807230450507.08.01.6175.91261013.6+0.026.727.2MMMMMM2018-07-23 05:30:40r”< 35100217.037-157.696201807230450607.08.01.775.8801013.3MM26.8MM23.5MMMM2018-07-23 05:30:40v”; 35100023.538-153.808201807230450908.010.01.795.61051017.5+0.724.825.7MMMMMM2018-07-23 05:30:40u”: 346T2946.141-124.5742018072304503309.011.0MMMMMMMM1021.2MM13.714.913.1MMMM2018-07-23 05:30:40_ÆwÆÌÒØÞäêðöü &,28>DJPV\bhntz€†Œ’˜ž¤ª°¶¼ÂÈÎÔÚàæìòøþ "(.4:@FLRX^djpv|‚ˆŽ”š ¦¬²¸¾ÄÊÐÖÜâèîôúÀº´®¨¢œ–Š„~xrlf`ZTNHB<60*$ •”0””'“”’”‘””“~Ž“v“nŒ“f‹“^Š“V‰“Nˆ“F‡“>†“6…“.„“%ƒ“‚““ €“’}~’u}’l|’d{’\z’Ty’Lx’Dw’<Œ?ŒGŒOŒXŒ`ŒhŒpŒx !"#$ %(&0'8(@)H*P+X,`-h.p/x0Ž1Ž2Ž3Ž4Ž"5Ž*6Ž37Ž<8ŽD9ŽL:ŽT;Ž\<Žd=Žl>Žt?Ž|@A BCD$E,F4G<HDILJTK\LdMlNtO|PQ RST$U,V4W<XDYLZT[\\d]l^t_|`‘a‘ b‘c‘d‘$e‘,f‘4g‘<h‘Di‘Lj‘Tk‘\l‘dm‘ln‘to‘|p’q’ r’s’t’$u’,v’4b´ÜÆÌÒØÞäêðöü &,28>DJPV\bhntz€†Œ’˜ž¤ª°¶¼ÂÈÎÔÚàæìòøþ "(.4:@FLRX^djpv|‚ˆŽ”š ¦¬²¸¾ÄÊÐÖÜâèîôúÀº´®¨¢œ–Š„~xrlf`ZTNHB<60*$ ט2֘*՘"ԘӘҘ јЗzϗrΗj͗b̗Z˗RʗJɗBȗ:Ǘ2Ɨ*ŗ"ė×— Á—À–z¿–r¾–j½–b¼–ZۘRژJ٘Bx’Dy’Lz’T{’\|’d}’l~’u’}€““ ‚“ƒ“„“%…“.†“6‡“>ˆ“F‰“NŠ“V‹“^Œ“f“nŽ“v“~”‘”’”“”””'•”0–”9—”Aš”J›”Rœ”Z”bž”jŸ”r ”z¡•¢• £•¤•¥•"¦•*§•2¨•:©•Bª•J«•R¬•Z­•b®•j¯•r°•z±–²– ³–´–µ–"¶–*·–2¸–:¹–Bº–J»–R¼–Z½–b¾–j¿–rÀ–zÁ—— ×ėŗ"Ɨ*Ǘ2ȗ:ɗBʗJ˗R̗Z͗bΗjϗrЗzјҘ ӘԘ՘"֘*ט2ؘ: %”'¸KÜmþ’%j”J 35220013.354144.788201807230430MMMMMM1.075.6155MMMMMM29.4MMMMMM2018-07-23 05:30:40i”I 351WH022.750-157.917201807230430MMMMMMMMMMMMMMMMMMMM26.0MMMMMM2018-07-23 05:30:40l”H 35121320.750-157.003201807230430MMMMMM1.2159.3167MMMMMM26.7MMMMMM2018-07-23 05:30:40l”G 35121221.323-158.149201807230430MMMMMM1.0188.9155MMMMMM27.2MMMMMM2018-07-23 05:30:40l”F 35121121.297-157.959201807230430MMMMMM0.9155.4165MMMMMM26.9MMMMMM2018-07-23 05:30:40j”E 35121021.477-157.756201807230430MMMMMM1.375.253MMMMMM26.2MMMMMM2018-07-23 05:30:40l”D 351209-14.264-170.493201807230430MMMMMM1.996.6108MMMMMM28.1MMMMMM2018-07-23 05:30:40j”C 35120822.285-159.574201807230436MMMMMM1.675.257MMMMMM27.2MMMMMM2018-07-23 05:30:40i”B 35120721.477-157.752201807230424MMMMMM1.37MMMMMMMMMM26.1MMMMMM2018-07-23 05:30:40 w”&»JÒbïwu”R 36208151.000-13.5502018072304002106.2MM1.4MMMMMM1015.2-1.217.317.617.3MMMM2018-07-23 05:30:40p”Q 36205050.000-4.4002018072304003403.1MM0.4MMMMMM1018.5MM18.5MM17.1MMMM2018-07-23 05:30:40m”P 36203050.250-4.217201807230400MMMMMMMMMMMMMM1017.7MM17.4MM16.1MMMM2018-07-23 05:30:40u”O 36202948.720-12.4302018072304002105.1MM0.7MMMMMM1018.3-0.917.818.316.8MMMM2018-07-23 05:30:40n”N 36200145.230-5.000201807230400804.1MM0.75MMMM1018.1MM20.8MM17.3MMMM2018-07-23 05:30:40h”M 35221115.268145.662201807230430MMMMMM1.68MMMMMMMMMM29.6MMMMMM2018-07-23 05:30:40k”L 35220213.684144.812201807230430MMMMMM1.6106.5278MMMMMM29.5MMMMMM2018-07-23 05:30:40i”K 3522017.083171.392201807230445MMMMMM0.997.2140MMMMMM29.6MMMMMM2018-07-23 05:30:40 _ˆ*·DÑ_o”Z 36213554.2001.600201807230400180MMMMMMMMMMMM1015.2-0.518.0MM16.4MMMM2018-07-23 05:30:40p”Y 36213058.7001.300201807230400140MMMM0.6MMMMMM1011.6-0.816.8MM14.311MM2018-07-23 05:30:40p”X 36212453.600-3.600201807230400270MMMMMMMMMMMM1015.7-0.318.2MM16.5MMMM2018-07-23 05:30:40p”W 36212153.5002.7002018072304002004.1MMMMMMMMMM1016.5-0.117.2MM15.1MMMM2018-07-23 05:30:40p”V 36211458.3000.0002018072304001604.6MMMMMMMMMM1011.2-0.816.3MM15.3MMMM2018-07-23 05:30:40t”U 36210750.102-6.1002018072304002403.1MM0.5MMMMMM1018.5-0.618.318.916.6MMMM2018-07-23 05:30:40q”T 36210349.900-2.9002018072304002504.6MM0.4MMMMMM1018.5+0.217.1MM16.25MM2018-07-23 05:30:40u”S 36209553.040-15.5302018072304002506.2MM1.2MMMMMM1014.3-0.514.515.212.0MMMM2018-07-23 05:30:40 g¦3¿MÚgp”b 36216457.2000.8002018072304002405.7MMMMMMMMMM1012.0-0.018.3MM16.111MM2018-07-23 05:30:40p”a 36216347.550-8.4702018072304002902.6MM0.7MMMMMM1019.5MM18.0MM13.9MMMM2018-07-23 05:30:40o”` 36215053.6000.7002018072304002606.2MM0.2MMMMMM1016.9-0.019.1MMMM11MM2018-07-23 05:30:40q”_ 36214953.7001.1002018072304002504.1MM0.2MMMMMM1016.2+0.118.2MM16.611MM2018-07-23 05:30:40p”^ 36214853.6001.5002018072304002304.1MMMMMMMMMM1016.0-0.117.3MM15.5MMMM2018-07-23 05:30:40q”] 36214657.2002.1002018072304002408.2MM0.8MMMMMM1012.5+0.017.4MM16.611MM2018-07-23 05:30:40p”\ 36214553.1022.8002018072304002104.1MM0.3MMMMMM1016.9-0.117.0MM12.55MM2018-07-23 05:30:40p”[ 36214453.4001.7002018072304002105.1MM0.3MMMMMM1016.1-0.118.0MM15.85MM2018-07-23 05:30:40 dŒ +¼K×dp”j 36311261.1001.0002018072304002602.1MM1.0MMMMMM1010.8+0.312.5MM9.811MM2018-07-23 05:30:40q”i 36311059.5001.5002018072304002001.5MM0.8MMMMMM1011.7-0.215.1MM13.411MM2018-07-23 05:30:40n”h 36310561.0001.6922018072304002503.6MMMMMMMMMM1011.2+0.514.4MM9.12MM2018-07-23 05:30:40l”g 36244249.000-16.5002018072304003006.7MMMMMMMMMM1018.5MMMMMMMMMMMM2018-07-23 05:30:40r”f 36230550.4000.0002018072304002406.7MM0.2MMMMMM1017.9-0.117.216.816.25MM2018-07-23 05:30:40s”e 36230451.1021.8002018072304002108.2MM0.1MMMMMM1017.5+0.318.218.016.011MM2018-07-23 05:30:40s”d 36217051.2402.0002018072304002206.7MM0.1MMMMMM1016.7+0.218.117.916.7MMMM2018-07-23 05:30:40q”c 36216554.0001.1002018072304002603.1MM0.3MMMMMM1015.6-0.117.8MM16.527MM2018-07-23 05:30:40 k’°8ÃNÜkn”r 3ACYN439.357-74.418201807230430MMMMMMMMMMMMMM1016.2MM24.023.3MMMMMM2018-07-23 05:30:40o”q 3ACXS132.559-80.454201807230345MM0.0MMMMMMMMMM1008.0MM26.9MM25.0MMMM2018-07-23 05:30:40r”p 3AAMC137.772-122.3002018072304422803.64.6MMMMMMMM1019.6MM16.621.1MMMMMM2018-07-23 05:30:40r”o 36404660.483-4.1672018072304002503.1MM1.3MMMMMM1009.1MM11.112.110.1MMMM2018-07-23 05:30:40u”n 36404559.070-11.4202018072304002206.7MM1.8MMMMMM1007.0-1.212.012.910.4MMMM2018-07-23 05:30:40k”m 36311761.4001.1002018072304002404.1MMMMMMMMMM1011.3+0.4MMMMMM5MM2018-07-23 05:30:40q”l 36311561.6001.3002018072304002104.1MM1.2MMMMMM1010.7+0.512.6MM10.127MM2018-07-23 05:30:40k”k 36311361.0001.7082018072304002603.1MM0.9MMMMMMMMMM13.1MM10.0MMMM2018-07-23 05:30:40 mŽ¬9ÄUámq”z 3AMRL129.450-91.3382018072304482402.16.2MMMMMMMM1011.4MM29.931.3MMMMMM2018-07-23 05:30:40q”y 3AMAA258.915-151.952201807230430808.29.8MMMMMMMM1024.4MM11.5MM10.8MMMM2018-07-23 05:30:40l”x 3ALXN644.331-75.934201807230430MMMMMMMMMMMMMM1014.9MMMM23.4MMMMMM2018-07-23 05:30:40r”w 3ALIA256.898-154.2472018072304481006.78.8MMMMMMMM1018.2MM12.211.9MMMMMM2018-07-23 05:30:40p”v 3AJXA258.287-134.398201807230452500.52.6MMMMMMMM1022.5MM16.8MM9.8MMMM2018-07-23 05:30:40p”u 3AGXC133.716-118.2462018072304482405.15.7MMMMMMMM1015.0MM21.9MMMMMMMM2018-07-23 05:30:40l”t 3AGCM442.621-82.527201807230430MMMMMMMMMMMMMM1011.2MM16.4MMMMMMMM2018-07-23 05:30:40o”s 3ADKA251.861-176.6372018072304482804.65.7MMMMMMMM1015.4MMMM6.8MMMMMM2018-07-23 05:30:40 o¦3ÄPãoq• 3APRP713.444144.6572018072304062302.15.7MMMMMMMM1006.1MM30.129.4MMMMMM2018-07-23 05:30:40j• 3APNM445.060-83.424201807230450905.78.2MMMMMMMMMMMM18.7MMMMMMMM2018-07-23 05:30:40q• 3APCF129.724-84.9802018072304482502.63.6MMMMMMMM1009.0MM23.629.9MMMMMM2018-07-23 05:30:40l” 3APAM238.983-76.479201807230430MMMMMMMMMMMMMM1011.5MM25.7MMMMMMMM2018-07-23 05:30:40p”~ 3ANVC138.915-123.7112018072304482801.52.6MMMMMMMM1020.8MMMM14.7MMMMMM2018-07-23 05:30:40r”} 3ANTA261.238-149.8902018072304362301.02.1MMMMMMMM1023.8MM16.415.1MMMMMM2018-07-23 05:30:40q”| 3ANPT227.837-97.0392018072304481806.77.2MMMMMMMM1012.1MM27.029.8MMMMMM2018-07-23 05:30:40n”{ 3ANMN642.018-73.917201807230430MMMMMMMMMMMMMM1017.0MM22.5MM22.2MMMM2018-07-23 05:30:40 o•)µAÍYãoq•  3AWRT228.227-96.7962018072304421805.17.2MMMMMMMM1012.9MM28.230.6MMMMMM2018-07-23 05:30:40s•  3AUGA259.378-153.3482018072304301308.210.3MMMMMMMM1024.4MM10.6MM10.6MMMM2018-07-23 05:30:40q• 3ATKA252.232-174.1732018072304483005.76.2MMMMMMMM1014.6MM10.16.9MMMMMM2018-07-23 05:30:40q• 3ATGM144.392-68.2042018072304301701.03.6MMMMMMMM1024.8MM20.113.5MMMMMM2018-07-23 05:30:40q• 3ASTO346.207-123.768201807230448MM0.02.1MMMMMMMM1019.8MM17.221.1MMMMMM2018-07-23 05:30:40q• 3ARPF128.433-82.6672018072303541202.65.1MMMMMMMM1012.3MM23.0MMMMMM1.582018-07-23 05:30:40i• 3AROP418.480-66.7022018072304481302.12.1MMMMMMMMMMMMMMMMMMMMMM2018-07-23 05:30:40h• 3APXF129.791-84.8832018072303453506.7MMMMMMMMMMMMMMMMMMMMMMMM2018-07-23 05:30:40 w‹©<ÈWéwo• 3BEPB632.374-64.7012018072304301202.63.6MMMMMMMM1023.3MMMM27.6MMMMMM2018-07-23 05:30:40k• 3BDVF125.478-80.989201807230300MMMMMMMMMMMMMMMMMMMM32.2MMMM-0.042018-07-23 05:30:40n• 3BDSP139.980-75.079201807230430MMMMMMMMMMMMMM1015.1MM26.027.5MMMMMM2018-07-23 05:30:40q• 3BDRN440.082-74.8702018072304361502.64.1MMMMMMMM1015.1MM25.027.1MMMMMM2018-07-23 05:30:40j• 3BAXC133.766-118.2402018072304483204.65.7MMMMMMMMMMMMMMMMMMMMMM2018-07-23 05:30:40n•  3BATN640.701-74.014201807230430MMMMMMMMMMMMMM1017.5MM24.723.1MMMMMM2018-07-23 05:30:40n•  3BARA917.591-61.821201807230442MMMMMMMMMMMMMM1014.9MM25.928.1MMMMMM2018-07-23 05:30:40r•  3BABT227.297-97.4052018072304481408.210.3MMMMMMMM1013.4MM27.230.1MMMMMM2018-07-23 05:30:40 zŒ¬=ÌZåzh• 3BKTL130.190-93.301201807230442MMMMMMMMMMMMMMMMMMMM32.2MMMMMM2018-07-23 05:30:40r• 3BISM238.220-76.0392018072304301309.311.3MMMMMMMM1012.5MM26.528.6MMMMMM2018-07-23 05:30:40o• 3BIGM446.827-87.7272018072304402201.01.5MMMMMMMM1016.6MM14.4MMMMMMMM2018-07-23 05:30:40n• 3BHRI341.646-87.147201807230440MM0.00.0MMMMMMMM1013.5MM21.7MMMMMMMM2018-07-23 05:30:40l• 3BHBM342.355-71.050201807230430MMMMMMMMMMMMMM1020.6MM23.9MMMMMMMM2018-07-23 05:30:40l• 3BGXN343.059-70.8302018072303451101.5MMMMMMMMMMMMMM21.4MM21.2MMMM2018-07-23 05:30:40n• 3BGNN440.639-74.146201807230430MMMMMMMMMMMMMM1016.6MM24.624.5MMMMMM2018-07-23 05:30:40q• 3BFTN734.717-76.6712018072304301607.28.8MMMMMMMM1011.1MM27.628.2MMMMMM2018-07-23 05:30:40 x’ª;ÇTæxk•" 3BOBF125.027-80.681201807230300MMMMMMMMMMMMMMMMMMMM31.3MMMM-0.412018-07-23 05:30:40k•! 3BNKF125.087-80.519201807230300MMMMMMMMMMMMMMMMMMMM31.3MMMM-0.552018-07-23 05:30:40p•  3BLTM341.704-71.1742018072304301508.211.3MMMMMMMM1021.1MM24.4MMMMMMMM2018-07-23 05:30:40q• 3BLTM239.267-76.5792018072304301202.64.1MMMMMMMM1011.8MM23.926.0MMMMMM2018-07-23 05:30:40l• 3BLTA258.455-135.8892018072304262002.13.6MMMMMMMMMMMM16.3MMMMMMMM2018-07-23 05:30:40r• 3BLIF130.393-81.5232018072304482203.64.1MMMMMMMM1010.1MM22.6MM22.65.9MM2018-07-23 05:30:40p• 3BLIA260.839-146.8842018072304302202.62.6MMMMMMMM1026.8MM14.4MMMMMMMM2018-07-23 05:30:40k• 3BKYF125.119-80.834201807230300MMMMMMMMMMMMMMMMMMMM30.4MMMM-0.562018-07-23 05:30:40 gŒ§<ÉUÝgs•* 3BUZM341.397-71.03320180723040014010.310.8MMMMMMMM1021.6+0.920.9MMMMMMMM2018-07-23 05:30:40u•) 3BURL128.905-89.42820180723040028011.812.9MMMMMMMM1011.7+1.129.5MM26.5MMMM2018-07-23 05:30:40q•( 3BUFN642.878-78.8902018072304301002.13.1MMMMMMMM1012.9MM23.7MM15.2MMMM2018-07-23 05:30:40p•' 3BSLM238.781-76.7082018072303302200.5MMMMMMMMMM1012.0MM19.1MM19.1MMMM2018-07-23 05:30:40h•& 3BSCA130.329-87.8292018072302302806.2MMMMMMMMMMMMMMMMMMMMMMMM2018-07-23 05:30:40n•% 3BSBM444.055-86.514201807230440105.77.7MMMMMMMM1014.2MM17.8MMMMMMMM2018-07-23 05:30:40q•$ 3BRND138.987-75.11320180723043015010.811.8MMMMMMMM1014.6MM24.4MMMMMMMM2018-07-23 05:30:40q•# 3BRHC341.174-73.1812018072304301304.66.2MMMMMMMM1017.9MM23.423.3MMMMMM2018-07-23 05:30:40 zŒ©8ËVëzn•2 3CASM143.656-70.246201807230430MMMMMMMMMMMMMM1023.0MM20.816.3MMMMMM2018-07-23 05:30:40h•1 3CARL129.933-90.135201807230448MMMMMMMMMMMMMMMMMMMM31.2MMMMMM2018-07-23 05:30:40r•0 3CAPL129.768-93.3432018072304482607.710.8MMMMMMMM1010.8MM29.631.2MMMMMM2018-07-23 05:30:40j•/ 3CANF125.422-80.942201807230300MMMMMMMMMMMMMMMMMMMM31.6MMMM0.562018-07-23 05:30:40n•. 3CAMM238.574-76.069201807230430MMMMMMMMMMMMMM1013.5MM25.826.7MMMMMM2018-07-23 05:30:40o•- 3BZST226.067-97.1552018072304421804.14.6MMMMMMMM1013.0MM26.4MMMMMMMM2018-07-23 05:30:40n•, 3BZBM341.524-70.671201807230430MMMMMMMMMMMMMM1021.9MM23.421.8MMMMMM2018-07-23 05:30:40q•+ 3BYGL129.789-90.4202018072304482301.53.1MMMMMMMM1010.6MM27.831.8MMMMMM2018-07-23 05:30:40 cŒ£.ºI×cq•: 3CHCM239.527-75.8102018072304301302.14.6MMMMMMMM1013.7MM24.826.2MMMMMM2018-07-23 05:30:40o•9 3CHBV237.032-76.0832018072304301806.28.8MMMMMMMM1010.7MM26.1MMMMMMMM2018-07-23 05:30:40n•8 3CHAO343.351-124.337201807230436802.13.1MMMMMMMM1021.4MMMM8.8MMMMMM2018-07-23 05:30:40q•7 3CFWM144.657-67.2052018072304302205.18.2MMMMMMMM1025.2MM16.913.1MMMMMM2018-07-23 05:30:40r•6 3CECC141.746-124.1842018072304421701.52.6MMMMMMMM1020.1MM11.614.3MMMMMM2018-07-23 05:30:40p•5 3CDXA256.001-134.1362018072304422803.14.1MMMMMMMM1025.4MM9.5MM8.8MMMM2018-07-23 05:30:40s•4 3CDRF129.136-83.0292018072304001507.27.7MMMMMMMM1011.4-1.125.2MM21.3MMMM2018-07-23 05:30:40q•3 3CBLO141.981-80.5562018072304001102.63.1MMMMMMMM1010.8+0.020.1MMMMMMMM2018-07-23 05:30:40 ~’"²>Ì^í~l•B 3CLBP418.301-65.302201807230448MMMMMMMMMMMMMM1015.5MMMM29.3MMMMMM2018-07-23 05:30:40n•A 3CLBF127.736-82.692201807230354301.54.1MMMMMMMM1011.6MM28.0MMMMMMMM2018-07-23 05:30:40k•@ 3CHYW148.863-122.759201807230448MMMMMMMMMMMMMM1019.4MMMMMMMMMMMM2018-07-23 05:30:40o•? 3CHYV236.926-76.0072018072304301604.15.7MMMMMMMM1009.8MM24.5MMMMMMMM2018-07-23 05:30:40q•> 3CHTS132.781-79.9242018072304301902.12.6MMMMMMMM1007.7MM27.629.4MMMMMM2018-07-23 05:30:40m•= 3CHSV317.748-64.6992018072304421001.03.1MMMMMMMMMMMM27.028.4MMMMMM2018-07-23 05:30:40m•< 3CHII241.916-87.5722018072304503105.15.7MMMMMMMMMMMM20.4MM19.7MMMM2018-07-23 05:30:40k•; 3CHDS133.661-82.1992018072304401201.01.5MMMMMMMMMMMM23.1MMMMMMMM2018-07-23 05:30:40 jŒ¤0ÂNÞjq•J 3COVM238.402-76.38520180723043017010.311.8MMMMMMMM1012.4MM26.3MMMMMMMM2018-07-23 05:30:40m•I 3CNII241.856-87.6092018072305003303.14.6MMMMMMMMMMMM20.4MM18.1MMMM2018-07-23 05:30:40q•H 3CNDO141.542-81.6372018072304301001.03.6MMMMMMMM1010.8MM19.1MM16.8MMMM2018-07-23 05:30:40k•G 3CNBF125.702-81.186201807230300MMMMMMMMMMMMMMMMMMMM32.2MMMM-0.222018-07-23 05:30:40q•F 3CMTI241.730-87.5382018072304303402.63.6MMMMMMMM1013.0MM20.7MM20.4MMMM2018-07-23 05:30:40q•E 3CMAN438.968-74.9602018072304301205.76.7MMMMMMMM1014.1MM24.423.4MMMMMM2018-07-23 05:30:40q•D 3CLSM442.471-82.8772018072304002101.02.1MMMMMMMM1011.9+0.018.4MMMMMMMM2018-07-23 05:30:40q•C 3CLKN734.622-76.52520180723040014010.311.3MMMMMMMM1011.4+0.9MMMMMMMMMM2018-07-23 05:30:40 l¬7ÆTâls•R 3CSPA258.199-136.6402018072304103109.313.9MMMMMMMM1028.4MM10.6MM10.6MMMM2018-07-23 05:30:40o•Q 3CRYV236.888-76.3382018072304302203.14.6MMMMMMMM1010.8MM24.6MMMMMMMM2018-07-23 05:30:40o•P 3CRVA260.558-145.752201807230448201.01.5MMMMMMMM1026.5MMMM13.3MMMMMM2018-07-23 05:30:40n•O 3CRTA130.308-88.1402018072304303403.1MMMMMMMMMM1009.5MM29.1MMMMMMMM2018-07-23 05:30:40r•N 3CPXC135.170-120.7412018072304481201.01.0MMMMMMMM1019.3MM18.0MM14.1MMMM2018-07-23 05:30:40k•M 3CPVM238.995-76.388201807230430MMMMMMMMMMMMMMMMMM25.7MM25.75.9MM2018-07-23 05:30:40s•L 3CPTR141.717-71.34520180723043015011.814.9MMMMMMMM1020.7MM23.624.3MMMMMM2018-07-23 05:30:40m•K 3CPMW148.860-122.756201807230442801.01.0MMMMMMMMMMMM18.414.1MMMMMM2018-07-23 05:30:40 oŒ§3ÁLáoo•Z 3DOMV236.962-76.4242018072304301605.17.7MMMMMMMM1010.7MM25.5MMMMMMMM2018-07-23 05:30:40h•Y 3DMSF130.387-81.559201807230448MMMMMMMMMMMMMMMMMMMM28.2MMMMMM2018-07-23 05:30:40r•X 3DISW347.079-90.728201807230400402.62.6MMMMMMMM1018.9-0.517.6MM13.4MMMM2018-07-23 05:30:40o•W 3DESW147.675-124.485201807230400MMMMMMMMMMMMMM1019.8-1.612.7MMMMMMMM2018-07-23 05:30:40q•V 3DELD139.582-75.5892018072304301505.77.7MMMMMMMM1014.1MM25.424.3MMMMMM2018-07-23 05:30:40p•U 3DBLN642.494-79.354201807230400600.51.0MMMMMMMM1011.7+0.622.1MMMMMMMM2018-07-23 05:30:40o•T 3CWSEC44.233-79.7792018072304302201.02.0MMMMMMMM1039.8MM28.7MMMMMMMM2018-07-23 05:30:40q•S 3CWBF127.978-82.8322018072304421004.66.2MMMMMMMM1011.7MM23.430.4MMMMMM2018-07-23 05:30:40 bŠ¢/¼HÕbp•b 3EBSW147.602-122.3382018072304483002.63.1MMMMMMMM1019.4MMMM13.4MMMMMM2018-07-23 05:30:40p•a 3DULM546.776-92.092201807230430401.02.6MMMMMMMM1018.8MM17.4MM11.7MMMM2018-07-23 05:30:40q•` 3DUKN736.184-75.7462018072304303102.64.1MMMMMMMM1012.2MM24.421.8MMMMMM2018-07-23 05:30:40p•_ 3DTLM445.993-83.898201807230430606.28.2MMMMMMMM1013.3MM19.7MM18.9MMMM2018-07-23 05:30:40p•^ 3DRSD139.089-75.4372018072303301103.6MMMMMMMMMM1014.0MM24.9MM24.9MMMM2018-07-23 05:30:40r•] 3DRFA260.553-152.1372018072304301805.76.2MMMMMMMM1023.8MM13.6MM10.8MMMM2018-07-23 05:30:40p•\ 3DPXC138.056-122.2642018072304482505.16.7MMMMMMMM1018.1MM18.2MMMMMMMM2018-07-23 05:30:40s•[ 3DPIA130.250-88.0752018072304003307.27.7MMMMMMMM1009.8+1.730.8MM24.5MMMM2018-07-23 05:30:40 r‰¦2¾Rårp•j 3ESPP418.094-65.471201807230442902.64.1MMMMMMMM1015.1MM26.528.9MMMMMM2018-07-23 05:30:40j•i 3ERXA258.971-135.2212018072304422001.02.1MMMMMMMMMMMMMMMMMMMMMM2018-07-23 05:30:40i•h 3EREP142.172-80.0982018072304301302.64.6MMMMMMMMMMMMMMMMMMMMMM2018-07-23 05:30:40q•g 3EPTT229.481-94.9172018072304482404.65.7MMMMMMMM1012.6MM27.431.1MMMMMM2018-07-23 05:30:40q•f 3EMAT228.710-95.9142018072304422004.66.7MMMMMMMM1012.3MM28.431.7MMMMMM2018-07-23 05:30:40q•e 3ELXC136.815-121.7382018072303452301.5MMMMMMMMMM1019.0MM16.3MM14.9MMMM2018-07-23 05:30:40l•d 3ELFA258.193-136.347201807230448MMMMMMMMMMMMMM1027.4MMMM8.6MMMMMM2018-07-23 05:30:40t•c 3EINL129.373-91.3842018072304483008.210.3MMMMMMMM1011.1MM29.930.126.4MMMM2018-07-23 05:30:40 c£.¼I×cq•r 3FMRF126.647-81.8712018072304482201.53.1MMMMMMMM1012.4MM29.231.4MMMMMM2018-07-23 05:30:40o•q 3FMOA130.228-88.024201807230448209.310.3MMMMMMMM1009.6MM30.8MMMMMMMM2018-07-23 05:30:40p•p 3FILA259.332-151.995201807230430205.76.7MMMMMMMM1023.7MM13.7MM9.9MMMM2018-07-23 05:30:40o•o 3FHPF128.153-82.8012018072303541107.28.8MMMMMMMM1012.8MM22.7MMMMMMMM2018-07-23 05:30:40r•n 3FFIA257.272-133.6302018072304002404.14.1MMMMMMMM1023.6-0.515.6MMMMMMMM2018-07-23 05:30:40q•m 3FCGT228.943-95.3022018072304482005.77.2MMMMMMMM1013.2MM28.730.0MMMMMM2018-07-23 05:30:40s•l 3FBIS132.685-79.8882018072304002006.27.2MMMMMMMM1008.8+0.428.8MM26.8MMMM2018-07-23 05:30:40p•k 3FAIO141.764-81.281201807230430404.14.6MMMMMMMM1010.7MM19.7MM19.7MMMM2018-07-23 05:30:40 k‹¥6ÂNÜkn•z 3FRVM341.704-71.164201807230430MMMMMMMMMMMMMM1021.6MM24.123.9MMMMMM2018-07-23 05:30:40o•y 3FREL130.106-90.4222018072304482302.64.6MMMMMMMM1008.7MM28.3MMMMMMMM2018-07-23 05:30:40q•x 3FRDW148.545-123.012201807230436100.51.0MMMMMMMM1019.3MM17.813.4MMMMMM2018-07-23 05:30:40q•w 3FRDF130.675-81.4652018072304482001.53.1MMMMMMMM1009.7MM22.627.8MMMMMM2018-07-23 05:30:40l•v 3FRCB632.370-64.695201807230430MMMMMMMMMMMMMM1023.5MM23.7MMMMMMMM2018-07-23 05:30:40o•u 3FPTM445.619-86.6602018072304403603.67.7MMMMMMMM1014.9MM16.8MMMMMMMM2018-07-23 05:30:40q•t 3FPKG132.035-80.9032018072304301901.01.5MMMMMMMM1008.5MM26.329.0MMMMMM2018-07-23 05:30:40r•s 3FOXR141.807-71.4012018072304301907.712.9MMMMMMMM1020.7MM23.923.4MMMMMM2018-07-23 05:30:40 nŒ¬9ÌXãnr– 3FWYF125.591-80.097201807230400202.63.1MMMMMMMM1014.1+0.327.729.7MMMMMM2018-07-23 05:30:40r– 3FTPC137.806-122.4662018072304422502.15.1MMMMMMMM1019.5MM15.416.5MMMMMM2018-07-23 05:30:40q– 3FTGM443.007-82.4222018072304302201.52.6MMMMMMMM1011.1MM16.5MM14.8MMMM2018-07-23 05:30:40j• 3FSTI241.976-87.6482018072303003405.1MMMMMMMMMMMMMM20.2MMMMMMMM2018-07-23 05:30:40p•~ 3FSNM239.219-76.5252018072304301209.310.8MMMMMMMM1012.3MM25.2MMMMMMMM2018-07-23 05:30:40o•} 3FSKM239.219-76.5282018072304301107.27.7MMMMMMMM1011.9MM25.0MMMMMMMM2018-07-23 05:30:40k•| 3FRXM341.696-71.180201807230430MMMMMMMMMMMMMMMMMM24.1MM22.45.9MM2018-07-23 05:30:40q•{ 3FRWL129.552-92.3052018072304482505.16.7MMMMMMMM1011.4MM29.030.4MMMMMM2018-07-23 05:30:40 x“%´AÍ`ìxq–  3GRIM446.721-87.4122018072304403206.77.2MMMMMMMM1017.1MM16.1MM13.3MMMM2018-07-23 05:30:40q–  3GNJT229.357-94.7252018072304422206.77.7MMMMMMMM1011.9MM28.530.5MMMMMM2018-07-23 05:30:40j– 3GKYF124.627-82.872201807230300MMMMMMMMMMMMMMMMMM29.6MMMMMM0.482018-07-23 05:30:40q– 3GISL129.265-89.9582018072304482807.29.3MMMMMMMM1011.3MM29.730.5MMMMMM2018-07-23 05:30:40p– 3GDXM630.359-88.4202018072303453403.1MMMMMMMMMM1011.0MM30.2MM24.7MMMM2018-07-23 05:30:40n– 3GDMM547.749-90.341201807230430MMMMMMMMMMMMMM1017.3MM16.5MM14.4MMMM2018-07-23 05:30:40k– 3GBTF125.167-80.801201807230300MMMMMMMMMMMMMMMMMMMM31.5MMMM-0.462018-07-23 05:30:40j– 3GBIF125.378-81.029201807230300MMMMMMMMMMMMMMMMMMMM32.2MMMM0.042018-07-23 05:30:40 iŽ©8ÄPÝiq– 3GUXA258.408-135.7262018072304521503.17.2MMMMMMMM1024.4MM11.4MM8.1MMMM2018-07-23 05:30:40p– 3GTXF129.658-81.2332018072303452302.1MMMMMMMMMM1012.0MM22.3MM20.6MMMM2018-07-23 05:30:40q– 3GTRM447.179-88.2412018072304003101.52.1MMMMMMMM1017.9+0.314.9MMMMMMMM2018-07-23 05:30:40q– 3GTOT229.311-94.7922018072304482302.65.7MMMMMMMM1012.4MM28.432.5MMMMMM2018-07-23 05:30:40n– 3GTLM445.211-85.550201807230440606.77.7MMMMMMMM1013.9MM19.6MMMMMMMM2018-07-23 05:30:40n–  3GSLM444.018-83.537201807230440804.65.1MMMMMMMM1011.2MM19.0MMMMMMMM2018-07-23 05:30:40q–  3GRRT229.302-94.8962018072304482206.26.7MMMMMMMM1012.5MM28.630.3MMMMMM2018-07-23 05:30:40o–  3GRMM446.684-85.9722018072304402806.77.2MMMMMMMM1016.6MM13.6MMMMMMMM2018-07-23 05:30:40 dŒ¢/»GØdq– 3HMSA259.602-151.4172018072304421302.14.1MMMMMMMM1023.7MM15.0MM9.0MMMM2018-07-23 05:30:40l– 3HMRA259.601-151.410201807230430901.0MMMMMMMMMM1023.0MMMMMMMMMMMM2018-07-23 05:30:40q– 3HLNM442.773-86.2132018072304303201.51.5MMMMMMMM1012.4MM17.1MM16.2MMMM2018-07-23 05:30:40q– 3HIST229.595-94.3902018072304422304.16.2MMMMMMMM1012.5MM27.930.4MMMMMM2018-07-23 05:30:40p– 3HHLO141.401-82.545201807230400203.64.1MMMMMMMM1010.2+0.420.3MMMMMMMM2018-07-23 05:30:40r– 3HCGN735.209-75.7042018072304301608.210.8MMMMMMMM1011.5MM27.627.9MMMMMM2018-07-23 05:30:40r– 3HBYC140.767-124.2172018072304362900.51.5MMMMMMMM1020.9MM11.612.8MMMMMM2018-07-23 05:30:40q– 3HAXA259.234-135.4422018072304522103.14.6MMMMMMMM1022.7MM21.2MM9.4MMMM2018-07-23 05:30:40 kŒ«:ÆOÛkm–" 3ITKA257.052-135.342201807230448MMMMMMMMMMMMMM1026.1MMMM10.9MMMMMM2018-07-23 05:30:40q–! 3IRDT227.480-97.3222018072304481506.27.7MMMMMMMM1013.8MM27.430.6MMMMMM2018-07-23 05:30:40t–  3IOSN342.967-70.6232018072304001409.810.3MMMMMMMM1021.5+0.520.4MM20.4MMMM2018-07-23 05:30:40q– 3ILOH119.730-155.056201807230442403.64.1MMMMMMMM1014.6MM25.926.9MMMMMM2018-07-23 05:30:40n– 3ICYA259.927-141.3592018072304522603.14.1MMMMMMMMMMMM12.8MM-1.4MMMM2018-07-23 05:30:40q– 3ICAC134.008-118.500201807230448903.64.6MMMMMMMM1015.0MM21.522.8MMMMMM2018-07-23 05:30:40j– 3HREF125.424-81.060201807230300MMMMMMMMMMMMMMMMMMMM31.8MMMM0.212018-07-23 05:30:40q– 3HRBM443.846-82.6432018072304301803.13.6MMMMMMMM1010.8MM18.5MM17.3MMMM2018-07-23 05:30:40 h’«6ÀNÛhp–* 3KATA130.258-88.2132018072304003407.2MMMMMMMMMM1010.2+2.030.6MMMMMMMM2018-07-23 05:30:40p–) 3JOXP417.956-66.2232018072303453501.0MMMMMMMMMM1016.0MM24.6MM21.8MMMM2018-07-23 05:30:40o–( 3JNEA258.298-134.4112018072304481500.51.0MMMMMMMM1023.5MMMM7.7MMMMMM2018-07-23 05:30:40s–' 3JMPN734.213-77.78620180723043016013.414.9MMMMMMMM1009.9MM27.229.1MMMMMM2018-07-23 05:30:40r–& 3JMLA258.286-134.3902018072304421102.63.1MMMMMMMM1022.9MM20.0MM11.9MMMM2018-07-23 05:30:40q–% 3JLXA258.298-134.405201807230452MM1.01.5MMMMMMMM1022.4MM20.3MM11.0MMMM2018-07-23 05:30:40p–$ 3JCRN439.535-74.4642018072304301303.6MMMMMMMMMM1016.0MM19.5MM18.7MMMM2018-07-23 05:30:40k–# 3JAKI241.781-87.5732018072303003603.16.2MMMMMMMMMMMM21.2MMMMMMMM2018-07-23 05:30:40 bŒ£/ºFÒbm–2 3KPTV237.165-75.98820180723043017010.311.8MMMMMMMMMMMMMM26.3MMMMMM2018-07-23 05:30:40q–1 3KPTN640.811-73.7652018072304302006.79.8MMMMMMMM1018.0MM24.721.7MMMMMM2018-07-23 05:30:40q–0 3KNSW342.589-87.8092018072304003203.65.1MMMMMMMM1014.2+0.719.9MMMMMMMM2018-07-23 05:30:40r–/ 3KLIH120.895-156.469201807230442608.810.3MMMMMMMM1015.2MM26.027.5MMMMMM2018-07-23 05:30:40q–. 3KGCA255.062-162.3272018072304483602.13.6MMMMMMMM1013.8MM11.29.7MMMMMM2018-07-23 05:30:40q–- 3KEXA255.352-131.684201807230212905.77.2MMMMMMMM1024.4MM16.8MM11.9MMMM2018-07-23 05:30:40r–, 3KECA255.331-131.6252018072304481601.01.5MMMMMMMM1024.6MM14.113.2MMMMMM2018-07-23 05:30:40q–+ 3KDAA257.731-152.511201807230442802.64.6MMMMMMMM1021.7MM11.311.0MMMMMM2018-07-23 05:30:40 |Š§5É\í|n–: 3LCLL130.224-93.222201807230448MMMMMMMMMMMMMM1010.7MM28.832.3MMMMMM2018-07-23 05:30:40l–9 3LAPW147.913-124.637201807230436MMMMMMMMMMMMMM1020.5MMMM9.0MMMMMM2018-07-23 05:30:40j–8 3LAMV318.318-64.724201807230448MMMMMMMMMMMMMMMMMM27.328.7MMMMMM2018-07-23 05:30:40i–7 3KYWF124.556-81.8082018072304482506.28.8MMMMMMMMMMMMMMMMMMMMMM2018-07-23 05:30:40o–6 3KWNW344.465-87.4962018072304303403.15.7MMMMMMMM1014.1MM19.2MMMMMMMM2018-07-23 05:30:40k–5 3KWJP88.732167.734201807230448MMMMMMMMMMMMMM1007.6MMMM29.5MMMMMM2018-07-23 05:30:40r–4 3KWHH120.037-155.8292018072304422002.62.6MMMMMMMM1013.6MM28.128.0MMMMMM2018-07-23 05:30:40s–3 3KTNF129.819-83.5942018072305001003.14.1MMMMMMMM1009.1-1.124.5MM23.4MMMM2018-07-23 05:30:40 u‹§5ÊTæun–B 3LMFS134.107-81.271201807230420MM0.03.1MMMMMMMM1007.8MM25.2MMMMMMMM2018-07-23 05:30:40k–A 3LMDF125.176-80.633201807230300MMMMMMMMMMMMMMMMMMMM31.0MMMM-0.232018-07-23 05:30:40s–@ 3LKWF126.613-80.0342018072304482602.13.6MMMMMMMM1014.4MM26.328.926.3MMMM2018-07-23 05:30:40h–? 3LJPC132.867-117.257201807230420202.1MM0.95MMMMMMMMMMMMMMMMMM2018-07-23 05:30:40o–> 3LJAC132.867-117.257201807230442202.63.1MMMMMMMM1015.8MM22.4MMMMMMMM2018-07-23 05:30:40q–= 3LIXA258.540-135.0472018072304521604.66.7MMMMMMMM1023.1MM15.6MM9.9MMMM2018-07-23 05:30:40m–< 3LDTM443.947-86.4412018072304303603.16.7MMMMMMMMMMMM19.7MM15.9MMMM2018-07-23 05:30:40r–; 3LCNA256.058-132.6902018072304102906.27.7MMMMMMMM1022.2MM19.5MM14.8MMMM2018-07-23 05:30:40 x“ ¨5ÅXåxj–J 3LRIF125.284-80.894201807230300MMMMMMMMMMMMMMMMMMMM32.3MMMM0.052018-07-23 05:30:40p–I 3LPNM445.063-83.429201807230430802.66.2MMMMMMMM1012.2MM18.9MM18.0MMMM2018-07-23 05:30:40j–H 3LORO141.481-82.195201807230430503.64.1MMMMMMMMMMMM20.7MMMMMMMM2018-07-23 05:30:40m–G 3LOPW146.106-122.954201807230448MMMMMMMMMMMMMM1018.5MMMM21.1MMMMMM2018-07-23 05:30:40p–F 3LOPL128.885-90.0252018072304522906.79.31.0MMMMMM1012.1MM29.1MMMMMMMM2018-07-23 05:30:40u–E 3LONF124.844-80.8642018072304003206.26.7MMMMMMMM1013.5+0.028.932.124.1MMMM2018-07-23 05:30:40p–D 3LNDC137.795-122.2812018072304482702.64.6MMMMMMMM1019.3MM16.7MMMMMMMM2018-07-23 05:30:40j–C 3LMRF125.556-81.169201807230300MMMMMMMMMMMMMMMMMMMM32.4MMMM0.172018-07-23 05:30:40 r’±@ÎZærq–R 3MACM445.777-84.7212018072304301203.64.6MMMMMMMM1013.3MM19.6MM18.4MMMM2018-07-23 05:30:40q–Q 3LWTV237.995-76.4652018072304301605.76.7MMMMMMMM1011.4MM26.625.8MMMMMM2018-07-23 05:30:40q–P 3LWSD138.783-75.1192018072304301505.18.2MMMMMMMM1014.2MM24.723.3MMMMMM2018-07-23 05:30:40o–O 3LUIT229.076-95.1222018072304482204.15.7MMMMMMMM1012.8MM28.4MMMMMMMM2018-07-23 05:30:40n–N 3LTRM446.486-84.302201807230430603.14.6MMMMMMMM1014.0MM21.9MMMMMMMM2018-07-23 05:30:40j–M 3LTJF130.379-81.446201807230448MMMMMMMMMMMMMMMMMM22.0MM20.2MMMM2018-07-23 05:30:40q–L 3LTBV317.695-64.7542018072304481102.14.1MMMMMMMM1016.5MM27.229.1MMMMMM2018-07-23 05:30:40k–K 3LSNF125.235-80.457201807230300MMMMMMMMMMMMMMMMMMMM31.8MMMM-0.562018-07-23 05:30:40 y¨9ÅQæyj–Z 3MCYI341.729-86.912201807230450504.65.1MMMMMMMMMMMM21.2MMMMMMMM2018-07-23 05:30:40h–Y 3MCYF127.914-82.425201807230448MMMMMMMMMMMMMMMMMMMM31.6MMMMMM2018-07-23 05:30:40q–X 3MCGM446.546-87.3792018072304303201.55.1MMMMMMMM1016.0MM16.0MM11.4MMMM2018-07-23 05:30:40q–W 3MCGA130.649-88.0582018072304483301.52.6MMMMMMMM1009.7MM28.530.4MMMMMM2018-07-23 05:30:40l–V 3MBRM442.975-82.419201807230430MMMMMMMMMMMMMM1011.0MM17.0MMMMMMMM2018-07-23 05:30:40p–U 3MBLA130.437-88.0112018072304003307.2MMMMMMMMMM1009.5+1.730.9MMMMMMMM2018-07-23 05:30:40q–T 3MBET228.422-96.3272018072304482206.27.2MMMMMMMM1011.7MM28.133.7MMMMMM2018-07-23 05:30:40n–S 3MAXT228.132-97.0342018072304001604.1MMMMMMMMMM1014.0+1.0MMMMMMMMMM2018-07-23 05:30:40 nŒ¦2ÁUßnn–b 3MISP418.090-67.939201807230448MMMMMMMMMMMMMM1015.1MM24.628.7MMMMMM2018-07-23 05:30:40s–a 3MISM143.784-68.85520180723040016011.311.3MMMMMMMM1023.9+0.317.5MMMMMMMM2018-07-23 05:30:40i–` 3MHRN640.641-74.1622018072304301504.66.7MMMMMMMMMMMMMMMMMMMMMM2018-07-23 05:30:40n–_ 3MHPA130.667-87.9362018072304303401.5MMMMMMMMMM1010.8MM27.9MMMMMMMM2018-07-23 05:30:40q–^ 3MGPT229.682-94.9852018072304482303.14.6MMMMMMMM1012.4MM28.431.1MMMMMM2018-07-23 05:30:40n–] 3MGIP417.970-67.046201807230448600.52.6MMMMMMMM1015.4MMMM28.7MMMMMM2018-07-23 05:30:40r–\ 3MEYC136.605-121.8892018072304362702.13.1MMMMMMMM1019.8MM16.116.4MMMMMM2018-07-23 05:30:40q–[ 3MDRM143.969-68.1282018072305001409.89.8MMMMMMMM1025.1-0.317.6MMMMMMMM2018-07-23 05:30:40 lŒ­9ÅQÝln–j 3MRCP139.809-75.415201807230430MMMMMMMMMMMMMM1014.2MM26.127.0MMMMMM2018-07-23 05:30:40q–i 3MQTT227.581-97.2172018072304481606.26.7MMMMMMMM1012.8MM26.626.4MMMMMM2018-07-23 05:30:40q–h 3MOKH121.433-157.790201807230436505.16.2MMMMMMMM1015.8MM26.027.5MMMMMM2018-07-23 05:30:40q–g 3MNPV236.778-76.3022018072304301602.64.1MMMMMMMM1010.6MM23.727.6MMMMMM2018-07-23 05:30:40q–f 3MNMM445.096-87.5902018072304303406.78.2MMMMMMMM1014.9MM19.4MM13.5MMMM2018-07-23 05:30:40k–e 3MLWW343.045-87.8802018072304503605.16.2MMMMMMMMMMMM20.4MMMMMMMM2018-07-23 05:30:40n–d 3MLRF125.012-80.3762018072304002103.1MMMMMMMMMM1013.9MM28.8MMMMMMMM2018-07-23 05:30:40q–c 3MKGM443.227-86.3392018072304503405.15.7MMMMMMMM1012.2MM19.1MM17.8MMMM2018-07-23 05:30:40 xŒ¥8Ê]éxn–r 3MTKN641.048-71.959201807230430MMMMMMMMMMMMMM1020.0MM22.219.7MMMMMM2018-07-23 05:30:40q–q 3MTBF127.661-82.594201807230448908.29.3MMMMMMMM1012.2MM25.6MM24.04.3MM2018-07-23 05:30:40j–p 3MRYA255.099-131.1822018072304521701.52.6MMMMMMMMMMMMMMMMMMMMMM2018-07-23 05:30:40k–o 3MRSL129.441-92.061201807230400MM9.311.3MMMMMMMMMMMM29.6MMMMMMMM2018-07-23 05:30:40j–n 3MROS133.656-78.916201807230430MMMMMMMMMMMMMM1012.5MMMMMMMMMMMM2018-07-23 05:30:40q–m 3MRNA258.198-134.2572018072304521302.14.1MMMMMMMM1023.6MM14.0MM8.7MMMM2018-07-23 05:30:40p–l 3MRKA261.082-146.6622018072304302108.28.8MMMMMMMM1026.4MM14.5MMMMMMMM2018-07-23 05:30:40q–k 3MRHO141.544-82.7312018072304303602.63.6MMMMMMMM1011.6MM19.9MM15.5MMMM2018-07-23 05:30:40 iª6ÅRÝiq–z 3NBLP140.137-74.7522018072304301604.65.7MMMMMMMM1016.0MM25.326.2MMMMMM2018-07-23 05:30:40r–y 3NBBA336.087-114.728201807230450MM0.00.50.1MMMMMM1009.6MM32.530.7MMMMMM2018-07-23 05:30:40p–x 3NAXR141.637-71.3392018072303451803.6MMMMMMMMMM1021.0MM23.3MM22.5MMMM2018-07-23 05:30:40n–w 3NABM446.087-85.444201807230440105.77.2MMMMMMMM1013.5MM18.9MMMMMMMM2018-07-23 05:30:40q–v 3MZXC138.035-122.1252018072304482906.77.2MMMMMMMM1017.8MMMM21.2MM5.9MM2018-07-23 05:30:40q–u 3MYPF130.398-81.4282018072304482304.16.2MMMMMMMM1009.3MM22.328.1MMMMMM2018-07-23 05:30:40l–t 3MXXA258.301-134.4252018072304521402.63.6MMMMMMMMMMMM19.1MMMMMMMM2018-07-23 05:30:40p–s 3MVXA258.364-134.606201807230452302.64.1MMMMMMMM1023.3MM20.1MM6.8MMMM2018-07-23 05:30:40 hŒ¨9ÆSÞhs— 3NKXA258.255-134.9452018072304521808.811.3MMMMMMMM1020.9MM15.0MM11.1MMMM2018-07-23 05:30:40r— 3NKTA260.683-151.3992018072304421905.76.2MMMMMMMM1024.8MM13.513.8MMMMMM2018-07-23 05:30:40p— 3NKLA252.972-168.8552018072304522406.27.7MMMMMMMM1010.8MM7.1MM5.6MMMM2018-07-23 05:30:40p– 3NIWS133.349-79.1892018072303452301.5MMMMMMMMMM1009.0MM23.3MM21.8MMMM2018-07-23 05:30:40l–~ 3NIAN643.077-79.014201807230430MMMMMMMMMMMMMM1012.6MM22.5MMMMMMMM2018-07-23 05:30:40m–} 3NEAW148.367-124.614201807230448MMMMMMMMMMMMMM1020.2MMMM11.5MMMMMM2018-07-23 05:30:40q–| 3NCHT229.726-95.2662018072304482501.03.1MMMMMMMM1011.7MM28.631.4MMMMMM2018-07-23 05:30:40q–{ 3NCDV238.320-77.0372018072304301304.65.7MMMMMMMM1010.1MM25.725.2MMMMMM2018-07-23 05:30:40 qŽ©7ÆXãqo—  3NTBC134.405-119.692201807230436701.54.1MMMMMMMM1015.0MM20.2MMMMMMMM2018-07-23 05:30:40r—  3NSTP6-14.280-170.688201807230448702.65.1MMMMMMMM1011.1MM27.128.4MMMMMM2018-07-23 05:30:40k— 3NRRF125.338-80.911201807230300MMMMMMMMMMMMMMMMMMMM32.1MMMM-0.272018-07-23 05:30:40n— 3NPSF126.132-81.807201807230448MMMMMMMMMMMMMM1013.3MM30.731.3MMMMMM2018-07-23 05:30:40o— 3NPDW345.291-86.9772018072304403403.64.6MMMMMMMM1014.9MM17.3MMMMMMMM2018-07-23 05:30:40n— 3NMTA264.500-165.4302018072304482702.63.1MMMMMMMM1019.1MMMMMMMMMMMM2018-07-23 05:30:40q— 3NLNC341.361-72.0902018072304301604.68.8MMMMMMMM1019.8MM22.722.7MMMMMM2018-07-23 05:30:40o— 3NLMA335.458-114.6662018072304502800.51.00.0MMMMMMMMMM35.130.2MMMMMM2018-07-23 05:30:40 fŒ¦2½IÕfl— 3OBGN644.702-75.494201807230430MMMMMMMMMMMMMM1015.9MM22.2MMMMMMMM2018-07-23 05:30:40q— 3NWWH121.954-159.353201807230442504.66.7MMMMMMMM1016.2MM25.627.8MMMMMM2018-07-23 05:30:40q— 3NWPR141.504-71.3262018072304301306.29.3MMMMMMMM1020.8MM22.020.5MMMMMM2018-07-23 05:30:40r— 3NWPO344.613-124.0672018072305003406.26.7MMMMMMMM1020.6+0.610.6MMMMMMMM2018-07-23 05:30:40q— 3NWHC341.283-72.9082018072304301504.66.2MMMMMMMM1019.0MM23.325.0MMMMMM2018-07-23 05:30:40q—  3NWCL130.027-90.1132018072304482403.66.2MMMMMMMM1009.7MM29.831.6MMMMMM2018-07-23 05:30:40o—  3NUET227.832-97.4862018072304481606.79.8MMMMMMMM1012.9MMMM30.8MMMMMM2018-07-23 05:30:40q—  3NTKM341.285-70.0962018072304301503.66.7MMMMMMMM1022.7MM20.422.8MMMMMM2018-07-23 05:30:40 w «;ÈUäwj— 3OMHC137.801-122.3302018072304482404.65.7MMMMMMMMMMMMMMMMMMMMMM2018-07-23 05:30:40n— 3OLSA252.940-168.8702018072304482304.16.2MMMMMMMM1014.8MMMMMMMMMMMM2018-07-23 05:30:40p— 3OLCN643.341-78.719201807230400804.15.1MMMMMMMM1012.9+0.715.7MMMMMMMM2018-07-23 05:30:40p— 3OKXC137.811-122.3332018072304482702.63.6MMMMMMMM1019.4MM16.6MMMMMMMM2018-07-23 05:30:40m— 3OHBC133.720-118.273201807230448MMMMMMMMMMMMMM1014.9MMMM18.6MMMMMM2018-07-23 05:30:40r— 3OCIM238.328-75.0912018072304301608.210.3MMMMMMMM1014.8MM25.024.8MMMMMM2018-07-23 05:30:40l— 3OBXC137.804-122.341201807230448MMMMMMMMMMMMMMMMMM16.5MM14.75.9MM2018-07-23 05:30:40n— 3OBLA130.705-88.040201807230442MMMMMMMMMMMMMM1009.7MM29.331.8MMMMMM2018-07-23 05:30:40 fŒ¥1¼MÚfq—" 3PACF130.152-85.6672018072304483301.52.1MMMMMMMM1009.1MM26.830.5MMMMMM2018-07-23 05:30:40p—! 3OWXO141.378-82.5082018072303453501.0MMMMMMMMMM1011.0MM20.1MM17.0MMMM2018-07-23 05:30:40l—  3OVIA259.440-151.720201807230448MMMMMMMMMMMMMM1023.9MMMM9.7MMMMMM2018-07-23 05:30:40r— 3OSTF130.357-89.612201807230450MM0.01.0MMMMMMMM1010.2+0.328.8MM24.8MMMM2018-07-23 05:30:40q— 3OSGN643.464-76.5112018072304301306.28.2MMMMMMMM1013.9MM23.7MM19.7MMMM2018-07-23 05:30:40q— 3ORIN735.796-75.5482018072304301404.67.2MMMMMMMM1012.4MM26.325.4MMMMMM2018-07-23 05:30:40p— 3OPTF127.858-82.553201807230448904.16.7MMMMMMMM1012.1MM23.430.8MMMMMM2018-07-23 05:30:40q— 3OOUH121.303-157.865201807230442701.03.1MMMMMMMM1014.9MM26.426.9MMMMMM2018-07-23 05:30:40 eŒ¥1¿KÙeq—* 3PCNT228.446-96.3962018072304421905.16.2MMMMMMMM1012.6MM27.830.6MMMMMM2018-07-23 05:30:40o—) 3PCLM447.276-88.5282018072304402300.51.0MMMMMMMM1020.3MM11.4MMMMMMMM2018-07-23 05:30:40q—( 3PCLF130.404-87.2112018072304423401.01.5MMMMMMMM1009.6MM28.130.9MMMMMM2018-07-23 05:30:40o—' 3PCGT226.072-97.1672018072304481705.16.2MMMMMMMM1014.3MM27.1MMMMMMMM2018-07-23 05:30:40q—& 3PCBF130.213-85.8802018072304483102.62.6MMMMMMMM1009.0MM26.526.4MMMMMM2018-07-23 05:30:40q—% 3PBPA258.203-134.1482018072304103401.02.1MMMMMMMM1022.4MM14.4MM9.4MMMM2018-07-23 05:30:40p—$ 3PBFW148.464-122.469201807230430901.0MMMMMMMMMM1019.0MM18.0MM13.6MMMM2018-07-23 05:30:40q—# 3PACT227.634-97.2372018072304481704.65.7MMMMMMMM1013.4MM27.631.1MMMMMM2018-07-23 05:30:40 }‹­?Ï_î}n—2 3PILA259.742-149.4702018072304301601.51.5MMMMMMMM1026.9MMMMMMMMMMMM2018-07-23 05:30:40n—1 3PHBP139.933-75.142201807230430MMMMMMMMMMMMMM1014.3MM26.026.8MMMMMM2018-07-23 05:30:40m—0 3PGXA257.016-134.6182018072304522000.51.5MMMMMMMMMMMM14.3MM9.4MMMM2018-07-23 05:30:40m—/ 3PGBP713.428144.7962018072304482202.14.1MMMMMMMM1006.4MMMMMMMMMMMM2018-07-23 05:30:40k—. 3PFXC133.747-118.215201807230448102.64.1MMMMMMMMMMMM26.8MMMMMMMM2018-07-23 05:30:40i—- 3PFDC133.735-118.241201807230448902.63.6MMMMMMMMMMMMMMMMMMMMMM2018-07-23 05:30:40o—, 3PEGF126.086-80.1162018072304421901.02.6MMMMMMMM1012.9MM26.9MMMMMMMM2018-07-23 05:30:40r—+ 3PCOC138.056-122.0392018072304482608.89.8MMMMMMMM1017.5MM20.921.5MMMMMM2018-07-23 05:30:40 q‹ª<ÈSâqn—: 3PMNT226.559-97.424201807230448MMMMMMMMMMMMMM1013.5MM27.631.6MMMMMM2018-07-23 05:30:40n—9 3PMAF127.638-82.562201807230448MMMMMMMMMMMMMM1012.3MM24.230.5MMMMMM2018-07-23 05:30:40r—8 3PLXA256.247-134.6472018072304423601.52.1MMMMMMMM1024.5MM15.310.6MMMMMM2018-07-23 05:30:40q—7 3PLSF124.693-82.7732018072305002706.27.2MMMMMMMM1013.9-0.629.7MMMMMMMM2018-07-23 05:30:40k—6 3PKYF124.918-80.747201807230300MMMMMMMMMMMMMMMMMMMM31.8MMMM-0.612018-07-23 05:30:40j—5 3PKBW346.672-92.1362018072303003600.5MMMMMMMMMMMMMM16.0MMMMMMMM2018-07-23 05:30:40q—4 3PILM448.223-88.3662018072304003104.14.1MMMMMMMM1019.6+0.316.5MMMMMMMM2018-07-23 05:30:40r—3 3PILL129.179-89.2592018072304482807.710.8MMMMMMMM1010.8MM29.531.0MMMMMM2018-07-23 05:30:40 €Ž#¯;ÈYí€j—B 3PPXC137.906-122.3652018072304482002.64.1MMMMMMMMMMMMMMMMMMMMMM2018-07-23 05:30:40i—A 3PPTM238.134-76.5332018072304301607.28.2MMMMMMMMMMMMMMMMMMMMMM2018-07-23 05:30:40l—@ 3PPTA130.279-87.556201807230430MMMMMMMMMMMMMM1009.8MM30.1MMMMMMMM2018-07-23 05:30:40p—? 3POTA261.060-146.7002018072304302601.02.1MMMMMMMM1027.3MM14.8MMMMMMMM2018-07-23 05:30:40q—> 3PORT229.867-93.9312018072304482405.16.2MMMMMMMM1012.1MM28.131.8MMMMMM2018-07-23 05:30:40q—= 3PORO342.739-124.4982018072304483104.16.7MMMMMMMM1020.2MM12.78.5MMMMMM2018-07-23 05:30:40h—< 3PNLM630.368-88.563201807230442MMMMMMMMMMMMMMMMMMMM28.8MMMMMM2018-07-23 05:30:40o—; 3PNLM445.968-85.8692018072304303503.66.7MMMMMMMM1014.1MM17.0MMMMMMMM2018-07-23 05:30:40 oŒª=ÊWãoq—J 3PSCM443.420-82.5402018072304002101.52.1MMMMMMMM1011.9+1.117.5MMMMMMMM2018-07-23 05:30:40q—I 3PSBM144.905-66.9832018072304301702.63.6MMMMMMMM1026.7MM16.711.4MMMMMM2018-07-23 05:30:40p—H 3PSBC138.040-121.8872018072304482906.79.3MMMMMMMM1016.6MM23.3MMMMMMMM2018-07-23 05:30:40p—G 3PRYC137.996-122.9772018072304482802.63.6MMMMMMMM1019.4MMMM16.8MMMMMM2018-07-23 05:30:40j—F 3PRUR141.605-71.304201807230430MMMMMMMMMMMMMMMMMM23.2MM22.1MMMM2018-07-23 05:30:40r—E 3PRTA258.411-134.9552018072304101804.15.7MMMMMMMM1021.3MM18.0MM13.6MMMM2018-07-23 05:30:40j—D 3PRJC133.733-118.1862018072304482201.52.1MMMMMMMMMMMMMMMMMMMMMM2018-07-23 05:30:40q—C 3PRDA270.400-148.5272018072304421306.77.2MMMMMMMM1018.0MM13.79.8MMMMMM2018-07-23 05:30:40 x“%¶IÑ\êxo—R 3PTCR141.638-71.3402018072304301704.18.2MMMMMMMM1020.9MM23.4MMMMMMMM2018-07-23 05:30:40o—Q 3PTBM630.213-88.5052018072304483404.66.2MMMMMMMM1010.9MM29.6MMMMMMMM2018-07-23 05:30:40r—P 3PTAW148.125-123.4412018072304363101.02.6MMMMMMMM1020.0MM19.610.9MMMMMM2018-07-23 05:30:40u—O 3PTAT227.826-97.0512018072304001705.76.2MMMMMMMM1013.1+1.127.128.526.3MMMM2018-07-23 05:30:40j—N 3PSXC133.768-118.2262018072304483103.15.1MMMMMMMMMMMMMMMMMMMMMM2018-07-23 05:30:40l—M 3PSTN642.691-79.048201807230430MMMMMMMMMMMMMM1012.0MM21.9MMMMMMMM2018-07-23 05:30:40k—L 3PSTL128.932-89.40720180723044828010.813.9MMMMMMMMMMMMMMMMMMMMMM2018-07-23 05:30:40j—K 3PSLC135.169-120.7542018072304483601.01.5MMMMMMMMMMMMMMMMMMMMMM2018-07-23 05:30:40 g‰¢-¿QÜgr—Z 3PVDR141.786-71.3832018072304301609.812.4MMMMMMMM1020.9MM24.2MM23.8MMMM2018-07-23 05:30:40r—Y 3PTWW148.111-122.7602018072304422604.67.2MMMMMMMM1020.0MM19.611.9MMMMMM2018-07-23 05:30:40k—X 3PTRP418.367-67.2512018072305001002.12.6MMMMMMMMMMMM25.1MMMMMMMM2018-07-23 05:30:40k—W 3PTOA130.671-88.031201807230448MMMMMMMMMMMMMMMMMM29.3MM19.75.9MM2018-07-23 05:30:40r—V 3PTLA258.346-134.7522018072304523301.01.5MMMMMMMM1023.4MM19.9MM12.8MMMM2018-07-23 05:30:40q—U 3PTIT226.061-97.2152018072304481605.17.2MMMMMMMM1014.0MM27.828.9MMMMMM2018-07-23 05:30:40p—T 3PTIM446.485-84.631201807230430604.65.1MMMMMMMM1014.4MM21.6MM12.2MMMM2018-07-23 05:30:40t—S 3PTGC134.577-120.64820180723040036013.914.4MMMMMMMM1017.7+0.015.6MMMMMMMM2018-07-23 05:30:40 vŽ!®?ÉZåvl—b 3RCRN643.269-77.626201807230430MMMMMMMMMMMMMM1012.4MM23.3MMMMMMMM2018-07-23 05:30:40r—a 3RCMC137.923-122.4102018072304421601.52.1MMMMMMMM1018.6MM17.919.5MMMMMM2018-07-23 05:30:40l—` 3RCKM446.264-84.191201807230430301.52.1MMMMMMMM1013.4MMMMMMMMMMMM2018-07-23 05:30:40s—_ 3QPTR141.586-71.40720180723043015010.311.8MMMMMMMM1021.1MM23.023.6MMMMMM2018-07-23 05:30:40l—^ 3PXSC137.803-122.397201807230442MMMMMMMMMMMMMMMMMM16.5MM14.65.9MM2018-07-23 05:30:40p—] 3PXOC137.798-122.3932018072304482504.15.1MMMMMMMM1018.3MM15.9MMMMMMMM2018-07-23 05:30:40j—\ 3PXAC133.764-118.2652018072304483203.14.1MMMMMMMMMMMMMMMMMMMMMM2018-07-23 05:30:40o—[ 3PWAW343.388-87.8672018072304403202.63.6MMMMMMMM1015.2MM20.1MMMMMMMM2018-07-23 05:30:40 w•$±DÐ\éwo—j 3ROBN440.657-74.0652018072304301607.78.8MMMMMMMM1017.1MM23.9MMMMMMMM2018-07-23 05:30:40p—i 3ROAM447.867-89.313201807230400203.63.6MMMMMMMM1019.5-0.618.2MMMMMMMM2018-07-23 05:30:40q—h 3RLOT229.515-94.5132018072304482603.66.2MMMMMMMM1012.5MM28.129.1MMMMMM2018-07-23 05:30:40q—g 3RLIT226.262-97.2852018072304421507.29.3MMMMMMMM1013.7MM28.630.4MMMMMM2018-07-23 05:30:40j—f 3RKXF126.050-81.701201807230345MMMMMMMMMMMMMMMMMM27.6MM26.2MMMM2018-07-23 05:30:40p—e 3RIXA258.177-135.0522018072304522705.76.2MMMMMMMM1023.2MM14.4MMMMMMMM2018-07-23 05:30:40n—d 3RDYD139.558-75.572201807230430MMMMMMMMMMMMMM1013.3MM25.126.7MMMMMM2018-07-23 05:30:40h—c 3RCYF129.800-81.550201807230448MMMMMMMMMMMMMMMMMMMM27.9MMMMMM2018-07-23 05:30:40 d©5ÀMÚds—r 3SAUF129.857-81.2652018072304002205.16.7MMMMMMMM1009.7-0.922.226.5MMMMMM2018-07-23 05:30:40p—q 3SAPF127.761-82.627201807230442604.67.7MMMMMMMM1012.4MM24.931.0MMMMMM2018-07-23 05:30:40p—p 3SANF124.456-81.877201807230450MMMMMMMMMMMMMM1013.9-0.529.2MM24.7MMMM2018-07-23 05:30:40r—o 3RTYC137.507-122.2122018072304483303.64.6MMMMMMMM1019.6MM18.524.3MMMMMM2018-07-23 05:30:40q—n 3RTAT227.840-97.0722018072304482204.66.2MMMMMMMM1013.0MM27.330.2MMMMMM2018-07-23 05:30:40q—m 3RSJT226.801-97.4712018072304481808.29.8MMMMMMMM1012.5MM28.230.5MMMMMM2018-07-23 05:30:40o—l 3RPRN643.263-77.5982018072304002406.77.7MMMMMMMM1013.5+0.6MMMMMMMMMM2018-07-23 05:30:40n—k 3RPLV237.538-76.0142018072304301309.311.3MMMMMMMM1012.7MMMMMMMMMMMM2018-07-23 05:30:40 b‹¤1¼HÒbm—z 3SDBC132.714-117.174201807230442MMMMMMMMMMMMMM1015.5MMMM23.5MMMMMM2018-07-23 05:30:40s—y 3SCXA258.205-134.6462018072304522408.810.3MMMMMMMM1022.5MM18.0MM11.1MMMM2018-07-23 05:30:40q—x 3SBPT229.728-93.8702018072304422401.54.6MMMMMMMM1013.7MM28.533.6MMMMMM2018-07-23 05:30:40r—w 3SBLM443.810-83.7202018072304003608.810.3MMMMMMMM1010.2+0.018.8MMMMMMMM2018-07-23 05:30:40p—v 3SBIO141.629-82.841201807230400202.63.1MMMMMMMM1011.1+0.418.7MMMMMMMM2018-07-23 05:30:40o—u 3SBEO344.625-124.0452018072304483305.76.2MMMMMMMM1020.4MMMM9.7MMMMMM2018-07-23 05:30:40r—t 3SBBN236.050-114.748201807230450501.51.50.1MMMMMM1009.0MM34.529.5MMMMMM2018-07-23 05:30:40r—s 3SAXG131.418-81.2962018072304002204.1MMMMMMMMMM1008.0+1.024.7MM22.4MMMM2018-07-23 05:30:40 a©5ÁKÕaq˜ 3SHBL129.868-89.6732018072304482406.27.7MMMMMMMM1010.2MM28.831.8MMMMMM2018-07-23 05:30:40s˜ 3SGOF129.408-84.8582018072305002303.64.6MMMMMMMM1009.6-0.323.6MM21.6MMMM2018-07-23 05:30:40s˜ 3SGNW343.749-87.6932018072305003403.64.1MMMMMMMM1013.9-0.620.1MM17.5MMMM2018-07-23 05:30:40q— 3SGNT228.771-95.6172018072304482006.27.7MMMMMMMM1012.2MM28.630.8MMMMMM2018-07-23 05:30:40q—~ 3SFXC138.200-122.0262018072303452904.6MMMMMMMMMM1016.0MM20.9MM13.0MMMM2018-07-23 05:30:40q—} 3SDRT228.407-96.7122018072304481707.79.8MMMMMMMM1012.7MM29.430.9MMMMMM2018-07-23 05:30:40p—| 3SDIA258.277-134.3892018072304441701.51.5MMMMMMMM1022.9MM17.8MMMMMMMM2018-07-23 05:30:40m—{ 3SDHN440.467-74.0092018072304301604.65.7MMMMMMMMMMMM23.824.1MMMMMM2018-07-23 05:30:40 dŠ¢3¼HÕdn˜  3SKTA259.450-135.327201807230442MMMMMMMMMMMMMM1023.2MM20.57.9MMMMMM2018-07-23 05:30:40p˜  3SJOM442.098-86.494201807230400MM0.01.5MMMMMMMM1014.2+0.320.3MMMMMMMM2018-07-23 05:30:40q˜ 3SJNP418.459-66.1162018072304421502.63.6MMMMMMMM1016.1MM27.028.8MMMMMM2018-07-23 05:30:40t˜ 3SISW148.321-122.8312018072304502702.13.1MMMMMMMM1019.8+0.014.2MM11.2MMMM2018-07-23 05:30:40l˜ 3SISA258.177-135.2592018072303222808.89.8MMMMMMMMMMMM15.3MMMMMMMM2018-07-23 05:30:40p˜ 3SIPF127.862-80.4452018072304453309.8MMMMMMMMMM1014.0MM24.424.6MMMMMM2018-07-23 05:30:40r˜ 3SHXA257.055-135.3492018072304522905.17.7MMMMMMMM1025.9MM13.7MM10.2MMMM2018-07-23 05:30:40s˜ 3SHPF130.058-84.2912018072303542103.64.6MMMMMMMM1008.8MM29.130.0MMMM2.662018-07-23 05:30:40 d¥1»JØdq˜ 3SPGF126.704-78.9952018072304001303.13.6MMMMMMMM1013.2-0.627.2MMMMMMMM2018-07-23 05:30:40o˜ 3SNDP528.215-177.361201807230448MMMMMMMMMMMMMM1019.8MM24.326.0MMMMMM2018-07-23 05:30:40n˜ 3SNDA255.336-160.502201807230448604.66.7MMMMMMMM1014.1MMMM9.7MMMMMM2018-07-23 05:30:40s˜ 3SMKF124.628-81.1092018072304502205.76.7MMMMMMMM1013.1-0.329.6MM25.3MMMM2018-07-23 05:30:40q˜ 3SLXA255.340-131.644201807230452901.02.1MMMMMMMM1024.8MM14.1MM10.9MMMM2018-07-23 05:30:40q˜  3SLMN235.389-114.6212018072304501901.01.50.1MMMMMM1009.3MM34.6MMMMMMMM2018-07-23 05:30:40q˜  3SLIM238.321-76.4522018072304301407.28.8MMMMMMMM1011.5MM26.726.9MMMMMM2018-07-23 05:30:40p˜  3SKXA259.448-135.326201807230452400.51.0MMMMMMMM1023.1MM20.5MM9.2MMMM2018-07-23 05:30:40 €’%¶BØcî€k˜ 3SVNM442.401-86.2882018072304402902.63.1MMMMMMMMMMMM18.7MMMMMMMM2018-07-23 05:30:40r˜ 3STXA257.116-135.3912018072304522702.14.6MMMMMMMM1026.4MM13.4MM10.1MMMM2018-07-23 05:30:40r˜ 3STDM447.184-87.2252018072305003407.78.2MMMMMMMM1017.4+0.013.2MM8.5MMMM2018-07-23 05:30:40g˜ 3SSBN733.841-78.482201807230300MMMMMM0.75MM210MMMMMMMMMMMMMM2018-07-23 05:30:40q˜ 3SRST229.683-94.0332018072304002407.28.8MMMMMMMM1012.7+0.828.7MMMMMMMM2018-07-23 05:30:40l˜ 3SRLM445.773-84.137201807230430MMMMMMMMMMMMMMMMMM19.420.416.7MMMM2018-07-23 05:30:40j˜ 3SREF125.352-81.100201807230300MMMMMMMMMMMMMMMMMMMM32.1MMMM0.362018-07-23 05:30:40k˜ 3SPLL128.867-90.4832018072304002809.310.3MMMMMMMMMMMMMMMMMM6.5MM2018-07-23 05:30:40 °>Í\ïk˜" 3TBYF125.155-80.722201807230300MMMMMMMMMMMMMMMMMMMM30.8MMMM-0.332018-07-23 05:30:40j˜! 3TBIM445.035-83.194201807230450807.28.2MMMMMMMMMMMM18.7MMMMMMMM2018-07-23 05:30:40n˜  3TAWM444.254-83.449201807230440903.15.7MMMMMMMM1011.2MM19.2MMMMMMMM2018-07-23 05:30:40n˜ 3TAQT227.815-97.389201807230448MMMMMMMMMMMMMM1012.0MM28.330.6MMMMMM2018-07-23 05:30:40o˜ 3SXHW346.563-90.4372018072304401703.13.6MMMMMMMM1018.6MM12.3MMMMMMMM2018-07-23 05:30:40l˜ 3SWPV236.943-76.329201807230430MMMMMMMMMMMMMM1010.6MMMM26.7MMMMMM2018-07-23 05:30:40n˜ 3SWPM446.501-84.372201807230430703.64.6MMMMMMMM1014.3MM22.4MMMMMMMM2018-07-23 05:30:40m˜ 3SWLA260.120-149.427201807230442MMMMMMMMMMMMMM1025.8MMMM12.8MMMMMM2018-07-23 05:30:40 o ®:ÌXäor˜* 3TKEA257.779-135.2192018072304421001.02.1MMMMMMMM1022.7MM20.9MM12.7MMMM2018-07-23 05:30:40q˜) 3TIXC132.575-117.1272018072303453102.6MMMMMMMMMM1016.0MM21.9MM20.0MMMM2018-07-23 05:30:40q˜( 3THRO141.694-83.4732018072304303401.52.6MMMMMMMM1011.5MM18.1MM13.7MMMM2018-07-23 05:30:40k˜' 3THLO141.826-83.1942018072304403603.64.1MMMMMMMMMMMM19.2MMMMMMMM2018-07-23 05:30:40q˜& 3TESL129.668-91.2372018072304482403.14.6MMMMMMMM1011.1MM28.431.7MMMMMM2018-07-23 05:30:40o˜% 3TCNW147.267-122.413201807230442MMMMMMMMMMMMMM1019.1MM24.112.5MMMMMM2018-07-23 05:30:40j˜$ 3TCMW147.276-122.4182018072304422903.14.6MMMMMMMMMMMMMMMMMMMMMM2018-07-23 05:30:40p˜# 3TCBM239.213-76.244201807230430902.13.6MMMMMMMM1012.8MM24.225.5MMMMMM2018-07-23 05:30:40 } ­BÉUè}h˜2 3TSHF127.929-82.426201807230448302.65.1MMMMMMMMMMMMMMMMMMMMMM2018-07-23 05:30:40j˜1 3TRRF125.217-80.650201807230300MMMMMMMMMMMMMMMMMMMM31.1MMMM0.222018-07-23 05:30:40q˜0 3TRDF128.416-80.5932018072304481906.26.7MMMMMMMM1014.8MM23.128.1MMMMMM2018-07-23 05:30:40v˜/ 3TPLM238.899-76.4362018072305001309.310.3MMMMMMMM1012.5+0.025.925.424.8MMMM2018-07-23 05:30:40h˜. 3TPAF127.933-82.433201807230436805.17.2MMMMMMMMMMMMMMMMMMMMMM2018-07-23 05:30:40p˜- 3TOKW146.707-123.9672018072304483604.66.2MMMMMMMM1020.6MMMM13.8MMMMMM2018-07-23 05:30:40l˜, 3TLBO345.555-123.919201807230448MMMMMMMMMMMMMM1020.7MMMM9.8MMMMMM2018-07-23 05:30:40n˜+ 3TKPN642.014-73.939201807230430MM0.00.0MMMMMMMMMMMM22.526.822.5MMMM2018-07-23 05:30:40 j‹«7ÄPÜjo˜: 3VCVA257.125-170.285201807230442MM0.01.0MMMMMMMM1010.7MM9.08.0MMMMMM2018-07-23 05:30:40q˜9 3VCAT228.640-96.6092018072304481906.26.7MMMMMMMM1012.6MM27.631.9MMMMMM2018-07-23 05:30:40q˜8 3VCAF124.711-81.1072018072304482602.14.1MMMMMMMM1013.6MM30.032.9MMMMMM2018-07-23 05:30:40p˜7 3VBBA336.132-114.412201807230450201.01.00.0MMMMMM1009.4MM35.1MMMMMMMM2018-07-23 05:30:40q˜6 3VAKF125.731-80.1622018072304483501.02.1MMMMMMMM1012.9MM27.131.8MMMMMM2018-07-23 05:30:40o˜5 3UNLA253.880-166.5372018072304481002.13.1MMMMMMMM1013.2MMMM8.0MMMMMM2018-07-23 05:30:40k˜4 3ULRA263.872-160.784201807230448MMMMMMMMMMMMMM1017.7MMMMMMMMMMMM2018-07-23 05:30:40r˜3 3TXPT229.689-93.8422018072304482508.811.3MMMMMMMM1011.4MM28.731.3MMMMMM2018-07-23 05:30:40 v§3ÀSávh˜B 3WBYA130.417-87.825201807230448MMMMMMMMMMMMMMMMMMMM31.1MMMMMM2018-07-23 05:30:40o˜A 3WAXM341.582-70.525201807230345MM2.1MMMMMMMMMM1022.0MM23.0MM22.3MMMM2018-07-23 05:30:40j˜@ 3WATS134.335-80.702201807230430MM0.01.0MMMMMMMMMMMM22.2MMMMMMMM2018-07-23 05:30:40p˜? 3WASD238.873-77.021201807230430800.51.0MMMMMMMM1011.7MM23.623.7MMMMMM2018-07-23 05:30:40q˜> 3WAKP819.291166.6182018072304481103.65.1MMMMMMMM1011.2MM28.230.5MMMMMM2018-07-23 05:30:40q˜= 3WAHV237.608-75.6862018072304301504.17.2MMMMMMMM1012.9MM25.927.2MMMMMM2018-07-23 05:30:40o˜< 3VENF127.072-82.4532018072304002608.28.8MMMMMMMMMMMM30.130.426.2MMMM2018-07-23 05:30:40p˜; 3VDZA261.125-146.3612018072304482603.14.6MMMMMMMM1026.3MMMM12.7MMMMMM2018-07-23 05:30:40 |Ž«:Ì^í|n˜J 3WLON734.228-77.954201807230430MMMMMMMMMMMMMM1009.8MM26.728.5MMMMMM2018-07-23 05:30:40n˜I 3WKXA130.421-87.828201807230345MMMMMMMMMMMMMM1010.0MM30.3MM22.7MMMM2018-07-23 05:30:40k˜H 3WIWF125.587-81.044201807230300MMMMMMMMMMMMMMMMMMMM31.8MMMM-0.092018-07-23 05:30:40k˜G 3WHRI242.361-87.8132018072304403203.64.6MMMMMMMMMMMM19.5MMMMMMMM2018-07-23 05:30:40n˜F 3WFPM446.760-84.970201807230440203.14.1MMMMMMMM1014.2MM17.5MMMMMMMM2018-07-23 05:30:40l˜E 3WEXM143.337-70.5492018072304001501.0MMMMMMMMMMMMMM20.1MM20.1MMMM2018-07-23 05:30:40q˜D 3WELM143.320-70.5632018072304301903.65.1MMMMMMMM1022.7MM20.019.0MMMMMM2018-07-23 05:30:40o˜C 3WDSV236.977-76.3152018072304301706.27.2MMMMMMMM1010.0MM25.0MMMMMMMM2018-07-23 05:30:40 r ª5ÅQÝrh˜R 3YABP418.055-65.833201807230448MMMMMMMMMMMMMMMMMM27.8MMMMMMMM2018-07-23 05:30:40q˜Q 3WYCM630.326-89.3262018072304482201.52.1MMMMMMMM1009.7MM29.130.8MMMMMM2018-07-23 05:30:40q˜P 3WSLM445.842-85.135201807230430207.2MMMMMMMMMM1014.3MM21.420.316.3MMMM2018-07-23 05:30:40m˜O 3WRBF125.072-80.7352018072303002604.6MMMMMMMMMMMMMMMM30.5MMMM-0.432018-07-23 05:30:40r˜N 3WPTW146.904-124.1052018072304363304.66.7MMMMMMMM1020.4MM11.511.4MMMMMM2018-07-23 05:30:40s˜M 3WPOW147.662-122.436201807230400405.15.7MMMMMMMM1019.1-0.318.5MM12.4MMMM2018-07-23 05:30:40j˜L 3WPLF125.710-81.249201807230300MMMMMMMMMMMMMMMMMMMM32.6MMMM0.132018-07-23 05:30:40p˜K 3WNEM446.285-84.210201807230430301.52.6MMMMMMMM1014.0MM21.6MM16.1MMMM2018-07-23 05:30:40 Ъ6Ãp˜W 3YRSV237.414-76.7122018072304301201.0MMMMMMMMMM1012.0MM27.0MM24.3MMMM2018-07-23 05:30:40q˜V 3YKTV237.227-76.4792018072304301503.65.7MMMMMMMM1010.5MM25.226.6MMMMMM2018-07-23 05:30:40p˜U 3YKRV237.251-76.3422018072304301809.310.3MMMMMMMM1011.8MM26.2MMMMMMMM2018-07-23 05:30:40p˜T 3YGNN643.262-79.064201807230300701.03.1MMMMMMMM1011.9+0.721.6MMMMMMMM2018-07-23 05:30:40m˜S 3YATA259.548-139.733201807230448MMMMMMMMMMMMMM1026.8MMMM11.1MMMMMM2018-07-23 05:30:40 ÔÔð (D`|˜´Ðì$@\x”°Ìè <Xt¬È䐬Èä32ST0201807230007832ST0201807230307 Q41002201807230107941002201807230407 R32ST0201807230007832ST0201807230307 Q41002201807230107941002201807230407 R41004201807230107:41004201807230407 S41008201807230007;41008201807230407 T41009201807230107<41009201807230407 U41010201807230107=41010201807230407 V41013201807230107>41013201807230407 W41024201807230107?41024201807230407 X41025201807230107@41025201807230407 Y41029201807230107A41029201807230407 Z41033201807230107B41033201807230407 [41037201807230107C41037201807230407 \41038201807230107D41038201807230407 ]41040201807230007E41040201807230407 ^41041201807230107F ÔÔð (D`|˜´Ðì$@\x”°Ìè <Xt¬È䐬Èä41043201807230107G41043201807230407 `41044201807230107H41044201807230407 a41043201807230107G41043201807230407 `41044201807230107H41044201807230407 a41046201807230107I41046201807230407 b41047201807230107J41047201807230407 c41048201807230107K41048201807230407 d41049201807230107L41049201807230407 e41052201807230107M41052201807230407 f41053201807230107N41053201807230407 g41056201807230107O41056201807230407 h41060201807230007P41060201807230407 i41062201807230107Q41062201807230407 j41063201807230007R41063201807230307 k41064201807230107S41064201807230407 l41108201807230107T41108201807230407 m41110201807230107U ÔÔð (D`|˜´Ðì$@\x”°Ìè <Xt¬È䐬Èä41112201807230107V41112201807230407 o41114201807230107W41114201807230407 p41112201807230107V41112201807230407 o41114201807230107W41114201807230407 p41115201807230107X41115201807230407 q41117201807230107Y41117201807230407 r41118201807230107Z41118201807230407 s41159201807230107[41159201807230407 t41NT0201807230007\41NT0201807230307 u42001201807230107]42001201807230407 v42002201807230007^42002201807230407 w42003201807230107_42003201807230407 x42012201807230107`42012201807230407 y42013201807230007a42013201807230407 z42019201807230007b42019201807230407 {42022201807230007c42022201807230407 |42023201807230007d ÔÔð (D`|˜´Ðì$@\x”°Ìè <Xt¬È䐬Èä42039201807230007e42039201807230407 ~42040201807230107f42040201807230407 42039201807230007e42039201807230407 ~42040201807230107f42040201807230407 42047201807222307g42055201807230107h42055201807230407 €42056201807230107i42056201807230407 42057201807230107j42057201807230407 ‚42060201807230107k42060201807230407 ƒ42085201807230107l42085201807230407 „42097201807230107m42097201807230407 …42098201807230107n42098201807230407 †42099201807230107o42099201807230407 ‡42360201807230107p42360201807230407 ˆ42395201807230107q42395201807230407 ‰44007201807230007r44007201807230407 Š44008201807230007s44008201807230407 ‹ ÔÔð (D`|˜´Ðì$@\x”°Ìè <Xt¬È䐬Èä44009201807230307 Œ44013201807222307u44013201807230307 44014201807230007v44009201807230307 Œ44013201807222307u44013201807230307 44014201807230007v44014201807230407 Ž44017201807230007w44017201807230407 44018201807230007x44018201807230407 44020201807230107y44020201807230407 ‘44025201807230007z44025201807230307 ’44027201807230007{44027201807230407 “44029201807230107|44029201807230407 ”44030201807230107}44030201807230407 •44032201807230107~44032201807230407 –4403320180723010744033201807230407 —44034201807230107€44034201807230407 ˜4403720180723010744037201807230407 ™44039201807230107‚44039201807230407 š ÔÔð (D`|˜´Ðì$@\x”°Ìè <Xt¬È䐬Èä44040201807230307 ›44042201807230107„44042201807230407 œ44056201807230107…44040201807230307 ›44042201807230107„44042201807230407 œ44056201807230107…44056201807230407 44058201807230107†44058201807230407 ž44062201807230107‡44062201807230407 Ÿ44063201807230107ˆ44063201807230407  44064201807230107‰44064201807230407 ¡44065201807230107Š44065201807230407 ¢44066201807230007‹44066201807230407 £44069201807230107Œ44069201807230407 ¤4407220180723010744072201807230407 ¥44089201807230107Ž44089201807230407 ¦4409020180723010744090201807230407 §4409120180723010744091201807230407 ¨44095201807230107‘44095201807230407 © ÔÔð (D`|˜´Ðì$@\x”°Ìè <Xt¬È䐬Èä44097201807230407 ª44098201807230107“44098201807230407 «44099201807230107”44097201807230407 ª44098201807230107“44098201807230407 «44099201807230107”44099201807230407 ¬44100201807230107•44100201807230407 ­44137201807230107–44137201807230407 ®44139201807230107—44139201807230407 ¯44150201807230107˜44150201807230407 °45002201807230107™45002201807230407 ±45003201807230007š45003201807230407 ²45004201807230007›45004201807230407 ³45005201807230107œ45005201807230407 ´4500620180723000745006201807230407 µ45007201807230007ž45007201807230407 ¶45008201807230007Ÿ45008201807230407 ·45012201807230007 45012201807230407 ¸ ÔÔð (D`|˜´Ðì$@\x”°Ìè <Xt¬È䐬Èä45013201807230407 ¹45014201807230107¢45014201807230507 º45022201807230107£45013201807230407 ¹45014201807230107¢45014201807230507 º45022201807230107£45022201807230507 »45023201807230107¤45023201807230407 ¼45024201807230107¥45024201807230407 ½45025201807230107¦45025201807230507 ¾45026201807230107§45026201807230507 ¿45029201807230107¨45029201807230507 À45132201807230107©45132201807230407 Á45135201807230107ª45135201807230407 Â45136201807230107«45136201807230407 Ã45137201807230107¬45137201807230407 Ä45138201807230107­45138201807230407 Å45139201807230107®45139201807230407 Æ45140201807230107¯45140201807230407 Ç ÔÔð (D`|˜´Ðì$@\x”°Ìè <Xt¬È䐬Èä45141201807230407 È45142201807230107±45142201807230407 É45143201807230107²45141201807230407 È45142201807230107±45142201807230407 É45143201807230107²45143201807230407 Ê45144201807230107³45144201807230507 Ë45145201807230107´45145201807230407 Ì45147201807230107µ45147201807230407 Í45148201807230107¶45148201807230407 Î45149201807230007·45151201807230107¸45151201807230407 Ï45154201807230107¹45154201807230407 Ð45159201807230107º45159201807230407 Ñ45161201807230107»45161201807230407 Ò45162201807230107¼45162201807230407 Ó45163201807230107½45163201807230407 Ô45164201807230107¾45164201807230407 Õ45165201807230107¿ ÔÔð (D`|˜´Ðì$@\x”°Ìè <Xt¬È䐬Èä45167201807230107À45167201807230407 ×45168201807230107Á45168201807230407 Ø45167201807230107À45167201807230407 ×45168201807230107Á45168201807230407 Ø45169201807230107Â45169201807230407 Ù45170201807230107Ã45170201807230407 Ú45172201807230107Ä45172201807230407 Û45173201807230107Å45173201807230407 Ü45174201807230107Æ45174201807230407 Ý45175201807230107Ç45175201807230507 Þ45176201807230107È45176201807230407 ß45177201807230007É45178201807230107Ê45178201807230407 à45180201807230107Ë45180201807230407 á45183201807230107Ì45183201807230407 â45187201807230107Í45187201807230407 ã45T01201807230107Î45T01201807230407 ä ÔÔð (D`|˜´Ðì$@\x”°Ìè <Xt¬È䐬Èä46001201807230407 å46002201807230107Ð46002201807230407 æ46004201807230107Ñ46001201807230407 å46002201807230107Ð46002201807230407 æ46004201807230107Ñ46004201807230407 ç46005201807230107Ò46005201807230407 è46011201807230007Ó46011201807230407 é46012201807230007Ô46012201807230407 ê46013201807230107Õ46013201807230407 ë46014201807230107Ö46014201807230407 ì46022201807230107×46022201807230407 í46025201807230107Ø46025201807230407 î46026201807230107Ù46026201807230407 ï46027201807230007Ú46027201807230407 ð46028201807230007Û46028201807230407 ñ46029201807230007Ü46029201807230407 ò46036201807230107Ý46036201807230407 ó ÔÔð (D`|˜´Ðì$@\x”°Ìè <Xt¬È䐬Èä46042201807230407 ô46047201807230007ß46047201807230407 õ46050201807230107à46042201807230407 ô46047201807230007ß46047201807230407 õ46050201807230107à46050201807230407 ö46053201807230107á46053201807230407 ÷46054201807230107â46054201807230407 ø46059201807230107ã46059201807230407 ù46060201807230007ä46060201807230407 ú46066201807230007å46066201807230407 û46069201807230007æ46069201807230307 ü46072201807230007ç46072201807230407 ý46075201807230007è46075201807230407 þ46076201807230007é46076201807230407 ÿ46077201807230007ê46077201807230407 46078201807230007ë46078201807230407 46080201807230007ì46080201807230407  ÔÔð (D`|˜´Ðì$@\x”°Ìè <Xt¬È䐬Èä46082201807230407 46083201807230007î46083201807230407 46085201807230007ï46082201807230407 46083201807230007î46083201807230407 46085201807230007ï46085201807230307 46086201807230007ð46086201807230407 46087201807230107ñ46087201807230407 46088201807230107ò46088201807230407 46089201807230007ó46089201807230407 46092201807230107ô46092201807230407 46096201807230007õ46096201807230207 46097201807222307ö46098201807222307÷46099201807222307ø46108201807230107ù46108201807230407 46114201807230107ú46114201807230407 46118201807230007û46118201807230307 46125201807230107ü46125201807230407 46128201807230107ý ÔÔð (D`|˜´Ðì$@\x”°Ìè <Xt¬È䐬Èä46131201807230107þ46131201807230407 46145201807230107ÿ46145201807230407 46131201807230107þ46131201807230407 46145201807230107ÿ46145201807230407 4614620180723010746146201807230407 4614720180723010746147201807230407 4618120180723010746181201807230407 4618320180723010746183201807230407 4618420180723010746184201807230407 4618520180723010746185201807230407 4620420180723010746204201807230407 4620520180723010746205201807230407 4620720180723010746207201807230407 46208201807230107 46208201807230407 46211201807230107 46211201807230407 46213201807230107 46213201807230507 46214201807230107 ÔÔð (D`|˜´Ðì$@\x”°Ìè <Xt¬È䐬Èä46215201807230107 46215201807230407 4621720180723010746217201807230407 !46215201807230107 46215201807230407 4621720180723010746217201807230407 !4621820180723010746218201807230407 "4621920180723010746219201807230407 #4622120180723010746221201807230407 $4622220180723010746222201807230407 %4622420180723010746224201807230407 &4622520180723000746225201807230307 '4622920180723010746229201807230407 (4623220180723010746232201807230407 )4623720180723010746237201807230407 *4623920180723010746239201807230407 +4624020180723010746240201807230407 ,4624220180723010746242201807230407 -46243201807230107 ÔÔð (D`|˜´Ðì$@\x”°Ìè <Xt¬È䐬Èä4624420180723010746244201807230407 /4624820180723010746248201807230407 04624420180723010746244201807230407 /4624820180723010746248201807230407 04625120180723010746251201807230407 14625320180723010746253201807230407 246254201807230107 46254201807230407 346256201807230107!46256201807230407 446258201807230107"46258201807230407 546259201807230107#46259201807230407 646262201807230107$46262201807230407 746263201807230207 846265201807230107%46265201807230407 946T29201807230107&46T29201807230407 :51000201807230007'51000201807230407 ;51002201807230107(51002201807230407 <51003201807230007)51003201807230407 = ÔÔð (D`|˜´Ðì$@\x”°Ìè <Xt¬È䐬Èä51004201807230407 >51202201807230107+51202201807230407 ?51205201807230107,51004201807230407 >51202201807230107+51202201807230407 ?51205201807230107,51205201807230407 @51206201807230107-51206201807230407 A51207201807230107.51207201807230407 B51208201807230107/51208201807230407 C51209201807230107051209201807230407 D51210201807230107151210201807230407 E51211201807230107251211201807230407 F51212201807230107351212201807230407 G51213201807230107451213201807230407 H51WH0201807230007551WH0201807230407 I52200201807230107652200201807230407 J52201201807230107752201201807230407 K52202201807230107852202201807230407 L ÔÔð (D`|˜´Ðì$@\x”°Ìè <Xt¬È䐬Èä52211201807230407 M62001201807230107:62001201807230407 N62029201807230107;52211201807230407 M62001201807230107:62001201807230407 N62029201807230107;62029201807230407 O62030201807230107<62030201807230407 P62050201807230107=62050201807230407 Q62081201807230107>62081201807230407 R62095201807230107?62095201807230407 S62103201807230107@62103201807230407 T62107201807230107A62107201807230407 U62114201807230107B62114201807230407 V62121201807230107C62121201807230407 W62124201807230107D62124201807230407 X62130201807230107E62130201807230407 Y62135201807230107F62135201807230407 Z62144201807230107G62144201807230407 [ ÔÔð (D`|˜´Ðì$@\x”°Ìè <Xt¬È䐬Èä62145201807230407 \62146201807230107I62146201807230407 ]62148201807230107J62145201807230407 \62146201807230107I62146201807230407 ]62148201807230107J62148201807230407 ^62149201807230107K62149201807230407 _62150201807230107L62150201807230407 `62163201807230107M62163201807230407 a62164201807230107N62164201807230407 b62165201807230107O62165201807230407 c62170201807230107P62170201807230407 d62304201807230107Q62304201807230407 e62305201807230107R62305201807230407 f62442201807230107S62442201807230407 g63105201807230107T63105201807230407 h63110201807230107U63110201807230407 i63112201807230107V63112201807230407 j ÔÔð (D`|˜´Ðì$@\x”°Ìè <Xt¬È䐬Èä63113201807230407 k63115201807230107X63115201807230407 l63117201807230107Y63113201807230407 k63115201807230107X63115201807230407 l63117201807230107Y63117201807230407 m64045201807230107Z64045201807230407 n64046201807230107[64046201807230407 oAAMC1201807230107\AAMC1201807230407 pACXS1201807230007]ACXS1201807230307 qACYN4201807230107^ACYN4201807230407 rADKA2201807230107_ADKA2201807230407 sAGCM4201807230107`AGCM4201807230407 tAGXC1201807230107aAGXC1201807230407 uAJXA2201807230107bAJXA2201807230407 vALIA2201807230107cALIA2201807230407 wALXN6201807230107dALXN6201807230407 xAMAA2201807230107eAMAA2201807230407 y ÔÔð (D`|˜´Ðì$@\x”°Ìè <Xt¬È䐬ÈäAMRL1201807230407 zANMN6201807230107gANMN6201807230407 {ANPT2201807230107hAMRL1201807230407 zANMN6201807230107gANMN6201807230407 {ANPT2201807230107hANPT2201807230407 |ANTA2201807230107iANTA2201807230407 }ANVC1201807230107jANVC1201807230407 ~APAM2201807230107kAPAM2201807230407 APCF1201807230107lAPCF1201807230407 €APNM4201807230107mAPNM4201807230407 APRP7201807230107nAPRP7201807230407 ‚APXF1201807230007oAPXF1201807230307 ƒAROP4201807230107pAROP4201807230407 „ARPF1201807222307qARPF1201807230307 …ASTO3201807230107rASTO3201807230407 †ATGM1201807230107sATGM1201807230407 ‡ATKA2201807230107tATKA2201807230407 ˆ ÔÔð (D`|˜´Ðì$@\x”°Ìè <Xt¬È䐬ÈäAUGA2201807230407 ‰AWRT2201807230107vAWRT2201807230407 ŠBABT2201807230107wAUGA2201807230407 ‰AWRT2201807230107vAWRT2201807230407 ŠBABT2201807230107wBABT2201807230407 ‹BARA9201807230107xBARA9201807230407 ŒBATN6201807230107yBATN6201807230407 BAXC1201807230107zBAXC1201807230407 ŽBDRN4201807230007{BDRN4201807230407 BDSP1201807230107|BDSP1201807230407 BDVF1201807230107}BDVF1201807230307 ‘BEPB6201807230107~BEPB6201807230407 ’BFTN7201807230107BFTN7201807230407 “BGNN4201807230107€BGNN4201807230407 ”BGXN3201807230007BGXN3201807230307 •BHBM3201807230107‚BHBM3201807230407 –BHRI3201807230107ƒBHRI3201807230407 — ÔÔð (D`|˜´Ðì$@\x”°Ìè <Xt¬È䐬ÈäBIGM4201807230407 ˜BISM2201807230107…BISM2201807230407 ™BKTL1201807230107†BIGM4201807230407 ˜BISM2201807230107…BISM2201807230407 ™BKTL1201807230107†BKTL1201807230407 šBKYF1201807230107‡BKYF1201807230307 ›BLIA2201807230107ˆBLIA2201807230407 œBLIF1201807230107‰BLIF1201807230407 BLTA2201807230107ŠBLTA2201807230407 žBLTM2201807230107‹BLTM2201807230407 ŸBLTM3201807230107ŒBLTM3201807230407  BNKF1201807230107BNKF1201807230307 ¡BOBF1201807230107ŽBOBF1201807230307 ¢BRHC3201807230107BRHC3201807230407 £BRND1201807230107BRND1201807230407 ¤BSBM4201807230107‘BSBM4201807230407 ¥BSCA1201807230207 ¦BSLM2201807230007’ ÔÔð (D`|˜´Ðì$@\x”°Ìè <Xt¬È䐬ÈäBUFN6201807230107“BUFN6201807230407 ¨BURL1201807230107”BURL1201807230407 ©BUFN6201807230107“BUFN6201807230407 ¨BURL1201807230107”BURL1201807230407 ©BUZM3201807230107•BUZM3201807230407 ªBWSF1201807230007–BYGL1201807230107—BYGL1201807230407 «BZBM3201807230107˜BZBM3201807230407 ¬BZST2201807230107™BZST2201807230407 ­CAMM2201807230107šCAMM2201807230407 ®CANF1201807230107›CANF1201807230307 ¯CAPL1201807230107œCAPL1201807230407 °CARL1201807230107CARL1201807230407 ±CASM1201807230107žCASM1201807230407 ²CBLO1201807230107ŸCBLO1201807230407 ³CDRF1201807230107 CDRF1201807230407 ´CDXA2201807230107¡CDXA2201807230407 µ ÔÔð (D`|˜´Ðì$@\x”°Ìè <Xt¬È䐬ÈäCECC1201807230407 ¶CFWM1201807230107£CFWM1201807230407 ·CHAO3201807230007¤CECC1201807230407 ¶CFWM1201807230107£CFWM1201807230407 ·CHAO3201807230007¤CHAO3201807230407 ¸CHBV2201807230107¥CHBV2201807230407 ¹CHCM2201807230107¦CHCM2201807230407 ºCHDS1201807230107§CHDS1201807230407 »CHII2201807230107¨CHII2201807230407 ¼CHSV3201807230107©CHSV3201807230407 ½CHTS1201807230107ªCHTS1201807230407 ¾CHYV2201807230107«CHYV2201807230407 ¿CHYW1201807230107¬CHYW1201807230407 ÀCLBF1201807230007­CLBF1201807230307 ÁCLBP4201807230107®CLBP4201807230407 ÂCLKN7201807230107¯CLKN7201807230407 ÃCLSM4201807230107°CLSM4201807230407 Ä ÔÔð (D`|˜´Ðì$@\x”°Ìè <Xt¬È䐬ÈäCMAN4201807230407 ÅCMTI2201807230107²CMTI2201807230407 ÆCNBF1201807230107³CMAN4201807230407 ÅCMTI2201807230107²CMTI2201807230407 ÆCNBF1201807230107³CNBF1201807230307 ÇCNDO1201807230107´CNDO1201807230407 ÈCNII2201807230107µCNII2201807230507 ÉCOVM2201807230107¶COVM2201807230407 ÊCPMW1201807230107·CPMW1201807230407 ËCPTR1201807230107¸CPTR1201807230407 ÌCPVM2201807230107¹CPVM2201807230407 ÍCPXC1201807230107ºCPXC1201807230407 ÎCRTA1201807230107»CRTA1201807230407 ÏCRVA2201807230107¼CRVA2201807230407 ÐCRYV2201807230107½CRYV2201807230407 ÑCSPA2201807230107¾CSPA2201807230407 ÒCWAF1201807230007¿CWBF1201807230107À ÔÔð (D`|˜´Ðì$@\x”°Ìè <Xt¬È䐬ÈäCWSEC201807230107ÁCWSEC201807230407 ÔDBLN6201807230107ÂDBLN6201807230407 ÕCWSEC201807230107ÁCWSEC201807230407 ÔDBLN6201807230107ÂDBLN6201807230407 ÕDELD1201807230107ÃDELD1201807230407 ÖDESW1201807230107ÄDESW1201807230407 ×DISW3201807230107ÅDISW3201807230407 ØDKKF1201807230007ÆDMSF1201807230107ÇDMSF1201807230407 ÙDOMV2201807230107ÈDOMV2201807230407 ÚDPIA1201807230107ÉDPIA1201807230407 ÛDPXC1201807230107ÊDPXC1201807230407 ÜDRFA2201807230107ËDRFA2201807230407 ÝDRSD1201807230007ÌDRSD1201807230307 ÞDTLM4201807230107ÍDTLM4201807230407 ßDUKN7201807230107ÎDUKN7201807230407 àDULM5201807230107ÏDULM5201807230407 á ÔÔð (D`|˜´Ðì$@\x”°Ìè <Xt¬È䐬ÈäEBSW1201807230407 âEINL1201807230107ÑEINL1201807230407 ãELFA2201807230107ÒEBSW1201807230407 âEINL1201807230107ÑEINL1201807230407 ãELFA2201807230107ÒELFA2201807230407 äELXC1201807230007ÓELXC1201807230307 åEMAT2201807230107ÔEMAT2201807230407 æEPTT2201807230107ÕEPTT2201807230407 çEREP1201807230107ÖEREP1201807230407 èEROA2201807230107×ERXA2201807230107ØERXA2201807230407 éESPP4201807230107ÙESPP4201807230407 êFAIO1201807230107ÚFAIO1201807230407 ëFBIS1201807230107ÛFBIS1201807230407 ìFCGT2201807230107ÜFCGT2201807230407 íFFIA2201807230107ÝFFIA2201807230407 îFHPF1201807230007ÞFHPF1201807230307 ïFILA2201807230107ß ÔÔð (D`|˜´Ðì$@\x”°Ìè <Xt¬È䐬ÈäFMOA1201807230107àFMOA1201807230407 ñFMRF1201807230107áFMRF1201807230407 òFMOA1201807230107àFMOA1201807230407 ñFMRF1201807230107áFMRF1201807230407 òFOXR1201807230107âFOXR1201807230407 óFPKG1201807230107ãFPKG1201807230407 ôFPTM4201807230107äFPTM4201807230407 õFRCB6201807230107åFRCB6201807230407 öFRDF1201807230107æFRDF1201807230407 ÷FRDW1201807230007çFRDW1201807230407 øFREL1201807230107èFREL1201807230407 ùFRFN7201807230007éFRVM3201807230107êFRVM3201807230407 úFRWL1201807230107ëFRWL1201807230407 ûFRXM3201807230107ìFRXM3201807230407 üFSKM2201807230107íFSKM2201807230407 ýFSNM2201807230107îFSNM2201807230407 þ ÔÔð (D`|˜´Ðì$@\x”°Ìè <Xt¬È䐬ÈäFSTI2201807230307 ÿFTGM4201807230107ðFTGM4201807230407 FTPC1201807230107ñFSTI2201807230307 ÿFTGM4201807230107ðFTGM4201807230407 FTPC1201807230107ñFTPC1201807230407 FWYF1201807230107òFWYF1201807230407 GBIF1201807230107óGBIF1201807230307 GBTF1201807230107ôGBTF1201807230307 GDMM5201807230107õGDMM5201807230407 GDXM6201807230007öGDXM6201807230307 GISL1201807230107÷GISL1201807230407 GKYF1201807230107øGKYF1201807230307 GNJT2201807230107ùGNJT2201807230407 GRIM4201807230107úGRIM4201807230407 GRMM4201807230107ûGRMM4201807230407 GRRT2201807230107üGRRT2201807230407 GSLM4201807230107ýGSLM4201807230407 ÔÔð (D`|˜´Ðì$@\x”°Ìè <Xt¬È䐬ÈäGTLM4201807230407 GTOT2201807230107ÿGTOT2201807230407 GTRM4201807230107GTLM4201807230407 GTOT2201807230107ÿGTOT2201807230407 GTRM4201807230107GTRM4201807230407 GTXF1201807230007GTXF1201807230307 GUXA2201807230107GUXA2201807230407 HAXA2201807230107HAXA2201807230407 HBYC1201807230007HBYC1201807230407 HCEF1201807230007HCGN7201807230107HCGN7201807230407 HHLO1201807230107HHLO1201807230407 HIST2201807230107HIST2201807230407 HLNM4201807230107 HLNM4201807230407 HMRA2201807230107 HMRA2201807230407 HMSA2201807230107 HMSA2201807230407 HRBM4201807230107 HRBM4201807230407 HREF1201807230107  ô @`€ Àà @`€ Àà @`€ ÀààÀ €`ùFSTI2201807230007ïøFILA2201807230407 ð÷EBSW1201807230107ÐöCWBF1201807230407 ÓõCMAN4201807230107±ôCECC1201807230107¢Ý41041201807230407 _Þ41110201807230407 nß42023201807230407 }à44009201807230007tá44040201807230107ƒâ44097201807230107’ã45013201807230107¡ä45141201807230107°å45165201807230507 Öæ46001201807230007Ïç46042201807230007Þè46082201807230007íé46128201807230407 ê46214201807230407 ë46243201807230407 .ì51004201807230107*í522112018072301079î62145201807230107Hï63113201807230107WðAMRL1201807230107fñAUGA2201807230107uòBIGM4201807230107„óBSLM2201807230307 § @`€ Àà @`€ Àà @`€ àÀ àÀ €` RPRN6201807230107â PXOC1201807230107ÓWHRI2201807230407 GVBBA3201807230207 0THLO1201807230407 'STXA2201807230107  SKTA2201807230107 õCMAN4201807230107±öCWBF1201807230407 Ó÷EBSW1201807230107ÐøFILA2201807230407 ðùFSTI2201807230007ïúGTLM4201807230107þûHREF1201807230307 þKDAA2201807230107ÿLBSF1201807230007,LORO1201807230107<MBRM4201807230407 VMNMM4201807230107ZMYPF1201807230107iNLNC3201807230107xOBLA1201807230107‡OWXO1201807230307 ¡PGXA2201807230407 °POTA2201807230407 ¿ PSXC1201807230407 Î PXOC1201807230107Ó SDHN4201807230107ñ RPRN6201807230107â ÔÔð (D`|˜´Ðì$@\x”°Ìè <Xt¬È䐬ÈäICAC1201807230107ICAC1201807230407 ICYA2201807230107ICYA2201807230407 ICAC1201807230107ICAC1201807230407 ICYA2201807230107ICYA2201807230407 ILOH1201807230107ILOH1201807230407 IOSN3201807230107IOSN3201807230407 IRDT2201807230107IRDT2201807230407 !ITKA2201807230107ITKA2201807230407 "JAKI2201807230007JAKI2201807230307 #JCRN4201807230107JCRN4201807230407 $JKYF1201807230007JLXA2201807230107JLXA2201807230407 %JMLA2201807230107JMLA2201807230407 &JMPN7201807230107JMPN7201807230407 'JNEA2201807230107JNEA2201807230407 (JOXP4201807230007JOXP4201807230307 )KATA1201807230107KATA1201807230407 * ÔÔð (D`|˜´Ðì$@\x”°Ìè <Xt¬È䐬ÈäKDAA2201807230407 +KECA2201807230107KECA2201807230407 ,KEXA2201807230107KDAA2201807230407 +KECA2201807230107KECA2201807230407 ,KEXA2201807230107KEXA2201807230207 -KGCA2201807230107 KGCA2201807230407 .KLIH1201807230107!KLIH1201807230407 /KNSW3201807230107"KNSW3201807230407 0KPTN6201807230107#KPTN6201807230407 1KPTV2201807230107$KPTV2201807230407 2KTNF1201807230107%KTNF1201807230507 3KWHH1201807230107&KWHH1201807230407 4KWJP8201807230107'KWJP8201807230407 5KWNW3201807230107(KWNW3201807230407 6KYWF1201807230107)KYWF1201807230407 7LAMV3201807230107*LAMV3201807230407 8LAPW1201807230007+LAPW1201807230407 9 ÔÔð (D`|˜´Ðì$@\x”°Ìè <Xt¬È䐬ÈäLCLL1201807230107-LCLL1201807230407 :LCNA2201807230107.LCNA2201807230407 ;LCLL1201807230107-LCLL1201807230407 :LCNA2201807230107.LCNA2201807230407 ;LDLC3201807222307/LDTM42018072301070LDTM4201807230407 <LIXA22018072301071LIXA2201807230407 =LJAC12018072301072LJAC1201807230407 >LJPC12018072301073LJPC1201807230407 ?LKWF12018072301074LKWF1201807230407 @LMDF12018072301075LMDF1201807230307 ALMFS12018072301076LMFS1201807230407 BLMRF12018072301077LMRF1201807230307 CLNDC12018072301078LNDC1201807230407 DLONF12018072301079LONF1201807230407 ELOPL1201807230007:LOPL1201807230407 FLOPW1201807230107;LOPW1201807230407 G ÔÔð (D`|˜´Ðì$@\x”°Ìè <Xt¬È䐬ÈäLORO1201807230407 HLPNM4201807230107=LPNM4201807230407 ILRIF1201807230107>LORO1201807230407 HLPNM4201807230107=LPNM4201807230407 ILRIF1201807230107>LRIF1201807230307 JLRKF1201807230007?LSNF1201807230107@LSNF1201807230307 KLTBV3201807230107ALTBV3201807230407 LLTJF1201807230107BLTJF1201807230407 MLTRM4201807230107CLTRM4201807230407 NLUIT2201807230107DLUIT2201807230407 OLWSD1201807230107ELWSD1201807230407 PLWTV2201807230107FLWTV2201807230407 QMACM4201807230107GMACM4201807230407 RMAXT2201807230107HMAXT2201807230407 SMBET2201807230107IMBET2201807230407 TMBLA1201807230107JMBLA1201807230407 UMBRM4201807230107K ÔÔð (D`|˜´Ðì$@\x”°Ìè <Xt¬È䐬ÈäMCGA1201807230107LMCGA1201807230407 WMCGM4201807230107MMCGM4201807230407 XMCGA1201807230107LMCGA1201807230407 WMCGM4201807230107MMCGM4201807230407 XMCYF1201807230107NMCYF1201807230407 YMCYI3201807230107OMCYI3201807230407 ZMDKF1201807230007PMDRM1201807230107QMDRM1201807230507 [MEYC1201807230007RMEYC1201807230407 \MGIP4201807230107SMGIP4201807230407 ]MGPT2201807230107TMGPT2201807230407 ^MHPA1201807230407 _MHRN6201807230107UMHRN6201807230407 `MISM1201807230107VMISM1201807230407 aMISP4201807230107WMISP4201807230407 bMKGM4201807230107XMKGM4201807230407 cMLRF1201807230407 dMLWW3201807230107YMLWW3201807230407 e ÔÔð (D`|˜´Ðì$@\x”°Ìè <Xt¬È䐬ÈäMNMM4201807230407 fMNPV2201807230107[MNPV2201807230407 gMOKH1201807230007\MNMM4201807230407 fMNPV2201807230107[MNPV2201807230407 gMOKH1201807230007\MOKH1201807230407 hMQTT2201807230107]MQTT2201807230407 iMRCP1201807230107^MRCP1201807230407 jMRHO1201807230107_MRHO1201807230407 kMRKA2201807230107`MRKA2201807230407 lMRNA2201807230107aMRNA2201807230407 mMROS1201807230107bMROS1201807230407 nMRSL1201807230007cMRSL1201807230407 oMRYA2201807230107dMRYA2201807230407 pMTBF1201807230107eMTBF1201807230407 qMTKN6201807230107fMTKN6201807230407 rMVXA2201807230107gMVXA2201807230407 sMXXA2201807230107hMXXA2201807230407 t ÔÔð (D`|˜´Ðì$@\x”°Ìè <Xt¬È䐬ÈäMYPF1201807230407 uMZXC1201807230107jMZXC1201807230407 vNABM4201807230107kMYPF1201807230407 uMZXC1201807230107jMZXC1201807230407 vNABM4201807230107kNABM4201807230407 wNAXR1201807230007lNAXR1201807230307 xNBBA3201807230207mNBBA3201807230407 yNBLP1201807230107nNBLP1201807230407 zNCDV2201807230107oNCDV2201807230407 {NCHT2201807230107pNCHT2201807230407 |NEAW1201807230107qNEAW1201807230407 }NIAN6201807230107rNIAN6201807230407 ~NIWS1201807230007sNIWS1201807230307 NKLA2201807230107tNKLA2201807230407 €NKTA2201807230107uNKTA2201807230407 NKXA2201807230107vNKXA2201807230407 ‚NLMA3201807230207wNLMA3201807230407 ƒ ÔÔð (D`|˜´Ðì$@\x”°Ìè <Xt¬È䐬ÈäNLNC3201807230407 „NMTA2201807230107yNMTA2201807230407 …NPDW3201807230107zNLNC3201807230407 „NMTA2201807230107yNMTA2201807230407 …NPDW3201807230107zNPDW3201807230407 †NPSF1201807230107{NPSF1201807230407 ‡NRRF1201807230107|NRRF1201807230307 ˆNSTP6201807230107}NSTP6201807230407 ‰NTBC1201807230007~NTBC1201807230407 ŠNTKM3201807230107NTKM3201807230407 ‹NUET2201807230107€NUET2201807230407 ŒNWCL1201807230107NWCL1201807230407 NWHC3201807230107‚NWHC3201807230407 ŽNWPO3201807230107ƒNWPO3201807230507 NWPR1201807230107„NWPR1201807230407 NWWH1201807230107…NWWH1201807230407 ‘OBGN6201807230107†OBGN6201807230407 ’ ÔÔð (D`|˜´Ðì$@\x”°Ìè <Xt¬È䐬ÈäOBLA1201807230407 “OBXC1201807230107ˆOBXC1201807230407 ”OCIM2201807230107‰OBLA1201807230407 “OBXC1201807230107ˆOBXC1201807230407 ”OCIM2201807230107‰OCIM2201807230407 •OCSM2201807222307ŠOHBC1201807230107‹OHBC1201807230407 –OKXC1201807230107ŒOKXC1201807230407 —OLCN6201807230107OLCN6201807230407 ˜OLSA2201807230107ŽOLSA2201807230407 ™OMHC1201807230107OMHC1201807230407 šOOUH1201807230107OOUH1201807230407 ›OPTF1201807230107‘OPTF1201807230407 œORIN7201807230107’ORIN7201807230407 OSGN6201807230107“OSGN6201807230407 žOSTF1201807230007”OSTF1201807230407 ŸOVIA2201807230107•OVIA2201807230407  OWXO1201807230007– ÔÔð (D`|˜´Ðì$@\x”°Ìè <Xt¬È䐬ÈäPACF1201807230107—PACF1201807230407 ¢PACT2201807230107˜PACT2201807230407 £PACF1201807230107—PACF1201807230407 ¢PACT2201807230107˜PACT2201807230407 £PBFW1201807230107™PBFW1201807230407 ¤PBPA2201807230107šPBPA2201807230407 ¥PCBF1201807230107›PCBF1201807230407 ¦PCGT2201807230107œPCGT2201807230407 §PCLF1201807230107PCLF1201807230407 ¨PCLM4201807230107žPCLM4201807230407 ©PCNT2201807230107ŸPCNT2201807230407 ªPCOC1201807230107 PCOC1201807230407 «PEGF1201807230107¡PEGF1201807230407 ¬PFDC1201807230107¢PFDC1201807230407 ­PFXC1201807230107£PFXC1201807230407 ®PGBP7201807230107¤PGBP7201807230407 ¯PGXA2201807230107¥ ÔÔð (D`|˜´Ðì$@\x”°Ìè <Xt¬È䐬ÈäPHBP1201807230107¦PHBP1201807230407 ±PILA2201807230107§PILA2201807230407 ²PHBP1201807230107¦PHBP1201807230407 ±PILA2201807230107§PILA2201807230407 ²PILL1201807230107¨PILL1201807230407 ³PILM4201807230107©PILM4201807230407 ´PKBW3201807230007ªPKBW3201807230307 µPKYF1201807230107«PKYF1201807230307 ¶PLSF1201807230107¬PLSF1201807230507 ·PLXA2201807230107­PLXA2201807230407 ¸PMAF1201807230107®PMAF1201807230407 ¹PMNT2201807230107¯PMNT2201807230407 ºPNLM4201807230107°PNLM4201807230407 »PNLM6201807230107±PNLM6201807230407 ¼PORO3201807230107²PORO3201807230407 ½PORT2201807230107³PORT2201807230407 ¾POTA2201807230107´ ÔÔð (D`|˜´Ðì$@\x”°Ìè <Xt¬È䐬ÈäPPTA1201807230107µPPTA1201807230407 ÀPPTM2201807230107¶PPTM2201807230407 ÁPPTA1201807230107µPPTA1201807230407 ÀPPTM2201807230107¶PPTM2201807230407 ÁPPXC1201807230107·PPXC1201807230407 ÂPRDA2201807230107¸PRDA2201807230407 ÃPRJC1201807230107¹PRJC1201807230407 ÄPRTA2201807230107ºPRTA2201807230407 ÅPRUR1201807230107»PRUR1201807230407 ÆPRYC1201807230107¼PRYC1201807230407 ÇPSBC1201807230107½PSBC1201807230407 ÈPSBM1201807230107¾PSBM1201807230407 ÉPSCM4201807230107¿PSCM4201807230407 ÊPSLC1201807230107ÀPSLC1201807230407 ËPSTL1201807230107ÁPSTL1201807230407 ÌPSTN6201807230107ÂPSTN6201807230407 ÍPSXC1201807230107à ÔÔð (D`|˜´Ðì$@\x”°Ìè <Xt¬È䐬ÈäPTAT2201807230107ÄPTAT2201807230407 ÏPTAW1201807230007ÅPTAW1201807230407 ÐPTAT2201807230107ÄPTAT2201807230407 ÏPTAW1201807230007ÅPTAW1201807230407 ÐPTBM6201807230107ÆPTBM6201807230407 ÑPTCR1201807230107ÇPTCR1201807230407 ÒPTGC1201807230107ÈPTGC1201807230407 ÓPTIM4201807230107ÉPTIM4201807230407 ÔPTIT2201807230107ÊPTIT2201807230407 ÕPTLA2201807230107ËPTLA2201807230407 ÖPTOA1201807230107ÌPTOA1201807230407 ×PTRP4201807230107ÍPTRP4201807230507 ØPTWW1201807230107ÎPTWW1201807230407 ÙPVDR1201807230107ÏPVDR1201807230407 ÚPVGF1201807230107ÐPWAW3201807230107ÑPWAW3201807230407 ÛPXAC1201807230107ÒPXAC1201807230407 Ü ÔÔð (D`|˜´Ðì$@\x”°Ìè <Xt¬È䐬ÈäPXOC1201807230407 ÝPXSC1201807230107ÔPXSC1201807230407 ÞQPTR1201807230107ÕPXOC1201807230407 ÝPXSC1201807230107ÔPXSC1201807230407 ÞQPTR1201807230107ÕQPTR1201807230407 ßRCKM4201807230107ÖRCKM4201807230407 àRCMC1201807230107×RCMC1201807230407 áRCRN6201807230107ØRCRN6201807230407 âRCYF1201807230107ÙRCYF1201807230407 ãRDYD1201807230107ÚRDYD1201807230407 äRIXA2201807230107ÛRIXA2201807230407 åRKXF1201807230007ÜRKXF1201807230307 æRLIT2201807230107ÝRLIT2201807230407 çRLOT2201807230107ÞRLOT2201807230407 èROAM4201807230107ßROAM4201807230407 éROBN4201807230107àROBN4201807230407 êRPLV2201807230107áRPLV2201807230407 ë ÔÔð (D`|˜´Ðì$@\x”°Ìè <Xt¬È䐬ÈäRPRN6201807230407 ìRSJT2201807230107ãRSJT2201807230407 íRTAT2201807230107äRPRN6201807230407 ìRSJT2201807230107ãRSJT2201807230407 íRTAT2201807230107äRTAT2201807230407 îRTYC1201807230107åRTYC1201807230407 ïSANF1201807230007æSANF1201807230407 ðSAPF1201807230107çSAPF1201807230407 ñSAUF1201807230107èSAUF1201807230407 òSAXG1201807230107éSAXG1201807230407 óSBBN2201807230207êSBBN2201807230407 ôSBEO3201807230107ëSBEO3201807230407 õSBIO1201807230107ìSBIO1201807230407 öSBLM4201807230107íSBLM4201807230407 ÷SBPT2201807230107îSBPT2201807230407 øSCXA2201807230107ïSCXA2201807230407 ùSDBC1201807230107ðSDBC1201807230407 ú ÔÔð (D`|˜´Ðì$@\x”°Ìè <Xt¬È䐬ÈäSDHN4201807230407 ûSDIA2201807230107òSDIA2201807230407 üSDRT2201807230107óSDHN4201807230407 ûSDIA2201807230107òSDIA2201807230407 üSDRT2201807230107óSDRT2201807230407 ýSFXC1201807230007ôSFXC1201807230307 þSGNT2201807230107õSGNT2201807230407 ÿSGNW3201807230107öSGNW3201807230507 SGOF1201807230107÷SGOF1201807230507 SHBL1201807230107øSHBL1201807230407 SHPF1201807230007ùSHPF1201807230307 SHXA2201807230107úSHXA2201807230407 SIPF1201807230107ûSIPF1201807230407 SISA2201807230107üSISA2201807230307 SISW1201807230007ýSISW1201807230407 SJNP4201807230107þSJNP4201807230407 SJOM4201807230107ÿSJOM4201807230407 ÔÔð (D`|˜´Ðì$@\x”°Ìè <Xt¬È䐬ÈäSKTA2201807230407 SKXA2201807230107 SKXA2201807230407 SLIM2201807230107 SKTA2201807230407 SKXA2201807230107 SKXA2201807230407 SLIM2201807230107 SLIM2201807230407 SLMN2201807230207 SLMN2201807230407 SLXA2201807230107 SLXA2201807230407 SMKF1201807230007 SMKF1201807230407 SNDA2201807230107 SNDA2201807230407 SNDP5201807230107 SNDP5201807230407 SPGF1201807230107 SPGF1201807230407 SPLL1201807230007 SPLL1201807230407 SREF1201807230107 SREF1201807230307 SRLM4201807230007 SRLM4201807230407 SRST2201807230107 SRST2201807230407 SSBN7201807230007 SSBN7201807230307 STDM4201807230107 STDM4201807230507  ÔÔð (D`|˜´Ðì$@\x”°Ìè <Xt¬È䐬ÈäSTXA2201807230407 SVNM4201807230107 SVNM4201807230407 SWLA2201807230107 STXA2201807230407 SVNM4201807230107 SVNM4201807230407 SWLA2201807230107 SWLA2201807230407 SWPM4201807230107 SWPM4201807230407 SWPV2201807230107 SWPV2201807230407 SXHW3201807230107 SXHW3201807230407 TAQT2201807230107 TAQT2201807230407 TAWM4201807230107 TAWM4201807230407 TBIM4201807230107 TBIM4201807230407 !TBYF1201807230107 TBYF1201807230307 "TCBM2201807230107 TCBM2201807230407 #TCMW1201807230107 TCMW1201807230407 $TCNW1201807230107 TCNW1201807230407 %TCVF1201807230007 TESL1201807230107 TESL1201807230407 &THLO1201807230107  €€œ¸Ôð (D`|˜´Ðì$@\x”°Ìè <Xt¬ÈääTIXC1201807230307 )THRF1201807230007 THRO1201807230107 THRO1201807230407 (TIXC1201807230007 !TIXC1201807230307 )TKEA2201807230107 "TKEA2201807230407 *TKPN6201807230107 #TKPN6201807230407 +TLBO3201807230107 $TLBO3201807230407 ,TOKW1201807230107 %TOKW1201807230407 -TPAF1201807230107 &TPAF1201807230407 .TPEF1201807230007 'TPLM2201807230107 (TPLM2201807230507 /TRDF1201807230107 )TRDF1201807230407 0TRRF1201807230107 *TRRF1201807230307 1TSHF1201807230107 +TSHF1201807230407 2TXPT2201807230107 ,TXPT2201807230407 3ULRA2201807230107 -ULRA2201807230407 4UNLA2201807230107 .UNLA2201807230407 5VAKF1201807230107 /VAKF1201807230407 6 €€œ¸Ôð (D`|˜´Ðì$@\x”°Ìè <Xt¬ÈädWLON7201807230107 CVBBA3201807230407 7VCAF1201807230107 1VCAF1201807230407 8VCAT2201807230107 2VCAT2201807230407 9VCVA2201807230107 3VCVA2201807230407 :VDZA2201807230107 4VDZA2201807230407 ;VENF1201807230107 5VENF1201807230407 <WAHV2201807230107 6WAHV2201807230407 =WAKP8201807230107 7WAKP8201807230407 >WASD2201807230107 8WASD2201807230407 ?WATS1201807230107 9WATS1201807230407 @WAXM3201807230007 :WAXM3201807230307 AWBYA1201807230107 ;WBYA1201807230407 BWDSV2201807230107 <WDSV2201807230407 CWELM1201807230107 =WELM1201807230407 DWEXM1201807230107 >WEXM1201807230407 EWFPM4201807230107 ?WFPM4201807230407 FWHRI2201807230107 @ €œ¸Ôð (D`|˜´Ðì$@\x”°Ìè <Xt¬Èä€dYKTV2201807230407 VYRSV2201807230407 WWIWF1201807230107 AWIWF1201807230307 HWKXA1201807230007 BWKXA1201807230307 IWLON7201807230107 CWLON7201807230407 JWNEM4201807230107 DWNEM4201807230407 KWPLF1201807230107 EWPLF1201807230307 LWPOW1201807230107 FWPOW1201807230407 MWPTW1201807230007 GWPTW1201807230407 NWRBF1201807230107 HWRBF1201807230307 OWSLM4201807230407 PWWEF1201807230007 IWYCM6201807230107 JWYCM6201807230407 QYABP4201807230107 KYABP4201807230407 RYATA2201807230107 LYATA2201807230407 SYGNN6201807230107 MYGNN6201807230307 TYKRV2201807230107 NYKRV2201807230407 UYKTV2201807230107 OYKTV2201807230407 VYRSV2201807230007 P ”Ed”J©¦') 5    3PAVD 221131Z AUTO 00000KT 10SM BKN008 OVC016 10/08 A3036 RMK AO2PAVD2018-07-22T11:31:00Z61.13-146.2510.08.00010.030.360237TRUETRUEIFRSPECI37.02018-07-22 11:33:51[©¦&)5    3CYHZ 221131Z 15004KT 1 1/4SM -SHRA BR VV007 17/17 A3029 RMK FG8 SLP258CYHZ2018-07-22T11:31:00Z44.87-63.517.017.015041.2530.289371025.8-SHRA BRLIFR700METAR145.02018-07-22 11:33:51N©¦%) 5     3CYNA 221132Z AUTO 11006KT 3SM BR OVC003 16/16 A3025 RMK SLP245CYNA2018-07-22T11:32:00Z50.17-61.8216.016.011063.030.2509841024.5TRUEBRLIFRSPECI11.02018-07-22 11:33:51a©¦$)15     3CYZR 221132Z AUTO 08009KT 9SM -RA OVC014 18/16 A2982 RMK SLP098 DENSITY ALT 1100FTCYZR2018-07-22T11:32:00Z43.0-82.318.016.08099.029.8198811009.8TRUE-RAMVFRSPECI181.02018-07-22 11:33:51 ¥@n‹¥`©¦+)+5     3KISW 221130Z AUTO 35009KT 10SM BKN018 OVC046 18/14 A3002 RMK AO2 T01780144 TSNOKISW2018-07-22T11:30:00Z44.37-89.8317.814.4350910.030.02067TRUETRUETRUEMVFRSPECI307.02018-07-22 11:33:51]©¦*)%5    3KOGB 221130Z AUTO 25003KT 10SM SCT007 OVC021 21/19 A2978 RMK AO2 T02110194 $KOGB2018-07-22T11:30:00Z33.47-80.8521.119.4250310.029.778543TRUETRUETRUEMVFRSPECI59.02018-07-22 11:33:51L©¦))5    3KOXR 221130Z AUTO 00000KT 10SM BKN007 18/17 A3001 RMK AO2 T01830167KOXR2018-07-22T11:30:00Z34.2-119.218.316.70010.030.008858TRUETRUEIFRSPECI20.02018-07-22 11:33:51:©¦((q5    3BKPR 221130Z 23015KT 9999 FEW080 30/10 Q1011 NOSIGBKPR2018-07-22T11:30:00Z42.5821.0330.010.0230156.2129.852362TRUEVFRMETAR576.02018-07-22 11:33:51 ‘);P‘9©¦/(y5    3KBOW 221130Z E00000KT 4SM BR FEW015 SCT050 25/25 A2993KBOW2018-07-22T11:30:00Z27.93-81.7725.025.0004.029.929134BRMVFRMETAR39.02018-07-22 11:33:51e©¦.)95     3KEKN 221130Z AUTO 00000KT 10SM FEW003 SCT029 OVC120 15/14 A2980 RMK AO2 T01500139 TSNOKEKN2018-07-22T11:30:00Z38.88-79.8515.013.90010.029.799213TRUETRUETRUEVFRSPECI603.02018-07-22 11:33:51h©¦-)55      3KGKJ 221130Z AUTO 06003KT 10SM -RA SCT003 OVC021 16/16 A2977 RMK AO2 P0002 T01560156KGKJ2018-07-22T11:30:00Z41.63-80.2215.615.660310.029.769686TRUETRUE-RAMVFR0.02SPECI428.02018-07-22 11:33:51Q©¦,)5     3KGRR 221130Z 04008KT 4SM BR FEW008 OVC013 21/20 A2983 RMK AO2 T02060200KGRR2018-07-22T11:30:00Z42.88-85.5220.620.04084.029.828741TRUEBRMVFRSPECI237.02018-07-22 11:33:51 Y#l¶Y&©¦4(Y5   3EPLL 221130Z VRB05KT CAVOK 27/12 Q1010EPLL2018-07-22T11:30:00Z51.7219.427.012.0056.2129.822834VFRMETAR184.02018-07-22 11:33:51+©¦3(e5   3EPPO 221130Z VRB04KT 9999 SCT045 26/13 Q1012EPPO2018-07-22T11:30:00Z52.4216.8226.013.0046.2129.88189VFRMETAR92.02018-07-22 11:33:510©¦2(i5   3EPRZ 221130Z 11003KT 070V230 CAVOK 28/11 Q1009EPRZ2018-07-22T11:30:00Z50.122.0528.011.011036.2129.793306VFRMETAR202.02018-07-22 11:33:511©¦1(e5    3EPWA 221130Z VRB03KT CAVOK 29/13 Q1010 NOSIGEPWA2018-07-22T11:30:00Z52.1720.9729.013.0036.2129.822834TRUEVFRMETAR107.02018-07-22 11:33:51W©¦0)5     3KAKH 221130Z AUTO 24003KT 1/2SM FG VV002 20/19 A2975 RMK AO2 T02000194KAKH2018-07-22T11:30:00Z35.2-81.1520.019.424030.529.749016TRUETRUEFGLIFR200SPECI243.02018-07-22 11:33:51 TEŠÂ T1©¦9(e5    3GMMX 221130Z VRB02KT CAVOK 28/16 Q1015 NOSIGGMMX2018-07-22T11:30:00Z31.62-8.0228.016.0026.2129.970472TRUEVFRMETAR466.02018-07-22 11:33:511©¦8(e5    3GMTT 221130Z 27009KT CAVOK 25/17 Q1014 NOSIGGMTT2018-07-22T11:30:00Z35.72-5.925.017.027096.2129.940945TRUEVFRMETAR21.02018-07-22 11:33:51B©¦7(5    3VOML 221130Z 28010KT 6000 FEW012 SCT020 28/25 Q1007 NOSIGVOML2018-07-22T11:30:00Z12.9774.8828.025.0280103.7329.734253TRUEMVFRMETAR103.02018-07-22 11:33:515©¦6(u5   3EPGD 221130Z 05009KT 020V090 9999 FEW046 22/16 Q1012EPGD2018-07-22T11:30:00Z54.3718.4722.016.05096.2129.88189VFRMETAR138.02018-07-22 11:33:515©¦5(u5   3EPKK 221130Z 06007KT 020V120 9999 FEW050 27/13 Q1009EPKK2018-07-22T11:30:00Z50.0719.827.013.06076.2129.793306VFRMETAR237.02018-07-22 11:33:51 \?x¼\$©¦>(Y5   3EPZG 221130Z VRB04KT CAVOK 26/10 Q1012EPZG2018-07-22T11:30:00Z52.1315.826.010.0046.2129.88189VFRMETAR59.02018-07-22 11:33:510©¦=(e5    3GMAD 221130Z VRB05KT CAVOK 25/17 Q1013 NOSIGGMAD2018-07-22T11:30:00Z30.32-9.4225.017.0056.2129.911417TRUEVFRMETAR74.02018-07-22 11:33:516©¦<(u5    3GMFF 221130Z 35005KT 250V040 CAVOK 32/15 Q1016 NOSIGGMFF2018-07-22T11:30:00Z33.92-4.9732.015.035056.2130.0TRUEVFRMETAR579.02018-07-22 11:33:51A©¦;)5    3GMME 221130Z 30006KT 250V360 9999 FEW016 24/17 Q1014 NOSIGGMME2018-07-22T11:30:00Z34.03-6.7724.017.030066.2129.940945TRUEVFRMETAR75.02018-07-22 11:33:51;©¦:(u5    3GMMN 221130Z 33009KT 270V020 CAVOK 27/16 Q1015 NOSIGGMMN2018-07-22T11:30:00Z33.37-7.5727.016.033096.2129.970472TRUEVFRMETAR206.02018-07-22 11:33:51 }J”é3}0©¦C(i5   3EPMO 221130Z 02003KT 320V070 CAVOK 27/12 Q1010EPMO2018-07-22T11:30:00Z52.4520.6527.012.02036.2129.822834VFRMETAR104.02018-07-22 11:33:510©¦B(i5   3EPRA 221130Z 04004KT 340V140 CAVOK 27/13 Q1010EPRA2018-07-22T11:30:00Z51.3821.2227.013.04046.2129.822834VFRMETAR178.02018-07-22 11:33:51%©¦A(Y5   3EPSC 221130Z VRB04KT CAVOK 25/11 Q1013EPSC2018-07-22T11:30:00Z53.5814.925.011.0046.2129.911417VFRMETAR47.02018-07-22 11:33:510©¦@(i5   3EPSY 221130Z 04005KT 340V120 CAVOK 26/14 Q1011EPSY2018-07-22T11:30:00Z53.4720.9326.014.04056.2129.852362VFRMETAR141.02018-07-22 11:33:510©¦?(i5   3EPWR 221130Z 31006KT 250V360 CAVOK 26/14 Q1011EPWR2018-07-22T11:30:00Z51.116.8726.014.031066.2129.852362VFRMETAR121.02018-07-22 11:33:51 UJ”à$UI©¦H) 5   3YPJT 221130Z AUTO 28028G43KT 9999 // BKN046 OVC057 17/10 Q1005YPJT2018-07-22T11:30:00Z-32.1115.8817.010.028028436.2129.675198TRUEVFRSPECI30.02018-07-22 11:33:516©¦G(q5    3DIAP 221130Z 21005KT 9999 SCT012 28/24 Q1015 NOSIGDIAP2018-07-22T11:30:00Z5.25-3.9228.024.021056.2129.970472TRUEVFRSPECI8.02018-07-22 11:33:51.©¦F(i5   3EPBY 221130Z 10006KT 060V160 CAVOK 26/12 Q1011EPBY2018-07-22T11:30:00Z53.118.026.012.010066.2129.852362VFRMETAR71.02018-07-22 11:33:510©¦E(i5   3EPKT 221130Z 36007KT 320V090 CAVOK 27/09 Q1010EPKT2018-07-22T11:30:00Z50.4719.0827.09.036076.2129.822834VFRMETAR284.02018-07-22 11:33:510©¦D(i5   3EPLB 221130Z 01007KT 340V040 CAVOK 28/13 Q1009EPLB2018-07-22T11:30:00Z51.2322.7228.013.01076.2129.793306VFRMETAR206.02018-07-22 11:33:51 ´"E‚´H©¦L) 5    3UKLL 221130Z 35004MPS 310V030 CAVOK 27/14 Q1010 R31/CLRD// NOSIGUKLL2018-07-22T11:30:00Z49.8223.9327.014.035086.2129.822834TRUEVFRMETAR325.02018-07-22 11:33:51=©¦K({5    3UBBB 221130Z 01015KT CAVOK 31/20 Q1006 R88/CLRD// NOSIGUBBB2018-07-22T11:30:00Z40.4550.0731.020.010156.2129.704725TRUEVFRMETAR-6.02018-07-22 11:33:51W©¦J)!5    3KWAL 221130Z AUTO 15003KT 10SM BKN020 OVC038 23/22 A2983 RMK AO2 T02330217KWAL2018-07-22T11:30:00Z37.93-75.4723.321.7150310.029.828741TRUETRUEMVFRSPECI14.02018-07-22 11:33:51X©¦I)+5    3UBBN 221130Z 14016KT 9999 FEW050 33/12 Q1003 R14R/CLRD// NOSIG RMK MT OP QFE678UBBN2018-07-22T11:30:00Z39.1845.4533.012.0140166.2129.616142TRUEVFRSPECI873.02018-07-22 11:33:51 }HP}M©¦P)5    3UKHH 221130Z 24003MPS 170V300 9999 BKN040 26/17 Q1004 R25/0///72 NOSIGUKHH2018-07-22T11:30:00Z49.9236.2826.017.024066.2129.64567TRUEVFRMETAR155.02018-07-22 11:33:51r©¦O)_5    3UKOO 221130Z 17004MPS 6000 -SHRA SCT033CB BKN050 26/19 Q1008 R16/290052 TEMPO VRB11G20MPS 0800 +TSRAGR SQUKOO2018-07-22T11:30:00Z46.4230.6826.019.017083.7329.763779-SHRAMVFRMETAR35.02018-07-22 11:33:51P©¦N)5    3UKDE 221130Z 27005MPS 190V310 9999 BKN041 28/18 Q1005 R20L/CLRD70 NOSIGUKDE2018-07-22T11:30:00Z47.8735.3228.018.0270106.2129.675198TRUEVFRMETAR113.02018-07-22 11:33:51\©¦M)-5    3UKDD 221130Z VRB04G09MPS 9999 -SHRA SCT030CB BKN040 25/18 Q1005 R26/090070 NOSIGUKDD2018-07-22T11:30:00Z48.3735.125.018.008176.2129.675198TRUE-SHRAVFRMETAR149.02018-07-22 11:33:51 ï&s¶ïA©¦T)5    3LDZD 221130Z 26012KT 220V290 9999 FEW040 30/19 Q1009 NOSIGLDZD2018-07-22T11:30:00Z44.115.3730.019.0260126.2129.793306TRUEVFRMETAR84.02018-07-22 11:33:517©¦S(q5    3LCLK 221130Z 20013KT 9999 FEW040 34/21 Q1004 NOSIGLCLK2018-07-22T11:30:00Z34.8733.6234.021.0200136.2129.64567TRUEVFRMETAR2.02018-07-22 11:33:51-©¦R(e5   3LCPH 221130Z 27017KT 9999 FEW020 32/25 Q1004LCPH2018-07-22T11:30:00Z34.7232.4732.025.0270176.2129.64567VFRMETAR8.02018-07-22 11:33:51T©¦Q)#5    3UKBB 221130Z 34005MPS 9999 BKN024 25/18 Q1005 R36R/CLRD// R36L/290050 NOSIGUKBB2018-07-22T11:30:00Z50.3330.925.018.0340106.2129.675198TRUEMVFRMETAR119.02018-07-22 11:33:51 ^ŽÏ5©¦Y(u5   3LDOS 221130Z 05004KT 350V100 9999 FEW040 25/20 Q1010LDOS2018-07-22T11:30:00Z45.4718.8225.020.05046.2129.822834VFRMETAR89.02018-07-22 11:33:519©¦X(q5    3LDPL 221130Z 28012KT 9999 FEW030 27/19 Q1009 NOSIGLDPL2018-07-22T11:30:00Z44.8813.9227.019.0280126.2129.793306TRUEVFRMETAR63.02018-07-22 11:33:51J©¦W)5    3LDRI 221130Z 10011KT 070V130 9999 VCTS FEW040CB FEW045 25/16 Q1009LDRI2018-07-22T11:30:00Z45.2214.5725.016.0100116.2129.793306VCTSVFRMETAR85.02018-07-22 11:33:51;©¦V(w5    3LDSP 221130Z 23012KT 9999 FEW040TCU 30/20 Q1009 NOSIGLDSP2018-07-22T11:30:00Z43.5216.330.020.0230126.2129.793306TRUEVFRMETAR21.02018-07-22 11:33:51[©¦U)=5   3LDZA 221130Z 07005KT 030V120 9999 FEW030TCU 26/19 Q1009 TEMPO 28015KT 3000 TSRA SCT030CBLDZA2018-07-22T11:30:00Z45.7216.0726.019.07056.2129.793306VFRMETAR107.02018-07-22 11:33:51 '7jžå'8©¦^(q5    3LBWN 221130Z 13009KT 9999 FEW042 30/19 Q1009 NOSIGLBWN2018-07-22T11:30:00Z43.2227.8230.019.013096.2129.793306TRUEVFRMETAR43.02018-07-22 11:33:513©¦](e5    3LBBG 221130Z 12012KT CAVOK 31/19 Q1009 NOSIGLBBG2018-07-22T11:30:00Z42.5727.5231.019.0120126.2129.793306TRUEVFRMETAR28.02018-07-22 11:33:51F©¦\)5     3LBPD 221130Z AUTO 06007KT 020V120 9999 NCD 33/16 Q1008 NOSIGLBPD2018-07-22T11:30:00Z42.1324.833.016.06076.2129.763779TRUETRUEVFRMETAR185.02018-07-22 11:33:51G©¦[)5     3LBGO 221130Z AUTO 28003KT 220V320 9999 NCD 31/19 Q1008 NOSIGLBGO2018-07-22T11:30:00Z43.1525.7231.019.028036.2129.763779TRUETRUEVFRMETAR86.02018-07-22 11:33:51C©¦Z)5    3LDDU 221130Z 15013KT 120V190 9999 FEW030 29/21 Q1010 NOSIGLDDU2018-07-22T11:30:00Z42.5718.2729.021.0150136.2129.822834TRUEVFRMETAR165.02018-07-22 11:33:51 5Dy¼û5@©¦c(5    3LZKZ 221130Z 24007KT 9999 SCT030 SCT100 24/16 Q1010 NOSIGLZKZ2018-07-22T11:30:00Z48.6721.2324.016.024076.2129.822834TRUEVFRMETAR232.02018-07-22 11:33:51;©¦b(u5    3LZTT 221130Z 02011KT 9999 FEW040CB 23/15 Q1011 NOSIGLZTT2018-07-22T11:30:00Z49.0720.2523.015.020116.2129.852362TRUEVFRMETAR707.02018-07-22 11:33:517©¦a(o5     3TFFR 221130Z AUTO 11006KT CAVOK 27/23 Q1016 NOSIGTFFR2018-07-22T11:30:00Z16.27-61.5327.023.011066.2130.0TRUETRUEVFRMETAR11.02018-07-22 11:33:51E©¦`)5     3VGHS 221130Z 12010KT 4000 HZ SCT012 BKN100 30/26 Q0998 NOSIGVGHS2018-07-22T11:30:00Z23.8590.430.026.0120102.4929.468504TRUEHZIFRMETAR10.02018-07-22 11:33:516©¦_(q5    3LBSF 221130Z VRB02KT 9999 FEW068 30/16 Q1011 NOSIGLBSF2018-07-22T11:30:00Z42.723.4230.016.0026.2129.852362TRUEVFRMETAR530.02018-07-22 11:33:51 ™9nh™I©¦g)5    3LHBP 221130Z 28007KT 230V020 9999 SCT036 SCT110 26/20 Q1010 NOSIGLHBP2018-07-22T11:30:00Z47.4219.2726.020.028076.2129.822834TRUEVFRMETAR185.02018-07-22 11:33:51‚©¦f)e5     3KBAF 221130Z 07015G20KT 3SM R20/5500VP6000FT +RA BR SCT008 BKN025 OVC033 19/18 A2995 RMK AO2 P0023 T01890183KBAF2018-07-22T11:30:00Z42.17-72.7218.918.37015203.029.949802TRUE+RA BRMVFR0.23SPECI83.02018-07-22 11:33:51E©¦e)5    3FMMI 221130Z 13011KT 100V180 9999 BKN020 20/10 Q1026 NOSIGFMMI2018-07-22T11:30:00Z-18.847.4720.010.0130116.2130.295275TRUEMVFRMETAR1276.02018-07-22 11:33:51A©¦d(5    3LZIB 221130Z 30010KT 9999 FEW019 BKN047 22/17 Q1010 NOSIGLZIB2018-07-22T11:30:00Z48.1717.2222.017.0300106.2129.822834TRUEVFRMETAR134.02018-07-22 11:33:51 FK{­öF*©¦l(Y5   3HLLB 221130Z 36015KT CAVOK 34/16 Q1015HLLB2018-07-22T11:30:00Z32.0720.2734.016.0360156.2129.970472VFRMETAR132.02018-07-22 11:33:511©¦k(e5    3LWSK 221130Z VRB02KT CAVOK 33/15 Q1009 NOSIGLWSK2018-07-22T11:30:00Z41.9721.6333.015.0026.2129.793306TRUEVFRMETAR239.02018-07-22 11:33:51H©¦j)5     3KPGV 221130Z AUTO 19007KT 7SM -RA OVC008 25/24 A2982 RMK AO2KPGV2018-07-22T11:30:00Z35.62-77.425.024.019077.029.819881TRUETRUE-RAIFRSPECI8.02018-07-22 11:33:51J©¦i)5    3KHYI 221130Z AUTO 21006KT 9SM SCT014 25/24 A2999 RMK AO2 $KHYI2018-07-22T11:30:00Z29.88-97.8725.024.021069.029.991142TRUETRUETRUEVFRSPECI182.02018-07-22 11:33:51/©¦h(o5   3NWWW 221130Z AUTO VRB02KT 9999 ////// 18/15 Q1016NWWW2018-07-22T11:30:00Z-22.02166.2218.015.0026.2130.0TRUEMETAR16.02018-07-22 11:33:51 ]HŠÍ]/©¦q(e5   3LWOH 221130Z 18006KT 9999 FEW050 30/11 Q1013LWOH2018-07-22T11:30:00Z41.1820.7530.011.018066.2129.911417VFRMETAR761.02018-07-22 11:33:515©¦p(k5    3SPRU 221130Z 15006KT 5000 BR BKN012 17/16 Q1013SPRU2018-07-22T11:30:00Z-8.08-79.1217.016.015063.1129.911417BRMVFRSPECI30.02018-07-22 11:33:517©¦o(k5   3FACT 221130Z 01020G30KT CAVOK 27/10 Q1015 NOSIGFACT2018-07-22T11:30:00Z-33.9718.627.010.01020306.2129.970472TRUEVFRSPECI42.02018-07-22 11:33:518©¦n(q5    3WAAA 221130Z VRB01KT 8000 FEW019 28/25 Q1011 NOSIGWAAA2018-07-22T11:30:00Z-5.07119.5328.025.0014.9729.852362TRUEMVFRMETAR14.02018-07-22 11:33:512©¦m(w5    3OPPS 221130Z 05012KT 5000 HZ SCT040 SCT100 34/24 Q997OPPS2018-07-22T11:30:00Z34.0271.5234.024.050123.11HZMVFRSPECI360.02018-07-22 11:33:51  H{Á)©¦v(Y5   3SGAS 221130Z 07006KT CAVOK 11/06 Q1015SGAS2018-07-22T11:30:00Z-25.25-57.5211.06.07066.2129.970472VFRSPECI101.02018-07-22 11:33:514©¦u(i5    3SGES 221130Z 12003KT 0100 FG VV/// 07/07 Q1018SGES2018-07-22T11:30:00Z-25.45-54.857.07.012030.0630.059055FGLIFRSPECI849.02018-07-22 11:33:51G©¦t)5    3YPXM 221130Z AUTO 13010KT 9999 // SCT008 BKN011 22/19 Q1015YPXM2018-07-22T11:30:00Z-10.45105.6722.019.0130106.2129.970472TRUEMVFRSPECI259.02018-07-22 11:33:51?©¦s)5    3FOOL 221130Z 19007KT 150V240 9999 FEW015 27/20 Q1013 NOSIGFOOL2018-07-22T11:30:00Z0.459.4227.020.019076.2129.911417TRUEVFRSPECI15.02018-07-22 11:33:51m©¦r)Y5    3SPZO 221130Z 00000KT 9000 FEW005 SCT015 BKN050 05/03 Q1035 NOSIG RMK CLNG BLW 1200M BIRD HAZARD RWY 28SPZO2018-07-22T11:30:00Z-13.55-71.975.03.0005.5930.561024TRUEVFRSPECI3249.02018-07-22 11:33:51 ÒEa¢ÒJ©¦z)5    3NTAA 221130Z 10003KT 050V130 9999 FEW020 SCT280 23/19 Q1014 NOSIGNTAA2018-07-22T11:30:00Z-17.55-149.6223.019.010036.2129.940945TRUEVFRMETAR2.02018-07-22 11:33:519©¦y(q5    3WIII 221130Z 36003KT 6000 SCT022 29/23 Q1011 NOSIGWIII2018-07-22T11:30:00Z-6.13106.6729.023.036033.7329.852362TRUEMVFRMETAR8.02018-07-22 11:33:51^©¦x)95     3SOCA 221130Z AUTO 00000KT 9999 SCT004/// SCT017/// BKN092/// 25/25 Q1014 BECMG 11012KTSOCA2018-07-22T11:30:00Z4.82-52.3725.025.0006.2129.940945TRUEVFR-1.2METAR9.02018-07-22 11:33:515©¦w(s5   3SPJR 221130Z VRB02KT 9999 SCT023 BKN043 12/08 Q1027SPJR2018-07-22T11:30:00Z-7.12-78.4712.08.0026.2130.324802VFRSPECI2622.02018-07-22 11:33:51 È-U‹È=©¦~(u5   3YABA 221130Z AUTO 31023G33KT 9999 // NCD 13/07 Q0994YABA2018-07-22T11:30:00Z-34.93117.813.07.031023336.2129.350393TRUEVFRSPECI69.02018-07-22 11:33:51D©¦})5    3YMLT 221130Z AUTO 33005KT 9000 // BKN014 OVC049 08/07 Q1017YMLT2018-07-22T11:30:00Z-41.52147.188.07.033055.5930.029528TRUEMVFRSPECI178.02018-07-22 11:33:51R©¦|)15    3TFFF 221130Z AUTO 11008KT 9999 FEW047 BKN056 27/21 Q1016 TEMPO 4000 SHRA SCT018TCUTFFF2018-07-22T11:30:00Z14.6-61.027.021.011086.2130.0TRUEVFRMETAR5.02018-07-22 11:33:51M©¦{)5    3LUKK 221130Z 31006KT 240V040 9999 SCT042 28/17 Q1007 R26/CLRD// NOSIGLUKK2018-07-22T11:30:00Z46.9328.9328.017.031066.2129.734253TRUEVFRMETAR122.02018-07-22 11:33:51  1ržÞ 8©§(q5    3HECA 221130Z 32009KT 9999 SCT025 34/21 Q1008 NOSIGHECA2018-07-22T11:30:00Z30.1231.3834.021.032096.2129.763779TRUEVFRMETAR74.02018-07-22 11:33:51:©§(q5    3WADL 221130Z 16004KT 8000 SCT016 25/23 Q1013 NOSIGWADL2018-07-22T11:30:00Z-8.75116.2825.023.016044.9729.911417TRUEMVFRMETAR97.02018-07-22 11:33:51N©§)5    3UBBG 221130Z 25004KT 9999 FEW030CB BKN067 30/18 Q1007 R30/CLRD// NOSIGUBBG2018-07-22T11:30:00Z40.7346.3230.018.025046.2129.734253TRUEVFRSPECI330.02018-07-22 11:33:519©§(q5    3GLRB 221130Z 21008KT 9999 BKN016 28/25 Q1013 NOSIGGLRB2018-07-22T11:30:00Z6.25-10.3328.025.021086.2129.911417TRUEMVFRMETAR18.02018-07-22 11:33:51I©¦) 5   3YPEA 221130Z AUTO 29020G30KT 9999 // BKN042 OVC050 16/09 Q1006YPEA2018-07-22T11:30:00Z-31.67116.0216.09.029020306.2129.704725TRUEVFRSPECI49.02018-07-22 11:33:51 ©Doš©k©§)A5      3KIND 221129Z 34009KT 6SM BR OVC008 21/19 A2973 RMK AO2 RAE14 CIG 006V010 P0001 T02060194 $KIND2018-07-22T11:29:00Z39.72-86.320.619.434096.029.731298TRUETRUEBRIFR0.01SPECI241.02018-07-22 11:33:51O©§)5    3UKDR 221130Z 29007MPS 250V310 9999 BKN040 29/15 Q1006 R36/09//70 NOSIGUKDR2018-07-22T11:30:00Z48.0533.2229.015.0290146.2129.704725TRUEVFRMETAR124.02018-07-22 11:33:51O©§)5    3WSSS 221130Z 24003KT 170V310 9999 FEW016 SCT150 BKN270 29/24 Q1009 NOSIGWSSS2018-07-22T11:30:00Z1.37103.9729.024.024036.2129.793306TRUEVFRMETAR16.02018-07-22 11:33:516©§(q5    3WAMM 221130Z VRB01KT 9999 SCT021 26/24 Q1011 NOSIGWAMM2018-07-22T11:30:00Z1.55124.9226.024.0016.2129.852362TRUEVFRMETAR80.02018-07-22 11:33:51 „')k„a©§ )55     3PAPO 221129Z AUTO 20025KT 5SM BR FEW005 OVC036 10/09 A3001 RMK AO2 PK WND 20031/1114PAPO2018-07-22T11:29:00Z68.35-166.810.09.0200255.030.008858TRUETRUEBRMVFRSPECI6.02018-07-22 11:33:518©§ (u5    3KPVG 221129Z 00000KT 10SM OVC008 21/20 A2980 RMK AO2KPVG2018-07-22T11:29:00Z36.78-76.4521.020.00010.029.799213TRUEIFRSPECI7.02018-07-22 11:33:51x©§ )U5      3KVAY 221129Z AUTO VRB04KT 3SM BR SCT006 SCT013 OVC021 22/22 A2981 RMK AO2 RAB00E29 P0001 T02170217 $KVAY2018-07-22T11:29:00Z39.93-74.8321.721.7043.029.811024TRUETRUETRUEBRMVFR0.01SPECI15.02018-07-22 11:33:51S©§)#5    3KFRG 221129Z 16017KT 9SM FEW009 FEW016 OVC034 23/22 A2988 RMK AO2 T02280217KFRG2018-07-22T11:29:00Z40.73-73.4222.821.7160179.029.878937TRUEVFRSPECI21.02018-07-22 11:33:51 ¦+_‹¦_©§))5     3KAOH 221128Z AUTO 05004KT 5SM BR SCT004 OVC012 19/19 A2974 RMK AO2 T01940194 $KAOH2018-07-22T11:28:00Z40.7-84.0219.419.45045.029.740158TRUETRUETRUEBRMVFRSPECI296.02018-07-22 11:33:51N©§)5    3KNZY 221128Z AUTO 35006KT 10SM SCT013 22/18 A3001 RMK AO2 T02170183KNZY2018-07-22T11:28:00Z32.7-117.2221.718.3350610.030.008858TRUETRUEVFRSPECI8.02018-07-22 11:33:51F©§ (5    3KEHR 221128Z AUTO 31006KT 10SM OVC015 21/19 A2979 RMK AO2KEHR2018-07-22T11:28:00Z37.82-87.6721.019.0310610.029.790354TRUETRUEMVFRSPECI117.02018-07-22 11:33:51O©§ ) 5    3PATE 221129Z AUTO 17013KT 10SM BKN022 OVC042 14/12 A3009 RMK AO2PATE2018-07-22T11:29:00Z65.23-166.3314.012.01701310.030.088583TRUETRUEMVFRSPECI90.02018-07-22 11:33:51 ] 7T]q©§)E5     3KWST 221128Z AUTO 13011G21KT 2 1/2SM RA BR BKN005 OVC008 23/22 A2998 RMK AO2 P0032 T02280222KWST2018-07-22T11:28:00Z41.35-71.822.822.213011212.529.97933TRUETRUERA BRIFR0.32SPECI21.02018-07-22 11:33:51]©§)'5      3KPOU 221128Z 10009KT 1 3/4SM RA BR OVC013 21/19 A2985 RMK AO2 P0002 T02060194KPOU2018-07-22T11:28:00Z41.63-73.8820.619.410091.7529.84941TRUERA BRIFR0.02SPECI46.02018-07-22 11:33:51N©§)5    3KEQY 221128Z AUTO 22005KT 7SM SCT005 21/19 A2975 RMK AO2 T02060194KEQY2018-07-22T11:28:00Z35.02-80.6220.619.422057.029.749016TRUETRUEVFRSPECI212.02018-07-22 11:33:51o©§)G5      3KBUF 221128Z 03010KT 3SM +RA BR BKN008 OVC013 17/17 A2972 RMK AO2 LTG DSNT NE P0014 T01720167KBUF2018-07-22T11:28:00Z42.93-78.7317.216.730103.029.719488TRUE+RA BRIFR0.14SPECI211.02018-07-22 11:33:51 Y6YW©§)5     3KHQM 221127Z AUTO 05003KT 1 3/4SM BR OVC002 13/12 A3020 RMK AO2 T01280122KHQM2018-07-22T11:27:00Z46.97-123.9312.812.25031.7530.200787TRUETRUEBRLIFRSPECI7.02018-07-22 11:33:51^©§);5    3KFNT 221127Z 05007KT 7SM BKN007 BKN095 OVC120 20/19 A2982 RMK AO2 CIG 005V010 T02000189KFNT2018-07-22T11:27:00Z42.97-83.7520.018.95077.029.819881TRUEIFRSPECI233.02018-07-22 11:33:51u©§)=5     3KENW 221127Z AUTO 36010G19KT 1 3/4SM -RA BR OVC005 19/19 A2986 RMK AO2 P0002 T01940194 $KENW2018-07-22T11:27:00Z42.6-87.9319.419.436010191.7529.861221TRUETRUETRUE-RA BRIFR0.02SPECI219.02018-07-22 11:33:51e©§)35      3KAFN 221127Z AUTO 00000KT 1 1/2SM -RA BR OVC006 17/16 A3008 RMK AO2 P0001 T01670161KAFN2018-07-22T11:27:00Z42.8-72.016.716.1001.530.079725TRUETRUE-RA BRIFR0.01SPECI313.02018-07-22 11:33:51 –;d–H©§) 5    3KOAK 221127Z 29009KT 10SM OVC010 16/14 A3006 RMK AO2 T01610144KOAK2018-07-22T11:27:00Z37.72-122.2316.114.4290910.030.059055TRUEMVFRSPECI26.02018-07-22 11:33:51Q©§)5    3KSET 221127Z AUTO 35008KT 10SM BKN014 21/18 A2989 RMK AO2 T02060183KSET2018-07-22T11:27:00Z38.93-90.4320.618.3350810.029.890747TRUETRUEMVFRSPECI134.02018-07-22 11:33:51F©§) 5    3KPHF 221127Z 13006KT 10SM OVC014 22/20 A2980 RMK AO2 T02170200KPHF2018-07-22T11:27:00Z37.13-76.521.720.0130610.029.799213TRUEMVFRSPECI12.02018-07-22 11:33:51s©§)?5     3KMMK 221127Z AUTO 16009G18KT 10SM -RA BKN015 OVC032 22/21 A2992 RMK AO2 P0001 T02220206 $KMMK2018-07-22T11:27:00Z41.52-72.8322.220.616091810.029.920275TRUETRUETRUE-RAMVFR0.01SPECI31.02018-07-22 11:33:51 r"DZrb©§))5     3KMUI 221126Z AUTO 19004KT 3SM BR OVC008 18/18 A2976 RMK AO2 CIG 006V008 SLP079KMUI2018-07-22T11:26:00Z40.42-76.5718.018.019043.029.7608261007.9TRUETRUEBRIFRSPECI149.02018-07-22 11:33:51d©§)15    3KFTK 221126Z AUTO 26007KT 9SM BKN008 OVC050 20/20 A2975 RMK AO2 CIG 008V010 SLP072KFTK2018-07-22T11:26:00Z37.88-85.9720.020.026079.029.7490161007.2TRUETRUEIFRSPECI230.02018-07-22 11:33:51X©§)5    3KFAF 221126Z AUTO 12004KT 10SM OVC013 22/20 A2977 RMK AO2 SLP084 $KFAF2018-07-22T11:26:00Z37.12-76.6222.020.0120410.029.7696861008.4TRUETRUETRUEMVFRSPECI4.02018-07-22 11:33:51X©§)5    3KLFI 221126Z AUTO 13005KT 10SM OVC014 23/21 A2980 RMK AO2 SLP098 $KLFI2018-07-22T11:26:00Z37.07-76.3723.021.0130510.029.7992131009.8TRUETRUETRUEMVFRSPECI3.02018-07-22 11:33:51 ”Ce”K©§#)5    3EHDV 221125Z AUTO 27008KT 230V290 9999 FEW008/// 18/15 Q1014 W///H///EHDV2018-07-22T11:25:00Z54.322.9318.015.027086.2129.940945TRUEVFRMETAR50.02018-07-22 11:33:51X©§")/5    3EHAK 221125Z AUTO 25012KT 9999 FEW005/// SCT007/// BKN009/// 18/17 Q1013 W///H///EHAK2018-07-22T11:25:00Z55.423.8218.017.0250126.2129.911417TRUEIFRMETAR50.02018-07-22 11:33:51N©§!)5    3KMWK 221125Z AUTO 00000KT 10SM OVC007 20/18 A2980 RMK AO2 T01970184KMWK2018-07-22T11:25:00Z36.47-80.5519.718.40010.029.799213TRUETRUEIFRSPECI380.02018-07-22 11:33:51c©§ )5     3KSVN 221126Z AUTO 23007KT 10SM SCT007 24/23 A2978 RMK AO2 SLP087 FZRANO $KSVN2018-07-22T11:26:00Z32.02-81.1524.023.0230710.029.7785431008.7TRUETRUETRUETRUEVFRSPECI13.02018-07-22 11:33:51 !6t«ê!C©§()5   3EHJR 221125Z AUTO 28011KT //// // ///////// 17/15 Q1015 RE// W17/H4EHJR2018-07-22T11:25:00Z53.223.2217.015.02801129.970472TRUEMETAR50.02018-07-22 11:33:51;©§')5    3EHJA 221125Z AUTO 25010KT 9999 FEW007/// 17/15 Q//// W///H///EHJA2018-07-22T11:25:00Z53.822.9517.015.0250106.21TRUEVFRMETAR50.02018-07-22 11:33:51C©§&)5   3EHHW 221125Z AUTO 31007KT //// // FEW019/// 19/15 Q1014 RE// W///H///EHHW2018-07-22T11:25:00Z54.036.0319.015.0310729.940945TRUEMETAR0.02018-07-22 11:33:51<©§%({5    3EHFZ 221125Z AUTO 22007KT 9999 NSC 19/15 Q1014 W///H///EHFZ2018-07-22T11:25:00Z54.124.0219.015.022076.2129.940945TRUEVFRMETAR50.02018-07-22 11:33:51D©§$)5   3EHFD 221125Z AUTO 25011KT //// // FEW010/// 19/15 Q1013 RE// W///H///EHFD2018-07-22T11:25:00Z54.854.719.015.02501129.911417TRUEMETAR50.02018-07-22 11:33:51 +4o­í+<©§-({5    3EHQE 221125Z AUTO 21008KT 9999 NSC 18/14 Q1015 W///H///EHQE2018-07-22T11:25:00Z52.924.1518.014.021086.2129.970472TRUEVFRMETAR50.02018-07-22 11:33:51:©§,({5    3EHPG 221125Z AUTO VRB06KT 9999 NSC 18/16 Q1015 W///H///EHPG2018-07-22T11:25:00Z52.373.3518.016.0066.2129.970472TRUEVFRMETAR50.02018-07-22 11:33:51<©§+({5    3EHMG 221125Z AUTO 25007KT 9999 NSC 18/16 Q1015 W///H///EHMG2018-07-22T11:25:00Z53.624.9718.016.025076.2129.970472TRUEVFRMETAR50.02018-07-22 11:33:51?©§*)5    3EHMA 221125Z AUTO 30007KT 9999 SCT043 19/15 Q1015 W///H///EHMA2018-07-22T11:25:00Z53.55.9519.015.030076.2129.970472TRUEVFRMETAR50.02018-07-22 11:33:51F©§)) 5    3EHKV 221125Z AUTO 27010KT 220V360 9000 NSC 18/16 Q1015 W///H///EHKV2018-07-22T11:25:00Z53.273.6318.016.0270105.5929.970472TRUEVFRMETAR50.02018-07-22 11:33:51 .>z•×.#©§2(Y5   3EGHH 221120Z 19008KT CAVOK 24/14 Q1016EGHH2018-07-22T11:20:00Z50.78-1.8324.014.019086.2130.0VFRMETAR11.02018-07-22 11:33:518©§1({5   3ETNL 221120Z 17007KT 9999 FEW050 BKN100 27/14 Q1012 BLUETNL2018-07-22T11:20:00Z53.9212.2727.014.017076.2129.88189VFRMETAR40.02018-07-22 11:33:51_©§0)?5    3EHEH 221125Z AUTO 28004KT 200V350 9999 SCT048 SCT052 BKN058 27/13 Q1015 BLU 28004KT CAVOKEHEH2018-07-22T11:25:00Z51.455.3827.013.028046.2129.970472TRUEVFRSPECI22.02018-07-22 11:33:51>©§/)5   3EHSC 221125Z AUTO 27009KT 9000 ///////// 19/17 Q1015 W19/H3EHSC2018-07-22T11:25:00Z51.933.6719.017.027095.5929.970472TRUEMETAR50.02018-07-22 11:33:51<©§.)5   3EHSA 221125Z AUTO 26009KT //// // ///////// 20/17 Q1016 RE// W18/H3EHSA2018-07-22T11:25:00Z52.03.2820.017.0260930.0TRUEMETAR50.02018-07-22 11:33:51 =C~Á=?©§7)5    3LTAI 221120Z 30011KT 270V340 9999 FEW030 40/11 Q1004 NOSIGLTAI2018-07-22T11:20:00Z36.930.840.011.0300116.2129.64567TRUEVFRMETAR54.02018-07-22 11:33:519©§6(q5    3LTAF 221120Z 21014KT 9999 FEW040 34/22 Q1002 NOSIGLTAF2018-07-22T11:20:00Z36.9735.2834.022.0210146.2129.586615TRUEVFRMETAR20.02018-07-22 11:33:517©§5(q5    3LTAC 221120Z 24004KT 9999 SCT040 29/08 Q1012 NOSIGLTAC2018-07-22T11:20:00Z40.1232.9729.08.024046.2129.88189TRUEVFRMETAR949.02018-07-22 11:33:51?©§4)5    3LCEN 221120Z 02008KT 300V060 9999 SCT030 39/11 Q1003 NOSIGLCEN2018-07-22T11:20:00Z35.1333.539.011.02086.2129.616142TRUEVFRMETAR91.02018-07-22 11:33:517©§3(u5   3EGNJ 221120Z 23010KT 210V280 9999 SCT024 23/15 Q1014EGNJ2018-07-22T11:20:00Z53.57-0.3523.015.0230106.2129.940945VFRMETAR31.02018-07-22 11:33:51 HªèL©§<)5    3LTBR 221120Z 32009KT 270V350 9999 FEW030TCU SCT035 31/16 Q1010 NOSIGLTBR2018-07-22T11:20:00Z40.2529.5731.016.032096.2129.822834TRUEVFRMETAR232.02018-07-22 11:33:51<©§;(u5    3LTBJ 221120Z 36012KT 320V030 CAVOK 35/17 Q1009 NOSIGLTBJ2018-07-22T11:20:00Z38.2827.1535.017.0360126.2129.793306TRUEVFRMETAR120.02018-07-22 11:33:51]©§:)-5     3LTBA 221120Z 13008KT 070V180 9000 -SHRA FEW022CB BKN030 27/21 Q1010 RESHRA NOSIGLTBA2018-07-22T11:20:00Z40.9728.8227.021.013085.5929.822834TRUE-SHRAMVFRMETAR37.02018-07-22 11:33:515©§9(u5   3LTAZ 221120Z 35008KT 310V030 9999 FEW040 30/08 Q1012LTAZ2018-07-22T11:20:00Z38.7734.5530.08.035086.2129.88189VFRMETAR945.02018-07-22 11:33:512©§8(e5    3LTAJ 221120Z 23004KT CAVOK 36/08 Q1003 NOSIGLTAJ2018-07-22T11:20:00Z36.9537.4836.08.023046.2129.616142TRUEVFRMETAR855.02018-07-22 11:33:51 QJ‰ÓQ@©§A)5    3LTFE 221120Z 34007KT 280V070 9999 FEW035 39/11 Q1007 NOSIGLTFE2018-07-22T11:20:00Z37.2527.6739.011.034076.2129.734253TRUEVFRMETAR6.02018-07-22 11:33:516©§@(u5   3LTFC 221120Z 34012KT 270V010 9999 FEW035 32/07 Q1012LTFC2018-07-22T11:20:00Z37.8730.3832.07.0340126.2129.88189VFRMETAR864.02018-07-22 11:33:510©§?(i5   3LTCS 221120Z 26011KT 210V300 CAVOK 36/06 Q1005LTCS2018-07-22T11:20:00Z37.4538.936.06.0260116.2129.675198VFRMETAR825.02018-07-22 11:33:51;©§>(5    3LTCG 221120Z VRB02KT 9999 SCT035 BKN100 26/20 Q1010 NOSIGLTCG2018-07-22T11:20:00Z41.039.826.020.0026.2129.822834TRUEVFRMETAR30.02018-07-22 11:33:510©§=(e5    3LTBS 221120Z 24019KT CAVOK 34/19 Q1004 NOSIGLTBS2018-07-22T11:20:00Z36.728.7734.019.0240196.2129.64567TRUEVFRMETAR2.02018-07-22 11:33:51 PÕ8©§F(q5    3LTAT 221120Z 28005KT 9999 FEW040 34/09 Q1005 NOSIGLTAT2018-07-22T11:20:00Z38.4238.0734.09.028056.2129.675198TRUEVFRMETAR849.02018-07-22 11:33:51B©§E)5    3LTAU 221120Z 32011KT 280V360 9999 FEW040 29/05 Q1012 NOSIGLTAU2018-07-22T11:20:00Z38.7735.4729.05.0320116.2129.88189TRUEVFRMETAR1054.02018-07-22 11:33:51-©§D(e5   3LTBU 221120Z VRB07KT 9999 SCT040 33/17 Q1010LTBU2018-07-22T11:20:00Z41.1227.9233.017.0076.2129.822834VFRMETAR173.02018-07-22 11:33:51?©§C)5    3LTCC 221120Z 35006KT 280V040 9999 SCT040 38/09 Q1000 NOSIGLTCC2018-07-22T11:20:00Z37.8740.238.09.035066.2129.52756TRUEVFRMETAR677.02018-07-22 11:33:51e©§B)O5   3LTCE 221120Z 35021KT 9999 FEW035CB BKN040 23/07 Q1012 BECMG TL1150 07009KT NSW TEMPO FM1200 -TSRALTCE2018-07-22T11:20:00Z39.9541.1723.07.0350216.2129.88189VFRSPECI1758.02018-07-22 11:33:51 å8z¢å7©§J(u5   3LTCJ 221120Z 20006KT 160V240 9999 SCT040 38/12 Q0999LTCJ2018-07-22T11:20:00Z37.9341.1238.012.020066.2129.498032VFRMETAR540.02018-07-22 11:33:51R©§I)/5   3LTFJ 221120Z 35006KT 320V040 9999 FEW020CB SCT030 28/18 Q1011 TEMPO 03015KT -TSRALTFJ2018-07-22T11:20:00Z40.929.328.018.035066.2129.852362VFRSPECI98.02018-07-22 11:33:518©§H(q5    3LTAG 221120Z 21012KT 9999 FEW030 35/22 Q1002 NOSIGLTAG2018-07-22T11:20:00Z37.035.4235.022.0210126.2129.586615TRUEVFRMETAR66.02018-07-22 11:33:51B©§G)5    3LTAP 221120Z 02011KT 340V050 9999 SCT040 31/10 Q1009 NOSIGLTAP2018-07-22T11:20:00Z40.8335.5231.010.020116.2129.793306TRUEVFRMETAR535.02018-07-22 11:33:51 Â'M‡Â?©§N(y5    3KLRO 221115Z AUTO 23006KT 10SM CLR 25/24 A2978 RMK AO2KLRO2018-07-22T11:15:00Z32.9-79.7825.024.0230610.029.778543TRUETRUEVFRSPECI4.02018-07-22 11:33:51@©§M(5    3LHDC 221115Z 20005KT 9999 SCT036 SCT083 26/17 Q1010 NOSIGLHDC2018-07-22T11:15:00Z47.4721.6226.017.020056.2129.822834TRUEVFRMETAR112.02018-07-22 11:33:51T©§L)'5    3LHPA 221115Z 16004KT 9999 FEW027CB SCT033TCU SCT200 26/17 Q1010 NOSIG RMK BLULHPA2018-07-22T11:15:00Z47.3517.526.017.016046.2129.822834TRUEVFRMETAR148.02018-07-22 11:33:51S©§K)'5    3EGYP 221117Z 20009KT 0700 FG OVC002 03/02 Q0995 RED BECMG 2000 DZ BKN003 YLO2EGYP2018-07-22T11:17:00Z-51.82-58.453.02.020090.4329.379921FGLIFRMETAR74.02018-07-22 11:33:51 Ì:xœÌJ©§R)5   3LHPR 221115Z 30005KT 220V020 9999 FEW030 FEW033TCU 24/16 Q1010 RMK BLULHPR2018-07-22T11:15:00Z47.6317.8224.016.030056.2129.822834VFRMETAR129.02018-07-22 11:33:51V©§Q))5    3LHSM 221115Z 10004KT 9999 VCSH FEW025CB SCT030 26/19 Q1010 TEMPO TSRA SCT020CBLHSM2018-07-22T11:15:00Z46.6817.1726.019.010046.2129.822834VCSHVFRMETAR125.02018-07-22 11:33:51<©§P)5   3LHUD 221115Z 15003KT 9999 FEW016 BKN083 23/19 Q1011 RESHRALHUD2018-07-22T11:15:00Z46.2520.123.019.015036.2129.852362VFRMETAR84.02018-07-22 11:33:51@©§O)5   3LHPP 221115Z 14005KT 9999 FEW016CB SCT023 BKN083 24/18 Q1011LHPP2018-07-22T11:15:00Z45.9818.2324.018.014056.2129.852362VFRMETAR305.02018-07-22 11:33:51 P2u¯ÿP)©§W(Y5   3FNSA 221100Z 12006KT CAVOK 28/07 Q1018FNSA2018-07-22T11:00:00Z-9.6820.4328.07.012066.2130.059055VFRMETAR1093.02018-07-22 11:33:51*©§V(Y5   3FNGI 221100Z 04010KT CAVOK 25/05 Q1022FNGI2018-07-22T11:00:00Z-17.0515.6825.05.040106.2130.177166VFRMETAR1087.02018-07-22 11:33:51@©§U)5    3VCBI 221110Z 25007KT 210V300 9999 BKN017 28/25 Q1007 NOSIGVCBI2018-07-22T11:10:00Z7.1779.8728.025.025076.2129.734253TRUEMVFRMETAR8.02018-07-22 11:33:517©§T(q5    3VCRI 221110Z 27014KT 9999 FEW018 33/21 Q1005 NOSIGVCRI2018-07-22T11:10:00Z6.2881.1333.021.0270146.2129.675198TRUEVFRMETAR7.02018-07-22 11:33:51H©§S) 5    3VOBL 221111Z 27013KT 8000 SCT010 SCT012 BKN080 28/19 Q1010 NOSIGVOBL2018-07-22T11:11:00Z13.277.728.019.0270134.9729.822834TRUEMVFRSPECI915.02018-07-22 11:33:51 iQ™à'i8©§\(q5    3HEBA 221100Z 32018KT 9999 SCT020 31/22 Q1009 NOSIGHEBA2018-07-22T11:00:00Z30.9229.731.022.0320186.2129.793306TRUEVFRMETAR54.02018-07-22 11:33:513©§[(e5    3HESC 221100Z 32008KT CAVOK 31/03 Q1017 NOSIGHESC2018-07-22T11:00:00Z28.6834.0731.03.032086.2130.029528TRUEVFRMETAR1332.02018-07-22 11:33:513©§Z(e5    3HESG 221100Z 34017KT CAVOK 36/12 Q1006 NOSIGHESG2018-07-22T11:00:00Z26.3331.7536.012.0340176.2129.704725TRUEVFRMETAR70.02018-07-22 11:33:512©§Y(e5    3HEMA 221100Z 01013KT CAVOK 33/21 Q1005 NOSIGHEMA2018-07-22T11:00:00Z25.5534.5833.021.010136.2129.675198TRUEVFRMETAR77.02018-07-22 11:33:51)©§X(Y5   3FNHU 221100Z 04005KT CAVOK 23/06 Q1025FNHU2018-07-22T11:00:00Z-12.8215.7723.06.04056.2130.265747VFRMETAR1701.02018-07-22 11:33:51 aGÙ"a;©§a(u5    3HESN 221100Z 30010KT 210V340 CAVOK 40/05 Q1006 NOSIGHESN2018-07-22T11:00:00Z23.9732.8240.05.0300106.2129.704725TRUEVFRMETAR194.02018-07-22 11:33:511©§`(e5    3HEGN 221100Z 02015KT CAVOK 35/16 Q1005 NOSIGHEGN2018-07-22T11:00:00Z27.1833.835.016.020156.2129.675198TRUEVFRMETAR14.02018-07-22 11:33:511©§_(e5    3HEPS 221100Z 25007KT CAVOK 31/23 Q1008 NOSIGHEPS2018-07-22T11:00:00Z31.2832.2531.023.025076.2129.763779TRUEVFRMETAR6.02018-07-22 11:33:511©§^(e5    3HESH 221100Z 03010KT CAVOK 35/13 Q1004 NOSIGHESH2018-07-22T11:00:00Z27.9734.3835.013.030106.2129.64567TRUEVFRMETAR50.02018-07-22 11:33:513©§](e5    3HEAT 221100Z 34012KT CAVOK 33/16 Q1010 NOSIGHEAT2018-07-22T11:00:00Z27.0531.0233.016.0340126.2129.822834TRUEVFRMETAR70.02018-07-22 11:33:51 wIŒÔ%w(©§f(e5    3FNSU 221100Z 28008KT 9999 BKN011 23/// Q1018FNSU2018-07-22T11:00:00Z-11.1713.8528086.2130.059055MVFRMETAR11.02018-07-22 11:33:51)©§e(Y5   3FNUB 221100Z 09008KT CAVOK 22/01 Q1026FNUB2018-07-22T11:00:00Z-14.9313.5722.01.09086.2130.295275VFRMETAR1761.02018-07-22 11:33:512©§d(e5    3HEMM 221100Z 33012KT CAVOK 30/23 Q1012 NOSIGHEMM2018-07-22T11:00:00Z31.3227.2230.023.0330126.2129.88189TRUEVFRMETAR30.02018-07-22 11:33:517©§c(q5    3HEAX 221100Z 31009KT 9999 SCT020 30/23 Q1009 NOSIGHEAX2018-07-22T11:00:00Z31.1829.9330.023.031096.2129.793306TRUEVFRMETAR7.02018-07-22 11:33:511©§b(e5    3HELX 221100Z 31008KT CAVOK 37/17 Q1006 NOSIGHELX2018-07-22T11:00:00Z25.6732.737.017.031086.2129.704725TRUEVFRMETAR88.02018-07-22 11:33:51 uP›Ý#u(©§k(Y5   3HEIS 221100Z 30012KT CAVOK 34/20 Q1007HEIS2018-07-22T11:00:00Z30.5832.2534.020.0300126.2129.734253VFRMETAR3.02018-07-22 11:33:514©§j(s5   3NFNA 221100Z 00000KT 9999 FEW020 SCT050 21/20 Q1015NFNA2018-07-22T11:00:00Z-18.05178.5721.020.0006.2129.970472VFRMETAR5.02018-07-22 11:33:518©§i(q5    3NSFA 221100Z 12003KT 9999 FEW024 23/22 Q1012 NOSIGNSFA2018-07-22T11:00:00Z-13.83-172.023.022.012036.2129.88189TRUEVFRMETAR5.02018-07-22 11:33:51/©§h(e5   3RKSM 221100Z 30001KT 9999 SCT200 33/23 A2977RKSM2018-07-22T11:00:00Z37.42127.1233.023.030016.2129.769686VFRMETAR20.02018-07-22 11:33:51*©§g(e5   3FNBG 221100Z 33006KT 9999 BKN020 23/17 Q1016FNBG2018-07-22T11:00:00Z-12.6213.423.017.033066.2130.0MVFRMETAR36.02018-07-22 11:33:51 ÙQ{¦ÙG©§o)5     3VEBN 221100Z 09011KT 4500 -RA SCT020 FEW030CB BKN100 33/26 Q09 94 NOSIGVEBN2018-07-22T11:00:00Z25.4582.8533.026.090112.8TRUE-RAIFRMETAR83.02018-07-22 11:33:51O©§n)5     3VIJP 221100Z 31007KT 3000 BR BKN025 FEW035CB BKN090 28/26 Q0999 NOSIGVIJP2018-07-22T11:00:00Z26.8275.7828.026.031071.8629.498032TRUEBRIFRMETAR390.02018-07-22 11:33:51P©§m)5     3VEBS 221100Z 22012KT 5000 HZ BKN018 FEW030CB OVC090 27/26 Q0995 NOSIGVEBS2018-07-22T11:00:00Z20.2585.8227.026.0220123.1129.379921TRUEHZMVFRMETAR46.02018-07-22 11:33:51)©§l(Y5   3HETR 221100Z 30022KT CAVOK 31/21 Q1005HETR2018-07-22T11:00:00Z28.2233.6531.021.0300226.2129.675198VFRMETAR35.02018-07-22 11:33:51 Ã-d‰Ã@©§s(y5    3KSPA 221135Z AUTO 00000KT 10SM CLR 20/19 A2976 RMK AO2KSPA2018-07-22T11:35:00Z34.92-81.9320.019.00010.029.760826TRUETRUEVFRSPECI303.02018-07-22 11:37:35U©§r)5   3KY51 221135Z AUTO 36011G17KT 10SM OVC009 17/16 A3004 RMK AO1 T01660162KY512018-07-22T11:35:00Z43.58-90.916.616.2360111710.030.041338TRUETRUEIFRSPECI394.02018-07-22 11:37:35C©§q(y5    3KBDU 221136Z AUTO 06006KT 10SM CLR 18/13 A3014 RMK AO2KBDU2018-07-22T11:36:00Z40.03-105.2318.013.060610.030.138779TRUETRUEVFRMETAR1612.02018-07-22 11:37:35M©§p) 5    3KEIK 221136Z AUTO 00000KT 10SM CLR 17/12 A3018 RMK AO2 T01670122KEIK2018-07-22T11:36:00Z40.02-105.0516.712.20010.030.180119TRUETRUEVFRMETAR1564.02018-07-22 11:37:35 ¾"Qƒ¾?©§w(w5    3KMAO 221135Z AUTO 18003KT 7SM CLR 21/20 A2978 RMK AO2KMAO2018-07-22T11:35:00Z34.18-79.3321.020.018037.029.778543TRUETRUEVFRSPECI28.02018-07-22 11:37:35H©§v)5     3KPLD 221135Z AUTO 00000KT 4SM BR OVC003 19/19 A2974 RMK AO2KPLD2018-07-22T11:35:00Z40.45-84.9819.019.0004.029.740158TRUETRUEBRLIFRSPECI282.02018-07-22 11:37:35K©§u) 5    3KRPD 221135Z AUTO 30003KT 7SM CLR 16/14 A3013 RMK AO2 T01580143KRPD2018-07-22T11:35:00Z45.42-91.7715.814.330037.030.129921TRUETRUEVFRSPECI338.02018-07-22 11:37:35X©§t)5     3KRRL 221135Z AUTO 03007KT 10SM OVC015 17/15 A3005 RMK AO2 T01710153 TSNOKRRL2018-07-22T11:35:00Z45.2-89.7217.115.330710.030.050198TRUETRUETRUEMVFRSPECI401.02018-07-22 11:37:35 *Oƒ|©§{)_5    3CYQI 221135Z 20013KT 1/2SM -SHRA FG OVC002 20/20 A3022 RMK FG7SF1 CVCTV CLD EMBD SLP233 DENSITY ALT 500FTCYQI2018-07-22T11:35:00Z43.83-66.0820.020.0200130.530.2214571023.3-SHRA FGLIFRSPECI43.02018-07-22 11:37:35F©§z(5    3KIDI 221135Z AUTO 19004KT 10SM OVC013 16/16 A2980 RMK A01KIDI2018-07-22T11:35:00Z40.62-79.0816.016.0190410.029.799213TRUETRUEMVFRSPECI429.02018-07-22 11:37:35U©§y)5     3KLQK 221135Z AUTO 00000KT M1/4SM FG OVC001 19/19 A2977 RMK AO2 T01880188KLQK2018-07-22T11:35:00Z34.82-82.718.818.8000.2529.769686TRUETRUEFGLIFRSPECI309.02018-07-22 11:37:35P©§x)5    3KLUM 221135Z AUTO 36005KT 10SM OVC014 17/15 A3010 RMK AO2 T01710146KLUM2018-07-22T11:35:00Z44.9-91.8717.114.6360510.030.100393TRUETRUEMVFRSPECI273.02018-07-22 11:37:35 ®>v®B©§(}5    3KEOE 221135Z AUTO 00000KT 7SM BKN002 20/20 A2980 RMK AO2KEOE2018-07-22T11:35:00Z34.32-81.6320.020.0007.029.799213TRUETRUELIFRMETAR174.02018-07-22 11:37:35B©§~(y5    3KFDW 221135Z AUTO 23003KT 10SM CLR 20/20 A2976 RMK AO1KFDW2018-07-22T11:35:00Z34.32-81.1220.020.0230310.029.760826TRUETRUEVFRMETAR176.02018-07-22 11:37:35U©§})!5    3KFFX 221135Z AUTO 05006KT 10SM BKN011 OVC020 20/19 A2985 RMK AO2 T02020193KFFX2018-07-22T11:35:00Z43.43-86.020.219.350610.029.84941TRUETRUEMVFRMETAR236.02018-07-22 11:37:35a©§|)55     3KFKS 221135Z AUTO 01004KT 10SM RA BKN009 BKN021 BKN031 20/20 A2991 RMK AO2 T01960196KFKS2018-07-22T11:35:00Z44.63-86.219.619.610410.029.911417TRUETRUERAIFRMETAR193.02018-07-22 11:37:35 Ã9o‹ÃB©¨(5    3KCKI 221135Z AUTO 00000KT 10SM SCT006 21/20 A2978 RMK AO2KCKI2018-07-22T11:35:00Z33.72-79.8521.020.00010.029.778543TRUETRUEVFRMETAR21.02018-07-22 11:37:35^©¨)#5     3KDWU 221135Z AUTO 00000KT 5SM RA BR FEW007 OVC013 21/20 A2969 RMK AO2 PNO $KDWU2018-07-22T11:35:00Z38.55-82.7321.020.0005.029.68996TRUETRUETRUERA BRMVFRSPECI166.02018-07-22 11:37:35D©¨(5    3KDYB 221135Z AUTO 19003KT 10SM BKN006 22/22 A2979 RMK AO1KDYB2018-07-22T11:35:00Z33.07-80.2822.022.0190310.029.790354TRUETRUEIFRMETAR18.02018-07-22 11:37:35A©¨(y5    3KELO 221135Z AUTO 08003KT 10SM CLR 16/13 A3016 RMK AO2KELO2018-07-22T11:35:00Z47.82-91.8216.013.080310.030.159449TRUETRUEVFRMETAR443.02018-07-22 11:37:35 Ç;pÇP©¨)5    3KBCK 221135Z AUTO 35004KT 10SM BKN032 17/16 A3004 RMK AO2 T01680161KBCK2018-07-22T11:35:00Z44.25-90.8516.816.1350410.030.041338TRUETRUEVFRMETAR255.02018-07-22 11:37:35M©¨) 5     3KBNL 221135Z AUTO 27003KT M1/4SM FG OVC003 21/21 A2977 RMK AO2KBNL2018-07-22T11:35:00Z33.25-81.3821.021.027030.2529.769686TRUETRUEFGLIFRMETAR75.02018-07-22 11:37:35E©¨(5    3KCBG 221135Z AUTO 04003KT 10SM OVC010 18/16 A3013 RMK AO2KCBG2018-07-22T11:35:00Z45.57-93.2718.016.040310.030.129921TRUETRUEMVFRMETAR287.02018-07-22 11:37:35?©¨(y5    3KCCA 221135Z AUTO 00000KT 10SM CLR 17/17 A2994 RMK AO2KCCA2018-07-22T11:35:00Z35.6-92.4517.017.00010.029.940945TRUETRUEVFRMETAR157.02018-07-22 11:37:35 È$YÈB©¨ (y5    3KAIK 221135Z AUTO 24005KT 10SM CLR 21/21 A2981 RMK AO2KAIK2018-07-22T11:35:00Z33.65-81.6821.021.0240510.029.811024TRUETRUEVFRMETAR161.02018-07-22 11:37:35C©¨ (y5    3KALM 221135Z AUTO 36005KT 10SM CLR 23/04 A3013 RMK AO2KALM2018-07-22T11:35:00Z32.82-105.9723.04.0360510.030.129921TRUETRUEVFRMETAR1279.02018-07-22 11:37:35E©¨ (5    3KANE 221135Z AUTO 02005KT 10SM BKN012 18/17 A3011 RMK AO2KANE2018-07-22T11:35:00Z45.15-93.2218.017.020510.030.109253TRUETRUEMVFRMETAR278.02018-07-22 11:37:35V©¨)!5    3KBAX 221135Z AUTO 07007KT 10SM SCT043 BKN110 19/16 A2987 RMK AO2 T01860160KBAX2018-07-22T11:35:00Z43.78-82.9818.616.070710.029.870079TRUETRUEVFRMETAR234.02018-07-22 11:37:35 Â8n˜ÂP©¨)5    3K2I0 221135Z AUTO 28003KT 10SM OVC012 21/20 A2980 RMK AO2 T02050196K2I02018-07-22T11:35:00Z37.35-87.420.519.6280310.029.799213TRUETRUEMVFRMETAR134.02018-07-22 11:37:35P©¨)5    3K4R5 221135Z AUTO 06005KT 10SM OVC021 17/14 A3013 RMK AO2 T01650140K4R52018-07-22T11:35:00Z46.78-90.7716.514.060510.030.129921TRUETRUEMVFRMETAR198.02018-07-22 11:37:35D©¨ (y5    3K74V 221135Z AUTO 26005KT 10SM CLR 21/10 A3023 RMK AO2K74V2018-07-22T11:35:00Z40.28-110.0521.010.0260510.030.230314TRUETRUEVFRMETAR1576.02018-07-22 11:37:35B©¨ (y5    3KAIB 221135Z AUTO 12006KT 10SM CLR 20/08 A3031 RMK AO2KAIB2018-07-22T11:35:00Z38.23-108.5720.08.0120610.030.31004TRUETRUEVFRMETAR1811.02018-07-22 11:37:35  ,g” n©¨)E5       3KMSV 221135Z AUTO 08013G19KT 9SM UP OVC005 A2985 RMK AO2 RAB19E28 CIG 003V008 P0001 FZRANO $KMSV2018-07-22T11:35:00Z41.7-74.788013199.029.84941TRUETRUETRUETRUEUPIFR0.01SPECI428.02018-07-22 11:37:35M©¨)5   3K0CO 221135Z AUTO 32015G19KT 10SM SCT100 07/M01 A3078 RMK AO2K0CO2018-07-22T11:35:00Z39.8-105.777.0-1.0320151910.030.779528TRUETRUEVFRMETAR3807.02018-07-22 11:37:35?©¨(y5    3K14Y 221135Z AUTO 00000KT 10SM CLR 15/15 A3014 RMK AO2K14Y2018-07-22T11:35:00Z45.9-94.8715.015.00010.030.138779TRUETRUEVFRMETAR406.02018-07-22 11:37:35N©¨)5    3K1P1 221135Z AUTO 00000KT 10SM OVC060 17/12 A3012 RMK AO2 T01680123K1P12018-07-22T11:35:00Z43.78-71.7516.812.30010.030.121063TRUETRUEVFRMETAR154.02018-07-22 11:37:35 »&`€»?©¨(w5    3KMKS 221135Z AUTO 22004KT 7SM CLR 22/22 A2978 RMK AO2KMKS2018-07-22T11:35:00Z33.18-80.0322.022.022047.029.778543TRUETRUEVFRMETAR23.02018-07-22 11:37:35Z©¨)'5     3KMOP 221135Z AUTO 03005KT 7SM -RA SCT007 SCT090 20/20 A2985 RMK AO2 T01950195KMOP2018-07-22T11:35:00Z43.62-84.7319.519.53057.029.84941TRUETRUE-RAVFRMETAR230.02018-07-22 11:37:35@©¨(w5    3KMPZ 221135Z AUTO 35009KT 7SM CLR 18/18 A2995 RMK AO2KMPZ2018-07-22T11:35:00Z40.95-91.5218.018.035097.029.949802TRUETRUEVFRMETAR224.02018-07-22 11:37:35T©¨)5    3KMRT 221135Z AUTO 05006KT 7SM BKN005 OVC012 19/18 A2974 RMK AO2 T01870180KMRT2018-07-22T11:35:00Z40.22-83.3518.718.05067.029.740158TRUETRUEIFRMETAR312.02018-07-22 11:37:35 ÊAm’ʁB©¨(y5    3KMDS 221135Z AUTO 13005KT 10SM CLR 17/17 A3009 RMK AO2KMDS2018-07-22T11:35:00Z44.02-97.0817.017.0130510.030.088583TRUETRUEVFRMETAR524.02018-07-22 11:37:35U©¨)!5    3KMDZ 221135Z AUTO 36006KT 10SM SCT017 SCT027 15/14 A3007 RMK AO2 T01450135KMDZ2018-07-22T11:35:00Z45.1-90.314.513.5360610.030.070866TRUETRUEVFRMETAR448.02018-07-22 11:37:35N©¨)5     3KMGC 221135Z AUTO 01003KT 4SM BR BKN006 OVC080 20/20 A2980 RMK AO2KMGC2018-07-22T11:35:00Z41.7-86.8220.020.01034.029.799213TRUETRUEBRIFRMETAR200.02018-07-22 11:37:359©¨(y5    3KMHL 221135Z AUTO 00000KT 10SM CLR 18/17 A3000 RMK AO2KMHL2018-07-22T11:35:00Z39.1-93.218.017.00010.030.0TRUETRUEVFRMETAR237.02018-07-22 11:37:35 Ì*p¯Ì]©¨)-5     3KLWA 221135Z AUTO 03005KT 2 1/2SM BR BKN006 OVC011 21/20 A2981 RMK AO2 T02070197KLWA2018-07-22T11:35:00Z42.35-86.2520.719.73052.529.811024TRUETRUEBRIFRMETAR203.02018-07-22 11:37:35;©¨(q5   3KMAN 221135Z AUTO 28006KT 10SM 17/00 A3013 RMK A01KMAN2018-07-22T11:35:00Z43.58-116.5217.00.0280610.030.129921TRUETRUEMETAR774.02018-07-22 11:37:354©¨(m5     3KMBY 221135Z AUTO 31005KT 10SM CLR A2999 RMK AO2KMBY2018-07-22T11:35:00Z39.47-92.43310510.029.991142TRUETRUEVFRMETAR264.02018-07-22 11:37:35P©¨)5     3KMCD 221135Z AUTO 04004KT 5SM BR CLR 19/19 A2997 RMK AO2 T01920192KMCD2018-07-22T11:35:00Z45.85-84.6319.219.24045.029.970472TRUETRUEBRMVFRMETAR226.02018-07-22 11:37:35 ¥+Om¥B©¨#(y5    3KLBO 221135Z AUTO 35003KT 10SM CLR 19/18 A2999 RMK AO2KLBO2018-07-22T11:35:00Z37.65-92.6519.018.0350310.029.991142TRUETRUEVFRMETAR403.02018-07-22 11:37:35\©¨")/5    3KLDM 221135Z AUTO 03004KT 10SM SCT006 SCT039 OVC110 19/19 A2987 RMK AO2 T01910185KLDM2018-07-22T11:35:00Z43.97-86.419.118.530410.029.870079TRUETRUEVFRMETAR197.02018-07-22 11:37:35V©¨!)5     3KLNL 221135Z AUTO 35008KT 1/2SM FG OVC002 14/14 A3012 RMK AO2 T01400137KLNL2018-07-22T11:35:00Z46.15-89.2214.013.735080.530.121063TRUETRUEFGLIFRMETAR520.02018-07-22 11:37:35O©¨ )5    3KLUL 221135Z AUTO 24003KT 10SM SCT120 25/24 A2990 RMK AO2 T02490243KLUL2018-07-22T11:35:00Z31.67-89.1724.924.3240310.029.899607TRUETRUEVFRMETAR73.02018-07-22 11:37:35 Ì9q¦ÌT©¨')5     3KI69 221135Z AUTO 03006KT 4SM -RA OVC002 20/20 A2969 RMK AO2 T01970197KI692018-07-22T11:35:00Z39.08-84.2219.719.73064.029.68996TRUETRUE-RALIFRMETAR255.02018-07-22 11:37:35E©¨&)5   3KIIB 221135Z AUTO 03009KT 10SM 17/16 A3001 RMK AO2 T01690159KIIB2018-07-22T11:35:00Z42.45-91.9516.915.930910.030.008858TRUETRUEMETAR298.02018-07-22 11:37:35B©¨%(y5    3KJKJ 221135Z AUTO 12005KT 10SM CLR 17/16 A3008 RMK AO2KJKJ2018-07-22T11:35:00Z46.83-96.6717.016.0120510.030.079725TRUETRUEVFRMETAR280.02018-07-22 11:37:35A©¨$(y5    3KJYG 221135Z AUTO 04004KT 10SM CLR 17/16 A3010 RMK AO2KJYG2018-07-22T11:35:00Z43.98-94.5517.016.040410.030.100393TRUETRUEVFRMETAR325.02018-07-22 11:37:35 Á:x–ÁO©¨+)5    3KOEO 221135Z AUTO 03004KT 10SM OVC013 16/15 A3014 RMK AO2 T01620151KOEO2018-07-22T11:35:00Z45.32-92.716.215.130410.030.138779TRUETRUEMVFRMETAR275.02018-07-22 11:37:35\©¨*))5     3KOGS 221135Z AUTO 06006KT 10SM -DZ SCT007 SCT014 17/15 A2994 RMK AO2 T01650151KOGS2018-07-22T11:35:00Z44.67-75.4716.515.160610.029.940945TRUETRUE-DZVFRMETAR91.02018-07-22 11:37:35<©¨)(w5    3KMWM 221135Z AUTO 00000KT 7SM CLR 17/17 A3009 RMK AO2KMWM2018-07-22T11:35:00Z43.9-95.117.017.0007.030.088583TRUETRUEVFRMETAR430.02018-07-22 11:37:35@©¨((w5    3KMYJ 221135Z AUTO 33006KT 7SM CLR 17/17 A2995 RMK AO2KMYJ2018-07-22T11:35:00Z39.15-91.8217.017.033067.029.949802TRUETRUEVFRMETAR251.02018-07-22 11:37:35 7dŸÉ&©¨0(i5  3KX07 221135Z AUTO 00000KT BKN120 26/26 RMK A01KX072018-07-22T11:35:00Z27.9-81.6226.026.000TRUETRUEMETAR39.02018-07-22 11:37:35P©¨/)5     3KY63 221135Z AUTO 12004KT 4SM BR CLR 18/17 A3011 RMK AO2 T01750170KY632018-07-22T11:35:00Z45.98-96.017.517.012044.030.109253TRUETRUEBRMVFRMETAR367.02018-07-22 11:37:35?©¨.(y5    3KGGE 221135Z AUTO 00000KT 10SM CLR 23/23 A2979 RMK AO2KGGE2018-07-22T11:35:00Z33.32-79.3223.023.00010.029.790354TRUETRUEVFRMETAR12.02018-07-22 11:37:35M©¨-) 5    3KGNT 221135Z AUTO 28003KT 10SM CLR 16/10 A3036 RMK AO2 T01590095KGNT2018-07-22T11:35:00Z35.17-107.915.99.5280310.030.360237TRUETRUEVFRMETAR1987.02018-07-22 11:37:35C©¨,(5    3KMZH 221135Z AUTO 04004KT 10SM BKN007 15/13 A3013 RMK AO2KMZH2018-07-22T11:35:00Z46.42-92.815.013.040410.030.129921TRUETRUEIFRMETAR328.02018-07-22 11:37:35 Ë6a›ËJ©¨4) 5    3KGYL 221135Z AUTO 03005KT 7SM CLR 18/18 A3010 RMK AO2 T01750176KGYL2018-07-22T11:35:00Z44.77-94.0817.517.63057.030.100393TRUETRUEVFRMETAR302.02018-07-22 11:37:35@©¨3(y5    3KTWM 221135Z AUTO 00000KT 10SM CLR 16/13 A3013 RMK AO2KTWM2018-07-22T11:35:00Z47.03-91.7516.013.00010.030.129921TRUETRUEVFRMETAR328.02018-07-22 11:37:35O©¨2)5   3KVNC 221135Z AUTO 27012G17KT 7SM FEW020 SCT037 30/26 A2994 RMK AO2KVNC2018-07-22T11:35:00Z27.07-82.4330.026.027012177.029.940945TRUETRUEVFRMETAR6.02018-07-22 11:37:35D©¨1(}5     3KVVV 221135Z AUTO 08004KT 5SM BR CLR 18/17 A3008 RMK AO2KVVV2018-07-22T11:35:00Z45.3-96.4218.017.08045.030.079725TRUETRUEBRMVFRMETAR335.02018-07-22 11:37:35 µ-UŒµQ©¨8)5     3KGAF 221135Z AUTO 00000KT 4SM BR SCT038 15/15 A3009 RMK AO2 PWINOKGAF2018-07-22T11:35:00Z48.4-97.3715.015.0004.030.088583TRUETRUETRUEBRMVFRSPECI252.02018-07-22 11:37:35C©¨7(5    3KDCM 221135Z AUTO 00000KT 10SM BKN003 20/20 A2977 RMK AO2KDCM2018-07-22T11:35:00Z34.78-81.220.020.00010.029.769686TRUETRUELIFRSPECI200.02018-07-22 11:37:35R©¨6)5    3KBRY 221135Z AUTO 26005KT 7SM SCT010 BKN015 BKN021 19/18 A2973 RMK AO1KBRY2018-07-22T11:35:00Z37.82-85.519.018.026057.029.731298TRUETRUEMVFRSPECI204.02018-07-22 11:37:35M©¨5)5     3K96D 221135Z AUTO 09003KT 1/4SM FG VV002 15/15 A3007 RMK AO2K96D2018-07-22T11:35:00Z48.93-97.915.015.09030.2530.070866TRUETRUEFGLIFR200SPECI290.02018-07-22 11:37:35 Å-c–ŁK©¨<)5     3KMBO 221135Z AUTO 25005KT 10SM CLR 25/23 A2988 RMK AO2 PWINOKMBO2018-07-22T11:35:00Z32.43-90.125.023.0250510.029.878937TRUETRUETRUEVFRSPECI99.02018-07-22 11:37:35G©¨;)5     3KLUX 221135Z AUTO 00000KT 3SM BR OVC004 20/20 A2977 RMK AO2KLUX2018-07-22T11:35:00Z34.5-81.9520.020.0003.029.769686TRUETRUEBRLIFRSPECI213.02018-07-22 11:37:35D©¨:(}5    3KLKR 221135Z AUTO 23004KT 9SM OVC004 21/21 A2976 RMK AO2KLKR2018-07-22T11:35:00Z34.72-80.8521.021.023049.029.760826TRUETRUELIFRSPECI149.02018-07-22 11:37:35M©¨9) 5    3KGGI 221135Z AUTO 35006KT 10SM CLR 17/16 A3003 RMK AO2 T01700156KGGI2018-07-22T11:35:00Z41.72-92.7317.015.6350610.030.029528TRUETRUEVFRSPECI307.02018-07-22 11:37:35 Å0fŸÅT©¨@)5     3KUNU 221135Z AUTO 33009KT 3SM -DZ OVC008 18/17 A2994 RMK AO2 T01750168KUNU2018-07-22T11:35:00Z43.42-88.717.516.833093.029.940945TRUETRUE-DZIFRSPECI285.02018-07-22 11:37:35A©¨?(}5    3KSTF 221135Z AUTO 00000KT 7SM SCT075 22/22 A2987 RMK AO2KSTF2018-07-22T11:35:00Z33.43-88.8522.022.0007.029.870079TRUETRUEVFRSPECI102.02018-07-22 11:37:35D©¨>(5   3KRUG 221135Z AUTO 14011G16KT 10SM CLR 17/17 A3000 RMK AO2KRUG2018-07-22T11:35:00Z48.38-100.0217.017.0140111610.030.0TRUETRUEVFRSPECI472.02018-07-22 11:37:35J©¨=) 5    3KPEA 221135Z AUTO 34003KT 7SM CLR 17/16 A3003 RMK AO2 T01680159KPEA2018-07-22T11:35:00Z41.4-92.9516.815.934037.030.029528TRUETRUEVFRSPECI270.02018-07-22 11:37:35 ¿+W’¿M©¨D) 5    3KJSO 221135Z AUTO 21006KT 10SM CLR 24/22 A2996 RMK AO2 T02460225KJSO2018-07-22T11:35:00Z31.87-95.2224.622.5210610.029.958662TRUETRUEVFRSPECI206.02018-07-22 11:37:35?©¨C(y5    3KMNI 221135Z AUTO 00000KT 10SM CLR 19/19 A2977 RMK AO2KMNI2018-07-22T11:35:00Z33.58-80.2219.019.00010.029.769686TRUETRUEVFRSPECI32.02018-07-22 11:37:35N©¨B)5    3KRCX 221135Z AUTO 36007KT 10SM OVC006 16/15 A3012 RMK AO2 T01580146KRCX2018-07-22T11:35:00Z45.5-91.015.814.6360710.030.121063TRUETRUEIFRSPECI377.02018-07-22 11:37:35O©¨A)5     3KRID 221135Z AUTO 04007KT 3SM RA SCT003 OVC008 18/18 A2973 RMK AO2KRID2018-07-22T11:35:00Z39.75-84.8518.018.04073.029.731298TRUETRUERAIFRSPECI348.02018-07-22 11:37:35 ¸)U¸O©¨H)5    3KVTI 221135Z AUTO 36009KT 7SM OVC012 18/17 A3001 RMK AO2 T01750166KVTI2018-07-22T11:35:00Z42.22-92.0217.516.636097.030.008858TRUETRUEMVFRSPECI255.02018-07-22 11:37:35B©¨G(y5    3KCXP 221135Z AUTO 00000KT 10SM CLR 17/13 A3023 RMK AO2KCXP2018-07-22T11:35:00Z39.18-119.7317.013.00010.030.230314TRUETRUEVFRSPECI1435.02018-07-22 11:37:35N©¨F)5    3KEGV 221135Z AUTO 36008KT 7SM OVC005 15/15 A3008 RMK AO2 T01480145KEGV2018-07-22T11:35:00Z45.93-89.2714.814.536087.030.079725TRUETRUEIFRSPECI500.02018-07-22 11:37:35Q©¨E)5    3KEZS 221135Z AUTO 36009KT 10SM OVC014 20/17 A2997 RMK AO2 T01950168KEZS2018-07-22T11:35:00Z44.78-88.5719.516.8360910.029.970472TRUETRUEMVFRSPECI248.02018-07-22 11:37:35 —+YŠ—m©¨L)E5      3KJNX 221135Z AUTO 00000KT 10SM -RA SCT037 SCT050 SCT065 20/20 A2975 RMK AO2 LTG DSNT E P0008KJNX2018-07-22T11:35:00Z35.53-78.3820.020.00010.029.749016TRUETRUE-RAVFR0.08SPECI50.02018-07-22 11:37:35I©¨K)5     3KS32 221135Z AUTO 12006KT 4SM BR FEW120 17/17 A3007 RMK AO2KS322018-07-22T11:35:00Z47.42-98.117.017.012064.030.070866TRUETRUEBRMVFRSPECI684.02018-07-22 11:37:35L©¨J)5     3KM25 221135Z AUTO 26006KT 10SM CLR 20/18 A2985 RMK AO2 PWINOKM252018-07-22T11:35:00Z36.77-88.5820.018.0260610.029.84941TRUETRUETRUEVFRSPECI160.02018-07-22 11:37:35O©¨I)5    3KSUW 221135Z AUTO 05003KT 10SM OVC027 17/15 A3014 RMK AO2 T01670152KSUW2018-07-22T11:35:00Z46.68-92.116.715.250310.030.138779TRUETRUEMVFRSPECI206.02018-07-22 11:37:35 ½ N{½8©¨P(w5      3KHAI 221135Z AUTO 02004KT 3SM BR OVC007 A2980 RMK AO2KHAI2018-07-22T11:35:00Z41.97-85.62043.029.799213TRUETRUEBRIFRMETAR251.02018-07-22 11:37:35M©¨O) 5    3KIFA 221135Z AUTO 35003KT 10SM CLR 17/16 A3006 RMK AO2 T01670160KIFA2018-07-22T11:35:00Z42.47-93.2716.716.0350310.030.059055TRUETRUEVFRSPECI347.02018-07-22 11:37:35L©¨N)5      3K2C8 221135Z AUTO 00000KT 1/4SM FG SCT001 BKN040 15/ A3008 RMK AO2K2C82018-07-22T11:35:00Z48.78-97.6315.0000.2530.079725TRUETRUEFGLIFRSPECI272.02018-07-22 11:37:35Z©¨M)%5     3KAID 221135Z AUTO 01004KT 4SM BR BKN010 OVC013 20/20 A2974 RMK AO2 T02000200KAID2018-07-22T11:35:00Z40.12-85.6220.020.01044.029.740158TRUETRUEBRMVFRSPECI280.02018-07-22 11:37:35 É3TÉA©¨T(y5    3K2V5 221135Z AUTO 00000KT 10SM CLR 18/16 A3008 RMK AO2K2V52018-07-22T11:35:00Z40.1-102.2518.016.00010.030.079725TRUETRUEVFRSPECI1118.02018-07-22 11:37:35>©¨S(w5    3KVDF 221135Z AUTO 23003KT 7SM CLR 27/27 A2992 RMK AO2KVDF2018-07-22T11:35:00Z28.02-82.3327.027.023037.029.920275TRUETRUEVFRSPECI7.02018-07-22 11:37:35Y©¨R)%5     3KC62 221135Z AUTO 02005KT 3SM BR BKN007 OVC019 20/19 A2978 RMK AO2 T01970192KC622018-07-22T11:35:00Z41.47-85.2519.719.22053.029.778543TRUETRUEBRIFRSPECI306.02018-07-22 11:37:35G©¨Q)5     3KHAF 221135Z AUTO 00000KT 2SM BR OVC003 15/14 A3007 RMK AO2KHAF2018-07-22T11:35:00Z37.52-122.515.014.0002.030.070866TRUETRUEBRLIFRMETAR21.02018-07-22 11:37:35 ã<‚½ãT©¨X)5   3KLDJ 221135Z AUTO 18007G14KT 10SM OVC013 23/21 A2983 RMK AO2 T02270205KLDJ2018-07-22T11:35:00Z40.62-74.2522.720.518071410.029.828741TRUETRUEMVFRSPECI7.02018-07-22 11:37:35?©¨W(y5    3KGPH 221135Z AUTO 00000KT 10SM CLR 16/16 A3002 RMK AO2KGPH2018-07-22T11:35:00Z39.33-94.3216.016.00010.030.02067TRUETRUEVFRSPECI235.02018-07-22 11:37:354©¨V(q5      3KDYA 221135Z AUTO 00000KT 5SM BR CLR A2985 RMK AO2KDYA2018-07-22T11:35:00Z32.47-87.95005.029.84941TRUETRUEBRMVFRSPECI34.02018-07-22 11:37:35>©¨U(y5    3KCKM 221135Z AUTO 00000KT 10SM CLR 22/22 A2989 RMK A01KCKM2018-07-22T11:35:00Z34.3-90.5222.022.00010.029.890747TRUETRUEVFRSPECI53.02018-07-22 11:37:35 Ä'T’āH©¨\)5     3KVNW 221135Z AUTO 05003KT 5SM BR OVC008 19/18 A2975 RMK AO2KVNW2018-07-22T11:35:00Z40.87-84.6219.018.05035.029.749016TRUETRUEBRIFRMETAR239.02018-07-22 11:37:35<©¨[(y5    3KRCM 221135Z AUTO 29005KT 10SM CLR 17/16 A3000 RMK AO2KRCM2018-07-22T11:35:00Z38.78-93.817.016.0290510.030.0TRUETRUEVFRSPECI244.02018-07-22 11:37:35M©¨Z)5    3KPBH 221135Z AUTO 01007KT 10SM OVC005 15/15 A3009 RMK AO2 T01510151KPBH2018-07-22T11:35:00Z45.7-90.415.115.110710.030.088583TRUETRUEIFRSPECI449.02018-07-22 11:37:35S©¨Y)5    3KMCX 221135Z AUTO 00000KT 7SM BKN006 OVC012 20/19 A2976 RMK AO2 T01960189KMCX2018-07-22T11:35:00Z40.72-86.7719.618.9007.029.760826TRUETRUEIFRSPECI206.02018-07-22 11:37:35 Ž 8XŽD©¨`(5    3KOLG 221135Z AUTO 03003KT 10SM OVC017 15/15 A3013 RMK AO1KOLG2018-07-22T11:35:00Z46.3-91.8215.015.030310.030.129921TRUETRUEMVFRMETAR336.02018-07-22 11:37:35Z©¨_)%5     3CYFC 221135Z AUTO 00000KT 2SM BR OVC002 16/16 A3023 RMK VIS VRB 3/4-3 SLP238CYFC2018-07-22T11:35:00Z45.87-66.5216.016.0002.030.2303141023.8TRUEBRLIFRSPECI20.02018-07-22 11:37:35L©¨^)5    3KNFE 221135Z AUTO 00000KT 10SM SCT015 25/23 A2980 RMK AO2 T02500233 KNFE2018-07-22T11:35:00Z36.7-76.1325.023.30010.029.799213TRUETRUEVFRSPECI5.02018-07-22 11:37:35p©¨])G5   3CYTR 221135Z 06010G15KT 1 3/4SM SHRA BR FEW013 BKN020 OVC063 17/15 A2984 RMK SF2SC3SC2 SLP104CYTR2018-07-22T11:35:00Z44.12-77.5217.015.06010151.7529.8405511010.4SHRA BRIFRSPECI86.02018-07-22 11:37:35 ³9b³V©¨d)5     3KPMH 221135Z AUTO 00000KT 1 3/4SM BR OVC005 17/17 A2970 RMK AO2 T01680168KPMH2018-07-22T11:35:00Z38.83-82.8516.816.8001.7529.698818TRUETRUEBRIFRMETAR202.02018-07-22 11:37:35M©¨c) 5    3KPHN 221135Z AUTO 07005KT 10SM BKN016 OVC120 18/15 A2983 RMK AO2KPHN2018-07-22T11:35:00Z42.92-82.5218.015.070510.029.828741TRUETRUEMVFRMETAR198.02018-07-22 11:37:35Q©¨b)5    3KPCZ 221135Z AUTO 34011KT 10SM OVC017 20/18 A2998 RMK AO2 T02000176KPCZ2018-07-22T11:35:00Z44.33-89.0220.017.63401110.029.97933TRUETRUEMVFRMETAR252.02018-07-22 11:37:35A©¨a(y5    3KONA 221135Z AUTO 34003KT 10SM CLR 16/14 A3007 RMK AO2KONA2018-07-22T11:35:00Z44.07-91.716.014.0340310.030.070866TRUETRUEVFRMETAR200.02018-07-22 11:37:35 Ê7qÊM©¨h) 5    3KPTS 221135Z AUTO 35003KT 10SM CLR 22/20 A2999 RMK AO2 T02170204KPTS2018-07-22T11:35:00Z37.45-94.7321.720.4350310.029.991142TRUETRUEVFRMETAR290.02018-07-22 11:37:35N©¨g) 5    3KPSO 221135Z AUTO 30004KT 10SM CLR 15/08 A3040 RMK AO2 T01470077KPSO2018-07-22T11:35:00Z37.28-107.0514.77.7300410.030.398623TRUETRUEVFRMETAR2334.02018-07-22 11:37:35@©¨f(y5    3KPQN 221135Z AUTO 00000KT 10SM CLR 18/17 A3009 RMK AO2KPQN2018-07-22T11:35:00Z43.97-96.3218.017.00010.030.088583TRUETRUEVFRMETAR529.02018-07-22 11:37:35C©¨e(5    3KPNM 221135Z AUTO 03005KT 10SM OVC009 17/16 A3013 RMK AO2KPNM2018-07-22T11:35:00Z45.57-93.617.016.030510.030.129921TRUETRUEIFRMETAR298.02018-07-22 11:37:35 À+a’ÀL©¨l)5    3KSJX 221135Z AUTO 02005KT 7SM OVC100 20/19 A2997 RMK AO2 T01960192KSJX2018-07-22T11:35:00Z45.7-85.5719.619.22057.029.970472TRUETRUEVFRMETAR204.02018-07-22 11:37:35I©¨k)5     3KSAZ 221135Z AUTO 00000KT 1/2SM FG OVC001 16/16 A3014 RMK AO2KSAZ2018-07-22T11:35:00Z46.37-94.816.016.0000.530.138779TRUETRUEFGLIFRMETAR392.02018-07-22 11:37:35D©¨j(5    3KROX 221135Z AUTO 12005KT 10SM SCT050 17/14 A3013 RMK AO2KROX2018-07-22T11:35:00Z48.85-95.717.014.0120510.030.129921TRUETRUEVFRMETAR323.02018-07-22 11:37:35O©¨i)5    3KROS 221135Z AUTO 03003KT 10SM OVC011 16/14 A3013 RMK AO2 T01610143KROS2018-07-22T11:35:00Z45.7-92.9516.114.330310.030.129921TRUETRUEMVFRMETAR281.02018-07-22 11:37:35 ¸'bˆ¸J©¨p) 5    3K1S5 221135Z AUTO 00000KT 10SM CLR 12/09 A3015 RMK AO2 T01160085K1S52018-07-22T11:35:00Z46.33-119.9711.68.50010.030.15059TRUETRUEVFRSPECI234.02018-07-22 11:37:35T©¨o)5      3KANQ 221135Z AUTO 3SM BR BKN008 BKN020 OVC070 20/19 A2978 RMK AO2 TSNOKANQ2018-07-22T11:35:00Z41.63-85.0820.019.03.029.778543TRUETRUETRUEBRIFRSPECI303.02018-07-22 11:37:35?©¨n(w5    3KCCY 221135Z AUTO 02008KT 9SM CLR 16/15 A3004 RMK AO2KCCY2018-07-22T11:35:00Z43.07-92.6216.015.02089.030.041338TRUETRUEVFRSPECI343.02018-07-22 11:37:35S©¨m)5     3KCLI 221135Z AUTO 36007KT 4SM DZ OVC015 19/16 A2998 RMK AO2 T01850158KCLI2018-07-22T11:35:00Z44.62-88.7318.515.836074.029.97933TRUETRUEDZMVFRSPECI250.02018-07-22 11:37:35 Ñ8ešÑC©¨t(y5    3KSVE 221135Z AUTO 27004KT 10SM CLR 19/09 A3019 RMK AO2KSVE2018-07-22T11:35:00Z40.37-120.5719.09.0270410.030.188976TRUETRUEVFRMETAR1263.02018-07-22 11:37:35E©¨s(5    3KSQL 221135Z AUTO 31003KT 10SM OVC014 17/14 A3005 RMK AO2KSQL2018-07-22T11:35:00Z37.52-122.2517.014.0310310.030.050198TRUETRUEMVFRMETAR1.02018-07-22 11:37:35M©¨r)5     3KSPF 221135Z AUTO 00000KT 10SM CLR 15/15 A3003 RMK AO2 PWINOKSPF2018-07-22T11:35:00Z44.47-103.7715.015.00010.030.029528TRUETRUETRUEVFRMETAR1188.02018-07-22 11:37:35B©¨q(}5    3KD55 221135Z AUTO 13008KT 9SM SCT120 17/17 A3007 RMK AO2KD552018-07-22T11:35:00Z48.75-98.417.017.013089.030.070866TRUETRUEVFRSPECI491.02018-07-22 11:37:35 ‹(Mk‹Z©¨x)+5    3KALO 221134Z 03012G18KT 6SM BR BKN008 16/16 A3001 RMK AO2 CIG 007V012 T01610161KALO2018-07-22T11:34:00Z42.55-92.416.116.13012186.030.008858TRUEBRIFRSPECI264.02018-07-22 11:37:35\©¨w)/5    3KBLF 221134Z AUTO 25003KT 10SM SCT029 SCT036 OVC095 17/16 A2983 RMK AO2 T01720161KBLF2018-07-22T11:34:00Z37.3-81.217.216.1250310.029.828741TRUETRUEVFRSPECI873.02018-07-22 11:37:35U©¨v)!5    3KTKC 221135Z AUTO 08003KT 7SM CLR 18/18 A3009 RMK AO2 LTG DSNT E T01830177KTKC2018-07-22T11:35:00Z44.25-95.6218.317.78037.030.088583TRUETRUEVFRMETAR408.02018-07-22 11:37:35R©¨u)5    3KSYM 221135Z AUTO 25005KT 9SM BKN007 BKN010 OVC018 20/19 A2972 RMK AO2KSYM2018-07-22T11:35:00Z38.22-83.5820.019.025059.029.719488TRUETRUEIFRMETAR313.02018-07-22 11:37:35 ~9/Z~V©¨|)5     3KMBL 221134Z AUTO 03006KT 10SM FEW008 19/18 A2989 RMK AO2 RAE24 P0000KMBL2018-07-22T11:34:00Z44.27-86.2519.018.030610.029.890747TRUETRUEVFR0.005SPECI189.02018-07-22 11:37:35O©¨{)5     3KDVP 221134Z AUTO 00000KT 5SM BR CLR 18/17 A3011 RMK AO2 T01760165KDVP2018-07-22T11:34:00Z43.98-95.7817.616.5005.030.109253TRUETRUEBRMVFRSPECI495.02018-07-22 11:37:35‚©¨z)k5      3KGGW 221134Z AUTO 04004KT 10SM -RA FEW055 FEW070 BKN100 21/17 A2991 RMK AO2 LTG DSNT NE-S TSE19 P0000 T02060172KGGW2018-07-22T11:34:00Z48.22-106.6220.617.240410.029.911417TRUETRUE-RAVFR0.005SPECI694.02018-07-22 11:37:35A©¨y(y5    3K2V6 221134Z AUTO 09004KT 10SM CLR 15/08 A3009 RMK AO2K2V62018-07-22T11:34:00Z40.1-102.7215.08.090410.030.088583TRUETRUEVFRMETAR1261.02018-07-22 11:37:35 ,3Q6,‚©©)q5      3KRWI 221134Z AUTO 00000KT 6SM -RA BR FEW023 BKN090 BKN120 20/20 A2979 RMK AO2 LTG DSNT ALQDS TSE05 P0005 T02000200KRWI2018-07-22T11:34:00Z35.85-77.920.020.0006.029.790354TRUETRUE-RA BRVFR0.05SPECI47.02018-07-22 11:37:35‚©¨)‚5   3CYQX 221134Z 21006KT 160V240 15SM SCT008 SCT045 SCT130 BKN190 BKN260 21/19 A3031 RMK SF3SC1AC1AC1CI2 AC TR SLP265 DENSITY ALT 900FTCYQX2018-07-22T11:34:00Z48.95-54.5821.019.0210615.030.310041026.5BKN19000VFRSPECI151.02018-07-22 11:37:35\©¨~)%5     3PAFM 221134Z AUTO 09003KT 10SM FEW006 OVC038 17/16 A3021 RMK AO2 RAE14 P0000PAFM2018-07-22T11:34:00Z67.1-157.8517.016.090310.030.209646TRUETRUEVFR0.005SPECI88.02018-07-22 11:37:35G©¨})5     3KXVG 221134Z AUTO 00000KT 3SM BR BKN011 14/13 A3016 RMK AO2KXVG2018-07-22T11:34:00Z46.98-94.214.013.0003.030.159449TRUETRUEBRMVFRSPECI407.02018-07-22 11:37:35 0H^K©©)5     3KFOZ 221133Z AUTO 00000KT 1/4SM FG OVC002 13/13 A3017 RMK AO2KFOZ2018-07-22T11:33:00Z47.77-93.6513.013.0000.2530.171259TRUETRUEFGLIFRMETAR411.02018-07-22 11:37:35d©©)15     3CYQD 221133Z AUTO 11008KT 9SM -RA OVC110 20/16 A2995 RMK SLP146 DENSITY ALT 1500FTCYQD2018-07-22T11:33:00Z53.97-101.0820.016.011089.029.9498021014.6TRUE-RAVFRSPECI271.02018-07-22 11:37:35b©©)?5   3CYSF 221133Z AUTO 11002KT BKN024 OVC036 13/13 A2984 RMK WX MISG VIS MISG PCPN MISG SLP114CYSF2018-07-22T11:33:00Z59.25-105.8213.013.0110229.8405511011.4TRUESPECI250.02018-07-22 11:37:35J©©)5    3KSGR 221134Z 27003KT 8SM BKN006 OVC014 26/24 A2997 RMK AO2 T02610244KSGR2018-07-22T11:34:00Z29.62-95.6526.124.427038.029.970472TRUEIFRSPECI2.02018-07-22 11:37:35 aACa\©©)5      3KSFZ 221133Z AUTO 10009KT 1/2SM -RA FG OVC002 20/19 A3002 RMK AO2 P0005KSFZ2018-07-22T11:33:00Z41.92-71.520.019.010090.530.02067TRUETRUE-RA FGLIFR0.05SPECI134.02018-07-22 11:37:35x©©)C5   #   3KGVQ 221133Z AUTO 06016KT 1 3/4SM VCTS +RA BR BKN003 OVC007 17/16 A2975 RMK AO2 TSB18 P0005KGVQ2018-07-22T11:33:00Z43.03-78.1717.016.060161.7529.749016TRUETRUEVCTS +RA BRLIFR0.05SPECI278.02018-07-22 11:37:35J©©)5     3KETH 221133Z AUTO 13004KT 2 1/2SM BR CLR 16/15 A3009 RMK AO2KETH2018-07-22T11:33:00Z45.78-96.5516.015.013042.530.088583TRUETRUEBRIFRSPECI313.02018-07-22 11:37:35i©©)/5      3KFIT 221133Z AUTO VRB05KT 3SM -RA BR OVC005 18/18 A3007 RMK AO2 P0005 T01780178 $KFIT2018-07-22T11:33:00Z42.55-71.7517.817.8053.030.070866TRUETRUETRUE-RA BRIFR0.05SPECI103.02018-07-22 11:37:35 iBVig©© )95     3KBKW 221133Z AUTO 19003KT 10SM SCT014 BKN027 OVC034 18/16 A2980 RMK AO2 T01780161 TSNOKBKW2018-07-22T11:33:00Z37.8-81.1217.816.1190310.029.799213TRUETRUETRUEMVFRSPECI764.02018-07-22 11:37:35f©© )C5      3KBED 221133Z 08006KT 1SM R11/P6000FT BR OVC005 20/19 A3006 RMK AO2 RAB00E24 P0001 T02000189KBED2018-07-22T11:33:00Z42.47-71.320.018.98061.030.059055TRUEBRIFR0.01SPECI50.02018-07-22 11:37:35V©© )!5    3KAKQ 221133Z AUTO 12006KT 10SM BKN013 BKN090 21/18 A2980 RMK AO2 T02060183KAKQ2018-07-22T11:33:00Z36.98-77.020.618.3120610.029.799213TRUETRUEMVFRSPECI34.02018-07-22 11:37:35\©© )#5     3KBAN 221133Z AUTO 00000KT 1 1/2SM BR FEW014 11/08 A3035 RMK AO2 T01060083 $KBAN2018-07-22T11:33:00Z38.35-119.5210.68.3001.530.351377TRUETRUETRUEBRIFRSPECI2057.02018-07-22 11:37:35 Y56YW©©)!5    3KMRH 221133Z AUTO 19010KT 10SM SCT018 BKN026 27/25 A2980 RMK AO2 T02720250KMRH2018-07-22T11:33:00Z34.73-76.6527.225.01901010.029.799213TRUETRUEMVFRSPECI3.02018-07-22 11:37:35c©©)95    3KLOZ 221133Z AUTO 25008KT 10SM BKN008 OVC100 20/19 A2977 RMK AO2 CIG 006V012 T02000194KLOZ2018-07-22T11:33:00Z37.08-84.0720.019.4250810.029.769686TRUETRUEIFRSPECI362.02018-07-22 11:37:35‚©©)5     3KGON 221133Z 15016G24KT 3SM RA BR FEW011 BKN033 BKN090 22/21 A2996 RMK AO2 PK WND 15038/1102 WSHFT 1056 P0006 T02170206 $KGON2018-07-22T11:33:00Z41.33-72.0521.720.615016243.029.958662TRUETRUERA BRMVFR0.06SPECI3.02018-07-22 11:37:35E©© ) 5    3KCHS 221133Z 25007KT 10SM BKN006 24/23 A2978 RMK AO2 T02390228KCHS2018-07-22T11:33:00Z32.9-80.0323.922.8250710.029.778543TRUEIFRSPECI13.02018-07-22 11:37:35 Š39_ŠO©©)5    3KDVN 221132Z AUTO 34007KT 7SM BKN013 18/17 A2996 RMK AO2 T01780167KDVN2018-07-22T11:32:00Z41.62-90.5817.816.734077.029.958662TRUETRUEMVFRSPECI230.02018-07-22 11:37:35T©©))5    3KNYG 221132Z AUTO 10SM BKN008 BKN011 20/19 A2979 RMK AO2 CIG 007V011 T02000194KNYG2018-07-22T11:32:00Z38.5-77.2820.019.410.029.790354TRUETRUEIFRSPECI4.02018-07-22 11:37:35t©©)M5      3KFLD 221132Z AUTO 35009KT 2 1/2SM RA BR FEW006 SCT009 OVC015 18/17 A2994 RMK AO2 P0010 T01780167KFLD2018-07-22T11:32:00Z43.77-88.4817.816.735092.529.940945TRUETRUERA BRIFR0.1SPECI240.02018-07-22 11:37:35G©©)5     3KORB 221133Z AUTO 00000KT 4SM BR BKN001 13/11 A3015 RMK AO2KORB2018-07-22T11:33:00Z48.02-92.8713.011.0004.030.15059TRUETRUEBRLIFRMETAR397.02018-07-22 11:37:35 P <DPn©©)G5     3KMGJ 221131Z AUTO 09005KT 10SM FEW020 SCT033 OVC047 21/21 A2983 RMK AO2 RAE23 P0000 T02110206KMGJ2018-07-22T11:31:00Z41.52-74.2721.120.690510.029.828741TRUETRUEVFR0.005SPECI108.02018-07-22 11:37:35r©©)=5       3PASN 221131Z AUTO 11005KT 1 3/4SM -RA BR OVC005 08/08 A2989 RMK AO2 P0000 T00830083 TSNOPASN2018-07-22T11:31:00Z57.15-170.228.38.311051.7529.890747TRUETRUETRUE-RA BRIFR0.005SPECI29.02018-07-22 11:37:35J©©)5    3KGWO 221132Z AUTO 00000KT 7SM FEW060 25/24 A2987 RMK AO2 T02500244KGWO2018-07-22T11:32:00Z33.5-90.0825.024.4007.029.870079TRUETRUEVFRSPECI44.02018-07-22 11:37:35n©©)=5      3KELZ 221132Z AUTO 02006KT 3/4SM -RA BR FEW005 OVC026 15/15 A2974 RMK AO2 P0004 T01500150KELZ2018-07-22T11:32:00Z42.1-77.9815.015.02060.7529.740158TRUETRUE-RA BRLIFR0.04SPECI646.02018-07-22 11:37:35 ‚<?‚7©©(i5    3KMYP 221131Z AUTO 10SM CLR 10/04 A3084 RMK AO2KMYP2018-07-22T11:31:00Z38.48-106.3210.04.010.030.838583TRUETRUEVFRMETAR3667.02018-07-22 11:37:35w©©)Q5    3KDAA 221131Z AUTO 00000KT 10SM BKN014 BKN130 18/18 A2979 RMK AO2 CIG 014V130 BKN014 V FEW SLP091 $KDAA2018-07-22T11:31:00Z38.72-77.1718.018.00010.029.7903541009.1TRUETRUETRUEMVFRSPECI21.02018-07-22 11:37:35P©©)5    3KDOV 221131Z AUTO 18006KT 10SM OVC007 20/19 A2982 RMK AO2 SLPNO $KDOV2018-07-22T11:31:00Z39.12-75.4720.019.0180610.029.819881TRUETRUETRUEIFRSPECI9.02018-07-22 11:37:35h©©)55      3KFIG 221131Z AUTO 20004KT 2SM BR OVC003 15/15 A2977 RMK AO2 RAB08E30 P0000 T01500150KFIG2018-07-22T11:31:00Z41.05-78.4215.015.020042.029.769686TRUETRUEBRLIFR0.005SPECI462.02018-07-22 11:37:35 À >†À@©© (5    3LYVR 221130Z 34018KT 9999 FEW030 BKN033 25/19 Q1010 NOSIGLYVR2018-07-22T11:30:00Z45.1321.3225.019.0340186.2129.822834TRUEVFRMETAR85.02018-07-22 11:37:352©©(e5    3OBBI 221130Z 32019KT CAVOK 38/22 Q0997 NOSIGOBBI2018-07-22T11:30:00Z26.2750.6338.022.0320196.2129.438976TRUEVFRMETAR2.02018-07-22 11:37:35H©©) 5    3KEAU 221131Z 36005KT 10SM BKN017 17/14 A3008 RMK AO2 T01670139KEAU2018-07-22T11:31:00Z44.87-91.4716.713.9360510.030.079725TRUEMVFRSPECI276.02018-07-22 11:37:35n©©)?5      3KBDL 221131Z 08010KT 5SM RA BR SCT009 BKN017 OVC030 20/19 A2994 RMK AO2 P0027 T02000194 $KBDL2018-07-22T11:31:00Z41.93-72.6820.019.480105.029.940945TRUETRUERA BRMVFR0.27SPECI60.02018-07-22 11:37:35 BE~¶ÿB7©©%(q5    3LYKV 221130Z VRB02KT 9999 SCT050 30/19 Q1008 NOSIGLYKV2018-07-22T11:30:00Z43.8220.5830.019.0026.2129.763779TRUEVFRMETAR209.02018-07-22 11:37:351©©$(e5    3LYNI 221130Z VRB05KT CAVOK 33/14 Q1008 NOSIGLYNI2018-07-22T11:30:00Z43.3221.8833.014.0056.2129.763779TRUEVFRMETAR202.02018-07-22 11:37:35B©©#)5    3LYPG 221130Z 15014KT 120V190 9999 FEW040 32/17 Q1009 NOSIGLYPG2018-07-22T11:30:00Z42.3719.2532.017.0150146.2129.793306TRUEVFRMETAR43.02018-07-22 11:37:35A©©")5    3LYTV 221130Z 16011KT 130V210 9999 FEW060 33/20 Q1009 NOSIGLYTV2018-07-22T11:30:00Z42.3818.7233.020.0160116.2129.793306TRUEVFRMETAR5.02018-07-22 11:37:355©©!(u5   3LYUZ 221130Z 31005KT 280V030 9999 BKN023 26/15 Q1012LYUZ2018-07-22T11:30:00Z43.919.726.015.031056.2129.88189MVFRMETAR904.02018-07-22 11:37:35 /?†¼ó/>©©*(5    3EINN 221130Z 24009KT 6000 FEW002 OVC005 20/18 Q1017 NOSIGEINN2018-07-22T11:30:00Z52.7-8.9220.018.024093.7330.029528TRUEIFRMETAR20.02018-07-22 11:37:35C©©))5    3EICK 221130Z 21008KT 180V260 9999 BKN026 24/17 Q1017 NOSIGEICK2018-07-22T11:30:00Z51.85-8.4724.017.021086.2130.029528TRUEMVFRMETAR162.02018-07-22 11:37:35D©©()5    3EIKN 221130Z 23010KT 170V280 9999 SCT018 SCT100 21/17 Q1016 NOSIGEIKN2018-07-22T11:30:00Z53.92-8.8221.017.0230106.2130.0TRUEVFRMETAR64.02018-07-22 11:37:353©©'(e5    3LYBE 221130Z 36015KT CAVOK 27/19 Q1009 NOSIGLYBE2018-07-22T11:30:00Z44.8220.2827.019.0360156.2129.793306TRUEVFRMETAR99.02018-07-22 11:37:35;©©&(u5    3LYBT 221130Z 35015KT 320V040 CAVOK 26/18 Q1009 NOSIGLYBT2018-07-22T11:30:00Z44.9320.2526.018.0350156.2129.793306TRUEVFRMETAR80.02018-07-22 11:37:35 ,6m¯é,7©©/(}5    3LFOJ 221130Z AUTO VRB04KT 9999 FEW045 SCT052 26/13 Q1016LFOJ2018-07-22T11:30:00Z47.971.7526.013.0046.2130.0TRUEVFRMETAR125.02018-07-22 11:37:35@©©.(}5    3LFRJ 221130Z AUTO 36005KT 9999 BKN022 BKN029 22/15 Q1018LFRJ2018-07-22T11:30:00Z48.52-4.1522.015.036056.2130.059055TRUEMVFRMETAR115.02018-07-22 11:37:358©©-(s5    3LFRL 221130Z AUTO 07003KT 030V110 CAVOK 24/16 Q1018LFRL2018-07-22T11:30:00Z48.27-4.4224.016.07036.2130.059055TRUEVFRMETAR82.02018-07-22 11:37:35C©©,)5    3LJLJ 221130Z 05002KT 9999 SCT030TCU SCT120 25/17 Q1011 NOSIGLJLJ2018-07-22T11:30:00Z46.2214.4725.017.05026.2129.852362TRUEVFRMETAR385.02018-07-22 11:37:35D©©+)5    3EIDW 221130Z 24007KT 190V290 9999 FEW008 BKN013 21/17 Q1016 NOSIGEIDW2018-07-22T11:30:00Z53.42-6.2521.017.024076.2130.0TRUEMVFRMETAR85.02018-07-22 11:37:35 "0q¥ë"C©©4) 5    3LFYR 221130Z AUTO VRB03KT 9999 FEW038 SCT045 BKN054 26/15 Q1017LFYR2018-07-22T11:30:00Z47.321.6726.015.0036.2130.029528TRUEVFRMETAR86.02018-07-22 11:37:354©©3(s5    3LFOA 221130Z AUTO 33008KT 290V010 CAVOK 25/11 Q1016LFOA2018-07-22T11:30:00Z47.032.6325.011.033086.2130.0TRUEVFRMETAR179.02018-07-22 11:37:35F©©2) 5     3LFPV 221130Z AUTO VRB02KT 9999 SCT040 BKN048 25/14 Q1017 NOSIGLFPV2018-07-22T11:30:00Z48.772.225.014.0026.2130.029528TRUETRUEVFRMETAR179.02018-07-22 11:37:359©©1(s5    3LFOC 221130Z AUTO 29004KT 180V340 CAVOK 26/13 Q1017LFOC2018-07-22T11:30:00Z48.031.3726.013.029046.2130.029528TRUEVFRMETAR127.02018-07-22 11:37:35J©©0) 5     3LFOE 221130Z AUTO 25004KT 210V320 9999 SCT023 23/15 Q1017 NOSIGLFOE2018-07-22T11:30:00Z49.021.2223.015.025046.2130.029528TRUETRUEVFRMETAR146.02018-07-22 11:37:35 /#i±ø/C©©9) 5   3OITT 221130Z 03021KT 9999 FEW030TCU FEW035CB 32/11 Q1007 A2976OITT2018-07-22T11:30:00Z38.1346.2332.011.030216.2129.734253VFRMETAR1361.02018-07-22 11:37:353©©8(q5   3OIZH 221130Z 02008KT 9999 SCT040 39/01 Q1004 A2966OIZH2018-07-22T11:30:00Z29.4760.9239.01.02086.2129.64567VFRMETAR1370.02018-07-22 11:37:352©©7(s5    3LFSI 221130Z AUTO 01004KT 310V060 CAVOK 26/12 Q1016LFSI2018-07-22T11:30:00Z48.624.926.012.01046.2130.0TRUEVFRMETAR140.02018-07-22 11:37:354©©6(s5    3LFSO 221130Z AUTO 35009KT 330V060 CAVOK 25/11 Q1016LFSO2018-07-22T11:30:00Z48.575.9725.011.035096.2130.0TRUEVFRMETAR350.02018-07-22 11:37:35W©©5)-5    3LFSX 221130Z AUTO 34006KT 310V040 9999 SCT043/// SCT050/// BKN062/// 25/13 Q1015LFSX2018-07-22T11:30:00Z47.776.3325.013.034066.2129.970472TRUEVFRMETAR273.02018-07-22 11:37:35 fCÒf0©©>(g5   3OIFM 221130Z 02006KT CAVOK 39/M07 Q1008 A2977OIFM2018-07-22T11:30:00Z32.7551.8739.0-7.02066.2129.763779VFRMETAR1542.02018-07-22 11:37:350©©=(g5   3OIII 221130Z 14008KT CAVOK 39/M03 Q1005 A2970OIII2018-07-22T11:30:00Z35.6851.339.0-3.014086.2129.675198VFRMETAR1191.02018-07-22 11:37:357©©<(q5    3OIKB 221130Z 19010KT 3500 HZ NSC 39/28 Q0993 A2935OIKB2018-07-22T11:30:00Z27.2256.3739.028.0190102.1729.320866HZIFRMETAR10.02018-07-22 11:37:35.©©;(e5   3OIMM 221130Z 06012KT CAVOK 39/06 Q1006 A2973OIMM2018-07-22T11:30:00Z36.2359.6239.06.060126.2129.704725VFRMETAR980.02018-07-22 11:37:357©©:(s5   3OISS 221130Z 18008KT 9999 BKN040 38/M08 Q1005 A2970OISS2018-07-22T11:30:00Z29.5252.5738.0-8.018086.2129.675198VFRMETAR1491.02018-07-22 11:37:35 RRŽÌRB©©C) 5    3CMGB 221130Z AUTO 06003KT 20/10 RMK AO1 SLP176 T02030104 53002CMGB2018-07-22T11:30:00Z45.37-72.7720.310.46031017.6TRUETRUE0.2SPECI86.02018-07-22 11:37:35,©©B(o5  3CWPF 221130Z AUTO 02002KT 14/11 RMK AO1 T01390106CWPF2018-07-22T11:30:00Z48.43-123.4313.910.6202TRUETRUEMETAR12.02018-07-22 11:37:35<©©A(s5    3OICC 221130Z 21012KT CAVOK 38/M08 Q1005 A2970 NOSIGOICC2018-07-22T11:30:00Z34.3547.1738.0-8.0210126.2129.675198TRUEVFRMETAR1322.02018-07-22 11:37:35>©©@)5   3OIGG 221130Z 03604KT 9999 FEW020CB SCT025 BKN070 29/23 Q1005OIGG2018-07-22T11:30:00Z37.3349.629.023.03646.2129.675198VFRMETAR-13.02018-07-22 11:37:35(©©?(Y5   3OIAW 221130Z 29012KT CAVOK 43/02 Q0995OIAW2018-07-22T11:30:00Z31.3248.7743.02.0290126.2129.379921VFRMETAR22.02018-07-22 11:37:35  CŠÎú T©©H)5    3KPSM 221130Z 06011G19KT 2SM -RA BR SCT008 OVC010 19/17 A3011 RMK AO2AKPSM2018-07-22T11:30:00Z43.07-70.8219.017.06011192.030.109253TRUE-RA BRIFRSPECI31.02018-07-22 11:37:35N©©G)5    3ZMUB 221130Z VRB01MPS 9999 FEW033 21/10 Q1012 NOSIG RMK QFE652.3 52 MOPZMUB2018-07-22T11:30:00Z47.83106.7821.010.0026.2129.88189TRUEVFRSPECI1330.02018-07-22 11:37:356©©F(q5    3OIBP 221130Z 30010KT 4000 HZ NSC 39/22 Q0994 A2938OIBP2018-07-22T11:30:00Z27.3852.7339.022.0300102.4929.350393HZIFRMETAR9.02018-07-22 11:37:353©©E(g5   3OICK 221130Z 23014KT 8000 FEW040 41/M01 Q1003OICK2018-07-22T11:30:00Z33.4348.2841.0-1.0230144.9729.616142MVFRMETAR1155.02018-07-22 11:37:357©©D(s5   3OITL 221130Z 08025KT 9999 FEW010 SCT090 22/12 Q1011OITL2018-07-22T11:30:00Z38.3348.4222.012.080256.2129.852362VFRMETAR1316.02018-07-22 11:37:35 2Coºï27©©M(s5    3LFMY 221130Z AUTO 29008KT 250V330 CAVOK 29/14 Q1011LFMY2018-07-22T11:30:00Z43.65.0829.014.029086.2129.852362TRUEVFRMETAR60.02018-07-22 11:37:35E©©L)5    3LFLN 221130Z AUTO 25005KT 180V290 CAVOK 26/12 Q1016 TEMPO BKN050TCULFLN2018-07-22T11:30:00Z46.424.0226.012.025056.2130.0TRUEVFRMETAR244.02018-07-22 11:37:35/©©K(o5    3LFPM 221130Z AUTO VRB03KT 9999 FEW047 26/13 Q1016LFPM2018-07-22T11:30:00Z48.622.6726.013.0036.2130.0TRUEVFRMETAR92.02018-07-22 11:37:35N©©J)5    3LJMB 221130Z 24004KT 9999 VCSH SCT040 BKN050 FEW060CB 22/17 Q1010 RETSLJMB2018-07-22T11:30:00Z46.4715.6722.017.024046.2129.822834VCSHVFRMETAR265.02018-07-22 11:37:357©©I(y5   3LJPZ 221130Z 28008KT 9999 FEW030 SCT040TCU 27/20 Q1009LJPZ2018-07-22T11:30:00Z45.4713.6227.020.028086.2129.793306VFRMETAR2.02018-07-22 11:37:35 =7v¹þ=;©©R(}5    3LFBM 221130Z AUTO VRB02KT 9999 FEW036 BKN068 25/16 Q1017LFBM2018-07-22T11:30:00Z43.92-0.525.016.0026.2130.029528TRUEVFRMETAR63.02018-07-22 11:37:355©©Q(u5   3LFBY 221130Z AUTO VRB04KT 9999 // ////// 24/16 Q1017LFBY2018-07-22T11:30:00Z43.67-1.0724.016.0046.2130.029528TRUEMETAR32.02018-07-22 11:37:357©©P(s5    3LFKS 221130Z AUTO 12008KT 090V170 CAVOK 29/22 Q1011LFKS2018-07-22T11:30:00Z41.929.429.022.012086.2129.852362TRUEVFRMETAR22.02018-07-22 11:37:35;©©O(5   3LFMC 221130Z AUTO 17004KT 080V250 9999 ////// 31/15 Q1010LFMC2018-07-22T11:30:00Z43.376.3731.015.017046.2129.822834TRUEMETAR78.02018-07-22 11:37:35C©©N)5    3LFMO 221130Z AUTO 36020KT CAVOK 30/12 Q1011 BECMG 36015G25KTLFMO2018-07-22T11:30:00Z44.124.8730.012.0360206.2129.852362TRUEVFRSPECI55.02018-07-22 11:37:35 —>Pj—M©©V) 5     3K04V 221130Z AUTO 00000KT 10SM SCT110 16/05 A3042 RMK AO2 PWINOK04V2018-07-22T11:30:00Z38.1-106.1716.05.00010.030.41929TRUETRUETRUEVFRMETAR2385.02018-07-22 11:37:35`©©U)O5    3OPRN 221130Z 23016KT 7000 TS FEW030CB BKN040 34/26 Q999 TEMPO 3000 TSRA FEW030CB BKN040 RMK A2953OPRN2018-07-22T11:30:00Z33.6273.0834.026.0230164.35TSMVFRMETAR508.02018-07-22 11:37:35h©©T)O5    3LFBC 221130Z AUTO 35007KT 290V020 9999 BKN035 BKN052 OVC062 23/16 Q1018 TEMPO 4900 SHRA BKN035TCULFBC2018-07-22T11:30:00Z44.52-1.1223.016.035076.2130.059055TRUEVFRSPECI33.02018-07-22 11:37:35<©©S(}5    3LFBG 221130Z AUTO VRB03KT 9999 BKN043 BKN050 25/13 Q1017LFBG2018-07-22T11:30:00Z45.67-0.3225.013.0036.2130.029528TRUEVFRMETAR31.02018-07-22 11:37:35 34qªñ38©©[(u5   3GCRR 221130Z 36017KT 330V040 9999 FEW020 25/16 Q1017GCRR2018-07-22T11:30:00Z28.93-13.5825.016.0360176.2130.029528VFRMETAR40.02018-07-22 11:37:353©©Z(e5    3GCTS 221130Z 09022KT CAVOK 26/16 Q1017 NOSIGGCTS2018-07-22T11:30:00Z28.05-16.5726.016.090226.2130.029528TRUEVFRMETAR72.02018-07-22 11:37:35A©©Y(5    3GCXO 221130Z 31019KT 9999 FEW010 SCT014 21/15 Q1020 NOSIGGCXO2018-07-22T11:30:00Z28.48-16.3521.015.0310196.2130.11811TRUEVFRMETAR632.02018-07-22 11:37:35=©©X(5     3LFAQ 221130Z AUTO 30005KT 240V360 CAVOK 26/15 Q1016 NOSIGLFAQ2018-07-22T11:30:00Z49.972.726.015.030056.2130.0TRUETRUEVFRMETAR111.02018-07-22 11:37:35F©©W)5     3LFAT 221130Z AUTO 25009KT 200V300 9999 NCD 22/15 Q1017 NOSIGLFAT2018-07-22T11:30:00Z50.521.6222.015.025096.2130.029528TRUETRUEVFRMETAR14.02018-07-22 11:37:35 C-pÀC9©©`(s5    3LFRT 221130Z AUTO 03005KT 330V090 CAVOK 23/14 Q1018LFRT2018-07-22T11:30:00Z48.52-2.8523.014.03056.2130.059055TRUEVFRMETAR136.02018-07-22 11:37:358©©_(s5    3LFSD 221130Z AUTO 02007KT 320V080 CAVOK 26/12 Q1015LFSD2018-07-22T11:30:00Z47.275.0726.012.02076.2129.970472TRUEVFRMETAR227.02018-07-22 11:37:35*©©^(e5   3GCFV 221130Z 05017KT 9999 FEW020 24/18 Q1016GCFV2018-07-22T11:30:00Z28.43-13.8724.018.050176.2130.0VFRMETAR23.02018-07-22 11:37:357©©](u5   3GCLA 221130Z 03012KT 360V070 9999 BKN035 25/17 Q1019GCLA2018-07-22T11:30:00Z28.62-17.7525.017.030126.2130.088583VFRMETAR31.02018-07-22 11:37:35M©©\)5    3GCLP 221130Z 02026KT 350V050 9999 FEW025 24/15 Q1017 WS ALL RWY NOSIGGCLP2018-07-22T11:30:00Z27.92-15.3724.015.020266.2130.029528TRUEVFRSPECI25.02018-07-22 11:37:35 °2T—°a©©d)K5   3UKLI 221130Z VRB02MPS 9999 SCT040 28/15 Q1009 R28/090070 TEMPO VRB10G15MPS 1500 TSRAGR BKN011CBUKLI2018-07-22T11:30:00Z48.8824.6828.015.0046.2129.793306VFRMETAR280.02018-07-22 11:37:357©©c(5    3LFPT 221130Z AUTO 05004KT 360V100 9999 SCT047 25/14 Q1016LFPT2018-07-22T11:30:00Z49.12.0325.014.05046.2130.0TRUEVFRMETAR99.02018-07-22 11:37:35X©©b)'5     3LFRH 221130Z AUTO 25006KT 200V300 9999 FEW021 BKN031 BKN040 23/18 Q1018 NOSIGLFRH2018-07-22T11:30:00Z47.77-3.4523.018.025066.2130.059055TRUETRUEVFRMETAR44.02018-07-22 11:37:35H©©a) 5     3LFRQ 221130Z AUTO VRB03KT 9999 BKN030 BKN035 24/17 Q1018 NOSIGLFRQ2018-07-22T11:30:00Z47.97-4.1724.017.0036.2130.059055TRUETRUEMVFRMETAR94.02018-07-22 11:37:35Y8l8@HPX`hpx€ˆ˜ ¨°¸ÀÈÐØàèðø (08@HPX`hpx€ˆ˜ ¨°¸ÀÈÐØàèðø (08@HPX`hpx€ˆ˜ ¨°¸ÀÈÐØàèðø ¨°¸ÀÈÐØàèðø©¦'©¦+©¦/©¦4©¦9©¦>©¦C©¦H©¦L©¦P©¦T©¦Y©¦'©¦+©¦/©¦4©¦9©¦>©¦C©¦H©¦L©¦P©¦T©¦Y©¦^ ©¦c!©¦g"©¦l#©¦q$©¦v%©¦z&©¦~'©§(©§)©§ *©§+©§,©§-©§.©§/©§#0©§(1©§-2©§23©§74©§<5©§A6©§F7©§J8©§N9©§R:©§W;©§\<©§a=©§f>©§k?©§o@©§sA©§wB©§{C©§D©¨E©¨F©¨ G©¨H©¨I©¨J©¨K©¨L©¨#M©¨'N©¨+O©¨0P©¨4Q©¨8R©¨<S©¨@T©¨DU©¨HV©¨LW©¨PX©¨TY©¨XZ©¨\[©¨`\©¨d]©¨h^©¨l_©¨p`©¨ta©¨xb©¨|c©©d©©e©©f©© g©©h©©i©©j©©k©© Y8È8@HPX`hpx€ˆ˜ ¨°¸ÀÈÐØàèðø (08@HPX`hpx€ˆ˜ ¨°¸ÀÈÐØàèðø (08@HPX`hpx€ˆ˜ ¨°¸ÀÈÐØàèðø ¨°¸ÀÈÐØàèðøm©©*n©©/o©©4p©©9q©©>r©©Cs©©Ht©©Mu©©Rv©©Vw©©[x©©`m©©*n©©/o©©4p©©9q©©>r©©Cs©©Ht©©Mu©©Rv©©Vw©©[x©©`y©©d|©©h}©©m~©©q©©u€©©y©©}‚©ªƒ©ª„©ª …©ª†©ª‡©ªˆ©ª‰©ª#Š©ª'‹©ª+Œ©ª/©ª3Ž©ª7©ª;©ª?‘©ªD’©ªH“©ªM”©ªR•©ªV–©ª[—©ª`˜©ªe™©ªjš©ªo›©ªtœ©ªy©ª~ž©«Ÿ©« ©« ¡©«¢©«£©«¤©«¥©«"¦©«&§©«*¨©«.©©«2ª©«6«©«;¬©«?­©«C®©«G¯©«L°©«Q±©«V²©«Z³©«^´©«cµ©«h¶©«m·©«q¸©«v¹©«{º©¬»©¬¼©¬ ½©¬¾©¬¿©¬À©¬Á©¬!©¬%Í©¬)詬-ō©¬1ƍ©¬5Ǎ©¬9 Ã7_—ÁN©©h)5     3VERC 221130Z 09004KT 2000 -RA SCT008 SCT015 OVC080 26/25 Q0996 NOSIGVERC2018-07-22T11:30:00Z23.3285.3226.025.09041.2429.409449TRUE-RAIFRMETAR652.02018-07-22 11:37:35B©©g(}5    3VOTV 221130Z 34015G25KT 5000 HZ SCT015 30/25 Q1007 NOSIGVOTV2018-07-22T11:30:00Z8.4776.9530.025.034015253.1129.734253TRUEHZMVFRMETAR8.02018-07-22 11:37:35R©©f)%5    3VANP 221130Z 22005KT 3000 -DZ FEW010 SCT015 BKN100 27/25 Q1000 TEMPO 2000 RAVANP2018-07-22T11:30:00Z21.0879.0527.025.022051.8629.52756-DZIFRMETAR310.02018-07-22 11:37:35C©©e)5    3UKLR 221130Z 32005MPS 270V350 9999 SCT030 26/13 Q1008 NOSIGUKLR2018-07-22T11:30:00Z50.626.1326.013.0320106.2129.763779TRUEVFRMETAR230.02018-07-22 11:37:35 DÄýY©©m)15    3RJTT 221130Z 19009KT 160V230 9999 FEW025 BKN/// 30/26 Q1007 NOSIG RMK 1CU025 A2976RJTT2018-07-22T11:30:00Z35.53139.7730.026.019096.2129.734253TRUEVFRMETAR8.02018-07-22 11:37:35A©©l)5   3ROAH 221130Z 14011KT 9999 FEW012 29/25 Q1006 RMK 2CU012 A2971ROAH2018-07-22T11:30:00Z26.17127.6529.025.0140116.2129.704725VFRMETAR8.02018-07-22 11:37:355©©k(s5   3EIDL 221130Z 23013KT 9999 BKN006 OVC020 18/16 Q1015EIDL2018-07-22T11:30:00Z55.05-8.3318.016.0230136.2129.970472IFRMETAR9.02018-07-22 11:37:35?©©j)5   3EIKY 221130Z 26009KT 240V300 9999 SCT012 BKN017 22/19 Q1018EIKY2018-07-22T11:30:00Z52.18-9.5222.019.026096.2130.059055MVFRMETAR34.02018-07-22 11:37:356©©i(u5   3EIWF 221130Z 23008KT 200V260 9999 SCT030 22/16 Q1017EIWF2018-07-22T11:30:00Z52.18-7.0822.016.023086.2130.029528VFRMETAR36.02018-07-22 11:37:35 –;_–C©©q(5    3KCPW 221130Z AUTO 00000KT 10SM SCT090 12/03 A3079 RMK AO2KCPW2018-07-22T11:30:00Z37.45-106.812.03.00010.030.791338TRUETRUEVFRMETAR3584.02018-07-22 11:37:35V©©p)15   3RJAA 221130Z 24006KT 9999 FEW030 BKN/// 30/25 Q1007 BECMG 22005KT RMK 1CU030 A2976RJAA2018-07-22T11:30:00Z35.77140.3730.025.024066.2129.734253VFRMETAR44.02018-07-22 11:37:35W©©o)15   3RJCC 221130Z 34012KT 9999 FEW020 SCT150 BKN/// 18/14 Q1007 RMK 1CU020 3AC150 A2974RJCC2018-07-22T11:30:00Z42.77141.6718.014.0340126.2129.734253VFRMETAR30.02018-07-22 11:37:35b©©n)G5    3RJFF 221130Z VRB02KT 9999 -RA FEW020 SCT060 BKN080 27/24 Q1010 RMK 1CU020 4SC060 6AC080 A2984RJFF2018-07-22T11:30:00Z33.57130.4327.024.0026.2129.822834-RAVFRMETAR12.02018-07-22 11:37:35 ³,D|³C©©u(y5    3K7BM 221130Z AUTO 26009KT 10SM CLR 18/06 A3057 RMK AO2K7BM2018-07-22T11:30:00Z38.78-106.2218.06.0260910.030.569881TRUETRUEVFRMETAR2995.02018-07-22 11:37:35B©©t(y5    3KBJC 221130Z AUTO 33011KT 10SM CLR 23/06 A3017 RMK AO2KBJC2018-07-22T11:30:00Z39.9-105.123.06.03301110.030.171259TRUETRUEVFRMETAR1724.02018-07-22 11:37:35b©©s)15   3KC07 221130Z AUTO 27010G15KT 250V320 10SM BKN070 BKN080 OVC090 12/06 A3063 RMK AO2KC072018-07-22T11:30:00Z40.35-106.712.06.0270101510.030.628937TRUETRUEVFRMETAR3224.02018-07-22 11:37:35N©©r) 5    3KCCU 221130Z AUTO 25004KT 10SM SCT085 BKN110 12/05 A3076 RMK AO2KCCU2018-07-22T11:30:00Z39.48-106.1512.05.0250410.030.758858TRUETRUEVFRMETAR3680.02018-07-22 11:37:35 ¼.c†¼D©©y(y5    3KMNH 221130Z AUTO 23009KT 10SM CLR 16/11 A3030 RMK AO2KMNH2018-07-22T11:30:00Z39.22-104.6516.011.0230910.030.301182TRUETRUEVFRMETAR2152.02018-07-22 11:37:35W©©x)+5    3UKLU 221130Z 21003MPS 130V290 9999 FEW040CB SCT040 27/19 Q1009 R10/090070 NOSIGUKLU2018-07-22T11:30:00Z48.6322.2727.019.021066.2129.793306TRUEVFRMETAR117.02018-07-22 11:37:35E©©w(5    3K20V 221130Z AUTO 04003KT 10SM SCT110 16/10 A3042 RMK AO2K20V2018-07-22T11:30:00Z40.05-106.3716.010.040310.030.41929TRUETRUEVFRMETAR2259.02018-07-22 11:37:35L©©v) 5    3K4BM 221130Z AUTO 33007KT 290V350 10SM CLR 13/02 A3070 RMK AO2K4BM2018-07-22T11:30:00Z39.05-105.5213.02.0330710.030.699802TRUETRUEVFRMETAR3438.02018-07-22 11:37:35 Û6_›Û:©©}(}5   3LFGA 221130Z AUTO 33004KT 260V040 9999 ///CB 26/15 Q1015LFGA2018-07-22T11:30:00Z48.17.3526.015.033046.2129.970472TRUEMETAR191.02018-07-22 11:37:35>©©|({5     3LFJR 221130Z AUTO VRB03KT 9999 FEW047 26/15 Q1017 NOSIGLFJR2018-07-22T11:30:00Z47.57-0.326.015.0036.2130.029528TRUETRUEVFRMETAR60.02018-07-22 11:37:35Q©©{)5     3LFPN 221130Z AUTO 29004KT 230V350 9999 SCT041 BKN050 26/15 Q1017 NOSIGLFPN2018-07-22T11:30:00Z48.752.1226.015.029046.2130.029528TRUETRUEVFRMETAR164.02018-07-22 11:37:35D©©z(5     3LFRC 221130Z AUTO 30009KT 280V350 CAVOK 22/15 Q1018 NOSIGLFRC2018-07-22T11:30:00Z49.63-1.4722.015.030096.2130.059055TRUETRUEVFRMETAR138.02018-07-22 11:37:35 Ã3^¨Ã_©ª)A5   3GCGM 221130Z 23009KT 200V260 CAVOK 23/17 Q1018 RMK R09/24006KT 170V290 ARP/24009KT 200V280GCGM2018-07-22T11:30:00Z28.03-17.2223.017.023096.2130.059055VFRMETAR219.02018-07-22 11:37:350©ª(e5   3GCHI 221130Z 35018KT 9999 FEW030 24/16 Q1018GCHI2018-07-22T11:30:00Z27.82-17.8724.016.0350186.2130.059055VFRMETAR30.02018-07-22 11:37:35O©©) 5    3KFTG 221130Z AUTO 23007KT 10SM CLR 21/12 A3016 RMK AO2 T02110123KFTG2018-07-22T11:30:00Z39.78-104.5521.112.3230710.030.159449TRUETRUEVFRMETAR1675.02018-07-22 11:37:35G©©~) 5     3LFBU 221130Z AUTO VRB05KT 9999 SCT044 BKN094 25/14 Q1017 NOSIGLFBU2018-07-22T11:30:00Z45.720.2225.014.0056.2130.029528TRUETRUEVFRMETAR133.02018-07-22 11:37:35 B}¯êJ©ª)5    3LEIB 221130Z 07013KT 040V100 9999 FEW017 FEW020TCU 28/21 Q1014 NOSIGLEIB2018-07-22T11:30:00Z38.871.3728.021.070136.2129.940945TRUEVFRMETAR12.02018-07-22 11:37:35?©ª)5    3LEBL 221130Z 19007KT 160V220 9999 FEW030 25/20 Q1015 NOSIGLEBL2018-07-22T11:30:00Z41.272.0725.020.019076.2129.970472TRUEVFRMETAR6.02018-07-22 11:37:35H©ª)5    3LEAL 221130Z 07011KT 050V120 9999 FEW015 SCT020 28/23 Q1014 NOSIGLEAL2018-07-22T11:30:00Z38.27-0.5528.023.070116.2129.940945TRUEVFRMETAR31.02018-07-22 11:37:35?©ª({5     3LFRK 221130Z AUTO VRB03KT 9999 FEW044 25/13 Q1017 NOSIGLFRK2018-07-22T11:30:00Z49.17-0.4525.013.0036.2130.029528TRUETRUEVFRMETAR67.02018-07-22 11:37:358©ª(s5    3LFRU 221130Z AUTO 33007KT 300V360 CAVOK 22/16 Q1018LFRU2018-07-22T11:30:00Z48.6-3.8222.016.033076.2130.059055TRUEVFRMETAR86.02018-07-22 11:37:35 /<p®é/4©ª (q5    3LEVX 221130Z 16002KT 9999 FEW030 26/16 Q1016 NOSIGLEVX2018-07-22T11:30:00Z42.22-8.6226.016.016026.2130.0TRUEVFRMETAR256.02018-07-22 11:37:35?©ª )5    3LEVC 221130Z 07008KT 020V110 9999 FEW040 28/16 Q1015 NOSIGLEVC2018-07-22T11:30:00Z39.5-0.4728.016.07086.2129.970472TRUEVFRMETAR62.02018-07-22 11:37:35<©ª (5    3LEPA 221130Z 09003KT 9999 FEW025 SCT040 31/19 Q1014 NOSIGLEPA2018-07-22T11:30:00Z39.532.7231.019.09036.2129.940945TRUEVFRMETAR8.02018-07-22 11:37:35F©ª)5    3LEMG 221130Z 11009KT 070V140 7000 FEW006 BKN008 24/21 Q1014 NOSIGLEMG2018-07-22T11:30:00Z36.67-4.524.021.011094.3529.940945TRUEIFRMETAR7.02018-07-22 11:37:35>©ª(w5   3LEMD 221130Z 22004G16KT 9999 FEW050 29/15 Q1015 NOSIGLEMD2018-07-22T11:30:00Z40.48-3.5729.015.02204166.2129.970472TRUEVFRMETAR582.02018-07-22 11:37:35 'A‹Äï'B©ª)5    3LECO 221130Z 36008KT 300V050 9999 SCT030 22/16 Q1017 NOSIGLECO2018-07-22T11:30:00Z43.28-8.3722.016.036086.2130.029528TRUEVFRMETAR103.02018-07-22 11:37:35O©ª)5    3LEBB 221130Z 34005KT 240V050 9999 FEW030 SCT042 BKN050 24/18 Q1018 NOSIGLEBB2018-07-22T11:30:00Z43.28-2.9224.018.034056.2130.059055TRUEVFRMETAR34.02018-07-22 11:37:35A©ª)5    3LEAS 221130Z 03004KT 330V130 9999 FEW022 21/17 Q1018 NOSIGLEAS2018-07-22T11:30:00Z43.53-6.0221.017.03046.2130.059055TRUEVFRMETAR134.02018-07-22 11:37:350©ª (i5   3LEAM 221130Z 22009KT 190V260 CAVOK 28/21 Q1013LEAM2018-07-22T11:30:00Z36.85-2.3728.021.022096.2129.911417VFRMETAR21.02018-07-22 11:37:359©ª (u5    3LEZL 221130Z 21006KT 120V270 CAVOK 30/16 Q1013 NOSIGLEZL2018-07-22T11:30:00Z37.42-5.930.016.021066.2129.911417TRUEVFRMETAR31.02018-07-22 11:37:35 \<Ø\;©ª)5   3LESO 221130Z 01005KT 320V070 9999 FEW030 SCT040 24/17 Q1018LESO2018-07-22T11:30:00Z43.35-1.824.017.01056.2130.059055VFRMETAR8.02018-07-22 11:37:355©ª(u5   3LEMH 221130Z 05010KT 360V080 9999 FEW030 28/16 Q1015LEMH2018-07-22T11:30:00Z39.874.2228.016.050106.2129.970472VFRMETAR82.02018-07-22 11:37:352©ª(y5   3LERS 221130Z 16006KT 100V230 9999 FEW030CB 28/14 Q1016LERS2018-07-22T11:30:00Z41.131.1728.014.016066.2130.0VFRMETAR76.02018-07-22 11:37:35&©ª(Y5   3LEGR 221130Z VRB02KT CAVOK 32/05 Q1015LEGR2018-07-22T11:30:00Z37.17-3.7732.05.0026.2129.970472VFRMETAR559.02018-07-22 11:37:35>©ª)5   3LEGE 221130Z 21004KT 170V270 9999 FEW018 SCT045 21/19 Q1015LEGE2018-07-22T11:30:00Z41.882.7721.019.021046.2129.970472VFRMETAR129.02018-07-22 11:37:35 HFÁH3©ª(e5    3LFLL 221130Z 36013KT CAVOK 26/11 Q1015 NOSIGLFLL2018-07-22T11:30:00Z45.725.0726.011.0360136.2129.970472TRUEVFRMETAR240.02018-07-22 11:37:35:©ª(o5     3LFBH 221130Z AUTO 33008KT CAVOK 23/17 Q1018 NOSIGLFBH2018-07-22T11:30:00Z46.18-1.223.017.033086.2130.059055TRUETRUEVFRMETAR10.02018-07-22 11:37:35F©ª) 5     3LFBD 221130Z AUTO VRB02KT 9999 FEW037 OVC074 24/16 Q1018 NOSIGLFBD2018-07-22T11:30:00Z44.82-0.724.016.0026.2130.059055TRUETRUEVFRMETAR61.02018-07-22 11:37:353©ª(u5   3LEZG 221130Z 33012KT 290V020 9999 FEW050 24/13 Q1016LEZG2018-07-22T11:30:00Z41.67-1.0224.013.0330126.2130.0VFRMETAR258.02018-07-22 11:37:354©ª(s5   3LEVT 221130Z 00000KT 9999 FEW025 BKN045 20/15 Q1019LEVT2018-07-22T11:30:00Z42.87-2.7220.015.0006.2130.088583VFRMETAR509.02018-07-22 11:37:35 =wÁñS©ª)5     3LFRB 221130Z AUTO 36007KT 320V040 9999 FEW024 BKN030 24/16 Q1018 NOSIGLFRB2018-07-22T11:30:00Z48.45-4.4224.016.036076.2130.059055TRUETRUEMVFRMETAR103.02018-07-22 11:37:35J©ª)5     3LFQQ 221130Z AUTO 27006KT 220V350 9999 FEW045 BKN100 27/15 Q1016 NOSIGLFQQ2018-07-22T11:30:00Z50.573.127.015.027066.2130.0TRUETRUEVFRMETAR52.02018-07-22 11:37:350©ª(q5    3LFPO 221130Z VRB03KT 9999 SCT048 26/13 Q1016 NOSIGLFPO2018-07-22T11:30:00Z48.722.3826.013.0036.2130.0TRUEVFRMETAR96.02018-07-22 11:37:35@©ª)5    3LFPG 221130Z 07004KT 010V130 9999 SCT048 26/13 Q1017 NOSIGLFPG2018-07-22T11:30:00Z49.022.5226.013.07046.2130.029528TRUEVFRMETAR109.02018-07-22 11:37:35=©ª(5    3LFMN 221130Z 17007KT 9999 FEW023 SCT260 27/21 Q1011 NOSIGLFMN2018-07-22T11:30:00Z43.637.227.021.017076.2129.852362TRUEVFRMETAR10.02018-07-22 11:37:35 ×BkŸ×B©ª#(5     3LFGJ 221130Z AUTO 02006KT 310V070 CAVOK 26/13 Q1015 NOSIGLFGJ2018-07-22T11:30:00Z47.055.4326.013.02066.2129.970472TRUETRUEVFRMETAR196.02018-07-22 11:37:35F©ª") 5     3LFBE 221130Z AUTO VRB02KT 9999 FEW044 BKN074 25/14 Q1017 NOSIGLFBE2018-07-22T11:30:00Z44.820.5225.014.0026.2130.029528TRUETRUEVFRMETAR52.02018-07-22 11:37:35Q©ª!)!5    3LJCE 221130Z 16006KT 120V180 9999 VCTS SCT030 FEW035CB 24/18 Q1010 RMK BLULJCE2018-07-22T11:30:00Z45.915.5224.018.016066.2129.822834VCTSVFRMETAR155.02018-07-22 11:37:358©ª (o5     3LFRS 221130Z AUTO VRB03KT CAVOK 25/15 Q1017 NOSIGLFRS2018-07-22T11:30:00Z47.17-1.625.015.0036.2130.029528TRUETRUEVFRMETAR27.02018-07-22 11:37:35 Â+S‹ÂC©ª'(5     3LFRG 221130Z AUTO 30005KT 250V350 CAVOK 22/15 Q1018 NOSIGLFRG2018-07-22T11:30:00Z49.370.1522.015.030056.2130.059055TRUETRUEVFRMETAR146.02018-07-22 11:37:35B©ª&(5     3LFOT 221130Z AUTO 07003KT 350V130 CAVOK 25/14 Q1017 NOSIGLFOT2018-07-22T11:30:00Z47.430.7225.014.07036.2130.029528TRUETRUEVFRMETAR108.02018-07-22 11:37:35R©ª%)-5    3LFMH 221130Z AUTO 36007KT 320V030 9999 FEW048 OVC086 23/13 Q1016 TEMPO BKN040TCULFMH2018-07-22T11:30:00Z45.524.2823.013.036076.2130.0TRUEVFRSPECI402.02018-07-22 11:37:35O©ª$)!5    3LFMD 221130Z AUTO 17007KT 120V210 CAVOK 27/18 Q1011 TEMPO FEW050TCU BKN100LFMD2018-07-22T11:30:00Z43.536.9527.018.017076.2129.852362TRUEVFRSPECI9.02018-07-22 11:37:35 Ê*[“ʁC©ª+(5     3LFBI 221130Z AUTO 33005KT 270V010 CAVOK 25/13 Q1017 NOSIGLFBI2018-07-22T11:30:00Z46.570.3225.013.033056.2130.029528TRUETRUEVFRMETAR120.02018-07-22 11:37:35B©ª*(5     3LFTW 221130Z AUTO 35011KT 310V020 CAVOK 30/12 Q1012 NOSIGLFTW2018-07-22T11:30:00Z43.754.4230.012.0350116.2129.88189TRUETRUEVFRMETAR96.02018-07-22 11:37:35I©ª))5    3LFTH 221130Z AUTO 26011KT 230V290 CAVOK 27/17 Q1011 BECMG 25020G35KTLFTH2018-07-22T11:30:00Z43.16.1527.017.0260116.2129.852362TRUEVFRSPECI4.02018-07-22 11:37:35P©ª()%5   3LFST 221130Z AUTO 35007KT 320V030 9999 ///CB 25/17 Q1015 BECMG SCT036 BKN075LFST2018-07-22T11:30:00Z48.537.6225.017.035076.2129.970472TRUESPECI154.02018-07-22 11:37:35 ´8a‚´H©ª/) 5     3LFBT 221130Z AUTO 01006KT 330V050 9999 FEW034 23/15 Q1018 NOSIGLFBT2018-07-22T11:30:00Z43.170.023.015.01066.2130.059055TRUETRUEVFRMETAR363.02018-07-22 11:37:35Y©ª.)'5     3LFBP 221130Z AUTO 11004KT 360V170 9999 SCT037 SCT044 BKN054 24/15 Q1017 NOSIGLFBP2018-07-22T11:30:00Z43.37-0.4224.015.011046.2130.029528TRUETRUEVFRMETAR185.02018-07-22 11:37:35Q©ª-)5     3LFBO 221130Z AUTO 31010KT 9999 FEW046 BKN056 BKN068 24/12 Q1017 NOSIGLFBO2018-07-22T11:30:00Z43.621.3724.012.0310106.2130.029528TRUETRUEVFRMETAR153.02018-07-22 11:37:35B©ª,(5     3LFBL 221130Z AUTO 01004KT 320V060 CAVOK 22/12 Q1018 NOSIGLFBL2018-07-22T11:30:00Z45.871.1722.012.01046.2130.059055TRUETRUEVFRMETAR402.02018-07-22 11:37:35 ¹"D‚¹C©ª3)5    3LFML 221130Z AUTO 25010KT CAVOK 29/14 Q1011 BECMG 25020G30KTLFML2018-07-22T11:30:00Z43.455.2229.014.0250106.2129.852362TRUEVFRSPECI36.02018-07-22 11:37:35<©ª2(o5     3LFLB 221130Z AUTO 35010KT CAVOK 27/11 Q1014 NOSIGLFLB2018-07-22T11:30:00Z45.635.8727.011.0350106.2129.940945TRUETRUEVFRMETAR239.02018-07-22 11:37:35X©ª1)'5     3LFKB 221130Z AUTO 13010KT 100V160 9999 FEW029 SCT042 BKN090 29/22 Q1011 NOSIGLFKB2018-07-22T11:30:00Z42.539.4729.022.0130106.2129.852362TRUETRUEVFRMETAR12.02018-07-22 11:37:35X©ª0)'5     3LFBZ 221130Z AUTO 33005KT 240V050 9999 FEW027 SCT041 BKN160 23/17 Q1018 NOSIGLFBZ2018-07-22T11:30:00Z43.47-1.5223.017.033056.2130.059055TRUETRUEVFRMETAR71.02018-07-22 11:37:35 Î)d•ÎA©ª7)5    3LFKF 221130Z AUTO 24016KT CAVOK 30/20 Q1012 BECMG 25015G25KTLFKF2018-07-22T11:30:00Z41.59.0830.020.0240166.2129.88189TRUEVFRSPECI23.02018-07-22 11:37:35I©ª6)5    3LFKC 221130Z AUTO 24014KT 210V290 CAVOK 30/14 Q1012 TEMPO 22015G25KTLFKC2018-07-22T11:30:00Z42.528.830.014.0240146.2129.88189TRUEVFRSPECI58.02018-07-22 11:37:35?©ª5(5     3LFJL 221130Z AUTO 33010KT 310V010 CAVOK 26/11 Q1016 NOSIGLFJL2018-07-22T11:30:00Z48.976.2526.011.0330106.2130.0TRUETRUEVFRMETAR264.02018-07-22 11:37:35Q©ª4)5     3LFCR 221130Z AUTO 29008KT 240V330 9999 BKN035 BKN070 22/13 Q1017 NOSIGLFCR2018-07-22T11:30:00Z44.382.4722.013.029086.2130.029528TRUETRUEVFRMETAR580.02018-07-22 11:37:35 ¾;_‡¾C©ª;)5    3LFMP 221130Z AUTO 30013KT CAVOK 26/13 Q1015 TEMPO 32015G25KTLFMP2018-07-22T11:30:00Z42.722.8726.013.0300136.2129.970472TRUEVFRSPECI48.02018-07-22 11:37:35R©ª:)5     3LFLS 221130Z AUTO 34011KT 300V010 9999 SCT050 SCT064 25/12 Q1015 NOSIGLFLS2018-07-22T11:30:00Z45.375.3225.012.0340116.2129.970472TRUETRUEVFRMETAR386.02018-07-22 11:37:35V©ª9)-5    3LFLC 221130Z AUTO 02004KT 280V090 9999 FEW043 BKN094 23/14 Q1017 TEMPO BKN040TCULFLC2018-07-22T11:30:00Z45.773.1723.014.02046.2130.029528TRUEVFRSPECI330.02018-07-22 11:37:35?©ª8({5     3LFKJ 221130Z AUTO 23010KT 9999 FEW052 28/20 Q1013 NOSIGLFKJ2018-07-22T11:30:00Z41.928.828.020.0230106.2129.911417TRUETRUEVFRMETAR9.02018-07-22 11:37:35 Æ9[ÆD©ª?(5     3LFLY 221130Z AUTO 36012KT 330V040 CAVOK 27/11 Q1015 NOSIGLFLY2018-07-22T11:30:00Z45.724.9527.011.0360126.2129.970472TRUETRUEVFRMETAR201.02018-07-22 11:37:35E©ª>)5    3LFMK 221130Z AUTO 27011KT 9999 FEW046 25/13 Q1016 TEMPO 30015G25KTLFMK2018-07-22T11:30:00Z43.222.3225.013.0270116.2130.0TRUEVFRSPECI130.02018-07-22 11:37:35X©ª=)'5     3LFSL 221130Z AUTO 30007KT 260V340 9999 SCT049 BKN060 BKN080 26/12 Q1017 NOSIGLFSL2018-07-22T11:30:00Z45.031.4826.012.030076.2130.029528TRUETRUEVFRMETAR310.02018-07-22 11:37:35A©ª<)5    3LFMV 221130Z AUTO 34016KT CAVOK 30/13 Q1011 TEMPO 34020G30KTLFMV2018-07-22T11:30:00Z43.94.930.013.0340166.2129.852362TRUEVFRSPECI38.02018-07-22 11:37:35 1Ay´ñ1:©ªD)5    3LFPB 221130Z AUTO VRB04KT CAVOK 25/12 Q1016 TEMPO FEW055TCULFPB2018-07-22T11:30:00Z48.972.4525.012.0046.2130.0TRUEVFRSPECI65.02018-07-22 11:37:35=©ªC(5     3LFOK 221130Z AUTO 03004KT 330V080 CAVOK 26/12 Q1016 NOSIGLFOK2018-07-22T11:30:00Z48.784.1826.012.03046.2130.0TRUETRUEVFRMETAR162.02018-07-22 11:37:35?©ªB({5     3LFOB 221130Z AUTO VRB02KT 9999 FEW044 26/14 Q1017 NOSIGLFOB2018-07-22T11:30:00Z49.472.1226.014.0026.2130.029528TRUETRUEVFRMETAR111.02018-07-22 11:37:35B©ªA(5     3LFMU 221130Z AUTO 28008KT 230V360 CAVOK 29/10 Q1013 NOSIGLFMU2018-07-22T11:30:00Z43.323.3529.010.028086.2129.911417TRUETRUEVFRMETAR17.02018-07-22 11:37:359©ª@(o5     3LFMT 221130Z AUTO 20011KT CAVOK 30/13 Q1012 NOSIGLFMT2018-07-22T11:30:00Z43.573.9730.013.0200116.2129.88189TRUETRUEVFRMETAR6.02018-07-22 11:37:35 Ó?h£ÓJ©ªH) 5     3LFCK 221130Z AUTO 29010KT 9999 SCT045 BKN054 23/12 Q1018 NOSIGLFCK2018-07-22T11:30:00Z43.552.2823.012.0290106.2130.059055TRUETRUEVFRMETAR240.02018-07-22 11:37:35?©ªG)5   3LFSB 221130Z 28003KT 200V350 CAVOK 26/12 Q1015 TEMPO FEW060CBLFSB2018-07-22T11:30:00Z47.67.5226.012.028036.2129.970472VFRSPECI271.02018-07-22 11:37:35Q©ªF)5     3LFRN 221130Z AUTO 27006KT 240V300 9999 FEW042 OVC062 25/16 Q1017 NOSIGLFRN2018-07-22T11:30:00Z48.07-1.7225.016.027066.2130.029528TRUETRUEVFRMETAR37.02018-07-22 11:37:35;©ªE(o5     3LFRD 221130Z AUTO 35008KT CAVOK 22/16 Q1018 NOSIGLFRD2018-07-22T11:30:00Z48.58-2.0722.016.035086.2130.059055TRUETRUEVFRMETAR59.02018-07-22 11:37:35 9{³êQ©ªM)5     3LFOP 221130Z AUTO 26003KT 210V300 9999 SCT031 SCT039 23/15 Q1017 NOSIGLFOP2018-07-22T11:30:00Z49.371.1723.015.026036.2130.029528TRUETRUEVFRMETAR157.02018-07-22 11:37:35C©ªL(5     3LFOH 221130Z AUTO 27006KT 220V310 CAVOK 20/15 Q1018 NOSIGLFOH2018-07-22T11:30:00Z49.520.0720.015.027066.2130.059055TRUETRUEVFRMETAR103.02018-07-22 11:37:35B©ªK(5     3LFLX 221130Z AUTO 02006KT 320V050 CAVOK 25/13 Q1017 NOSIGLFLX2018-07-22T11:30:00Z46.851.7225.013.02066.2130.029528TRUETRUEVFRMETAR157.02018-07-22 11:37:358©ªJ(o5    3LFLU 221130Z AUTO 36018KT 9999 FEW056 28/14 Q1013LFLU2018-07-22T11:30:00Z44.924.9828.014.0360186.2129.911417TRUEVFRMETAR160.02018-07-22 11:37:35A©ªI(5     3LFLP 221130Z AUTO 03009KT 340V060 CAVOK 26/09 Q1015 NOSIGLFLP2018-07-22T11:30:00Z45.926.0826.09.03096.2129.970472TRUETRUEVFRMETAR463.02018-07-22 11:37:35 'H‹Ìð'C©ªR)5    3LFMI 221130Z AUTO 34015KT CAVOK 29/12 Q1011 BECMG 25017G27KTLFMI2018-07-22T11:30:00Z43.524.9229.012.0340156.2129.852362TRUEVFRMETAR24.02018-07-22 11:37:35V©ªQ)'5     3LFBA 221130Z AUTO 34004KT 270V030 9999 FEW044 SCT070 BKN230 25/13 Q1017 NOSIGLFBA2018-07-22T11:30:00Z44.170.625.013.034046.2130.029528TRUETRUEVFRMETAR60.02018-07-22 11:37:359©ªP(s5    3LFSN 221130Z AUTO 33008KT 260V020 CAVOK 26/12 Q1015LFSN2018-07-22T11:30:00Z48.676.2226.012.033086.2129.970472TRUEVFRMETAR217.02018-07-22 11:37:357©ªO(5   3LFQB 221130Z AUTO 36005KT 290V060 9999 ////// 26/13 Q1016LFQB2018-07-22T11:30:00Z48.324.0226.013.036056.2130.0TRUEMETAR118.02018-07-22 11:37:352©ªN(s5    3LFQA 221130Z AUTO 35006KT 310V040 CAVOK 26/11 Q1016LFQA2018-07-22T11:30:00Z49.24.1526.011.035066.2130.0TRUEVFRMETAR95.02018-07-22 11:37:35 ¶2U‡¶K©ªV) 5     3LFRO 221130Z AUTO 33005KT 260V010 9999 BKN020 22/16 Q1018 NOSIGLFRO2018-07-22T11:30:00Z48.75-3.4722.016.033056.2130.059055TRUETRUEMVFRMETAR89.02018-07-22 11:37:35H©ªU) 5     3LFRM 221130Z AUTO 24004KT 160V300 9999 FEW041 26/14 Q1017 NOSIGLFRM2018-07-22T11:30:00Z47.950.226.014.024046.2130.029528TRUETRUEVFRMETAR52.02018-07-22 11:37:35W©ªT)'5     3LFRI 221130Z AUTO 24004KT 160V300 9999 BKN041 BKN050 OVC078 24/14 Q1018 NOSIGLFRI2018-07-22T11:30:00Z46.7-1.3724.014.024046.2130.059055TRUETRUEVFRMETAR91.02018-07-22 11:37:35H©ªS) 5    3LFOV 221130Z AUTO 34003KT 290V010 9999 FEW039 OVC060 24/15 Q1017LFOV2018-07-22T11:30:00Z48.03-0.7524.015.034036.2130.029528TRUEVFRMETAR101.02018-07-22 11:37:35 92dªõ96©ª[(u5   3LEVD 221130Z 08008KT 010V130 9999 FEW030 23/10 Q1018LEVD2018-07-22T11:30:00Z41.72-4.8323.010.08086.2130.059055VFRMETAR854.02018-07-22 11:37:35/©ªZ(i5   3LESA 221130Z 05008KT 010V100 CAVOK 26/10 Q1017LESA2018-07-22T11:30:00Z40.95-5.526.010.05086.2130.029528VFRMETAR795.02018-07-22 11:37:354©ªY(s5    3LFSG 221130Z AUTO 34005KT 300V030 CAVOK 24/12 Q1016LFSG2018-07-22T11:30:00Z48.336.0724.012.034056.2130.0TRUEVFRMETAR330.02018-07-22 11:37:35H©ªX) 5     3LFRZ 221130Z AUTO 19008KT 9999 FEW007 BKN038 25/16 Q1017 NOSIGLFRZ2018-07-22T11:30:00Z47.32-2.1725.016.019086.2130.029528TRUETRUEVFRMETAR4.02018-07-22 11:37:35H©ªW) 5    3LFRV 221130Z AUTO 21004KT 160V250 9999 SCT033 OVC048 23/15 Q1018LFRV2018-07-22T11:30:00Z47.72-2.7223.015.021046.2130.059055TRUEVFRMETAR133.02018-07-22 11:37:35 ZH‰ÓZ8©ª`(u5   3LEPP 221130Z 32010KT 290V360 9999 FEW026 24/13 Q1017LEPP2018-07-22T11:30:00Z42.77-1.6524.013.0320106.2130.029528VFRMETAR459.02018-07-22 11:37:355©ª_(u5   3LELL 221130Z 14005KT 080V200 9999 FEW045 27/13 Q1015LELL2018-07-22T11:30:00Z41.522.127.013.014056.2129.970472VFRMETAR250.02018-07-22 11:37:350©ª^(i5   3LEJR 221130Z 21007KT 150V280 CAVOK 29/19 Q1013LEJR2018-07-22T11:30:00Z36.75-6.0729.019.021076.2129.911417VFRMETAR30.02018-07-22 11:37:359©ª]({5   3LEDA 221130Z 19008KT 160V220 9999 FEW030TCU 23/14 Q1017LEDA2018-07-22T11:30:00Z41.730.5323.014.019086.2130.029528VFRMETAR350.02018-07-22 11:37:352©ª\(u5   3LEVS 221130Z 26004KT 210V340 9999 FEW042 29/15 Q1016LEVS2018-07-22T11:30:00Z40.37-3.7729.015.026046.2130.0VFRMETAR687.02018-07-22 11:37:35 K3~¹øK'©ªe(Y5   3LPFR 221130Z 23007KT CAVOK 23/17 Q1014LPFR2018-07-22T11:30:00Z37.02-7.9723.017.023076.2129.940945VFRMETAR4.02018-07-22 11:37:35;©ªd(s5    3LETL 221130Z AUTO 12006KT 080V190 CAVOK 17/13 Q1019LETL2018-07-22T11:30:00Z40.42-1.2217.013.012066.2130.088583TRUEVFRMETAR1013.02018-07-22 11:37:35?©ªc)5    3LELC 221130Z 06010KT 030V110 9999 SCT014 28/22 Q1013 NOSIGLELC2018-07-22T11:30:00Z37.77-0.828.022.060106.2129.911417TRUEVFRMETAR3.02018-07-22 11:37:35/©ªb(e5   3LELN 221130Z 16002KT 9999 FEW030 21/10 Q1019LELN2018-07-22T11:30:00Z42.57-5.6521.010.016026.2130.088583VFRMETAR914.02018-07-22 11:37:35G©ªa)5   3LEXJ 221130Z 29008KT 260V330 9999 FEW015 SCT025TCU BKN040 22/20 Q1018LEXJ2018-07-22T11:30:00Z43.42-3.8222.020.029086.2130.059055VFRMETAR6.02018-07-22 11:37:35 :EÌ:N©ªj)5   3LPHR 221130Z VRB03KT 9999 FEW009 SCT013 FEW016TCU BKN030 22/21 Q1026LPHR2018-07-22T11:30:00Z38.52-28.7222.021.0036.2130.295275BKN3000MVFRMETAR41.02018-07-22 11:37:358©ªi(u5   3LPPT 221130Z 31010KT 280V350 9999 FEW025 23/16 Q1015LPPT2018-07-22T11:30:00Z38.77-9.1223.016.0310106.2129.970472VFRMETAR123.02018-07-22 11:37:35=©ªh)5   3LPPS 221130Z 05009KT 350V090 9999 FEW015 SCT030 24/15 Q1020LPPS2018-07-22T11:30:00Z33.07-16.3524.015.05096.2130.11811VFRMETAR82.02018-07-22 11:37:350©ªg(i5   3LPPR 221130Z 30006KT 270V330 CAVOK 22/16 Q1015LPPR2018-07-22T11:30:00Z41.22-8.6722.016.030066.2129.970472VFRMETAR73.02018-07-22 11:37:355©ªf(s5   3LPMA 221130Z 01012KT 9999 FEW013 BKN030 22/18 Q1020LPMA2018-07-22T11:30:00Z32.7-16.7722.018.010126.2130.11811MVFRMETAR55.02018-07-22 11:37:35 #;†Àû#R©ªo)!5    3LRAR 221130Z 28006KT 250V310 9999 -RA FEW009 BKN024 23/20 Q1011 R09/29//95LRAR2018-07-22T11:30:00Z46.1821.2723.020.028066.2129.852362-RAMVFRSPECI118.02018-07-22 11:37:35?©ªn)5   3LPPD 221130Z 01007KT 320V040 9999 SCT016 BKN030 22/18 Q1025LPPD2018-07-22T11:30:00Z37.72-25.6822.018.01076.2130.265747MVFRMETAR72.02018-07-22 11:37:35@©ªm)5   3LPAZ 221130Z 35008KT 320V030 9999 FEW014 SCT037 24/18 Q1024LPAZ2018-07-22T11:30:00Z36.97-25.1724.018.035086.2130.236221VFRMETAR100.02018-07-22 11:37:35/©ªl(e5   3LPCS 221130Z 35019KT 9999 FEW015 23/16 Q1015LPCS2018-07-22T11:30:00Z38.73-9.3523.016.0350196.2129.970472VFRMETAR99.02018-07-22 11:37:35?©ªk)5   3LPFL 221130Z 33015KT 300V360 9999 FEW017 BKN033 25/20 Q1028LPFL2018-07-22T11:30:00Z39.45-31.1225.020.0330156.2130.35433VFRMETAR29.02018-07-22 11:37:35 !"l©Ö!/©ªt(i5   3LRBC 221130Z VRB02KT 9999 SCT050CB 28/18 Q1008LRBC2018-07-22T11:30:00Z46.5226.9228.018.0026.2129.763779VFRMETAR185.02018-07-22 11:37:35M©ªs)5    3LRSM 221130Z AUTO 27007KT 220V320 9999 FEW040/// SCT160/// 27/16 Q1009LRSM2018-07-22T11:30:00Z47.722.8827.016.027076.2129.793306TRUEVFRMETAR124.02018-07-22 11:37:35=©ªr(}5    3LROD 221130Z 22008KT 9999 TS FEW035CB SCT040 27/17 Q1010LROD2018-07-22T11:30:00Z47.0321.9227.017.022086.2129.822834TSVFRMETAR140.02018-07-22 11:37:350©ªq(k5   3LRCL 221130Z VRB02KT 9999 FEW055TCU 25/14 Q1010LRCL2018-07-22T11:30:00Z46.7823.6825.014.0026.2129.822834VFRMETAR413.02018-07-22 11:37:35X©ªp)-5    3LRBM 221130Z AUTO 26007KT 230V290 9999 FEW014/// SCT170/// BKN240/// 27/15 Q1010LRBM2018-07-22T11:30:00Z47.6723.4727.015.026076.2129.822834TRUEVFRMETAR185.02018-07-22 11:37:35 L.ÄL?©ªy)5   3LRTC 221130Z 17003KT 100V270 9999 SCT048 FEW050CB 29/17 Q1008LRTC2018-07-22T11:30:00Z45.0728.7229.017.017036.2129.763779VFRMETAR6.02018-07-22 11:37:35-©ªx(e5   3LRSV 221130Z VRB03KT 9999 SCT040 27/14 Q1010LRSV2018-07-22T11:30:00Z47.6826.3527.014.0036.2129.822834VFRMETAR351.02018-07-22 11:37:357©ªw(u5   3LRIA 221130Z 30004KT 250V010 9999 SCT043 28/16 Q1008LRIA2018-07-22T11:30:00Z47.1727.6228.016.030046.2129.763779VFRMETAR104.02018-07-22 11:37:35'©ªv(Y5   3LRCV 221130Z VRB03KT CAVOK 30/18 Q1008LRCV2018-07-22T11:30:00Z44.3223.8830.018.0036.2129.763779VFRMETAR191.02018-07-22 11:37:35L©ªu)5   3LRTM 221130Z 25004KT 220V280 9999 FEW033 FEW038CB 25/17 Q1010 R07/CLRD//LRTM2018-07-22T11:30:00Z46.4724.4225.017.025046.2129.822834VFRMETAR309.02018-07-22 11:37:35 @E½ï@)©ª~(Y5   3LRSB 221130Z 32004KT CAVOK 24/16 Q1011LRSB2018-07-22T11:30:00Z45.7824.0824.016.032046.2129.852362VFRMETAR444.02018-07-22 11:37:35H©ª}) 5    3LRTR 221130Z 25010KT 5000 +TSRA BKN050CB 21/20 Q1012 R11/290095LRTR2018-07-22T11:30:00Z45.8221.3321.020.0250103.1129.88189+TSRAMVFRSPECI88.02018-07-22 11:37:35<©ª|(u5    3LRCK 221130Z 14010KT 9999 FEW048CB 29/18 Q1009 NOSIGLRCK2018-07-22T11:30:00Z44.3728.4829.018.0140106.2129.793306TRUEVFRMETAR108.02018-07-22 11:37:35@©ª{)5    3LROP 221130Z 19003KT 130V250 9999 SCT045 31/20 Q1009 NOSIGLROP2018-07-22T11:30:00Z44.5726.131.020.019036.2129.793306TRUEVFRMETAR95.02018-07-22 11:37:355©ªz(q5    3LRBS 221130Z VRB04KT 9999 FEW044 30/18 Q1009 NOSIGLRBS2018-07-22T11:30:00Z44.526.0830.018.0046.2129.793306TRUEVFRMETAR91.02018-07-22 11:37:35 kD–Ý)k8©«(s5   3DAON 221130Z 34012KT 9999 BKN030 SCT100 29/17 Q1014DAON2018-07-22T11:30:00Z35.02-1.4729.017.0340126.2129.940945MVFRMETAR247.02018-07-22 11:37:35.©«(s5   3DABC 221130Z VRB02KT 9999 FEW040 SCT100 36/11 Q1016DABC2018-07-22T11:30:00Z36.276.6236.011.0026.2130.0VFRMETAR694.02018-07-22 11:37:353©«(s5   3DABB 221130Z 04011KT 8000 FEW020 SCT200 29/22 Q1012DABB2018-07-22T11:30:00Z36.827.8229.022.040114.9729.88189MVFRMETAR4.02018-07-22 11:37:35(©«(i5    3DAAT 221130Z 07009KT 020V160 CAVOK 36/// Q1021DAAT2018-07-22T11:30:00Z22.825.477096.2130.147638VFRSPECI1377.02018-07-22 11:37:356©ª(s5   3DAAG 221130Z 30010KT 8000 FEW020 BKN080 30/21 Q1013DAAG2018-07-22T11:30:00Z36.723.2230.021.0300104.9729.911417MVFRMETAR25.02018-07-22 11:37:35 îF’ÎîZ©«)'5     3UMGG 221130Z 01002MPS 7000 -SHRA BKN040CB BKN100 22/21 Q1006 R28/290550 NOSIGUMGG2018-07-22T11:30:00Z52.5331.0222.021.01044.3529.704725TRUE-SHRAMVFRMETAR144.02018-07-22 11:37:35>©«)5    3LEBT 221130Z AUTO 12007KT 060V170 9999 SCT038/// 27/15 Q1016LEBT2018-07-22T11:30:00Z39.58-0.4527.015.012076.2130.0TRUEVFRMETAR50.02018-07-22 11:37:35.©«(i5     3DAUH 221130Z 19019KT 5000 DRSA NSC 48/// Q1011DAUH2018-07-22T11:30:00Z31.676.15190193.1129.852362DRSAMVFRSPECI142.02018-07-22 11:37:354©«(s5   3DAOO 221130Z 34008KT 9999 SCT030 SCT100 27/19 Q1013DAOO2018-07-22T11:30:00Z35.62-0.627.019.034086.2129.911417VFRMETAR90.02018-07-22 11:37:35 5f ë50©« (u5   3LESU 221130Z 22007KT 150V260 9999 FEW055 23/11 Q1016LESU2018-07-22T11:30:00Z42.331.423.011.022076.2130.0VFRMETAR800.02018-07-22 11:37:35/©« (i5   3GEML 221130Z 05006KT 350V110 CAVOK 28/14 Q1014GEML2018-07-22T11:30:00Z35.27-2.9528.014.05066.2129.940945VFRMETAR55.02018-07-22 11:37:35@©« )5    3LECH 221130Z 08006KT 050V130 9999 TSRA FEW040CB 20/16 Q1018LECH2018-07-22T11:30:00Z40.20.0720.016.08066.2130.059055TSRAVFRMETAR337.02018-07-22 11:37:352©« (e5    3RKSI 221130Z 35003KT CAVOK 30/17 Q1008 NOSIGRKSI2018-07-22T11:30:00Z37.47126.4530.017.035036.2129.763779TRUEVFRMETAR7.02018-07-22 11:37:35\©«)-5   3UMMS 221130Z 34005G08MPS 300V360 9999 BKN027 BKN080 24/19 Q1007 R31/290055 NOSIGUMMS2018-07-22T11:30:00Z53.8828.0324.019.034010166.2129.734253TRUEMVFRMETAR205.02018-07-22 11:37:35 L?‡ÆL2©«(g5    3ZGGG 221130Z 13002MPS CAVOK 31/21 Q1001 NOSIGZGGG2018-07-22T11:30:00Z23.4113.331.021.013046.2129.557087TRUEVFRMETAR15.02018-07-22 11:37:35<©«(w5    3ZBYN 221130Z 04002MPS 360V070 CAVOK 26/20 Q1009 NOSIGZBYN2018-07-22T11:30:00Z37.77112.6326.020.04046.2129.793306TRUEVFRMETAR779.02018-07-22 11:37:35;©«(s5     3ZBTJ 221130Z 13004MPS 3500 HZ NSC 30/24 Q1006 NOSIGZBTJ2018-07-22T11:30:00Z39.12117.3530.024.013082.1729.704725TRUEHZIFRMETAR3.02018-07-22 11:37:352©«(g5    3ZBAA 221130Z VRB01MPS CAVOK 28/25 Q1006 NOSIGZBAA2018-07-22T11:30:00Z40.07116.5828.025.0026.2129.704725TRUEVFRMETAR30.02018-07-22 11:37:35;©« (q5    3VOCB 221130Z 23015KT 7000 FEW015 29/21 Q1008 NOSIGVOCB2018-07-22T11:30:00Z11.0277.0329.021.0230154.3529.763779TRUEMVFRMETAR399.02018-07-22 11:37:35 8V‘؁4©«(g5    3ZYTL 221130Z 12004MPS CAVOK 27/22 Q1008 NOSIGZYTL2018-07-22T11:30:00Z38.97121.5327.022.012086.2129.763779TRUEVFRMETAR97.02018-07-22 11:37:353©«(g5    3ZWWW 221130Z 35004MPS CAVOK 34/09 Q1002 NOSIGZWWW2018-07-22T11:30:00Z43.8887.4734.09.035086.2129.586615TRUEVFRMETAR654.02018-07-22 11:37:35?©«(y5   3ZSSS 221130Z 20009G15MPS 9999 BKN015 28/26 Q0995 NOSIGZSSS2018-07-22T11:30:00Z31.2121.3328.026.020017296.2129.379921TRUEMVFRMETAR7.02018-07-22 11:37:35\©«)55    3ZSPD 221130Z 22008MPS 2000 +SHRA BKN013 FEW026CB 26/25 Q0996 BECMG TL1200 3000 -SHRAZSPD2018-07-22T11:30:00Z31.15121.826.025.0220161.2429.409449+SHRAIFRSPECI4.02018-07-22 11:37:35B©«)5    3ZSHC 221130Z 24003MPS 9999 SCT023 BKN046 28/26 Q0998 NOSIGZSHC2018-07-22T11:30:00Z30.22120.4328.026.024066.2129.468504TRUEVFRMETAR43.02018-07-22 11:37:35 ÒBtšÒB©«)5    3UAAH 221130Z 21004MPS CAVOK 34/06 Q0999 NOSIG RMK QFE712/0950UAAH2018-07-22T11:30:00Z46.975.034.06.021086.2129.498032TRUEVFRSPECI441.02018-07-22 11:37:35T©«))5    3UAAA 221130Z 08003MPS 040V130 9999 FEW050 SCT100 35/08 Q1001 R05R/CLRD65 NOSIGUAAA2018-07-22T11:30:00Z43.3577.0335.08.08066.2129.557087TRUEVFRSPECI681.02018-07-22 11:37:35H©«) 5    3UDSG 221130Z 06022KT 9000 SCT040CB 23/11 Q1011 R02/CLRD70 NOSIGUDSG2018-07-22T11:30:00Z40.7543.8723.011.060225.5929.852362TRUEVFRMETAR1524.02018-07-22 11:37:358©«(m5    3ZYTX 221130Z 21002MPS 7000 NSC 28/26 Q1007 NOSIGZYTX2018-07-22T11:30:00Z41.63123.4828.026.021044.3529.734253TRUEMVFRMETAR35.02018-07-22 11:37:35 œGqœO©«)5    3UACK 221130Z 02009MPS CAVOK 16/04 Q1012 R02/010070 NOSIG RMK QFE735/0980UACK2018-07-22T11:30:00Z53.3269.5816.04.020176.2129.88189TRUEVFRSPECI2547.02018-07-22 11:37:35P©«)5    3UACC 221130Z 06010MPS CAVOK 14/11 Q1006 R04/250255 NOSIG RMK QFE723/0965UACC2018-07-22T11:30:00Z51.0271.4714.011.060196.2129.704725TRUEVFRSPECI355.02018-07-22 11:37:35P©«)#5    3UADD 221130Z 02006MPS 9999 NSC 39/05 Q1000 R31/0///65 NOSIG RMK QFE693/0924UADD2018-07-22T11:30:00Z42.8571.339.05.020126.2129.52756TRUEVFRSPECI665.02018-07-22 11:37:35]©«)95    3UAAT 221130Z 27005MPS 240V300 9999 FEW200 36/02 Q1000 R20/CLRD65 NOSIG RMK QFE699/0932UAAT2018-07-22T11:30:00Z45.1278.4536.02.0270106.2129.52756TRUEVFRMETAR591.02018-07-22 11:37:35 ‡#>c‡V©«"))5    3UAKK 221130Z 06010MPS 9999 SCT009 15/13 Q1003 R05/0///70 NOSIG RMK QFE706/0941UAKK2018-07-22T11:30:00Z49.6773.3315.013.060196.2129.616142TRUEVFRSPECI538.02018-07-22 11:37:35U©«!)-5    3UAOO 221130Z 31004MPS 280V360 CAVOK 41/08 Q0995 R05/CLRD70 NOSIG RMK QFE735/0980UAOO2018-07-22T11:30:00Z44.765.641.08.031086.2129.379921TRUEVFRSPECI129.02018-07-22 11:37:35_©« );5    3UASK 221130Z 12005MPS 9999 SCT040CB BKN110 27/19 Q1002 R12/090060 NOSIG RMK QFE726/0968UASK2018-07-22T11:30:00Z50.0382.527.019.0120106.2129.586615TRUEVFRMETAR286.02018-07-22 11:37:35W©«)-5    3UACP 221130Z 03005MPS 360V070 CAVOK 18/07 Q1014 R05/0/0060 NOSIG RMK QFE748/0998UACP2018-07-22T11:30:00Z54.7869.1818.07.030106.2129.940945TRUEVFRSPECI142.02018-07-22 11:37:35 —#G{—^©«&);5    3UARR 221130Z 08008MPS 9999 SCT036CB BKN100 25/11 Q1008 R04/210265 NOSIG RMK QFE753/1004UARR2018-07-22T11:30:00Z51.1551.5325.011.080166.2129.763779TRUEVFRSPECI38.02018-07-22 11:37:35F©«%)5    3UASS 221130Z 29009MPS CAVOK 26/14 Q1002 NOSIG RMK QFE733/0978UASS2018-07-22T11:30:00Z50.3580.2326.014.0290176.2129.586615TRUEVFRSPECI232.02018-07-22 11:37:35V©«$)-5    3UASP 221130Z 01004MPS 9999 BKN037CB 18/10 Q1006 R03/0///70 NOSIG RMK QFE744/0992UASP2018-07-22T11:30:00Z52.277.0718.010.01086.2129.704725TRUEVFRSPECI125.02018-07-22 11:37:35W©«#)-5    3UAII 221130Z 33003MPS 290V020 CAVOK 41/07 Q0999 R10/0///70 NOSIG RMK QFE714/0953UAII2018-07-22T11:30:00Z42.3769.4841.07.033066.2129.498032TRUEVFRSPECI422.02018-07-22 11:37:35 ¦#Yz¦N©«*)5    3UATT 221130Z 08009MPS CAVOK 26/06 Q1009 R13/CLRD70 NOSIG RMK QFE737/0983UATT2018-07-22T11:30:00Z50.2557.226.06.080176.2129.793306TRUEVFRSPECI227.02018-07-22 11:37:35Y©«))-5    3UATG 221130Z 25008MPS 9999 SCT033CB 35/17 Q1003 R32/CLRD70 NOSIG RMK QFE754/1006UATG2018-07-22T11:30:00Z47.1251.8335.017.0250166.2129.616142TRUEVFRSPECI-22.02018-07-22 11:37:35D©«((y5    3KHEQ 221130Z AUTO 14003KT 10SM CLR 18/17 A3009 RMK AO2KHEQ2018-07-22T11:30:00Z40.57-102.2818.017.0140310.030.088583TRUETRUEVFRMETAR1137.02018-07-22 11:37:35W©«')-5    3UATE 221130Z 30009MPS 250V330 CAVOK 31/16 Q1006 R30/0///70 NOSIG RMK QFE753/1004UATE2018-07-22T11:30:00Z43.8751.131.016.0300176.2129.704725TRUEVFRSPECI22.02018-07-22 11:37:35 Þ<iœÞ8©«.(q5    3UKKM 221130Z AUTO 34006MPS 9999 // NSC 24/15 Q1006UKKM2018-07-22T11:30:00Z50.630.224.015.0340126.2129.704725TRUEVFRMETAR157.02018-07-22 11:37:35G©«-) 5    3UKOH 221130Z 30005MPS 190V360 CAVOK 31/14 Q1006 R03/CLRD// NOSIGUKOH2018-07-22T11:30:00Z46.6732.531.014.0300106.2129.704725TRUEVFRMETAR45.02018-07-22 11:37:35M©«,)5    3UKWW 221130Z 33005MPS 9999 SCT036 BKN200 26/15 Q1007 R31/0///65 NOSIGUKWW2018-07-22T11:30:00Z49.2528.626.015.0330106.2129.734253TRUEVFRMETAR293.02018-07-22 11:37:35>©«+(u5   3YPPH 221130Z 28019G30KT 9999 VCSH SCT030 17/08 Q1005YPPH2018-07-22T11:30:00Z-31.93115.9817.08.028019306.2129.675198VCSHVFRSPECI13.02018-07-22 11:37:35 Ë VŠË9©«2(u5    3DTNH 221130Z 09010KT 060V120 CAVOK 30/22 Q1013 NOSIGDTNH2018-07-22T11:30:00Z36.0710.4330.022.090106.2129.911417TRUEVFRMETAR2.02018-07-22 11:37:35F©«1)5    3DTTA 221130Z 01008KT 340V040 9999 FEW026 SCT040 31/21 Q1013 NOSIGDTTA2018-07-22T11:30:00Z36.8510.2231.021.01086.2129.911417TRUEVFRMETAR4.02018-07-22 11:37:35/©«0(e5    3DTTJ 221130Z 02009KT CAVOK 32/23 Q1012 NOSIGDTTJ2018-07-22T11:30:00Z33.8710.7732.023.02096.2129.88189TRUEVFRMETAR4.02018-07-22 11:37:35o©«/)c5   3UKKK 221130Z 31005MPS 280V350 9999 SCT035 25/17 Q1006 R26/CLRD70 TEMPO VRB11G18MPS 2100 -TSRAGR SQ BKN020CBUKKK2018-07-22T11:30:00Z50.430.4525.017.0310106.2129.704725VFRMETAR179.02018-07-22 11:37:35 ÉC_†É7©«6(u5   3LEHC 221130Z 23006KT 170V280 9999 FEW050 23/10 Q1017LEHC2018-07-22T11:30:00Z42.08-0.3223.010.023066.2130.029528VFRMETAR539.02018-07-22 11:37:35S©«5)/5   3UAUU 221130Z 04010MPS CAVOK 20/03 Q1014 R33/CLRD70 TEMPO 04016MPS RMK QFE745/0994UAUU2018-07-22T11:30:00Z53.263.5520.03.040196.2129.940945VFRSPECI182.02018-07-22 11:37:35^©«4);5    3UAKD 221130Z 24010MPS 9999 BKN060CB OVC100 34/07 Q0997 R22/0///65 NOSIG RMK QFE715/0953UAKD2018-07-22T11:30:00Z47.767.7334.07.0240196.2129.438976TRUEVFRSPECI381.02018-07-22 11:37:357©«3(q5    3DTMB 221130Z 04009KT 8000 SCT018 31/23 Q1013 NOSIGDTMB2018-07-22T11:30:00Z35.7710.7531.023.04094.9729.911417TRUEMVFRMETAR2.02018-07-22 11:37:35 (CÁõ(G©«;)5     3VECC 221130Z 16011KT 2200 -RA SCT015 OVC090 26/25 Q0995 NOSIGVECC2018-07-22T11:30:00Z22.6588.4326.025.0160111.3729.379921TRUE-RAIFRMETAR6.02018-07-22 11:37:35F©«:) 5    3UCFO 221130Z 27002MPS 230V310 CAVOK 37/10 Q1002 R12/CLRD70 NOSIGUCFO2018-07-22T11:30:00Z40.672.837.010.027046.2129.586615TRUEVFRMETAR884.02018-07-22 11:37:35F©«9) 5    3UCFM 221130Z 21004MPS 180V250 CAVOK 38/08 Q1000 R26/CLRD70 NOSIGUCFM2018-07-22T11:30:00Z43.0774.4838.08.021086.2129.52756TRUEVFRMETAR633.02018-07-22 11:37:350©«8(i5   3LEBA 221130Z 28003KT 210V350 CAVOK 31/14 Q1013LEBA2018-07-22T11:30:00Z37.85-4.8231.014.028036.2129.911417VFRMETAR92.02018-07-22 11:37:357©«7(u5   3LEBG 221130Z 04010KT 360V080 9999 FEW036 21/11 Q1019LEBG2018-07-22T11:30:00Z42.37-3.6221.011.040106.2130.088583VFRMETAR891.02018-07-22 11:37:35 ´-b‚´H©«?)5   3UTDK 221130Z 20005MPS 9999 NSC 42/09 Q0997 R01/09//70 RMK QFE691/0922UTDK2018-07-22T11:30:00Z37.9869.842.09.0200106.2129.438976VFRMETAR699.02018-07-22 11:37:35Z©«>)35    3UTDD 221130Z 26004MPS 240V300 9999 NSC 41/08 Q0998 R09/CLRD// NOSIG RMK QFE681/0908UTDD2018-07-22T11:30:00Z38.5368.8241.08.026086.2129.468504TRUEVFRSPECI803.02018-07-22 11:37:35E©«=)5     3VEPT 221130Z 09012KT 5000 HZ SCT018 BKN100 35/25 Q0993 NOSIGVEPT2018-07-22T11:30:00Z25.685.0835.025.090123.1129.320866TRUEHZMVFRMETAR60.02018-07-22 11:37:35M©«<)5     3VEGT 221130Z 04005KT 5000 BR SCT018 FEW025CB BKN100 31/28 Q0999 NOSIGVEGT2018-07-22T11:30:00Z26.191.5831.028.04053.1129.498032TRUEBRMVFRMETAR54.02018-07-22 11:37:35 Ö0X¤ÖH©«C) 5    3VOBL 221130Z 27013KT 8000 SCT010 SCT012 BKN080 28/19 Q1010 NOSIGVOBL2018-07-22T11:30:00Z13.277.728.019.0270134.9729.822834TRUEMVFRMETAR915.02018-07-22 11:37:35.©«B(e5   3FMCZ 221130Z 15010KT 9999 SCT027 29/20 Q1018FMCZ2018-07-22T11:30:00Z-12.845.2729.020.0150106.2130.059055VFRMETAR7.02018-07-22 11:37:35R©«A)#5    3UTDL 221130Z 24005MPS 9999 NSC 40/05 Q0999 R26/CLRD70 NOSIG RMK QFE712/0949UTDL2018-07-22T11:30:00Z40.2269.740.05.0240106.2129.498032TRUEVFRSPECI442.02018-07-22 11:37:35J©«@)5   3UTDT 221130Z 22003MPS 9999 FEW160 41/15 Q0994 35CLRD70 RMK QFE707/0943UTDT2018-07-22T11:30:00Z37.8768.8741.015.022066.2129.350393VFRMETAR449.02018-07-22 11:37:35 ß.]Ÿß:©«G(s5    3HSSS 221130Z 29007KT 9999 FEW 050 34/19 Q1010 NOSIGHSSS2018-07-22T11:30:00Z15.5832.5334.019.029076.2129.822834TRUEVFRMETAR380.02018-07-22 11:37:358©«F(q5    3VTSM 221130Z 30005KT 9999 FEW020 32/24 Q1008 NOSIGVTSM2018-07-22T11:30:00Z9.55100.0732.024.030056.2129.763779TRUEVFRMETAR17.02018-07-22 11:37:35K©«E)5     3VABB 221130Z 24014KT 4000 HZ FEW012 SCT018 BKN090 28/25 Q1003 NOSIGVABB2018-07-22T11:30:00Z19.172.8728.025.0240142.4929.616142TRUEHZIFRMETAR8.02018-07-22 11:37:35L©«D)5     3VAAH 221130Z 23007KT 4000 HZ FEW015 SCT020 BKN080 31/25 Q0999 NOSIGVAAH2018-07-22T11:30:00Z23.0772.6231.025.023072.4929.498032TRUEHZIFRMETAR55.02018-07-22 11:37:35 C0q´ûC2©«L(e5    3LKMT 221130Z 03006KT CAVOK 23/15 Q1010 NOSIGLKMT2018-07-22T11:30:00Z49.6718.1223.015.03066.2129.822834TRUEVFRMETAR256.02018-07-22 11:37:353©«K(e5    3LKPR 221130Z 35013KT CAVOK 26/10 Q1013 NOSIGLKPR2018-07-22T11:30:00Z50.114.2726.010.0350136.2129.911417TRUEVFRMETAR365.02018-07-22 11:37:357©«J(q5    3UGSB 221130Z 26009KT 9999 SCT026 27/23 Q1009 NOSIGUGSB2018-07-22T11:30:00Z41.6241.627.023.026096.2129.793306TRUEVFRMETAR32.02018-07-22 11:37:359©«I(q5    3UGKO 221130Z 27010KT 9999 SCT042 29/19 Q1007 NOSIGUGKO2018-07-22T11:30:00Z42.1842.4829.019.0270106.2129.734253TRUEVFRMETAR68.02018-07-22 11:37:35J©«H)5    3UGTB 221130Z 13009KT 9999 FEW038 BKN058CB OVC066 27/19 Q1011 NOSIGUGTB2018-07-22T11:30:00Z41.6744.9527.019.013096.2129.852362TRUEVFRMETAR495.02018-07-22 11:37:35 JN–ÏJ7©«Q(q5    3LQBK 221130Z 05005KT 9999 FEW040 28/19 Q1009 NOSIGLQBK2018-07-22T11:30:00Z44.9317.328.019.05056.2129.793306TRUEVFRMETAR122.02018-07-22 11:37:35B©«P)5    3LQSA 221130Z 16004KT 100V220 9999 FEW050 30/14 Q1010 NOSIGLQSA2018-07-22T11:30:00Z43.8218.3230.014.016046.2129.822834TRUEVFRMETAR511.02018-07-22 11:37:35A©«O) 5   3LQTZ 221130Z 01008KT 320V050 9999 FEW035TCU BKN040 28/17 Q1009LQTZ2018-07-22T11:30:00Z44.4718.7328.017.01086.2129.793306VFRMETAR306.02018-07-22 11:37:352©«N(e5    3VHHH 221130Z 27005KT CAVOK 29/24 Q1001 NOSIGVHHH2018-07-22T11:30:00Z22.32113.9229.024.027056.2129.557087TRUEVFRMETAR9.02018-07-22 11:37:35,©«M(e5   3LKKV 221130Z VRB03KT 9999 SCT033 22/13 Q1014LKKV2018-07-22T11:30:00Z50.212.9222.013.0036.2129.940945VFRMETAR604.02018-07-22 11:37:35 1QÃô1=©«V)5   3BIKF 221130Z 22006KT 190V250 9999 FEW009 BKN015 09/07 Q0999BIKF2018-07-22T11:30:00Z63.98-22.69.07.022066.2129.498032MVFRMETAR54.02018-07-22 11:37:35I©«U)5    3LKTB 221130Z 31007KT 280V340 9999 FEW033 FEW045 23/17 Q1010 NOSIGLKTB2018-07-22T11:30:00Z49.1316.6823.017.031076.2129.822834TRUEVFRMETAR246.02018-07-22 11:37:356©«T(s5   3LZPP 221130Z 12003KT 9999 FEW019 BKN035 23/17 Q1010LZPP2018-07-22T11:30:00Z48.6217.8323.017.012036.2129.822834VFRMETAR161.02018-07-22 11:37:35L©«S)5    3LZSL 221130Z 15004KT 120V190 9999 -SHRA FEW042CB SCT065 22/16 Q1011LZSL2018-07-22T11:30:00Z48.6319.1322.016.015046.2129.852362-SHRAVFRMETAR313.02018-07-22 11:37:35)©«R(Y5   3LZZI 221130Z 23003KT CAVOK 23/16 Q1010LZZI2018-07-22T11:30:00Z49.2318.6223.016.023036.2129.822834VFRMETAR311.02018-07-22 11:37:35 °8]°°z©«Z)I5    3ETIH 221128Z AUTO 00000KT 9999 FEW014 SCT024 SCT100 BKN120 BKN200 20/19 A2997 RMK AO2 SLP137 $ETIH2018-07-22T11:28:00Z49.2211.8220.019.0006.2129.9704721013.7TRUETRUETRUEBKN12000VFRSPECI442.02018-07-22 11:37:35'©«Y(g5    3KNEL 221129Z 2 1/2SM OVC008 A2983 RMK AO2 PNOKNEL2018-07-22T11:29:00Z40.02-74.332.529.828741TRUEIFRSPECI31.02018-07-22 11:37:35U©«X)5    3K5SM 221129Z AUTO 18003KT 10SM SCT075 BKN085 BKN120 12/04 A3068 RMK AO2K5SM2018-07-22T11:29:00Z39.43-107.3812.04.0180310.030.679134TRUETRUEVFRMETAR3232.02018-07-22 11:37:35B©«W(y5    3KSTK 221130Z AUTO 00000KT 10SM CLR 18/16 A3004 RMK AO2KSTK2018-07-22T11:30:00Z40.62-103.2718.016.00010.030.041338TRUETRUEVFRMETAR1231.02018-07-22 11:37:35 oë 5o@©«^(y5    3KWYS 221125Z AUTO 00000KT 10SM CLR 06/06 A3030 RMK AO2KWYS2018-07-22T11:25:00Z44.67-111.126.06.00010.030.301182TRUETRUEVFRMETAR2025.02018-07-22 11:37:35O©«])5    3KGNB 221125Z AUTO 00000KT 10SM SCT110 10/07 A3049 RMK AO2 T01010066KGNB2018-07-22T11:25:00Z40.08-105.9210.16.60010.030.490158TRUETRUEVFRMETAR2500.02018-07-22 11:37:35[©«\)5    3KVOK 221126Z AUTO 34005KT 10SM BKN018 BKN028 16/16 A3001 RMK AO2 SLP163KVOK2018-07-22T11:26:00Z43.92-90.2716.016.0340510.030.0088581016.3TRUETRUEMVFRSPECI277.02018-07-22 11:37:35‚©«[)}5      3KWRI 221127Z 18007KT 4SM BR OVC007 21/21 A2980 RMK AO2A TWR VIS 1 1/2 RAB14E27 CIG 005 RWY06 CIG 003 RWY18 SLP090 TSNO $KWRI2018-07-22T11:27:00Z40.02-74.5821.021.018074.029.7992131009.0TRUETRUETRUEBRIFRSPECI41.02018-07-22 11:37:35 H‘ρ1©«c(q5    3EBFN 221125Z AUTO 31006KT 9999 NCD 24/15 Q1016 BLUEBFN2018-07-22T11:25:00Z51.072.6324.015.031066.2130.0TRUEVFRMETAR9.02018-07-22 11:37:35<©«b(}5    3EBBL 221125Z AUTO 03004KT 9999 SCT055/// 27/12 Q1015 BLUEBBL2018-07-22T11:25:00Z51.175.4727.012.03046.2129.970472TRUEVFRMETAR64.02018-07-22 11:37:351©«a(q5    3EBBE 221125Z AUTO 05004KT 9999 NCD 25/08 Q1016 BLUEBBE2018-07-22T11:25:00Z50.754.7725.08.05046.2130.0TRUEVFRMETAR127.02018-07-22 11:37:35:©«`(q5    3OPKC 221125Z 24015KT 7000 SCT020 32/22 Q0996 NOSIGOPKC2018-07-22T11:25:00Z24.8867.1732.022.0240154.3529.409449TRUEMVFRMETAR22.02018-07-22 11:37:35r©«_)k5    3OPLA 221125Z 00000KT 4000 FU SCT040 BKN100 31/27 Q0998 A29.46 TEMPO 31015G3KT 2000 TSRA FEW030CB 221125Z METAR OPLA2018-07-22T11:25:00Z31.5274.431.027.0002.4929.468504FUIFRMETAR217.02018-07-22 11:37:35 ,C‰Æû,I©«h)5    3EGPI 221120Z AUTO 23007KT 9999 // FEW010/// OVC013/// 16/16 Q1014EGPI2018-07-22T11:20:00Z55.68-6.2516.016.023076.2129.940945TRUEMVFRSPECI18.02018-07-22 11:37:35E©«g) 5    3EHFS 221125Z AUTO 27012KT 230V300 9999 NCD 22/19 Q1015 W///H///EHFS2018-07-22T11:25:00Z51.453.622.019.0270126.2129.970472TRUEVFRMETAR32.02018-07-22 11:37:35=©«f(}5    3EBLB 221125Z AUTO 02004KT 9999 SCT046/// 21/11 Q1017 BLUEBLB2018-07-22T11:25:00Z50.476.1721.011.02046.2130.029528TRUEVFRMETAR570.02018-07-22 11:37:354©«e(s5    3EBFS 221125Z AUTO //////KT 9999 NCD 24/06 Q1017 BLUEBFS2018-07-22T11:25:00Z50.224.6524.06.06.2130.029528TRUEVFRSPECI299.02018-07-22 11:37:357©«d(q5    3EBDT 221125Z AUTO 27003KT 9999 NCD 26/10 Q1015 BLUEBDT2018-07-22T11:25:00Z51.025.0726.010.027036.2129.970472TRUEVFRMETAR54.02018-07-22 11:37:35  /mŸà :©«m(}5   3ETNN 221120Z 30006KT 9999 FEW040 SCT240 25/11 Q1015 BLU+ETNN2018-07-22T11:20:00Z50.826.6725.011.030066.2129.970472VFRMETAR135.02018-07-22 11:37:359©«l(}5   3ETNW 221120Z 29008KT 9999 FEW040 BKN300 27/15 Q1013 BLU+ETNW2018-07-22T11:20:00Z52.459.4227.015.029086.2129.911417VFRMETAR70.02018-07-22 11:37:35H©«k)5    3ETSL 221120Z 23011KT 8000 -SHRA SCT015 BKN040 19/15 Q1015 BLUETSL2018-07-22T11:20:00Z48.1710.8719.015.0230114.9729.970472-SHRAMVFRMETAR562.02018-07-22 11:37:35<©«j)5   3ENHE 221120Z 21021KT 9999 SCT015 BKN035 15/11 Q1005 W///S3ENHE2018-07-22T11:20:00Z65.332.3315.011.0210216.2129.675198VFRSPECI1.02018-07-22 11:37:35K©«i)5     3EGPU 221120Z AUTO 22013KT 4800 BR BKN002/// BKN012/// 16/16 Q1013EGPU2018-07-22T11:20:00Z56.5-6.8716.016.0220132.9829.911417TRUEBRLIFRMETAR12.02018-07-22 11:37:35 ¦@†q¦E©«q(5    3K33V 221115Z AUTO 12005KT 10SM SCT120 12/07 A3046 RMK AO1K33V2018-07-22T11:15:00Z40.75-106.2812.07.0120510.030.46063TRUETRUEVFRMETAR2484.02018-07-22 11:37:35‚©«p)s5     3KGUS 221116Z AUTO 36007KT 2SM +RA BR BKN006 OVC018 20/20 A2975 RMK AO2 VIS 1 7/8V6 DZB01E04RAB04 BKN V OVC SLP073 $KGUS2018-07-22T11:16:00Z40.63-86.1520.020.036072.029.7490161007.3TRUETRUETRUE+RA BRIFRSPECI247.02018-07-22 11:37:354©«o(}5   3ETHA 221120Z AUTO 27012KT //// // ////// 15/14 Q1016 ///ETHA2018-07-22T11:20:00Z47.8210.8715.014.02701230.0TRUESPECI760.02018-07-22 11:37:35:©«n(}5   3ETHB 221120Z AUTO 29007KT 9999 // ////// 27/14 Q1013 ///ETHB2018-07-22T11:20:00Z52.279.0727.014.029076.2129.911417TRUESPECI78.02018-07-22 11:37:35 yH•ß+y,©«v(o5  3CZPS 221100Z AUTO 28007KT 11/09 RMK AO1 T01060093CZPS2018-07-22T11:00:00Z52.43-113.610.69.32807TRUETRUEMETAR965.02018-07-22 11:37:35.©«u(e5   3FNCA 221100Z 27006KT 9999 FEW020 28/20 Q1014FNCA2018-07-22T11:00:00Z-5.5812.1828.020.027066.2129.940945VFRMETAR20.02018-07-22 11:37:350©«t(e5   3FNMO 221100Z 25008KT 9999 BKN013 18/14 Q1014FNMO2018-07-22T11:00:00Z-15.2712.1518.014.025086.2129.940945MVFRMETAR64.02018-07-22 11:37:35-©«s(e5   3SBTF 221115Z 00000KT 9999 FEW004 23/23 Q1013SBTF2018-07-22T11:15:00Z-3.37-64.7223.023.0006.2129.911417VFRSPECI47.02018-07-22 11:37:352©«r(s5   3SBCZ 221115Z 14002KT 9999 FEW008 BKN100 19/18 Q1016SBCZ2018-07-22T11:15:00Z-7.62-72.7719.018.014026.2130.0VFRSPECI170.02018-07-22 11:37:35 VL™äV@©«{)5  3CXMO 221100Z AUTO 31010KT 09/07 RMK AO1 PK WND 31017/1005 T00940068CXMO2018-07-22T11:00:00Z51.67-112.689.46.831010TRUETRUEMETAR836.02018-07-22 11:37:35B©«z)5  3CXOL 221100Z AUTO 29013KT 11/08 RMK AO1 PK WND 29019/1001 T01070075CXOL2018-07-22T11:00:00Z51.77-114.0810.77.529013TRUETRUEMETAR1046.02018-07-22 11:37:35/©«y(o5  3CXTH 221100Z AUTO 27010KT 11/10 RMK AO1 T01070100CXTH2018-07-22T11:00:00Z53.63-111.6810.710.027010TRUETRUEMETAR678.02018-07-22 11:37:35-©«x(o5  3CXVM 221100Z AUTO 27006KT 10/10 RMK AO1 T01020095CXVM2018-07-22T11:00:00Z53.35-110.8810.29.52706TRUETRUEMETAR623.02018-07-22 11:37:35.©«w(o5  3CZOL 221100Z AUTO 32008KT 13/12 RMK AO1 T01260118CZOL2018-07-22T11:00:00Z53.65-113.3512.611.83208TRUETRUEMETAR665.02018-07-22 11:37:35 |L›ç3|1©¬(e5   3FNMA 221100Z 09012KT 7000 BKN020 24/14 Q1019FNMA2018-07-22T11:00:00Z-9.5516.3224.014.090124.3530.088583MVFRMETAR1173.02018-07-22 11:37:35.©«(o5  3CXAG 221100Z AUTO 27008KT 12/11 RMK AO1 T01170111CXAG2018-07-22T11:00:00Z53.92-112.2811.711.12708TRUETRUEMETAR625.02018-07-22 11:37:35.©«~(o5  3CXAJ 221100Z AUTO 30009KT 14/13 RMK AO1 T01350126CXAJ2018-07-22T11:00:00Z54.77-112.8213.512.63009TRUETRUEMETAR574.02018-07-22 11:37:35+©«}(o5  3CXBA 221100Z AUTO 26007KT 09/09 RMK AO1 T00910091CXBA2018-07-22T11:00:00Z52.12-110.19.19.12607TRUETRUEMETAR687.02018-07-22 11:37:35.©«|(o5  3CXCS 221100Z AUTO 29011KT 10/09 RMK AO1 T01020089CXCS2018-07-22T11:00:00Z51.93-110.7210.28.929011TRUETRUEMETAR772.02018-07-22 11:37:35 ^H}Á ^'©¬(Y5   3SBUG 221100Z 08004KT CAVOK 06/05 Q1017SBUG2018-07-22T11:00:00Z-29.77-57.026.05.08046.2130.029528VFRMETAR74.02018-07-22 11:37:350©¬(e5   3SBAR 221100Z 13012KT 9999 SCT018 27/19 Q1018SBAR2018-07-22T11:00:00Z-10.97-37.0727.019.0130126.2130.059055VFRMETAR9.02018-07-22 11:37:356©¬(s5   3SBPB 221100Z 13010KT 9999 FEW017 BKN100 27/24 Q1013SBPB2018-07-22T11:00:00Z-2.92-41.7527.024.0130106.2129.911417VFRMETAR5.02018-07-22 11:37:35E©¬) 5  3SBSG 221100Z 21010G21KT 170V250 9999 SCT027 BKN036 24/20 Q1015SBSG2018-07-22T11:00:00Z-5.77-35.3724.020.021010216.2129.970472VFRSPECI83.02018-07-22 11:37:352©¬(s5   3SYEC 221100Z 05004KT 9999 FEW016 BKN100 28/24 Q1013SYEC2018-07-22T11:00:00Z6.8-58.128.024.05046.2129.911417VFRMETAR10.02018-07-22 11:37:35 V¢ñ<)©¬ (Y5   3SBVT 221100Z 29003KT CAVOK 21/18 Q1022SBVT2018-07-22T11:00:00Z-20.27-40.2721.018.029036.2130.177166VFRMETAR4.02018-07-22 11:37:35/©¬ (e5   3SBNF 221100Z 13005KT 9999 BKN035 16/12 Q1025SBNF2018-07-22T11:00:00Z-26.88-48.6516.012.013056.2130.265747VFRMETAR5.02018-07-22 11:37:35+©¬(Y5   3SBCY 221100Z 21003KT CAVOK 14/13 Q1018SBCY2018-07-22T11:00:00Z-15.65-56.1214.013.021036.2130.059055VFRMETAR182.02018-07-22 11:37:35.©¬(_5   3SBRP 221100Z 11008KT 9000 NSC 16/12 Q1021SBRP2018-07-22T11:00:00Z-21.12-47.7716.012.011085.5930.147638VFRMETAR549.02018-07-22 11:37:35$©¬(Y5   3SBJP 221100Z 15009KT CAVOK 25/20 Q1016SBJP2018-07-22T11:00:00Z-7.15-34.9525.020.015096.2130.0VFRMETAR66.02018-07-22 11:37:35 uP é:u?©¬)5   3SBRJ 221100Z 18008KT 8000 SCT010 BKN012 BKN040 23/22 Q1022SBRJ2018-07-22T11:00:00Z-22.88-43.1723.022.018084.9730.177166MVFRMETAR3.02018-07-22 11:37:35)©¬(Y5   3SBTE 221100Z 13002KT CAVOK 27/20 Q1013SBTE2018-07-22T11:00:00Z-5.03-42.8227.020.013026.2129.911417VFRMETAR69.02018-07-22 11:37:351©¬ (e5   3SBPL 221100Z 13010KT 9999 FEW025 22/16 Q1019SBPL2018-07-22T11:00:00Z-9.37-40.5722.016.0130106.2130.088583VFRMETAR375.02018-07-22 11:37:35*©¬ (Y5   3SBGO 221100Z 11004KT CAVOK 16/11 Q1020SBGO2018-07-22T11:00:00Z-16.62-49.2216.011.011046.2130.11811VFRMETAR747.02018-07-22 11:37:35*©¬ (Y5   3SBBR 221100Z 00000KT CAVOK 14/10 Q1022SBBR2018-07-22T11:00:00Z-15.87-47.9214.010.0006.2130.177166VFRMETAR1061.02018-07-22 11:37:35 VR†×*VN©¬)5     3VOHY 221100Z 27009KT 5000 HZ SCT010 SCT015 BKN080 30/23 Q1005 NOSIGVOHY2018-07-22T11:00:00Z17.4578.4530.023.027093.1129.675198TRUEHZMVFRMETAR545.02018-07-22 11:37:35'©¬(_5   3SBIH 221100Z /////KT 7000 NSC 24/23 Q1012SBIH2018-07-22T11:00:00Z-4.25-56.024.023.04.3529.88189MVFRMETAR34.02018-07-22 11:37:35)©¬(Y5   3SBAT 221100Z 16006KT CAVOK 21/15 Q1015SBAT2018-07-22T11:00:00Z-9.87-56.121.015.016066.2129.970472VFRMETAR288.02018-07-22 11:37:35F©¬)5    3SYCJ 221100Z 06004KT 030V090 9999 FEW016 SCT039 26/25 Q1013 NOSIGSYCJ2018-07-22T11:00:00Z6.5-58.2526.025.06046.2129.911417TRUEVFRSPECI30.02018-07-22 11:37:35(©¬(Y5   3SBCP 221100Z 18005KT CAVOK 22/19 Q1022SBCP2018-07-22T11:00:00Z-21.7-41.322.019.018056.2130.177166VFRMETAR11.02018-07-22 11:37:35 Z€·âI©¬)5     3KVOA 221140Z AUTO 27024KT 6SM HZ FEW015 29/26 A2991 RMK A01KVOA2018-07-22T11:40:00Z29.23-87.7829.026.0270246.029.911417TRUETRUEHZVFRMETAR53.02018-07-22 11:41:19O©¬) 5     3KW31 221140Z AUTO 00000KT 10SM OVC004 18/18 A2979 RMK AO2 P0001KW312018-07-22T11:40:00Z36.95-78.1818.018.00010.029.790354TRUETRUELIFR0.01METAR162.02018-07-22 11:41:19C©¬)5   3LIVD 221055Z /////KT 9999 BKN030 19/12 Q1017 RMK BKN VIS MIN 9999LIVD2018-07-22T10:55:00Z46.7212.2219.012.06.2130.029528MVFRSPECI1226.02018-07-22 11:37:35T©¬)5     3KI19 221059Z AUTO 00000KT 4SM BR SCT002 BKN009 OVC090 19/18 A2972 RMK AO2KI192018-07-22T10:59:00Z39.7-83.9819.018.0004.029.719488TRUETRUEBRIFRMETAR289.02018-07-22 11:37:35 ©¬(Y5    3FNDU 221100Z 15007KT CAVOK 30/// Q1017FNDU2018-07-22T11:00:00Z-7.420.8215076.2130.029528VFRMETAR747.02018-07-22 11:37:35 ¼/`ˆ¼F©¬)5   3KJSL 221140Z AUTO 00000G10KT 9SM FEW027 29/23 A2999 RMK A01KJSL2018-07-22T11:40:00Z26.23-95.2529.023.000109.029.991142TRUETRUEVFRMETAR10.02018-07-22 11:41:19R©¬)5     3KSIF 221140Z AUTO 00000KT 4SM BR OVC004 20/20 A2977 RMK AO2 T02000200KSIF2018-07-22T11:40:00Z36.43-79.8520.020.0004.029.769686TRUETRUEBRLIFRMETAR211.02018-07-22 11:41:19I©¬) 5    3KTTA 221140Z AUTO 00000KT 10SM CLR 19/19 A2974 RMK AO2 T01930191KTTA2018-07-22T11:40:00Z35.58-79.119.319.10010.029.740158TRUETRUEVFRMETAR75.02018-07-22 11:41:19K©¬)5   3KIKT 221140Z AUTO 29010G21KT 10SM FEW019 30/25 A2995 RMK A01KIKT2018-07-22T11:40:00Z28.52-88.2830.025.0290102110.029.949802TRUETRUEVFRMETAR25.02018-07-22 11:41:19 ‘7o„‘m©¬!);5      3KOKK 221139Z AUTO 36008KT 3SM +RA BR OVC005 20/20 A2976 RMK AO2 RAB22 CIG 003V009 P0012KOKK2018-07-22T11:39:00Z40.53-86.0720.020.036083.029.760826TRUETRUE+RA BRIFR0.12SPECI253.02018-07-22 11:41:19e©¬ )+5      3KSFZ 221139Z AUTO 11010KT 1SM -RA BR OVC002 20/20 A3002 RMK AO2 VIS 1/2V4 P0005KSFZ2018-07-22T11:39:00Z41.92-71.520.020.0110101.030.02067TRUETRUE-RA BRLIFR0.05SPECI134.02018-07-22 11:41:19B©¬(y5    3KEDU 221140Z AUTO 20007KT 10SM CLR 18/12 A2996 RMK AO1KEDU2018-07-22T11:40:00Z38.53-121.7818.012.0200710.029.958662TRUETRUEVFRMETAR21.02018-07-22 11:41:19C©¬(5    3KOMH 221140Z AUTO 00000KT 10SM SCT027 17/16 A2980 RMK AO2KOMH2018-07-22T11:40:00Z38.25-78.0517.016.00010.029.799213TRUETRUEVFRMETAR142.02018-07-22 11:41:19 d.>DdZ©¬%)+5     3PACV 221138Z 00000KT 1SM R27/1600V4000FT BR VV002 11/11 A3037 RMK AO2 T01110111PACV2018-07-22T11:38:00Z60.5-145.4711.111.1001.030.369095TRUEBRLIFR200SPECI12.02018-07-22 11:41:19t©¬$)C5       3PASN 221138Z AUTO 11004KT 2SM -RA BR BKN005 OVC011 08/08 A2989 RMK AO2 P0000 T00830083 TSNOPASN2018-07-22T11:38:00Z57.15-170.228.38.311042.029.890747TRUETRUETRUE-RA BRIFR0.005SPECI29.02018-07-22 11:41:19j©¬#)=5   3CZVL 221139Z AUTO 30012G19KT 9SM BKN032 OVC050 13/12 A3004 RMK SLP181 DENSITY ALT 2400FTCZVL2018-07-22T11:39:00Z53.67-113.8513.012.030012199.030.0413381018.1TRUEVFRSPECI686.02018-07-22 11:41:19L©¬") 5     3CYFC 221139Z AUTO VRB02KT 3SM BR OVC002 16/16 A3023 RMK SLP238CYFC2018-07-22T11:39:00Z45.87-66.5216.016.0023.030.2303141023.8TRUEBRLIFRMETAR20.02018-07-22 11:41:19 ?õ?O©¬))5    3KEQY 221138Z AUTO 22004KT 7SM BKN004 21/19 A2975 RMK AO2 T02060194KEQY2018-07-22T11:38:00Z35.02-80.6220.619.422047.029.749016TRUETRUELIFRSPECI212.02018-07-22 11:41:19x©¬()K5      3KFIG 221138Z AUTO 20003KT 1 1/4SM -RA BR OVC003 15/15 A2977 RMK AO2 RAB08E30B34 P0000 T01500150KFIG2018-07-22T11:38:00Z41.05-78.4215.015.020031.2529.769686TRUETRUE-RA BRLIFR0.005SPECI462.02018-07-22 11:41:19]©¬')/5    3KTTF 221138Z AUTO 03006KT 10SM SCT022 BKN090 OVC120 21/19 A2977 RMK AO2 T02050192KTTF2018-07-22T11:38:00Z41.93-83.4220.519.230610.029.769686TRUETRUEVFRMETAR188.02018-07-22 11:41:19‚©¬&)_5   3CYPY 221138Z AUTO 01013G18KT 9SM -RA SCT012 BKN027 BKN044 OVC065 14/14 A2990 RMK SLP132 DENSITY ALT 800FTCYPY2018-07-22T11:38:00Z58.77-111.1214.014.01013189.029.8996071013.2TRUE-RAOVC6500MVFRSPECI232.02018-07-22 11:41:19 –)$]–A©¬-)5    3KNYG 221138Z AUTO 10SM SCT008 20/19 A2979 RMK AO2 T02000194KNYG2018-07-22T11:38:00Z38.5-77.2820.019.410.029.790354TRUETRUEVFRMETAR4.02018-07-22 11:41:19A©¬,(}5    3SBRJ 221138Z 18010KT 6000 VCSH BKN010 BKN040 25/22 Q1022SBRJ2018-07-22T11:38:00Z-22.88-43.1725.022.0180103.7330.177166VCSHMVFRMETAR3.02018-07-22 11:41:19©¬+)e5     3KBAF 221138Z 06013G20KT 3SM R20/5500VP6000FT +RA BR BKN008 BKN025 OVC033 19/19 A2996 RMK AO2 P0026 T01890189KBAF2018-07-22T11:38:00Z42.17-72.7218.918.96013203.029.958662TRUE+RA BRIFR0.26SPECI83.02018-07-22 11:41:19Q©¬*)#5    3KDAY 221138Z 04008KT 7SM SCT008 OVC130 19/18 A2973 RMK AO2 BINOVC T01940183KDAY2018-07-22T11:38:00Z39.9-84.2219.418.34087.029.731298TRUEVFRSPECI305.02018-07-22 11:41:19 Å!Z”ŁI©¬1)5    3CYIN 221138Z AUTO 14002KT 9SM FEW002 02/02 A3030 RMK SLP275CYIN2018-07-22T11:38:00Z51.27-121.682.02.014029.030.3011821027.5TRUEVFRSPECI1128.02018-07-22 11:41:19@©¬0) 5   3CZCP 221138Z AUTO 29015KT ////SM //// BKN003 OVC007 04/04 A3021CZCP2018-07-22T11:38:00Z70.17-124.724.04.02901530.209646TRUESPECI93.02018-07-22 11:41:19A©¬/(y5    3KOWA 221138Z AUTO 02004KT 10SM CLR 16/15 A3009 RMK AO2KOWA2018-07-22T11:38:00Z44.12-93.2516.015.020410.030.088583TRUETRUEVFRMETAR350.02018-07-22 11:41:19Y©¬.)#5    3PAKI 221138Z AUTO 14019KT 10SM OVC014 14/12 A3006 RMK AO2 PK WND 13027/1057PAKI2018-07-22T11:38:00Z59.93-164.0314.012.01401910.030.059055TRUETRUEMVFRMETAR4.02018-07-22 11:41:19 ¼,h˜¼V©¬5)5     3KHQM 221137Z AUTO 08003KT 1/2SM FG VV002 12/12 A3020 RMK AO2 T01220122KHQM2018-07-22T11:37:00Z46.97-123.9312.212.28030.530.200787TRUETRUEFGLIFR200METAR7.02018-07-22 11:41:19J©¬4)5    3KIAH 221137Z 24007KT 9SM SCT012 SCT250 27/26 A2997 RMK AO2 T02720256KIAH2018-07-22T11:37:00Z30.0-95.3727.225.624079.029.970472TRUEVFRMETAR36.02018-07-22 11:41:19>©¬3(y5    3KXSA 221137Z AUTO 00000KT 10SM CLR 19/19 A2981 RMK AO2KXSA2018-07-22T11:37:00Z37.87-76.919.019.00010.029.811024TRUETRUEVFRMETAR42.02018-07-22 11:41:19N©¬2) 5     3CYNA 221138Z AUTO 10007KT 6SM BR OVC003 16/16 A3024 RMK SLP244CYNA2018-07-22T11:38:00Z50.17-61.8216.016.010076.030.2391741024.4TRUEBRLIFRSPECI11.02018-07-22 11:41:19 e*Fhe}©¬9)S5      3KDKK 221137Z AUTO 10005KT 1 3/4SM +RA BR SCT008 BKN021 OVC035 16/16 A2974 RMK AO2 P0035 T01610156 $KDKK2018-07-22T11:37:00Z42.5-79.2816.115.610051.7529.740158TRUETRUETRUE+RA BRIFR0.35METAR202.02018-07-22 11:41:19X©¬8)%5     3KDUJ 221137Z AUTO 00000KT 2SM BR BKN003 OVC017 14/14 A2975 RMK AO2 T01440144KDUJ2018-07-22T11:37:00Z41.17-78.914.414.4002.029.749016TRUETRUEBRLIFRMETAR554.02018-07-22 11:41:19^©¬7))5      3KELM 221137Z 05008KT 1 3/4SM -RA BR OVC013 19/19 A2969 RMK AO2 P0007 T01940189KELM2018-07-22T11:37:00Z42.15-76.919.418.95081.7529.68996TRUE-RA BRIFR0.07METAR302.02018-07-22 11:41:19P©¬6)5   3KMDT 221137Z 20008G16KT 7SM SCT009 BKN021 19/17 A2977 RMK AO2 T01890172KMDT2018-07-22T11:37:00Z40.2-76.7718.917.22008167.029.769686TRUEMVFRMETAR95.02018-07-22 11:41:19 ¬6k ¬n©¬=)A5    3KFTK 221136Z AUTO 26005KT 10SM SCT008 BKN020 OVC055 20/20 A2975 RMK AO2 CIG 008V020 SLP072KFTK2018-07-22T11:36:00Z37.88-85.9720.020.0260510.029.7490161007.2TRUETRUEMVFRSPECI230.02018-07-22 11:41:19E©¬<(5    3KRGK 221137Z AUTO 05003KT 10SM OVC014 17/15 A3009 RMK AO2KRGK2018-07-22T11:37:00Z44.58-92.4817.015.050310.030.088583TRUETRUEMVFRMETAR239.02018-07-22 11:41:19E©¬;(5    3KDLZ 221137Z AUTO 05007KT 10SM BKN013 18/17 A2974 RMK AO2KDLZ2018-07-22T11:37:00Z40.28-83.1218.017.050710.029.740158TRUETRUEMVFRMETAR289.02018-07-22 11:41:19D©¬:(}5     3KGPZ 221137Z AUTO 00000KT 5SM BR CLR 13/13 A3018 RMK AO2KGPZ2018-07-22T11:37:00Z47.22-93.5213.013.0005.030.180119TRUETRUEBRMVFRMETAR413.02018-07-22 11:41:19 l?GlU©¬A)%5    3KLYH 221136Z 12004KT 10SM BKN004 BKN010 OVC018 19/18 A2979 RMK AO2 T01940183KLYH2018-07-22T11:36:00Z37.32-79.219.418.3120410.029.790354TRUELIFRMETAR295.02018-07-22 11:41:19r©¬@)=5     3KENW 221136Z AUTO 01008G17KT 2 1/2SM -RA BR OVC005 19/19 A2987 RMK AO2 P0002 T01940194 $KENW2018-07-22T11:36:00Z42.6-87.9319.419.4108172.529.870079TRUETRUETRUE-RA BRIFR0.02METAR219.02018-07-22 11:41:19P©¬?)5     3KGNV 221136Z 23004KT 5SM BR FEW008 FEW017 28/26 A2989 RMK AO2 T02780256KGNV2018-07-22T11:36:00Z29.7-82.2827.825.623045.029.890747TRUEBRMVFRMETAR45.02018-07-22 11:41:19e©¬>)%5    3KBLV 221136Z AUTO 33010KT 10SM BKN012 20/18 A2986 RMK AO2 BKN V SCT SLP111 $KBLV2018-07-22T11:36:00Z38.53-89.8320.018.03301010.029.8612211011.1TRUETRUETRUEMVFRSPECI138.02018-07-22 11:41:19 ’ 2]’E©¬E)5   3CYZX 221136Z 08003KT 15SM OVC014 19/18 A3026 RMK SC8 SLP247CYZX2018-07-22T11:36:00Z44.98-64.9219.018.080315.030.2598421024.7MVFRSPECI28.02018-07-22 11:41:19O©¬D)5    3KOXB 221136Z AUTO 20005KT 10SM OVC028 23/21 A2984 RMK AO2 T02280211KOXB2018-07-22T11:36:00Z38.32-75.1222.821.1200510.029.840551TRUETRUEMVFRMETAR3.02018-07-22 11:41:19h©¬C)55      3KDDH 221136Z AUTO 09004KT 10SM -RA BKN019 OVC095 19/16 A2995 RMK AO2 P0000 T01890156KDDH2018-07-22T11:36:00Z42.9-73.2518.915.690410.029.949802TRUETRUE-RAMVFR0.005METAR244.02018-07-22 11:41:19Z©¬B)'5    3KLGA 221136Z 15014KT 7SM FEW009 BKN019 OVC026 24/21 A2984 RMK AO2 T02390206 $KLGA2018-07-22T11:36:00Z40.78-73.8823.920.6150147.029.840551TRUETRUEMVFRMETAR11.02018-07-22 11:41:19 nò7nC©¬I(5    3KPNM 221136Z AUTO 02006KT 10SM OVC009 17/16 A3013 RMK AO2KPNM2018-07-22T11:36:00Z45.57-93.617.016.020610.030.129921TRUETRUEIFRMETAR298.02018-07-22 11:41:19Y©¬H)5     3KPOV 221136Z AUTO 01003KT 10SM OVC110 17/14 A2977 RMK AO2 T01650141 PWINOKPOV2018-07-22T11:36:00Z41.22-81.2516.514.110310.029.769686TRUETRUETRUEVFRMETAR365.02018-07-22 11:41:19V©¬G)5    3KSKF 221136Z AUTO 00000KT 10SM BKN008 25/24 A2998 RMK AO2 SLP143 $KSKF2018-07-22T11:36:00Z29.37-98.5725.024.00010.029.979331014.3TRUETRUETRUEIFRSPECI210.02018-07-22 11:41:19‚©¬F)s5   3CYEG 221136Z 30010KT 15SM FEW007 SCT017 BKN028 OVC070 13/12 A3005 RMK SF1SC3SC4ACC1 SF TR SLP186 DENSITY ALT 2500FTCYEG2018-07-22T11:36:00Z53.28-113.5713.012.03001015.030.0501981018.6OVC7000MVFRSPECI723.02018-07-22 11:41:19 Å-c ÅU©¬M)!5    3KTKC 221136Z AUTO 08003KT 7SM CLR 18/18 A3009 RMK AO2 LTG DSNT E T01830177KTKC2018-07-22T11:36:00Z44.25-95.6218.317.78037.030.088583TRUETRUEVFRMETAR408.02018-07-22 11:41:19=©¬L(w5    3KAQP 221136Z AUTO 00000KT 7SM CLR 18/16 A3009 RMK AO2KAQP2018-07-22T11:36:00Z45.22-96.018.016.0007.030.088583TRUETRUEVFRMETAR311.02018-07-22 11:41:19D©¬K(5    3KAUM 221136Z AUTO 03006KT 10SM SCT008 16/14 A3007 RMK AO2KAUM2018-07-22T11:36:00Z43.67-92.9216.014.030610.030.070866TRUETRUEVFRMETAR375.02018-07-22 11:41:19M©¬J) 5    3KPHN 221136Z AUTO 07005KT 10SM BKN016 OVC120 18/15 A2983 RMK AO2KPHN2018-07-22T11:36:00Z42.92-82.5218.015.070510.029.828741TRUETRUEMVFRMETAR198.02018-07-22 11:41:19 ×.d›×>©¬Q(w5    3KVDI 221135Z AUTO 24004KT 7SM CLR 24/22 A2981 RMK AO2KVDI2018-07-22T11:35:00Z32.2-82.3724.022.024047.029.811024TRUETRUEVFRMETAR84.02018-07-22 11:41:19C©¬P)5     3KVER 221135Z AUTO 33006KT 10SM CLR 20/ A2997 RMK AO2 T0196KVER2018-07-22T11:35:00Z38.95-92.6819.6330610.029.970472TRUETRUEVFRMETAR218.02018-07-22 11:41:19D©¬O(5    3KBTP 221136Z AUTO 04003KT 10SM SCT005 16/15 A2976 RMK AO2KBTP2018-07-22T11:36:00Z40.77-79.9516.015.040310.029.760826TRUETRUEVFRSPECI380.02018-07-22 11:41:19L©¬N)5    3KSJX 221136Z AUTO 03005KT 7SM OVC100 20/19 A2997 RMK AO2 T01960192KSJX2018-07-22T11:36:00Z45.7-85.5719.619.23057.029.970472TRUETRUEVFRMETAR204.02018-07-22 11:41:19 É+gœÉM©¬U)5    3KUXL 221135Z AUTO 27005KT 7SM OVC011 27/26 A2997 RMK AO2 T02660255KUXL2018-07-22T11:35:00Z30.13-93.3826.625.527057.029.970472TRUETRUEMVFRMETAR4.02018-07-22 11:41:19E©¬T(}5     3KVAF 221135Z AUTO 26012KT 5SM HZ CLR 29/24 A2998 RMK A01KVAF2018-07-22T11:35:00Z27.35-94.6329.024.0260125.029.97933TRUETRUEHZMVFRMETAR46.02018-07-22 11:41:19>©¬S(w5     3KVBS 221135Z AUTO 20021KT 10SM CLR M40/ A2995 RMK A01KVBS2018-07-22T11:35:00Z29.48-93.63-40.02002110.029.949802TRUETRUEVFRMETAR31.02018-07-22 11:41:19O©¬R)5    3KVBW 221135Z AUTO 00000KT 10SM OVC019 17/17 A2979 RMK AO2 T01670165KVBW2018-07-22T11:35:00Z38.37-78.9716.716.50010.029.790354TRUETRUEMVFRMETAR355.02018-07-22 11:41:19 »,a»O©¬Y)5     3KTMK 221135Z AUTO 00000KT 1/2SM FG BKN001 OVC006 07/07 A3018 RMK AO2KTMK2018-07-22T11:35:00Z45.42-123.827.07.0000.530.180119TRUETRUEFGLIFRMETAR11.02018-07-22 11:41:19K©¬X) 5    3KTOC 221135Z AUTO 25003KT 10SM CLR 22/21 A2980 RMK AO2 T02230208KTOC2018-07-22T11:35:00Z34.6-83.322.320.8250310.029.799213TRUETRUEVFRMETAR304.02018-07-22 11:41:19E©¬W(5    3KTRK 221135Z AUTO 00000KT 10SM SCT090 11/10 A3032 RMK AO2KTRK2018-07-22T11:35:00Z39.32-120.1211.010.00010.030.318897TRUETRUEVFRMETAR1798.02018-07-22 11:41:19N©¬V)5     3KTVI 221135Z AUTO 26004KT 5SM BR SCT016 SCT022 25/24 A2985 RMK AO2KTVI2018-07-22T11:35:00Z30.9-83.8825.024.026045.029.84941TRUETRUEBRMVFRMETAR80.02018-07-22 11:41:19 •Cs•X©¬])!5    3KTAZ 221135Z AUTO 33008KT 10SM BKN010 OVC025 19/19 A2986 RMK AO2 T01880185KTAZ2018-07-22T11:35:00Z39.53-89.3318.818.5330810.029.861221TRUETRUEMVFRMETAR190.02018-07-22 11:41:19J©¬\) 5    3KTBR 221135Z AUTO 00000KT 10SM CLR 24/22 A2980 RMK AO2 T02390224KTBR2018-07-22T11:35:00Z32.48-81.7323.922.40010.029.799213TRUETRUEVFRMETAR57.02018-07-22 11:41:19L©¬[) 5    3KTGI 221135Z AUTO 12008KT 10SM SCT008 OVC023 23/22 A2981 RMK AO1KTGI2018-07-22T11:35:00Z37.82-75.9823.022.0120810.029.811024TRUETRUEMVFRMETAR2.02018-07-22 11:41:19e©¬Z)55   3KTIP 221135Z AUTO 34012G18KT 10SM SCT008 BKN012 OVC031 21/21 A2982 RMK AO2 T02080205KTIP2018-07-22T11:35:00Z40.28-88.1520.820.5340121810.029.819881TRUETRUEMVFRMETAR225.02018-07-22 11:41:19 ¾/f¾L©¬a)5    3KSFQ 221135Z AUTO 00000KT 10SM OVC007 22/20 A2980 RMK AO2 T02160202KSFQ2018-07-22T11:35:00Z36.68-76.621.620.20010.029.799213TRUETRUEIFRMETAR22.02018-07-22 11:41:19P©¬`)5    3KSJS 221135Z AUTO 24004KT 10SM OVC009 20/20 A2974 RMK AO2 T02000200KSJS2018-07-22T11:35:00Z37.75-82.6320.020.0240410.029.740158TRUETRUEIFRMETAR372.02018-07-22 11:41:19C©¬_(5    3KSPR 221135Z AUTO 28017KT 10SM SCT018 29/26 A2996 RMK A01KSPR2018-07-22T11:35:00Z28.6-91.229.026.02801710.029.958662TRUETRUEVFRMETAR31.02018-07-22 11:41:19K©¬^) 5    3KT82 221135Z AUTO 00000KT 10SM CLR 24/21 A3004 RMK AO2 T02360210KT822018-07-22T11:35:00Z30.25-98.9223.621.00010.030.041338TRUETRUEVFRMETAR517.02018-07-22 11:41:19 Ó7s¤ÓK©¬e) 5    3KRFI 221135Z AUTO 00000KT 10SM CLR 24/22 A2995 RMK AO2 T02380220KRFI2018-07-22T11:35:00Z32.15-94.8523.822.00010.029.949802TRUETRUEVFRMETAR135.02018-07-22 11:41:19I©¬d) 5    3KRLD 221135Z AUTO 00000KT 10SM CLR 15/09 A3014 RMK AO2 T01470086KRLD2018-07-22T11:35:00Z46.3-119.314.78.60010.030.138779TRUETRUEVFRMETAR120.02018-07-22 11:41:19>©¬c(w5    3KSCF 221135Z AUTO 27018KT 9SM CLR 30/25 A2998 RMK A01KSCF2018-07-22T11:35:00Z29.12-91.8730.025.0270189.029.97933TRUETRUEVFRMETAR8.02018-07-22 11:41:19C©¬b(y5    3KSEZ 221135Z AUTO 03007KT 10SM CLR 22/13 A3023 RMK AO2KSEZ2018-07-22T11:35:00Z34.85-111.7822.013.030710.030.230314TRUETRUEVFRMETAR1473.02018-07-22 11:41:19 ².\„²L©¬i) 5    3KPPA 221135Z AUTO 21008KT 10SM CLR 22/08 A3006 RMK AO2 T02210081KPPA2018-07-22T11:35:00Z35.62-101.022.18.1210810.030.059055TRUETRUEVFRMETAR989.02018-07-22 11:41:19R©¬h)5     3KPSK 221135Z AUTO 00000KT 1SM BR OVC002 18/17 A2983 RMK AO2 T01750171KPSK2018-07-22T11:35:00Z37.12-80.6717.517.1001.029.828741TRUETRUEBRLIFRMETAR642.02018-07-22 11:41:19L©¬g) 5    3KPTT 221135Z AUTO 11007KT 10SM CLR 22/17 A3003 RMK AO2 T02200169KPTT2018-07-22T11:35:00Z37.7-98.7522.016.9110710.030.029528TRUETRUEVFRMETAR595.02018-07-22 11:41:19L©¬f) 5    3KRBO 221135Z AUTO 19005KT 10SM CLR 24/23 A2996 RMK AO2 T02380231KRBO2018-07-22T11:35:00Z27.78-97.6823.823.1190510.029.958662TRUETRUEVFRMETAR24.02018-07-22 11:41:19 ¨&T¨S©¬m)5     3KOPL 221135Z AUTO 00000KT 2 1/2SM BR SCT006 24/24 A2995 RMK AO2 T02440242KOPL2018-07-22T11:35:00Z30.55-92.124.424.2002.529.949802TRUETRUEBRIFRMETAR23.02018-07-22 11:41:19M©¬l)5    3KORG 221135Z AUTO 25004KT 10SM OVC008 27/26 A2997 RMK AO2 T02660262KORG2018-07-22T11:35:00Z30.07-93.826.626.2250410.029.970472TRUETRUEIFRMETAR4.02018-07-22 11:41:19L©¬k) 5    3KOUN 221135Z AUTO 07007KT 10SM CLR 25/17 A2994 RMK AO2 T02490173KOUN2018-07-22T11:35:00Z35.25-97.4724.917.370710.029.940945TRUETRUEVFRMETAR357.02018-07-22 11:41:19T©¬j)#5    3KPNT 221135Z AUTO 33007KT BKN019 OVC024 21/20 A2985 RMK AO2 T02060203 PWINOKPNT2018-07-22T11:35:00Z40.92-88.6220.620.3330729.84941TRUETRUETRUEMETAR201.02018-07-22 11:41:19 Á/i˜ÁQ©¬q)5     3KMZZ 221135Z AUTO 00000KT 4SM BR OVC007 20/18 A2976 RMK AO2 T01990183KMZZ2018-07-22T11:35:00Z40.48-85.6819.918.3004.029.760826TRUETRUEBRIFRMETAR262.02018-07-22 11:41:19K©¬p)5   3KNY0 221135Z AUTO 09009G16KT 10SM OVC016 17/17 A2992 RMK AO2KNY02018-07-22T11:35:00Z42.98-74.3317.017.09091610.029.920275TRUETRUEMVFRMETAR271.02018-07-22 11:41:19@©¬o(y5    3KO54 221135Z AUTO 00000KT 10SM CLR 16/07 A3010 RMK AO1KO542018-07-22T11:35:00Z40.75-122.9216.07.00010.030.100393TRUETRUEVFRMETAR717.02018-07-22 11:41:19K©¬n) 5    3KONM 221135Z AUTO 00000KT 10SM CLR 23/07 A3019 RMK AO2 T02300066KONM2018-07-22T11:35:00Z34.02-106.923.06.60010.030.188976TRUETRUEVFRMETAR1410.02018-07-22 11:41:19 À+^•ÀO©¬u)5    3KW81 221135Z AUTO 00000KT 1/4SM OVC003 18/18 A2979 RMK AO1 T01830183KW812018-07-22T11:35:00Z37.18-78.118.318.3000.2529.790354TRUETRUELIFRMETAR129.02018-07-22 11:41:19C©¬t(}5    3KXIH 221135Z AUTO 25012KT 8SM FEW018 29/25 A2996 RMK A01KXIH2018-07-22T11:35:00Z29.18-94.5229.025.0250128.029.958662TRUETRUEVFRMETAR75.02018-07-22 11:41:19G©¬s)5   3KXPY 221135Z AUTO 27012G18KT 9SM SCT018 29/26 A2996 RMK A01KXPY2018-07-22T11:35:00Z29.12-90.229.026.027012189.029.958662TRUETRUEVFRMETAR2.02018-07-22 11:41:19O©¬r)5    3KY49 221135Z AUTO 11004KT 10SM BKN006 17/16 A3015 RMK AO2 T01690162KY492018-07-22T11:35:00Z47.13-94.6516.916.2110410.030.15059TRUETRUEIFRMETAR416.02018-07-22 11:41:19 ×6m¤×G©¬y)5     3KVES 221135Z AUTO 03004KT 4SM BR OVC009 18/18 A2973 RMK AO2KVES2018-07-22T11:35:00Z40.2-84.5318.018.03044.029.731298TRUETRUEBRIFRMETAR307.02018-07-22 11:41:19C©¬x(}5    3KVKY 221135Z AUTO 28020KT 9SM SCT015 29/26 A2994 RMK A01KVKY2018-07-22T11:35:00Z29.25-88.4329.026.0280209.029.940945TRUETRUEVFRMETAR32.02018-07-22 11:41:19C©¬w(}5    3KVQT 221135Z AUTO 27014KT 8SM FEW021 30/26 A2999 RMK A01KVQT2018-07-22T11:35:00Z28.27-92.2730.026.0270148.029.991142TRUETRUEVFRMETAR25.02018-07-22 11:41:19D©¬v(y5    3KW43 221135Z AUTO 24003KT 10SM CLR 16/12 A3005 RMK AO2KW432018-07-22T11:35:00Z44.67-104.5716.012.0240310.030.050198TRUETRUEVFRMETAR1300.02018-07-22 11:41:19 Æ8b‹Æ?©¬}(w5    3KMIS 221135Z AUTO 28017KT 7SM CLR 28/26 A2993 RMK A01KMIS2018-07-22T11:35:00Z29.3-88.8528.026.0280177.029.929134TRUETRUEVFRMETAR32.02018-07-22 11:41:19Q©¬|)5     3KMTV 221135Z AUTO 00000KT 3SM BR OVC005 19/19 A2979 RMK AO2 T01910191KMTV2018-07-22T11:35:00Z36.63-80.0219.119.1003.029.790354TRUETRUEBRIFRMETAR287.02018-07-22 11:41:19P©¬{)5    3KMWA 221135Z AUTO 34005KT 10SM OVC014 22/21 A2985 RMK AO2 T02150206KMWA2018-07-22T11:35:00Z37.77-89.0221.520.6340510.029.84941TRUETRUEMVFRMETAR144.02018-07-22 11:41:19B©¬z(y5    3KMZG 221135Z AUTO 29014KT 10SM CLR 29/25 A2996 RMK A01KMZG2018-07-22T11:35:00Z27.73-96.1829.025.02901410.029.958662TRUETRUEVFRMETAR29.02018-07-22 11:41:19 Å6lŠÅ?©­(y5    3KLUA 221135Z AUTO 00000KT 10SM CLR 18/17 A2978 RMK AO2KLUA2018-07-22T11:35:00Z38.67-78.518.017.00010.029.778543TRUETRUEVFRMETAR275.02018-07-22 11:41:19\©­)/5    3KLWB 221135Z AUTO 00000KT 10SM BKN025 BKN032 OVC040 17/17 A2982 RMK AO2 T01740167KLWB2018-07-22T11:35:00Z37.87-80.417.416.70010.029.819881TRUETRUEMVFRMETAR702.02018-07-22 11:41:19D©¬)5   3KMDD 221135Z AUTO 00000KT 10SM 24/12 A3007 RMK AO2 T02380117KMDD2018-07-22T11:35:00Z32.03-102.123.811.70010.030.070866TRUETRUEMETAR854.02018-07-22 11:41:19D©¬~(5    3KMDJ 221135Z AUTO 27019KT 10SM SCT022 30/26 A2997 RMK A01KMDJ2018-07-22T11:35:00Z28.65-89.830.026.02701910.029.970472TRUETRUEVFRMETAR31.02018-07-22 11:41:19 ¶.Z‹¶O©­)5     3KLCG 221135Z AUTO 00000KT 5SM BR CLR 17/16 A3006 RMK AO2 T01650158KLCG2018-07-22T11:35:00Z42.25-96.9816.515.8005.030.059055TRUETRUEBRMVFRMETAR436.02018-07-22 11:41:19I©­)5     3KLCQ 221135Z AUTO 20004KT 5SM BR OVC013 26/25 A2986 RMK AO2KLCQ2018-07-22T11:35:00Z30.18-82.5826.025.020045.029.861221TRUETRUEBRMVFRMETAR61.02018-07-22 11:41:19N©­)5    3KLNN 221135Z AUTO 00000KT 10SM OVC031 17/15 A2975 RMK AO1 T01730146KLNN2018-07-22T11:35:00Z41.67-81.3717.314.60010.029.749016TRUETRUEVFRMETAR191.02018-07-22 11:41:19L©­) 5    3KLOM 221135Z AUTO 21003KT 10SM SCT012 OVC080 20/20 A2983 RMK AO1KLOM2018-07-22T11:35:00Z40.13-75.2720.020.0210310.029.828741TRUETRUEVFRMETAR92.02018-07-22 11:41:19 ­)d­N©­ ) 5    3KJHN 221135Z AUTO 15008KT 10SM CLR 21/18 A3002 RMK AO2 T02110178KJHN2018-07-22T11:35:00Z37.58-101.7321.117.8150810.030.02067TRUETRUEVFRMETAR1013.02018-07-22 11:41:19]©­)'5     3KJOT 221135Z AUTO 35007KT 7SM -RA BKN012 OVC019 21/20 A2984 RMK AO2 T02120203KJOT2018-07-22T11:35:00Z41.52-88.1821.220.335077.029.840551TRUETRUE-RAMVFRMETAR177.02018-07-22 11:41:19?©­(w5    3KJYR 221135Z AUTO 19003KT 8SM CLR 18/18 A3008 RMK AO2KJYR2018-07-22T11:35:00Z40.9-97.6218.018.019038.030.079725TRUETRUEVFRMETAR509.02018-07-22 11:41:19Q©­)5    3KJZP 221135Z AUTO 32004KT 10SM CLR 20/18 A2987 RMK AO2 T01950183 PNOKJZP2018-07-22T11:35:00Z34.45-84.4719.518.3320410.029.870079TRUETRUEVFRMETAR468.02018-07-22 11:41:19 ž4GpžL©­ ) 5    3KI63 221135Z AUTO 34009KT 10SM CLR 18/17 A2992 RMK AO2 T01810173KI632018-07-22T11:35:00Z39.98-90.818.117.3340910.029.920275TRUETRUEVFRMETAR223.02018-07-22 11:41:19Q©­ )5    3KIJX 221135Z AUTO 32007KT 10SM OVC012 19/18 A2990 RMK AO2 T01880175KIJX2018-07-22T11:35:00Z39.77-90.2518.817.5320710.029.899607TRUETRUEMVFRMETAR190.02018-07-22 11:41:19g©­ )35      3KIKK 221135Z AUTO 34008KT 7SM -RA SCT008 OVC018 20/20 A2982 RMK AO2 P0001 T02000195KIKK2018-07-22T11:35:00Z41.07-87.8520.019.534087.029.819881TRUETRUE-RAMVFR0.01METAR192.02018-07-22 11:41:19F©­ )5    3KJAS 221135Z AUTO 21004KT 25/24 A2996 RMK AO2 T02450237 PWINOKJAS2018-07-22T11:35:00Z30.88-94.0324.523.7210429.958662TRUETRUETRUEMETAR65.02018-07-22 11:41:19 ±/O…±N©­) 5    3KHQG 221135Z AUTO 14005KT 10SM CLR 20/18 A3004 RMK AO2 T02020180KHQG2018-07-22T11:35:00Z37.17-101.3720.218.0140510.030.041338TRUETRUEVFRMETAR956.02018-07-22 11:41:19D©­(5    3KHQI 221135Z AUTO 22015KT 10SM SCT022 29/27 A2998 RMK A01KHQI2018-07-22T11:35:00Z27.93-93.6729.027.02201510.029.97933TRUETRUEVFRMETAR26.02018-07-22 11:41:19Z©­)%5    3KHSG 221135Z AUTO 22009KT 10SM CLR 23/08 A3009 RMK AO2 LTG DSNT SE T02270075KHSG2018-07-22T11:35:00Z43.72-108.3822.77.5220910.030.088583TRUETRUEVFRMETAR1494.02018-07-22 11:41:19K©­) 5    3KHWY 221135Z AUTO 00000KT 10SM CLR 18/17 A2978 RMK AO2 T01820165KHWY2018-07-22T11:35:00Z38.58-77.7218.216.50010.029.778543TRUETRUEVFRMETAR103.02018-07-22 11:41:19 Ã8f˜ÃO©­)5    3KGVE 221135Z AUTO 00000KT 10SM OVC025 18/18 A2979 RMK AO1 T01770177KGVE2018-07-22T11:35:00Z38.15-78.1717.717.70010.029.790354TRUETRUEMVFRMETAR138.02018-07-22 11:41:19H©­) 5    3KHHV 221135Z AUTO 23014KT 10SM SCT022 SCT031 29/24 A3000 RMK A01KHHV2018-07-22T11:35:00Z26.93-94.6829.024.02301410.030.0TRUETRUEVFRMETAR25.02018-07-22 11:41:19L©­) 5    3KHHW 221135Z AUTO 07005KT 10SM CLR 27/19 A2992 RMK AO2 T02730191KHHW2018-07-22T11:35:00Z34.03-95.5527.319.170510.029.920275TRUETRUEVFRMETAR144.02018-07-22 11:41:19B©­(y5    3KHPT 221135Z AUTO 36005KT 10SM CLR 16/16 A3006 RMK AO2KHPT2018-07-22T11:35:00Z42.58-93.2316.016.0360510.030.059055TRUETRUEVFRMETAR358.02018-07-22 11:41:19 Æ9aŒÆ@©­(y5    3KGBK 221135Z AUTO 23012KT 10SM CLR 29/24 A3001 RMK A01KGBK2018-07-22T11:35:00Z27.2-92.229.024.02301210.030.008858TRUETRUEVFRMETAR59.02018-07-22 11:41:19O©­) 5    3KGNC 221135Z AUTO 26003KT 10SM CLR 21/11 A3011 RMK AO2 T02100106KGNC2018-07-22T11:35:00Z32.68-102.6521.010.6260310.030.109253TRUETRUEVFRMETAR1010.02018-07-22 11:41:19R©­)5   3KGRY 221135Z AUTO 28008G14KT 250V310 10SM SCT020 31/24 A2999 RMK A01KGRY2018-07-22T11:35:00Z27.63-90.4531.024.028081410.029.991142TRUETRUEVFRMETAR58.02018-07-22 11:41:19A©­(y5    3KGUL 221135Z AUTO 26010KT 10SM CLR 29/23 A3001 RMK A01KGUL2018-07-22T11:35:00Z27.3-93.5329.023.02601010.030.008858TRUETRUEVFRMETAR30.02018-07-22 11:41:19 ».g»O©­) 5    3KFLY 221135Z AUTO 28007KT 10SM CLR 16/12 A3028 RMK AO2 T01600120KFLY2018-07-22T11:35:00Z38.95-104.5716.012.0280710.030.280512TRUETRUEVFRMETAR2096.02018-07-22 11:41:19Q©­)5    3KFWC 221135Z AUTO 30003KT 10SM OVC014 21/20 A2981 RMK AO1 T02080195KFWC2018-07-22T11:35:00Z38.38-88.4220.819.5300310.029.811024TRUETRUEMVFRMETAR133.02018-07-22 11:41:19A©­(y5    3KFXY 221135Z AUTO 02004KT 10SM CLR 17/16 A3007 RMK AO2KFXY2018-07-22T11:35:00Z43.23-93.6217.016.020410.030.070866TRUETRUEVFRMETAR375.02018-07-22 11:41:19L©­)5    3KFYJ 221135Z AUTO 00000KT 10SM BKN090 20/19 A2982 RMK AO1 T01980193KFYJ2018-07-22T11:35:00Z37.52-76.7719.819.30010.029.819881TRUETRUEVFRMETAR7.02018-07-22 11:41:19 ¹,SŒ¹M©­!)5    3KEZF 221135Z AUTO 00000KT 10SM SCT036 19/19 A2978 RMK AO2 T01860186KEZF2018-07-22T11:35:00Z38.27-77.4518.618.60010.029.778543TRUETRUEVFRMETAR26.02018-07-22 11:41:19A©­ (y5    3KF70 221135Z AUTO 00000KT 10SM CLR 19/15 A3005 RMK AO1KF702018-07-22T11:35:00Z33.57-117.1319.015.00010.030.050198TRUETRUEVFRMETAR412.02018-07-22 11:41:19S©­)5     3KFGX 221135Z AUTO 24007KT 5SM BR OVC006 19/19 A2970 RMK AO2 T01930193KFGX2018-07-22T11:35:00Z38.55-83.7519.319.324075.029.698818TRUETRUEBRIFRMETAR278.02018-07-22 11:41:19N©­)5    3KFHB 221135Z AUTO 25008KT 10SM SCT004 26/25 A2982 RMK AO2 T02620248KFHB2018-07-22T11:35:00Z30.62-81.4726.224.8250810.029.819881TRUETRUEVFRMETAR5.02018-07-22 11:41:19Y8#8@HPX`hpx€ˆ˜ ¨°¸ÀÈÐØàèðø (08@HPX`hpx€ˆ˜ ¨°¸ÀÈÐØàèðø (08@HPX`hpx€ˆ˜ ¨°¸ÀÈÐØàèðø ¨°¸ÀÈÐØàèðøɍ©¬Aʍ©¬Eˍ©¬I̍©¬M͍©¬Q΍©¬Uύ©¬YЍ©¬]э©¬aҍ©¬eӍ©¬iԍ©¬mɍ©¬Aʍ©¬Eˍ©¬I̍©¬M͍©¬Q΍©¬Uύ©¬YЍ©¬]э©¬aҍ©¬eӍ©¬iԍ©¬mՍ©¬q֍©¬u׍©¬y؍©¬}ٍ©­ڍ©­ۍ©­ ܍©­ ݍ©­ލ©­ߍ©­à©­፩­!㍩­%䍩­)卩­-捩­1獩­5荩­9鍩­=ꍩ­A덩­E썩­I퍩­M­Q­Uð©­Yñ©­]ò©­a󍩭eô©­iõ©­mö©­q÷©­uø©­yù©­}ú©®û©®ü©® ý©® þ©®ÿ©®©®©®©®!©®%©®)©®-©®1©®5©®9 ©®= ©®A ©®E ©®I ©®M©®Q©®U©®Y©®]©®a©®e©®i©®m©®q©®u©®y©®}©¯©¯©¯ ©¯ ©¯©¯ ©¯!©¯"©¯" Þ7l§ÞC©­%(}5    3KEHC 221135Z AUTO 25018KT 9SM FEW021 29/24 A2997 RMK A01KEHC2018-07-22T11:35:00Z28.43-92.8829.024.0250189.029.970472TRUETRUEVFRMETAR31.02018-07-22 11:41:19?©­$(w5    3KEIR 221135Z AUTO 30019KT 9SM CLR 30/26 A2998 RMK A01KEIR2018-07-22T11:35:00Z28.63-91.4830.026.0300199.029.97933TRUETRUEVFRMETAR28.02018-07-22 11:41:19E©­#(5    3KEMK 221135Z AUTO 31014KT 10SM SCT022 29/25 A2999 RMK A01KEMK2018-07-22T11:35:00Z27.82-94.3229.025.03101410.029.991142TRUETRUEVFRMETAR26.02018-07-22 11:41:19C©­"(y5    3KEMM 221135Z AUTO 35003KT 10SM CLR 16/07 A3036 RMK AO2KEMM2018-07-22T11:35:00Z41.82-110.5516.07.0350310.030.360237TRUETRUEVFRMETAR2220.02018-07-22 11:41:19 É-bÉA©­)(}5    3KDQH 221135Z AUTO 00000KT 7SM BKN011 24/23 A2984 RMK AO2KDQH2018-07-22T11:35:00Z31.48-82.8724.023.0007.029.840551TRUETRUEMVFRMETAR78.02018-07-22 11:41:19L©­() 5    3KEBA 221135Z AUTO 27007KT 10SM CLR 23/21 A2980 RMK AO2 T02250211KEBA2018-07-22T11:35:00Z34.1-82.8222.521.1270710.029.799213TRUETRUEVFRMETAR184.02018-07-22 11:41:19E©­'(}5     3KEBS 221135Z AUTO 35004KT 6SM BR CLR 16/16 A3004 RMK AO2KEBS2018-07-22T11:35:00Z42.42-93.8716.016.035046.030.041338TRUETRUEBRVFRMETAR342.02018-07-22 11:41:19M©­&) 5    3KEHA 221135Z AUTO 15005KT 10SM CLR 22/17 A3005 RMK AO2 T02150170KEHA2018-07-22T11:35:00Z37.0-101.921.517.0150510.030.050198TRUETRUEVFRMETAR1099.02018-07-22 11:41:19 º1Z’ºR©­-)5     3KCVB 221135Z AUTO 00000KT 5SM BR SCT005 23/22 A3001 RMK AO2 T02280221KCVB2018-07-22T11:35:00Z29.35-98.8522.822.1005.030.008858TRUETRUEBRMVFRMETAR235.02018-07-22 11:41:19B©­,(5    3KCVH 221135Z AUTO 00000KT 10SM OVC005 15/14 A3006 RMK A01KCVH2018-07-22T11:35:00Z36.9-121.4215.014.00010.030.059055TRUETRUEIFRMETAR70.02018-07-22 11:41:19Q©­+)5   3KCVW 221135Z AUTO 25009G16KT 230V290 10SM BKN017 28/26 A2994 RMK A01KCVW2018-07-22T11:35:00Z29.78-93.328.026.025091610.029.940945TRUETRUEMVFRMETAR1.02018-07-22 11:41:19I©­*)5   3KDLP 221135Z AUTO 29013G19KT 9SM FEW018 29/27 A2993 RMK A01KDLP2018-07-22T11:35:00Z29.12-89.5529.027.029013199.029.929134TRUETRUEVFRMETAR36.02018-07-22 11:41:19 ¨-Xq¨C©­1(}5     3KBQX 221135Z AUTO 22015KT 6SM HZ CLR 30/26 A2998 RMK A01KBQX2018-07-22T11:35:00Z28.5-95.7230.026.0220156.029.97933TRUETRUEHZVFRMETAR34.02018-07-22 11:41:19a©­0)35     3KBUU 221135Z AUTO 34007KT 4SM BR SCT008 BKN014 OVC019 19/18 A2989 RMK AO2 T01860179KBUU2018-07-22T11:35:00Z42.68-88.318.617.934074.029.890747TRUETRUEBRMVFRMETAR237.02018-07-22 11:41:19O©­/)5    3KBYL 221135Z AUTO 00000KT 3SM SCT007 BKN014 BKN027 19/19 A2979 RMK AO1KBYL2018-07-22T11:35:00Z36.8-84.219.019.0003.029.790354TRUETRUEMVFRMETAR359.02018-07-22 11:41:19M©­.) 5    3KCCO 221135Z AUTO 30003KT 10SM CLR 22/19 A2984 RMK AO2 T02150191KCCO2018-07-22T11:35:00Z33.32-84.7721.519.1300310.029.840551TRUETRUEVFRMETAR296.02018-07-22 11:41:19 Â,Z”L©­5) 5    3KAZE 221135Z AUTO 22004KT 10SM CLR 25/22 A2981 RMK AO2 T02500223KAZE2018-07-22T11:35:00Z31.88-82.6525.022.3220410.029.811024TRUETRUEVFRMETAR78.02018-07-22 11:41:19@©­4(w5    3KBBF 221135Z AUTO 23014KT 7SM CLR 29/24 A2995 RMK A01KBBF2018-07-22T11:35:00Z27.83-96.0229.024.0230147.029.949802TRUETRUEVFRMETAR36.02018-07-22 11:41:19L©­3)5    3KBCB 221135Z AUTO 00000KT 7SM OVC004 18/18 A2985 RMK AO2 T01750175KBCB2018-07-22T11:35:00Z37.22-80.4217.517.5007.029.84941TRUETRUELIFRMETAR650.02018-07-22 11:41:19N©­2) 5    3KBPG 221135Z AUTO 14005KT 10SM CLR 23/11 A3007 RMK AO2 T02320109KBPG2018-07-22T11:35:00Z32.22-101.5223.210.9140510.030.070866TRUETRUEVFRMETAR784.02018-07-22 11:41:19 Ó8bšÓA©­9(y5    3KACJ 221135Z AUTO 30006KT 10SM CLR 23/18 A2985 RMK AO2KACJ2018-07-22T11:35:00Z32.12-84.1823.018.0300610.029.84941TRUETRUEVFRMETAR143.02018-07-22 11:41:19B©­8)5   3KAPS 221135Z AUTO 28007KT 7SM 27/25 A2994 RMK AO2 T02700253KAPS2018-07-22T11:35:00Z30.08-90.5827.025.328077.029.940945TRUETRUEMETAR2.02018-07-22 11:41:19P©­7)5    3KARV 221135Z AUTO 02005KT 10SM OVC004 15/14 A3010 RMK AO2 T01520141KARV2018-07-22T11:35:00Z45.92-89.7215.214.120510.030.100393TRUETRUELIFRMETAR496.02018-07-22 11:41:19B©­6)5   3KATP 221135Z AUTO VRB05G13KT 10SM SCT023 30/25 A3000 RMK A01KATP2018-07-22T11:35:00Z27.2-90.0330.025.0051310.030.0TRUETRUEVFRMETAR62.02018-07-22 11:41:19 Å.WÅD©­=(5    3K21D 221135Z AUTO 02005KT 10SM OVC012 16/16 A3012 RMK AO2K21D2018-07-22T11:35:00Z45.0-92.8516.016.020510.030.121063TRUETRUEMVFRMETAR285.02018-07-22 11:41:19B©­<(}5    3K28J 221135Z AUTO 24006KT 7SM SCT110 26/26 A2988 RMK AO2K28J2018-07-22T11:35:00Z29.65-81.5826.026.024067.029.878937TRUETRUEVFRMETAR15.02018-07-22 11:41:19Q©­;)5    3K5M9 221135Z AUTO 31006KT 10SM OVC012 20/19 A2982 RMK AO2 T02020186K5M92018-07-22T11:35:00Z37.33-88.1220.218.6310610.029.819881TRUETRUEMVFRMETAR199.02018-07-22 11:41:19L©­:) 5    3K8W2 221135Z AUTO 23003KT 10SM CLR 19/17 A2977 RMK AO1 T01870171K8W22018-07-22T11:35:00Z38.65-78.718.717.1230310.029.769686TRUETRUEVFRMETAR297.02018-07-22 11:41:19 ¾5`¾L©­A)5   3KXLL 221135Z AUTO 19008G14KT 10SM OVC017 20/20 A2981 RMK AO2KXLL2018-07-22T11:35:00Z40.57-75.4820.020.019081410.029.811024TRUETRUEMVFRMETAR122.02018-07-22 11:41:19J©­@) 5    3PAAD 221135Z AUTO 12006KT 10SM CLR 07/06 A3014 RMK AO2 T00650062PAAD2018-07-22T11:35:00Z70.13-146.286.56.2120610.030.138779TRUETRUEVFRMETAR8.02018-07-22 11:41:19O©­?)5    3K0V4 221135Z AUTO 00000KT 10SM OVC003 20/20 A2978 RMK AO1 T02010200K0V42018-07-22T11:35:00Z37.15-79.0220.120.00010.029.778543TRUETRUELIFRMETAR182.02018-07-22 11:41:19E©­>(5    3K18H 221135Z AUTO 22011KT 10SM FEW027 29/23 A2999 RMK A01K18H2018-07-22T11:35:00Z26.13-92.0329.023.02201110.029.991142TRUETRUEVFRMETAR10.02018-07-22 11:41:19 ª-eŽª^©­E)'5   3KVYS 221135Z AUTO 35011G15KT 10SM SCT014 OVC019 21/20 A2987 RMK AO2 T02140195KVYS2018-07-22T11:35:00Z41.35-89.1521.419.5350111510.029.870079TRUETRUEMVFRMETAR199.02018-07-22 11:41:19Q©­D)5    3KW22 221135Z AUTO 00000KT 10SM FEW024 FEW085 OVC120 18/18 A2976 RMK AO2KW222018-07-22T11:35:00Z39.0-80.2718.018.00010.029.760826TRUETRUEVFRMETAR499.02018-07-22 11:41:19B©­C(y5    3KWDR 221135Z AUTO 28005KT 10SM CLR 22/20 A2984 RMK AO1KWDR2018-07-22T11:35:00Z33.98-83.6722.020.0280510.029.840551TRUETRUEVFRMETAR287.02018-07-22 11:41:19M©­B) 5    3KXBP 221135Z AUTO 25003KT 10SM CLR 26/14 A2994 RMK AO2 T02600135KXBP2018-07-22T11:35:00Z33.18-97.8326.013.5250310.029.940945TRUETRUEVFRMETAR260.02018-07-22 11:41:19 Ï7a£ÏN©­I)5    3KTNB 221135Z AUTO 00000KT 10SM OVC023 18/14 A2986 RMK AO2 T01760140KTNB2018-07-22T11:35:00Z36.2-81.6517.614.00010.029.861221TRUETRUEMVFRMETAR911.02018-07-22 11:41:198©­H(q5   3KTVK 221135Z AUTO 00000KT 10SM 17/17 A3003 RMK AO2KTVK2018-07-22T11:35:00Z40.68-92.917.017.00010.030.029528TRUETRUEMETAR314.02018-07-22 11:41:19P©­G) 5    3KU42 221135Z AUTO 16010KT 10SM CLR 22/16 A3017 RMK AO1 T02200161KU422018-07-22T11:35:00Z40.62-111.9822.016.11601010.030.171259TRUETRUEVFRMETAR1402.02018-07-22 11:41:19C©­F(5   3KULS 221135Z AUTO 14013G16KT 10SM CLR 19/17 A3000 RMK AO2KULS2018-07-22T11:35:00Z37.6-101.3719.017.0140131610.030.0TRUETRUEVFRMETAR936.02018-07-22 11:41:19 °,Wƒ°M©­M) 5    3KT35 221135Z AUTO 21007KT 10SM CLR 25/23 A2996 RMK AO2 T02450234KT352018-07-22T11:35:00Z30.88-96.9724.523.4210710.029.958662TRUETRUEVFRMETAR123.02018-07-22 11:41:19N©­L)5     3KTDF 221135Z AUTO 12006KT 10SM -DZ OVC004 19/19 A2978 RMK AO2KTDF2018-07-22T11:35:00Z36.28-78.9819.019.0120610.029.778543TRUETRUE-DZLIFRMETAR186.02018-07-22 11:41:19O©­K)5    3KTFP 221135Z AUTO 24005KT 10SM CLR 27/25 A2996 RMK AO2 T02710250 PNOKTFP2018-07-22T11:35:00Z27.92-97.2227.125.0240510.029.958662TRUETRUEVFRMETAR6.02018-07-22 11:41:19N©­J) 5    3KTIF 221135Z AUTO 14005KT 10SM CLR 21/19 A3008 RMK AO2 T02050192KTIF2018-07-22T11:35:00Z41.97-100.5720.519.2140510.030.079725TRUETRUEVFRMETAR892.02018-07-22 11:41:19 ­/Z„­Q©­Q)5    3KSTE 221135Z AUTO 35008KT 10SM OVC017 17/16 A3001 RMK AO2 T01660156KSTE2018-07-22T11:35:00Z44.55-89.5316.615.6350810.030.008858TRUETRUEMVFRMETAR338.02018-07-22 11:41:19P©­P) 5    3KSVC 221135Z AUTO 32012KT 10SM CLR 22/13 A3023 RMK AO2 T02160133KSVC2018-07-22T11:35:00Z32.63-108.1521.613.33201210.030.230314TRUETRUEVFRMETAR1659.02018-07-22 11:41:19O©­O) 5    3KSWW 221135Z AUTO 21011KT 10SM CLR 26/12 A3006 RMK AO2 T02630117KSWW2018-07-22T11:35:00Z32.47-100.4726.311.72101110.030.059055TRUETRUEVFRMETAR727.02018-07-22 11:41:19K©­N)5    3KT20 221135Z AUTO 00000KT 7SM SCT009 25/25 A2998 RMK AO2 T02500250KT202018-07-22T11:35:00Z29.52-97.4725.025.0007.029.97933TRUETRUEVFRMETAR108.02018-07-22 11:41:19 Å9gŽÅC©­U(y5    3KSEE 221135Z AUTO 28004KT 10SM CLR 20/18 A3001 RMK AO2KSEE2018-07-22T11:35:00Z32.82-116.9720.018.0280410.030.008858TRUETRUEVFRMETAR117.02018-07-22 11:41:19S©­T)5     3KSEF 221135Z AUTO 24005KT 5SM BR SCT001 26/25 A2993 RMK AO2 T02640248KSEF2018-07-22T11:35:00Z27.45-81.3526.424.824055.029.929134TRUETRUEBRMVFRMETAR19.02018-07-22 11:41:19L©­S) 5    3KSNL 221135Z AUTO 08004KT 10SM CLR 24/17 A2996 RMK AO2 T02350172KSNL2018-07-22T11:35:00Z35.35-96.9523.517.280410.029.958662TRUETRUEVFRMETAR327.02018-07-22 11:41:19A©­R(y5    3KSOA 221135Z AUTO 00000KT 10SM CLR 23/18 A3009 RMK AO2KSOA2018-07-22T11:35:00Z30.58-100.6523.018.00010.030.088583TRUETRUEVFRMETAR652.02018-07-22 11:41:19 ¦$T~¦R©­Y)5    3KRZL 221135Z AUTO 34004KT 7SM SCT007 BKN035 BKN080 20/17 A2979 RMK AO2KRZL2018-07-22T11:35:00Z40.95-87.1820.017.034047.029.790354TRUETRUEVFRMETAR213.02018-07-22 11:41:19P©­X)5    3KRZN 221135Z AUTO 06005KT 10SM OVC013 17/13 A3013 RMK AO2 T01680132KRZN2018-07-22T11:35:00Z45.82-92.3716.813.260510.030.129921TRUETRUEMVFRMETAR301.02018-07-22 11:41:19J©­W) 5    3KS52 221135Z AUTO 00000KT 10SM CLR 09/07 A3023 RMK AO2 T00910070KS522018-07-22T11:35:00Z48.38-120.159.17.00010.030.230314TRUETRUEVFRMETAR520.02018-07-22 11:41:19V©­V)!5    3KSBS 221135Z AUTO 00000KT 10SM SCT090 BKN120 17/09 A3036 RMK AO1 T01710087KSBS2018-07-22T11:35:00Z40.52-106.8717.18.70010.030.360237TRUETRUEVFRMETAR2096.02018-07-22 11:41:19 ´+Wl´2©­](m5     3KRNV 221135Z AUTO 01005KT 10SM CLR A2988 RMK AO2KRNV2018-07-22T11:35:00Z33.77-90.7510510.029.878937TRUETRUEVFRMETAR41.02018-07-22 11:41:19e©­\)55   3KRPJ 221135Z AUTO 35014G17KT 10SM SCT009 BKN018 OVC042 20/19 A2989 RMK AO2 T01950186KRPJ2018-07-22T11:35:00Z41.88-89.0819.518.6350141710.029.890747TRUETRUEMVFRMETAR238.02018-07-22 11:41:19N©­[)5    3KRUQ 221135Z AUTO 00000KT 10SM OVC006 20/20 A2975 RMK AO2 T02020202KRUQ2018-07-22T11:35:00Z35.65-80.5220.220.20010.029.749016TRUETRUEIFRMETAR236.02018-07-22 11:41:19O©­Z)5     3KRWV 221135Z AUTO 22005KT 5SM BR CLR 24/23 A2998 RMK AO2 T02380232KRWV2018-07-22T11:35:00Z30.52-96.723.823.222055.029.97933TRUETRUEBRMVFRMETAR119.02018-07-22 11:41:19 •*Qx•]©­a)/5    3KLVL 221135Z AUTO 17003KT 10SM SCT050 BKN070 OVC090 20/19 A2980 RMK AO1 T02010189KLVL2018-07-22T11:35:00Z36.78-77.820.118.9170310.029.799213TRUETRUEVFRMETAR100.02018-07-22 11:41:19S©­`)5     3KREG 221135Z AUTO 00000KT 7SM SCT012 26/25 A2994 RMK AO2 T02560252 TSNOKREG2018-07-22T11:35:00Z30.17-90.9325.625.2007.029.940945TRUETRUETRUEVFRMETAR4.02018-07-22 11:41:19S©­_)!5    3KRMN 221135Z AUTO 00000KT 10SM SCT001 SCT120 18/18 A2983 RMK AO2 T01840184KRMN2018-07-22T11:35:00Z38.4-77.4518.418.40010.029.828741TRUETRUEVFRMETAR65.02018-07-22 11:41:19P©­^)5    3KRNH 221135Z AUTO 06005KT 10SM OVC011 16/15 A3011 RMK AO2 T01550151KRNH2018-07-22T11:35:00Z45.15-92.5315.515.160510.030.109253TRUETRUEMVFRMETAR304.02018-07-22 11:41:19 ³Nz³A©­e(y5    3KL35 221135Z AUTO 00000KT 10SM CLR 10/07 A3036 RMK AO2KL352018-07-22T11:35:00Z34.27-116.8510.07.00010.030.360237TRUETRUEVFRMETAR2059.02018-07-22 11:41:19N©­d)5    3KLCK 221135Z AUTO 07008KT 10SM OVC006 19/19 A2971 RMK AO2 T01860187KLCK2018-07-22T11:35:00Z39.82-82.9218.618.770810.029.71063TRUETRUEIFRMETAR227.02018-07-22 11:41:19H©­c) 5    3KLGC 221135Z AUTO 00000KT 7SM CLR 21/20 A2984 RMK AO2 T02070204KLGC2018-07-22T11:35:00Z33.0-85.0720.720.4007.029.840551TRUETRUEVFRMETAR211.02018-07-22 11:41:19^©­b)/5    3KLKU 221135Z AUTO 14004KT 10SM SCT025 SCT100 BKN120 18/17 A2983 RMK AO2 T01790174KLKU2018-07-22T11:35:00Z38.02-77.9717.917.4140410.029.828741TRUETRUEVFRMETAR150.02018-07-22 11:41:19 Ú8ŸÚ?©­i(y5    3KJGG 221135Z AUTO 00000KT 10SM CLR 22/21 A2980 RMK AO1KJGG2018-07-22T11:35:00Z37.23-76.7222.021.00010.029.799213TRUETRUEVFRMETAR15.02018-07-22 11:41:19\©­h))5   3KJKA 221135Z AUTO 29013G18KT 270V340 10SM SCT017 28/25 A2988 RMK AO2 T02800254KJKA2018-07-22T11:35:00Z30.28-87.6728.025.4290131810.029.878937TRUETRUEVFRMETAR5.02018-07-22 11:41:191©­g(m5     3KJXI 221135Z AUTO 00000KT 10SM CLR A2994 RMK AO2KJXI2018-07-22T11:35:00Z32.7-94.950010.029.940945TRUETRUEVFRMETAR127.02018-07-22 11:41:19B©­f(y5    3KJYO 221135Z AUTO 15004KT 10SM CLR 15/15 A2980 RMK AO2KJYO2018-07-22T11:35:00Z39.07-77.5715.015.0150410.029.799213TRUETRUEVFRMETAR119.02018-07-22 11:41:19 ” 8g”M©­m) 5    3KIWA 221135Z AUTO 21003KT 10SM CLR 28/15 A2997 RMK AO2 T02830145KIWA2018-07-22T11:35:00Z33.3-111.6528.314.5210310.029.970472TRUETRUEVFRMETAR412.02018-07-22 11:41:19K©­l) 5    3KIYA 221135Z AUTO 24004KT 10SM CLR 26/26 A2995 RMK AO2 T02590259KIYA2018-07-22T11:35:00Z29.98-92.0825.925.9240410.029.949802TRUETRUEVFRMETAR5.02018-07-22 11:41:19N©­k)5    3KJAQ 221135Z AUTO 09006KT 10SM BKN110 20/06 A3006 RMK AO1 T01990064KJAQ2018-07-22T11:35:00Z38.37-120.819.96.490610.030.059055TRUETRUEVFRMETAR512.02018-07-22 11:41:19n©­j)E5      3KJFZ 221135Z AUTO 00000KT 3/4SM +RA BKN003 BKN013 OVC019 17/16 A2983 RMK AO2 P0011 T01650162KJFZ2018-07-22T11:35:00Z37.07-81.816.516.2000.7529.828741TRUETRUE+RALIFR0.11METAR809.02018-07-22 11:41:19 Ÿ-VŸj©­q)75     3KHTO 221135Z AUTO 13011G15KT 5SM BR SCT019 OVC029 21/20 A2995 RMK AO2 P0003 T02100200KHTO2018-07-22T11:35:00Z40.95-72.2521.020.013011155.029.949802TRUETRUEBRMVFR0.03METAR17.02018-07-22 11:41:19A©­p(y5    3KHVS 221135Z AUTO 24003KT 10SM CLR 21/21 A2977 RMK AO2KHVS2018-07-22T11:35:00Z34.4-80.1221.021.0240310.029.769686TRUETRUEVFRMETAR111.02018-07-22 11:41:19Q©­o)5     3KI75 221135Z AUTO 32005KT 5SM BR CLR 18/17 A3003 RMK AO2 T01750166KI752018-07-22T11:35:00Z41.05-93.6817.516.632055.030.029528TRUETRUEBRMVFRMETAR339.02018-07-22 11:41:19M©­n) 5    3KIOB 221135Z AUTO 26005KT 10SM BKN009 OVC013 20/19 A2973 RMK AO2KIOB2018-07-22T11:35:00Z38.05-83.9820.019.0260510.029.731298TRUETRUEIFRMETAR311.02018-07-22 11:41:19 “!,b“I©­u) 5    3KHJH 221135Z AUTO 00000KT 7SM CLR 19/18 A3007 RMK AO2 T01870178KHJH2018-07-22T11:35:00Z40.15-97.5818.717.8007.030.070866TRUETRUEVFRMETAR447.02018-07-22 11:41:19D©­t)5   3KHMP 221135Z AUTO 00000KT 10SM 19/17 A2984 RMK AO2 T01860172KHMP2018-07-22T11:35:00Z33.38-84.3318.617.20010.029.840551TRUETRUEMETAR269.02018-07-22 11:41:19o©­s)C5      3KHNZ 221135Z AUTO 16004KT 10SM -RA SCT004 SCT023 BKN120 19/18 A2978 RMK AO2 P0004 T01860180KHNZ2018-07-22T11:35:00Z36.37-78.5318.618.0160410.029.778543TRUETRUE-RAVFR0.04METAR161.02018-07-22 11:41:19Y©­r)5     3KHRJ 221135Z AUTO 12004KT 10SM SCT003 20/20 A2975 RMK AO2 P0001 T02040204KHRJ2018-07-22T11:35:00Z35.38-78.7320.420.4120410.029.749016TRUETRUEVFR0.01METAR60.02018-07-22 11:41:19 ×9rŸ×B©­y(y5    3KHCR 221135Z AUTO 00000KT 10SM CLR 16/13 A3026 RMK AO2KHCR2018-07-22T11:35:00Z40.48-111.4316.013.00010.030.259842TRUETRUEVFRMETAR1706.02018-07-22 11:41:19M©­x) 5    3KHDE 221135Z AUTO 12004KT 10SM CLR 19/18 A3007 RMK AO2 T01860180KHDE2018-07-22T11:35:00Z40.45-99.3218.618.0120410.030.070866TRUETRUEVFRMETAR705.02018-07-22 11:41:19A©­w)5      3KHHG 221135Z AUTO 02003KT 5SM HZ BKN007 OVC012 A2975 RMK AO2KHHG2018-07-22T11:35:00Z40.85-85.452035.029.749016TRUETRUEHZIFRMETAR246.02018-07-22 11:41:19A©­v(y5    3KHII 221135Z AUTO 00000KT 10SM CLR 28/18 A2995 RMK AO2KHII2018-07-22T11:35:00Z34.57-114.3728.018.00010.029.949802TRUETRUEVFRMETAR238.02018-07-22 11:41:19 Ç/\‹Ç>©­}(y5    3KGOP 221135Z AUTO 00000KT 10SM CLR 26/22 A2998 RMK AO2KGOP2018-07-22T11:35:00Z31.42-97.826.022.00010.029.97933TRUETRUEVFRMETAR276.02018-07-22 11:41:19K©­|) 5    3KGPC 221135Z AUTO 33006KT 7SM BKN007 OVC012 20/18 A2976 RMK AO2KGPC2018-07-22T11:35:00Z39.63-86.8220.018.033067.029.760826TRUETRUEIFRMETAR257.02018-07-22 11:41:19M©­{) 5    3KGRN 221135Z AUTO 16006KT 10SM CLR 21/20 A3002 RMK AO2 T02110195KGRN2018-07-22T11:35:00Z42.8-102.1721.119.5160610.030.02067TRUETRUEVFRMETAR1086.02018-07-22 11:41:19K©­z) 5    3KGYI 221135Z AUTO 00000KT 10SM CLR 25/17 A2994 RMK AO2 T02530165KGYI2018-07-22T11:35:00Z33.72-96.6725.316.50010.029.940945TRUETRUEVFRMETAR228.02018-07-22 11:41:19 Å7g˜ÅM©®) 5     3KGGP 221135Z AUTO 01003KT 7SM OVC006 20/19 A2977 RMK AO2 P0001KGGP2018-07-22T11:35:00Z40.72-86.3720.019.01037.029.769686TRUETRUEIFR0.01METAR225.02018-07-22 11:41:19I©®)5     3KGHG 221135Z AUTO 13007KT 1/2SM BR OVC001 20/20 A3007 RMK AO2KGHG2018-07-22T11:35:00Z42.1-70.6720.020.013070.530.070866TRUETRUEBRLIFRMETAR4.02018-07-22 11:41:19J©­) 5    3KGLE 221135Z AUTO 00000KT 10SM CLR 23/16 A2994 RMK AO2 T02340157KGLE2018-07-22T11:35:00Z33.65-97.223.415.70010.029.940945TRUETRUEVFRMETAR256.02018-07-22 11:41:19C©­~(5    3KGOO 221135Z AUTO 00000KT 10SM SCT090 23/13 A3012 RMK AO1KGOO2018-07-22T11:35:00Z39.22-121.023.013.00010.030.121063TRUETRUEVFRMETAR962.02018-07-22 11:41:19 ¼+]¼M©®) 5    3KPXE 221135Z AUTO 27004KT 10SM CLR 21/20 A2981 RMK AO2 T02140205KPXE2018-07-22T11:35:00Z32.52-83.7721.420.5270410.029.811024TRUETRUEVFRMETAR127.02018-07-22 11:41:19H©®) 5    3KRAS 221135Z AUTO 19008KT 7SM CLR 26/25 A2998 RMK AO2 T02630252KRAS2018-07-22T11:35:00Z27.82-97.0826.325.219087.029.97933TRUETRUEVFRMETAR2.02018-07-22 11:41:19H©®)5     3KRCR 221135Z AUTO 02006KT 3SM BR OVC006 21/21 A2977 RMK AO2KRCR2018-07-22T11:35:00Z41.07-86.1821.021.02063.029.769686TRUETRUEBRIFRMETAR241.02018-07-22 11:41:19O©®)5    3KRCV 221135Z AUTO 00000KT 10SM BKN110 14/09 A3045 RMK AO2 T01400086KRCV2018-07-22T11:35:00Z37.72-106.3514.08.60010.030.448818TRUETRUEVFRMETAR2424.02018-07-22 11:41:19 ¹,`Ž¹O©® )5     3KPRO 221135Z AUTO 00000KT 4SM BR CLR 16/16 A3006 RMK AO2 T01590159KPRO2018-07-22T11:35:00Z41.83-94.1715.915.9004.030.059055TRUETRUEBRMVFRMETAR308.02018-07-22 11:41:19L©®) 5    3KPSN 221135Z AUTO 19005KT 10SM CLR 25/22 A2995 RMK AO2 T02480220KPSN2018-07-22T11:35:00Z31.78-95.724.822.0190510.029.949802TRUETRUEVFRMETAR129.02018-07-22 11:41:19F©®(5    3KPVF 221135Z AUTO 11005KT 10SM BKN090 22/13 A3011 RMK AO1KPVF2018-07-22T11:35:00Z38.72-120.7522.013.0110510.030.109253TRUETRUEVFRMETAR789.02018-07-22 11:41:19N©®) 5    3KPVW 221135Z AUTO 24006KT 10SM CLR 18/09 A3009 RMK AO2 T01820087KPVW2018-07-22T11:35:00Z34.17-101.7218.28.7240610.030.088583TRUETRUEVFRMETAR1028.02018-07-22 11:41:19 ¹-Z{¹<©® (w5    3KPMU 221135Z AUTO 00000KT 9SM CLR 21/21 A2988 RMK AO2KPMU2018-07-22T11:35:00Z34.37-89.921.021.0009.029.878937TRUETRUEVFRMETAR67.02018-07-22 11:41:19Y©® )%5     3KPPO 221135Z AUTO 02008KT 4SM BR BKN007 OVC075 20/19 A2980 RMK AO2 T02000191KPPO2018-07-22T11:35:00Z41.57-86.7320.019.12084.029.799213TRUETRUEBRIFRMETAR248.02018-07-22 11:41:19M©® ) 5    3KPPQ 221135Z AUTO 34006KT 10SM CLR 19/18 A2992 RMK AO2 T01920182KPPQ2018-07-22T11:35:00Z39.63-90.7819.218.2340610.029.920275TRUETRUEVFRMETAR216.02018-07-22 11:41:19M©® )5    3KPRG 221135Z AUTO 33006KT 7SM OVC007 20/19 A2979 RMK AO2 T01980190KPRG2018-07-22T11:35:00Z39.7-87.6719.819.033067.029.790354TRUETRUEIFRMETAR199.02018-07-22 11:41:19 Ç;g‹Ç>©®(w5    3KPCM 221135Z AUTO 23004KT 7SM CLR 28/26 A2995 RMK AO2KPCM2018-07-22T11:35:00Z28.0-82.1728.026.023047.029.949802TRUETRUEVFRMETAR47.02018-07-22 11:41:19V©®)5   3KPDC 221135Z AUTO 36008G14KT 10SM OVC016 19/15 A3001 RMK AO2 T01900147KPDC2018-07-22T11:35:00Z43.02-91.1219.014.736081410.030.008858TRUETRUEMVFRMETAR201.02018-07-22 11:41:19N©®)5     3KPEZ 221135Z AUTO 00000KT 4SM BR CLR 24/24 A2998 RMK AO2 T02360236KPEZ2018-07-22T11:35:00Z28.95-98.5223.623.6004.029.97933TRUETRUEBRMVFRMETAR132.02018-07-22 11:41:19?©®(y5    3KPLU 221135Z AUTO 00000KT 10SM CLR 10/09 A3020 RMK AO2KPLU2018-07-22T11:35:00Z47.1-122.2810.09.00010.030.200787TRUETRUEVFRMETAR164.02018-07-22 11:41:19 µXµU©®)!5    3KOXI 221135Z AUTO 02006KT 2 1/2SM SCT006 SCT041 BKN090 20/18 A2978 RMK AO1KOXI2018-07-22T11:35:00Z41.33-86.6720.018.02062.529.778543TRUETRUEIFRMETAR209.02018-07-22 11:41:19B©®(y5    3KOZA 221135Z AUTO 20008KT 10SM CLR 22/13 A3008 RMK AO2KOZA2018-07-22T11:35:00Z30.73-101.222.013.0200810.030.079725TRUETRUEVFRMETAR726.02018-07-22 11:41:19A©®(y5    3KOZS 221135Z AUTO 31006KT 10SM CLR 19/18 A2998 RMK AO2KOZS2018-07-22T11:35:00Z37.97-92.6819.018.0310610.029.97933TRUETRUEVFRMETAR324.02018-07-22 11:41:19[©®))5     3KPBX 221135Z AUTO 00000KT 1/2SM FG BKN001 OVC009 19/19 A2975 RMK AO2 T01880188KPBX2018-07-22T11:35:00Z37.57-82.5718.818.8000.529.749016TRUETRUEFGLIFRMETAR449.02018-07-22 11:41:19 Æ0i™ÆM©®) 5    3KONL 221135Z AUTO 14006KT 10SM CLR 20/18 A3007 RMK AO2 T01970180KONL2018-07-22T11:35:00Z42.47-98.6719.718.0140610.030.070866TRUETRUEVFRMETAR619.02018-07-22 11:41:19J©®) 5    3KOOA 221135Z AUTO 33005KT 7SM CLR 17/16 A3001 RMK AO2 T01670162KOOA2018-07-22T11:35:00Z41.23-92.516.716.233057.030.008858TRUETRUEVFRMETAR256.02018-07-22 11:41:19A©®(y5    3KOPN 221135Z AUTO 31003KT 10SM CLR 22/18 A2985 RMK AO2KOPN2018-07-22T11:35:00Z32.95-84.2722.018.0310310.029.84941TRUETRUEVFRMETAR243.02018-07-22 11:41:19J©®) 5    3KOSA 221135Z AUTO 00000KT 10SM CLR 23/19 A2993 RMK AO1 T02320193KOSA2018-07-22T11:35:00Z33.1-94.9723.219.30010.029.929134TRUETRUEVFRMETAR111.02018-07-22 11:41:19 ¾+Y’¾N©®) 5    3KOGA 221135Z AUTO 10005KT 10SM CLR 21/19 A3007 RMK AO2 T02050193KOGA2018-07-22T11:35:00Z41.12-101.7720.519.3100510.030.070866TRUETRUEVFRMETAR999.02018-07-22 11:41:19A©®(y5    3KOJA 221135Z AUTO 10004KT 10SM CLR 23/20 A2998 RMK AO2KOJA2018-07-22T11:35:00Z35.55-98.6723.020.0100410.029.97933TRUETRUEVFRMETAR490.02018-07-22 11:41:19L©®) 5    3KOKM 221135Z AUTO 03005KT 10SM CLR 20/20 A2996 RMK AO2 T02040204KOKM2018-07-22T11:35:00Z35.67-95.9520.420.430510.029.958662TRUETRUEVFRMETAR220.02018-07-22 11:41:19O©®)5    3KOLY 221135Z AUTO 30007KT 7SM OVC012 20/19 A2981 RMK AO2 T02010189KOLY2018-07-22T11:35:00Z38.72-88.1820.118.930077.029.811024TRUETRUEMVFRMETAR147.02018-07-22 11:41:19 ©-Vz©K©®!)5     3KMQS 221135Z AUTO VRB04KT 1/4SM FG OVC001 18/18 A2982 RMK AO2KMQS2018-07-22T11:35:00Z39.98-75.8718.018.0040.2529.819881TRUETRUEFGLIFRMETAR201.02018-07-22 11:41:19V©® )!5    3KMWO 221135Z AUTO 01004KT 10SM SCT008 OVC014 20/19 A2970 RMK AO2 T02020192KMWO2018-07-22T11:35:00Z39.53-84.420.219.210410.029.698818TRUETRUEMVFRMETAR198.02018-07-22 11:41:19Q©®)5   3KN03 221135Z AUTO 09009G17KT 10SM SCT019 OVC028 18/16 A2976 RMK AO2KN032018-07-22T11:35:00Z42.6-76.2218.016.09091710.029.760826TRUETRUEMVFRMETAR366.02018-07-22 11:41:19M©®)5    3KOCQ 221135Z AUTO 01006KT 7SM OVC007 18/17 A2996 RMK AO1 T01750168KOCQ2018-07-22T11:35:00Z44.87-87.9217.516.81067.029.958662TRUETRUEIFRMETAR183.02018-07-22 11:41:19 Û0{¨ÛG©®%) 5      3KCXE 221135Z AUTO 00000KT 10SM SCT003 OVC016 A2979 RMK AO1 P0001KCXE2018-07-22T11:35:00Z36.78-78.50010.029.790354TRUETRUEMVFR0.01METAR153.02018-07-22 11:41:19M©®$) 5    3KM30 221135Z AUTO 29004KT 10SM CLR 20/19 A2984 RMK AO2 T02030189KM302018-07-22T11:35:00Z37.18-88.7520.318.9290410.029.840551TRUETRUEVFRMETAR117.02018-07-22 11:41:19/©®#(k5     3KMEZ 221135Z AUTO 00000KT 7SM CLR A2997 RMK AO2KMEZ2018-07-22T11:35:00Z34.55-94.2007.029.970472TRUETRUEVFRMETAR329.02018-07-22 11:41:19J©®") 5    3KMLE 221135Z AUTO 00000KT 10SM CLR 20/18 A3004 RMK AO2 T02020181KMLE2018-07-22T11:35:00Z41.2-96.1220.218.10010.030.041338TRUETRUEVFRMETAR320.02018-07-22 11:41:19 ª3S‰ªY©®))-5    3KCPK 221135Z AUTO 00000KT 7SM SCT006 BKN010 OVC018 22/21 A2980 RMK AO2 T02200211KCPK2018-07-22T11:35:00Z36.67-76.3222.021.1007.029.799213TRUETRUEMVFRMETAR6.02018-07-22 11:41:19D©®((5    3KCQF 221135Z AUTO 27003KT 10SM SCT013 27/27 A2989 RMK AO2KCQF2018-07-22T11:35:00Z30.47-87.8827.027.0270310.029.890747TRUETRUEVFRMETAR28.02018-07-22 11:41:19Z©®')/5      3KCTY 221135Z AUTO 20004KT 5SM HZ SCT018 BKN027 BKN032 27/ A2986 RMK AO2 T0274////KCTY2018-07-22T11:35:00Z29.63-83.127.420045.029.861221TRUETRUEHZMVFRMETAR13.02018-07-22 11:41:19G©®&)5    3KCVC 221135Z AUTO 29003KT 10SM CLR 22/20 A2982 RMK AO2 PNOKCVC2018-07-22T11:35:00Z33.63-83.8522.020.0290310.029.819881TRUETRUEVFRMETAR247.02018-07-22 11:41:19 ¼.[“¼Q©®-)5    3KC09 221135Z AUTO 34004KT 10SM OVC030 21/19 A2983 RMK AO2 T02050193KC092018-07-22T11:35:00Z41.43-88.4220.519.3340410.029.828741TRUETRUEMVFRMETAR178.02018-07-22 11:41:19B©®,(y5    3KCEY 221135Z AUTO 26007KT 10SM CLR 20/20 A2983 RMK AO1KCEY2018-07-22T11:35:00Z36.67-88.3720.020.0260710.029.828741TRUETRUEVFRMETAR176.02018-07-22 11:41:19M©®+)5    3KCJR 221135Z AUTO 00000KT 10SM SCT003 17/16 A2980 RMK AO2 T01720164KCJR2018-07-22T11:35:00Z38.53-77.8717.216.40010.029.799213TRUETRUEVFRMETAR97.02018-07-22 11:41:19L©®*) 5    3KCOM 221135Z AUTO 23004KT 10SM CLR 25/15 A3001 RMK AO2 T02470150KCOM2018-07-22T11:35:00Z31.83-99.424.715.0230410.030.008858TRUETRUEVFRMETAR517.02018-07-22 11:41:19 ÓBpÓD©®1)5   3KBDG 221135Z AUTO 00000KT 10SM 18/08 A3033 RMK AO1 T01840081KBDG2018-07-22T11:35:00Z37.58-109.4718.48.10010.030.33071TRUETRUEMETAR1788.02018-07-22 11:41:19M©®0) 5    3KBKD 221135Z AUTO 21004KT 10SM CLR 25/14 A2996 RMK AO2 T02510140KBKD2018-07-22T11:35:00Z32.72-98.8825.114.0210410.029.958662TRUETRUEVFRMETAR392.02018-07-22 11:41:19L©®/) 5    3KBQP 221135Z AUTO 25004KT 10SM CLR 26/23 A2989 RMK AO2 T02590227KBQP2018-07-22T11:35:00Z32.75-91.8825.922.7250410.029.890747TRUETRUEVFRMETAR51.02018-07-22 11:41:198©®.(w5    3KBWD 221135Z AUTO 00000KT 8SM CLR 20/13 A3000 RMK AO2KBWD2018-07-22T11:35:00Z31.8-98.9520.013.0008.030.0TRUETRUEVFRMETAR423.02018-07-22 11:41:19 Å+ZŠÅ?©®5(y5    3KAQR 221135Z AUTO 00000KT 10SM CLR 23/21 A2993 RMK AO2KAQR2018-07-22T11:35:00Z34.4-96.1523.021.00010.029.929134TRUETRUEVFRMETAR189.02018-07-22 11:41:19J©®4)5     3KAXV 221135Z AUTO 04005KT 3/4SM BR OVC002 18/18 A2975 RMK AO2KAXV2018-07-22T11:35:00Z40.5-84.318.018.04050.7529.749016TRUETRUEBRLIFRMETAR279.02018-07-22 11:41:19K©®3) 5    3KAXX 221135Z AUTO 00000KT 10SM CLR 04/03 A3050 RMK AO2 T00420029KAXX2018-07-22T11:35:00Z36.42-105.284.22.90010.030.499016TRUETRUEVFRMETAR2548.02018-07-22 11:41:19O©®2)5    3KAYS 221135Z AUTO 24003KT 10SM BKN019 25/23 A2982 RMK AO2 T02510234KAYS2018-07-22T11:35:00Z31.25-82.425.123.4240310.029.819881TRUETRUEMVFRMETAR46.02018-07-22 11:41:19 »)aŽ»M©®9) 5    3K9V9 221135Z AUTO 11006KT 10SM CLR 20/20 A3006 RMK AO2 T02040204K9V92018-07-22T11:35:00Z43.77-99.3220.420.4110610.030.059055TRUETRUEVFRMETAR519.02018-07-22 11:41:19M©®8) 5    3KAEG 221135Z AUTO 36008KT 10SM CLR 20/05 A3026 RMK AO2 T01950045KAEG2018-07-22T11:35:00Z35.13-106.819.54.5360810.030.259842TRUETRUEVFRMETAR1779.02018-07-22 11:41:19B©®7(}5    3KAJZ 221135Z AUTO 10SM CLR 23/10 A3022 RMK AO2 T02250101KAJZ2018-07-22T11:35:00Z38.78-108.0722.510.110.030.221457TRUETRUEVFRMETAR1583.02018-07-22 11:41:19Q©®6)5    3KALN 221135Z AUTO 32007KT 10SM OVC010 20/19 A2988 RMK AO2 T01950189KALN2018-07-22T11:35:00Z38.88-90.0319.518.9320710.029.878937TRUETRUEMVFRMETAR166.02018-07-22 11:41:19 µ)X†µK©®=) 5    3K6P9 221135Z AUTO 23007KT 10SM CLR 25/15 A2998 RMK AO2 T02460151K6P92018-07-22T11:35:00Z32.43-98.624.615.1230710.029.97933TRUETRUEVFRMETAR449.02018-07-22 11:41:19L©®<)5    3K6R3 221135Z AUTO 25003KT 7SM SCT013 25/23 A2997 RMK AO2 T02500234K6R32018-07-22T11:35:00Z30.35-95.025.023.425037.029.970472TRUETRUEVFRMETAR46.02018-07-22 11:41:19K©®;) 5    3K7W6 221135Z AUTO 16007KT 10SM CLR 26/24 A2981 RMK AO2 T02590243K7W62018-07-22T11:35:00Z35.55-75.9525.924.3160710.029.811024TRUETRUEVFRMETAR2.02018-07-22 11:41:19Q©®:)5    3K82C 221135Z AUTO 32004KT 7SM BKN017 OVC050 17/16 A3000 RMK AO2 T01700155K82C2018-07-22T11:35:00Z43.83-90.1317.015.532047.030.0TRUETRUEMVFRMETAR276.02018-07-22 11:41:19 µ.E}µB©®A(y5    3K3K3 221135Z AUTO 07005KT 10SM CLR 18/17 A3004 RMK AO2K3K32018-07-22T11:35:00Z38.0-101.7518.017.070510.030.041338TRUETRUEVFRMETAR1013.02018-07-22 11:41:19B©®@(y5    3K4S2 221135Z AUTO 18004KT 10SM CLR 12/07 A3016 RMK AO2K4S22018-07-22T11:35:00Z45.68-121.5512.07.0180410.030.159449TRUETRUEVFRMETAR192.02018-07-22 11:41:19c©®?)15      3K57C 221135Z AUTO 34006KT 3SM DZ BKN006 OVC010 19/18 A2989 RMK AO2 P0002 T01850180K57C2018-07-22T11:35:00Z42.8-88.3718.518.034063.029.890747TRUETRUEDZIFR0.02METAR262.02018-07-22 11:41:19L©®>)5    3K5A6 221135Z AUTO 00000KT 7SM BKN060 23/23 A2987 RMK AO2 T02330233K5A62018-07-22T11:35:00Z33.47-89.7323.323.3007.029.870079TRUETRUEVFRMETAR111.02018-07-22 11:41:19 Ê9j£ÊS©®E)5     3K2P2 221135Z AUTO 02011KT 5SM RA OVC006 16/16 A2997 RMK AO2 T01600157K2P22018-07-22T11:35:00Z45.38-86.9216.015.720115.029.970472TRUETRUERAIFRMETAR199.02018-07-22 11:41:19A©®D(y5    3K3AU 221135Z AUTO 04003KT 10SM CLR 21/17 A3003 RMK AO2K3AU2018-07-22T11:35:00Z37.67-97.0821.017.040310.030.029528TRUETRUEVFRMETAR405.02018-07-22 11:41:19I©®C) 5    3K3F3 221135Z AUTO 00000KT 10SM CLR 25/23 A2998 RMK AO2 T02520230K3F32018-07-22T11:35:00Z32.07-93.7725.223.00010.029.97933TRUETRUEVFRMETAR96.02018-07-22 11:41:19A©®B(y5    3K3J7 221135Z AUTO 25004KT 10SM CLR 22/21 A2978 RMK AO2K3J72018-07-22T11:35:00Z33.6-83.1322.021.0250410.029.778543TRUETRUEVFRMETAR206.02018-07-22 11:41:19 ¿4c”¿O©®I)5    3K17J 221135Z AUTO 27003KT 10SM SCT050 25/24 A2984 RMK AO2 T02510239K17J2018-07-22T11:35:00Z31.07-84.9225.123.9270310.029.840551TRUETRUEVFRMETAR45.02018-07-22 11:41:19I©®H) 5    3K1A5 221135Z AUTO 00000KT 7SM CLR 17/17 A2984 RMK AO2 T01710165K1A52018-07-22T11:35:00Z35.22-83.4217.116.5007.029.840551TRUETRUEVFRMETAR616.02018-07-22 11:41:19K©®G) 5    3K1K1 221135Z AUTO 00000KT 10SM CLR 22/18 A3003 RMK AO2 T02150178K1K12018-07-22T11:35:00Z37.77-97.1221.517.80010.030.029528TRUETRUEVFRMETAR416.02018-07-22 11:41:19F©®F(5    3K2G9 221135Z AUTO 20005KT 10SM OVC003 14/14 A2979 RMK AO2K2G92018-07-22T11:35:00Z40.03-79.0214.014.0200510.029.790354TRUETRUELIFRMETAR693.02018-07-22 11:41:19 ¯.T‘¯\©®M)/5    3KFVX 221135Z AUTO 00000KT 10SM SCT012 SCT032 OVC043 20/19 A2978 RMK AO2 T01990187KFVX2018-07-22T11:35:00Z37.35-78.4219.918.70010.029.778543TRUETRUEVFRMETAR125.02018-07-22 11:41:19=©®L(}5      3KFZG 221135Z AUTO 00000KT 7SM OVC007 A2984 RMK AO2 PWINOKFZG2018-07-22T11:35:00Z31.68-83.27007.029.840551TRUETRUETRUEIFRMETAR111.02018-07-22 11:41:19T©®K)5     3KGBG 221135Z AUTO 30005KT 5SM BR OVC012 17/17 A2994 RMK AO2 T01740171KGBG2018-07-22T11:35:00Z40.93-90.4317.417.130055.029.940945TRUETRUEBRMVFRMETAR233.02018-07-22 11:41:19L©®J)5    3K11R 221135Z AUTO 24003KT 7SM SCT013 26/25 A2998 RMK AO2 T02570249K11R2018-07-22T11:35:00Z30.22-96.3725.724.924037.029.97933TRUETRUEVFRMETAR94.02018-07-22 11:41:19 ’#Ol’T©®Q)!5    3KFKN 221135Z AUTO 10003KT 10SM BKN008 OVC016 21/20 A2980 RMK AO2 T02090200KFKN2018-07-22T11:35:00Z36.7-76.920.920.0100310.029.799213TRUETRUEIFRMETAR12.02018-07-22 11:41:19]©®P)#5      3KFKR 221135Z AUTO 36006KT 3SM BR OVC005 21/20 A2977 RMK AO2 P0001 T02120196KFKR2018-07-22T11:35:00Z40.27-86.5721.219.636063.029.769686TRUETRUEBRIFR0.01METAR262.02018-07-22 11:41:19N©®O) 5    3KFMM 221135Z AUTO 23003KT 10SM CLR 16/14 A3010 RMK AO2 T01610137KFMM2018-07-22T11:35:00Z40.33-103.816.113.7230310.030.100393TRUETRUEVFRMETAR1393.02018-07-22 11:41:19W©®N)5   3KFOA 221135Z AUTO 31010G15KT 10SM OVC012 21/20 A2982 RMK AO2 T02120196KFOA2018-07-22T11:35:00Z38.67-88.4521.219.6310101510.029.819881TRUETRUEMVFRMETAR144.02018-07-22 11:41:19 Å8h—ŁL©®U) 5    3KEZM 221135Z AUTO 29004KT 10SM CLR 25/24 A2984 RMK AO2 T02520240KEZM2018-07-22T11:35:00Z32.22-83.1325.224.0290410.029.840551TRUETRUEVFRMETAR93.02018-07-22 11:41:19K©®T) 5    3KEZZ 221135Z AUTO 33005KT 7SM CLR 17/16 A3003 RMK AO2 T01660160KEZZ2018-07-22T11:35:00Z39.72-94.2816.616.033057.030.029528TRUETRUEVFRMETAR317.02018-07-22 11:41:19J©®S) 5    3KF17 221135Z AUTO 00000KT 10SM CLR 25/22 A2995 RMK AO2 T02480224KF172018-07-22T11:35:00Z31.83-94.1524.822.40010.029.949802TRUETRUEVFRMETAR97.02018-07-22 11:41:19B©®R(y5    3KF44 221135Z AUTO 23003KT 10SM CLR 26/22 A2992 RMK AO2KF442018-07-22T11:35:00Z32.17-95.8326.022.0230310.029.920275TRUETRUEVFRMETAR135.02018-07-22 11:41:19 Å=h˜ÅM©®Y)5    3KELA 221135Z AUTO 24005KT 7SM BKN014 26/24 A2997 RMK AO2 T02640244KELA2018-07-22T11:35:00Z29.6-96.3226.424.424057.029.970472TRUETRUEMVFRMETAR56.02018-07-22 11:41:19J©®X) 5    3KELK 221135Z AUTO 07006KT 10SM CLR 23/21 A2998 RMK AO2 T02310205KELK2018-07-22T11:35:00Z35.43-99.423.120.570610.029.97933TRUETRUEVFRMETAR610.02018-07-22 11:41:19O©®W)5    3KEMV 221135Z AUTO 06003KT 10SM OVC006 20/18 A2980 RMK AO2 LTG DSNT SKEMV2018-07-22T11:35:00Z36.68-77.4820.018.060310.029.799213TRUETRUEIFRMETAR39.02018-07-22 11:41:19=©®V({5      3KEQA 221135Z AUTO 08008KT 10SM -RA SCT110 A3001 RMK AO2KEQA2018-07-22T11:35:00Z37.78-96.8280810.030.008858TRUETRUE-RAVFRMETAR420.02018-07-22 11:41:19 ½)V½J©®]) 5    3KEBG 221135Z AUTO 14004KT 7SM CLR 25/24 A2996 RMK AO2 T02530235KEBG2018-07-22T11:35:00Z26.45-98.1325.323.514047.029.958662TRUETRUEVFRMETAR24.02018-07-22 11:41:19C©®\(y5    3KECS 221135Z AUTO 01006KT 10SM CLR 16/15 A3006 RMK AO2KECS2018-07-22T11:35:00Z43.88-104.3216.015.010610.030.059055TRUETRUEVFRMETAR1273.02018-07-22 11:41:19M©®[) 5    3KEFK 221135Z AUTO 24003KT 10SM CLR 14/13 A3012 RMK AO2 T01360125KEFK2018-07-22T11:35:00Z44.88-72.2313.612.5240310.030.121063TRUETRUEVFRMETAR284.02018-07-22 11:41:19Q©®Z)5     3KEHO 221135Z AUTO 00000KT 1SM BR OVC002 19/19 A2976 RMK AO2 T01890189KEHO2018-07-22T11:35:00Z35.25-81.618.918.9001.029.760826TRUETRUEBRLIFRMETAR258.02018-07-22 11:41:19 ÕFqœÕA©®a(}5    3KDVO 221135Z AUTO 00000KT 9SM BKN014 16/13 A3005 RMK AO2KDVO2018-07-22T11:35:00Z38.15-122.5516.013.0009.030.050198TRUETRUEMVFRMETAR1.02018-07-22 11:41:19O©®`)5    3KDWX 221135Z AUTO 01004KT 10SM OVC100 19/09 A3034 RMK AO2 T01900093KDWX2018-07-22T11:35:00Z41.03-107.519.09.310410.030.339567TRUETRUEVFRMETAR1996.02018-07-22 11:41:19O©®_) 5    3KE38 221135Z AUTO 22004KT 10SM CLR 19/12 A3021 RMK AO2 T01930116KE382018-07-22T11:35:00Z30.38-103.6819.311.6220410.030.209646TRUETRUEVFRMETAR1376.02018-07-22 11:41:194©®^(m5     3KEAN 221135Z AUTO 00000KT 10SM CLR A3009 RMK AO2KEAN2018-07-22T11:35:00Z42.05-104.930010.030.088583TRUETRUEVFRMETAR1456.02018-07-22 11:41:19 Ë.e¢ËQ©®e)5     3KDNV 221135Z AUTO 33009KT 5SM BR OVC008 20/20 A2977 RMK AO2 T01990199KDNV2018-07-22T11:35:00Z40.2-87.619.919.933095.029.769686TRUETRUEBRIFRMETAR212.02018-07-22 11:41:19=©®d({5    3KDUA 221135Z AUTO 00000KT CLR 25/21 A2993 RMK AO2 PWINOKDUA2018-07-22T11:35:00Z33.95-96.425.021.00029.929134TRUETRUETRUEMETAR213.02018-07-22 11:41:19C©®c(y5    3KDUB 221135Z AUTO 29010KT 10SM CLR 13/05 A3031 RMK AO2KDUB2018-07-22T11:35:00Z43.55-109.6813.05.02901010.030.31004TRUETRUEVFRMETAR2224.02018-07-22 11:41:19L©®b) 5    3KDUC 221135Z AUTO 08007KT 10SM CLR 25/20 A2994 RMK AO2 T02500195KDUC2018-07-22T11:35:00Z34.47-97.9725.019.580710.029.940945TRUETRUEVFRMETAR339.02018-07-22 11:41:19 ¦Fp¦D©®i(5    3KDBN 221135Z AUTO 27003KT 10SM SCT060 22/20 A2982 RMK AO2KDBN2018-07-22T11:35:00Z32.57-82.9822.020.0270310.029.819881TRUETRUEVFRMETAR94.02018-07-22 11:41:19P©®h)5    3KDCY 221135Z AUTO 30005KT 10SM OVC011 20/19 A2976 RMK AO2 T02020191KDCY2018-07-22T11:35:00Z38.7-87.1320.219.1300510.029.760826TRUETRUEMVFRMETAR144.02018-07-22 11:41:19R©®g)5    3KDED 221135Z AUTO 22005KT 7SM SCT004 SCT011 BKN021 26/25 A2990 RMK AO2KDED2018-07-22T11:35:00Z29.07-81.2826.025.022057.029.899607TRUETRUEMVFRMETAR24.02018-07-22 11:41:19\©®f)'5   3KDKB 221135Z AUTO 33009G14KT 10SM BKN010 OVC027 20/19 A2989 RMK AO2 T01960190KDKB2018-07-22T11:35:00Z41.93-88.719.619.033091410.029.890747TRUETRUEMVFRMETAR279.02018-07-22 11:41:19 ‰Kz‰k©®m)A5      3PAUT 221135Z AUTO 12013KT 7SM -DZ BKN007 BKN013 OVC025 10/09 A2994 RMK AO2 P0001 T00950091PAUT2018-07-22T11:35:00Z54.15-165.69.59.1120137.029.940945TRUETRUE-DZIFR0.01METAR25.02018-07-22 11:41:19K©®l) 5    3KD39 221135Z AUTO 08004KT 10SM CLR 17/16 A3014 RMK AO2 T01650157KD392018-07-22T11:35:00Z45.7-94.9316.515.780410.030.138779TRUETRUEVFRMETAR380.02018-07-22 11:41:19L©®k) 5    3KD73 221135Z AUTO 28003KT 10SM CLR 21/20 A2983 RMK AO2 T02080200KD732018-07-22T11:35:00Z33.78-83.720.820.0280310.029.828741TRUETRUEVFRMETAR267.02018-07-22 11:41:19]©®j)/5    3KD95 221135Z AUTO 07003KT 10SM SCT008 SCT046 SCT075 19/18 A2984 RMK AO2 T01890177KD952018-07-22T11:35:00Z43.07-83.2718.917.770310.029.840551TRUETRUEVFRMETAR255.02018-07-22 11:41:19 Æ9i—ƁK©®q) 5    3KW13 221135Z AUTO 00000KT 10SM CLR 17/17 A2980 RMK AO1 T01700168KW132018-07-22T11:35:00Z38.08-78.9517.016.80010.029.799213TRUETRUEVFRMETAR443.02018-07-22 11:41:19L©®p)5    3KW96 221135Z AUTO 00000KT 10SM SCT090 19/19 A2979 RMK AO1 T01870187KW962018-07-22T11:35:00Z37.5-77.1218.718.70010.029.790354TRUETRUEVFRMETAR37.02018-07-22 11:41:19J©®o) 5    3KW99 221135Z AUTO 00000KT 10SM CLR 17/16 A2975 RMK AO2 T01660159KW992018-07-22T11:35:00Z39.0-79.1516.615.90010.029.749016TRUETRUEVFRMETAR293.02018-07-22 11:41:19A©®n(y5    3KWWR 221135Z AUTO 09008KT 10SM CLR 22/17 A3003 RMK AO2KWWR2018-07-22T11:35:00Z36.45-99.5222.017.090810.030.029528TRUETRUEVFRMETAR667.02018-07-22 11:41:19 ¨-V{¨M©®u)5    3KHZL 221135Z AUTO 16007KT 140V210 10SM OVC007 18/17 A2982 RMK AO2KHZL2018-07-22T11:35:00Z40.98-76.018.017.0160710.029.819881TRUETRUEIFRMETAR489.02018-07-22 11:41:19U©®t)5     3KHZR 221135Z AUTO 22003KT 5SM CLR 24/24 A2994 RMK AO2 T02430240 PWINOKHZR2018-07-22T11:35:00Z30.72-91.4824.324.022035.029.940945TRUETRUETRUEMVFRMETAR12.02018-07-22 11:41:19Q©®s)5    3KVUJ 221135Z AUTO 20003KT 10SM BKN004 21/21 A2979 RMK AO2 T02060205KVUJ2018-07-22T11:35:00Z35.42-80.1520.620.5200310.029.790354TRUETRUELIFRMETAR186.02018-07-22 11:41:19M©®r)5     3KVWU 221135Z AUTO 11005KT 1/4SM FG OVC002 15/15 A3016 RMK AO2KVWU2018-07-22T11:35:00Z48.15-94.5215.015.011050.2530.159449TRUETRUEFGLIFRMETAR360.02018-07-22 11:41:19 Ô8q«ÔQ©®y)5    3KHSB 221135Z AUTO 32004KT 10SM OVC016 21/20 A2983 RMK AO2 T02110195KHSB2018-07-22T11:35:00Z37.82-88.5521.119.5320410.029.828741TRUETRUEMVFRMETAR121.02018-07-22 11:41:19@©®x(y5    3KHSD 221135Z AUTO 08004KT 10SM CLR 26/18 A2997 RMK A01KHSD2018-07-22T11:35:00Z35.6-97.7226.018.080410.029.970472TRUETRUEVFRMETAR364.02018-07-22 11:41:19A©®w(y5    3KHVE 221135Z AUTO 00000KT 10SM CLR 19/14 A3017 RMK AO2KHVE2018-07-22T11:35:00Z38.42-110.719.014.00010.030.171259TRUETRUEVFRMETAR1350.02018-07-22 11:41:19B©®v(y5    3KHZD 221135Z AUTO 28003KT 10SM CLR 20/19 A2984 RMK A01KHZD2018-07-22T11:35:00Z36.08-88.4720.019.0280310.029.840551TRUETRUEVFRMETAR151.02018-07-22 11:41:19 ³.[ˆ³O©®})5    3KHMZ 221135Z AUTO 00000KT 10SM OVC013 16/15 A2976 RMK AO2 T01610150KHMZ2018-07-22T11:35:00Z40.08-78.5216.115.00010.029.760826TRUETRUEMVFRMETAR354.02018-07-22 11:41:19M©®|) 5    3KHQU 221135Z AUTO 33003KT 10SM CLR 22/21 A2984 RMK AO2 T02180205KHQU2018-07-22T11:35:00Z33.53-82.5221.820.5330310.029.840551TRUETRUEVFRMETAR152.02018-07-22 11:41:19M©®{) 5    3KHQZ 221135Z AUTO 15003KT 10SM CLR 25/19 A2993 RMK AO1 T02450187KHQZ2018-07-22T11:35:00Z32.75-96.5324.518.7150310.029.929134TRUETRUEVFRMETAR136.02018-07-22 11:41:19L©®z) 5    3KHRX 221135Z AUTO 27006KT 7SM CLR 17/10 A3013 RMK AO2 T01740097KHRX2018-07-22T11:35:00Z34.87-102.3317.49.727067.030.129921TRUETRUEVFRMETAR1154.02018-07-22 11:41:19 ÅN‰Å>©¯(w5    3KGZS 221135Z AUTO 00000KT 8SM CLR 19/19 A2984 RMK A01KGZS2018-07-22T11:35:00Z35.15-87.0519.019.0008.029.840551TRUETRUEVFRMETAR209.02018-07-22 11:41:19?©¯(y5    3KHDC 221135Z AUTO 00000KT 10SM CLR 25/24 A2993 RMK AO2KHDC2018-07-22T11:35:00Z30.52-90.4225.024.00010.029.929134TRUETRUEVFRMETAR13.02018-07-22 11:41:19G©®) 5    3KHHF 221135Z AUTO 11007KT 10SM CLR 22/20 A3000 RMK AO2 T02170202KHHF2018-07-22T11:35:00Z35.9-100.421.720.2110710.030.0TRUETRUEVFRMETAR712.02018-07-22 11:41:19_©®~)35     3KHLX 221135Z AUTO 00000KT 2SM BR SCT001 BKN021 OVC028 16/16 A2983 RMK AO2 T01630157KHLX2018-07-22T11:35:00Z36.77-80.8216.315.7002.029.828741TRUETRUEBRIFRMETAR834.02018-07-22 11:41:19 —&Eq—T©¯)5    3KGKT 221135Z AUTO 23004KT 10SM SCT042 BKN050 OVC075 21/20 A2980 RMK A01KGKT2018-07-22T11:35:00Z35.85-83.5321.020.0230410.029.799213TRUETRUEVFRMETAR309.02018-07-22 11:41:19N©¯)5     3KGWB 221135Z AUTO 04005KT 5SM BR BKN008 OVC018 20/20 A2977 RMK AO2KGWB2018-07-22T11:35:00Z41.3-85.0720.020.04055.029.769686TRUETRUEBRIFRMETAR269.02018-07-22 11:41:19[©¯)/5    3KGWW 221135Z AUTO 00000KT 10SM SCT011 SCT029 BKN050 20/20 A2979 RMK AO2 T02000200KGWW2018-07-22T11:35:00Z35.47-77.9720.020.00010.029.790354TRUETRUEVFRMETAR41.02018-07-22 11:41:19T©¯)5     3KGYB 221135Z AUTO 21003KT 5SM BR BKN011 24/22 A2999 RMK AO2 T02370223KGYB2018-07-22T11:35:00Z30.17-96.9823.722.321035.029.991142TRUETRUEBRMVFRMETAR148.02018-07-22 11:41:19 É*^É>©¯ (w5    3KFYM 221135Z AUTO 00000KT 7SM CLR 20/20 A2984 RMK A01KFYM2018-07-22T11:35:00Z35.07-86.5720.020.0007.029.840551TRUETRUEVFRMETAR300.02018-07-22 11:41:19K©¯) 5    3KGAO 221135Z AUTO 26005KT 10SM CLR 28/25 A2995 RMK AO2 T02760245KGAO2018-07-22T11:35:00Z29.45-90.2727.624.5260510.029.949802TRUETRUEVFRMETAR1.02018-07-22 11:41:19F©¯)5   3KGCY 221135Z AUTO VRB03G11KT 8SM OVC005 20/19 A2981 RMK A01KGCY2018-07-22T11:35:00Z36.2-82.8220.019.003118.029.811024TRUETRUEIFRMETAR490.02018-07-22 11:41:19P©¯)5     3KGDB 221135Z AUTO 08005KT 5SM BR CLR 19/17 A3010 RMK AO2 T01870174KGDB2018-07-22T11:35:00Z44.75-95.5518.717.48055.030.100393TRUETRUEBRMVFRMETAR319.02018-07-22 11:41:19 Æ;gÆA©¯ (}5    3KFOT 221135Z AUTO 00000KT 6SM FEW003 10/09 A3003 RMK AO1KFOT2018-07-22T11:35:00Z40.55-124.1310.09.0006.030.029528TRUETRUEVFRMETAR120.02018-07-22 11:41:19T©¯ )!5    3KFSO 221135Z AUTO 11006KT 10SM SCT065 OVC085 20/09 A3004 RMK AO2 T01960091KFSO2018-07-22T11:35:00Z44.93-73.119.69.1110610.030.041338TRUETRUEVFRMETAR70.02018-07-22 11:41:19N©¯ ) 5    3KFTN 221135Z AUTO 13004KT 10SM BKN055 BKN065 26/21 A2996 RMK A01KFTN2018-07-22T11:35:00Z28.22-100.0226.021.0130410.029.958662TRUETRUEVFRMETAR236.02018-07-22 11:41:19?©¯ (y5    3KFYE 221135Z AUTO 00000KT 10SM CLR 21/20 A2987 RMK A01KFYE2018-07-22T11:35:00Z35.2-89.3821.020.00010.029.870079TRUETRUEVFRMETAR133.02018-07-22 11:41:19 Î:i¡ÎM©¯) 5    3KF46 221135Z AUTO 19004KT 10SM CLR 26/20 A2992 RMK AO2 T02600195KF462018-07-22T11:35:00Z32.93-96.4326.019.5190410.029.920275TRUETRUEVFRMETAR176.02018-07-22 11:41:19B©¯(y5    3KFCH 221135Z AUTO 31007KT 10SM CLR 23/11 A2997 RMK A01KFCH2018-07-22T11:35:00Z36.72-119.8223.011.0310710.029.970472TRUETRUEVFRMETAR85.02018-07-22 11:41:19K©¯) 5    3KFET 221135Z AUTO 00000KT 10SM CLR 19/18 A3006 RMK AO2 T01860179KFET2018-07-22T11:35:00Z41.45-96.5218.617.90010.030.059055TRUETRUEVFRMETAR367.02018-07-22 11:41:19@©¯(y5    3KFGN 221135Z AUTO 15009KT 10SM CLR 19/15 A3015 RMK AO2KFGN2018-07-22T11:35:00Z49.32-94.919.015.0150910.030.15059TRUETRUEVFRMETAR328.02018-07-22 11:41:19 È-ZŠÈ<©¯(y5    3KMCC 221135Z AUTO 15009KT 10SM CLR 19/12 A3000 RMK AO2KMCC2018-07-22T11:35:00Z38.67-121.419.012.0150910.030.0TRUETRUEVFRMETAR23.02018-07-22 11:41:19J©¯) 5    3KETN 221135Z AUTO 00000KT 10SM CLR 18/14 A2998 RMK AO2 T01830136KETN2018-07-22T11:35:00Z32.42-98.8218.313.60010.029.97933TRUETRUEVFRMETAR446.02018-07-22 11:41:19M©¯) 5    3KF00 221135Z AUTO 20005KT 10SM CLR 24/18 A2992 RMK AO2 T02370177KF002018-07-22T11:35:00Z33.62-96.1823.717.7200510.029.920275TRUETRUEVFRMETAR188.02018-07-22 11:41:19M©¯) 5    3KF05 221135Z AUTO 17003KT 10SM CLR 25/14 A2993 RMK AO1 T02520139KF052018-07-22T11:35:00Z34.23-99.2825.213.9170310.029.929134TRUETRUEVFRMETAR386.02018-07-22 11:41:19 Ç8mšÇM©¯) 5    3KM54 221135Z AUTO 21004KT 10SM FEW085 SCT110 21/19 A2979 RMK A01KM542018-07-22T11:35:00Z36.18-86.3221.019.0210410.029.790354TRUETRUEVFRMETAR180.02018-07-22 11:41:19M©¯) 5    3KM75 221135Z AUTO 35009KT 10SM FEW095 FEW120 18/06 A3001 RMK A01KM752018-07-22T11:35:00Z48.37-107.9218.06.0350910.030.008858TRUETRUEVFRMETAR687.02018-07-22 11:41:19E©¯(5    3KM91 221135Z AUTO 24004KT 10SM FEW120 20/19 A2980 RMK A01KM912018-07-22T11:35:00Z36.53-86.9220.019.0240410.029.799213TRUETRUEVFRMETAR215.02018-07-22 11:41:19B©¯(y5    3KMBT 221135Z AUTO 24003KT 10SM CLR 21/19 A2981 RMK A01KMBT2018-07-22T11:35:00Z35.88-86.3821.019.0240310.029.811024TRUETRUEVFRMETAR188.02018-07-22 11:41:19 :u¯ëM©¯) 5    3KLXN 221135Z AUTO 12006KT 10SM CLR 21/18 A3008 RMK AO2 T02050176KLXN2018-07-22T11:35:00Z40.78-99.7720.517.6120610.030.079725TRUETRUEVFRMETAR734.02018-07-22 11:41:19>©¯(w5    3KLYV 221135Z AUTO 00000KT 7SM CLR 16/15 A3009 RMK AO2KLYV2018-07-22T11:35:00Z43.62-96.2216.015.0007.030.088583TRUETRUEVFRMETAR436.02018-07-22 11:41:19@©¯(y5    3KM02 221135Z AUTO 00000KT 10SM CLR 19/18 A2983 RMK A01KM022018-07-22T11:35:00Z36.13-87.4319.018.00010.029.828741TRUETRUEVFRMETAR272.02018-07-22 11:41:19?©¯(w5    3KM04 221135Z AUTO 25003KT 9SM CLR 21/20 A2987 RMK A01KM042018-07-22T11:35:00Z35.58-89.5821.020.025039.029.870079TRUETRUEVFRMETAR85.02018-07-22 11:41:19@©¯(y5    3KM08 221135Z AUTO 00000KT 10SM CLR 20/20 A2987 RMK A01KM082018-07-22T11:35:00Z35.22-89.0520.020.00010.029.870079TRUETRUEVFRMETAR152.02018-07-22 11:41:19 È5pÈO©¯") 5    3KLRU 221135Z AUTO 29006KT 10SM CLR 22/13 A3014 RMK AO2 T02200130KLRU2018-07-22T11:35:00Z32.27-106.9222.013.0290610.030.138779TRUETRUEVFRMETAR1358.02018-07-22 11:41:19M©¯!) 5    3KLUD 221135Z AUTO 24007KT 10SM CLR 28/14 A2993 RMK AO2 T02820140KLUD2018-07-22T11:35:00Z33.25-97.5828.214.0240710.029.929134TRUETRUEVFRMETAR319.02018-07-22 11:41:19?©¯ (y5    3KLUG 221135Z AUTO 00000KT 10SM CLR 21/19 A2982 RMK A01KLUG2018-07-22T11:35:00Z35.52-86.821.019.00010.029.819881TRUETRUEVFRMETAR219.02018-07-22 11:41:19E©¯(5    3KLVN 221135Z AUTO 05008KT 10SM BKN013 17/17 A3010 RMK AO2KLVN2018-07-22T11:35:00Z44.63-93.2317.017.050810.030.100393TRUETRUEMVFRMETAR293.02018-07-22 11:41:19 Ë-bËL©¯&)5     3KLHZ 221135Z AUTO 5SM RA SCT007 BKN015 OVC021 19/19 A2979 RMK AO2KLHZ2018-07-22T11:35:00Z36.02-78.3319.019.05.029.790354TRUETRUERAMVFRMETAR113.02018-07-22 11:41:19?©¯%(y5    3KLJF 221135Z AUTO 00000KT 10SM CLR 18/18 A3013 RMK AO2KLJF2018-07-22T11:35:00Z45.1-94.5218.018.00010.030.129921TRUETRUEVFRMETAR348.02018-07-22 11:41:19E©¯$)5    3KLNA 221135Z AUTO 25004KT 27/25 A2995 RMK AO2 T02670248 PWINOKLNA2018-07-22T11:35:00Z26.6-80.0226.724.8250429.949802TRUETRUETRUEMETAR11.02018-07-22 11:41:19M©¯#) 5    3KLNC 221135Z AUTO 23003KT 10SM CLR 27/19 A2993 RMK AO2 T02730190KLNC2018-07-22T11:35:00Z32.58-96.7227.319.0230310.029.929134TRUETRUEVFRMETAR153.02018-07-22 11:41:19 Í2i ÍM©¯*) 5    3KJWY 221135Z AUTO 23005KT 10SM CLR 26/20 A2994 RMK AO2 T02600195KJWY2018-07-22T11:35:00Z32.45-96.9226.019.5230510.029.940945TRUETRUEVFRMETAR217.02018-07-22 11:41:19C©¯))5   3KK88 221135Z AUTO 00000KT 10SM 19/19 A3002 RMK AO1 T01850185KK882018-07-22T11:35:00Z37.87-95.3818.518.50010.030.02067TRUETRUEMETAR309.02018-07-22 11:41:19C©¯((y5    3KL18 221135Z AUTO 33003KT 10SM CLR 18/17 A3003 RMK AO2KL182018-07-22T11:35:00Z33.35-117.2518.017.0330310.030.029528TRUETRUEVFRMETAR216.02018-07-22 11:41:19H©¯'(5   3KLHM 221135Z AUTO 15011G14KT 10SM CLR 21/10 A2997 RMK AO1KLHM2018-07-22T11:35:00Z38.92-121.3521.010.0150111410.029.970472TRUETRUEVFRMETAR37.02018-07-22 11:41:19 Õ8fœÕA©¯.(y5    3KJDD 221135Z AUTO 10003KT 10SM CLR 23/20 A2993 RMK AO2KJDD2018-07-22T11:35:00Z32.75-95.523.020.0100310.029.929134TRUETRUEVFRMETAR132.02018-07-22 11:41:19D©¯-(y5    3KJTC 221135Z AUTO 21007KT 10SM CLR 16/14 A3040 RMK AO2KJTC2018-07-22T11:35:00Z34.13-109.3216.014.0210710.030.398623TRUETRUEVFRMETAR2150.02018-07-22 11:41:19L©¯,) 5    3KJWG 221135Z AUTO 09003KT 10SM CLR 24/20 A2999 RMK AO2 T02400196KJWG2018-07-22T11:35:00Z35.87-98.4224.019.690310.029.991142TRUETRUEVFRMETAR472.02018-07-22 11:41:19B©¯+(y5    3KJWN 221135Z AUTO 27006KT 10SM CLR 21/19 A2980 RMK A01KJWN2018-07-22T11:35:00Z36.18-86.8821.019.0270610.029.799213TRUETRUEVFRMETAR151.02018-07-22 11:41:19 ¾(`Ž¾J©¯2)5    3KIMS 221135Z AUTO 26006KT 1 1/4SM OVC004 20/18 A2973 RMK AO1KIMS2018-07-22T11:35:00Z38.75-85.4720.018.026061.2529.731298TRUETRUELIFRMETAR250.02018-07-22 11:41:19L©¯1) 5    3KINJ 221135Z AUTO 20005KT 10SM CLR 25/21 A2994 RMK AO2 T02510206KINJ2018-07-22T11:35:00Z32.08-97.125.120.6200510.029.940945TRUETRUEVFRMETAR209.02018-07-22 11:41:19B©¯0(y5    3KIZA 221135Z AUTO 22003KT 10SM CLR 14/13 A3005 RMK AO2KIZA2018-07-22T11:35:00Z34.6-120.0714.013.0220310.030.050198TRUETRUEVFRMETAR205.02018-07-22 11:41:19R©¯/)5    3KJAU 221135Z AUTO 00000KT 10SM FEW035 SCT047 OVC075 22/18 A2982 RMK A01KJAU2018-07-22T11:35:00Z36.33-84.1722.018.00010.029.819881TRUETRUEVFRMETAR360.02018-07-22 11:41:19 £1?x£O©¯6) 5    3KIBM 221135Z AUTO 19006KT 10SM CLR 16/15 A3010 RMK AO2 T01560146KIBM2018-07-22T11:35:00Z41.18-103.6815.614.6190610.030.100393TRUETRUEVFRMETAR1501.02018-07-22 11:41:19A©¯5(y5    3KIFP 221135Z AUTO 00000KT 10SM CLR 26/20 A2996 RMK AO2KIFP2018-07-22T11:35:00Z35.15-114.5726.020.00010.029.958662TRUETRUEVFRMETAR212.02018-07-22 11:41:19l©¯4)A5      3KIGQ 221135Z AUTO 01005KT 5SM -RA BKN009 BKN013 OVC017 21/21 A2981 RMK AO2 P0008 T02050205KIGQ2018-07-22T11:35:00Z41.53-87.5320.520.51055.029.811024TRUETRUE-RAIFR0.08METAR188.02018-07-22 11:41:19I©¯3) 5    3KIKG 221135Z AUTO 00000KT 5SM CLR 25/25 A2996 RMK AO2 T02450245KIKG2018-07-22T11:35:00Z27.55-98.0324.524.5005.029.958662TRUETRUEMVFRMETAR40.02018-07-22 11:41:19 ¹.fŠ¹K©¯:)5     3KEKS 221135Z AUTO 00000KT 10SM CLR 08/05 A3030 RMK AO2 PWINOKEKS2018-07-22T11:35:00Z45.27-111.658.05.00010.030.301182TRUETRUETRUEVFRMETAR1641.02018-07-22 11:41:19V©¯9)5   3KENL 221135Z AUTO 33012G15KT 10SM OVC014 21/19 A2984 RMK AO2 T02100193KENL2018-07-22T11:35:00Z38.52-89.121.019.3330121510.029.840551TRUETRUEMVFRMETAR163.02018-07-22 11:41:19B©¯8(}5    3KI23 221135Z AUTO 06006KT 3SM OVC002 18/18 A2971 RMK AO1KI232018-07-22T11:35:00Z39.57-83.4218.018.06063.029.71063TRUETRUELIFRMETAR299.02018-07-22 11:41:19L©¯7)5    3KI35 221135Z AUTO 10SM BKN018 OVC026 20/19 A2980 RMK AO2 T01950188KI352018-07-22T11:35:00Z36.87-83.3719.518.810.029.799213TRUETRUEMVFRMETAR473.02018-07-22 11:41:19 «2^~«M©¯>) 5    3KDZB 221135Z AUTO 21003KT 10SM CLR 25/22 A2999 RMK AO2 T02510222KDZB2018-07-22T11:35:00Z30.53-98.3725.122.2210310.029.991142TRUETRUEVFRMETAR334.02018-07-22 11:41:19Z©¯=)%5     3KDZJ 221135Z AUTO 16004KT 4SM BR SCT017 BKN027 18/17 A2986 RMK AO2 T01760175KDZJ2018-07-22T11:35:00Z34.85-84.017.617.516044.029.861221TRUETRUEBRMVFRMETAR582.02018-07-22 11:41:19N©¯<) 5    3KE11 221135Z AUTO 23004KT 10SM CLR 23/10 A3009 RMK AO2 T02330100KE112018-07-22T11:35:00Z32.33-102.5323.310.0230410.030.088583TRUETRUEVFRMETAR967.02018-07-22 11:41:19H©¯;) 5    3KEDN 221135Z AUTO 00000KT 10SM CLR 24/24 A2985 RMK AO2 T02430242KEDN2018-07-22T11:35:00Z31.3-85.924.324.20010.029.84941TRUETRUEVFRMETAR110.02018-07-22 11:41:19 Ë5a›ËJ©¯B) 5    3KDLO 221135Z AUTO 00000KT 10SM CLR 23/10 A2999 RMK AO2 T02330098KDLO2018-07-22T11:35:00Z35.75-119.2323.39.80010.029.991142TRUETRUEVFRMETAR96.02018-07-22 11:41:19@©¯A(y5    3KDNN 221135Z AUTO 00000KT 10SM CLR 19/19 A2983 RMK AO2KDNN2018-07-22T11:35:00Z34.72-84.8719.019.00010.029.828741TRUETRUEVFRMETAR216.02018-07-22 11:41:19N©¯@) 5    3KDUX 221135Z AUTO 21007KT 10SM CLR 18/09 A3009 RMK AO2 T01830086KDUX2018-07-22T11:35:00Z35.85-102.0218.38.6210710.030.088583TRUETRUEVFRMETAR1129.02018-07-22 11:41:19E©¯?(}5     3KDXX 221135Z AUTO 06003KT 5SM BR CLR 18/18 A3008 RMK AO2KDXX2018-07-22T11:35:00Z44.98-96.1818.018.06035.030.079725TRUETRUEBRMVFRMETAR330.02018-07-22 11:41:19 Ê7oªÊZ©¯F)-5    3KCXU 221135Z AUTO 00000KT 5SM SCT014 SCT022 SCT027 24/23 A2984 RMK AO1 T02400227KCXU2018-07-22T11:35:00Z31.22-84.2324.022.7005.029.840551TRUETRUEMVFRMETAR53.02018-07-22 11:41:19?©¯E(y5    3KCXW 221135Z AUTO 00000KT 10SM CLR 21/20 A2991 RMK A01KCXW2018-07-22T11:35:00Z35.02-92.5521.020.00010.029.911417TRUETRUEVFRMETAR84.02018-07-22 11:41:19B©¯D(y5    3KCZT 221135Z AUTO 10004KT 10SM CLR 23/21 A2995 RMK AO2KCZT2018-07-22T11:35:00Z28.52-99.8223.021.0100410.029.949802TRUETRUEVFRMETAR183.02018-07-22 11:41:19C©¯C(5    3KDKX 221135Z AUTO 00000KT 10SM OVC075 21/20 A2979 RMK A01KDKX2018-07-22T11:35:00Z35.97-83.8721.020.00010.029.790354TRUETRUEVFRMETAR254.02018-07-22 11:41:19 Í.pžÍK©¯J) 5    3KCMD 221135Z AUTO 00000KT 10SM CLR 19/19 A2988 RMK AO2 T01930185KCMD2018-07-22T11:35:00Z34.27-86.8519.318.50010.029.878937TRUETRUEVFRMETAR294.02018-07-22 11:41:19L©¯I) 5    3KCQB 221135Z AUTO 04003KT 10SM CLR 22/18 A2997 RMK AO2 T02220183KCQB2018-07-22T11:35:00Z35.72-96.8222.218.340310.029.970472TRUETRUEVFRMETAR300.02018-07-22 11:41:198©¯H(q5   3KCRX 221135Z AUTO 00000KT 10SM 22/20 A2987 RMK AO2KCRX2018-07-22T11:35:00Z34.92-88.622.020.00010.029.870079TRUETRUEMETAR130.02018-07-22 11:41:19L©¯G) 5    3KCUH 221135Z AUTO 05003KT 10SM CLR 22/19 A2996 RMK AO2 T02240185KCUH2018-07-22T11:35:00Z35.95-96.7722.418.550310.029.958662TRUETRUEVFRMETAR279.02018-07-22 11:41:19 ±,X†±O©¯N)5    3KCFE 221135Z AUTO 05006KT 10SM OVC007 17/15 A3013 RMK AO2 T01670148KCFE2018-07-22T11:35:00Z45.17-93.8516.714.850610.030.129921TRUETRUEIFRMETAR295.02018-07-22 11:41:19L©¯M) 5    3KCIR 221135Z AUTO 29006KT 10SM CLR 21/20 A2984 RMK AO2 T02050195KCIR2018-07-22T11:35:00Z37.07-89.2220.519.5290610.029.840551TRUETRUEVFRMETAR98.02018-07-22 11:41:19N©¯L) 5    3KCKC 221135Z AUTO 36004KT 10SM BKN015 OVC020 13/11 A3018 RMK AO2KCKC2018-07-22T11:35:00Z47.83-90.3713.011.0360410.030.180119TRUETRUEMVFRMETAR548.02018-07-22 11:41:19N©¯K)5     3KCKF 221135Z AUTO 00000KT 5SM BR CLR 23/23 A2983 RMK AO2 T02300226KCKF2018-07-22T11:35:00Z31.98-83.7723.022.6005.029.828741TRUETRUEBRMVFRMETAR91.02018-07-22 11:41:19 ²+Vr²:©¯R(q5   3KCCB 221135Z AUTO 00000KT 10SM 21/15 A3005 RMK AO2KCCB2018-07-22T11:35:00Z34.12-117.6821.015.00010.030.050198TRUETRUEMETAR440.02018-07-22 11:41:19^©¯Q)/5    3KCDA 221135Z AUTO 23003KT 10SM SCT065 SCT085 BKN120 14/12 A3013 RMK AO2 T01370116KCDA2018-07-22T11:35:00Z44.57-72.0213.711.6230310.030.129921TRUETRUEVFRMETAR363.02018-07-22 11:41:19O©¯P)5    3KCDI 221135Z AUTO 00000KT 10SM OVC018 18/16 A2974 RMK AO2 T01800161KCDI2018-07-22T11:35:00Z39.97-81.5818.016.10010.029.740158TRUETRUEMVFRMETAR244.02018-07-22 11:41:19O©¯O)5    3KCFD 221135Z AUTO 22006KT 10SM SCT007 24/24 A2998 RMK AO2 T02410241KCFD2018-07-22T11:35:00Z30.72-96.3324.124.1220610.029.97933TRUETRUEVFRMETAR112.02018-07-22 11:41:19 ¨8Z¨_©¯V)35     3KBYY 221135Z AUTO 00000KT 1 1/4SM BR OVC020 24/24 A2997 RMK AO2 VIS 1/2V4 T02440244KBYY2018-07-22T11:35:00Z28.97-95.8724.424.4001.2529.970472TRUETRUEBRIFRMETAR14.02018-07-22 11:41:19G©¯U)5     3KC65 221135Z AUTO 01005KT 3SM BR OVC007 20/20 A2978 RMK A01KC652018-07-22T11:35:00Z41.37-86.320.020.01053.029.778543TRUETRUEBRIFRMETAR244.02018-07-22 11:41:19X©¯T)#5    3KC75 221135Z AUTO 36007KT 330V030 10SM OVC045 20/19 A2987 RMK AO2 T02010185KC752018-07-22T11:35:00Z41.02-89.3820.118.5360710.029.870079TRUETRUEVFRMETAR173.02018-07-22 11:41:19B©¯S(y5    3KC83 221135Z AUTO 28004KT 10SM CLR 20/13 A2999 RMK AO2KC832018-07-22T11:35:00Z37.83-121.6220.013.0280410.029.991142TRUETRUEVFRMETAR24.02018-07-22 11:41:19 È.išÈL©¯Z) 5    3KBTA 221135Z AUTO 03005KT 10SM CLR 19/17 A3005 RMK AO2 T01850173KBTA2018-07-22T11:35:00Z41.42-96.1218.517.330510.030.050198TRUETRUEVFRMETAR396.02018-07-22 11:41:19I©¯Y) 5    3KBVN 221135Z AUTO 00000KT 7SM CLR 19/18 A3008 RMK AO2 T01870176KBVN2018-07-22T11:35:00Z41.73-98.0518.717.6007.030.079725TRUETRUEVFRMETAR551.02018-07-22 11:41:19?©¯X(y5    3KBVS 221135Z AUTO 00000KT 10SM CLR 11/09 A3021 RMK A01KBVS2018-07-22T11:35:00Z48.47-122.4211.09.00010.030.209646TRUETRUEVFRMETAR43.02018-07-22 11:41:19L©¯W) 5    3KBXA 221135Z AUTO 28004KT 10SM CLR 26/24 A2992 RMK AO2 T02600235KBXA2018-07-22T11:35:00Z30.82-89.8726.023.5280410.029.920275TRUETRUEVFRMETAR36.02018-07-22 11:41:19 Ñ7o¤ÑM©¯^)5    3KUNI 221135Z AUTO 06004KT 7SM OVC002 19/19 A2971 RMK AO2 T01900190KUNI2018-07-22T11:35:00Z39.22-82.2319.019.06047.029.71063TRUETRUELIFRMETAR193.02018-07-22 11:41:19E©¯]) 5    3KUVA 221135Z AUTO 07006KT 7SM CLR 23/22 A3000 RMK AO2 T02320221KUVA2018-07-22T11:35:00Z29.22-99.7523.222.17067.030.0TRUETRUEVFRMETAR287.02018-07-22 11:41:19B©¯\(}5    3KVKS 221135Z AUTO 21007KT 9SM FEW120 27/24 A2989 RMK A01KVKS2018-07-22T11:35:00Z32.23-90.9327.024.021079.029.890747TRUETRUEVFRMETAR32.02018-07-22 11:41:19C©¯[(5    3KBQK 221135Z AUTO 24005KT 10SM SCT005 25/23 A2983 RMK AO2KBQK2018-07-22T11:35:00Z31.25-81.4725.023.0240510.029.828741TRUETRUEVFRMETAR8.02018-07-22 11:41:19 Ö8sšÖ>©¯b(y5    3KTQH 221135Z AUTO 00000KT 10SM CLR 18/17 A2998 RMK AO2KTQH2018-07-22T11:35:00Z35.93-95.018.017.00010.029.97933TRUETRUEVFRMETAR266.02018-07-22 11:41:19S©¯a)5     3KTYQ 221135Z AUTO 36006KT 4SM BR 19/19 A2975 RMK AO2 P0002 T01910191KTYQ2018-07-22T11:35:00Z40.03-86.2519.119.136064.029.749016TRUETRUEBR0.02METAR281.02018-07-22 11:41:19?©¯`(u5     3KU68 221135Z AUTO 33012KT 10SM CLR 21/ A3010 RMK AO2KU682018-07-22T11:35:00Z44.92-108.4521.03301210.030.100393TRUETRUEVFRMETAR1247.02018-07-22 11:41:19B©¯_(5    3KUKF 221135Z AUTO 00000KT 10SM OVC009 19/19 A2982 RMK AO2KUKF2018-07-22T11:35:00Z36.22-81.119.019.00010.029.819881TRUETRUEIFRMETAR396.02018-07-22 11:41:19 è-p°èB©¯f(y5    3KTEX 221135Z AUTO 14003KT 10SM CLR 13/07 A3055 RMK AO2KTEX2018-07-22T11:35:00Z37.95-107.913.07.0140310.030.549213TRUETRUEVFRMETAR2769.02018-07-22 11:41:19:©¯e(u5     3KTHA 221135Z AUTO 00000KT 10SM CLR 19/ A2984 RMK A01KTHA2018-07-22T11:35:00Z35.38-86.2519.00010.029.840551TRUETRUEVFRMETAR331.02018-07-22 11:41:197©¯d(s5     3KTMA 221135Z AUTO 28004KT 10SM SCT009 A2983 RMK AO2KTMA2018-07-22T11:35:00Z31.43-83.48280410.029.828741TRUETRUEVFRMETAR109.02018-07-22 11:41:19M©¯c) 5    3KTMT 221135Z AUTO 25005KT 10SM CLR 14/13 A3029 RMK AO2 T01430126KTMT2018-07-22T11:35:00Z39.47-117.214.312.6250510.030.28937TRUETRUEVFRMETAR1748.02018-07-22 11:41:19 É'cÉ>©¯j(w5    3KSYI 221135Z AUTO 00000KT 8SM CLR 18/17 A2983 RMK A01KSYI2018-07-22T11:35:00Z35.57-86.4518.017.0008.029.828741TRUETRUEVFRMETAR245.02018-07-22 11:41:19P©¯i)5    3KSYN 221135Z AUTO 03006KT 10SM OVC010 17/15 A3008 RMK AO2 T01680153KSYN2018-07-22T11:35:00Z44.47-93.0216.815.330610.030.079725TRUETRUEMVFRMETAR280.02018-07-22 11:41:19>©¯h(y5    3KSZT 221135Z AUTO 00000KT 10SM CLR 08/04 A3019 RMK AO2KSZT2018-07-22T11:35:00Z48.3-116.578.04.00010.030.188976TRUETRUEVFRMETAR648.02018-07-22 11:41:19S©¯g)5     3KTEW 221135Z AUTO 04004KT 5SM BR OVC004 20/18 A2982 RMK AO2 T01950183KTEW2018-07-22T11:35:00Z42.57-84.4219.518.34045.029.819881TRUETRUEBRLIFRMETAR280.02018-07-22 11:41:19 Ã-b›ÃR©¯n)5    3KSRB 221135Z AUTO 00000KT 10SM SCT046 BKN065 BKN075 20/19 A2980 RMK A01KSRB2018-07-22T11:35:00Z36.05-85.5320.019.00010.029.799213TRUETRUEVFRMETAR313.02018-07-22 11:41:19A©¯m(y5    3KSRE 221135Z AUTO 06003KT 10SM CLR 23/17 A2995 RMK AO2KSRE2018-07-22T11:35:00Z35.27-96.6823.017.060310.029.949802TRUETRUEVFRMETAR312.02018-07-22 11:41:19E©¯l(5    3KSUN 221135Z AUTO 32009KT 10SM SCT120 16/00 A3023 RMK AO2KSUN2018-07-22T11:35:00Z43.5-114.2816.00.0320910.030.230314TRUETRUEVFRMETAR1620.02018-07-22 11:41:19M©¯k) 5    3KSVH 221135Z AUTO 36003KT 10SM CLR 20/19 A2976 RMK AO2 T02000191KSVH2018-07-22T11:35:00Z35.75-80.9520.019.1360310.029.760826TRUETRUEVFRMETAR294.02018-07-22 11:41:19 ½=j“½P©¯r)5     3KSLH 221135Z AUTO 05006KT 5SM BR CLR 19/18 A2995 RMK AO2 T01950185KSLH2018-07-22T11:35:00Z45.65-84.5219.518.55065.029.949802TRUETRUEBRMVFRMETAR195.02018-07-22 11:41:19Q©¯q)5    3KSLO 221135Z AUTO 33008KT 10SM OVC012 21/19 A2984 RMK AO2 T02110189KSLO2018-07-22T11:35:00Z38.65-88.9721.118.9330810.029.840551TRUETRUEMVFRMETAR175.02018-07-22 11:41:19M©¯p) 5    3KSLR 221135Z AUTO 22006KT 10SM CLR 26/19 A2995 RMK AO2 T02630187KSLR2018-07-22T11:35:00Z33.17-95.6226.318.7220610.029.949802TRUETRUEVFRMETAR149.02018-07-22 11:41:19=©¯o(w5    3KSNH 221135Z AUTO 00000KT 9SM CLR 20/20 A2985 RMK A01KSNH2018-07-22T11:35:00Z35.17-88.2220.020.0009.029.84941TRUETRUEVFRMETAR144.02018-07-22 11:41:19 ®*Y‚®N©¯v)5    3KSCR 221135Z AUTO 15003KT 10SM SCT120 20/19 A2976 RMK AO2 T01970190KSCR2018-07-22T11:35:00Z35.7-79.519.719.0150310.029.760826TRUETRUEVFRMETAR188.02018-07-22 11:41:19Q©¯u)5    3KSCX 221135Z AUTO 00000KT 9SM SCT013 BKN024 OVC065 19/19 A2980 RMK A01KSCX2018-07-22T11:35:00Z36.45-84.5819.019.0009.029.799213TRUETRUEMVFRMETAR471.02018-07-22 11:41:19K©¯t) 5    3KSEP 221135Z AUTO 00000KT 10SM CLR 24/17 A2999 RMK AO2 T02390166KSEP2018-07-22T11:35:00Z32.22-98.1723.916.60010.029.991142TRUETRUEVFRMETAR402.02018-07-22 11:41:19P©¯s)5    3KSGS 221135Z AUTO 01004KT 10SM BKN015 17/15 A3010 RMK AO2 T01720150KSGS2018-07-22T11:35:00Z44.87-93.0317.215.010410.030.100393TRUETRUEMVFRMETAR250.02018-07-22 11:41:19 Â*UÂG©¯z) 5    3KRYW 221135Z AUTO 24006KT 10SM CLR 25/23 A3000 RMK AO2 T02520233KRYW2018-07-22T11:35:00Z30.5-97.9725.223.3240610.030.0TRUETRUEVFRMETAR376.02018-07-22 11:41:19@©¯y({5    3KS39 221135Z AUTO 00000KT 10SM CLR 06/M01 A3023 RMK AO2KS392018-07-22T11:35:00Z44.28-120.96.0-1.00010.030.230314TRUETRUEVFRMETAR991.02018-07-22 11:41:19O©¯x)5    3KSAR 221135Z AUTO 32006KT 10SM SCT015 20/20 A2988 RMK AO2 T02010201KSAR2018-07-22T11:35:00Z38.15-89.720.120.1320610.029.878937TRUETRUEVFRMETAR164.02018-07-22 11:41:19P©¯w)5     3KSCD 221135Z AUTO 00000KT 4SM BR BKN120 21/21 A2985 RMK AO2 T02090209KSCD2018-07-22T11:35:00Z33.17-86.320.920.9004.029.84941TRUETRUEBRMVFRMETAR173.02018-07-22 11:41:19 Ê6_Ê?©¯~(y5    3KRNC 221135Z AUTO 00000KT 10SM CLR 19/18 A2983 RMK A01KRNC2018-07-22T11:35:00Z35.7-85.8519.018.00010.029.828741TRUETRUEVFRMETAR315.02018-07-22 11:41:19J©¯}) 5    3KRSN 221135Z AUTO 00000KT 10SM CLR 26/22 A2994 RMK AO2 T02550215KRSN2018-07-22T11:35:00Z32.52-92.5825.521.50010.029.940945TRUETRUEVFRMETAR95.02018-07-22 11:41:19Q©¯|)5    3KRSV 221135Z AUTO 33006KT 10SM OVC014 21/19 A2978 RMK AO2 T02050194KRSV2018-07-22T11:35:00Z39.02-87.6520.519.4330610.029.778543TRUETRUEMVFRMETAR141.02018-07-22 11:41:19D©¯{(y5    3KRTS 221135Z AUTO 35005KT 10SM CLR 16/13 A3024 RMK AO2KRTS2018-07-22T11:35:00Z39.67-119.8816.013.0350510.030.239174TRUETRUEVFRMETAR1540.02018-07-22 11:41:19 Ä&`‹ÄA©°(y5    3KBPC 221135Z AUTO 00000KT 10SM CLR 18/10 A3003 RMK AO2KBPC2018-07-22T11:35:00Z35.88-101.0318.010.00010.030.029528TRUETRUEVFRMETAR845.02018-07-22 11:41:19O©°)5    3KRHP 221135Z AUTO 00000KT 10SM OVC004 18/18 A2984 RMK AO2 T01830183KRHP2018-07-22T11:35:00Z35.18-83.8518.318.30010.029.840551TRUETRUELIFRMETAR518.02018-07-22 11:41:19@©°(y5    3KRKR 221135Z AUTO 00000KT 10SM CLR 20/19 A2994 RMK AO2KRKR2018-07-22T11:35:00Z35.02-94.6220.019.00010.029.940945TRUETRUEVFRMETAR138.02018-07-22 11:41:19T©¯)5    3KRKW 221135Z AUTO 30006KT 10SM FEW016 SCT050 OVC065 19/18 A2982 RMK A01KRKW2018-07-22T11:35:00Z35.92-84.6819.018.0300610.029.819881TRUETRUEVFRMETAR508.02018-07-22 11:41:19 ¬0N~¬L©°) 5    3KBJI 221135Z AUTO 11005KT 10SM CLR 17/16 A3014 RMK AO2 T01650161KBJI2018-07-22T11:35:00Z47.5-94.9216.516.1110510.030.138779TRUETRUEVFRMETAR420.02018-07-22 11:41:19J©°) 5    3KBKS 221135Z AUTO 13003KT 5SM CLR 24/23 A2995 RMK AO1 T02410229KBKS2018-07-22T11:35:00Z27.2-98.1224.122.913035.029.949802TRUETRUEMVFRMETAR34.02018-07-22 11:41:19\©°)/5    3KBKT 221135Z AUTO 00000KT 10SM SCT040 BKN060 OVC090 19/19 A2980 RMK AO1 T01880188KBKT2018-07-22T11:35:00Z37.07-77.9518.818.80010.029.799213TRUETRUEVFRMETAR134.02018-07-22 11:41:19J©°) 5    3KBMT 221135Z AUTO 24008KT 7SM CLR 26/25 A2996 RMK AO2 T02630245KBMT2018-07-22T11:35:00Z30.07-94.2226.324.524087.029.958662TRUETRUEVFRMETAR10.02018-07-22 11:41:19 ?m£Ý?©° (y5    3KBGE 221135Z AUTO 00000KT 10SM CLR 26/22 A2984 RMK AO2KBGE2018-07-22T11:35:00Z30.97-84.6326.022.00010.029.840551TRUETRUEVFRMETAR43.02018-07-22 11:41:19@©° (y5    3KBGF 221135Z AUTO 00000KT 10SM CLR 20/18 A2984 RMK A01KBGF2018-07-22T11:35:00Z35.18-86.0720.018.00010.029.840551TRUETRUEVFRMETAR299.02018-07-22 11:41:19D©° (5    3KBHC 221135Z AUTO 21003KT 10SM BKN015 23/23 A2981 RMK AO2KBHC2018-07-22T11:35:00Z31.72-82.423.023.0210310.029.811024TRUETRUEMVFRMETAR61.02018-07-22 11:41:19L©°) 5    3KBIE 221135Z AUTO 07003KT 10SM CLR 20/18 A3004 RMK AO2 T01960181KBIE2018-07-22T11:35:00Z40.28-96.7519.618.170310.030.041338TRUETRUEVFRMETAR403.02018-07-22 11:41:19;©°(w5    3KBIJ 221135Z AUTO 00000KT 7SM CLR 22/21 A2984 RMK AO2KBIJ2018-07-22T11:35:00Z31.4-84.922.021.0007.029.840551TRUETRUEVFRMETAR65.02018-07-22 11:41:19 Ø0i¢ØD©°(y5    3KAZC 221135Z AUTO 16004KT 10SM CLR 17/16 A3026 RMK AO2KAZC2018-07-22T11:35:00Z36.97-113.0217.016.0160410.030.259842TRUETRUEVFRMETAR1486.02018-07-22 11:41:19A©°(y5    3KBBD 221135Z AUTO 21007KT 10SM CLR 23/19 A3002 RMK AO2KBBD2018-07-22T11:35:00Z31.18-99.3223.019.0210710.030.02067TRUETRUEVFRMETAR557.02018-07-22 11:41:19A©° (y5    3KBDH 221135Z AUTO 09007KT 10SM CLR 18/16 A3014 RMK AO2KBDH2018-07-22T11:35:00Z45.12-95.1318.016.090710.030.138779TRUETRUEVFRMETAR247.02018-07-22 11:41:19J©° ) 5    3KBEC 221135Z AUTO 05006KT 10SM CLR 22/18 A3002 RMK AO2 T02230175KBEC2018-07-22T11:35:00Z37.7-97.2222.317.550610.030.02067TRUETRUEVFRMETAR429.02018-07-22 11:41:19 À.X…À?©°(5    3KAVK 221135Z AUTO 08005KT 10SM FEW049 23/21 A3000 RMK AO2KAVK2018-07-22T11:35:00Z36.77-98.6723.021.080510.030.0TRUETRUEVFRMETAR449.02018-07-22 11:41:19M©°) 5    3KAVQ 221135Z AUTO 25003KT 10SM CLR 25/16 A3001 RMK AO2 T02530157KAVQ2018-07-22T11:35:00Z32.4-111.2225.315.7250310.030.008858TRUETRUEVFRMETAR619.02018-07-22 11:41:19P©°)5     3KAXH 221135Z AUTO 00000KT 5SM BR SCT015 24/24 A2998 RMK AO2 T02400239KAXH2018-07-22T11:35:00Z29.52-95.4824.023.9005.029.97933TRUETRUEBRMVFRMETAR21.02018-07-22 11:41:19L©°) 5    3KAXS 221135Z AUTO 10006KT 10SM CLR 24/19 A2995 RMK AO2 T02440187KAXS2018-07-22T11:35:00Z34.7-99.3324.418.7100610.029.949802TRUETRUEVFRMETAR437.02018-07-22 11:41:19 œ>nœL©°) 5     3KASW 221135Z AUTO 02004KT 2 1/2SM BR OVC005 20/20 A2977 RMK AO2KASW2018-07-22T11:35:00Z41.27-85.8320.020.02042.529.769686TRUETRUEBRIFRMETAR259.02018-07-22 11:41:19J©°) 5    3KAUH 221135Z AUTO 15003KT 7SM CLR 18/18 A3007 RMK AO2 T01780178KAUH2018-07-22T11:35:00Z40.88-98.017.817.815037.030.070866TRUETRUEVFRMETAR550.02018-07-22 11:41:19C©°(y5    3KAUN 221135Z AUTO 15004KT 10SM CLR 24/15 A3003 RMK AO1KAUN2018-07-22T11:35:00Z38.95-121.0824.015.0150410.030.029528TRUETRUEVFRMETAR467.02018-07-22 11:41:19s©°)Q5     3KAVC 221135Z AUTO 16004KT 10SM SCT041 SCT060 BKN110 20/20 A2984 RMK AO2 LTG DSNT S P0001 T02000200KAVC2018-07-22T11:35:00Z36.68-78.0320.020.0160410.029.840551TRUETRUEVFR0.01METAR135.02018-07-22 11:41:19 ¶0`Š¶N©°) 5    3KANW 221135Z AUTO 14010KT 10SM CLR 20/19 A3004 RMK AO2 T01990186KANW2018-07-22T11:35:00Z42.57-100.019.918.61401010.030.041338TRUETRUEVFRMETAR789.02018-07-22 11:41:19P©°)5     3KARM 221135Z AUTO 00000KT 3SM BR SCT012 23/22 A2998 RMK AO2 T02300222KARM2018-07-22T11:35:00Z29.25-96.1523.022.2003.029.97933TRUETRUEBRMVFRMETAR31.02018-07-22 11:41:19J©°) 5     3KASJ 221135Z AUTO 3/4SM BR OVC002 22/22 A2978 RMK AO2 T02170217KASJ2018-07-22T11:35:00Z36.28-77.1721.721.70.7529.778543TRUETRUEBRLIFRMETAR21.02018-07-22 11:41:19J©°) 5    3KASL 221135Z AUTO 00000KT 10SM CLR 23/20 A2996 RMK AO1 T02250200KASL2018-07-22T11:35:00Z32.52-94.322.520.00010.029.958662TRUETRUEVFRMETAR109.02018-07-22 11:41:19 À/_ŠÀD©°(y5    3KAFO 221135Z AUTO 28003KT 10SM CLR 12/10 A3028 RMK AO2KAFO2018-07-22T11:35:00Z42.72-110.9512.010.0280310.030.280512TRUETRUEVFRMETAR1897.02018-07-22 11:41:19O©°)5     3KAHQ 221135Z AUTO 05004KT 5SM BR CLR 17/17 A3005 RMK AO2 T01680166KAHQ2018-07-22T11:35:00Z41.23-96.616.816.65045.030.050198TRUETRUEBRMVFRMETAR374.02018-07-22 11:41:19J©°) 5    3KAJR 221135Z AUTO 26005KT 7SM CLR 19/19 A2983 RMK AO2 T01940194KAJR2018-07-22T11:35:00Z34.5-83.5519.419.426057.029.828741TRUETRUEVFRMETAR441.02018-07-22 11:41:19K©°) 5    3KALX 221135Z AUTO 00000KT 10SM CLR 20/20 A2986 RMK AO2 T02010201KALX2018-07-22T11:35:00Z32.92-85.9720.120.10010.029.861221TRUETRUEVFRMETAR209.02018-07-22 11:41:19 Õ1`šÕ?©°#(w5    3KACQ 221135Z AUTO 02004KT 7SM CLR 15/13 A3010 RMK AO2KACQ2018-07-22T11:35:00Z44.07-93.5515.013.02047.030.100393TRUETRUEVFRMETAR343.02018-07-22 11:41:19@©°"(y5    3KADH 221135Z AUTO 08004KT 10SM CLR 24/17 A2995 RMK AO2KADH2018-07-22T11:35:00Z34.8-96.6724.017.080410.029.949802TRUETRUEVFRMETAR308.02018-07-22 11:41:19K©°!) 5    3KADM 221135Z AUTO 00000KT 10SM CLR 22/20 A2992 RMK AO2 T02230197KADM2018-07-22T11:35:00Z34.28-97.0222.319.70010.029.920275TRUETRUEVFRMETAR232.02018-07-22 11:41:19I©° ) 5    3KAFK 221135Z AUTO 05004KT 7SM CLR 18/18 A3004 RMK AO2 T01760176KAFK2018-07-22T11:35:00Z40.6-95.8517.617.65047.030.041338TRUETRUEVFRMETAR354.02018-07-22 11:41:19 ¼'I…¼C©°'(}5    3KRGA 221135Z AUTO 26006KT 7SM SCT026 20/18 A2974 RMK AO2KRGA2018-07-22T11:35:00Z37.63-84.3320.018.026067.029.740158TRUETRUEVFRMETAR305.02018-07-22 11:41:19>©°&(y5    3KA39 221135Z AUTO 13005KT 10SM CLR 25/17 A3000 RMK AO2KA392018-07-22T11:35:00Z32.98-111.9225.017.0130510.030.0TRUETRUEVFRMETAR396.02018-07-22 11:41:19X©°%)!5    3KAAA 221135Z AUTO 31003KT 10SM BKN011 BKN031 20/19 A2986 RMK AO2 T01970190KAAA2018-07-22T11:35:00Z40.17-89.3319.719.0310310.029.861221TRUETRUEMVFRMETAR182.02018-07-22 11:41:19S©°$)5     3KACP 221135Z AUTO 24004KT 5SM BR BKN004 25/24 A2994 RMK AO2 T02480236KACP2018-07-22T11:35:00Z30.75-92.6824.823.624045.029.940945TRUETRUEBRLIFRMETAR33.02018-07-22 11:41:19 åE¼åQ©°+)5     3KPTD 221135Z AUTO 05004KT 7SM -RA FEW060 FEW100 16/15 A2996 RMK AO2KPTD2018-07-22T11:35:00Z44.68-74.9516.015.05047.029.958662TRUETRUE-RAVFRMETAR144.02018-07-22 11:41:19?©°*(y5    3KPUJ 221135Z AUTO 00000KT 10SM CLR 20/20 A2985 RMK AO2KPUJ2018-07-22T11:35:00Z33.92-84.9320.020.00010.029.84941TRUETRUEVFRMETAR393.02018-07-22 11:41:19>©°)(y5    3KPVE 221135Z AUTO 00000KT 10SM CLR 20/19 A2985 RMK A01KPVE2018-07-22T11:35:00Z35.65-88.220.019.00010.029.84941TRUETRUEVFRMETAR149.02018-07-22 11:41:195©°((m5     3KPYX 221135Z AUTO 12004KT 10SM CLR A3003 RMK AO2KPYX2018-07-22T11:35:00Z36.42-100.75120410.030.029528TRUETRUEVFRMETAR889.02018-07-22 11:41:19 ±&R‚±K©°/) 5    3KPMV 221135Z AUTO 00000KT 10SM CLR 18/17 A3005 RMK AO2 T01780171KPMV2018-07-22T11:35:00Z40.95-95.9217.817.10010.030.050198TRUETRUEVFRMETAR367.02018-07-22 11:41:19J©°.)5   3KPOY 221135Z AUTO 34025G32KT 10SM CLR 18/M02 A3015 RMK AO2KPOY2018-07-22T11:35:00Z44.87-108.818.0-2.0340253210.030.15059TRUETRUEVFRMETAR1552.02018-07-22 11:41:19N©°-) 5    3KPRS 221135Z AUTO 31007KT 10SM CLR 27/12 A3004 RMK AO2 T02700116KPRS2018-07-22T11:35:00Z29.63-104.3527.011.6310710.030.041338TRUETRUEVFRMETAR896.02018-07-22 11:41:19T©°,)!5    3KPTB 221135Z AUTO 00000KT 10SM BKN070 BKN090 19/17 A2980 RMK AO2 T01860174KPTB2018-07-22T11:35:00Z37.17-77.5218.617.40010.029.799213TRUETRUEVFRMETAR59.02018-07-22 11:41:19 Å1ašÅO©°3)5     3KPEX 221135Z AUTO 00000KT 5SM BR CLR 16/16 A3014 RMK AO2 T01560157KPEX2018-07-22T11:35:00Z45.37-94.7315.615.7005.030.138779TRUETRUEBRMVFRMETAR360.02018-07-22 11:41:19A©°2(y5    3KPHT 221135Z AUTO 26004KT 10SM CLR 20/19 A2985 RMK A01KPHT2018-07-22T11:35:00Z36.33-88.3820.019.0260410.029.84941TRUETRUEVFRMETAR177.02018-07-22 11:41:19J©°1) 5    3KPIM 221135Z AUTO 00000KT 10SM CLR 21/20 A2985 RMK AO2 T02090201KPIM2018-07-22T11:35:00Z32.83-84.8820.920.10010.029.84941TRUETRUEVFRMETAR275.02018-07-22 11:41:19I©°0) 5    3KPKV 221135Z AUTO 21004KT 7SM CLR 26/25 A2997 RMK AO2 T02610245KPKV2018-07-22T11:35:00Z28.65-96.6826.124.521047.029.970472TRUETRUEVFRMETAR9.02018-07-22 11:41:19 Ó-i™Ó@©°7(w5    3KOWI 221135Z AUTO 36003KT 8SM CLR 19/18 A3001 RMK AO2KOWI2018-07-22T11:35:00Z38.53-95.2519.018.036038.030.008858TRUETRUEVFRMETAR292.02018-07-22 11:41:19J©°6) 5    3KOWP 221135Z AUTO 00000KT 10SM CLR 24/19 A2998 RMK AO2 T02410190KOWP2018-07-22T11:35:00Z36.18-96.1524.119.00010.029.97933TRUETRUEVFRMETAR272.02018-07-22 11:41:19>©°5(y5    3KP08 221135Z AUTO 13005KT 10SM CLR 27/19 A3000 RMK AO2KP082018-07-22T11:35:00Z32.93-111.4327.019.0130510.030.0TRUETRUEVFRMETAR481.02018-07-22 11:41:19M©°4) 5    3KPCW 221135Z AUTO 07006KT 10SM FEW022 OVC029 21/18 A2975 RMK AO2KPCW2018-07-22T11:35:00Z41.52-82.8721.018.070610.029.749016TRUETRUEMVFRMETAR178.02018-07-22 11:41:19 ¹>mœ¹]©°;)/5    3KOCW 221135Z AUTO 14005KT 10SM SCT006 SCT021 SCT035 25/24 A2979 RMK AO2 T02520240KOCW2018-07-22T11:35:00Z35.57-77.0525.224.0140510.029.790354TRUETRUEVFRMETAR12.02018-07-22 11:41:19K©°:)5     3KOKV 221135Z AUTO 00000KT 1/4SM FG OVC002 16/16 A2979 RMK AO2KOKV2018-07-22T11:35:00Z39.13-78.1516.016.0000.2529.790354TRUETRUEFGLIFRMETAR222.02018-07-22 11:41:19K©°9) 5    3KOKZ 221135Z AUTO 00000KT 10SM CLR 19/19 A2980 RMK AO2 T01850185KOKZ2018-07-22T11:35:00Z32.97-82.8318.518.50010.029.799213TRUETRUEVFRMETAR134.02018-07-22 11:41:19<©°8(w5    3KONP 221135Z AUTO 00000KT 7SM CLR 07/06 A3017 RMK AO2KONP2018-07-22T11:35:00Z44.57-124.037.06.0007.030.171259TRUETRUEVFRMETAR48.02018-07-22 11:41:19Y8~8@HPX`hpx€ˆ˜ ¨°¸ÀÈÐØàèðø (08@HPX`hpx€ˆ˜ ¨°¸ÀÈÐØàèðø (08@HPX`hpx€ˆ˜ ¨°¸ÀÈÐØàèðø ¨°¸ÀÈÐØàèðø$©¯*%©¯.&©¯2'©¯6(©¯:)©¯>*©¯B+©¯F,©¯J-©¯N.©¯R/©¯V$©¯*%©¯.&©¯2'©¯6(©¯:)©¯>*©¯B+©¯F,©¯J-©¯N.©¯R/©¯V0©¯Z1©¯^2©¯b3©¯f4©¯j5©¯n6©¯r7©¯v8©¯z9©¯~:©°;©°<©° =©°>©°?©°@©°A©°B©°#C©°'D©°+E©°/F©°3G©°7H©°;J©°?K©°CL©°GM©°KN©°OO©°SP©°WQ©°[R©°_S©°dT©°hU©°lV©°pW©°tX©°xY©°|Z©±[©±\©±]©± ^©±_©±`©±a©±b©±!c©±%d©±)e©±-f©±1g©±6h©±:i©±>j©±Bk©±Fl©±Km©±On©±So©±Wp©±[q©±_r©±cs©±gt©±ku©±ov©±sw©±wx©±{y©²z©²{©²|©² }©² ×7n¦×I©°?)5    3KMVH 221135Z AUTO 31020KT 10SM BKN110 17/M00 A3016 RMK AO2KMVH2018-07-22T11:35:00Z46.83-108.9317.00.03102010.030.159449TRUETRUEVFRMETAR1355.02018-07-22 11:41:19B©°>(y5    3KO32 221135Z AUTO 32004KT 10SM CLR 23/14 A2998 RMK AO2KO322018-07-22T11:35:00Z36.67-119.4523.014.0320410.029.97933TRUETRUEVFRMETAR117.02018-07-22 11:41:19C©°=(}5    3KO69 221135Z AUTO 31004KT 8SM OVC010 15/14 A3005 RMK A01KO692018-07-22T11:35:00Z38.25-122.615.014.031048.030.050198TRUETRUEMVFRMETAR28.02018-07-22 11:41:19C©°<(}5     3KOBE 221135Z AUTO 00000KT 5SM BR CLR 25/24 A2993 RMK AO2KOBE2018-07-22T11:35:00Z27.27-80.8525.024.0005.029.929134TRUETRUEBRMVFRMETAR11.02018-07-22 11:41:19 À4a›ÀU©°C)5    3KMOR 221135Z AUTO 23004KT 10SM SCT006 BKN029 OVC034 20/20 A2980 RMK A01KMOR2018-07-22T11:35:00Z36.18-83.3720.020.0230410.029.799213TRUETRUEMVFRMETAR400.02018-07-22 11:41:19@©°B(w5    3KMOX 221135Z AUTO 10005KT 7SM CLR 17/17 A3009 RMK AO2KMOX2018-07-22T11:35:00Z45.57-95.9717.017.010057.030.088583TRUETRUEVFRMETAR344.02018-07-22 11:41:19M©°A) 5    3KMQB 221135Z AUTO 33008KT 10SM CLR 17/17 A2995 RMK AO2 T01740169KMQB2018-07-22T11:35:00Z40.52-90.6517.416.9330810.029.949802TRUETRUEVFRMETAR215.02018-07-22 11:41:19F©°@(}5     3KMRC 221135Z AUTO 21003KT 4SM BR CLR 20/20 A2982 RMK A01KMRC2018-07-22T11:35:00Z35.55-87.1820.020.021034.029.819881TRUETRUEBRMVFRMETAR208.02018-07-22 11:41:19 Ð-d“Ё=©°G(w5    3KMMI 221135Z AUTO 00000KT 7SM CLR 20/20 A2983 RMK A01KMMI2018-07-22T11:35:00Z35.4-84.5720.020.0007.029.828741TRUETRUEVFRMETAR266.02018-07-22 11:41:19K©°F) 5    3KMNE 221135Z AUTO 22005KT 10SM CLR 26/22 A2992 RMK AO2 T02600215KMNE2018-07-22T11:35:00Z32.65-93.326.021.5220510.029.920275TRUETRUEVFRMETAR85.02018-07-22 11:41:19C©°E(5    3KMNV 221135Z AUTO 00000KT 10SM BKN055 20/20 A2981 RMK A01KMNV2018-07-22T11:35:00Z35.55-84.3820.020.00010.029.811024TRUETRUEVFRMETAR314.02018-07-22 11:41:19M©°D) 5    3KMNZ 221135Z AUTO 22006KT 10SM CLR 24/19 A2999 RMK AO2 T02360193KMNZ2018-07-22T11:35:00Z31.67-98.1523.619.3220610.029.991142TRUETRUEVFRMETAR396.02018-07-22 11:41:19 ¢.fw¢O©°K)5    3KMGG 221135Z AUTO 06008KT 10SM OVC007 17/16 A3014 RMK AO2 T01670160KMGG2018-07-22T11:35:00Z45.23-93.9816.716.060810.030.138779TRUETRUEIFRMETAR313.02018-07-22 11:41:19i©°J)?5      3KMKJ 221135Z AUTO 00000KT 7SM DZ BKN005 BKN008 OVC011 19/18 A2984 RMK AO2 P0001 T01880179KMKJ2018-07-22T11:35:00Z36.88-81.3318.817.9007.029.840551TRUETRUEDZIFR0.01METAR780.02018-07-22 11:41:19B©°I(y5    3KMLJ 221135Z AUTO 30003KT 10SM CLR 22/21 A2981 RMK AO2KMLJ2018-07-22T11:35:00Z33.15-83.2322.021.0300310.029.811024TRUETRUEVFRMETAR117.02018-07-22 11:41:19L©°H) 5    3KMMH 221135Z AUTO 01003KT 10SM CLR 10/08 A3040 RMK AO2 T00970082KMMH2018-07-22T11:35:00Z37.62-118.829.78.210310.030.398623TRUETRUEVFRMETAR2173.02018-07-22 11:41:19 ½6h—½T©°O)5    3K8A3 221135Z AUTO 23004KT 10SM BKN046 BKN055 OVC070 19/18 A2979 RMK A01K8A32018-07-22T11:35:00Z36.42-85.3219.018.0230410.029.790354TRUETRUEVFRMETAR419.02018-07-22 11:41:19K©°N) 5    3K9A5 221135Z AUTO 00000KT 10SM CLR 19/19 A2983 RMK AO2 T01900190K9A52018-07-22T11:35:00Z34.68-85.2819.019.00010.029.828741TRUETRUEVFRMETAR237.02018-07-22 11:41:19H©°M) 5    3KA08 221135Z AUTO 00000KT 7SM CLR 23/23 A2984 RMK AO2 T02290229KA082018-07-22T11:35:00Z32.52-87.3822.922.9007.029.840551TRUETRUEVFRMETAR69.02018-07-22 11:41:19D©°L(y5    3KMEV 221135Z AUTO 18003KT 10SM CLR 12/11 A3024 RMK AO2KMEV2018-07-22T11:35:00Z38.98-119.7512.011.0180310.030.239174TRUETRUEVFRMETAR1439.02018-07-22 11:41:19 ¶9p™¶]©°S)+5     3K6B0 221135Z AUTO 18007KT 160V300 10SM -RA OVC100 17/11 A3002 RMK AO2 T01710114K6B02018-07-22T11:35:00Z43.98-73.117.111.4180710.030.02067TRUETRUE-RAVFRMETAR149.02018-07-22 11:41:19Q©°R)5     3K6I2 221135Z AUTO 22003KT 5SM BR FEW013 BKN023 20/19 A2975 RMK AO2K6I22018-07-22T11:35:00Z37.63-85.2520.019.022035.029.749016TRUETRUEBRMVFRMETAR264.02018-07-22 11:41:19C©°Q(y5    3K6S0 221135Z AUTO 30011KT 10SM CLR 14/07 A3019 RMK A01K6S02018-07-22T11:35:00Z45.8-109.9714.07.03001110.030.188976TRUETRUEVFRMETAR1363.02018-07-22 11:41:19A©°P(y5    3K8A0 221135Z AUTO 28004KT 10SM CLR 21/21 A2985 RMK AO2K8A02018-07-22T11:35:00Z34.23-86.2521.021.0280410.029.84941TRUETRUEVFRMETAR315.02018-07-22 11:41:19 Ï4\’ρ=©°W(w5    3KSEM 221135Z AUTO 00000KT 9SM CLR 23/22 A2984 RMK AO2KSEM2018-07-22T11:35:00Z32.35-86.9823.022.0009.029.840551TRUETRUEVFRSPECI51.02018-07-22 11:41:19D©°V(}5     3KSHL 221135Z AUTO 06004KT 6SM BR CLR 15/15 A3007 RMK AO2KSHL2018-07-22T11:35:00Z43.22-95.8215.015.06046.030.070866TRUETRUEBRVFRMETAR432.02018-07-22 11:41:19R©°U)5    3KHST 221135Z 23006KT 10SM FEW030 26/24 A2995 RMK SLP145 VISNO RWY24 $KHST2018-07-22T11:35:00Z25.47-80.3726.024.0230610.029.9498021014.5TRUEVFRSPECI2.02018-07-22 11:41:19F©°T)5   3K6A1 221135Z AUTO 28006KT 10SM 23/20 A2984 RMK AO2 T02260200K6A12018-07-22T11:35:00Z32.57-84.2522.620.0280610.029.840551TRUETRUEMETAR203.02018-07-22 11:41:19 å@t­åB©°[(y5    3KS25 221135Z AUTO 15009KT 10SM CLR 19/17 A2991 RMK AO2KS252018-07-22T11:35:00Z47.8-103.2519.017.0150910.029.911417TRUETRUEVFRMETAR644.02018-07-22 11:41:19A©°Z(y5    3KS33 221135Z AUTO 12005KT 10SM CLR 08/02 A3022 RMK AO2KS332018-07-22T11:35:00Z44.67-121.158.02.0120510.030.221457TRUETRUEVFRMETAR743.02018-07-22 11:41:19F©°Y(5    3KSAA 221135Z AUTO 15004KT 10SM SCT110 16/09 A3034 RMK AO2KSAA2018-07-22T11:35:00Z41.45-106.8316.09.0150410.030.339567TRUETRUEVFRMETAR2138.02018-07-22 11:41:19:©°X(m5     3KSDA 221135Z AUTO 5SM BR CLR 17/16 A3005 RMK AO2KSDA2018-07-22T11:35:00Z40.75-95.4217.016.05.030.050198TRUETRUEBRMVFRMETAR296.02018-07-22 11:41:19 "NpM©°_)5    3KRMY 221135Z AUTO 04004KT 7SM OVC007 20/19 A2980 RMK AO2 T02010193KRMY2018-07-22T11:35:00Z42.23-84.9520.119.34047.029.799213TRUETRUEIFRMETAR287.02018-07-22 11:41:19X©°^)%5     3KRNP 221135Z AUTO 00000KT 5SM BR SCT006 OVC095 20/19 A2982 RMK AO2 T02030187KRNP2018-07-22T11:35:00Z43.0-84.1320.318.7005.029.819881TRUETRUEBRMVFRMETAR224.02018-07-22 11:41:19N©°])5    3KRQB 221135Z AUTO 04003KT 10SM OVC008 20/18 A2987 RMK AO2 T01950184KRQB2018-07-22T11:35:00Z43.72-85.519.518.440310.029.870079TRUETRUEIFRMETAR302.02018-07-22 11:41:19X©°\)5    3KRYV 221135Z AUTO 34008G15KT 5SM BR OVC009 18/18 A2992 RMK AO2 T01800180KRYV2018-07-22T11:35:00Z43.17-88.7218.018.03408155.029.920275TRUETRUEBRIFRMETAR254.02018-07-22 11:41:19 %;t©ö%K©°d) 5    3KPZQ 221135Z AUTO 08005KT 10SM CLR 19/16 A2996 RMK AO2 T01850159KPZQ2018-07-22T11:35:00Z45.4-83.8218.515.980510.029.958662TRUETRUEVFRMETAR204.02018-07-22 11:41:19-©°c(m5     3KRAW 221135Z AUTO 00000KT 10SM CLR A3000 RMK AO2KRAW2018-07-22T11:35:00Z38.35-93.350010.030.0TRUETRUEVFRSPECI285.02018-07-22 11:41:19E©°b(5    3KRBW 221135Z AUTO 22004KT 10SM OVC004 22/22 A2979 RMK AO2KRBW2018-07-22T11:35:00Z32.92-80.6322.022.0220410.029.790354TRUETRUELIFRSPECI31.02018-07-22 11:41:19A©°a(y5    3KRCE 221135Z AUTO 09008KT 10SM CLR 25/16 A2996 RMK AO2KRCE2018-07-22T11:35:00Z35.48-97.8225.016.090810.029.958662TRUETRUEVFRSPECI413.02018-07-22 11:41:19?©°`(w5    3KRDK 221135Z AUTO 06004KT 9SM CLR 17/16 A3005 RMK AO2KRDK2018-07-22T11:35:00Z41.02-95.2717.016.06049.030.050198TRUETRUEVFRMETAR318.02018-07-22 11:41:19 ²7f²W©°h)!5    3KPTW 221135Z AUTO 20006KT 10SM BKN011 OVC018 19/18 A2982 RMK AO2 T01940183KPTW2018-07-22T11:35:00Z40.23-75.5519.418.3200610.029.819881TRUETRUEMVFRSPECI92.02018-07-22 11:41:19Q©°g)5    3KPVB 221135Z AUTO 36010KT 10SM OVC011 18/18 A2998 RMK AO1 T01820180KPVB2018-07-22T11:35:00Z42.68-90.4318.218.03601010.029.97933TRUETRUEMVFRMETAR313.02018-07-22 11:41:19K©°f) 5    3KPVJ 221135Z AUTO 00000KT 10SM CLR 24/19 A2993 RMK AO2 T02360189KPVJ2018-07-22T11:35:00Z34.72-97.2223.618.90010.029.929134TRUETRUEVFRSPECI295.02018-07-22 11:41:19C©°e(}5    3KPWC 221135Z AUTO 10003KT 7SM OVC006 14/14 A3018 RMK AO2KPWC2018-07-22T11:35:00Z46.72-94.3714.014.010037.030.180119TRUETRUEIFRMETAR395.02018-07-22 11:41:19 ¸6`˜¸Z©°l)%5     3KOZW 221135Z AUTO 03003KT 5SM BR SCT080 OVC100 19/19 A2982 RMK AO2 T01920185KOZW2018-07-22T11:35:00Z42.62-83.9719.218.53035.029.819881TRUETRUEBRMVFRMETAR293.02018-07-22 11:41:19B©°k(y5    3KPAN 221135Z AUTO 00000KT 10SM CLR 19/14 A3025 RMK AO2KPAN2018-07-22T11:35:00Z34.25-111.3319.014.00010.030.250984TRUETRUEVFRMETAR1572.02018-07-22 11:41:19P©°j)5    3KPCD 221135Z AUTO 31006KT 10SM SCT021 20/19 A2987 RMK AO2 T01950186KPCD2018-07-22T11:35:00Z37.87-89.8719.518.6310610.029.870079TRUETRUEVFRSPECI113.02018-07-22 11:41:19D©°i(5    3KPLR 221135Z AUTO 22004KT 10SM FEW050 22/22 A2985 RMK A01KPLR2018-07-22T11:35:00Z33.57-86.2522.022.0220410.029.84941TRUETRUEVFRSPECI148.02018-07-22 11:41:19 3j£‚©°p)g5      3KOSH 221135Z 34011KT 1SM R36/5500VP6000FT -RA BR OVC008 18/17 A2994 RMK AO2 RAB19 CIG 006V011 P0004 T01780172KOSH2018-07-22T11:35:00Z43.97-88.5517.817.2340111.029.940945TRUE-RA BRIFR0.04SPECI248.02018-07-22 11:41:19A©°o(y5    3KOVL 221135Z AUTO 08004KT 10SM CLR 17/16 A3010 RMK AO2KOVL2018-07-22T11:35:00Z44.78-95.0317.016.080410.030.100393TRUETRUEVFRMETAR328.02018-07-22 11:41:19C©°n(}5    3KOWX 221135Z AUTO 05005KT 5SM OVC015 18/17 A2977 RMK AO1KOWX2018-07-22T11:35:00Z41.03-83.9818.017.05055.029.769686TRUETRUEMVFRMETAR233.02018-07-22 11:41:19G©°m(5   3KOXV 221135Z AUTO 35007G12KT 10SM CLR 18/17 A3001 RMK AO2KOXV2018-07-22T11:35:00Z41.28-93.1218.017.035071210.030.008858TRUETRUEVFRMETAR283.02018-07-22 11:41:19 Ó&b›ÓB©°t(}5    3KOQN 221135Z AUTO 00000KT 7SM OVC004 20/18 A2981 RMK AO2KOQN2018-07-22T11:35:00Z39.98-75.5820.018.0007.029.811024TRUETRUELIFRMETAR142.02018-07-22 11:41:19A©°s(y5    3KORC 221135Z AUTO 07003KT 10SM CLR 19/17 A3008 RMK AO2KORC2018-07-22T11:35:00Z42.97-96.0719.017.070310.030.079725TRUETRUEVFRMETAR431.02018-07-22 11:41:19>©°r(y5    3KORS 221135Z AUTO 00000KT 10SM CLR 12/10 A3020 RMK AO2KORS2018-07-22T11:35:00Z48.7-122.9212.010.00010.030.200787TRUETRUEVFRMETAR9.02018-07-22 11:41:19T©°q)5   3KOSC 221135Z AUTO 07010G15KT 10SM OVC044 20/17 A2988 RMK AO2 T02000165KOSC2018-07-22T11:35:00Z44.45-83.420.016.570101510.029.878937TRUETRUEVFRMETAR193.02018-07-22 11:41:19 ¶,`¶S©°x)5     3KOEB 221135Z AUTO 03006KT 3SM BR OVC004 20/20 A2979 RMK AO2 T02030202KOEB2018-07-22T11:35:00Z41.92-85.0320.320.23063.029.790354TRUETRUEBRLIFRMETAR292.02018-07-22 11:41:19K©°w)5     3KOLE 221135Z AUTO 06006KT 1/2SM FG OVC002 13/13 A2975 RMK AO2KOLE2018-07-22T11:35:00Z42.23-78.3713.013.06060.529.749016TRUETRUEFGLIFRMETAR651.02018-07-22 11:41:19F©°v(5    3KOLZ 221135Z AUTO 02010KT 10SM OVC011 18/17 A3003 RMK AO2KOLZ2018-07-22T11:35:00Z42.67-91.9718.017.0201010.030.029528TRUETRUEMVFRMETAR328.02018-07-22 11:41:19N©°u)5    3KONZ 221135Z AUTO 05007KT 10SM OVC110 21/18 A2977 RMK AO2 T02050179KONZ2018-07-22T11:35:00Z42.1-83.1520.517.950710.029.769686TRUETRUEVFRMETAR180.02018-07-22 11:41:19 Ã5n¥Ã\©°|)/5    3KASN 221135Z AUTO 00000KT 10SM SCT055 SCT065 BKN085 22/21 A2984 RMK AO2 T02150213KASN2018-07-22T11:35:00Z33.57-86.0521.521.30010.029.840551TRUETRUEVFRSPECI162.02018-07-22 11:41:19C©°{(y5    3KATS 221135Z AUTO 13006KT 10SM CLR 22/09 A3010 RMK AO2KATS2018-07-22T11:35:00Z32.85-104.4722.09.0130610.030.100393TRUETRUEVFRMETAR1081.02018-07-22 11:41:19A©°z(y5    3KAWG 221135Z AUTO 35009KT 10SM CLR 18/17 A2998 RMK AO2KAWG2018-07-22T11:35:00Z41.27-91.6718.017.0350910.029.97933TRUETRUEVFRMETAR230.02018-07-22 11:41:19E©°y(5    3KMXO 221135Z AUTO 32007KT 10SM OVC015 18/18 A2998 RMK AO2KMXO2018-07-22T11:35:00Z42.22-91.1718.018.0320710.029.97933TRUETRUEMVFRMETAR259.02018-07-22 11:41:19 ²2V²X©±)!5    3KAIG 221135Z AUTO 36008KT 10SM BKN010 OVC025 16/16 A3004 RMK AO2 T01630155KAIG2018-07-22T11:35:00Z45.15-89.1216.315.5360810.030.041338TRUETRUEMVFRMETAR464.02018-07-22 11:41:19@©°(}5    3KAQX 221135Z AUTO 00000KT 9SM OVC006 24/24 A2977 RMK AO2KAQX2018-07-22T11:35:00Z32.98-81.2724.024.0009.029.769686TRUETRUEIFRSPECI49.02018-07-22 11:41:19V©°~)5    3KARR 221135Z AUTO 35010KT 8SM SCT024 OVC031 21/19 A2986 RMK AO2 T02110189KARR2018-07-22T11:35:00Z41.77-88.4821.118.9350108.029.861221TRUETRUEVFRSPECI215.02018-07-22 11:41:19H©°})5     3KARW 221135Z AUTO 23006KT 5SM BR OVC010 25/22 A2980 RMK AO2KARW2018-07-22T11:35:00Z32.42-80.6325.022.023065.029.799213TRUETRUEBRMVFRSPECI4.02018-07-22 11:41:19 É:h¥ÉV©±)!5    3KACB 221135Z AUTO 35004KT 10SM SCT008 OVC100 19/18 A2993 RMK AO2 T01910181KACB2018-07-22T11:35:00Z44.98-85.219.118.1350410.029.929134TRUETRUEVFRMETAR190.02018-07-22 11:41:19=©±(w5    3KADU 221135Z AUTO 00000KT 7SM CLR 16/14 A3007 RMK AO2KADU2018-07-22T11:35:00Z41.7-94.9216.014.0007.030.070866TRUETRUEVFRMETAR392.02018-07-22 11:41:19L©±) 5    3KAEJ 221135Z AUTO 05004KT 10SM CLR 12/08 A3044 RMK AO2 T01240077KAEJ2018-07-22T11:35:00Z38.82-106.1212.47.750410.030.43996TRUETRUEVFRMETAR2422.02018-07-22 11:41:19@©±(w5    3KAEL 221135Z AUTO 36005KT 7SM CLR 16/14 A3008 RMK AO2KAEL2018-07-22T11:35:00Z43.68-93.3716.014.036057.030.079725TRUETRUEVFRMETAR383.02018-07-22 11:41:19 Á:e ÁY©±)5     3KBAN 221135Z AUTO 00000KT 3SM BR FEW014 11/08 A3035 RMK AO2 T01060083 $KBAN2018-07-22T11:35:00Z38.35-119.5210.68.3003.030.351377TRUETRUETRUEBRMVFRSPECI2057.02018-07-22 11:41:19?©±(w5    3KAIO 221135Z AUTO 02004KT 8SM CLR 16/16 A3005 RMK AO2KAIO2018-07-22T11:35:00Z41.38-95.0316.016.02048.030.050198TRUETRUEVFRMETAR360.02018-07-22 11:41:19O©±)5     3K82V 221135Z AUTO 22004KT 10SM CLR 13/13 A3012 RMK AO2 PWINOK82V2018-07-22T11:35:00Z41.15-104.1313.013.0220410.030.121063TRUETRUETRUEVFRMETAR1570.02018-07-22 11:41:19@©±(y5      3K9D7 221135Z AUTO 11007KT 3SM BR CLR 16/ A3005 RMK AO2K9D72018-07-22T11:35:00Z48.48-99.2316.011073.030.050198TRUETRUEBRMVFRMETAR452.02018-07-22 11:41:19 Ã)X‹ÃB©± (y5    3KBAC 221135Z AUTO 11004KT 10SM CLR 17/17 A3007 RMK AO2KBAC2018-07-22T11:35:00Z46.93-98.0217.017.0110410.030.070866TRUETRUEVFRMETAR427.02018-07-22 11:41:19G©± ) 5    3KIER 221135Z AUTO 00000KT 7SM CLR 24/24 A2993 RMK AO2 T02420240KIER2018-07-22T11:35:00Z31.73-93.124.224.0007.029.929134TRUETRUEVFRMETAR37.02018-07-22 11:41:19K©± ) 5    3K18A 221135Z AUTO 00000KT 10SM CLR 21/21 A2980 RMK AO2 T02050205K18A2018-07-22T11:35:00Z34.35-83.1320.520.50010.029.799213TRUETRUEVFRMETAR271.02018-07-22 11:41:19Q©± )5    3KAJG 221135Z AUTO 31006KT 10SM OVC012 21/20 A2978 RMK AO2 T02070195KAJG2018-07-22T11:35:00Z38.62-87.7320.719.5310610.029.778543TRUETRUEMVFRMETAR131.02018-07-22 11:41:19 Ë0e“ˁB©±(y5    3KHAE 221135Z AUTO 32006KT 10SM CLR 19/17 A2994 RMK AO2KHAE2018-07-22T11:35:00Z39.73-91.4519.017.0320610.029.940945TRUETRUEVFRSPECI234.02018-07-22 11:41:19L©±) 5    3KHCD 221135Z AUTO 03003KT 10SM CLR 18/17 A3012 RMK AO2 T01760166KHCD2018-07-22T11:35:00Z44.87-94.3817.616.630310.030.121063TRUETRUEVFRMETAR323.02018-07-22 11:41:19E©±(5    3KHCO 221135Z AUTO 13008KT 10SM OVC048 19/17 A3008 RMK AO2KHCO2018-07-22T11:35:00Z48.75-96.9319.017.0130810.030.079725TRUETRUEVFRMETAR250.02018-07-22 11:41:19J©± )5     3KAXA 221135Z AUTO 01004KT 8SM CLR 17/16 A3008 RMK AO2 PWINOKAXA2018-07-22T11:35:00Z43.07-94.2717.016.01048.030.079725TRUETRUETRUEVFRMETAR372.02018-07-22 11:41:19 ;ƒ±Þ?©±(y5    3K65S 221135Z AUTO 00000KT 10SM CLR 10/04 A3019 RMK AO2K65S2018-07-22T11:35:00Z48.73-116.310.04.00010.030.188976TRUETRUEVFRMETAR713.02018-07-22 11:41:19M©±)5    3K66R 221135Z AUTO 22003KT 7SM SCT016 26/24 A2999 RMK AO2 T02550242K66R2018-07-22T11:35:00Z29.65-96.5225.524.222037.029.991142TRUETRUEVFRMETAR74.02018-07-22 11:41:19L©±) 5    3KGPM 221135Z AUTO 19006KT 10SM CLR 28/17 A2992 RMK AO2 T02770165KGPM2018-07-22T11:35:00Z32.7-97.0527.716.5190610.029.920275TRUETRUEVFRMETAR180.02018-07-22 11:41:192©±(g5   3KGWR 221135Z AUTO 12006KT 16/16 A3005 RMK A01KGWR2018-07-22T11:35:00Z46.22-97.6516.016.0120630.050198TRUETRUEMETAR386.02018-07-22 11:41:19?©±(y5    3KGZL 221135Z AUTO 00000KT 10SM CLR 20/17 A2995 RMK AO2KGZL2018-07-22T11:35:00Z35.28-95.120.017.00010.029.949802TRUETRUEVFRSPECI183.02018-07-22 11:41:19 å>n«å@©±(y5    3K4A9 221135Z AUTO 00000KT 10SM CLR 17/16 A2984 RMK AO2K4A92018-07-22T11:35:00Z34.47-85.7217.016.00010.029.840551TRUETRUEVFRMETAR267.02018-07-22 11:41:19=©±(w5    3K5C1 221135Z AUTO 00000KT 7SM CLR 22/22 A3003 RMK AO1K5C12018-07-22T11:35:00Z29.72-98.722.022.0007.030.029528TRUETRUEVFRMETAR423.02018-07-22 11:41:19J©±) 5    3K5R8 221135Z AUTO 23003KT 7SM CLR 25/24 A2996 RMK AO2 T02450238K5R82018-07-22T11:35:00Z30.43-93.4724.523.823037.029.958662TRUETRUEVFRMETAR24.02018-07-22 11:41:19<©±(q5   3K5T9 221135Z AUTO 10005KT 10SM 26/20 A2997 RMK A01K5T92018-07-22T11:35:00Z28.85-100.5226.020.0100510.029.970472TRUETRUEMETAR270.02018-07-22 11:41:19 ² X‰²Q©±)5    3K3LF 221135Z AUTO 33007KT 10SM OVC010 18/18 A2989 RMK AO2 T01830180K3LF2018-07-22T11:35:00Z39.17-89.6718.318.0330710.029.890747TRUETRUEMVFRMETAR210.02018-07-22 11:41:19I©±) 5    3K3R7 221135Z AUTO 24004KT 7SM CLR 26/25 A2995 RMK AO2 T02560250K3R72018-07-22T11:35:00Z30.25-92.6725.625.024047.029.949802TRUETRUEVFRMETAR7.02018-07-22 11:41:19B©±(5    3K3S8 221135Z AUTO 00000KT 10SM OVC023 13/03 A3012 RMK AO2K3S82018-07-22T11:35:00Z42.5-123.413.03.00010.030.121063TRUETRUEMVFRMETAR343.02018-07-22 11:41:19Z©±)%5     3K40J 221135Z AUTO 27004KT 5SM BR BKN012 BKN120 28/27 A2986 RMK AO2 T02790267K40J2018-07-22T11:35:00Z30.07-83.5727.926.727045.029.861221TRUETRUEBRMVFRMETAR13.02018-07-22 11:41:19 Ê>cžÊN©±!)5    3K2F5 221135Z AUTO 34007KT 280V350 10SM BKN110 20/09 A3008 RMK AO2K2F52018-07-22T11:35:00Z32.75-101.9220.09.0340710.030.079725TRUETRUEVFRMETAR912.02018-07-22 11:41:19?©± (y5    3K2M2 221135Z AUTO 00000KT 10SM CLR 19/19 A2985 RMK A01K2M22018-07-22T11:35:00Z35.23-87.2519.019.00010.029.84941TRUETRUEVFRMETAR286.02018-07-22 11:41:19U©±)!5    3K3I2 221135Z AUTO 05003KT 10SM SCT013 BKN048 20/20 A2972 RMK AO2 T02010198K3I22018-07-22T11:35:00Z38.92-82.120.119.850310.029.719488TRUETRUEVFRMETAR196.02018-07-22 11:41:19<©±(w5    3K3L4 221135Z AUTO 27004KT 7SM CLR 26/25 A2995 RMK A01K3L42018-07-22T11:35:00Z29.8-92.826.025.027047.029.949802TRUETRUEVFRMETAR2.02018-07-22 11:41:19 ¾:_•¾Q©±%)5    3K1H2 221135Z AUTO 31009KT 10SM OVC011 20/20 A2983 RMK AO2 T02010195K1H22018-07-22T11:35:00Z39.07-88.5320.119.5310910.029.828741TRUETRUEMVFRMETAR179.02018-07-22 11:41:19D©±$(5    3K1M5 221135Z AUTO 27005KT 10SM FEW075 20/19 A2980 RMK A01K1M52018-07-22T11:35:00Z36.6-86.4820.019.0270510.029.799213TRUETRUEVFRMETAR250.02018-07-22 11:41:19U©±#)!5    3K24A 221135Z AUTO 00000KT 10SM BKN022 BKN027 17/17 A2988 RMK AO2 T01740169K24A2018-07-22T11:35:00Z35.32-83.217.416.90010.029.878937TRUETRUEMVFRMETAR871.02018-07-22 11:41:19@©±"(y5    3K2A0 221135Z AUTO 00000KT 10SM CLR 20/20 A2980 RMK A01K2A02018-07-22T11:35:00Z35.48-84.9320.020.00010.029.799213TRUETRUEVFRMETAR219.02018-07-22 11:41:19 ®0[†®R©±))5     3K0R4 221135Z AUTO 20003KT 3SM BR SCT120 25/25 A2992 RMK AO2 T02500246K0R42018-07-22T11:35:00Z31.57-91.525.024.620033.029.920275TRUETRUEBRMVFRMETAR17.02018-07-22 11:41:19O©±() 5    3K19S 221135Z AUTO 14012KT 10SM CLR 22/18 A3003 RMK AO2 T02240184K19S2018-07-22T11:35:00Z37.48-100.8322.418.41401210.030.029528TRUETRUEVFRMETAR886.02018-07-22 11:41:19O©±')5    3K1A6 221135Z AUTO 00000KT 10SM OVC026 20/20 A2980 RMK AO2 T01980198K1A62018-07-22T11:35:00Z36.62-83.7319.819.80010.029.799213TRUETRUEMVFRMETAR352.02018-07-22 11:41:19J©±&) 5    3K1A9 221135Z AUTO 00000KT 10SM CLR 22/22 A2983 RMK AO2 T02220222K1A92018-07-22T11:35:00Z32.43-86.5222.222.20010.029.828741TRUETRUEVFRMETAR69.02018-07-22 11:41:19 šGošO©±-)5    3K06C 221135Z AUTO 35006KT 10SM OVC012 20/18 A2985 RMK AO2 T01950180K06C2018-07-22T11:35:00Z41.98-88.119.518.0350610.029.84941TRUETRUEMVFRMETAR244.02018-07-22 11:41:19R©±,)5     3K0A9 221135Z AUTO 25003KT 4SM -RA BKN006 OVC009 19/19 A2980 RMK AO2K0A92018-07-22T11:35:00Z36.37-82.1719.019.025034.029.799213TRUETRUE-RAIFRMETAR486.02018-07-22 11:41:19J©±+) 5    3K0F2 221135Z AUTO 00000KT 10SM CLR 22/16 A2993 RMK AO2 T02150157K0F22018-07-22T11:35:00Z33.6-97.7821.515.70010.029.929134TRUETRUEVFRMETAR336.02018-07-22 11:41:19c©±*)/5      3K0R0 221135Z AUTO 25004KT 7SM FEW009 SCT014 SCT085 26/25 A2995 RMK AO2 PWINO TSNOK0R02018-07-22T11:35:00Z31.3-89.8226.025.025047.029.949802TRUETRUETRUETRUEVFRMETAR81.02018-07-22 11:41:19 Ô1k ÔF©±1(5    3KMRJ 221135Z AUTO 36009KT 10SM OVC010 18/18 A2997 RMK AO2KMRJ2018-07-22T11:35:00Z42.88-90.2318.018.0360910.029.970472TRUETRUEMVFRMETAR359.02018-07-22 11:41:19E©±0(5    3KMUT 221135Z AUTO 34008KT 10SM FEW030 18/17 A2995 RMK AO2KMUT2018-07-22T11:35:00Z41.37-91.1518.017.0340810.029.949802TRUETRUEVFRMETAR167.02018-07-22 11:41:19@©±/(y5    3K04W 221135Z AUTO 02003KT 10SM CLR 15/15 A3014 RMK AO2K04W2018-07-22T11:35:00Z46.02-92.915.015.020310.030.138779TRUETRUEVFRMETAR311.02018-07-22 11:41:19I©±.)5   3K05U 221135Z AUTO 00000G10KT 10SM BKN120 16/13 A3032 RMK A01K05U2018-07-22T11:35:00Z39.6-116.016.013.0001010.030.318897TRUETRUEVFRMETAR1816.02018-07-22 11:41:19 ;q¢Ú@©±6(y5    3KDNA 221135Z AUTO 00000KT 10SM CLR 26/07 A3011 RMK AO2KDNA2018-07-22T11:35:00Z31.88-106.726.07.00010.030.109253TRUETRUEVFRMETAR1253.02018-07-22 11:41:19B©±5(y5    3KMVE 221135Z AUTO 14007KT 10SM CLR 18/18 A3009 RMK AO2KMVE2018-07-22T11:35:00Z44.97-95.7218.018.0140710.030.088583TRUETRUEVFRMETAR315.02018-07-22 11:41:19I©±4)5     3KMWC 221135Z AUTO 34007KT 4SM RA OVC006 18/16 A2990 RMK AO2KMWC2018-07-22T11:35:00Z43.12-88.0318.016.034074.029.899607TRUETRUERAIFRMETAR227.02018-07-22 11:41:19D©±3(}5     3KMJQ 221135Z AUTO 00000KT 4SM BR CLR 16/16 A3010 RMK AO2KMJQ2018-07-22T11:35:00Z43.63-94.9716.016.0004.030.100393TRUETRUEBRMVFRMETAR441.02018-07-22 11:41:19?©±2(}5    3KMKN 221135Z AUTO 10SM CLR 25/18 A2999 RMK AO2 T02500178KMKN2018-07-22T11:35:00Z31.92-98.625.017.810.029.991142TRUETRUEVFRMETAR423.02018-07-22 11:41:19 Á)UÁF©±:(}5     3KBNW 221135Z AUTO 33005KT 5SM BR CLR 17/16 A3004 RMK AO2KBNW2018-07-22T11:35:00Z42.03-93.8317.016.033055.030.041338TRUETRUEBRMVFRMETAR354.02018-07-22 11:41:19B©±9(y5    3KD60 221135Z AUTO 13008KT 10SM CLR 17/17 A2995 RMK AO2KD602018-07-22T11:35:00Z48.38-102.917.017.0130810.029.949802TRUETRUEVFRMETAR693.02018-07-22 11:41:19N©±8) 5    3KDEH 221135Z AUTO 36007KT 10SM BKN013 OVC018 17/16 A3003 RMK AO2KDEH2018-07-22T11:35:00Z43.27-91.7217.016.0360710.030.029528TRUETRUEMVFRMETAR353.02018-07-22 11:41:19Q©±7)5    3KDLL 221135Z AUTO 36005KT 10SM OVC014 18/15 A2997 RMK AO2 T01750150KDLL2018-07-22T11:35:00Z43.52-89.7717.515.0360510.029.970472TRUETRUEMVFRMETAR299.02018-07-22 11:41:19 Ý0j£Ý@©±>(y5    3KBBB 221135Z AUTO 00000KT 10SM CLR 18/16 A3012 RMK AO2KBBB2018-07-22T11:35:00Z45.32-95.6518.016.00010.030.121063TRUETRUEVFRMETAR317.02018-07-22 11:41:19A©±=(y5    3KBBP 221135Z AUTO 18004KT 10SM CLR 22/22 A2976 RMK AO2KBBP2018-07-22T11:35:00Z34.62-79.7322.022.0180410.029.760826TRUETRUEVFRSPECI45.02018-07-22 11:41:19@©±<(y5    3KBDN 221135Z AUTO 21005KT 10SM CLR 09/01 A3023 RMK AO2KBDN2018-07-22T11:35:00Z44.1-121.29.01.0210510.030.230314TRUETRUEVFRMETAR1055.02018-07-22 11:41:19J©±;) 5    3KBEA 221135Z AUTO 00000KT 10SM CLR 24/23 A2996 RMK AO2 T02360233KBEA2018-07-22T11:35:00Z28.37-97.7823.623.30010.029.958662TRUETRUEVFRMETAR82.02018-07-22 11:41:19 ½,d“½P©±B)5    3KVLL 221135Z AUTO 03007KT 10SM OVC011 20/18 A2983 RMK AO2 T02030181KVLL2018-07-22T11:35:00Z42.55-83.1820.318.130710.029.828741TRUETRUEMVFRMETAR222.02018-07-22 11:41:19K©±A)5    3KW75 221135Z AUTO 00000KT 10SM SCT120 20/20 A2980 RMK AO1 T02020202KW752018-07-22T11:35:00Z37.6-76.4520.220.20010.029.799213TRUETRUEVFRSPECI9.02018-07-22 11:41:19B©±@(5    3KAIT 221135Z AUTO 00000KT 10SM SCT010 14/13 A3015 RMK AO2KAIT2018-07-22T11:35:00Z46.53-93.6714.013.00010.030.15059TRUETRUEVFRMETAR367.02018-07-22 11:41:19N©±?) 5    3KANK 221135Z AUTO 27008KT 10SM CLR 14/10 A3048 RMK AO1 T01440099KANK2018-07-22T11:35:00Z38.53-106.0514.49.9270810.030.481298TRUETRUEVFRMETAR2293.02018-07-22 11:41:19 Í1]–́C©±F(}5     3KUOX 221135Z AUTO 00000KT 6SM BR CLR 21/21 A2990 RMK AO2KUOX2018-07-22T11:35:00Z34.38-89.5321.021.0006.029.899607TRUETRUEBRVFRSPECI137.02018-07-22 11:41:19A©±E({5    3KUTA 221135Z AUTO 00000KT 10SM 21/19 A2989 RMK AO2 TSNOKUTA2018-07-22T11:35:00Z34.68-90.3521.019.00010.029.890747TRUETRUETRUESPECI59.02018-07-22 11:41:19N©±D)5    3KUTS 221135Z AUTO 22007KT 8SM FEW009 25/23 A2996 RMK AO2 T02500233KUTS2018-07-22T11:35:00Z30.75-95.5825.023.322078.029.958662TRUETRUEVFRSPECI104.02018-07-22 11:41:19I©±C)5     3KUYF 221135Z AUTO 04005KT 4SM BR OVC003 19/18 A2972 RMK AO2KUYF2018-07-22T11:35:00Z39.93-83.4719.018.04054.029.719488TRUETRUEBRLIFRMETAR330.02018-07-22 11:41:19 :r¨ßB©±K(}5    3KTOB 221135Z AUTO 02007KT 7SM OVC009 16/14 A3008 RMK AO2KTOB2018-07-22T11:35:00Z44.02-92.8216.014.02077.030.079725TRUETRUEIFRMETAR398.02018-07-22 11:41:19C©±J(5    3KTPF 221135Z AUTO 26005KT 10SM SCT110 28/26 A2993 RMK AO2KTPF2018-07-22T11:35:00Z27.92-82.4528.026.0260510.029.929134TRUETRUEVFRSPECI3.02018-07-22 11:41:19D©±I(y5    3KTSP 221135Z AUTO 26005KT 10SM CLR 19/13 A3019 RMK AO2KTSP2018-07-22T11:35:00Z35.13-118.4319.013.0260510.030.188976TRUETRUEVFRMETAR1220.02018-07-22 11:41:19B©±H(5    3KUBE 221135Z AUTO 00000KT 10SM SCT011 15/13 A3013 RMK AO2KUBE2018-07-22T11:35:00Z45.5-91.9815.013.00010.030.129921TRUETRUEVFRMETAR379.02018-07-22 11:41:19@©±G(y5    3KULM 221135Z AUTO 05003KT 10SM CLR 18/16 A3010 RMK AO2KULM2018-07-22T11:35:00Z44.32-94.518.016.050310.030.100393TRUETRUEVFRMETAR308.02018-07-22 11:41:19 ×9x®×Q©±O)5    3KTKV 221135Z AUTO 35004KT 10SM OVC015 16/14 A3008 RMK AO2 T01570139KTKV2018-07-22T11:35:00Z45.47-89.8215.713.9350410.030.079725TRUETRUEMVFRMETAR453.02018-07-22 11:41:19D©±N(}5     3KTKX 221135Z AUTO 30004KT 6SM BR CLR 22/20 A2986 RMK AO2KTKX2018-07-22T11:35:00Z36.22-90.0222.020.030046.029.861221TRUETRUEBRVFRSPECI80.02018-07-22 11:41:19;©±M(u5    3KTME 221135Z AUTO 24007KT 6SM BR 26/25 A2999 RMK AO2KTME2018-07-22T11:35:00Z29.8-95.926.025.024076.029.991142TRUETRUEBRMETAR51.02018-07-22 11:41:19A©±L(y5    3KTNU 221135Z AUTO 35008KT 10SM CLR 17/16 A3002 RMK AO2KTNU2018-07-22T11:35:00Z41.67-93.0217.016.0350810.030.02067TRUETRUEVFRMETAR290.02018-07-22 11:41:19 Ö.ZŸÖC©±S(y5    3KSOW 221135Z AUTO 19003KT 10SM CLR 16/14 A3035 RMK AO2KSOW2018-07-22T11:35:00Z34.27-110.016.014.0190310.030.351377TRUETRUEVFRMETAR1954.02018-07-22 11:41:195©±R(o5   3KSRR 221135Z AUTO 00000KT CLR 19/03 A3036 RMK AO2KSRR2018-07-22T11:35:00Z33.47-105.5219.03.00030.360237TRUETRUEMETAR2076.02018-07-22 11:41:19N©±Q) 5    3KSXU 221135Z AUTO 14005KT 10SM CLR 19/05 A3018 RMK AO2 T01880053KSXU2018-07-22T11:35:00Z34.93-104.6518.85.3140510.030.180119TRUETRUEVFRMETAR1460.02018-07-22 11:41:19L©±P) 5    3KSYF 221135Z AUTO 00000KT 10SM CLR 20/17 A3006 RMK AO2 T01950173KSYF2018-07-22T11:35:00Z39.77-101.819.517.30010.030.059055TRUETRUEVFRSPECI1025.02018-07-22 11:41:19 Ð.Z”Ё>©±W(w5    3KSLB 221135Z AUTO 04006KT 9SM CLR 18/17 A3008 RMK AO2KSLB2018-07-22T11:35:00Z42.6-95.2218.017.04069.030.079725TRUETRUEVFRMETAR454.02018-07-22 11:41:19@©±V(y5    3KSMS 221135Z AUTO 21006KT 10SM CLR 22/20 A2977 RMK AO2KSMS2018-07-22T11:35:00Z34.0-80.3722.020.0210610.029.769686TRUETRUEVFRSPECI56.02018-07-22 11:41:19N©±U) 5    3KSNC 221135Z AUTO 14008G15KT 3SM BR OVC003 22/22 A2995 RMK AO2KSNC2018-07-22T11:35:00Z41.38-72.522.022.01408153.029.949802TRUETRUEBRLIFRMETAR127.02018-07-22 11:41:19L©±T) 5    3KSNK 221135Z AUTO 20005KT 10SM CLR 24/08 A3005 RMK AO2 T02410081KSNK2018-07-22T11:35:00Z32.7-100.9524.18.1200510.030.050198TRUETRUEVFRMETAR741.02018-07-22 11:41:19 Æ8WÆD©±[(5    3KDYT 221135Z AUTO 04006KT 10SM OVC026 18/16 A3015 RMK AO2KDYT2018-07-22T11:35:00Z46.72-92.0318.016.040610.030.15059TRUETRUEMVFRMETAR186.02018-07-22 11:41:19A©±Z(w5    3KECU 221135Z AUTO 15007KT 8SM CLR 23/22 A3010 RMK AO2KECU2018-07-22T11:35:00Z29.95-100.1723.022.015078.030.100393TRUETRUEVFRMETAR725.02018-07-22 11:41:19[©±Y)'5   3KEFT 221135Z AUTO 35009G14KT 10SM BKN009 OVC012 18/17 A2994 RMK AO2 T01830171KEFT2018-07-22T11:35:00Z42.62-89.618.317.135091410.029.940945TRUETRUEIFRMETAR331.02018-07-22 11:41:19B©±X(y5    3KEOK 221135Z AUTO 35009KT 10SM CLR 19/17 A2993 RMK AO2KEOK2018-07-22T11:35:00Z40.47-91.4219.017.0350910.029.929134TRUETRUEVFRMETAR205.02018-07-22 11:41:19 ©O{©L©±_) 5    3KDRI 221135Z AUTO 24005KT 10SM CLR 25/24 A2996 RMK AO2 T02480240KDRI2018-07-22T11:35:00Z30.83-93.3324.824.0240510.029.958662TRUETRUEVFRSPECI63.02018-07-22 11:41:19N©±^)5     3KDRM 221135Z AUTO 00000KT 5SM BR CLR 20/19 A2997 RMK AO2 T02030187KDRM2018-07-22T11:35:00Z46.0-83.7520.318.7005.029.970472TRUETRUEBRMVFRMETAR204.02018-07-22 11:41:19G©±](5   3KDTL 221135Z AUTO 14009G14KT 10SM CLR 17/16 A3012 RMK AO2KDTL2018-07-22T11:35:00Z46.82-95.8717.016.014091410.030.121063TRUETRUEVFRMETAR426.02018-07-22 11:41:19^©±\)/5    3KDUH 221135Z AUTO 03004KT 10SM SCT018 SCT025 BKN030 21/19 A2977 RMK AO2 T02100190KDUH2018-07-22T11:35:00Z41.73-83.6521.019.030410.029.769686TRUETRUEMVFRMETAR204.02018-07-22 11:41:19 ¶6N‡¶K©±c)5    3KEVM 221135Z AUTO 00000KT 7SM SCT014 14/13 A3018 RMK AO2 T01350134KEVM2018-07-22T11:35:00Z47.42-92.513.513.4007.030.180119TRUETRUEVFRMETAR421.02018-07-22 11:41:19A©±b(y5    3KFBL 221135Z AUTO 01005KT 10SM CLR 16/16 A3009 RMK AO2KFBL2018-07-22T11:35:00Z44.33-93.3216.016.010510.030.088583TRUETRUEVFRMETAR322.02018-07-22 11:41:19b©±a)75     3KFBR 221135Z AUTO 00000KT 10SM -RA SCT049 SCT070 OVC090 19/09 A3038 RMK AO2 T01900092KFBR2018-07-22T11:35:00Z41.4-110.419.09.20010.030.380905TRUETRUE-RAVFRMETAR2144.02018-07-22 11:41:19D©±`(}5     3KDNS 221135Z AUTO 00000KT 3SM BR CLR 15/15 A3008 RMK AO2KDNS2018-07-22T11:35:00Z41.97-95.3715.015.0003.030.079725TRUETRUEBRMVFRMETAR388.02018-07-22 11:41:19 ­1X„­Q©±g)5   3KY31 221135Z AUTO 03009G16KT 10SM CLR 19/17 A2988 RMK AO2 T01850171KY312018-07-22T11:35:00Z44.25-84.1818.517.13091610.029.878937TRUETRUEVFRMETAR269.02018-07-22 11:41:19N©±f)5    3KERV 221135Z AUTO 16003KT 7SM SCT012 25/23 A3003 RMK AO2 T02470225KERV2018-07-22T11:35:00Z29.98-99.0824.722.516037.030.029528TRUETRUEVFRMETAR510.02018-07-22 11:41:19S©±e)5     3KERY 221135Z AUTO 36005KT 5SM BR OVC003 16/16 A2999 RMK AO2 T01600155KERY2018-07-22T11:35:00Z46.3-85.4516.015.536055.029.991142TRUETRUEBRLIFRMETAR265.02018-07-22 11:41:19I©±d)5     3KETB 221135Z AUTO 35008KT 3SM BR OVC006 18/18 A2991 RMK AO2KETB2018-07-22T11:35:00Z43.42-88.1318.018.035083.029.911417TRUETRUEBRIFRMETAR270.02018-07-22 11:41:19 Ö'_žÖB©±k(y5    3KHZE 221135Z AUTO 08005KT 10SM CLR 17/17 A2997 RMK AO2KHZE2018-07-22T11:35:00Z47.28-101.5817.017.080510.029.970472TRUETRUEVFRMETAR553.02018-07-22 11:41:19;©±j(u5    3KX60 221135Z AUTO 00000KT 4SM BR 28/28 A2988 RMK A01KX602018-07-22T11:35:00Z29.35-82.4728.028.0004.029.878937TRUETRUEBRSPECI23.02018-07-22 11:41:19B©±i(y5    3KY19 221135Z AUTO 14008KT 10SM CLR 18/18 A2999 RMK AO2KY192018-07-22T11:35:00Z46.77-100.918.018.0140810.029.991142TRUETRUEVFRMETAR593.02018-07-22 11:41:19S©±h)5    3KY23 221135Z AUTO 01007KT 320V020 10SM CLR 17/15 A3011 RMK AO2 T01650148KY232018-07-22T11:35:00Z45.3-91.6316.514.810710.030.109253TRUETRUEVFRMETAR322.02018-07-22 11:41:19 Ø'^•Ø7©±o(o5   3KHNR 221135Z AUTO 00000KT 8SM 16/16 A3006 RMK AO2KHNR2018-07-22T11:35:00Z41.58-95.3316.016.0008.030.059055TRUETRUEMETAR375.02018-07-22 11:41:19C©±n(y5    3KHOB 221135Z AUTO 26004KT 10SM CLR 20/08 A3012 RMK AO2KHOB2018-07-22T11:35:00Z32.67-103.2220.08.0260410.030.121063TRUETRUEVFRMETAR1115.02018-07-22 11:41:19C©±m(}5     3KHYW 221135Z AUTO 00000KT 5SM BR CLR 23/23 A2978 RMK AO2KHYW2018-07-22T11:35:00Z33.83-79.1223.023.0005.029.778543TRUETRUEBRMVFRSPECI11.02018-07-22 11:41:19S©±l)5    3KHYX 221135Z AUTO 02003KT 10SM SCT044 BKN055 BKN075 20/18 A2983 RMK AO2KHYX2018-07-22T11:35:00Z43.43-83.8720.018.020310.029.828741TRUETRUEVFRMETAR183.02018-07-22 11:41:19 œ*Rœ_©±s)/5    3KFEP 221135Z AUTO 35008KT 10SM SCT011 BKN015 OVC038 19/18 A2994 RMK AO2 T01850175KFEP2018-07-22T11:35:00Z42.25-89.5818.517.5350810.029.940945TRUETRUEMVFRMETAR262.02018-07-22 11:41:19K©±r)5     3KFFL 221135Z AUTO 35008KT 9SM CLR 18/17 A2997 RMK AO2 PWINOKFFL2018-07-22T11:35:00Z41.03-91.9718.017.035089.029.970472TRUETRUETRUEVFRMETAR244.02018-07-22 11:41:19R©±q)5     3KY70 221135Z AUTO 03006KT 5SM BR OVC006 20/20 A2983 RMK AO2 T02000195KY702018-07-22T11:35:00Z42.93-85.0720.019.53065.029.828741TRUETRUEBRIFRMETAR250.02018-07-22 11:41:19P©±p)5    3KHFY 221135Z AUTO 34006KT 10SM OVC005 20/20 A2974 RMK AO2 T01970195KHFY2018-07-22T11:35:00Z39.63-86.0819.719.5340610.029.740158TRUETRUEIFRMETAR251.02018-07-22 11:41:19 À,bˆÀB©±w(y5    3KFFM 221135Z AUTO 12008KT 10SM CLR 18/18 A3010 RMK AO2KFFM2018-07-22T11:35:00Z46.28-96.1518.018.0120810.030.100393TRUETRUEVFRMETAR361.02018-07-22 11:41:19T©±v)5     3KFKA 221135Z AUTO 36007KT 5SM BR SCT008 15/14 A3007 RMK AO2 T01490140KFKA2018-07-22T11:35:00Z43.68-92.1714.914.036075.030.070866TRUETRUEBRMVFRMETAR389.02018-07-22 11:41:19D©±u(}5    3KFMH 221135Z AUTO 13014KT 7SM OVC004 22/22 A3007 RMK AO2KFMH2018-07-22T11:35:00Z41.63-70.5222.022.0130147.030.070866TRUETRUELIFRMETAR40.02018-07-22 11:41:19N©±t) 5    3KBMC 221135Z AUTO 32003KT 10SM CLR 26/09 A3014 RMK AO1 T02600093KBMC2018-07-22T11:35:00Z41.55-112.0726.09.3320310.030.138779TRUETRUEVFRMETAR1288.02018-07-22 11:41:19 æ<v«æ?©±{(y5    3KGCM 221135Z AUTO 00000KT 10SM CLR 20/17 A2999 RMK AO2KGCM2018-07-22T11:35:00Z36.3-95.4820.017.00010.029.991142TRUETRUEVFRSPECI221.02018-07-22 11:41:19E©±z(}5     3KGHW 221135Z AUTO 08005KT 5SM BR CLR 16/16 A3013 RMK AO2KGHW2018-07-22T11:35:00Z45.63-95.3216.016.08055.030.129921TRUETRUEBRMVFRMETAR425.02018-07-22 11:41:19@©±y(y5    3KGIC 221135Z AUTO 00000KT 10SM CLR 08/01 A3021 RMK AO1KGIC2018-07-22T11:35:00Z45.95-116.128.01.00010.030.209646TRUETRUEVFRMETAR1009.02018-07-22 11:41:19>©±x(y5    3KGMJ 221135Z AUTO 00000KT 10SM CLR 20/18 A2998 RMK AO2KGMJ2018-07-22T11:35:00Z36.6-94.7320.018.00010.029.97933TRUETRUEVFRSPECI254.02018-07-22 11:41:19 +c›ß;©²(y5     3KFRH 221135Z AUTO 00000KT 5SM OVC004 19/ A2976 RMK AO1KFRH2018-07-22T11:35:00Z38.5-86.6319.0005.029.760826TRUETRUELIFRMETAR241.02018-07-22 11:41:196©±(i5    3KFRR 221135Z AUTO 10SM CLR 18/18 A2976 RMK AO1KFRR2018-07-22T11:35:00Z38.92-78.2518.018.010.029.760826TRUETRUEVFRSPECI216.02018-07-22 11:41:19B©±~(y5    3KFSE 221135Z AUTO 13007KT 10SM CLR 17/15 A3012 RMK AO2KFSE2018-07-22T11:35:00Z47.58-95.7717.015.0130710.030.121063TRUETRUEVFRMETAR389.02018-07-22 11:41:19B©±}(y5    3KFSW 221135Z AUTO 36006KT 10SM CLR 18/18 A2995 RMK AO2KFSW2018-07-22T11:35:00Z40.67-91.3218.018.0360610.029.949802TRUETRUEVFRMETAR221.02018-07-22 11:41:19O©±|)5    3KGCD 221135Z AUTO 09004KT 10SM CLR 11/M02 A3023 RMK AO2 T01091025KGCD2018-07-22T11:35:00Z44.38-118.9710.9-2.590410.030.230314TRUETRUEVFRMETAR1127.02018-07-22 11:41:19 ±(Vz±C©²(y5    3KBWW 221135Z AUTO 19015KT 10SM CLR 17/17 A2988 RMK AO2KBWW2018-07-22T11:35:00Z46.17-103.317.017.01901510.029.878937TRUETRUEVFRMETAR910.02018-07-22 11:41:19V©²)5   3KC29 221135Z AUTO 35008G15KT 10SM OVC010 19/17 A2996 RMK AO1 T01900169KC292018-07-22T11:35:00Z43.12-89.5319.016.935081510.029.958662TRUETRUEMVFRMETAR283.02018-07-22 11:41:19L©²) 5    3KBVU 221135Z AUTO 00000KT 10SM FEW055 BKN100 24/16 A3004 RMK AO2KBVU2018-07-22T11:35:00Z35.95-114.8724.016.00010.030.041338TRUETRUEVFRMETAR671.02018-07-22 11:41:19R©²)5     3KFPK 221135Z AUTO 04004KT 3SM BR OVC006 20/19 A2981 RMK AO2 T02000187KFPK2018-07-22T11:35:00Z42.57-84.8220.018.74043.029.811024TRUETRUEBRIFRMETAR272.02018-07-22 11:41:19 Â8[‡Â?©²(y5    3KCDN 221135Z AUTO 00000KT 10SM CLR 22/20 A2977 RMK AO2KCDN2018-07-22T11:35:00Z34.28-80.5722.020.00010.029.769686TRUETRUEVFRSPECI92.02018-07-22 11:41:19N©²)5    3KCFJ 221135Z AUTO 32007KT 7SM OVC005 19/19 A2976 RMK AO2 T01870187KCFJ2018-07-22T11:35:00Z39.98-86.9218.718.732077.029.760826TRUETRUEIFRMETAR244.02018-07-22 11:41:19W©²)!5    3KCMY 221135Z AUTO 36006KT 10SM SCT019 BKN037 14/14 A3004 RMK AO2 T01430136KCMY2018-07-22T11:35:00Z43.97-90.7314.313.6360610.030.041338TRUETRUEVFRMETAR256.02018-07-22 11:41:19B©²(y5    3KCMR 221135Z AUTO 16007KT 10SM CLR 14/12 A3034 RMK AO2KCMR2018-07-22T11:35:00Z35.3-112.214.012.0160710.030.339567TRUETRUEVFRMETAR2036.02018-07-22 11:41:19 Ø=t¯ØQ©² ) 5     3KCAV 221135Z AUTO 34004KT 5SM BR CLR 16/15 A3006 RMK AO2 PWINOKCAV2018-07-22T11:35:00Z42.75-93.7716.015.034045.030.059055TRUETRUETRUEBRMVFRMETAR354.02018-07-22 11:41:19?©² (w5    3KCBF 221135Z AUTO 02005KT 9SM CLR 17/17 A3005 RMK AO2KCBF2018-07-22T11:35:00Z41.27-95.7717.017.02059.030.050198TRUETRUEVFRMETAR382.02018-07-22 11:41:19C©² (y5    3KCBK 221135Z AUTO 10005KT 10SM CLR 19/18 A3007 RMK AO2KCBK2018-07-22T11:35:00Z39.43-101.0519.018.0100510.030.070866TRUETRUEVFRSPECI971.02018-07-22 11:41:19=©² (w5    3KCDH 221135Z AUTO 00000KT 9SM CLR 25/21 A2989 RMK AO2KCDH2018-07-22T11:35:00Z33.62-92.7725.021.0009.029.890747TRUETRUEVFRSPECI35.02018-07-22 11:41:19 ¬@x¬F©²(}5     3KCIN 221135Z AUTO 32003KT 5SM BR CLR 16/16 A3006 RMK AO2KCIN2018-07-22T11:35:00Z42.03-94.7716.016.032035.030.059055TRUETRUEBRMVFRMETAR375.02018-07-22 11:41:19B©²(y5    3KCKN 221135Z AUTO 12006KT 10SM CLR 18/17 A3009 RMK AO2KCKN2018-07-22T11:35:00Z47.85-96.6218.017.0120610.030.088583TRUETRUEVFRMETAR273.02018-07-22 11:41:19W©²)!5    3KC35 221135Z AUTO 35007KT 10SM BKN016 OVC047 17/17 A2998 RMK AO2 T01740167KC352018-07-22T11:35:00Z43.53-89.9817.416.7350710.029.97933TRUETRUEMVFRMETAR276.02018-07-22 11:41:19]©² )/5    3KCAD 221135Z AUTO 03006KT 10SM BKN006 BKN028 OVC120 18/17 A2991 RMK AO2 T01850177KCAD2018-07-22T11:35:00Z44.27-85.4218.517.730610.029.911417TRUETRUEIFRMETAR398.02018-07-22 11:41:19 ¾:„¡¾]©²)'5     3KCLW 221135Z AUTO 27008KT 10SM SCT019 SCT029 SCT039 28/25 A2992 RMK AO2 P0001KCLW2018-07-22T11:35:00Z27.98-82.7528.025.0270810.029.920275TRUETRUEVFR0.01SPECI22.02018-07-22 11:41:19]©²)/5    3KCFS 221135Z AUTO 07004KT 10SM SCT047 SCT055 BKN075 20/18 A2984 RMK AO2 T01950176KCFS2018-07-22T11:35:00Z43.47-83.4519.517.670410.029.840551TRUETRUEVFRMETAR214.02018-07-22 11:41:190©²(g5   3KCGC 221135Z AUTO 26003KT 27/26 A2991 RMK AO2KCGC2018-07-22T11:35:00Z28.87-82.5727.026.0260329.911417TRUETRUESPECI3.02018-07-22 11:41:19@©²(y5    3KCIC 221135Z AUTO 10003KT 10SM CLR 24/09 A2998 RMK AO1KCIC2018-07-22T11:35:00Z39.78-121.8324.09.0100310.029.97933TRUETRUEVFRMETAR73.02018-07-22 11:41:19 Ó:‚­ÓT©²)5    3KMGN 221135Z AUTO 04007KT 7SM SCT100 SCT120 20/18 A2995 RMK AO2 T01970191KMGN2018-07-22T11:35:00Z45.43-84.9219.718.04077.029.949802TRUETRUEVFRMETAR209.02018-07-22 11:41:19O©²)5     3KCKP 221135Z AUTO 00000KT 5SM BR CLR 16/16 A3008 RMK AO2 T01610161KCKP2018-07-22T11:35:00Z42.73-95.5516.116.1005.030.079725TRUETRUEBRMVFRMETAR374.02018-07-22 11:41:192©²(g5   3KCKZ 221135Z AUTO 19005KT 20/20 A2982 RMK AO2KCKZ2018-07-22T11:35:00Z40.38-75.2820.020.0190529.819881TRUETRUEMETAR173.02018-07-22 11:41:19@©²(y5    3KCLS 221135Z AUTO 00000KT 10SM CLR 10/10 A3019 RMK AO2KCLS2018-07-22T11:35:00Z46.68-122.9810.010.00010.030.188976TRUETRUEVFRMETAR54.02018-07-22 11:41:19 ²*Y‚²J©²) 5    3KLZZ 221135Z AUTO 23003KT 10SM CLR 25/22 A2998 RMK AO2 T02490215KLZZ2018-07-22T11:35:00Z31.1-98.224.921.5230310.029.97933TRUETRUEVFRMETAR371.02018-07-22 11:41:19Q©²)5    3KM21 221135Z AUTO 28004KT 10SM OVC015 20/20 A2979 RMK AO2 T02000196KM212018-07-22T11:35:00Z37.22-87.1520.019.6280410.029.790354TRUETRUEMVFRSPECI129.02018-07-22 11:41:19K©²)5     3KM40 221135Z AUTO 00000KT M1/4SM FG VV000 23/23 A2987 RMK AO2KM402018-07-22T11:35:00Z33.87-88.4823.023.0000.2529.870079TRUETRUEFGLIFR0SPECI69.02018-07-22 11:41:19P©²)5    3KMFV 221135Z AUTO 13004KT 10SM OVC018 22/21 A2982 RMK AO2 T02190207KMFV2018-07-22T11:35:00Z37.63-75.7721.920.7130410.029.819881TRUETRUEMVFRSPECI15.02018-07-22 11:41:19 Ù-eÙ>©² (w5    3KLRJ 221135Z AUTO 03004KT 7SM CLR 16/16 A3007 RMK AO2KLRJ2018-07-22T11:35:00Z42.77-96.216.016.03047.030.070866TRUETRUEVFRMETAR365.02018-07-22 11:41:19B©²(y5    3KLRY 221135Z AUTO 36004KT 10SM CLR 20/18 A3004 RMK AO2KLRY2018-07-22T11:35:00Z38.62-94.3520.018.0360410.030.041338TRUETRUEVFRSPECI279.02018-07-22 11:41:19B©²(5    3KLXL 221135Z AUTO 00000KT 10SM OVC005 15/15 A3015 RMK AO2KLXL2018-07-22T11:35:00Z45.95-94.3315.015.00010.030.15059TRUETRUEIFRMETAR342.02018-07-22 11:41:19M©²) 5    3KLXY 221135Z AUTO 22008KT 10SM CLR 25/22 A2994 RMK AO2 T02470215KLXY2018-07-22T11:35:00Z31.63-96.5224.721.5220810.029.940945TRUETRUEVFRMETAR166.02018-07-22 11:41:19 ³*X‡³N©²$) 5    3KLAM 221135Z AUTO 27003KT 10SM CLR 22/00 A3037 RMK AO2 T02230003KLAM2018-07-22T11:35:00Z35.87-106.2722.30.3270310.030.369095TRUETRUEVFRMETAR2179.02018-07-22 11:41:19K©²#) 5    3KLHB 221135Z AUTO 16003KT 10SM CLR 24/24 A2998 RMK AO2 T02370235KLHB2018-07-22T11:35:00Z30.87-96.6223.723.5160310.029.97933TRUETRUEVFRMETAR87.02018-07-22 11:41:19L©²") 5    3KLMO 221135Z AUTO 19003KT 7SM CLR 18/14 A3015 RMK AO2 T01800137KLMO2018-07-22T11:35:00Z40.17-105.1718.013.719037.030.15059TRUETRUEVFRMETAR1541.02018-07-22 11:41:19P©²!)5    3KLPR 221135Z AUTO 04007KT 10SM BKN026 18/14 A2977 RMK AO2 T01780139KLPR2018-07-22T11:35:00Z41.35-82.1817.813.940710.029.769686TRUETRUEMVFRSPECI241.02018-07-22 11:41:19 Æ9z“ƁG©²() 5    3KJYL 221135Z AUTO 00000KT 7SM CLR 24/24 A2980 RMK AO2 T02400237KJYL2018-07-22T11:35:00Z32.65-81.624.023.7007.029.799213TRUETRUEVFRSPECI57.02018-07-22 11:41:19a©²')+5      3KJYM 221135Z AUTO 04004KT 4SM BR SCT007 BKN026 OVC046 20/18 A2979 RMK AO2 P0001KJYM2018-07-22T11:35:00Z41.92-84.5820.018.04044.029.790354TRUETRUEBRMVFR0.01METAR360.02018-07-22 11:41:199©²&(q5   3KKY8 221135Z AUTO VRB04KT 10SM 21/21 A2977 RMK A01KKY82018-07-22T11:35:00Z37.95-86.8721.021.00410.029.769686TRUETRUESPECI126.02018-07-22 11:41:19A©²%(y5    3KL08 221135Z AUTO 00000KT 10SM CLR 28/16 A2990 RMK AO2KL082018-07-22T11:35:00Z33.27-116.3228.016.00010.029.899607TRUETRUEVFRMETAR159.02018-07-22 11:41:19 ×7r¬×O©²,)5    3KISQ 221135Z AUTO 01008KT 10SM OVC004 17/16 A2998 RMK AO2 T01680160KISQ2018-07-22T11:35:00Z45.97-86.1716.816.010810.029.97933TRUETRUELIFRMETAR209.02018-07-22 11:41:19@©²+({5    3KJFX 221135Z AUTO 00000KT 8SM 21/21 A2986 RMK AO2 PWINOKJFX2018-07-22T11:35:00Z33.9-87.3221.021.0008.029.861221TRUETRUETRUESPECI148.02018-07-22 11:41:19?©²*(y5    3KJSV 221135Z AUTO 00000KT 10SM CLR 20/16 A2995 RMK AO2KJSV2018-07-22T11:35:00Z35.43-94.820.016.00010.029.949802TRUETRUEVFRSPECI161.02018-07-22 11:41:19C©²)(}5     3KJVW 221135Z AUTO 25003KT 1SM BR CLR 26/24 A2988 RMK AO2KJVW2018-07-22T11:35:00Z32.3-90.4226.024.025031.029.878937TRUETRUEBRIFRSPECI76.02018-07-22 11:41:19 ¯)et¯?©²0(w5    3KIKV 221135Z AUTO 02004KT 9SM CLR 17/16 A3004 RMK AO2KIKV2018-07-22T11:35:00Z41.68-93.5717.016.02049.030.041338TRUETRUEVFRMETAR275.02018-07-22 11:41:19k©²/)?5      3KIKW 221135Z AUTO 36004KT 7SM DZ SCT012 BKN045 OVC090 19/19 A2984 RMK AO2 P0001 T01880187KIKW2018-07-22T11:35:00Z43.67-84.2718.818.736047.029.840551TRUETRUEDZVFR0.01METAR194.02018-07-22 11:41:19>©².(y5    3KINF 221135Z AUTO 00000KT 10SM CLR 27/27 A2991 RMK AO2KINF2018-07-22T11:35:00Z28.8-82.3227.027.00010.029.911417TRUETRUEVFRSPECI15.02018-07-22 11:41:19Q©²-)5     3KIRS 221135Z AUTO 03003KT 3SM BR OVC006 20/20 A2979 RMK AO2 T02010196KIRS2018-07-22T11:35:00Z41.8-85.4320.119.63033.029.790354TRUETRUEBRIFRMETAR282.02018-07-22 11:41:19 Ô7m§ÔM©²4) 5    3K22N 221135Z AUTO 19006KT 10SM BKN013 OVC018 20/18 A2979 RMK AO2K22N2018-07-22T11:35:00Z40.8-75.7720.018.0190610.029.790354TRUETRUEMVFRMETAR163.02018-07-22 11:41:19@©²3(y5    3KHZX 221135Z AUTO 00000KT 10SM CLR 14/13 A3016 RMK AO2KHZX2018-07-22T11:35:00Z46.62-93.3214.013.00010.030.159449TRUETRUEVFRMETAR374.02018-07-22 11:41:19D©²2(5    3KI67 221135Z AUTO 36005KT 10SM OVC008 20/18 A2969 RMK AO1KI672018-07-22T11:35:00Z39.25-84.7820.018.0360510.029.68996TRUETRUEIFRMETAR178.02018-07-22 11:41:19C©²1(}5     3KICL 221135Z AUTO 00000KT 6SM BR CLR 16/16 A3006 RMK AO2KICL2018-07-22T11:35:00Z40.72-95.0216.016.0006.030.059055TRUETRUEBRVFRMETAR303.02018-07-22 11:41:19 ×6r ×C©²8(}5    3KD50 221135Z AUTO 07006KT 9SM OVC028 16/16 A2994 RMK AO2KD502018-07-22T11:35:00Z48.93-103.316.016.07069.029.940945TRUETRUEMVFRMETAR595.02018-07-22 11:41:19L©²7)5     3K06D 221135Z AUTO 15008KT 1/2SM FG OVC002 16/16 A3005 RMK AO2K06D2018-07-22T11:35:00Z48.88-99.6216.016.015080.530.050198TRUETRUEFGLIFRMETAR556.02018-07-22 11:41:19>©²6(y5    3K0S9 221135Z AUTO 00000KT 10SM CLR 09/09 A3021 RMK AO2K0S92018-07-22T11:35:00Z48.05-122.829.09.00010.030.209646TRUETRUEVFRMETAR33.02018-07-22 11:41:19D©²5(y5    3K20U 221135Z AUTO 17018KT 10SM CLR 18/18 A2996 RMK AO2K20U2018-07-22T11:35:00Z46.93-103.9818.018.01701810.029.958662TRUETRUEVFRMETAR840.02018-07-22 11:41:19 «N}«L©²<)5    3KCVX 221135Z AUTO 03005KT 7SM BKN095 20/20 A2997 RMK AO2 T01980198KCVX2018-07-22T11:35:00Z45.3-85.2719.819.83057.029.970472TRUETRUEVFRMETAR204.02018-07-22 11:41:19K©²;) 5    3KCWC 221135Z AUTO 00000KT 10SM CLR 25/12 A2994 RMK AO2 T02510119KCWC2018-07-22T11:35:00Z33.85-98.4825.111.90010.029.940945TRUETRUEVFRMETAR305.02018-07-22 11:41:19J©²:)5    3KCWV 221135Z AUTO 00000KT 7SM BKN005 24/24 A2980 RMK AO2 T02440236KCWV2018-07-22T11:35:00Z32.2-81.8724.423.6007.029.799213TRUETRUEIFRSPECI33.02018-07-22 11:41:19\©²9)'5     3KD25 221135Z AUTO 36007KT 330V030 3SM BR OVC002 14/14 A3011 RMK AO2 T01400140KD252018-07-22T11:35:00Z46.12-89.8814.014.036073.030.109253TRUETRUEBRLIFRMETAR491.02018-07-22 11:41:19 9s«ã?©²A(w5    3KCNC 221135Z AUTO 34006KT 8SM CLR 17/17 A3002 RMK AO2KCNC2018-07-22T11:35:00Z41.02-93.3717.017.034068.030.02067TRUETRUEVFRMETAR320.02018-07-22 11:41:19B©²@(5    3KCOQ 221135Z AUTO 00000KT 10SM OVC022 13/12 A3016 RMK AO2KCOQ2018-07-22T11:35:00Z46.7-92.513.012.00010.030.159449TRUETRUEMVFRMETAR390.02018-07-22 11:41:19B©²?(y5    3KCPT 221135Z AUTO 21004KT 10SM CLR 25/18 A2996 RMK AO2KCPT2018-07-22T11:35:00Z32.35-97.4325.018.0210410.029.958662TRUETRUEVFRMETAR260.02018-07-22 11:41:19@©²>(y5    3KCQM 221135Z AUTO 00000KT 10SM CLR 12/11 A3017 RMK AO2KCQM2018-07-22T11:35:00Z47.82-92.6812.011.00010.030.171259TRUETRUEVFRMETAR404.02018-07-22 11:41:19A©²=(y5    3KCSQ 221135Z AUTO 01007KT 10SM CLR 18/16 A3006 RMK AO2KCSQ2018-07-22T11:35:00Z41.02-94.3718.016.010710.030.059055TRUETRUEVFRMETAR394.02018-07-22 11:41:19 à5_¤à>©²E(y5    3K6S2 221135Z AUTO 00000KT 10SM CLR 08/07 A3013 RMK AO2K6S22018-07-22T11:35:00Z43.98-124.128.07.00010.030.129921TRUETRUEVFRMETAR16.02018-07-22 11:41:195©²D(o5   3K7L2 221135Z AUTO 10006KT 9SM 17/17 A3000 RMK AO2K7L22018-07-22T11:35:00Z46.22-100.2517.017.010069.030.0TRUETRUEMETAR543.02018-07-22 11:41:19P©²C)5    3K7W4 221135Z AUTO 18003KT 10SM BKN095 19/18 A2979 RMK AO1 T01910184K7W42018-07-22T11:35:00Z37.97-77.7519.118.4180310.029.790354TRUETRUEVFRSPECI106.02018-07-22 11:41:19E©²B)5     3K24J 221135Z AUTO 00000KT 4SM BR OVC014 26/26 A2985 RMK A01K24J2018-07-22T11:35:00Z30.3-83.0326.026.0004.029.84941TRUETRUEBRMVFRSPECI32.02018-07-22 11:41:19 ¾,Q‰¾E©²I(}5   3K5H4 221135Z AUTO 14010G15KT 7SM CLR 16/16 A3002 RMK AO2K5H42018-07-22T11:35:00Z47.78-99.9316.016.014010157.030.02067TRUETRUEVFRMETAR490.02018-07-22 11:41:19B©²H(y5    3K6A2 221135Z AUTO 29004KT 10SM CLR 21/20 A2984 RMK AO2K6A22018-07-22T11:35:00Z33.23-84.2721.020.0290410.029.840551TRUETRUEVFRSPECI292.02018-07-22 11:41:19U©²G)5    3K6B9 221135Z AUTO 09010KT 10SM SCT019 BKN023 OVC029 19/17 A2975 RMK AO2K6B92018-07-22T11:35:00Z42.92-76.4319.017.0901010.029.749016TRUETRUEMVFRMETAR316.02018-07-22 11:41:19N©²F) 5     3K6L4 221135Z AUTO 00000KT 1 1/4SM -RA OVC022 19/19 A2974 RMK AO2K6L42018-07-22T11:35:00Z37.85-81.9219.019.0001.2529.740158TRUETRUE-RAIFRMETAR508.02018-07-22 11:41:19 Â0Z“K©²M)5     3K4M9 221135Z AUTO 31004KT 10SM CLR 21/21 A2989 RMK AO2 PWINOK4M92018-07-22T11:35:00Z36.4-90.6521.021.0310410.029.890747TRUETRUETRUEVFRSPECI90.02018-07-22 11:41:19A©²L(y5    3K4O4 221135Z AUTO 08005KT 10SM CLR 26/18 A2992 RMK AO2K4O42018-07-22T11:35:00Z33.92-94.8726.018.080510.029.920275TRUETRUEVFRSPECI144.02018-07-22 11:41:19P©²K)5    3K4V0 221135Z AUTO 05003KT 10SM SCT120 19/13 A3022 RMK AO2 T01920130K4V02018-07-22T11:35:00Z40.1-108.7719.213.050310.030.221457TRUETRUEVFRMETAR1608.02018-07-22 11:41:19J©²J) 5    3K54J 221135Z AUTO 00000KT 10SM CLR 25/23 A2987 RMK AO2 T02510233K54J2018-07-22T11:35:00Z30.73-86.1525.123.30010.029.870079TRUETRUEVFRSPECI88.02018-07-22 11:41:19 Å;rŸÅT©²Q)5   3K3D2 221135Z AUTO 03011G17KT 7SM OVC003 16/16 A2995 RMK AO2 T01620158K3D22018-07-22T11:35:00Z45.13-87.1816.215.83011177.029.949802TRUETRUELIFRMETAR234.02018-07-22 11:41:19M©²P)5    3K3T5 221135Z AUTO 21003KT 7SM BKN014 26/25 A2996 RMK AO2 T02600251K3T52018-07-22T11:35:00Z29.9-96.9526.025.121037.029.958662TRUETRUEMVFRMETAR99.02018-07-22 11:41:19C©²O(y5    3K46D 221135Z AUTO 14010KT 10SM CLR 17/17 A3005 RMK AO2K46D2018-07-22T11:35:00Z47.45-99.1517.017.01401010.030.050198TRUETRUEVFRMETAR490.02018-07-22 11:41:19?©²N(y5    3K4A6 221135Z AUTO 00000KT 10SM CLR 21/21 A2984 RMK AO2K4A62018-07-22T11:35:00Z34.68-86.021.021.00010.029.840551TRUETRUEVFRSPECI198.02018-07-22 11:41:19 ™2_†™g©²U)15     3KMUI 221134Z AUTO 20004KT 2 1/4SM BR OVC008 18/18 A2977 RMK AO2 VIS 2 1/4V3 SLP083KMUI2018-07-22T11:34:00Z40.42-76.5718.018.020042.2529.7696861008.3TRUETRUEBRIFRSPECI149.02018-07-22 11:41:19S©²T)5     3KMTC 221134Z 07010KT 10SM -RA BKN013 OVC120 20/19 A2979 RMK AO2A RAB34KMTC2018-07-22T11:34:00Z42.62-82.8220.019.0701010.029.790354TRUE-RAMVFRSPECI177.02018-07-22 11:41:19M©²S)5     3K2D5 221135Z AUTO 12008KT 10SM CLR 17/17 A3005 RMK AO2 PWINOK2D52018-07-22T11:35:00Z46.17-98.0817.017.0120810.030.050198TRUETRUETRUEVFRMETAR407.02018-07-22 11:41:19H©²R) 5    3K2J9 221135Z AUTO 27007KT 7SM SCT050 SCT055 27/26 A2985 RMK AO2K2J92018-07-22T11:35:00Z30.6-84.5527.026.027077.029.84941TRUETRUEVFRSPECI69.02018-07-22 11:41:19 )nÐ.©²Z(e5   3WIDD 221130Z 16006KT 9999 FEW014 29/25 Q1010WIDD2018-07-22T11:30:00Z1.12104.1229.025.016066.2129.822834VFRMETAR38.02018-07-22 11:41:19:©²Y(q5    3WADD 221130Z 11010KT 9999 FEW013 26/24 Q1012 NOSIGWADD2018-07-22T11:30:00Z-8.73115.1726.024.0110106.2129.88189TRUEVFRMETAR216.02018-07-22 11:41:19X©²X)5    3KLHW 221131Z AUTO 22007KT 10SM BKN006 24/23 A2979 RMK AO2 SLP091 $KLHW2018-07-22T11:31:00Z31.87-81.5724.023.0220710.029.7903541009.1TRUETRUETRUEIFRSPECI14.02018-07-22 11:41:195©²W(s5    3EBFS 221133Z AUTO //////KT 5000 NCD 25/07 Q1017 WHTEBFS2018-07-22T11:33:00Z50.224.6525.07.03.1130.029528TRUEMVFRSPECI299.02018-07-22 11:41:19Q©²V)#5    3EHKD 221134Z AUTO 27009KT 220V290 9999 SCT110 22/13 Q1015 BLU 27008KT CAVOKEHKD2018-07-22T11:34:00Z52.924.7722.013.027096.2129.970472TRUEVFRSPECI14.02018-07-22 11:41:19 5Dw´ï54©²_(o5   3UTSK 221130Z 01018KT CAVOK 44/06 Q0997 R34/CLRD70UTSK2018-07-22T11:30:00Z38.8365.7744.06.010186.2129.438976VFRMETAR1365.02018-07-22 11:41:19?©²^)5    3UTSS 221130Z 03012KT 9999 NSC 40/08 Q1000 R09/CLRD70 NOSIGUTSS2018-07-22T11:30:00Z39.766.9840.08.030126.2129.52756TRUEVFRMETAR724.02018-07-22 11:41:19=©²]({5    3UTST 221130Z 29006KT CAVOK 43/06 Q0994 R88/CLRD70 NOSIGUTST2018-07-22T11:30:00Z37.2867.3243.06.029066.2129.350393TRUEVFRMETAR302.02018-07-22 11:41:19G©²\) 5    3UTTT 221130Z 30006KT 260V350 CAVOK 42/07 Q0999 R26R/CLRD70 NOSIGUTTT2018-07-22T11:30:00Z41.2769.2742.07.030066.2129.498032TRUEVFRMETAR489.02018-07-22 11:41:196©²[(q5    3WIMM 221130Z 08007KT 9999 SCT018 29/24 Q1008 NOSIGWIMM2018-07-22T11:30:00Z3.5798.6729.024.08076.2129.763779TRUEVFRMETAR25.02018-07-22 11:41:19 +<t²ã+2©²d(s5    3LFQG 221130Z AUTO 33007KT 300V060 CAVOK 26/12 Q1016LFQG2018-07-22T11:30:00Z47.03.126.012.033076.2130.0TRUEVFRMETAR181.02018-07-22 11:41:19I©²c)5    3UTFN 221130Z 17004KT 130V210 9999 NSC 38/04 Q0998 R28/CLRD70 NOSIGUTFN2018-07-22T11:30:00Z40.9871.5738.04.017046.2129.468504TRUEVFRMETAR490.02018-07-22 11:41:19<©²b({5    3UTNN 221130Z 24008KT CAVOK 36/16 Q1000 R33/CLRD60 NOSIGUTNN2018-07-22T11:30:00Z42.4859.6336.016.024086.2129.52756TRUEVFRMETAR67.02018-07-22 11:41:19B©²a)5    3UTSA 221130Z 36014KT 9999 NSC 45/05 Q0998 R07/CLRD70 NOSIGUTSA2018-07-22T11:30:00Z40.1265.1745.05.0360146.2129.468504TRUEVFRMETAR346.02018-07-22 11:41:19>©²`({5    3UTSB 221130Z 35006KT CAVOK 45/10 Q0997 R01/CLRD70 NOSIGUTSB2018-07-22T11:30:00Z39.7764.4845.010.035066.2129.438976TRUEVFRMETAR226.02018-07-22 11:41:19 É+^“ɁD©²h)5   3YFRT 221130Z AUTO 34008KT //// // ////// 15/12 Q1006 RF00.0/000.0YFRT2018-07-22T11:30:00Z-30.83128.1215.012.0340829.704725TRUEMETAR156.02018-07-22 11:41:19E©²g) 5    3YPKU 221130Z AUTO 09003KT 9999 // NCD 16/08 Q1015 RF00.0/000.0YPKU2018-07-22T11:30:00Z-15.77128.6816.08.09036.2129.970472TRUEVFRMETAR45.02018-07-22 11:41:19G©²f) 5    3YPGV 221130Z AUTO 17005KT 9999 // NCD 22/18 Q1015 RF00.0/000.0YPGV2018-07-22T11:30:00Z-12.27136.8222.018.017056.2129.970472TRUEVFRMETAR55.02018-07-22 11:41:19O©²e)5    3LFLW 221130Z AUTO 31008KT 9999 BKN046 OVC084 22/12 Q1017 TEMPO BKN040TCULFLW2018-07-22T11:30:00Z44.882.4222.012.031086.2130.029528TRUEVFRMETAR639.02018-07-22 11:41:19 Ü3g¬ÜJ©²l)5    3YGEL 221130Z AUTO 26015KT 9999 // SCT028 SCT035 BKN039 18/13 Q1011YGEL2018-07-22T11:30:00Z-28.8114.718.013.0260156.2129.852362TRUEVFRMETAR37.02018-07-22 11:41:195©²k(o5    3YAMB 221130Z AUTO 00000KT 9999 // NCD 08/06 Q1021YAMB2018-07-22T11:30:00Z-27.63152.728.06.0006.2130.147638TRUEVFRMETAR28.02018-07-22 11:41:19F©²j) 5    3YGLA 221130Z AUTO 18004KT 9999 // NCD 15/11 Q1020 RF00.0/000.0YGLA2018-07-22T11:30:00Z-23.87151.2215.011.018046.2130.11811TRUEVFRMETAR52.02018-07-22 11:41:19G©²i) 5    3YCIN 221130Z AUTO 35005KT 9999 // NCD 19/11 Q1013 RF00.0/000.0YCIN2018-07-22T11:30:00Z-17.58123.8319.011.035056.2129.911417TRUEVFRMETAR91.02018-07-22 11:41:19 ¾2q¾K©²p)5    3YPWR 221130Z AUTO 01015KT 9999 // SCT115 16/M04 Q1012 RF00.0/000.0YPWR2018-07-22T11:30:00Z-31.12136.8216.0-4.010156.2129.88189TRUEVFRMETAR167.02018-07-22 11:41:19\©²o)=5    3YSRI 221130Z AUTO 00000KT 9999 // NCD 04/01 Q1022 RF00.0/000.0 PRESENT WEATHER SENSOR USYSRI2018-07-22T11:30:00Z-33.6150.774.01.0006.2130.177166TRUEVFRMETAR21.02018-07-22 11:41:19;©²n(u5    3YHID 221130Z AUTO 16009KT 9999 // SCT021 24/21 Q1014YHID2018-07-22T11:30:00Z-10.58142.324.021.016096.2129.940945TRUEVFRMETAR13.02018-07-22 11:41:19H©²m) 5    3YSTW 221130Z AUTO 14001KT 9999 // NCD 04/M07 Q1021 RF00.0/000.0YSTW2018-07-22T11:30:00Z-31.07150.854.0-7.014016.2130.147638TRUEVFRMETAR410.02018-07-22 11:41:19 3f¤ìK©²u)5   3YMML 221130Z 01013KT 9999 FEW047 08/02 Q1017 FM1130 MOD TURB BLW 5000FTYMML2018-07-22T11:30:00Z-37.67144.828.02.010136.2130.029528VFRMETAR141.02018-07-22 11:41:192©²t(e5    3YSSY 221130Z 36005KT CAVOK 12/04 Q1021 NOSIGYSSY2018-07-22T11:30:00Z-33.95151.1712.04.036056.2130.147638TRUEVFRMETAR3.02018-07-22 11:41:19<©²s(u5    3YBHM 221130Z AUTO 11016KT 9999 // SCT024 20/17 Q1019YBHM2018-07-22T11:30:00Z-20.35148.9520.017.0110166.2130.088583TRUEVFRMETAR5.02018-07-22 11:41:19G©²r) 5    3YBMA 221130Z AUTO 00000KT 9999 // NCD 08/M11 Q1017 RF00.0/000.0YBMA2018-07-22T11:30:00Z-20.67139.478.0-11.0006.2130.029528TRUEVFRMETAR344.02018-07-22 11:41:19G©²q) 5    3YSDU 221130Z AUTO 09005KT 9999 // NCD 03/M06 Q1021 RF00.0/000.0YSDU2018-07-22T11:30:00Z-32.22148.573.0-6.09056.2130.147638TRUEVFRMETAR275.02018-07-22 11:41:19 å<„ÀåU©²y))5    3UMKK 221130Z 30007MPS 9999 FEW030 25/18 Q1011 R24/CLRD60 NOSIG RMK QFE757/1010UMKK2018-07-22T11:30:00Z54.8820.625.018.0300146.2129.852362TRUEVFRSPECI21.02018-07-22 11:41:19>©²x(u5     3YPAD 221130Z 03019KT 9999 -RA NSC 16/M01 Q1009 NOSIGYPAD2018-07-22T11:30:00Z-34.95138.5216.0-1.030196.2129.793306TRUE-RAVFRMETAR4.02018-07-22 11:41:192©²w(e5    3YBBN 221130Z 20005KT CAVOK 11/09 Q1022 NOSIGYBBN2018-07-22T11:30:00Z-27.38153.1311.09.020056.2130.177166TRUEVFRMETAR5.02018-07-22 11:41:19>©²v(5    3YPDN 221130Z 26003KT 9999 4500NE FU NSC 22/17 Q1014 ALOFTYPDN2018-07-22T11:30:00Z-12.42130.922.017.026036.2129.940945FUVFRMETAR30.02018-07-22 11:41:19  4[V©²})%5   3ULMM 221130Z 18005G10MPS 9999 FEW040 26/13 Q1005 R13/090070 NOSIG RMK QFE747ULMM2018-07-22T11:30:00Z68.7832.7526.013.018010196.2129.675198TRUEVFRSPECI51.02018-07-22 11:41:19S©²|)#5    3UUOO 221130Z 09003MPS 9999 BKN030CB 24/20 Q1005 R12/090070 NOSIG RMK QFE740UUOO2018-07-22T11:30:00Z51.8239.2324.020.09066.2129.675198TRUEMVFRSPECI157.02018-07-22 11:41:19P©²{)5    3UUYY 221130Z 12004MPS CAVOK 25/11 Q1021 R18/CLRD61 NOSIG RMK QFE757/1009UUYY2018-07-22T11:30:00Z61.6550.8225.011.012086.2130.147638TRUEVFRSPECI119.02018-07-22 11:41:19p©²z)g5   3ULOO 221130Z 33003MPS 300V010 P5000 FEW033 28/17 Q1009 R19/090070 TEMPO 2100 -TSRA BKN011 BKN020CB RMK QFE752ULOO2018-07-22T11:30:00Z57.7828.428.017.033063.1129.793306MVFRSPECI47.02018-07-22 11:41:19 b˜ßF©³) 5    3YBRK 221130Z AUTO 13003KT 9999 // NCD 15/10 Q1020 RF00.0/000.0YBRK2018-07-22T11:30:00Z-23.37150.4715.010.013036.2130.11811TRUEVFRMETAR14.02018-07-22 11:41:193©³(o5    3YWLM 221130Z AUTO 00000KT 9999 // NCD 05/03 Q1022YWLM2018-07-22T11:30:00Z-32.8151.835.03.0006.2130.177166TRUEVFRMETAR9.02018-07-22 11:41:19D©³) 5    3YCFS 221130Z AUTO 31004KT 9999 // NCD 07/06 Q1022 RF00.0/000.0YCFS2018-07-22T11:30:00Z-30.32153.127.06.031046.2130.177166TRUEVFRMETAR5.02018-07-22 11:41:195©²(o5    3YLHI 221130Z AUTO 00000KT 9999 // NCD 10/06 Q1022YLHI2018-07-22T11:30:00Z-31.53159.0710.06.0006.2130.177166TRUEVFRMETAR2.02018-07-22 11:41:19]©²~)95    3ULAA 221130Z 19006MPS 150V230 9999 SCT040 28/12 Q1014 R08/CLRD70 NOSIG RMK QFE759/1013ULAA2018-07-22T11:30:00Z64.640.7228.012.0190126.2129.940945TRUEVFRSPECI19.02018-07-22 11:41:19 Bp¬ëF©³) 5    3YBRM 221130Z AUTO 27004KT 9999 // NCD 21/20 Q1015 RF00.0/000.0YBRM2018-07-22T11:30:00Z-17.93122.2221.020.027046.2129.970472TRUEVFRMETAR9.02018-07-22 11:41:19;©³(u5    3YPCC 221130Z AUTO 10010KT 9999 // SCT074 26/22 Q1013YPCC2018-07-22T11:30:00Z-12.1796.8226.022.0100106.2129.911417TRUEVFRMETAR3.02018-07-22 11:41:19>©³) 5   3YMHB 221130Z 36006KT 9999 FEW050 SCT260 09/06 Q1016 RF00.0/000.0YMHB2018-07-22T11:30:00Z-42.82147.529.06.036066.2130.0VFRMETAR27.02018-07-22 11:41:19L©³)5    3YSNF 221130Z AUTO 11005KT 9999 // SCT019 SCT026 BKN036 14/12 Q1018YSNF2018-07-22T11:30:00Z-29.02167.9214.012.011056.2130.059055TRUEVFRMETAR109.02018-07-22 11:41:198©³(o5    3YPPD 221130Z AUTO 29009KT 9999 // NCD 21/17 Q1014YPPD2018-07-22T11:30:00Z-20.37118.6221.017.029096.2129.940945TRUEVFRMETAR6.02018-07-22 11:41:19 8yÀށD©³ ) 5    3YBCG 221130Z AUTO 22004KT 9999 // NCD 10/08 Q1022 RF00.0/000.0YBCG2018-07-22T11:30:00Z-28.17153.510.08.022046.2130.177166TRUEVFRMETAR6.02018-07-22 11:41:19\©³ )%5     3YPKG 221130Z AUTO 28013KT 9000 -SHRA SCT029 BKN035 OVC051 12/11 Q1007 RESHRAYPKG2018-07-22T11:30:00Z-30.77121.4512.011.0280135.5929.734253TRUE-SHRAVFRMETAR360.02018-07-22 11:41:193©³ (u5   3YPLM 221130Z AUTO 24003KT 9999 // ////// 18/17 Q1016YPLM2018-07-22T11:30:00Z-22.22114.0718.017.024036.2130.0TRUEMETAR6.02018-07-22 11:41:199©³ (o5    3YPTN 221130Z AUTO 14002KT 9999 // NCD 15/03 Q1015YPTN2018-07-22T11:30:00Z-14.52132.3815.03.014026.2129.970472TRUEVFRMETAR109.02018-07-22 11:41:19B©³)5    3YBTL 221130Z AUTO 08006KT 9999 // SCT026 BKN032 21/18 Q1018YBTL2018-07-22T11:30:00Z-19.25146.7521.018.08066.2130.059055TRUEVFRMETAR6.02018-07-22 11:41:19 >x´çD©³)5   3RJGG 221130Z 26012KT 9999 FEW025 BKN/// 32/25 Q1007 BECMG 28012KTRJGG2018-07-22T11:30:00Z34.87136.832.025.0260126.2129.734253VFRSPECI5.02018-07-22 11:41:19G©³) 5    3YBAS 221130Z AUTO 35007KT 9999 // NCD 18/M02 Q1017 RF00.0/000.0YBAS2018-07-22T11:30:00Z-23.8133.918.0-2.035076.2130.029528TRUEVFRMETAR541.02018-07-22 11:41:19>©³) 5    3YMAV 221130Z AUTO 06009KT 9999 // NCD 07/04 Q1016 RF00.0/000.0YMAV2018-07-22T11:30:00Z-38.03144.487.04.06096.2130.0TRUEVFRMETAR8.02018-07-22 11:41:19@©³(5    3YBCS 221130Z 16007KT 9999 FEW025 SCT045 21/18 Q1017 NOSIGYBCS2018-07-22T11:30:00Z-16.87145.7521.018.016076.2130.029528TRUEVFRMETAR7.02018-07-22 11:41:19<©³ (s5    3YSCB 221130Z AUTO 14002KT 9999 // NCD M02/M04 Q1021YSCB2018-07-22T11:30:00Z-35.28149.17-2.0-4.014026.2130.147638TRUEVFRMETAR577.02018-07-22 11:41:19 ):„Å)S©³)%5    3UEEE 221130Z 00000MPS 9999 BKN040CB 18/16 Q0995 R23L/09//60 NOSIG RMK QFE738UEEE2018-07-22T11:30:00Z62.08129.7718.016.0006.2129.379921TRUEVFRMETAR103.02018-07-22 11:41:19=©³({5    3GQNO 221130Z 29007KT 260V340 8000 NSC 29/23 Q1011 NOSIGGQNO2018-07-22T11:30:00Z18.3-15.9729.023.029074.9729.852362TRUEMVFRMETAR4.02018-07-22 11:41:199©³(q5    3GABS 221130Z 20009KT 9999 FEW020 29/23 Q1015 NOSIGGABS2018-07-22T11:30:00Z12.52-7.9529.023.020096.2129.970472TRUEVFRMETAR381.02018-07-22 11:41:190©³(e5    3GOBD 221130Z VRB04KT CAVOK 29/20 Q1012 NOSIGGOBD2018-07-22T11:30:00Z14.67-17.0729.020.0046.2129.88189TRUEVFRMETAR88.02018-07-22 11:41:19@©³(5    3RJBB 221130Z 22010KT 9999 FEW025 BKN/// 28/25 Q1010 NOSIGRJBB2018-07-22T11:30:00Z34.42135.2528.025.0220106.2129.822834TRUEVFRSPECI8.02018-07-22 11:41:19 Ÿ4K‡Ÿb©³)95     3UUBP 221130Z 08004MPS 9000 -SHRA BKN029CB 22/21 Q1004 R34/190060 NOSIG RMK QFE736/0981UUBP2018-07-22T11:30:00Z53.2234.1822.021.08085.5929.64567TRUE-SHRAMVFRSPECI202.02018-07-22 11:41:19>©³(}5    3UUOB 221130Z 24001MPS CAVOK 26/18 Q1004 R29/090060 NOSIGUUOB2018-07-22T11:30:00Z50.6536.5826.018.024026.2129.64567TRUEVFRMETAR224.02018-07-22 11:41:19c©³)K5   3UUOK 221130Z 12003MPS 9999 BKN029CB 24/18 Q1004 R30/CLRD65 TEMPO -TSRA BKN020CB RMK QFE734/0979UUOK2018-07-22T11:30:00Z51.7536.2824.018.012066.2129.64567MVFRMETAR209.02018-07-22 11:41:19F©³) 5    3UWGG 221130Z 10004MPS 9999 BKN033 23/15 Q1013 R36R/090070 NOSIGUWGG2018-07-22T11:30:00Z56.2343.7823.015.010086.2129.911417TRUEVFRSPECI73.02018-07-22 11:41:19 ƒ:OƒF©³) 5    3UUWW 221130Z 11005MPS 9999 BKN032 22/18 Q1010 R06/000070 NOSIGUUWW2018-07-22T11:30:00Z55.637.2722.018.0110106.2129.822834TRUEVFRSPECI203.02018-07-22 11:41:19e©³)A5     3UUMO 221130Z 13004MPS 100V160 9999 -RA OVC025 23/20 Q1010 R08/290050 NOSIG RMK QFE742/0990UUMO2018-07-22T11:30:00Z55.5237.523.020.013086.2129.822834TRUE-RAMVFRMETAR174.02018-07-22 11:41:19]©³)35   3ULWC 221130Z 12004G09MPS 9999 FEW020CB 25/14 Q1013 R03/010060 NOSIG RMK QFE750/1000ULWC2018-07-22T11:30:00Z59.2838.0225.014.01208176.2129.911417TRUEVFRMETAR115.02018-07-22 11:41:19]©³)75    3UUBC 221130Z 08006MPS 9999 SCT012 BKN046 24/19 Q1007 R13/190055 NOSIG RMK QFE737/0983UUBC2018-07-22T11:30:00Z54.5536.3724.019.080126.2129.734253TRUEVFRMETAR199.02018-07-22 11:41:19 ¡$Nz¡S©³")5     3UUBW 221130Z 06005MPS 9999 -SHRA BKN035CB 22/19 Q1010 R30/010060 NOSIGUUBW2018-07-22T11:30:00Z55.5538.1522.019.060106.2129.822834TRUE-SHRAVFRMETAR115.02018-07-22 11:41:19N©³!)5    3UUDD 221130Z 12005MPS 090V150 9999 BKN023 23/18 Q1010 R88/010095 NOSIGUUDD2018-07-22T11:30:00Z55.437.923.018.0120106.2129.822834TRUEMVFRSPECI168.02018-07-22 11:41:19P©³ )5    3UUDL 221130Z 09006MPS 9999 SCT040 24/15 Q1013 R23/010060 NOSIG RMK QFE751UUDL2018-07-22T11:30:00Z57.5740.1724.015.090126.2129.911417TRUEVFRMETAR88.02018-07-22 11:41:19V©³)'5    3UUEE 221130Z 10004MPS 9999 BKN027CB 22/20 Q1010 R06C/290051 R06R/290051 NOSIGUUEE2018-07-22T11:30:00Z55.9737.4222.020.010086.2129.822834TRUEMVFRSPECI190.02018-07-22 11:41:19 ‰Hs‰d©³&)55     3UNTT 221130Z 05005MPS 4100 -SHRA FU SCT005CB 13/13 Q1005 R03/190055 NOSIG RMK QFE738UNTT2018-07-22T11:30:00Z56.3885.2213.013.050102.5529.675198TRUE-SHRA FUIFRMETAR182.02018-07-22 11:41:19O©³%)5    3USTR 221130Z 04007MPS CAVOK 19/05 Q1019 R03/CLRD65 NOSIG RMK QFE754/1006USTR2018-07-22T11:30:00Z57.1765.3219.05.040146.2130.088583TRUEVFRSPECI115.02018-07-22 11:41:19O©³$)#5    3USHH 221130Z 06002MPS 030V100 CAVOK 21/06 Q1020 R06/010060 NOSIG RMK QFE761USHH2018-07-22T11:30:00Z61.0369.0821.06.06046.2130.11811TRUEVFRMETAR23.02018-07-22 11:41:19]©³#)E5   3ULLI 221130Z 26002MPS 9999 SCT022CB 23/19 Q1009 R28L/290050 TEMPO 3100 -TSRA BKN011 BKN020CBULLI2018-07-22T11:30:00Z59.830.2723.019.026046.2129.793306VFRSPECI4.02018-07-22 11:41:19 {"'O{N©³*)5    3UNEE 221130Z 36004MPS 9000 NSC 18/16 Q1003 R23/290055 NOSIG RMK QFE729UNEE2018-07-22T11:30:00Z55.2786.0818.016.036085.5929.616142TRUEVFRSPECI260.02018-07-22 11:41:19R©³))5    3UNKL 221130Z 06005MPS 7000 SCT043 22/12 Q1007 R11/CLRD65 NOSIG RMK QFE730UNKL2018-07-22T11:30:00Z56.1792.4822.012.060104.3529.734253TRUEMVFRSPECI276.02018-07-22 11:41:19u©³()[5     3UNNT 221130Z 02004MPS 3000 -RA BR OVC004 14/13 Q1003 R07/290255 R34/290160 NOSIG RMK QBB140 QFE743/0990UNNT2018-07-22T11:30:00Z55.0282.6314.013.02081.8629.616142TRUE-RA BRLIFRSPECI111.02018-07-22 11:41:19X©³')15    3UNOO 221130Z 02006MPS 9999 BKN033CB BKN033 12/08 Q1011 R07/CLRD60 NOSIG RMK QFE749UNOO2018-07-22T11:30:00Z54.9773.3212.08.020126.2129.852362TRUEVFRSPECI95.02018-07-22 11:41:19  #T} W©³.))5     3UIII 221130Z VRB01MPS 5000 FU NSC 22/14 Q1008 R12/CLRD60 NOSIG RMK QFE714/0952UIII2018-07-22T11:30:00Z52.27104.422.014.0023.1129.763779TRUEFUMVFRSPECI513.02018-07-22 11:41:19Q©³-)#5    3UIUU 221130Z 04002MPS 9999 NSC 22/06 Q1008 R26/CLRD60 NOSIG RMK QFE712/0950UIUU2018-07-22T11:30:00Z51.8107.4522.06.04046.2129.763779TRUEVFRSPECI515.02018-07-22 11:41:19I©³,)5    3UNAA 221130Z 01004MPS CAVOK 27/14 Q1003 R02/090065 NOSIG RMK QFE730UNAA2018-07-22T11:30:00Z53.7591.427.014.01086.2129.616142TRUEVFRSPECI245.02018-07-22 11:41:19W©³+)-5    3UNBB 221130Z VRB01MPS 9999 SCT007 BKN021 20/17 Q1001 R24/CLRD66 NOSIG RMK QFE729UNBB2018-07-22T11:30:00Z53.3783.5320.017.0026.2129.557087TRUEMVFRSPECI255.02018-07-22 11:41:19 Š;fŠV©³2))5    3UHSS 221130Z 36003MPS 9999 BKN038 14/12 Q1008 R01/CLRD70 NOSIG RMK QFE755/1006UHSS2018-07-22T11:30:00Z46.88142.7214.012.036066.2129.763779TRUEVFRMETAR31.02018-07-22 11:41:19O©³1)5    3USCM 221130Z 05007MPS 9999 FEW040 19/04 Q1017 R36/090065 NOSIG RMK QFE724USCM2018-07-22T11:30:00Z53.458.7519.04.050146.2130.029528TRUEVFRMETAR435.02018-07-22 11:41:19Y©³0)-5    3UIAA 221130Z 23003MPS 9999 SCT050CB 20/13 Q1006 R29/CLRD70 NOSIG RMK QFE696/0928UIAA2018-07-22T11:30:00Z52.02113.3220.013.023066.2129.704725TRUEVFRSPECI685.02018-07-22 11:41:19`©³/)95     3UIBB 221130Z 13002MPS 040V170 5000 FU NSC 12/09 Q1011 R30/CLRD60 NOSIG RMK QFE715/0954UIBB2018-07-22T11:30:00Z56.37101.712.09.013043.1129.852362TRUEFUMVFRSPECI490.02018-07-22 11:41:19Y8Ù8@HPX`hpx€ˆ˜ ¨°¸ÀÈÐØàèðø (08@HPX`hpx€ˆ˜ ¨°¸ÀÈÐØàèðø (08@HPX`hpx€ˆ˜ ¨°¸ÀÈÐØàèðø ¨°¸ÀÈÐØàèðø©²€©²©² ‚©²$ƒ©²(„©²,…©²0†©²4‡©²8ˆ©²<‰©²AŠ©²E©²€©²©² ‚©²$ƒ©²(„©²,…©²0†©²4‡©²8ˆ©²<‰©²AŠ©²E‹©²IŒ©²M©²QŽ©²U©²Z©²_‘©²d’©²h“©²l”©²p•©²u–©²y—©²}˜©³™©³š©³ ›©³œ©³©³ž©³Ÿ©³" ©³&¡©³*¢©³.£©³2¥©³6¦©³:§©³?¨©³C©©³Gª©³K«©³O¬©³S­©³W®©³[¯©³_°©³c±©³g²©³l³©³p´©³uµ©³y¶©³~·©´¸©´¹©´ º©´»©´¼©´½©´¾©´¿©´"À©´&Á©´+©´/Í©´3č©´7ō©´;ƍ©´?Ǎ©´Cȍ©´Gɍ©´Kʍ©´Oˍ©´S̍©´W͍©´[΍©´_ύ©´cЍ©´hэ©´mҍ©´rӍ©´vԍ©´zՍ©´֍©µ׍©µ؍©µ Â,PÂ9©³6(q5    3VVPQ 221130Z 23011KT 9999 SCT015 29/24 Q1007 NOSIGVVPQ2018-07-22T11:30:00Z10.23103.9729.024.0230116.2129.734253TRUEVFRMETAR4.02018-07-22 11:41:19I©³5)5     3VVTS 221130Z 25006KT 8000 -RA SCT015 BKN050 28/27 Q1006 NOSIGVVTS2018-07-22T11:30:00Z10.82106.6728.027.025064.9729.704725TRUE-RAMVFRMETAR19.02018-07-22 11:41:19V©³4)+5    3UHHH 221130Z 05002MPS 9999 BKN044 19/16 Q1006 R05R/090060 NOSIG RMK QFE749/0998UHHH2018-07-22T11:30:00Z48.52135.1819.016.05046.2129.704725TRUEVFRMETAR72.02018-07-22 11:41:19N©³3)5    3UHWW 221130Z 24004MPS 9999 NSC 22/20 Q1007 R25L/0///70 NOSIG RMK QFE754UHWW2018-07-22T11:30:00Z43.4132.1522.020.024086.2129.734253TRUEVFRMETAR14.02018-07-22 11:41:19 Â.e ÂX©³:)/5    3VVCT 221130Z 24007KT 210V290 9999 SCT013 FEW015TCU 28/26 Q1007 NOSIG TCU/OVER RWYVVCT2018-07-22T11:30:00Z10.08105.7228.026.024076.2129.734253TRUEVFRMETAR3.02018-07-22 11:41:19?©³9(5    3VVDN 221130Z 34005KT 8000 FEW013 BKN050 28/26 Q1001 NOSIGVVDN2018-07-22T11:30:00Z16.02108.228.026.034054.9729.557087TRUEMVFRMETAR7.02018-07-22 11:41:19C©³8)5    3VVNB 221130Z 10003KT 070V160 9999 FEW030CB 32/24 Q0997 NOSIGVVNB2018-07-22T11:30:00Z21.22105.832.024.010036.2129.438976TRUEVFRMETAR12.02018-07-22 11:41:19L©³7)5    3VVPB 221130Z 24004KT 7000 -RA SCT015 BKN050 25/25 Q1001 TEMPO 4000 RAVVPB2018-07-22T11:30:00Z16.38107.725.025.024044.3529.557087-RAMVFRMETAR17.02018-07-22 11:41:19 (;w¬ä(6©³?(s5   3VDSV 221130Z 27009KT 9999 FEW015 SCT040 29/25 Q1007VDSV2018-07-22T11:30:00Z10.58103.6329.025.027096.2129.734253VFRMETAR10.02018-07-22 11:41:19B©³>(5    3VLVT 221130Z 24004KT 6000 SCT016 SCT100 31/24 Q1001 NOSIGVLVT2018-07-22T11:30:00Z17.98102.5731.024.024043.7329.557087TRUEMVFRMETAR171.02018-07-22 11:41:19E©³=) 5    3VYYY 221130Z 05005KT 5000 -RA BKN010 FEW016CB OVC080 25/25 Q1006VYYY2018-07-22T11:30:00Z16.996.1325.025.05053.1129.704725-RAMVFRMETAR33.02018-07-22 11:41:19>©³<(5    3VVCI 221130Z 09005KT 9999 FEW015 BKN050 26/26 Q0998 NOSIGVVCI2018-07-22T11:30:00Z20.82106.7326.026.09056.2129.468504TRUEVFRMETAR3.02018-07-22 11:41:19?©³;(5    3VVCR 221130Z 23016KT 9999 FEW015 SCT050 31/25 Q1004 NOSIGVVCR2018-07-22T11:30:00Z12.0109.2231.025.0230166.2129.64567TRUEVFRMETAR12.02018-07-22 11:41:19 ñDˆÇñP©³C)5     3VEBS 221130Z 22012KT 5000 HZ BKN018 FEW030CB OVC090 27/26 Q0995 NOSIGVEBS2018-07-22T11:30:00Z20.2585.8227.026.0220123.1129.379921TRUEHZMVFRMETAR46.02018-07-22 11:41:19;©³B)5     3VEBN 221130Z 05006KT 4500 HZ SCT020 BKN100 33/27 Q09 94 NOSIGVEBN2018-07-22T11:30:00Z25.4582.8533.027.05062.8TRUEHZIFRMETAR83.02018-07-22 11:41:196©³A(s5   3VDPP 221130Z 21010KT 9999 SCT017 BKN040 29/25 Q1004VDPP2018-07-22T11:30:00Z11.55104.8329.025.0210106.2129.64567VFRMETAR10.02018-07-22 11:41:196©³@(s5   3VDSR 221130Z 21005KT 9000 SCT015 SCT040 30/26 Q1003VDSR2018-07-22T11:30:00Z13.42103.8330.026.021055.5929.616142VFRMETAR15.02018-07-22 11:41:19 ¥Hy¥N©³G)5    3USCC 221130Z 01005MPS 9999 SCT040 20/07 Q1018 R09/000060 NOSIG RMK QFE743USCC2018-07-22T11:30:00Z55.361.520.07.010106.2130.059055TRUEVFRSPECI234.02018-07-22 11:41:19I©³F)5    3USNN 221130Z 01005MPS CAVOK 19/08 Q1017 R03/0///65 NOSIG RMK QFE759USNN2018-07-22T11:30:00Z60.9576.4819.08.010106.2130.029528TRUEVFRSPECI54.02018-07-22 11:41:19Q©³E)#5    3USRR 221130Z 03005MPS 350V070 CAVOK 21/05 Q1019 R07/CLRD60 NOSIG RMK QFE759USRR2018-07-22T11:30:00Z61.3373.4221.05.030106.2130.088583TRUEVFRSPECI44.02018-07-22 11:41:19[©³D)75    3USSS 221130Z 06006MPS CAVOK 20/05 Q1020 R08R/010060 R08L/010060 NOSIG RMK QFE745/0993USSS2018-07-22T11:30:00Z56.7560.8220.05.060126.2130.11811TRUEVFRSPECI233.02018-07-22 11:41:19 'LkV©³K)-5    3UWOO 221130Z 10009MPS 080V140 CAVOK 24/05 Q1012 R08/CLRD65 NOSIG RMK QFE748/0998UWOO2018-07-22T11:30:00Z51.855.4724.05.0100176.2129.88189TRUEVFRSPECI109.02018-07-22 11:41:19[©³J)15    3UWSS 221130Z 06005MPS 9999 BKN011 OVC033CB 21/20 Q1006 R12/290355 NOSIG RMK QFE743UWSS2018-07-22T11:30:00Z51.5746.0721.020.060106.2129.704725TRUEMVFRSPECI166.02018-07-22 11:41:19U©³I))5    3UWWW 221130Z 12006MPS 9999 FEW026 22/14 Q1012 R15/CLRD60 NOSIG RMK QFE748/0997UWWW2018-07-22T11:30:00Z53.550.1722.014.0120126.2129.88189TRUEVFRSPECI146.02018-07-22 11:41:19S©³H)/5    3UWUU 221130Z 08005MPS CAVOK 24/08 Q1016 WS R14R R14R/0///60 NOSIG RMK QFE751/1002UWUU2018-07-22T11:30:00Z54.5755.8724.08.080106.2130.0TRUEVFRSPECI137.02018-07-22 11:41:19 ”"Ml”R©³O)#5    3USPP 221130Z 09006MPS 050V140 CAVOK 23/08 Q1021 R03/090060 NOSIG RMK QFE755USPP2018-07-22T11:30:00Z57.9256.0223.08.090126.2130.147638TRUEVFRSPECI123.02018-07-22 11:41:19[©³N)/5   3UWKD 221130Z 08007G12MPS 9999 BKN044 23/11 Q1015 R11/CLRD70 NOSIG RMK QFE751/1002UWKD2018-07-22T11:30:00Z55.6249.2823.011.08014236.2129.970472TRUEVFRSPECI126.02018-07-22 11:41:19O©³M)#5   3UWKE 221130Z 08007G12MPS CAVOK 22/08 Q1016 R03/090070 NOSIG RMK QFE745/0994UWKE2018-07-22T11:30:00Z55.5752.0822.08.08014236.2130.0TRUEVFRSPECI196.02018-07-22 11:41:19X©³L))5   3UWKS 221130Z 08006G11MPS 9999 SCT030CB 22/13 Q1015 R06/010060 NOSIG RMK QFE746UWKS2018-07-22T11:30:00Z56.0847.3522.013.08012216.2129.970472TRUEVFRMETAR170.02018-07-22 11:41:19 bFkb‚©³S)‚5    3URSS 221130Z 23004MPS 190V270 9999 SCT034 27/20 Q1008 WS ALL RWY R02/090070 R06/090070 NOSIG RMK R06/24004MPS MT OBSC QFE755URSS2018-07-22T11:30:00Z43.4539.9527.020.023086.2129.763779TRUEVFRSPECI16.02018-07-22 11:41:19U©³R))5    3URWA 221130Z 24004MPS 9999 BKN043 35/13 Q1004 R27/010070 NOSIG RMK QFE755/1007URWA2018-07-22T11:30:00Z46.2848.0235.013.024086.2129.64567TRUEVFRSPECI-20.02018-07-22 11:41:19M©³Q)5   3URWI 221130Z 28003MPS 230V320 9999 FEW///CB 32/14 Q1006 R27/010065 NOSIGURWI2018-07-22T11:30:00Z46.3744.3332.014.028066.2129.704725TRUESPECI150.02018-07-22 11:41:19a©³P)K5   3URWW 221130Z VRB01MPS 9999 SCT047 29/18 Q1005 R24/010070 TEMPO VRB15MPS 2000 TSRAGR SQ BKN030CBURWW2018-07-22T11:30:00Z48.7844.3329.018.0026.2129.675198VFRSPECI147.02018-07-22 11:41:19 ^û#5^Q©³W)5    3URMN 221130Z 10002MPS 9999 BKN035 30/16 Q1007 R24/010070 NOSIG RMK QFE719URMN2018-07-22T11:30:00Z43.5243.6330.016.010046.2129.734253TRUEVFRSPECI445.02018-07-22 11:41:19h©³V)I5     3URMO 221130Z 01002MPS 330V050 9999 -SHRA BKN040CB 27/19 Q1008 R09/010070 NOSIG RMK QFE713/0950URMO2018-07-22T11:30:00Z43.244.627.019.01046.2129.763779TRUE-SHRAVFRMETAR510.02018-07-22 11:41:19R©³U)5    3URMT 221130Z 25005MPS 9999 SCT034 30/13 Q1008 R25/010070 NOSIG RMK QFE718URMT2018-07-22T11:30:00Z45.1242.1230.013.0250106.2129.763779TRUEVFRSPECI453.02018-07-22 11:41:19©³T)‚ 5  3URRP 221130Z 18004MPS 150V210 9999 FEW///CB 25/21 Q1005 R23/290052 TEMPO VRB09G15MPS 1000 TSRAGR SCT004 BKN020CB RMK QFE746/0995URRP2018-07-22T11:30:00Z47.539.9225.021.018086.2129.675198METAR65.02018-07-22 11:41:19 =)A=~©³[)‚5  3URKK 221130Z 21007MPS 9999 SCT///CB 30/20 Q1006 RETS R23L/CLRD70 TEMPO VRB13G20MPS 0500 +TSRAGR SQ SCT004 BKN020CB RMK QFE751URKK2018-07-22T11:30:00Z45.0339.1530.020.0210146.2129.704725SPECI34.02018-07-22 11:41:19b©³Z)95     3URMG 221130Z 16002MPS 9999 -TSRA SCT051CB 30/18 Q1006 R08/000070 NOSIG RMK QFE740/0987URMG2018-07-22T11:30:00Z43.3745.730.018.016046.2129.704725TRUE-TSRAVFRMETAR263.02018-07-22 11:41:19R©³Y)#5    3URML 221130Z 12006MPS 9999 NSC 30/19 Q1006 R14/01//70 NOSIG RMK QFE754/1006URML2018-07-22T11:30:00Z42.8247.6530.019.0120126.2129.704725TRUEVFRSPECI4.02018-07-22 11:41:19y©³X){5   3URMM 221130Z 06003MPS 9999 BKN053 30/14 Q1007 R30/090070 TEMPO VRB06G15MPS 3100 -TSRAGR SCT011 BKN030CB RMK QFE727/0970URMM2018-07-22T11:30:00Z44.2243.130.014.06066.2129.734253VFRSPECI314.02018-07-22 11:41:19 ™ü8q™R©³_)5     3RCFN 221130Z VRB01KT 9999 VCSH FEW018 OVC150 27/26 Q1002 NOSIG RMK A2961RCFN2018-07-22T11:30:00Z22.77121.0727.026.0016.2129.586615TRUEVCSHVFRSPECI42.02018-07-22 11:41:19A©³^)5    3VMMC 221130Z 22003KT 190V280 9999 FEW025 28/25 Q1001 NOSIGVMMC2018-07-22T11:30:00Z22.15113.5828.025.022036.2129.557087TRUEVFRMETAR6.02018-07-22 11:41:19>©³](y5    3KF45 221130Z AUTO 00000KT 10SM CLR 25/25 A2995 RMK AO2KF452018-07-22T11:30:00Z26.85-80.2225.025.00010.029.949802TRUETRUEVFRMETAR7.02018-07-22 11:41:19~©³\)‚ 5  3URKA 221130Z 23007MPS 200V260 9999 SCT///CB 29/21 Q1008 R22/010070 TEMPO VRB13G18MPS 1000 TSRA SCT005 BKN020CB RMK QFE751/1001URKA2018-07-22T11:30:00Z45.037.3529.021.0230146.2129.763779SPECI53.02018-07-22 11:41:19 j#>gjw©³c)U5    3RCKH 221130Z 06007KT 9000 -SHRA FEW008 SCT010TCU BKN018 BKN040 27/25 Q1003 NOSIG RMK TCU NE-SE A2963RCKH2018-07-22T11:30:00Z22.57120.3327.025.06075.5929.616142TRUE-SHRABKN4000MVFRSPECI9.02018-07-22 11:41:19Q©³b)!5    3RCSS 221130Z 29005KT 9999 FEW015 BKN038 BKN150 30/26 Q1001 NOSIG RMK A2958RCSS2018-07-22T11:30:00Z25.07121.5330.026.029056.2129.557087TRUEVFRSPECI6.02018-07-22 11:41:19_©³a)/5     3RCMQ 221130Z 15006KT 5000 -RA BR SCT006 BKN020 BKN050 26/25 Q1003 NOSIG RMK A2964RCMQ2018-07-22T11:30:00Z24.27120.6226.025.015063.1129.616142TRUE-RA BRMVFRSPECI5.02018-07-22 11:41:19W©³`)/5    3RCNN 221130Z 08007KT 9000 VCSH FEW010 SCT032 BKN080 27/23 Q1003 RMK A2962 VCSH NERCNN2018-07-22T11:30:00Z22.93120.227.023.08075.5929.616142VCSHVFRSPECI19.02018-07-22 11:41:19 É_™ÉJ©³g)5    3VTCC 221130Z 18003KT 9999 FEW015 FEW025CB BKN035 27/24 Q1006 NOSIGVTCC2018-07-22T11:30:00Z18.7798.9727.024.018036.2129.704725TRUEVFRMETAR314.02018-07-22 11:41:19@©³f)5    3VTSP 221130Z 25007KT 150V320 9999 SCT020 29/23 Q1010 NOSIGVTSP2018-07-22T11:30:00Z8.1298.3229.023.025076.2129.822834TRUEVFRMETAR10.02018-07-22 11:41:198©³e(q5    3VTSS 221130Z 24005KT 9999 FEW020 29/25 Q1008 NOSIGVTSS2018-07-22T11:30:00Z6.92100.3829.025.024056.2129.763779TRUEVFRMETAR35.02018-07-22 11:41:19]©³d)-5     3RCTP 221130Z 21007KT 9999 -SHRA FEW012 SCT018 BKN050 28/26 Q1001 NOSIG RMK A2958RCTP2018-07-22T11:30:00Z25.07121.2228.026.021076.2129.557087TRUE-SHRAVFRSPECI33.02018-07-22 11:41:19 ;p®Ú@©³l(w5     3FZAA 221130Z 27010KT 5000 HZ BKN020 26/19 Q1014 NOSIGFZAA2018-07-22T11:30:00Z-4.3815.4526.019.0270103.1129.940945TRUEHZMVFRSPECI312.02018-07-22 11:41:19N©³k)5    3VEAT 221130Z 14004KT 4000 BR SCT018 FEW030CB BKN100 30/26 Q0999 TEMPO -RAVEAT2018-07-22T11:30:00Z23.8791.2530.026.014042.4929.498032BRIFRMETAR16.02018-07-22 11:41:19<©³j(5    3VTBD 221130Z VRB02KT 9999 FEW020 SCT040 28/26 Q1005 NOSIGVTBD2018-07-22T11:30:00Z13.92100.628.026.0026.2129.675198TRUEVFRMETAR3.02018-07-22 11:41:19E©³i)5     3VTBS 221130Z VRB02KT 9000 -RA FEW013 BKN100 27/24 Q1005 NOSIGVTBS2018-07-22T11:30:00Z13.68100.7527.024.0025.5929.675198TRUE-RAVFRMETAR2.02018-07-22 11:41:19?©³h(5    3VTBU 221130Z 23006KT 6000 FEW020 SCT100 30/23 Q1005 NOSIGVTBU2018-07-22T11:30:00Z12.68101.030.023.023063.7329.675198TRUEMVFRMETAR5.02018-07-22 11:41:19 °6j…°O©³p)5    3WMKK 221130Z 15004KT 110V190 9999 FEW030 BKN140 BKN280 29/25 Q1008 NOSIGWMKK2018-07-22T11:30:00Z2.75101.7229.025.015046.2129.763779TRUEVFRMETAR22.02018-07-22 11:41:19_©³o)?5    3NZAA 221130Z AUTO 26004KT 9999 FEW030/// SCT038/// BKN050/// 11/09 Q1014 TEMPO 9999 -SHRANZAA2018-07-22T11:30:00Z-37.02174.811.09.026046.2129.940945TRUEVFRSPECI6.02018-07-22 11:41:19F©³n)5     3NZWN 221130Z AUTO 33009KT 290V350 9999 NCD 11/04 Q1006 NOSIGNZWN2018-07-22T11:30:00Z-41.32174.811.04.033096.2129.704725TRUETRUEVFRMETAR7.02018-07-22 11:41:19D©³m)5     3NZCH 221130Z AUTO 12002KT 9999 OVC100/// 06/00 Q1000 NOSIGNZCH2018-07-22T11:30:00Z-43.47172.556.00.012026.2129.52756TRUETRUEVFRMETAR34.02018-07-22 11:41:19 3i¦Ò6©³u(o5   3FMEP 221130Z AUTO 13022KT 9999 ////// 23/16 Q1021FMEP2018-07-22T11:30:00Z-21.3255.4223.016.0130226.2130.147638TRUEMETAR18.02018-07-22 11:41:19N©³t)5    3WMKP 221130Z 23005KT 200V270 9999 FEW020 SCT140 BKN270 29/25 Q1008 NOSIGWMKP2018-07-22T11:30:00Z5.28100.2729.025.023056.2129.763779TRUEVFRMETAR4.02018-07-22 11:41:19=©³s(5    3WBGG 221130Z VRB02KT 9999 SCT020 BKN150 29/25 Q1010 NOSIGWBGG2018-07-22T11:30:00Z1.47110.3529.025.0026.2129.822834TRUEVFRMETAR27.02018-07-22 11:41:19D©³r) 5    3WBKK 221130Z VRB01KT 9999 FEW015 SCT140 BKN270 29/23 Q1008 NOSIGWBKK2018-07-22T11:30:00Z5.92116.0329.023.0016.2129.763779TRUEVFRMETAR3.02018-07-22 11:41:19G©³q) 5    3WBSB 221130Z 30006KT 9999 FEW016 SCT140 BKN300 30/26 Q1009 NOSIGWBSB2018-07-22T11:30:00Z4.92114.9230.026.030066.2129.793306TRUEVFRMETAR15.02018-07-22 11:41:19 ‹2$W‹F©³y(5    3KMHV 221120Z AUTO 29006KT 10SM FEW046 26/13 A3006 RMK A01KMHV2018-07-22T11:20:00Z35.07-118.1526.013.0290610.030.059055TRUETRUEVFRMETAR849.02018-07-22 11:41:19G©³x(5   3KGZN 221120Z AUTO 23009G14KT 10SM CLR 27/15 A2999 RMK AO2KGZN2018-07-22T11:20:00Z32.37-99.0227.015.023091410.029.991142TRUETRUEVFRMETAR522.02018-07-22 11:41:19‚©³w)g5     3KGUS 221121Z AUTO 02007KT 4SM -RA BR BKN006 OVC018 20/20 A2975 RMK AO2 VIS 2 3/4 RWY05 DZB01E04RAB04 SLP073 $KGUS2018-07-22T11:21:00Z40.63-86.1520.020.02074.029.7490161007.3TRUETRUETRUE-RA BRIFRSPECI247.02018-07-22 11:41:19H©³v) 5    3FMEE 221130Z AUTO 11021KT 9999 BKN110 24/16 Q1021 BECMG VRB02KTFMEE2018-07-22T11:30:00Z-20.8755.5224.016.0110216.2130.147638TRUEVFRSPECI25.02018-07-22 11:41:19 97o§9B©³~) 5    3CWDT 221100Z AUTO 00000KT 19/15 RMK AO1 SLP220 T01910152 53010CWDT2018-07-22T11:00:00Z49.88-71.2519.115.2001022.0TRUETRUE1.0METAR399.02018-07-22 11:41:19 ©³}(_5  3CXEG 221100Z AUTO 12/12 RMK AO1 T01210121CXEG2018-07-22T11:00:00Z53.3-113.612.112.1TRUETRUEMETAR715.02018-07-22 11:41:19B©³|) 5    3CWIX 221100Z AUTO 09004KT 20/16 RMK AO1 SLP202 T02020156 53013CWIX2018-07-22T11:00:00Z48.6-71.7220.215.69041020.2TRUETRUE1.3METAR113.02018-07-22 11:41:19B©³{)5    3CXWB 221100Z AUTO 15015KT M73/ RMK AO1 PK WND 14018/1009 T1728 58009CXWB2018-07-22T11:00:00Z65.88-89.45-72.815015TRUETRUE-0.9METAR18.02018-07-22 11:41:19C©³z(}5    3K46U 221120Z AUTO 00000KT 7SM FEW075 16/12 A3025 RMK A01K46U2018-07-22T11:20:00Z43.18-111.0516.012.0007.030.250984TRUETRUEVFRMETAR1717.02018-07-22 11:41:19 ˜+Lz˜\©´)5     3CYIO 221142Z AUTO 24018KT 5SM -RA BR BKN025 OVC033 04/03 A2984 RMK SLP111CYIO2018-07-22T11:42:00Z72.67-77.974.03.0240185.029.8405511011.1TRUE-RA BRMVFRSPECI57.02018-07-22 11:45:04L©´) 5     3CYFC 221142Z AUTO VRB02KT 6SM BR BKN002 16/16 A3023 RMK SLP240CYFC2018-07-22T11:42:00Z45.87-66.5216.016.0026.030.2303141024.0TRUEBRLIFRSPECI20.02018-07-22 11:45:04Y©´)'5   3CYYT 221142Z 25013KT 12SM OVC006 22/21 A3037 RMK SF8 SLP287 DENSITY ALT 900FTCYYT2018-07-22T11:42:00Z47.62-52.7222.021.02501312.030.3690951028.7IFRSPECI140.02018-07-22 11:45:04O©³)5    3CYQZ 221143Z AUTO 00000KT 9SM BKN009 BKN130 10/10 A3025 RMK SLP255CYQZ2018-07-22T11:43:00Z53.02-122.5210.010.0009.030.2509841025.5TRUEIFRSPECI545.02018-07-22 11:45:04 =6=s©´)E5      3KPEO 221141Z AUTO VRB05KT 2SM RA BR OVC012 17/17 A2972 RMK AO2 RAB10E19B38 P0001 T01720167 $KPEO2018-07-22T11:41:00Z42.65-77.0517.216.7052.029.719488TRUETRUETRUERA BRIFR0.01SPECI256.02018-07-22 11:45:04a©´)75     3KSBN 221141Z 02008KT 4SM BR BKN007 OVC012 20/19 A2980 RMK AO2 CIG 006V011 T02000189 $KSBN2018-07-22T11:41:00Z41.7-86.3220.018.92084.029.799213TRUETRUEBRIFRSPECI237.02018-07-22 11:45:04b©´)15     3KSSF 221141Z AUTO 00000KT 2 1/2SM BR SCT007 BKN013 25/25 A2997 RMK AO2 T02500250 $KSSF2018-07-22T11:41:00Z29.33-98.4725.025.0002.529.970472TRUETRUETRUEBRIFRSPECI176.02018-07-22 11:45:04u©´)Y5  3CYYC 221141Z 32011G18KT 20SM SCT051 BKN089 12/05 A3017 RMK SC3AC4 WSHFT 1127 SLP223 DENSITY ALT 3900FTCYYC2018-07-22T11:41:00Z51.12-114.0212.05.0320111820.030.1712591022.3VFRSPECI1084.02018-07-22 11:45:04 k>=kL©´ )5   3MMPN 221141Z 00000KT 4SM SKC 16/13 A3021 RMK SLP/// 5//// 9// FU HZ RTSMMPN2018-07-22T11:41:00Z19.38-102.0216.013.0004.030.209646MVFRMETAR1593.02018-07-22 11:45:04{©´ )W5      3KGVQ 221141Z AUTO 06015KT 2SM RA BR OVC003 17/16 A2974 RMK AO2 LTG DSNT NW TSB18E35 CIG 003V007 P0007KGVQ2018-07-22T11:41:00Z43.03-78.1717.016.060152.029.740158TRUETRUERA BRLIFR0.07SPECI278.02018-07-22 11:45:04M©´) 5    3PAPH 221141Z AUTO 13009KT 10SM SCT024 OVC033 13/11 A3012 RMK AO2PAPH2018-07-22T11:41:00Z56.95-158.6213.011.0130910.030.121063TRUETRUEVFRSPECI29.02018-07-22 11:45:04i©´)35      3KDSV 221141Z AUTO 34004KT 1 3/4SM -RA BR OVC004 17/16 A2971 RMK AO2 P0020 T01720161KDSV2018-07-22T11:41:00Z42.57-77.7217.216.134041.7529.71063TRUETRUE-RA BRLIFR0.2SPECI198.02018-07-22 11:45:04 kü4<kK©´) 5    3KSUT 221140Z AUTO 19003KT 10SM CLR 27/24 A2978 RMK AO2 T02660240KSUT2018-07-22T11:40:00Z33.93-78.0826.624.0190310.029.778543TRUETRUEVFRSPECI8.02018-07-22 11:45:04r©´ )O5     3PACD 221140Z AUTO 14018KT 10SM FEW003 OVC016 11/10 A2998 RMK AO2 PK WND 14029/1056 T01060100 TSNOPACD2018-07-22T11:40:00Z55.2-162.7210.610.01401810.029.97933TRUETRUETRUEMVFRSPECI30.02018-07-22 11:45:04B©´ (y5    3K2G4 221140Z AUTO 20006KT 10SM CLR 15/15 A2981 RMK AO1K2G42018-07-22T11:40:00Z39.58-79.3315.015.0200610.029.811024TRUETRUEVFRSPECI894.02018-07-22 11:45:04~©´ )]5      3KFLD 221140Z AUTO 34009KT 3SM RA BR FEW005 BKN010 OVC015 18/17 A2994 RMK AO2 CIG 008V013 P0011 T01780167KFLD2018-07-22T11:40:00Z43.77-88.4817.816.734093.029.940945TRUETRUERA BRMVFR0.11SPECI240.02018-07-22 11:45:04 .Oˆs©´)=5      3KHZY 221140Z AUTO 12003KT 6SM -RA BR BKN012 OVC021 17/17 A2977 RMK AO2 P0000 T01670167 $KHZY2018-07-22T11:40:00Z41.78-80.716.716.712036.029.769686TRUETRUETRUE-RA BRMVFR0.005SPECI276.02018-07-22 11:45:04A©´)5    3KONX 221140Z AUTO 10SM SCT007 20/18 A2981 RMK AO2 T01950177KONX2018-07-22T11:40:00Z36.4-76.0219.517.710.029.811024TRUETRUEVFRSPECI5.02018-07-22 11:45:04Y©´))5    3KPIT 221140Z 08003KT 10SM SCT008 BKN150 BKN250 17/15 A2976 RMK AO2 T01670150 $KPIT2018-07-22T11:40:00Z40.5-80.2716.715.080310.029.760826TRUETRUEVFRSPECI357.02018-07-22 11:45:04L©´) 5    3KSBD 221140Z AUTO 00000KT 10SM CLR 22/12 A3005 RMK AO2 T02200119KSBD2018-07-22T11:40:00Z34.08-117.2522.011.90010.030.050198TRUETRUEVFRSPECI353.02018-07-22 11:45:04 Q 9FQo©´)U5    3CYGK 221140Z 04015KT 8SM -RA SCT012 SCT036 OVC060 17/16 A2985 RMK SF3CU1SC4 SLP110 DENSITY ALT 700FTCYGK2018-07-22T11:40:00Z44.22-76.5817.016.040158.029.849411011.0-RAVFRSPECI93.02018-07-22 11:45:04m©´)?5     3KDXR 221140Z 13009G17KT 4SM -RA BR OVC006 22/21 A2991 RMK AO2 CIG 005V010 P0002 T02170211KDXR2018-07-22T11:40:00Z41.37-73.4821.721.11309174.029.911417TRUE-RA BRIFR0.02SPECI139.02018-07-22 11:45:04M©´)5    3KEWR 221140Z 15008KT 10SM FEW009 OVC014 23/21 A2983 RMK AO2 T02280206KEWR2018-07-22T11:40:00Z40.68-74.1722.820.6150810.029.828741TRUEMVFRSPECI7.02018-07-22 11:45:04n©´)75      3KFIT 221140Z AUTO 03004KT 2 1/2SM -RA BR OVC005 18/18 A3007 RMK AO2 P0006 T01780178 $KFIT2018-07-22T11:40:00Z42.55-71.7517.817.83042.530.070866TRUETRUETRUE-RA BRIFR0.06SPECI103.02018-07-22 11:45:04 !.cN©´) 5     3KHAF 221140Z AUTO 18005KT 1 1/4SM BR OVC003 15/14 A3007 RMK AO2KHAF2018-07-22T11:40:00Z37.52-122.515.014.018051.2530.070866TRUETRUEBRLIFRMETAR21.02018-07-22 11:45:04E©´(5    3KSQL 221140Z AUTO 32003KT 10SM OVC014 17/14 A3005 RMK AO2KSQL2018-07-22T11:40:00Z37.52-122.2517.014.0320310.030.050198TRUETRUEMVFRMETAR1.02018-07-22 11:45:04m©´)=5      3PAJC 221140Z AUTO 09007KT 060V120 2 1/2SM -RA BR BKN011 OVC017 11/11 A3013 RMK AO2 P0003PAJC2018-07-22T11:40:00Z56.32-158.3711.011.09072.530.129921TRUETRUE-RA BRIFR0.03METAR15.02018-07-22 11:45:04Y©´)/5    3PKWA 221140Z AUTO 00000KT 10SM SCT022 SCT031 BKN042 28/23 A2986 RMK AO2 T02790234PKWA2018-07-22T11:40:00Z8.72167.7227.923.40010.029.861221TRUETRUEVFRSPECI8.02018-07-22 11:45:04 L:Lh©´)=5    3KOGB 221139Z AUTO 23004KT 10SM BKN005 OVC021 21/19 A2978 RMK AO2 CIG 003V007 T02110194 $KOGB2018-07-22T11:39:00Z33.47-80.8521.119.4230410.029.778543TRUETRUETRUEIFRMETAR59.02018-07-22 11:45:04Z©´)/5    3KORF 221139Z AUTO VRB04KT 10SM FEW008 SCT013 OVC025 24/22 A2980 RMK AO2 T02390217KORF2018-07-22T11:39:00Z36.9-76.223.921.70410.029.799213TRUETRUEMVFRMETAR14.02018-07-22 11:45:04y©´)M5     3KPSF 221139Z AUTO 06010G15KT 6SM -RA BR SCT008 BKN013 OVC038 18/16 A2995 RMK AO2 P0002 T01780156KPSF2018-07-22T11:39:00Z42.43-73.2817.815.66010156.029.949802TRUETRUE-RA BRMVFR0.02METAR355.02018-07-22 11:45:04a©´)-5      3KASH 221140Z 07007KT 2 1/2SM -RA BR OVC005 18/18 A3009 RMK AO2 VIS 1 1/2V5 P0000KASH2018-07-22T11:40:00Z42.78-71.5218.018.07072.530.088583TRUE-RA BRIFR0.005METAR61.02018-07-22 11:45:04 Ž2f„Žp©´")M5     3KCON 221139Z AUTO 05007KT 10SM BKN013 BKN023 OVC037 17/15 A3011 RMK AO2 RAB16E31 P0000 T01720150KCON2018-07-22T11:39:00Z43.2-71.517.215.050710.030.109253TRUETRUEMVFR0.005METAR103.02018-07-22 11:45:04\©´!)%5    3KGED 221139Z AUTO 20006KT 10SM BKN015 OVC037 22/20 A2985 RMK AO2 T02170200 $KGED2018-07-22T11:39:00Z38.68-75.3721.720.0200610.029.84941TRUETRUETRUEMVFRMETAR19.02018-07-22 11:45:04F©´ ) 5    3KHGR 221139Z 19005KT 10SM SCT018 18/17 A2978 RMK AO2 T01830167KHGR2018-07-22T11:39:00Z39.7-77.7318.316.7190510.029.778543TRUEVFRMETAR224.02018-07-22 11:45:04H©´) 5    3KMLI 221139Z 33008KT 10SM BKN012 19/17 A2993 RMK AO2 T01940172KMLI2018-07-22T11:39:00Z41.45-90.5219.417.2330810.029.929134TRUEMVFRMETAR184.02018-07-22 11:45:04 _0S^_y©´&)U5    3KVAD 221138Z AUTO 24005KT 10SM BKN007 25/25 A2983 RMK AO2 BKN V SCT SLP102 VISNO RWY36 CHINO RWY36 $KVAD2018-07-22T11:38:00Z30.97-83.225.025.0240510.029.8287411010.2TRUETRUETRUEIFRSPECI71.02018-07-22 11:45:04o©´%)55     3KVBG 221138Z AUTO 35004KT 1 3/8SM BR OVC001 14/14 A3006 RMK AO2 VIS 1 3/8V5 SLP181 $KVBG2018-07-22T11:38:00Z34.73-120.5814.014.035041.3830.0590551018.1TRUETRUETRUEBRLIFRSPECI112.02018-07-22 11:45:04W©´$)5     3KBEH 221139Z AUTO 00000KT 3SM BR BKN008 21/19 A2980 RMK AO2 T02060194 $KBEH2018-07-22T11:39:00Z42.13-86.4220.619.4003.029.799213TRUETRUETRUEBRIFRMETAR191.02018-07-22 11:45:04J©´#) 5     3KBTL 221139Z 04007KT 3SM BR OVC014 21/19 A2982 RMK AO2 T02060194KBTL2018-07-22T11:39:00Z42.32-85.2320.619.44073.029.819881TRUEBRMVFRMETAR290.02018-07-22 11:45:04 0{›äD©´+(5    3KCBE 221136Z AUTO 00000KT 10SM OVC017 18/17 A2981 RMK AO1KCBE2018-07-22T11:36:00Z39.62-78.7718.017.00010.029.811024TRUETRUEMVFRMETAR236.02018-07-22 11:45:041©´*(m5     3KFME 221136Z AUTO 00000KT 10SM CLR A2982 RMK AO1KFME2018-07-22T11:36:00Z39.08-76.770010.029.819881TRUETRUEVFRSPECI46.02018-07-22 11:45:04Z©´))-5    3KAMN 221137Z AUTO 03006KT 7SM BKN006 BKN019 OVC100 20/20 A2985 RMK AO2 T01970197KAMN2018-07-22T11:37:00Z43.32-84.6819.719.73067.029.84941TRUETRUEIFRMETAR230.02018-07-22 11:45:04/©´((g5   3K2W6 221137Z AUTO 00000KT 19/18 A2982 RMK AO1K2W62018-07-22T11:37:00Z38.32-76.5519.018.00029.819881TRUETRUESPECI44.02018-07-22 11:45:04J©´') 5    3KCGS 221137Z AUTO 00000KT 10SM CLR 19/17 A2979 RMK AO1 T01850165KCGS2018-07-22T11:37:00Z38.98-76.9218.516.50010.029.790354TRUETRUEVFRSPECI15.02018-07-22 11:45:04 Æ)bÆC©´/(5    3KDMW 221135Z AUTO 21006KT 10SM BKN006 18/18 A2979 RMK AO2KDMW2018-07-22T11:35:00Z39.6-77.018.018.0210610.029.790354TRUETRUEIFRSPECI241.02018-07-22 11:45:04M©´.)5    3KGEV 221135Z AUTO 00000KT 7SM OVC022 16/16 A2984 RMK AO2 T01570155KGEV2018-07-22T11:35:00Z36.43-81.4215.715.5007.029.840551TRUETRUEMVFRSPECI969.02018-07-22 11:45:04A©´-(y5    3KW29 221135Z AUTO 16005KT 10SM CLR 20/18 A2981 RMK AO2KW292018-07-22T11:35:00Z38.98-76.3320.018.0160510.029.811024TRUETRUEVFRSPECI15.02018-07-22 11:45:04Q©´,) 5     3KSFY 221136Z AUTO 35006KT 10SM OVC014 19/17 A2993 RMK AO2 PWINOKSFY2018-07-22T11:36:00Z42.05-90.1219.017.0350610.029.929134TRUETRUETRUEMVFRMETAR188.02018-07-22 11:45:04 Ô7aœÔB©´3(y5    3KSBO 221135Z AUTO 25003KT 10SM CLR 23/23 A2981 RMK AO2KSBO2018-07-22T11:35:00Z32.62-82.3723.023.0250310.029.811024TRUETRUEVFRSPECI100.02018-07-22 11:45:04?©´2({5    3KWDG 221135Z AUTO 09006KT CLR 23/18 A2997 RMK AO2 PWINOKWDG2018-07-22T11:35:00Z36.37-97.7723.018.090629.970472TRUETRUETRUESPECI356.02018-07-22 11:45:04P©´1)5    3KAFP 221135Z AUTO 16003KT 10SM OVC026 21/20 A2975 RMK AO2 T02100197KAFP2018-07-22T11:35:00Z35.02-80.0821.019.7160310.029.749016TRUETRUEMVFRSPECI92.02018-07-22 11:45:04C©´0(5    3KCGE 221135Z AUTO 15005KT 10SM FEW016 21/20 A2982 RMK A01KCGE2018-07-22T11:35:00Z38.53-76.0321.020.0150510.029.819881TRUETRUEVFRSPECI6.02018-07-22 11:45:04 «/\Œ«[©´7)'5     3KLOT 221135Z AUTO 34008KT 7SM -RA BKN010 OVC015 20/19 A2984 RMK AO2 T02000192KLOT2018-07-22T11:35:00Z41.6-88.120.019.234087.029.840551TRUETRUE-RAMVFRSPECI205.02018-07-22 11:45:04J©´6) 5    3KMDQ 221135Z AUTO 00000KT 10SM CLR 20/19 A2985 RMK A02 T02010192KMDQ2018-07-22T11:35:00Z34.87-86.5520.119.20010.029.84941TRUETRUEVFRSPECI230.02018-07-22 11:45:04M©´5) 5    3KPEQ 221135Z AUTO 08007KT 10SM CLR 22/11 A3003 RMK AO2 T02160107KPEQ2018-07-22T11:35:00Z31.38-103.5221.610.780710.030.029528TRUETRUEVFRSPECI797.02018-07-22 11:45:04K©´4) 5    3KRPH 221135Z AUTO 00000KT 10SM CLR 22/14 A2993 RMK AO2 T02220136KRPH2018-07-22T11:35:00Z33.12-98.5522.213.60010.029.929134TRUETRUEVFRSPECI342.02018-07-22 11:45:04 À(NÀG©´;)5     3KEXX 221135Z AUTO 5SM BR SCT008 21/21 A2975 RMK AO2 T02070207KEXX2018-07-22T11:35:00Z35.78-80.320.720.75.029.749016TRUETRUEBRMVFRSPECI223.02018-07-22 11:45:04;©´:(w5    3KGLY 221135Z AUTO 31003KT 7SM CLR 18/18 A3000 RMK AO2KGLY2018-07-22T11:35:00Z38.35-93.6818.018.031037.030.0TRUETRUEVFRSPECI251.02018-07-22 11:45:04T©´9)5     3KHBV 221135Z AUTO 00000KT 3/4SM BR OVC002 23/23 A2998 RMK AO2 T02320225KHBV2018-07-22T11:35:00Z27.35-98.7323.222.5000.7529.97933TRUETRUEBRLIFRSPECI202.02018-07-22 11:45:04R©´8)5    3KIXA 221135Z AUTO 00000KT 10SM SCT002 BKN018 OVC023 20/20 A2980 RMK AO2KIXA2018-07-22T11:35:00Z36.33-77.6320.020.00010.029.799213TRUETRUEMVFRSPECI44.02018-07-22 11:45:04 ¦4b‡¦[©´?)'5     3KDPL 221135Z AUTO 00000KT 10SM BKN016 BKN028 BKN035 23/22 A2979 RMK AO2 P0001KDPL2018-07-22T11:35:00Z35.0-77.9723.022.00010.029.790354TRUETRUEMVFR0.01SPECI42.02018-07-22 11:45:04U©´>)5    3KDVK 221135Z AUTO 29007KT 10SM SCT011 BKN023 OVC060 20/18 A2976 RMK AO2KDVK2018-07-22T11:35:00Z37.58-84.7720.018.0290710.029.760826TRUETRUEMVFRMETAR312.02018-07-22 11:45:04L©´=) 5    3KE80 221135Z AUTO 00000KT 10SM CLR 21/09 A3021 RMK AO2 T02140087KE802018-07-22T11:35:00Z34.65-106.8321.48.70010.030.209646TRUETRUEVFRSPECI1582.02018-07-22 11:45:04F©´<(}5     3KEVU 221135Z AUTO 36003KT 5SM BR CLR 17/17 A3004 RMK AO2KEVU2018-07-22T11:35:00Z40.35-94.9217.017.036035.030.041338TRUETRUEBRMVFRSPECI349.02018-07-22 11:45:04 Œ&C`ŒN©´C)5    3KSHD 221135Z AUTO 00000KT 10SM BKN018 17/16 A2981 RMK AO2 T01650155KSHD2018-07-22T11:35:00Z38.27-78.916.515.50010.029.811024TRUETRUEMVFRMETAR366.02018-07-22 11:45:04]©´B)5      3KSME 221135Z AUTO 26005KT 7SM -RA BKN013 OVC020 20/20 A2978 RMK AO2 P0001KSME2018-07-22T11:35:00Z37.05-84.6220.020.026057.029.778543TRUETRUE-RAMVFR0.01METAR283.02018-07-22 11:45:04]©´A)'5     3KW63 221135Z AUTO 14004KT 10SM BKN008 SCT027 SCT042 20/20 A2978 RMK AO1 P0001KW632018-07-22T11:35:00Z36.6-78.5520.020.0140410.029.778543TRUETRUEIFR0.01METAR129.02018-07-22 11:45:04T©´@)!5    3KCTZ 221135Z AUTO 00000KT 10SM BKN009 BKN016 24/22 A2978 RMK AO2 T02380219KCTZ2018-07-22T11:35:00Z34.98-78.3723.821.90010.029.778543TRUETRUEIFRSPECI45.02018-07-22 11:45:04 È8_ŽÈ@©´G(y5    3KMYZ 221135Z AUTO 00000KT 10SM CLR 19/17 A3004 RMK AO2KMYZ2018-07-22T11:35:00Z39.85-96.6319.017.00010.030.041338TRUETRUEVFRMETAR319.02018-07-22 11:45:04K©´F) 5    3KNOW 221135Z AUTO 25004KT 10SM CLR 12/11 A3022 RMK AO2 T01200105KNOW2018-07-22T11:35:00Z48.13-123.412.010.5250410.030.221457TRUETRUEVFRMETAR4.02018-07-22 11:45:04S©´E)5      3KOYM 221135Z AUTO 00000KT 2SM +DZ OVC003 13/13 A2979 RMK AO2 P0001KOYM2018-07-22T11:35:00Z41.42-78.513.013.0002.029.790354TRUETRUE+DZLIFR0.01METAR590.02018-07-22 11:45:04B©´D(y5    3KPNA 221135Z AUTO 27008KT 10SM CLR 11/11 A3035 RMK AO2KPNA2018-07-22T11:35:00Z42.8-109.811.011.0270810.030.351377TRUETRUEVFRMETAR2160.02018-07-22 11:45:04 Ì<pÌK©´K) 5    3KIDP 221135Z AUTO 00000KT 10SM CLR 20/18 A3001 RMK AO2 T01960180KIDP2018-07-22T11:35:00Z37.17-95.7819.618.00010.030.008858TRUETRUEVFRMETAR251.02018-07-22 11:45:04M©´J) 5    3KJCA 221135Z AUTO 28007KT 10SM CLR 21/20 A2982 RMK AO2 T02110201KJCA2018-07-22T11:35:00Z34.18-83.5721.120.1280710.029.819881TRUETRUEVFRMETAR290.02018-07-22 11:45:04F©´I(5    3KLNP 221135Z AUTO 23004KT 10SM OVC004 18/18 A2983 RMK AO2KLNP2018-07-22T11:35:00Z36.97-82.5218.018.0230410.029.828741TRUETRUELIFRMETAR817.02018-07-22 11:45:04>©´H(w5    3KMGR 221135Z AUTO 27004KT 7SM CLR 25/24 A2984 RMK AO2KMGR2018-07-22T11:35:00Z31.08-83.825.024.027047.029.840551TRUETRUEVFRMETAR90.02018-07-22 11:45:04 ¾(W†¾B©´O(y5    3KDTA 221135Z AUTO 15006KT 10SM CLR 18/09 A3018 RMK AO1KDTA2018-07-22T11:35:00Z39.38-112.518.09.0150610.030.180119TRUETRUEVFRMETAR1402.02018-07-22 11:45:04K©´N) 5    3KGDJ 221135Z AUTO 00000KT 10SM CLR 26/17 A2995 RMK AO2 T02630167KGDJ2018-07-22T11:35:00Z32.45-97.8226.316.70010.029.949802TRUETRUEVFRMETAR237.02018-07-22 11:45:04K©´M) 5    3KHOE 221135Z AUTO 23004KT 7SM BKN015 OVC020 25/24 A2984 RMK AO2KHOE2018-07-22T11:35:00Z31.05-82.7825.024.023047.029.840551TRUETRUEMVFRMETAR57.02018-07-22 11:45:04R©´L)5    3KI16 221135Z AUTO 10SM BKN018 BKN023 OVC060 18/18 A2982 RMK AO2 T01830177KI162018-07-22T11:35:00Z37.6-81.5718.317.710.029.819881TRUETRUEMVFRMETAR544.02018-07-22 11:45:04 ¾9f“¾O©´S)5     3K0VG 221135Z AUTO 00000KT 5SM BR BKN026 OVC032 20/19 A2981 RMK AO2K0VG2018-07-22T11:35:00Z36.65-83.2220.019.0005.029.811024TRUETRUEBRMVFRMETAR430.02018-07-22 11:45:04M©´R) 5    3K2J3 221135Z AUTO 26004KT 10SM CLR 22/21 A2980 RMK AO2 T02210213K2J32018-07-22T11:35:00Z32.98-82.3822.121.3260410.029.799213TRUETRUEVFRMETAR100.02018-07-22 11:45:04M©´Q) 5    3K3N8 221135Z AUTO 14005KT 10SM CLR 18/17 A3011 RMK AO2 T01750165K3N82018-07-22T11:35:00Z47.25-95.8817.516.5140510.030.109253TRUETRUEVFRMETAR383.02018-07-22 11:45:04A©´P(y5    3KCNI 221135Z AUTO 29003KT 10SM CLR 21/18 A2985 RMK AO2KCNI2018-07-22T11:35:00Z34.32-84.4221.018.0290310.029.84941TRUETRUEVFRMETAR372.02018-07-22 11:45:04 Ÿ1e‘Ÿl©´W)U5    3RJOZ 221134Z 09003KT 9999 -SHRA FEW015 BKN025 BKN050 27/25 Q1010 RETS RMK 1CU015 5CU025 7SC050 A2983RJOZ2018-07-22T11:34:00Z34.03131.0527.025.09036.2129.822834-SHRAMVFRMETAR7.02018-07-22 11:45:04N©´V)5    3KCTJ 221134Z AUTO 00000KT 10SM SCT065 21/19 A2989 RMK AO2 T02050190KCTJ2018-07-22T11:34:00Z33.63-85.1520.519.00010.029.890747TRUETRUEVFRSPECI354.02018-07-22 11:45:04F©´U(5    3KCUL 221134Z AUTO 31005KT 10SM OVC015 21/19 A2980 RMK AO2KCUL2018-07-22T11:34:00Z38.08-88.1221.019.0310510.029.799213TRUETRUEMVFRMETAR118.02018-07-22 11:45:04I©´T)5     3KHSP 221134Z AUTO 00000KT 4SM BR OVC001 17/17 A2987 RMK AO2KHSP2018-07-22T11:34:00Z37.95-79.8217.017.0004.029.870079TRUETRUEBRLIFRSPECI1156.02018-07-22 11:45:04 ›+[›:©´[(y5    3KHFJ 221130Z AUTO 00000KT 10SM CLR 18/18 A3000 RMK AO2KHFJ2018-07-22T11:30:00Z36.9-94.0218.018.00010.030.0TRUETRUEVFRSPECI401.02018-07-22 11:45:04J©´Z) 5    3KMQI 221130Z AUTO 19008KT 10SM CLR 26/24 A2982 RMK AO2 T02580238KMQI2018-07-22T11:30:00Z35.92-75.725.823.8190810.029.819881TRUETRUEVFRSPECI4.02018-07-22 11:45:04d©´Y)-5      3KVJI 221130Z AUTO 25004KT 1 1/2SM +RA OVC004 20/20 A2981 RMK AO2 P0013 T01960196KVJI2018-07-22T11:30:00Z36.67-82.0219.619.625041.529.811024TRUETRUE+RALIFR0.13SPECI631.02018-07-22 11:45:04e©´X)95     3KW78 221130Z AUTO 00000KT 7SM SCT004 BKN014 OVC120 21/20 A2977 RMK AO1 P0001 T02060198KW782018-07-22T11:30:00Z36.68-78.8520.619.8007.029.769686TRUETRUEMVFR0.01SPECI129.02018-07-22 11:45:04 º:c›º[©´_))5     3KEYF 221130Z AUTO 15005KT 5SM BR CLR 24/23 A2978 RMK AO2 LTG DSNT NE T02420234KEYF2018-07-22T11:30:00Z34.6-78.5824.223.415055.029.778543TRUETRUEBRMVFRSPECI41.02018-07-22 11:45:04B©´^)5   3KFFA 221130Z AUTO 00000KT 10SM 25/25 A2981 RMK AO2 T02500245KFFA2018-07-22T11:30:00Z36.02-75.6725.024.50010.029.811024TRUETRUESPECI4.02018-07-22 11:45:04Q©´])5    3KGLW 221130Z AUTO 27004KT 10SM OVC016 21/18 A2978 RMK AO2 T02050181KGLW2018-07-22T11:30:00Z37.03-85.9520.518.1270410.029.778543TRUETRUEMVFRSPECI218.02018-07-22 11:45:04@©´\(y5    3KGVT 221130Z AUTO 00000KT 10SM CLR 24/19 A2993 RMK AO2KGVT2018-07-22T11:30:00Z33.07-96.0724.019.00010.029.929134TRUETRUEVFRSPECI163.02018-07-22 11:45:04 È:i™ÈK©´c) 5    3KCHK 221130Z AUTO 09005KT 10SM CLR 24/18 A2992 RMK AO2 T02440180KCHK2018-07-22T11:30:00Z35.1-97.9724.418.090510.029.920275TRUETRUEVFRSPECI351.02018-07-22 11:45:04J©´b) 5    3KCPC 221130Z AUTO 00000KT 10SM CLR 24/23 A2978 RMK AO2 T02430231KCPC2018-07-22T11:30:00Z34.28-78.7224.323.10010.029.778543TRUETRUEVFRSPECI29.02018-07-22 11:45:04K©´a) 5    3KCPU 221130Z AUTO 00000KT 10SM CLR 21/05 A3004 RMK AO2 T02050051KCPU2018-07-22T11:30:00Z38.15-120.6520.55.10010.030.041338TRUETRUEVFRMETAR404.02018-07-22 11:45:04@©´`(u5     3KEHY 221130Z AUTO 10SM CLR 19/06 A3031 RMK AO2 PWINOKEHY2018-07-22T11:30:00Z41.73-106.4719.06.010.030.31004TRUETRUETRUEVFRSPECI2225.02018-07-22 11:45:04 "8s£á"9©´h(q5    3WAHS 221130Z 31006KT 6000 FEW014 29/23 Q1010 NOSIGWAHS2018-07-22T11:30:00Z-6.98110.3829.023.031063.7329.822834TRUEMVFRMETAR5.02018-07-22 11:45:04<©´g(q5    3WATT 221130Z 10007KT 8000 FEW018 26/20 Q1013 NOSIGWATT2018-07-22T11:30:00Z-10.17123.6726.020.010074.9729.911417TRUEMVFRMETAR102.02018-07-22 11:45:04J©´f)5     3K1F0 221130Z AUTO 00000KT 10SM CLR 25/18 A2992 RMK AO2 TSNOK1F02018-07-22T11:30:00Z34.15-97.1225.018.00010.029.920275TRUETRUETRUEVFRSPECI257.02018-07-22 11:45:04?©´e(y5    3KAQO 221130Z AUTO 00000KT 10SM CLR 26/21 A3002 RMK AO2KAQO2018-07-22T11:30:00Z30.78-98.6726.021.00010.030.02067TRUETRUEVFRSPECI336.02018-07-22 11:45:04B©´d(y5    3KBWP 221130Z AUTO 12004KT 10SM CLR 17/15 A3008 RMK AO1KBWP2018-07-22T11:30:00Z46.25-96.6217.015.0120410.030.079725TRUETRUEVFRSPECI295.02018-07-22 11:45:04 {Mšç1{0©´m(e5   3HUEN 221130Z 18012KT 9999 FEW021 25/18 Q1019HUEN2018-07-22T11:30:00Z0.0332.4525.018.0180126.2130.088583VFRMETAR1155.02018-07-22 11:45:040©´l(k5    3WIOO 221130Z 00000KT 4000 FU FEW013 29/24 Q1009WIOO2018-07-22T11:30:00Z-0.15109.429.024.0002.4929.793306FUIFRMETAR3.02018-07-22 11:45:04-©´k(e5   3WAOO 221130Z VRB02KT 9999 SCT017 27/24 Q1010WAOO2018-07-22T11:30:00Z-3.45114.7727.024.0026.2129.822834VFRMETAR20.02018-07-22 11:45:04-©´j(e5   3WALL 221130Z 24003KT 9000 SCT020 28/25 Q1010WALL2018-07-22T11:30:00Z-1.27116.928.025.024035.5929.822834VFRMETAR3.02018-07-22 11:45:04-©´i(e5   3WIBB 221130Z 00000KT 7000 FEW016 30/24 Q1008WIBB2018-07-22T11:30:00Z0.47101.4530.024.0004.3529.763779MVFRMETAR31.02018-07-22 11:45:04 |CÛ/|-©´r(_5   3KADS 221147Z 24004KT 10SM SKC 29/17 A2993KADS2018-07-22T11:47:00Z32.97-96.8229.017.0240410.029.929134VFRMETAR196.02018-07-22 11:48:49&©´q(_5   3KASG 221148Z 00000KT 10SM SKC 20/20 A3000KASG2018-07-22T11:48:00Z36.17-94.1220.020.00010.030.0VFRMETAR412.02018-07-22 11:48:49,©´p(Y5   3FNKU 221100Z 14010KT CAVOK 17/10 Q1024FNKU2018-07-22T11:00:00Z-12.3716.9317.010.0140106.2130.236221VFRMETAR1699.02018-07-22 11:45:050©´o(o5   3ETGG 221120Z 28008KT 9999 FEW150 27/10 Q1012 BLU+ETGG2018-07-22T11:20:00Z54.839.527.010.028086.2129.88189VFRMETAR33.02018-07-22 11:45:047©´n(w5   3HKEL 221130Z 11004KT 9999 FEW022CB SCT023 23/11 Q1025HKEL2018-07-22T11:30:00Z0.435.2323.011.011046.2130.265747VFRMETAR2133.02018-07-22 11:45:04 àPœ®àH©´v) 5  3KSCH 221146Z 02012G18KT 10SM BKN028 OVC035 17/16 A2992 RMK FIRSTKSCH2018-07-22T11:46:00Z42.85-73.9217.016.020121810.029.920275MVFRMETAR115.02018-07-22 11:48:49h©´u)75     3CYCK 221147Z AUTO 04008KT 5SM -RA BR OVC011 18/17 A2979 RMK SLP088 DENSITY ALT 1200FTCYCK2018-07-22T11:47:00Z42.3-82.0818.017.04085.029.7903541008.8TRUE-RA BRMVFRSPECI198.02018-07-22 11:48:49.©´t(e5   3KGYH 221147Z 00000KT 10SM SCT002 21/20 A2977KGYH2018-07-22T11:47:00Z34.75-82.3821.020.00010.029.769686VFRMETAR292.02018-07-22 11:48:49*©´s(_5   3KFDK 221147Z 00000KT 10SM SKC 18/18 A2980KFDK2018-07-22T11:47:00Z39.42-77.3718.018.00010.029.799213VFRMETAR92.02018-07-22 11:48:49 n)Llnx©´z)Y5   3CYCB 221145Z 30015G20KT 15SM -SHRA FEW006 BKN015 OVC100 04/02 A3011 RMK SF1SC7AC1 SF TR CU EMBD SLP202CYCB2018-07-22T11:45:00Z69.08-105.124.02.0300152015.030.1092531020.2-SHRAMVFRSPECI27.02018-07-22 11:48:49Z©´y)5      3KSFZ 221146Z AUTO 11009KT 2SM -RA BR OVC002 20/20 A3002 RMK AO2 P0006KSFZ2018-07-22T11:46:00Z41.92-71.520.020.011092.030.02067TRUETRUE-RA BRLIFR0.06METAR134.02018-07-22 11:48:49W©´x)15    3KNGU 221146Z 00000KT 10SM BKN009 BKN014 23/20 A2981 RMK AO2 CIG 006V012 T02280200 KNGU2018-07-22T11:46:00Z36.92-76.2722.820.00010.029.811024TRUEIFRSPECI5.02018-07-22 11:48:49Q©´w))5   3MMAN 221146Z 00000KT 8SM FEW200 23/18 A3001 RMK SLP/// 5//// 9// 8/001 HZY RTSMMAN2018-07-22T11:46:00Z25.87-100.2323.018.0008.030.008858VFRMETAR448.02018-07-22 11:48:49 ,3n´ê,8©´(w5    3KTZR 221145Z 07004KT 5SM BR BKN005 OVC009 19/19 A2972KTZR2018-07-22T11:45:00Z39.9-83.1319.019.07045.029.719488BRIFRMETAR276.02018-07-22 11:48:49D©´~(5    3KBTP 221145Z AUTO 04003KT 10SM BKN005 16/15 A2977 RMK AO2KBTP2018-07-22T11:45:00Z40.77-79.9516.015.040310.029.769686TRUETRUEIFRMETAR380.02018-07-22 11:48:494©´}(i5    3KJVL 221145Z 34008KT 6SM BR OVC010 20/19 A2992KJVL2018-07-22T11:45:00Z42.62-89.0520.019.034086.029.920275BRMVFRMETAR246.02018-07-22 11:48:49?©´|(y5    3KUES 221145Z 32008KT 1 1/2SM -RA BR OVC007 17/17 A2991KUES2018-07-22T11:45:00Z43.05-88.2517.017.032081.529.911417-RA BRIFRMETAR278.02018-07-22 11:48:49G©´{)5   3CYRB 221145Z 27014KT 15SM OVC006 M00/M01 A2978 RMK ST8 SLP092CYRB2018-07-22T11:45:00Z74.72-94.970.0-1.02701415.029.7785431009.2IFRSPECI67.02018-07-22 11:48:49 #JŽÒÿ#V©µ)5     3KUSE 221145Z AUTO 05006KT 2SM BR FEW006 BKN023 OVC029 20/20 A2977 RMK AO2KUSE2018-07-22T11:45:00Z41.62-84.1320.020.05062.029.769686TRUETRUEBRIFRMETAR238.02018-07-22 11:48:49M©µ)5    3KHBI 221145Z AUTO 00000KT 10SM BKN005 20/20 A2977 RMK AO2 T02020201KHBI2018-07-22T11:45:00Z35.65-79.920.220.10010.029.769686TRUETRUEIFRSPECI205.02018-07-22 11:48:496©µ(k5    3KATW 221145Z 35010KT 7SM -RA OVC007 18/18 A2995KATW2018-07-22T11:45:00Z44.27-88.5218.018.0350107.029.949802-RAIFRMETAR280.02018-07-22 11:48:496©µ(s5   3KMTN 221145Z 20004KT 10SM BKN010 BKN200 19/19 A2981KMTN2018-07-22T11:45:00Z39.32-76.4219.019.0200410.029.811024MVFRMETAR7.02018-07-22 11:48:490©µ(e5   3KSAW 221145Z 02012KT 10SM OVC003 14/13 A3005KSAW2018-07-22T11:45:00Z46.35-87.414.013.0201210.030.050198LIFRMETAR372.02018-07-22 11:48:49 k&Zki©µ)75      3KBFD 221145Z AUTO 28003KT 2SM RA BR BKN005 OVC011 14/14 A2975 RMK AO2 P0008 T01440139KBFD2018-07-22T11:45:00Z41.8-78.6314.413.928032.029.749016TRUETRUERA BRIFR0.08METAR647.02018-07-22 11:48:49F©µ) 5    3KEAU 221145Z 01006KT 10SM SCT017 17/14 A3008 RMK AO2 T01670139KEAU2018-07-22T11:45:00Z44.87-91.4716.713.910610.030.079725TRUEVFRMETAR276.02018-07-22 11:48:49j©µ)C5      3KELM 221145Z 06009KT 2SM R24/5500VP6000FT -RA BR OVC015 19/19 A2969 RMK AO2 P0008 T01940189KELM2018-07-22T11:45:00Z42.15-76.919.418.96092.029.68996TRUE-RA BRIFR0.08METAR302.02018-07-22 11:48:49d©µ)/5     3KENW 221145Z 01012G19KT 3SM BR OVC005 19/19 A2987 RMK AO2 RAE43 P0002 T01940194 $KENW2018-07-22T11:45:00Z42.6-87.9319.419.41012193.029.870079TRUETRUEBRIFR0.02METAR219.02018-07-22 11:48:49 {)Pd{c©µ );5    3CZBF 221144Z 13003KT 110V170 3SM BR OVC004 18/18 A3024 RMK ST8 SLP241 DENSITY ALT 300FTCZBF2018-07-22T11:44:00Z47.62-65.7518.018.013033.030.2391741024.1BRLIFRMETAR59.02018-07-22 11:48:49f©µ );5      3KTTN 221144Z 16007KT 1 3/4SM BR BKN005 OVC011 22/22 A2981 RMK AO2 RAE02 P0000 T02220217KTTN2018-07-22T11:44:00Z40.28-74.8222.221.716071.7529.811024TRUEBRIFR0.005METAR59.02018-07-22 11:48:49S©µ )5     3KGWO 221145Z AUTO 00000KT 2 1/2SM BR FEW060 25/24 A2987 RMK AO2 T02500244KGWO2018-07-22T11:45:00Z33.5-90.0825.024.4002.529.870079TRUETRUEBRIFRMETAR44.02018-07-22 11:48:49Q©µ )5    3KMDH 221145Z AUTO 33006KT 10SM BKN016 21/19 A2986 RMK AO2 T02060189KMDH2018-07-22T11:45:00Z37.78-89.2520.618.9330610.029.861221TRUETRUEMVFRMETAR130.02018-07-22 11:48:49 T#@MTs©µ)=5     3KVBG 221143Z AUTO 35003KT 1 1/8SM BR OVC001 14/14 A3006 RMK AO2 VIS 1 1/8V2 3/4 SLP182 $KVBG2018-07-22T11:43:00Z34.73-120.5814.014.035031.1330.0590551018.2TRUETRUETRUEBRLIFRMETAR112.02018-07-22 11:48:49m©µ)A5      3KORE 221143Z AUTO 08007KT 8SM -RA SCT012 BKN024 OVC100 19/17 A3004 RMK AO2 P0003 T01890167KORE2018-07-22T11:43:00Z42.57-72.2818.916.78078.030.041338TRUETRUE-RAMVFR0.03METAR164.02018-07-22 11:48:49]©µ))5    3CYQD 221144Z AUTO 11008KT 9SM OVC110 19/16 A2995 RMK SLP146 DENSITY ALT 1500FTCYQD2018-07-22T11:44:00Z53.97-101.0819.016.011089.029.9498021014.6TRUEVFRSPECI271.02018-07-22 11:48:49W©µ )5    3KMNM 221144Z AUTO 02009KT 8SM FEW006 SCT017 OVC039 18/17 A2997 RMK AO2 $KMNM2018-07-22T11:44:00Z45.12-87.6218.017.02098.029.970472TRUETRUETRUEVFRMETAR191.02018-07-22 11:48:49 mÿ#AmN©µ)5    3KHAO 221143Z AUTO 02005KT 8SM OVC011 21/19 A2970 RMK AO2 T02110194KHAO2018-07-22T11:43:00Z39.37-84.5221.119.42058.029.698818TRUETRUEMVFRMETAR188.02018-07-22 11:48:49\©µ)-5      3KLUK 221143Z 02006KT 2 1/2SM BR OVC009 21/21 A2968 RMK AO2 RAE41 P0008 T02060206KLUK2018-07-22T11:43:00Z39.1-84.4220.620.62062.529.681103TRUEBRIFR0.08METAR155.02018-07-22 11:48:49V©µ)!5    3KMRH 221143Z AUTO 19012KT 10SM FEW018 SCT028 27/24 A2981 RMK AO2 T02720244KMRH2018-07-22T11:43:00Z34.73-76.6527.224.41901210.029.811024TRUETRUEVFRMETAR3.02018-07-22 11:48:49{©µ)]5      3KVAY 221143Z AUTO VRB04KT 2 1/2SM BR SCT008 BKN014 OVC022 22/22 A2982 RMK AO2 RAB00E29 P0001 T02170217 $KVAY2018-07-22T11:43:00Z39.93-74.8321.721.7042.529.819881TRUETRUETRUEBRIFR0.01METAR15.02018-07-22 11:48:49 ?î2?m©µ)A5   3CYTR 221143Z 05010G16KT 2SM -SHRA BR SCT013 BKN020 OVC063 17/15 A2983 RMK SF4SC3SC1 SLP101CYTR2018-07-22T11:43:00Z44.12-77.5217.015.05010162.029.8287411010.1-SHRA BRIFRSPECI86.02018-07-22 11:48:49Y©µ)-5     3PACV 221143Z 07003KT 3SM R27/1600V2400FT BR OVC002 11/11 A3037 RMK AO2 T01110111PACV2018-07-22T11:43:00Z60.5-145.4711.111.17033.030.369095TRUEBRLIFRMETAR12.02018-07-22 11:48:49W©µ)5    3KBUY 221143Z AUTO 32003KT 10SM BKN004 21/20 A2975 RMK AO2 T02110200 $KBUY2018-07-22T11:43:00Z36.05-79.4721.120.0320310.029.749016TRUETRUETRUELIFRMETAR180.02018-07-22 11:48:49‚ ©µ){5      3KGON 221143Z 15014KT 6SM -RA BR FEW007 BKN032 BKN055 22/20 A2997 RMK AO2 PK WND 15038/1102 WSHFT 1056 P0006 T02170200 $KGON2018-07-22T11:43:00Z41.33-72.0521.720.0150146.029.970472TRUETRUE-RA BRVFR0.06METAR3.02018-07-22 11:48:49 Ä6f›ÄQ©µ)5     3PPIZ 221143Z AUTO 20014KT 10SM BKN013 OVC055 13/12 A3000 RMK AO2 TSNOPPIZ2018-07-22T11:43:00Z69.73-163.013.012.02001410.030.0TRUETRUETRUEMVFRMETAR8.02018-07-22 11:48:49E©µ(5    3K4I3 221143Z AUTO 06005KT 10SM OVC017 18/18 A2976 RMK AO2K4I32018-07-22T11:43:00Z40.33-82.5318.018.060510.029.760826TRUETRUEMVFRMETAR363.02018-07-22 11:48:49J©µ) 5    3KMQJ 221143Z AUTO 36008KT 5SM BKN008 OVC012 20/20 A2974 RMK AO1KMQJ2018-07-22T11:43:00Z39.85-85.920.020.036085.029.740158TRUETRUEIFRMETAR263.02018-07-22 11:48:49D©µ(5    3KRRT 221143Z AUTO 12007KT 10SM OVC050 17/15 A3015 RMK AO2KRRT2018-07-22T11:43:00Z48.93-95.3317.015.0120710.030.15059TRUETRUEVFRMETAR327.02018-07-22 11:48:49 )ëô )[©µ ))5    3KCLE 221142Z 09005KT 10SM BKN027 BKN110 BKN200 20/15 A2978 RMK AO2 T02000150 $KCLE2018-07-22T11:42:00Z41.42-81.8520.015.090510.029.778543TRUETRUEMVFRMETAR233.02018-07-22 11:48:49d©µ)=5   3CYQG 221142Z 05013KT 15SM BKN010 OVC120 20/18 A2979 RMK CU6AC2 SLP086 DENSITY ALT 1600FTCYQG2018-07-22T11:42:00Z42.27-82.9720.018.0501315.029.7903541008.6MVFRSPECI190.02018-07-22 11:48:49q©µ)S5    3CYKZ 221142Z 02007KT 6SM RA BR FEW040 OVC066 17/16 A2981 RMK CF1AS8 CF TR SLP095 DENSITY ALT 1300FTCYKZ2018-07-22T11:42:00Z43.87-79.3717.016.02076.029.8110241009.5RA BRVFRSPECI198.02018-07-22 11:48:49‚©µ)‚ 5    3CYQR 221143Z 01007KT 10SM -TSRA FEW010 SCT040CB BKN100 17/15 A2990 RMK CF1CB2AC3 OCNL LTG CC S PRESFR SLP127 DENSITY ALT 2700FTCYQR2018-07-22T11:43:00Z50.43-104.6717.015.010710.029.8996071012.7-TSRAVFRSPECI577.02018-07-22 11:48:49 Z0ZZz©µ$)M5     3KMMK 221142Z AUTO 16010G17KT 10SM -RA FEW014 BKN034 OVC042 22/21 A2993 RMK AO2 P0001 T02220206 $KMMK2018-07-22T11:42:00Z41.52-72.8322.220.6160101710.029.929134TRUETRUETRUE-RAVFR0.01METAR31.02018-07-22 11:48:49P©µ#)5    3KTHV 221142Z AUTO 20006KT 10SM SCT014 18/17 A2978 RMK AO2 T01830172KTHV2018-07-22T11:42:00Z39.92-76.8818.317.2200610.029.778543TRUETRUEVFRMETAR144.02018-07-22 11:48:49f©µ");5   3CYQF 221142Z 28011G16KT 2 1/2SM BR OVC019 11/10 A3011 RMK SC8 SLP206 DENSITY ALT 3000FTCYQF2018-07-22T11:42:00Z52.17-113.911.010.028011162.530.1092531020.6BRIFRSPECI905.02018-07-22 11:48:49^©µ!))5     3KADG 221142Z AUTO 06008KT 8SM SCT019 BKN027 20/19 A2979 RMK AO2 T02000189 TSNOKADG2018-07-22T11:42:00Z41.87-84.0820.018.96088.029.790354TRUETRUETRUEMVFRMETAR241.02018-07-22 11:48:49 Š$LcŠS©µ()5     3KPSM 221140Z 07011KT 1 1/2SM -RA BR SCT007 OVC010 18/17 A3011 RMK AO2AKPSM2018-07-22T11:40:00Z43.07-70.8218.017.070111.530.109253TRUE-RA BRIFRMETAR31.02018-07-22 11:48:49c©µ')5     3KSVN 221141Z AUTO 22008KT 10SM BKN007 24/23 A2978 RMK AO2 SLP087 FZRANO $KSVN2018-07-22T11:41:00Z32.02-81.1524.023.0220810.029.7785431008.7TRUETRUETRUETRUEIFRMETAR13.02018-07-22 11:48:49R©µ&) 5    3KVOK 221141Z AUTO 32005KT 10SM SCT019 17/16 A3002 RMK AO2 SLP167KVOK2018-07-22T11:41:00Z43.92-90.2717.016.0320510.030.020671016.7TRUETRUEVFRMETAR277.02018-07-22 11:48:49V©µ%)5     3KHOU 221142Z 24005KT 6SM BR SCT007 SCT250 26/26 A2997 RMK AO2 T02610261 $KHOU2018-07-22T11:42:00Z29.63-95.2826.126.124056.029.970472TRUETRUEBRVFRMETAR36.02018-07-22 11:48:49 Ü$b°ÜN©µ,)5    3KNEL 221139Z 18006KT 1 1/2SM OVC008 22/22 A2983 RMK AO2 CIG 005V011 PNOKNEL2018-07-22T11:39:00Z40.02-74.3322.022.018061.529.828741TRUEIFRMETAR31.02018-07-22 11:48:49,©µ+(o5  3CWZQ 221140Z AUTO 20008KT 20/20 RMK AO1 T01980198CWZQ2018-07-22T11:40:00Z46.53-61.0519.819.82008TRUETRUEMETAR17.02018-07-22 11:48:49<©µ*(y5   3MMIO 221140Z 18007KT 10SM SCT200 20/11 A3022 RMK 8/008MMIO2018-07-22T11:40:00Z25.55-100.9320.011.0180710.030.221457VFRMETAR1790.02018-07-22 11:48:49V©µ))5     3KMUI 221140Z AUTO 17003KT 3SM BR OVC008 18/18 A2977 RMK AO2 SLP083KMUI2018-07-22T11:40:00Z40.42-76.5718.018.017033.029.7696861008.3TRUETRUEBRIFRMETAR149.02018-07-22 11:48:49 ¯Hu¯@©µ0(}5    3KLRO 221135Z AUTO 24003KT 9SM BKN009 25/24 A2978 RMK AO2KLRO2018-07-22T11:35:00Z32.9-79.7825.024.024039.029.778543TRUETRUEIFRMETAR4.02018-07-22 11:48:50M©µ/) 5    3K0E0 221135Z AUTO 35004KT 10SM CLR 12/05 A3030 RMK AO2 T01230051K0E02018-07-22T11:35:00Z34.98-106.012.35.1350410.030.301182TRUETRUEVFRSPECI1890.02018-07-22 11:48:49C©µ.(y5    3KBXK 221135Z AUTO 34005KT 10SM CLR 27/18 A2995 RMK AO1KBXK2018-07-22T11:35:00Z33.42-112.6827.018.0340510.029.949802TRUETRUEVFRMETAR315.02018-07-22 11:48:49i©µ-)15     3KGUS 221136Z 01006KT 5SM -RA BR OVC007 20/20 A2975 RMK AO2A CIG 005 RWY23 SLP073 $KGUS2018-07-22T11:36:00Z40.63-86.1520.020.01065.029.7490161007.3TRUETRUE-RA BRIFRMETAR247.02018-07-22 11:48:49 AlŸãE©µ5(5    3K9MN 221119Z AUTO 36005KT 10SM BKN009 16/15 A3008 RMK AO1K9MN2018-07-22T11:19:00Z44.02-92.4816.015.0360510.030.079725TRUETRUEIFRMETAR355.02018-07-22 11:48:506©µ4(o5   3KDKR 221130Z AUTO 23006KT 9SM 23/22 A2998 RMK AO2KDKR2018-07-22T11:30:00Z31.3-95.423.022.023069.029.97933TRUETRUEMETAR106.02018-07-22 11:48:50G©µ3)5     3VILK 221130Z 10008KT 5000 HZ SCT020 SCT025 36/28 Q0995 NOSIGVILK2018-07-22T11:30:00Z26.7580.8736.028.010083.1129.379921TRUEHZMVFRMETAR128.02018-07-22 11:48:50O©µ2)5     3VIJP 221130Z 33007KT 3000 BR BKN025 FEW035CB BKN090 28/25 Q0998 NOSIGVIJP2018-07-22T11:30:00Z26.8275.7828.025.033071.8629.468504TRUEBRIFRMETAR390.02018-07-22 11:48:509©µ1(y5    3KFWB 221135Z AUTO 00000KT 10SM CLR 18/18 A3000 RMK AO2KFWB2018-07-22T11:35:00Z36.7-93.418.018.00010.030.0TRUETRUEVFRMETAR406.02018-07-22 11:48:50 å;ˆ¿åT©µ9)/5    3CXAT 221100Z AUTO 27008KT 02/M01 RMK AO1 PK WND 25018/1007 SLP125 T00221007 53013CXAT2018-07-22T11:00:00Z73.0-85.032.2-0.727081012.5TRUETRUE1.3METAR19.02018-07-22 11:48:50C©µ8) 5    3CWDA 221100Z AUTO 24001KT 20/16 RMK AO1 SLP246 T02030161 50000CWDA2018-07-22T11:00:00Z50.72-56.1220.316.124011024.6TRUETRUE0.0METAR29.02018-07-22 11:48:50-©µ7(o5  3CZMU 221100Z AUTO 26009KT 12/11 RMK AO1 T01190107CZMU2018-07-22T11:00:00Z53.57-112.311.910.72609TRUETRUEMETAR683.02018-07-22 11:48:50?©µ6(w5    3KFYG 221115Z AUTO 34003KT 9SM CLR 19/19 A2990 RMK AO2KFYG2018-07-22T11:15:00Z38.58-91.019.019.034039.029.899607TRUETRUEVFRMETAR149.02018-07-22 11:48:50 ²$Y{²C©µ=) 5    3CWNL 221100Z AUTO 08003KT 19/15 RMK AO1 SLP139 T01910153 53008CWNL2018-07-22T11:00:00Z45.62-82.9719.115.38031013.9TRUETRUE0.8METAR183.02018-07-22 11:48:50X©µ<)-5    3CWPS 221100Z AUTO 35023KT 17/15 RMK AO1 PK WND 01030/1008 SLP067 T01680152 56014CWPS2018-07-22T11:00:00Z42.57-80.0316.815.2350231006.7TRUETRUE-1.4METAR175.02018-07-22 11:48:50E©µ;) 5    3CWKK 221100Z AUTO 07012KT 16/13 RMK AO1 SLP223 T01600126 55004CWKK2018-07-22T11:00:00Z49.72-88.3316.012.670121022.3TRUETRUE-0.4METAR260.02018-07-22 11:48:50V©µ:)-5    3CWRO 221100Z AUTO 28019KT 12/11 RMK AO1 PK WND 28024/1031 SLP259 T01210110 51003CWRO2018-07-22T11:00:00Z54.17-131.6712.111.0280191025.9TRUETRUE0.3METAR7.02018-07-22 11:48:50 5YÏ*©µB(_5   3KNQA 221150Z 00000KT 10SM SKC 21/20 A2989KNQA2018-07-22T11:50:00Z35.35-89.8721.020.00010.029.890747VFRMETAR86.02018-07-22 11:51:22;©µA(u5    3LATI 221150Z 24010KT 180V270 CAVOK 34/17 Q1011 NOSIGLATI2018-07-22T11:50:00Z41.4219.7234.017.0240106.2129.852362TRUEVFRMETAR90.02018-07-22 11:51:22C©µ@) 5    3CWEF 221100Z AUTO 21007KT 17/17 RMK AO1 SLP239 T01720166 53010CWEF2018-07-22T11:00:00Z47.22-60.1217.216.621071023.9TRUETRUE1.0METAR26.02018-07-22 11:48:50V©µ?)-5    3CWCI 221100Z AUTO 05023KT 14/12 RMK AO1 PK WND 04029/1008 SLP167 T01390123 53006CWCI2018-07-22T11:00:00Z47.32-85.8213.912.350231016.7TRUETRUE0.6METAR187.02018-07-22 11:48:50E©µ>) 5    3CWMZ 221100Z AUTO 03012KT 19/16 RMK AO1 SLP117 T01900162 57012CWMZ2018-07-22T11:00:00Z45.02-80.3719.016.230121011.7TRUETRUE-1.2METAR191.02018-07-22 11:48:50 4`§ò48©µG(u5   3LLIB 221150Z 29012KT 250V330 9999 FEW040 33/18 Q1006LLIB2018-07-22T11:50:00Z32.9835.5733.018.0290126.2129.704725VFRMETAR282.02018-07-22 11:51:22/©µF(e5   3LLSD 221150Z 26011KT 9999 SCT020 29/22 Q1006LLSD2018-07-22T11:50:00Z32.1234.7829.022.0260116.2129.704725VFRMETAR14.02018-07-22 11:51:223©µE(m5    3EYSA 221150Z VRB03KT CAVOK 27/14 Q1010 BLU NOSIGEYSA2018-07-22T11:50:00Z55.923.427.014.0036.2129.822834TRUEVFRMETAR135.02018-07-22 11:51:220©µD(e5    3KVQQ 221150Z 22006KT 06SM BR CLR 27/26 A2984KVQQ2018-07-22T11:50:00Z30.22-81.8827.026.022066.029.840551BRVFRMETAR25.02018-07-22 11:51:22d©µC)75    3KPGV 221150Z AUTO 28010G19KT 243V313 4SM -RA SCT005 BKN008 OVC036 21/20 A2984 RMK AO2KPGV2018-07-22T11:50:00Z35.62-77.421.020.028010194.029.840551TRUETRUE-RAIFRMETAR8.02018-07-22 11:51:22 iDÞ(i9©µL(u5    3EETN 221150Z 32007KT 280V030 CAVOK 27/15 Q1008 NOSIGEETN2018-07-22T11:50:00Z59.424.8227.015.032076.2129.763779TRUEVFRMETAR40.02018-07-22 11:51:220©µK(e5    3EVRA 221150Z VRB06KT CAVOK 28/13 Q1009 NOSIGEVRA2018-07-22T11:50:00Z56.9223.9728.013.0066.2129.793306TRUEVFRMETAR10.02018-07-22 11:51:22,©µJ(_5   3KGPM 221150Z 20005KT 10SM SKC 27/17 A2993KGPM2018-07-22T11:50:00Z32.7-97.0527.017.0200510.029.929134VFRMETAR180.02018-07-22 11:51:22.©µI(i5   3LLET 221150Z 04008KT 010V090 CAVOK 38/10 Q1004LLET2018-07-22T11:50:00Z29.5534.9538.010.04086.2129.64567VFRMETAR13.02018-07-22 11:51:226©µH(u5   3LLHA 221150Z 26011KT 230V290 9999 FEW025 30/22 Q1006LLHA2018-07-22T11:50:00Z32.7835.0230.022.0260116.2129.704725VFRMETAR8.02018-07-22 11:51:22 &7yÇ &_©µQ)'5      3KLWM 221149Z 06009KT 1 1/2SM HZ OVC004 21/18 A3009 RMK AO2 RAB1057E08 P0000 $KLWM2018-07-22T11:49:00Z42.72-71.1321.018.06091.530.088583TRUETRUEHZLIFR0.005SPECI54.02018-07-22 11:51:226©µP(u5   3EYKA 221150Z 34006KT 290V040 9999 SCT046 27/15 Q1009EYKA2018-07-22T11:50:00Z54.9724.0827.015.034066.2129.793306VFRMETAR77.02018-07-22 11:51:22,©µO(c5   3KSUA 221150Z 24005KT 7SM FEW035 27/25 A2995KSUA2018-07-22T11:50:00Z27.18-80.2227.025.024057.029.949802VFRMETAR6.02018-07-22 11:51:228©µN(q5    3MSLP 221150Z 03007KT CAVOK 27/22 Q1010 A2983 NOSIGMSLP2018-07-22T11:50:00Z13.43-89.0527.022.03076.2129.822834TRUEVFRMETAR25.02018-07-22 11:51:22C©µM) 5    3EGEO 221150Z 22010KT 8000 -DZ FEW005 BKN007 OVC021 16/15 Q1014EGEO2018-07-22T11:50:00Z56.47-5.416.015.0220104.9729.940945-DZIFRMETAR6.02018-07-22 11:51:22 †=?f†Z©µU)5      3PADU 221149Z AUTO 14005KT 7SM -RA BKN022 OVC045 11/09 A2992 RMK AO2 P0006PADU2018-07-22T11:49:00Z53.9-166.5311.09.014057.029.920275TRUETRUE-RAMVFR0.06SPECI4.02018-07-22 11:51:22S©µT)5     3KBAN 221149Z AUTO 00000KT 2 1/2SM BR SCT008 11/08 A3036 RMK AO2 $ KBAN2018-07-22T11:49:00Z38.35-119.5211.08.0002.530.360237TRUETRUETRUEBRIFRSPECI2057.02018-07-22 11:51:22x©µS)[5      3KBED 221149Z 08010KT 1SM R11/6000VP6000FT -RA BR OVC004 20/19 A3005 RMK AO2 RAB00E24B38 P0002 T02000189KBED2018-07-22T11:49:00Z42.47-71.320.018.980101.030.050198TRUE-RA BRLIFR0.02SPECI50.02018-07-22 11:51:22=©µR(u5    3KEVV 221149Z 30006KT 10SM OVC017 21/20 A2979 RMK AO2KEVV2018-07-22T11:49:00Z38.05-87.5221.020.0300610.029.790354TRUEMVFRSPECI117.02018-07-22 11:51:22 ¢fo¢G©µY) 5    3PASI 221148Z 34005KT 10SM OVC009 13/12 A3031 RMK AO2 CIG 006V012PASI2018-07-22T11:48:00Z57.07-135.3513.012.0340510.030.31004TRUEIFRSPECI5.02018-07-22 11:51:22q©µX)=5    3KJDN 221148Z AUTO 28010KT 19/16 A2999 RMK AO1 PRESRR SLP133 T01890156 10250 20172 53035 KJDN2018-07-22T11:48:00Z47.33-106.9518.915.62801029.9911421013.3TRUETRUE3.525.017.2METAR801.02018-07-22 11:51:22/©µW(i5   3EKRK 221149Z 28006KT 210V320 CAVOK 26/11 Q1012EKRK2018-07-22T11:49:00Z55.5712.1226.011.028066.2129.88189VFRMETAR44.02018-07-22 11:51:22_©µV)!5      3KESC 221149Z AUTO 36007KT 10SM -RA BKN007 OVC055 17/16 A2999 RMK AO2 P0000KESC2018-07-22T11:49:00Z45.75-87.0817.016.0360710.029.991142TRUETRUE-RAIFR0.005SPECI187.02018-07-22 11:51:22 ”%P|”b©µ])5     3KVBG 221148Z AUTO 35003KT 1 1/2SM BR OVC001 15/14 A3005 RMK AO2 SLP178 $KVBG2018-07-22T11:48:00Z34.73-120.5815.014.035031.530.0501981017.8TRUETRUETRUEBRLIFRSPECI112.02018-07-22 11:51:22N©µ\)5     3KDUJ 221148Z AUTO 00000KT 4SM BR BKN003 OVC017 14/14 A2976 RMK AO2KDUJ2018-07-22T11:48:00Z41.17-78.914.014.0004.029.760826TRUETRUEBRLIFRSPECI554.02018-07-22 11:51:22O©µ[)5    3KSMQ 221148Z AUTO 15006KT 7SM OVC009 22/22 A2981 RMK AO2 CIG 008V013KSMQ2018-07-22T11:48:00Z40.62-74.6722.022.015067.029.811024TRUETRUEIFRSPECI30.02018-07-22 11:51:22U©µZ)5     3PHTO 221148Z AUTO 00000KT 10SM BKN022 BKN041 23/21 A2997 RMK AO2 TSNOPHTO2018-07-22T11:48:00Z19.72-155.0523.021.00010.029.970472TRUETRUETRUEMVFRSPECI12.02018-07-22 11:51:22 44[©µa)5    3CYIO 221148Z AUTO 23015G21KT 7SM -RA BKN025 OVC033 04/03 A2984 RMK SLP112CYIO2018-07-22T11:48:00Z72.67-77.974.03.023015217.029.8405511011.2TRUE-RAMVFRSPECI57.02018-07-22 11:51:22u©µ`)A5     3KRYY 221148Z 27005KT 10SM CLR 22/19 A2984 RMK AO2 SLP826 70010 T02220194 10228 20211 53008KRYY2018-07-22T11:48:00Z34.02-84.622.219.4270510.029.840551982.6TRUEVFR0.822.821.10.1SPECI317.02018-07-22 11:51:22l©µ_)=5      3PAIW 221148Z AUTO 18016KT 7SM -RA FEW005 BKN018 OVC023 11/11 A3008 RMK AO2 RAB1057 P0000PAIW2018-07-22T11:48:00Z65.62-168.111.011.0180167.030.079725TRUETRUE-RAMVFR0.005SPECI7.02018-07-22 11:51:22x©µ^)[5    3CYHZ 221148Z 14006KT 1SM R23/P6000FT/D R14/P6000FT/D -SHRA BR OVC003 17/17 A3029 RMK SF8 CIG RGD SLP258CYHZ2018-07-22T11:48:00Z44.87-63.517.017.014061.030.289371025.8-SHRA BRLIFRSPECI145.02018-07-22 11:51:22 ­P­©µe(W5    3KTIX 221147Z 21005KT 7SM FEW120 A2992KTIX2018-07-22T11:47:00Z28.5-80.821057.029.920275VFRMETAR11.02018-07-22 11:51:22@©µd)5   3KCWA 221147Z 36009KT 10SM SCT015 BKN028 BKN055 17/16 A3004KCWA2018-07-22T11:47:00Z44.78-89.6717.016.0360910.030.041338MVFRMETAR389.02018-07-22 11:51:22f©µc)/5      3KJHW 221147Z AUTO 33003KT 3SM -RA BR OVC008 14/14 A2977 RMK AO2 CIG 006V011 P0010KJHW2018-07-22T11:47:00Z42.13-79.2714.014.033033.029.769686TRUETRUE-RA BRIFR0.1SPECI525.02018-07-22 11:51:22x©µb)E5     3KRUT 221147Z AUTO 12012G21KT 10SM -RA BKN023 BKN028 OVC110 18/13 A3002 RMK AO2 RAB24 P0000 $KRUT2018-07-22T11:47:00Z43.52-72.9518.013.0120122110.030.02067TRUETRUETRUE-RAMVFR0.005SPECI240.02018-07-22 11:51:22 °1v¬°v©µi)?5    3KCQT 221147Z AUTO 00000KT 10SM CLR 21/17 A3001 RMK AO2 SLP161 T02060172 10217 20206 55001KCQT2018-07-22T11:47:00Z34.02-118.2820.617.20010.030.0088581016.1TRUETRUEVFR-0.121.720.6SPECI56.02018-07-22 11:51:22D©µh)5    3KCLT 221147Z 28003KT 10SM FEW004 FEW250 22/21 A2976 RMK AO2KCLT2018-07-22T11:47:00Z35.22-80.9522.021.0280310.029.760826TRUEVFRSPECI220.02018-07-22 11:51:225©µg(s5   3KEVB 221147Z 25006KT 10SM SCT004 SCT020 27/25 A2990KEVB2018-07-22T11:47:00Z29.05-80.9527.025.0250610.029.899607VFRMETAR3.02018-07-22 11:51:22I©µf)5    3KMSN 221147Z 35009KT 9SM SCT013 SCT039 BKN095 19/17 A2993 RMK AO2KMSN2018-07-22T11:47:00Z43.13-89.3519.017.035099.029.929134TRUEVFRSPECI261.02018-07-22 11:51:22 tE{t‚©µm)e5      3KGEZ 221146Z AUTO 36006KT 1 3/4SM RA BR BKN006 BKN010 OVC015 21/19 A2972 RMK AO2 RAB04E13B30 P0005 T02110194KGEZ2018-07-22T11:46:00Z39.58-85.821.119.436061.7529.719488TRUETRUERA BRIFR0.05SPECI245.02018-07-22 11:51:22D©µl)5    3KOSU 221146Z 07007KT 9SM OVC009 19/18 A2973 RMK AO2 T01890183KOSU2018-07-22T11:46:00Z40.08-83.0818.918.37079.029.731298TRUEIFRSPECI280.02018-07-22 11:51:22T©µk)%5    3KSBY 221146Z 16004KT 10SM FEW006 BKN030 OVC035 21/21 A2984 RMK AO2 T02110206KSBY2018-07-22T11:46:00Z38.33-75.521.120.6160410.029.840551TRUEMVFRSPECI19.02018-07-22 11:51:22[©µj)5      3PAJC 221147Z AUTO 08004KT 3SM -RA BR OVC011 12/11 A3013 RMK AO2 P0003PAJC2018-07-22T11:47:00Z56.32-158.3712.011.08043.030.129921TRUETRUE-RA BRMVFR0.03SPECI15.02018-07-22 11:51:22 l7Tlb©µq))5    3KFTK 221146Z AUTO 26006KT 10SM FEW007 BKN018 OVC055 20/20 A2975 RMK AO2 SLP072KFTK2018-07-22T11:46:00Z37.88-85.9720.020.0260610.029.7490161007.2TRUETRUEMVFRSPECI230.02018-07-22 11:51:22]©µp)+5    3KFFO 221146Z 03007KT 10SM BKN010 OVC130 20/19 A2971 RMK AO2A CIG 008V012 SLP059KFFO2018-07-22T11:46:00Z39.82-84.0320.019.030710.029.710631005.9TRUEMVFRSPECI251.02018-07-22 11:51:22C©µo(5    3KBFW 221146Z AUTO 00000KT 10SM OVC022 16/16 A3014 RMK AO2KBFW2018-07-22T11:46:00Z47.25-91.416.016.00010.030.138779TRUETRUEMVFRSPECI331.02018-07-22 11:51:22z©µn)Q5      3KDKK 221146Z AUTO 10004KT 2 1/2SM RA BR FEW006 BKN030 OVC043 16/16 A2973 RMK AO2 P0038 T01610156 $KDKK2018-07-22T11:46:00Z42.5-79.2816.115.610042.529.731298TRUETRUETRUERA BRIFR0.38SPECI202.02018-07-22 11:51:22 O*G%OP©µu)5    3KSTP 221146Z AUTO 02004KT 10SM BKN017 17/15 A3011 RMK AO2 T01720150KSTP2018-07-22T11:46:00Z44.93-93.0517.215.020410.030.109253TRUETRUEMVFRSPECI219.02018-07-22 11:51:22‚©µt)‚75    3LTCE 221146Z 35012KT 9999 TS FEW035CB BKN040 21/08 Q1013 BECMG TL1150 07009KT NSW TEMPO FM1200 -TSRA RMK RWY08R 32016KT RWY26R 36013KT RWY08L 34016KTLTCE2018-07-22T11:46:00Z39.9541.1721.08.0350126.2129.911417TSVFRSPECI1758.02018-07-22 11:51:22]©µs)5    3KDAA 221146Z AUTO 00000KT 10SM SCT013 BKN130 19/18 A2979 RMK AO2 SLP091 $KDAA2018-07-22T11:46:00Z38.72-77.1719.018.00010.029.7903541009.1TRUETRUETRUEVFRSPECI21.02018-07-22 11:51:22P©µr)5    3KDOV 221146Z AUTO 18009KT 10SM OVC006 20/19 A2983 RMK AO2 SLPNO $KDOV2018-07-22T11:46:00Z39.12-75.4720.019.0180910.029.828741TRUETRUETRUEIFRSPECI9.02018-07-22 11:51:22 BH•ÐBV©µz)5     3KMWK 221145Z AUTO 00000KT 7SM OVC007 20/19 A2980 RMK AO2 P0001 T01980185KMWK2018-07-22T11:45:00Z36.47-80.5519.818.5007.029.799213TRUETRUEIFR0.01METAR380.02018-07-22 11:51:22,©µy(o5  3CWPF 221145Z AUTO 01003KT 14/11 RMK AO1 T01410107CWPF2018-07-22T11:45:00Z48.43-123.4314.110.7103TRUETRUEMETAR12.02018-07-22 11:51:22?©µx)5   3KCGF 221145Z 11006KT 10SM FEW035 BKN070 BKN120 19/16 A2977KCGF2018-07-22T11:45:00Z41.57-81.4719.016.0110610.029.769686VFRMETAR268.02018-07-22 11:51:22-©µw(_5   3KMHR 221145Z 19007KT 10SM SKC 18/12 A2999KMHR2018-07-22T11:45:00Z38.53-121.2818.012.0190710.029.991142VFRMETAR29.02018-07-22 11:51:222©µv(e5   3KMWA 221145Z 32010KT 10SM OVC014 22/20 A2986KMWA2018-07-22T11:45:00Z37.77-89.0222.020.03201010.029.861221MVFRMETAR144.02018-07-22 11:51:22 r89&r.©µ~(e5   3KCWF 221145Z 26009KT 10SM SCT010 27/25 A2995KCWF2018-07-22T11:45:00Z30.22-93.1527.025.0260910.029.949802VFRMETAR4.02018-07-22 11:51:22‚ ©µ})m5    3ETIH 221145Z AUTO 03004KT 9999 SCT018 BKN027 BKN100 BKN190 21/18 A2998 RMK AO2 CIG 027V100 BKN027 V SCT SLP140 $ETIH2018-07-22T11:45:00Z49.2211.8221.018.03046.2129.979331014.0TRUETRUETRUEBKN19000MVFRSPECI442.02018-07-22 11:51:22y©µ|)o5    3UKOO 221145Z 18004MPS 140V210 9999 -TSRA SCT033CB BKN050 27/19 Q1008 R16/290054 TEMPO VRB11G20MPS 0800 +TSRAGR SQUKOO2018-07-22T11:45:00Z46.4230.6827.019.018086.2129.763779-TSRAVFRMETAR35.02018-07-22 11:51:22B©µ{) 5    3CMGB 221145Z AUTO 07003KT 20/10 RMK AO1 SLP176 T02010103 53002CMGB2018-07-22T11:45:00Z45.37-72.7720.110.37031017.6TRUETRUE0.2METAR86.02018-07-22 11:51:22 ²<r²:©¶(w5    3KUNV 221153Z 21006KT 2SM BR SCT005 OVC017 16/15 A2975KUNV2018-07-22T11:53:00Z40.85-77.8316.015.021062.029.749016BRIFRMETAR378.02018-07-22 11:55:08D©¶) 5  3VYMD 221130Z 16007G15KT 7000 BKN018 FEW020CB SCT120 32/25 Q1002VYMD2018-07-22T11:30:00Z21.795.9832.025.01607154.3529.586615MVFRMETAR91.02018-07-22 11:51:22N©¶)5    3KGUS 221142Z 01006KT 9SM OVC006 20/20 A2975 RMK AO2A SLP073 $KGUS2018-07-22T11:42:00Z40.63-86.1520.020.01069.029.7490161007.3TRUETRUEIFRSPECI247.02018-07-22 11:51:22j©µ)35    3KHFF 221144Z AUTO 15004KT 10SM FEW003 BKN013 21/21 A2975 RMK AO2 BKN V SCT SLP086 $KHFF2018-07-22T11:44:00Z35.02-79.521.021.0150410.029.7490161008.6TRUETRUETRUEMVFRSPECI115.02018-07-22 11:51:22 »Znf»%©¶([5     3KGLH 221152Z COR 21005KT 10SM CLR A2986KGLH2018-07-22T11:52:00Z33.5-90.98210510.029.861221TRUEVFRMETAR45.02018-07-22 11:55:08‚©¶)K5     3KISN 221152Z AUTO 15005KT 10SM CLR 20/17 A2991 RMK AO2 SLP123 70029 T02000167 10211 20194 55000KISN2018-07-22T11:52:00Z48.17-103.6320.016.7150510.029.9114171012.3TRUETRUEVFR0.021.119.40.29METAR579.02018-07-22 11:55:08f©¶);5   3CYQI 221153Z 19013G22KT 1/2SM FG OVC002 20/20 A3022 RMK FG6SF2 SLP235 DENSITY ALT 400FTCYQI2018-07-22T11:53:00Z43.83-66.0820.020.019013220.530.2214571023.5FGLIFRSPECI43.02018-07-22 11:55:08 ©¶(Y5    3KPKB 221153Z 00000KT 10SM SCT005 A2976KPKB2018-07-22T11:53:00Z39.35-81.420010.029.760826VFRSPECI262.02018-07-22 11:55:08 ¶Ñ涂*©¶ )‚5       3KAQW 221152Z AUTO 12010KT 3SM RA BR BKN019 OVC023 18/16 A2996 RMK AO2 SLP144 P0004 60006 70006 T01780156 10183 20172 56011KAQW2018-07-22T11:52:00Z42.7-73.1717.815.6120103.029.9586621014.4TRUETRUERA BRMVFR-1.118.317.20.040.060.06METAR199.02018-07-22 11:55:08e©¶)75     3KDWU 221152Z AUTO 00000KT 8SM -RA BKN006 OVC014 20/19 A2969 RMK AO2 CIG 005V011 PNO $KDWU2018-07-22T11:52:00Z38.55-82.7320.019.0008.029.68996TRUETRUETRUE-RAIFRMETAR166.02018-07-22 11:55:08‚)©¶)y5       3KFIT 221152Z AUTO 06005KT 2SM -RA BR OVC005 18/18 A3007 RMK AO2 SLP182 P0006 60009 70009 T01780178 10178 20172 58005 $KFIT2018-07-22T11:52:00Z42.55-71.7517.817.86052.030.0708661018.2TRUETRUETRUE-RA BRIFR-0.517.817.20.060.090.09METAR103.02018-07-22 11:55:08 01‚©¶ )M5     3KNRB 221152Z AUTO 24009KT 8SM CLR 28/26 A2983 RMK AO2 SLP102 70012 T02780256 10278 20256 51004 $KNRB2018-07-22T11:52:00Z30.38-81.4227.825.624098.029.8287411010.2TRUETRUETRUEVFR0.427.825.60.12METAR5.02018-07-22 11:55:08‚©¶ )c5      3KBAN 221152Z AUTO 00000KT 2 1/2SM BR SCT008 11/08 A3036 RMK AO2 SLP187 70037 T01060083 10150 20100 51001 $ KBAN2018-07-22T11:52:00Z38.35-119.5210.68.3002.530.3602371018.7TRUETRUETRUEBRIFR0.115.010.00.37METAR2057.02018-07-22 11:55:08y©¶ )Q5    3CYPY 221152Z AUTO 02011KT 9SM SCT012 BKN027 BKN046 OVC097 14/14 A2990 RMK SLP132 DENSITY ALT 800FTCYPY2018-07-22T11:52:00Z58.77-111.1214.014.020119.029.8996071013.2TRUEOVC9700MVFRSPECI232.02018-07-22 11:55:08J©¶ )5    3YGEL 221152Z AUTO 27016KT 6000 // SCT015 BKN036 BKN049 17/13 Q1012YGEL2018-07-22T11:52:00Z-28.8114.717.013.0270163.7329.88189TRUEMVFRSPECI37.02018-07-22 11:55:08 C(2Ci©¶)/5    3KREO 221152Z AUTO 06004KT 14/M05 A3021 RMK AO1 SLP186 T01391050 10250 20128 51012KREO2018-07-22T11:52:00Z42.58-117.8713.9-5.060430.2096461018.6TRUETRUE1.225.012.8METAR1235.02018-07-22 11:55:08p©¶)=5    3KP69 221152Z AUTO 00000KT 10/07 A3025 RMK AO1 SLP225 7//// T01000072 10156 20100 53018 $KP692018-07-22T11:52:00Z46.15-115.610.07.20030.2509841022.5TRUETRUETRUE1.815.610.0METAR480.02018-07-22 11:55:08h©¶)-5    3KCZZ 221152Z AUTO 05004KT 17/13 A3006 RMK AO1 SLP144 T01720133 10206 20167 55001KCZZ2018-07-22T11:52:00Z32.63-116.4717.213.350430.0590551014.4TRUETRUE-0.120.616.7METAR807.02018-07-22 11:55:08d©¶)-5    3KCDJ 221152Z AUTO VRB04KT 20/18 A3002 RMK AO1 SLP150 T02000178 10217 20194 53008KCDJ2018-07-22T11:52:00Z39.82-93.5820.017.80430.020671015.0TRUETRUE0.821.719.4METAR234.02018-07-22 11:55:08 þ+ú`©¶)-5     3KJKL 221151Z AUTO 00000KT 5SM BR BKN004 OVC008 19/18 A2975 RMK AO2 CIG 002V006 $KJKL2018-07-22T11:51:00Z37.6-83.3219.018.0005.029.749016TRUETRUETRUEBRLIFRMETAR416.02018-07-22 11:55:08‚+©¶)‚5    3KLGA 221151Z 16013G23KT 7SM FEW009 BKN016 BKN024 OVC140 24/21 A2985 RMK AO2 SLP107 60016 70067 T02390206 10244 20228 53022 $KLGA2018-07-22T11:51:00Z40.78-73.8823.920.616013237.029.849411010.7TRUETRUEOVC14000MVFR2.224.422.80.160.67METAR11.02018-07-22 11:55:08M©¶)5    3CYFC 221152Z AUTO VRB02KT 9SM SCT002 BKN070 17/17 A3023 RMK SLP238CYFC2018-07-22T11:52:00Z45.87-66.5217.017.0029.030.2303141023.8TRUEVFRMETAR20.02018-07-22 11:55:08|©¶)I5     3PABA 221152Z AUTO 06006KT 10SM CLR 07/07 A3017 RMK AO2 SLP202 T00720067 10106 20072 57005 TSNOPABA2018-07-22T11:52:00Z70.13-143.587.26.760610.030.1712591020.2TRUETRUETRUEVFR-0.510.67.2METAR2.02018-07-22 11:55:08 ×èðׂ©¶)i5      3KILG 221151Z 19007KT 5SM BR BKN005 BKN013 21/19 A2983 RMK AO2 SLP102 60008 70174 T02060194 10233 20200 51045 $KILG2018-07-22T11:51:00Z39.67-75.620.619.419075.029.8287411010.2TRUETRUEBRIFR4.523.320.00.081.74METAR28.02018-07-22 11:55:08r©¶)=5    3KJCT 221151Z AUTO 00000KT 8SM CLR 25/23 A3004 RMK AO2 SLP129 T02500228 10300 20250 53007KJCT2018-07-22T11:51:00Z30.5-99.7725.022.8008.030.0413381012.9TRUETRUEVFR0.730.025.0METAR522.02018-07-22 11:55:08‚©¶)o5     3KJFK 221151Z 16014KT 10SM FEW009 BKN019 OVC025 22/22 A2987 RMK AO2 SLP116 60019 70080 T02220222 10228 20222 53022KJFK2018-07-22T11:51:00Z40.63-73.7722.222.21601410.029.8700791011.6TRUEMVFR2.222.822.20.190.8METAR9.02018-07-22 11:55:08 ºò¿º©¶)K5     3KHSE 221151Z AUTO 17006KT 10SM CLR 28/25 A2983 RMK AO2 SLP100 70092 T02780250 10278 20261 53008KHSE2018-07-22T11:51:00Z35.23-75.6227.825.0170610.029.8287411010.0TRUETRUEVFR0.827.826.10.92METAR3.02018-07-22 11:55:08‚-©¶)‚5      3KHTS 221151Z 20003KT 10SM BKN006 OVC018 20/19 A2969 RMK AO2 RAE06B10E39 CIG 004V010 SLP046 P0000 60009 70020 T02000189 10200 20194 51004KHTS2018-07-22T11:51:00Z38.37-82.5520.018.9200310.029.689961004.6TRUEIFR0.420.019.40.0050.090.2METAR254.02018-07-22 11:55:08‚©¶)O5     3KIGM 221151Z AUTO 17003KT 10SM CLR 19/17 A3014 RMK AO2 SLP144 70070 T01890172 10217 20183 53005 $KIGM2018-07-22T11:51:00Z35.25-113.9318.917.2170310.030.1387791014.4TRUETRUETRUEVFR0.521.718.30.7METAR1032.02018-07-22 11:55:08 ¯ د‚#©¶)y5       3KERI 221151Z 10005KT 6SM -RA BR BKN029 OVC037 17/16 A2975 RMK AO2 SLP069 P0005 60036 70063 T01720156 10200 20172 56002KERI2018-07-22T11:51:00Z42.08-80.1817.215.610056.029.7490161006.9TRUE-RA BRMVFR-0.220.017.20.050.360.63METAR222.02018-07-22 11:55:08‚-©¶)‚ 5      3KEWR 221151Z 16011G17KT 5SM -RA BR FEW008 OVC012 22/21 A2984 RMK AO2 RAB50 SLP104 P0000 60019 70141 T02220211 10233 20222 53024KEWR2018-07-22T11:51:00Z40.68-74.1722.221.116011175.029.8405511010.4TRUE-RA BRMVFR2.423.322.20.0050.191.41METAR7.02018-07-22 11:55:08o©¶)=5    3KHDO 221151Z AUTO 08004KT 8SM CLR 24/23 A3000 RMK AO2 SLP141 T02390228 10294 20233 53004KHDO2018-07-22T11:51:00Z29.37-99.1723.922.88048.030.01014.1TRUETRUEVFR0.429.423.3METAR282.02018-07-22 11:55:08 ÐñЂ©¶!)s5     3KDAW 221151Z AUTO 06008G15KT 9SM OVC007 17/16 A3013 RMK AO2 RAB38E47 SLP201 P0000 60000 T01720161 10172 20139 53002KDAW2018-07-22T11:51:00Z43.28-70.9217.216.1608159.030.1299211020.1TRUETRUEIFR0.217.213.90.0050.005METAR100.02018-07-22 11:55:08‚ ©¶ )[5      3KEKN 221151Z AUTO 27003KT 10SM OVC120 16/14 A2980 RMK AO2 SLP083 70002 T01610139 10161 20128 51009 TSNOKEKN2018-07-22T11:51:00Z38.88-79.8516.113.9270310.029.7992131008.3TRUETRUETRUEVFR0.916.112.80.02METAR603.02018-07-22 11:55:08v©¶)?5    3KELP 221151Z 00000KT 10SM FEW130 27/07 A3009 RMK AO2 SLP102 T02720072 10322 20261 53006 $KELP2018-07-22T11:51:00Z31.82-106.3827.27.20010.030.0885831010.2TRUETRUEVFR0.632.226.1METAR1197.02018-07-22 11:55:08 74/‚©¶%)o5      3KCON 221151Z AUTO 07008KT 10SM OVC012 17/15 A3011 RMK AO2 RAB16E31 SLP195 P0000 60000 T01720150 10172 20161 58002KCON2018-07-22T11:51:00Z43.2-71.517.215.070810.030.1092531019.5TRUETRUEMVFR-0.217.216.10.0050.005METAR103.02018-07-22 11:55:08©¶$)Q5     3KCRP 221151Z 16005KT 6SM BR FEW012 BKN250 23/23 A2996 RMK AO2 SLP144 T02280228 10267 20228 53002 $KCRP2018-07-22T11:51:00Z27.77-97.522.822.816056.029.9586621014.4TRUETRUEBRVFR0.226.722.8METAR14.02018-07-22 11:55:08}©¶#)I5     3KCSG 221151Z AUTO 00000KT 8SM CLR 22/21 A2983 RMK AO2 SLP097 70111 T02220211 10228 20211 53009KCSG2018-07-22T11:51:00Z32.52-84.9522.221.1008.029.8287411009.7TRUETRUEVFR0.922.821.11.11METAR135.02018-07-22 11:55:08C©¶"(5    3KDAN 221151Z AUTO 00000KT 10SM OVC009 20/20 A2977 RMK AO2KDAN2018-07-22T11:51:00Z36.57-79.3320.020.00010.029.769686TRUETRUEIFRMETAR175.02018-07-22 11:55:08Y848@HPX`hpx€ˆ˜ ¨°¸ÀÈÐØàèðø (08@HPX`hpx€ˆ˜ ¨°¸ÀÈÐØàèðø (08@HPX`hpx€ˆ˜ ¨°¸ÀÈÐØàèðø ¨°¸ÀÈÐØàèðøڍ©µۍ©µ܍©µݍ©µ ލ©µ$ߍ©µ(à©µ,፩µ0⍩µ5㍩µ9䍩µ=卩µBڍ©µۍ©µ܍©µݍ©µ ލ©µ$ߍ©µ(à©µ,፩µ0⍩µ5㍩µ9䍩µ=卩µB捩µG獩µL荩µQ鍩µUꍩµY덩µ]썩µa퍩µeµiµmð©µqñ©µuò©µz󍩵~ô©¶õ©¶ö©¶ ÷©¶ ø©¶ù©¶ú©¶û©¶ü©¶ý©¶!þ©¶%©¶(©¶+©¶.©¶1©¶4©¶7©¶;©¶?©¶B ©¶E ©¶H ©¶K ©¶O ©¶S©¶V©¶Z©¶^©¶b©¶g©¶l©¶q©¶u©¶y©¶}©·©·©· ©·©·©·©·©·$ ©·)!©·."©·3#©·7$©·<%©·@&©·D'©·H(©·L)©·P*©·T+©·X,©·\-©·`.©·d/©·h0©·l1©·p2©·t3©·y èìè~©¶()W5    3KCAK 221151Z 03006KT 10SM FEW100 FEW180 SCT250 18/14 A2977 RMK AO2 SLP072 T01830144 10194 20167 53007KCAK2018-07-22T11:51:00Z40.92-81.4518.314.430610.029.7696861007.2TRUEVFR0.719.416.7METAR377.02018-07-22 11:55:08‚©¶')g5     3KCLE 221151Z 10004KT 10SM BKN027 BKN110 BKN200 20/15 A2977 RMK AO2 SLP078 70006 T02000150 10211 20194 53006 $KCLE2018-07-22T11:51:00Z41.42-81.8520.015.0100410.029.7696861007.8TRUETRUEMVFR0.621.119.40.06METAR233.02018-07-22 11:55:08x©¶&)E5     3KCMH 221151Z 09008KT 9SM OVC010 19/17 A2972 RMK AO2 SLP059 70032 T01940172 10200 20194 53012KCMH2018-07-22T11:51:00Z40.0-82.8819.417.29089.029.7194881005.9TRUEMVFR1.220.019.40.32METAR247.02018-07-22 11:55:08 óîîóu©¶+)?5    3KBGD 221151Z AUTO 22006KT 10SM CLR 25/09 A3005 RMK AO2 SLP120 T02500089 10317 20244 53005KBGD2018-07-22T11:51:00Z35.7-101.425.08.9220610.030.0501981012.0TRUETRUEVFR0.531.724.4METAR927.02018-07-22 11:55:08z©¶*)?5    3KBHK 221151Z AUTO 15018KT 10SM CLR 18/17 A2996 RMK AO2 SLP121 T01830172 10206 20178 58001KBHK2018-07-22T11:51:00Z46.35-104.2518.317.21501810.029.9586621012.1TRUETRUEVFR-0.120.617.8METAR902.02018-07-22 11:55:08‚ ©¶))[5      3KBKW 221151Z AUTO 18004KT 10SM OVC031 18/16 A2980 RMK AO2 SLP059 70003 T01830161 10183 20161 51002 TSNOKBKW2018-07-22T11:51:00Z37.8-81.1218.316.1180410.029.7992131005.9TRUETRUETRUEVFR0.218.316.10.03METAR764.02018-07-22 11:55:08 ¸ºĸ‚©¶.)M5     3KAVX 221151Z AUTO 35005KT 10SM CLR 20/07 A3006 RMK AO2 SLP157 T02000072 10228 20178 56003 TSNO $KAVX2018-07-22T11:51:00Z33.4-118.4220.07.2350510.030.0590551015.7TRUETRUETRUETRUEVFR-0.322.817.8METAR482.02018-07-22 11:55:08p©¶-)95     3KBAZ 221151Z 24004KT 6SM BR CLR 24/23 A2998 RMK AO2 SLP141 T02440233 10267 20244 53006KBAZ2018-07-22T11:51:00Z29.72-98.0524.423.324046.029.979331014.1TRUEBRVFR0.626.724.4METAR195.02018-07-22 11:55:08‚@©¶,)‚-5       3KBDL 221151Z 12005KT 5SM R06/4500VP6000FT -RA BR FEW009 BKN016 OVC046 21/20 A2995 RMK AO2 SLP141 P0028 60061 70061 T02060200 10206 20183 55001 $KBDL2018-07-22T11:51:00Z41.93-72.6820.620.012055.029.9498021014.1TRUETRUE-RA BRMVFR-0.120.618.30.280.610.61METAR60.02018-07-22 11:55:08 ¿¼Ât©¶1)95    3KACT 221151Z 21007KT 10SM CLR 26/22 A2995 RMK AO2 SLP131 T02560222 10306 20256 53008 $KACT2018-07-22T11:51:00Z31.62-97.2325.622.2210710.029.9498021013.1TRUETRUEVFR0.830.625.6METAR151.02018-07-22 11:55:08}©¶0)I5     3KAHN 221151Z AUTO VRB03KT 8SM CLR 22/22 A2981 RMK AO2 SLP084 70049 T02220217 10222 20206 53012KAHN2018-07-22T11:51:00Z33.95-83.3322.221.7038.029.8110241008.4TRUETRUEVFR1.222.220.60.49METAR244.02018-07-22 11:55:08‚;©¶/)‚35       3KALB 221151Z 04007KT 2SM R01/5000VP6000FT RA BR BKN027 BKN032 OVC065 19/17 A2992 RMK AO2 RAB37 SLP128 P0004 60025 70025 T01940167 10217 20178 56007KALB2018-07-22T11:51:00Z42.75-73.819.416.74072.029.9202751012.8TRUERA BRIFR-0.721.717.80.040.250.25METAR92.02018-07-22 11:55:08 èÕÔèf©¶4)/5    3KSNT 221151Z AUTO 00000KT 04/M02 A3035 RMK AO1 SLP189 T00391022 10128 20033 53012KSNT2018-07-22T11:51:00Z44.17-114.933.9-2.20030.3513771018.9TRUETRUE1.212.83.3METAR1980.02018-07-22 11:55:08{©¶3)C5    3KBVE 221151Z AUTO 26011KT 10SM CLR 30/27 A2994 RMK AO2 SLP138 T03000272 10306 20294 53010 $KBVE2018-07-22T11:51:00Z29.32-89.430.027.22601110.029.9409451013.8TRUETRUETRUEVFR1.030.629.4METAR1.02018-07-22 11:55:08‚%©¶2)‚5      3KABE 221151Z 16006KT 10SM OVC020 22/19 A2981 RMK AO2 RAE1056 CIG 014V026 SLP092 P0000 60024 70093 T02220189 10228 20189 53046KABE2018-07-22T11:51:00Z40.65-75.4522.218.9160610.029.8110241009.2TRUEMVFR4.622.818.90.0050.240.93METAR114.02018-07-22 11:55:08 &*‚©¶7)o5      3KSLK 221151Z AUTO 08009KT 10SM BKN120 18/14 A2999 RMK AO2 RAB07E26 SLP147 P0000 60000 T01830139 10183 20078 58003KSLK2018-07-22T11:51:00Z44.4-74.218.313.980910.029.9911421014.7TRUETRUEVFR-0.318.37.80.0050.005METAR498.02018-07-22 11:55:08v©¶6)?5    3KTPL 221151Z AUTO 17005KT 10SM CLR 24/23 A2997 RMK AO2 SLP147 T02390228 10294 20239 53008KTPL2018-07-22T11:51:00Z31.13-97.423.922.8170510.029.9704721014.7TRUETRUEVFR0.829.423.9METAR208.02018-07-22 11:55:08T©¶5)5    3PMDY 221151Z AUTO 09014KT 10SM BKN018 BKN026 BKN041 24/22 A3013 RMK AO2PMDY2018-07-22T11:51:00Z28.22-177.3724.022.0901410.030.129921TRUETRUEMVFRMETAR4.02018-07-22 11:55:08  ÚÓê D©¶;(5    3PASX 221151Z AUTO 00000KT 10SM OVC004 11/11 A3036 RMK AO2PASX2018-07-22T11:51:00Z60.48-151.0311.011.00010.030.360237TRUETRUELIFRMETAR32.02018-07-22 11:55:08c©¶:)-5       3KMSV 221151Z AUTO 08011G18KT 7SM UP OVC003 A2985 RMK AO2 RAB19E28 P0002 FZRANO $KMSV2018-07-22T11:51:00Z41.7-74.788011187.029.84941TRUETRUETRUETRUEUPLIFR0.02METAR428.02018-07-22 11:55:08‚©¶9)I5      3KOCF 221151Z 19005KT 5SM BR CLR 27/26 A2990 RMK AO2 SLP126 70007 T02670261 10267 20250 51008 $KOCF2018-07-22T11:51:00Z29.17-82.2226.726.119055.029.8996071012.6TRUETRUEBRMVFR0.826.725.00.07METAR27.02018-07-22 11:55:08‚ ©¶8)q5      3KOXC 221151Z 15012G18KT 4SM -RA BR OVC004 21/21 A2994 RMK AO2 SLP146 P0004 60106 70120 T02110206 10211 20178 53007KOXC2018-07-22T11:51:00Z41.47-73.1321.120.615012184.029.9409451014.6TRUE-RA BRLIFR0.721.117.80.041.061.2METAR222.02018-07-22 11:55:08 gßü!g4©¶?(s5   3EKVG 221151Z 28010KT 9999 FEW003 BKN008 10/10 Q1004EKVG2018-07-22T11:51:00Z62.07-7.310.010.0280106.2129.64567IFRMETAR85.02018-07-22 11:55:08U©¶>)!5     3CYBN 221151Z AUTO 36006KT 330V030 9SM -RA FEW051 FEW077 FEW097 17/16 A2986CYBN2018-07-22T11:51:00Z44.27-79.9217.016.036069.029.861221TRUE-RAVFRSPECI223.02018-07-22 11:55:08]©¶=)-5    3CYEN 221151Z 08008KT 2SM BR OVC003 16/16 A2996 RMK ST8 SLP149 DENSITY ALT 2500FTCYEN2018-07-22T11:51:00Z49.22-102.9716.016.08082.029.9586621014.9BRLIFRSPECI581.02018-07-22 11:55:08‚©¶<)u5     3PAMD 221151Z AUTO 27007KT 10SM OVC006 11/11 A3038 RMK AO2 CIG 005V010 SLP278 60000 70001 T01110106 10117 20106 58002PAMD2018-07-22T11:51:00Z59.43-146.311.110.6270710.030.3809051027.8TRUETRUEIFR-0.211.710.60.0050.01METAR14.02018-07-22 11:55:08 ÅÒł©¶B)_5     3KORF 221151Z AUTO VRB04KT 10SM FEW008 OVC023 24/22 A2980 RMK AO2 SLP090 70118 T02440222 10244 20206 51007KORF2018-07-22T11:51:00Z36.9-76.224.422.20410.029.7992131009.0TRUETRUEMVFR0.724.420.61.18METAR14.02018-07-22 11:55:08‚)©¶A)‚ 5       3KMPV 221151Z AUTO 00000KT 10SM -RA FEW049 SCT090 BKN110 15/13 A3013 RMK AO2 RAB37 SLP202 P0000 60000 T01500128 10150 20122 55001KMPV2018-07-22T11:51:00Z44.2-72.5715.012.80010.030.1299211020.2TRUETRUE-RAVFR-0.115.012.20.0050.005METAR343.02018-07-22 11:55:08y©¶@)?5    3KLGU 221151Z AUTO 12003KT 10SM CLR 21/12 A3014 RMK AO2 SLP140 T02110122 10272 20194 53006KLGU2018-07-22T11:51:00Z41.78-111.8521.112.2120310.030.1387791014.0TRUETRUEVFR0.627.219.4METAR1355.02018-07-22 11:55:08 ÿv©¶E)E5    3KOXR 221151Z AUTO 00000KT 10SM OVC007 18/17 A3001 RMK AO2 SLP162 T01830167 10194 20183 53001KOXR2018-07-22T11:51:00Z34.2-119.218.316.70010.030.0088581016.2TRUETRUEIFR0.119.418.3METAR20.02018-07-22 11:55:08‚©¶D)U5     3KPHX 221151Z 24003KT 10SM SCT150 SCT250 30/17 A2993 RMK AO2 SLP114 70001 T03000172 10339 20300 53004KPHX2018-07-22T11:51:00Z33.43-112.0230.017.2240310.029.9291341011.4TRUEVFR0.433.930.00.01METAR336.02018-07-22 11:55:08r©¶C)?5    3KMYL 221151Z AUTO VRB03KT 10SM CLR 07/02 A3024 RMK AO2 SLP203 T00720022 10183 20072 53008KMYL2018-07-22T11:51:00Z44.9-116.17.22.20310.030.2391741020.3TRUETRUEVFR0.818.37.2METAR1533.02018-07-22 11:55:08 ÏÊÀρk©¶H)55    3KROW 221151Z 00000KT 10SM CLR 21/08 A3010 RMK AO2 SLP118 T02110078 10267 20206 52007KROW2018-07-22T11:51:00Z33.3-104.521.17.80010.030.1003931011.8TRUEVFR0.726.720.6METAR1112.02018-07-22 11:55:08‚©¶G)[5    3KPIT 221151Z 11004KT 10SM SCT008 BKN150 BKN250 16/15 A2976 RMK AO2 SLP077 T01610150 10172 20156 53012 $KPIT2018-07-22T11:51:00Z40.5-80.2716.115.0110410.029.7608261007.7TRUETRUEVFR1.217.215.6METAR357.02018-07-22 11:55:08‚0©¶F)‚5      3KPVD 221151Z 15019G28KT 3SM RA BR OVC009 24/23 A3001 RMK AO2 PK WND 15028/1151 SLP161 P0002 60007 70007 T02390228 10239 20189 56005KPVD2018-07-22T11:51:00Z41.72-71.4323.922.815019283.030.0088581016.1TRUERA BRIFR-0.523.918.90.020.070.07METAR16.02018-07-22 11:55:08 ê×âêr©¶K);5    3KSTL 221151Z 35009KT 10SM BKN012 21/19 A2990 RMK AO2 SLP115 T02110189 10228 20206 53009KSTL2018-07-22T11:51:00Z38.75-90.3721.118.9350910.029.8996071011.5TRUEMVFR0.922.820.6METAR171.02018-07-22 11:55:08o©¶J);5    3KPWM 221151Z 07010KT 10SM OVC009 17/16 A3017 RMK AO2 SLP216 T01720156 10172 20150 50005KPWM2018-07-22T11:51:00Z43.65-70.317.215.6701010.030.1712591021.6TRUEIFR0.517.215.0METAR15.02018-07-22 11:55:08‚#©¶I)‚5       3KRDU 221151Z 11006KT 10SM -RA FEW005 BKN120 BKN200 20/19 A2975 RMK AO2 SLP069 P0006 60047 70048 T02000194 10217 20200 50004KRDU2018-07-22T11:51:00Z35.9-78.7820.019.4110610.029.7490161006.9TRUE-RAVFR0.421.720.00.060.470.48METAR130.02018-07-22 11:55:08 1æëô1=©¶O(u5    3KSDF 221151Z 28008KT 10SM OVC013 22/19 A2973 RMK AO2KSDF2018-07-22T11:51:00Z38.18-85.7322.019.0280810.029.731298TRUEMVFRMETAR146.02018-07-22 11:55:08q©¶N)95    3KSJT 221151Z 00000KT 10SM CLR 22/13 A3002 RMK AO2 SLP136 T02220128 10306 20217 53007 $KSJT2018-07-22T11:51:00Z31.37-100.522.212.80010.030.020671013.6TRUETRUEVFR0.730.621.7METAR576.02018-07-22 11:55:08u©¶M)?5    3KSMO 221151Z AUTO 00000KT 10SM CLR 19/17 A3002 RMK AO2 SLP163 T01890172 10200 20189 56001KSMO2018-07-22T11:51:00Z34.02-118.4518.917.20010.030.020671016.3TRUETRUEVFR-0.120.018.9METAR57.02018-07-22 11:55:08‚©¶L)o5     3KSMX 221151Z AUTO 30005KT 3SM R12/6000VP6000FT BR OVC002 16/15 A3005 RMK AO2 SLP177 T01610150 10167 20161 53000 $KSMX2018-07-22T11:51:00Z34.9-120.4516.115.030053.030.0501981017.7TRUETRUETRUEBRLIFR0.016.716.1METAR74.02018-07-22 11:55:08 00]©¶S)#5      3KVAY 221151Z AUTO 3SM BR SCT008 OVC018 22/22 A2983 RMK AO2 RAB00E29 P0001 $KVAY2018-07-22T11:51:00Z39.93-74.8322.022.03.029.828741TRUETRUETRUEBRMVFR0.01METAR15.02018-07-22 11:55:08x©¶R)?5    3KSAD 221151Z AUTO 30008KT 10SM CLR 26/16 A3006 RMK AO2 SLP116 T02610156 10306 20261 53003KSAD2018-07-22T11:51:00Z32.85-109.6326.115.6300810.030.0590551011.6TRUETRUEVFR0.330.626.1METAR962.02018-07-22 11:55:08y©¶Q)I5    3KSAN 221151Z 36004KT 10SM FEW013 FEW200 22/18 A3003 RMK AO2 SLP167 T02220183 10233 20222 55002KSAN2018-07-22T11:51:00Z32.73-117.1822.218.3360410.030.0295281016.7TRUEVFR-0.223.322.2METAR12.02018-07-22 11:55:08j©¶P)95    3KSAT 221151Z 22005KT 8SM FEW010 25/23 A3000 RMK AO2 SLP138 T02500233 10272 20250 53004KSAT2018-07-22T11:51:00Z29.53-98.4725.023.322058.030.01013.8TRUEVFR0.427.225.0METAR243.02018-07-22 11:55:08 ÕׁL©¶V)5     3KVLD 221151Z AUTO VRB03KT 4SM BR OVC005 26/25 A2984 RMK AO2 $KVLD2018-07-22T11:51:00Z30.78-83.2726.025.0034.029.840551TRUETRUETRUEBRIFRMETAR62.02018-07-22 11:55:08x©¶U)?5    3KVNY 221151Z AUTO 17003KT 10SM CLR 20/16 A3002 RMK AO2 SLP156 T02000161 10250 20200 56001KVNY2018-07-22T11:51:00Z34.22-118.4820.016.1170310.030.020671015.6TRUETRUEVFR-0.125.020.0METAR245.02018-07-22 11:55:08‚%©¶T)‚5     3KTEB 221151Z 17012G21KT 10SM BKN018 OVC024 24/21 A2983 RMK AO2 RAB22E34 SLP100 P0000 60035 70107 T02390206 10244 20211 53022KTEB2018-07-22T11:51:00Z40.87-74.0523.920.6170122110.029.8287411010.0TRUEMVFR2.224.421.10.0050.351.07METAR7.02018-07-22 11:55:08 ÙâF©¶Z(}5     3KETH 221151Z AUTO 13003KT 3SM BR CLR 16/15 A3009 RMK AO2KETH2018-07-22T11:51:00Z45.78-96.5516.015.013033.030.088583TRUETRUEBRMVFRMETAR313.02018-07-22 11:55:08q©¶Y);5     3KP59 221151Z AUTO VRB03KT 13/11 A3009 RMK AO1 SLP186 70001 T01330106 10144 20122 55005 KP592018-07-22T11:51:00Z47.47-87.8813.310.60330.0885831018.6TRUETRUE-0.514.412.20.01METAR190.02018-07-22 11:55:08‚'©¶X)‚ 5       3KYNG 221151Z 05003KT 9SM -RA SCT025 BKN070 OVC110 17/16 A2976 RMK AO2 RAB20 SLP072 P0001 60001 70001 T01670156 10183 20167 53004KYNG2018-07-22T11:51:00Z41.25-80.6716.715.65039.029.7608261007.2TRUE-RAVFR0.418.316.70.010.010.01METAR360.02018-07-22 11:55:08t©¶W)?5     3KVCT 221151Z 20003KT 5SM BR FEW110 24/24 A2997 RMK AO2 SLP148 T02440239 10267 20244 53005KVCT2018-07-22T11:51:00Z28.87-96.9324.423.920035.029.9704721014.8TRUEBRMVFR0.526.724.4METAR31.02018-07-22 11:55:08 K;(AKp©¶^);5      3KPEO 221150Z AUTO VRB04KT 1 3/4SM -RA BR OVC012 18/17 A2972 RMK AO2 RAB10E19B38 P0002 $KPEO2018-07-22T11:50:00Z42.65-77.0518.017.0041.7529.719488TRUETRUETRUE-RA BRIFR0.02METAR256.02018-07-22 11:55:08a©¶])15      3KTRI 221150Z 22005KT 6SM BR SCT012 BKN021 OVC041 20/20 A2979 RMK AO2 RAE1054 P0000KTRI2018-07-22T11:50:00Z36.48-82.420.020.022056.029.790354TRUEBRMVFR0.005METAR474.02018-07-22 11:55:08‚ ©¶\)]5     3KNYC 221151Z AUTO 8SM BKN015 OVC020 22/21 A2988 RMK AO2 SLP109 60014 70083 T02220211 10233 20217 53023 $KNYC2018-07-22T11:51:00Z40.78-73.9722.221.18.029.8789371010.9TRUETRUETRUEMVFR2.323.321.70.140.83METAR11.02018-07-22 11:55:08?©¶[(y5    3KAQP 221151Z AUTO 00000KT 10SM CLR 18/17 A3009 RMK AO2KAQP2018-07-22T11:51:00Z45.22-96.018.017.00010.030.088583TRUETRUEVFRMETAR311.02018-07-22 11:55:08 j&Shjx©¶b)?5    3KDAG 221150Z AUTO 27009KT 10SM CLR 27/14 A3003 RMK AO2 SLP138 T02670144 10322 20261 53008KDAG2018-07-22T11:50:00Z34.85-116.7826.714.4270910.030.0295281013.8TRUETRUEVFR0.832.226.1METAR587.02018-07-22 11:55:08e©¶a)-5      3KIAG 221150Z 05011KT 2 1/2SM RA BR OVC008 17/17 A2972 RMK AO2 LTG DSNT E P0025 $KIAG2018-07-22T11:50:00Z43.12-78.9317.017.050112.529.719488TRUETRUERA BRIFR0.25METAR182.02018-07-22 11:55:08M©¶`)5   3KISP 221150Z 14014G21KT 8SM FEW008 BKN015 OVC034 23/23 A2990 RMK AO2KISP2018-07-22T11:50:00Z40.8-73.123.023.014014218.029.899607TRUEMVFRMETAR43.02018-07-22 11:55:08T©¶_)#5     3KLUK 221150Z 03007KT 9SM OVC009 21/21 A2969 RMK AO2 RAE41 CIG 006V012 P0008KLUK2018-07-22T11:50:00Z39.1-84.4221.021.03079.029.68996TRUEIFR0.08METAR155.02018-07-22 11:55:08 7O—áC©¶g)5   3LSZS 221150Z 01007KT 330V080 9999 SCT045 BKN060 15/08 Q1019 RMK MLSZS2018-07-22T11:50:00Z46.539.8815.08.01076.2130.088583VFRMETAR1706.02018-07-22 11:55:080©¶f(o5    3LSZC 221150Z AUTO VRB04KT 9999 FEW100 24/12 Q1016LSZC2018-07-22T11:50:00Z46.978.3824.012.0046.2130.0TRUEVFRMETAR450.02018-07-22 11:55:082©¶e(q5   3OAMS 221150Z 25004KT 9999 SKC 44/01 Q0995 BLU+BLU+OAMS2018-07-22T11:50:00Z36.767.244.01.025046.2129.379921VFRMETAR378.02018-07-22 11:55:08b©¶d)-5      3KAFN 221150Z AUTO VRB05KT 2 1/2SM -RA BR BKN005 OVC009 17/16 A3009 RMK AO2 P0002KAFN2018-07-22T11:50:00Z42.8-72.017.016.0052.530.088583TRUETRUE-RA BRIFR0.02METAR313.02018-07-22 11:55:08C©¶c)5    3KBKL 221150Z 00000KT 10SM BKN025 OVC030 20/14 A2975 RMK AO2KBKL2018-07-22T11:50:00Z41.53-81.6720.014.00010.029.749016TRUEMVFRMETAR184.02018-07-22 11:55:08 NB„ÅN?©¶l)5    3LSZA 221150Z 01009KT 350V050 9999 FEW070 29/12 Q1010 NOSIGLSZA2018-07-22T11:50:00Z46.08.9229.012.01096.2129.822834TRUEVFRMETAR276.02018-07-22 11:55:08,©¶k(e5   3LSGC 221150Z VRB04KT 9999 FEW042 19/10 Q1018LSGC2018-07-22T11:50:00Z47.086.819.010.0046.2130.059055VFRMETAR1027.02018-07-22 11:55:089©¶j(s5    3LSGS 221150Z AUTO 19004KT 150V250 CAVOK 24/13 Q1014LSGS2018-07-22T11:50:00Z46.227.3224.013.019046.2129.940945TRUEVFRMETAR481.02018-07-22 11:55:088©¶i(5    3LSZG 221150Z VRB02KT 9999 SCT049 SCT071 24/12 Q1016 NOSIGLSZG2018-07-22T11:50:00Z47.177.4224.012.0026.2130.0TRUEVFRMETAR430.02018-07-22 11:55:088©¶h(}5    3LSZR 221150Z 09005KT 9999 BKN060 19/16 Q1016 NOSIG RMK ELSZR2018-07-22T11:50:00Z47.489.5719.016.09056.2130.0TRUEVFRMETAR398.02018-07-22 11:55:08 5C|³ó58©¶q(s5    3EVVA 221150Z AUTO 32006KT 280V010 CAVOK 24/18 Q1010EVVA2018-07-22T11:50:00Z57.3521.5524.018.032066.2129.822834TRUEVFRMETAR6.02018-07-22 11:55:08:©¶p(y5    3EVLA 221150Z AUTO 32006KT 280V030 9999 NCD 24/18 Q1011EVLA2018-07-22T11:50:00Z56.5221.124.018.032066.2129.852362TRUEVFRMETAR4.02018-07-22 11:55:08C©¶o)5    3LSZH 221150Z 33006KT 290V020 9999 FEW048 BKN085 23/11 Q1016 NOSIGLSZH2018-07-22T11:50:00Z47.488.5323.011.033066.2130.0TRUEVFRMETAR432.02018-07-22 11:55:08A©¶n)5    3LSGG 221150Z 04010KT 360V080 9999 FEW050 25/11 Q1015 NOSIGLSGG2018-07-22T11:50:00Z46.256.1225.011.040106.2129.970472TRUEVFRMETAR416.02018-07-22 11:55:087©¶m(5    3LSZB 221150Z VRB03KT 9999 FEW040 SCT090 23/13 Q1016 NOSIGLSZB2018-07-22T11:50:00Z46.927.523.013.0036.2130.0TRUEVFRMETAR505.02018-07-22 11:55:08 ÎC†Î2©¶u(i5    3ESUT 221150Z AUTO VRB03KT 9999 NCD 21/11 Q1005ESUT2018-07-22T11:50:00Z65.815.0821.011.0036.2129.675198TRUEVFRMETAR463.02018-07-22 11:55:087©¶t(s5    3ESNX 221150Z AUTO VRB03KT 9999 NCD 20/18 Q1004 RERAESNX2018-07-22T11:50:00Z65.5819.2820.018.0036.2129.64567TRUEVFRMETAR379.02018-07-22 11:55:08M©¶s)5    3ESNL 221150Z AUTO 11006KT 060V200 9999 FEW023/// SCT084/// 19/16 Q1004ESNL2018-07-22T11:50:00Z64.5518.7219.016.011066.2129.64567TRUEVFRMETAR214.02018-07-22 11:55:08d©¶r)15    3VNKT 221150Z 28007KT 8000 FEW015 FEW025CB SCT030 BKN100 26/22 Q1005 NOSIG CB TO SWVNKT2018-07-22T11:50:00Z27.6885.3726.022.028074.9729.675198TRUEBKN10000MVFRMETAR1337.02018-07-22 11:55:08 ¼iz¼8©¶y(s5    3EFMA 221150Z AUTO 20009KT 160V240 CAVOK 23/15 Q1007EFMA2018-07-22T11:50:00Z60.1219.8823.015.020096.2129.734253TRUEVFRMETAR6.02018-07-22 11:55:08i©¶x)C5     3EFIV 221150Z AUTO 25007KT 220V280 9000 3300 +SHRA FEW020 BKN029 BKN040 //////CB 19/19 Q1003EFIV2018-07-22T11:50:00Z68.6227.4219.019.025075.5929.616142TRUE+SHRAMVFRMETAR148.02018-07-22 11:55:08/©¶w(e5   3KESN 221150Z 16006KT 10SM OVC013 20/19 A2986KESN2018-07-22T11:50:00Z38.8-76.0720.019.0160610.029.861221MVFRMETAR22.02018-07-22 11:55:08\©¶v))5    3CYWL 221150Z 15005KT 1 1/4SM BR SCT080 BKN130 10/10 A3028 RMK FG1AC3AC1 SLP263CYWL2018-07-22T11:50:00Z52.18-122.0710.010.015051.2530.2805121026.3BRIFRSPECI940.02018-07-22 11:55:08 Ï$[‡Ï2©¶}(c5    3EFTU 221150Z AUTO 21011KT CAVOK 25/12 Q1007EFTU2018-07-22T11:50:00Z60.5222.2725.012.0210116.2129.734253TRUEVFRMETAR59.02018-07-22 11:55:08N©¶|)5    3EFVA 221150Z AUTO 25009KT 9999 FEW023/// BKN028/// BKN044/// 22/17 Q1004EFVA2018-07-22T11:50:00Z63.0321.7722.017.025096.2129.64567TRUEMVFRMETAR4.02018-07-22 11:55:08C©¶{)5    3EFOU 221150Z AUTO 30004KT 210V360 9999 FEW009/// 23/20 Q1002EFOU2018-07-22T11:50:00Z64.9225.3723.020.030046.2129.586615TRUEVFRMETAR15.02018-07-22 11:55:08V©¶z)'5     3EFRO 221150Z AUTO VRB03KT 180V270 9999 -RA FEW024 SCT055CB BKN105 20/19 Q1003EFRO2018-07-22T11:50:00Z66.5725.8220.019.0036.2129.616142TRUE-RAVFRMETAR201.02018-07-22 11:55:08 A?€ÎAI©·)5    3EYVI 221150Z 01011KT 300V050 9999 SCT041 BKN240 26/16 Q1009 NOSIGEYVI2018-07-22T11:50:00Z54.6325.2826.016.010116.2129.793306TRUEVFRMETAR197.02018-07-22 11:55:088©·(q5    3LLBG 221150Z 27011KT 9999 FEW030 31/22 Q1006 NOSIGLLBG2018-07-22T11:50:00Z32.034.8831.022.0270116.2129.704725TRUEVFRMETAR49.02018-07-22 11:55:08,©·(e5   3EYPA 221150Z VRB04KT 9999 BKN007 24/20 Q1011EYPA2018-07-22T11:50:00Z55.9721.0824.020.0046.2129.852362IFRMETAR10.02018-07-22 11:55:089©¶(q5    3EFHK 221150Z 21015KT 9999 FEW028 26/15 Q1008 NOSIGEFHK2018-07-22T11:50:00Z60.3224.9726.015.0210156.2129.763779TRUEVFRMETAR56.02018-07-22 11:55:08;©¶~(s5    3EFTP 221150Z AUTO 22014KT 180V260 CAVOK 26/13 Q1007EFTP2018-07-22T11:50:00Z61.4223.6226.013.0220146.2129.734253TRUEVFRMETAR112.02018-07-22 11:55:08 GJ|ÀG5©·(w5   3KWDG 221150Z 07005KTKT 10SM SCT130 BKN150 24/19 A2997KWDG2018-07-22T11:50:00Z36.37-97.7724.019.010.029.970472VFRMETAR356.02018-07-22 11:55:088©·) 5   3BGSF 221150Z AUTO 24005KT 200V260 9999NDV BKN038/// 07/05 Q1016BGSF2018-07-22T11:50:00Z67.0-50.727.05.0240530.0TRUEMETAR53.02018-07-22 11:55:086©·(y5    3BGGH 221150Z 02007KT 350V050 0300 FG VV001 03/03 Q1016BGGH2018-07-22T11:50:00Z64.2-51.683.03.02070.1930.0FGLIFR100METAR70.02018-07-22 11:55:08H©·)5   3BGBW 221150Z 23004KT 190V300 9999 FEW007 SCT016TCU BKN035 10/05 Q1007BGBW2018-07-22T11:50:00Z61.17-45.4210.05.023046.2129.734253VFRMETAR26.02018-07-22 11:55:080©·(i5    3BGJN 221150Z 25002KT 0600 FG VV002 04/03 Q1016BGJN2018-07-22T11:50:00Z69.25-51.074.03.025020.3730.0FGLIFR200METAR25.02018-07-22 11:55:08 6Mz´ô68©· (5   3EFKE 221150Z AUTO 17008KT 140V210 //// SCT018 24/19 Q1002EFKE2018-07-22T11:50:00Z65.7724.5724.019.0170829.586615TRUEMETAR15.02018-07-22 11:55:08:©· (s5    3EFKI 221150Z AUTO 20005KT 140V260 CAVOK 24/19 Q1005EFKI2018-07-22T11:50:00Z64.2727.6724.019.020056.2129.675198TRUEVFRMETAR136.02018-07-22 11:55:08@©· (5    3EFKS 221150Z AUTO 19007KT 160V220 9999 OVC016 20/18 Q1005EFKS2018-07-22T11:50:00Z66.029.2320.018.019076.2129.675198TRUEMVFRMETAR263.02018-07-22 11:55:08M©· )5    3EFKT 221150Z AUTO 02004KT 340V060 9999 FEW015 SCT026 BKN046 22/18 Q1002EFKT2018-07-22T11:50:00Z67.724.8522.018.02046.2129.586615TRUEVFRMETAR643.02018-07-22 11:55:08-©·(e5   3BGKK 221150Z 36003KT 9999 BKN080 08/04 Q1005BGKK2018-07-22T11:50:00Z65.57-37.138.04.036036.2129.675198VFRMETAR34.02018-07-22 11:55:08 ,f¥Ø?©·(5    3EFMI 221150Z AUTO 25007KT 210V300 9999 SCT039 25/16 Q1008EFMI2018-07-22T11:50:00Z61.6827.225.016.025076.2129.763779TRUEVFRMETAR138.02018-07-22 11:55:08G©·) 5    3EFSA 221150Z AUTO 19006KT 130V240 9999 FEW026 BKN042 25/19 Q1008EFSA2018-07-22T11:50:00Z61.9528.9325.019.019066.2129.763779TRUEVFRMETAR95.02018-07-22 11:55:08;©·(5   3EFSI 221150Z AUTO 22007KT 150V280 9999 ////// 25/15 Q1005EFSI2018-07-22T11:50:00Z62.722.8325.015.022076.2129.675198TRUEMETAR91.02018-07-22 11:55:08@©·(5    3EFUT 221150Z AUTO 20007KT 150V270 9999 FEW037 26/15 Q1008EFUT2018-07-22T11:50:00Z60.8826.9226.015.020076.2129.763779TRUEVFRMETAR100.02018-07-22 11:55:08N©· )5     3EFET 221150Z AUTO 06005KT 010V120 9999 -RA SCT023 OVC059 21/17 Q1003EFET2018-07-22T11:50:00Z68.3723.4321.017.06056.2129.616142TRUE-RAVFRMETAR306.02018-07-22 11:55:08 :yºæH©·) 5    3EFHA 221150Z AUTO 19011KT 150V220 9999 FEW038 FEW057 24/16 Q1007EFHA2018-07-22T11:50:00Z61.8524.824.016.0190116.2129.734253TRUEVFRMETAR145.02018-07-22 11:55:08N©·)5    3EFKK 221150Z AUTO 18013KT 160V240 9999 FEW030 SCT043 BKN075 25/17 Q1004EFKK2018-07-22T11:50:00Z63.7223.1325.017.0180136.2129.64567TRUEVFRMETAR25.02018-07-22 11:55:089©·(s5    3EFPO 221150Z AUTO 24011KT 210V270 CAVOK 23/13 Q1007EFPO2018-07-22T11:50:00Z61.4721.823.013.0240116.2129.734253TRUEVFRMETAR17.02018-07-22 11:55:08;©·(s5    3EFJO 221150Z AUTO 14010KT 110V200 CAVOK 23/19 Q1008EFJO2018-07-22T11:50:00Z62.6729.6223.019.0140106.2129.763779TRUEVFRMETAR117.02018-07-22 11:55:08@©·(5    3EFLP 221150Z AUTO 23006KT 170V270 9999 SCT036 26/17 Q1008EFLP2018-07-22T11:50:00Z61.0728.1326.017.023066.2129.763779TRUEVFRMETAR106.02018-07-22 11:55:08 Q;vÅQ:©·(u5    3EDDV 221150Z 31010KT 270V350 CAVOK 28/14 Q1013 NOSIGEDDV2018-07-22T11:50:00Z52.479.6828.014.0310106.2129.911417TRUEVFRMETAR54.02018-07-22 11:55:08.©·(_5   3KHOB 221150Z 20004KT 10SM SKC 20/09 A3012KHOB2018-07-22T11:50:00Z32.67-103.2220.09.0200410.030.121063VFRMETAR1115.02018-07-22 11:55:08+©·(_5   3TJBQ 221150Z 10009KT 10SM SKC 27/22 A3004TJBQ2018-07-22T11:50:00Z18.5-67.1327.022.0100910.030.041338VFRMETAR72.02018-07-22 11:55:08?©·(5    3EFJY 221150Z AUTO 23007KT 140V290 9999 FEW042 24/15 Q1007EFJY2018-07-22T11:50:00Z62.425.6824.015.023076.2129.734253TRUEVFRMETAR145.02018-07-22 11:55:08?©·(}5    3EFKU 221150Z AUTO 17010KT 9999 BKN036 BKN076 24/18 Q1006EFKU2018-07-22T11:50:00Z63.0227.824.018.0170106.2129.704725TRUEVFRMETAR102.02018-07-22 11:55:08 ªJg’ªb©·)?5    3EDDM 221150Z 29004KT 9999 -SHRA FEW005 FEW012CB BKN035 18/16 Q1015 RESHRA TEMPO 4000 SHRAEDDM2018-07-22T11:50:00Z48.3511.8218.016.029046.2129.970472-SHRAVFRMETAR447.02018-07-22 11:55:08O©·)5    3EDDN 221150Z 33005KT 300V030 9999 FEW007 SCT013 BKN100 19/17 Q1015 NOSIGEDDN2018-07-22T11:50:00Z49.511.0819.017.033056.2129.970472TRUEVFRMETAR312.02018-07-22 11:55:08]©·)75    3EDDS 221150Z 36006KT 330V050 9999 -SHRA FEW030CB SCT035 BKN085 23/15 Q1015 TEMPO SHRAEDDS2018-07-22T11:50:00Z48.679.2223.015.036066.2129.970472-SHRAVFRMETAR419.02018-07-22 11:55:080©·(e5    3EDDT 221150Z VRB03KT CAVOK 26/11 Q1013 NOSIGEDDT2018-07-22T11:50:00Z52.5713.3226.011.0036.2129.911417TRUEVFRMETAR37.02018-07-22 11:55:08 6BƒÄó67©·$(u5    3EDDW 221150Z 29008KT 230V350 CAVOK 26/13 Q1013 NOSIGEDDW2018-07-22T11:50:00Z53.038.826.013.029086.2129.911417TRUEVFRMETAR5.02018-07-22 11:55:08K©·#)5    3EDDF 221150Z VRB04KT 9999 VCSH FEW045CB 27/15 Q1013 TEMPO 27012KT -TSRAEDDF2018-07-22T11:50:00Z50.058.627.015.0046.2129.911417VCSHVFRMETAR113.02018-07-22 11:55:089©·"(u5    3EDDH 221150Z 27012KT 230V310 CAVOK 27/12 Q1012 NOSIGEDDH2018-07-22T11:50:00Z53.6310.027.012.0270126.2129.88189TRUEVFRMETAR16.02018-07-22 11:55:089©·!(u5    3EDDK 221150Z 33009KT 260V020 CAVOK 27/12 Q1015 NOSIGEDDK2018-07-22T11:50:00Z50.877.1527.012.033096.2129.970472TRUEVFRMETAR99.02018-07-22 11:55:088©· (u5    3EDDL 221150Z 32009KT 280V010 CAVOK 27/12 Q1015 NOSIGEDDL2018-07-22T11:50:00Z51.36.7727.012.032096.2129.970472TRUEVFRMETAR44.02018-07-22 11:55:08 "3e§á"9©·)(u5    3EDDC 221150Z 01008KT 340V050 CAVOK 26/09 Q1013 NOSIGEDDC2018-07-22T11:50:00Z51.1313.7526.09.01086.2129.911417TRUEVFRMETAR226.02018-07-22 11:55:08@©·((5    3EDDE 221150Z 22005KT 9999 FEW040 BKN110 19/16 Q1015 NOSIGEDDE2018-07-22T11:50:00Z50.9810.9719.016.022056.2129.970472TRUEVFRMETAR323.02018-07-22 11:55:088©·'(u5    3EDDG 221150Z 30008KT 240V350 CAVOK 26/13 Q1014 NOSIGEDDG2018-07-22T11:50:00Z52.137.726.013.030086.2129.940945TRUEVFRMETAR52.02018-07-22 11:55:08H©·&)5     3EDDP 221150Z 27006KT 9999 -RA FEW035 OVC100 21/17 Q1014 NOSIGEDDP2018-07-22T11:50:00Z51.4312.2321.017.027066.2129.940945TRUE-RAVFRMETAR149.02018-07-22 11:55:08G©·%)5    3EDDR 221150Z 29008KT 220V330 9999 FEW030 SCT050 24/16 Q1015 NOSIGEDDR2018-07-22T11:50:00Z49.227.124.016.029086.2129.970472TRUEVFRMETAR320.02018-07-22 11:55:08 jAzÍj-©·.(e5   3ESMT 221150Z 26009KT 9999 FEW045 22/12 Q1012ESMT2018-07-22T11:50:00Z56.6712.8222.012.026096.2129.88189VFRMETAR30.02018-07-22 11:55:08*©·-(Y5   3ESMX 221150Z 22013KT CAVOK 26/10 Q1011ESMX2018-07-22T11:50:00Z56.9214.7226.010.0220136.2129.852362VFRMETAR186.02018-07-22 11:55:08'©·,(Y5   3ESTA 221150Z 27009KT CAVOK 22/13 Q1012ESTA2018-07-22T11:50:00Z56.2812.8322.013.027096.2129.88189VFRMETAR47.02018-07-22 11:55:08A©·+)5    3ESTL 221150Z AUTO 30008KT 250V340 9999 FEW068/// 25/10 Q1012ESTL2018-07-22T11:50:00Z56.0713.225.010.030086.2129.88189TRUEVFRMETAR43.02018-07-22 11:55:089©·*(u5    3EDDB 221150Z 03004KT 330V080 CAVOK 26/10 Q1013 NOSIGEDDB2018-07-22T11:50:00Z52.3813.5326.010.03046.2129.911417TRUEVFRMETAR48.02018-07-22 11:55:08 eR¤åe/©·3(e5   3ESGG 221150Z 23013KT 9999 BKN040 18/12 Q1011ESGG2018-07-22T11:50:00Z57.6712.318.012.0230136.2129.852362VFRMETAR169.02018-07-22 11:55:08E©·2)5    3ESGJ 221150Z AUTO 22013KT 190V250 9999 BKN043/// 22/12 Q1010ESGJ2018-07-22T11:50:00Z57.7714.0722.012.0220136.2129.822834TRUEVFRMETAR232.02018-07-22 11:55:089©·1(5    3ESMK 221150Z AUTO 22008G18KT 190V250 9999 NCD 27/// Q1011ESMK2018-07-22T11:50:00Z55.9214.072208186.2129.852362TRUEVFRMETAR23.02018-07-22 11:55:08(©·0(Y5   3ESMQ 221150Z 18017KT CAVOK 25/15 Q1010ESMQ2018-07-22T11:50:00Z56.6816.325.015.0180176.2129.822834VFRMETAR16.02018-07-22 11:55:08(©·/(Y5   3ESMS 221150Z 24008KT CAVOK 26/10 Q1012ESMS2018-07-22T11:50:00Z55.5313.3726.010.024086.2129.88189VFRMETAR106.02018-07-22 11:55:08 ªA{]ª-©·7(i5   3EKSP 221150Z 25009KT 200V300 CAVOK 25/09 Q1012EKSP2018-07-22T11:50:00Z55.229.2725.09.025096.2129.88189VFRMETAR40.02018-07-22 11:55:08‚©·6)‚ 5    3PTYA 221150Z VRB06KT 12SM SCT016CB BKN130 OVC300 28/25 A2981 RMK CB ALQDS SLP095 60026 70033 8/378 T02780250 10292 20255 55000PTYA2018-07-22T11:50:00Z9.48138.0827.825.00612.029.8110241009.5VFR0.029.225.50.260.33METAR17.02018-07-22 11:55:08@©·5)5   3LSME 221150Z 26004KT 200V360 9999 FEW050 SCT090 24/14 Q1016 RMK BLU+LSME2018-07-22T11:50:00Z47.18.324.014.026046.2130.0VFRMETAR427.02018-07-22 11:55:089©·4(s5    3LSMS 221150Z AUTO 19004KT 150V250 CAVOK 24/13 Q1014LSMS2018-07-22T11:50:00Z46.227.3224.013.019046.2129.940945TRUEVFRMETAR481.02018-07-22 11:55:08 F‹Ú؁:©·<(q5    3KBAK 221145Z 33008KT 1SM -RA BR OVC007 20/18 A2973KBAK2018-07-22T11:45:00Z39.27-85.920.018.033081.029.731298-RA BRIFRMETAR200.02018-07-22 11:55:08|©·;)a5    3RCKH 221147Z 05004KT 020V090 9000 VCSH FEW008 SCT010TCU BKN018 BKN030 27/25 Q1003 NOSIG RMK TCU N-SE A2963RCKH2018-07-22T11:47:00Z22.57120.3327.025.05045.5929.616142TRUEVCSHBKN3000MVFRSPECI9.02018-07-22 11:55:08+©·:(c5   3KOMN 221147Z 22007KT 7SM SCT007 25/25 A2988KOMN2018-07-22T11:47:00Z29.3-81.1225.025.022077.029.878937VFRMETAR9.02018-07-22 11:55:085©·9(s5   3TJIG 221150Z 15010KT 10SM SCT030 BKN080 27/22 A3005TJIG2018-07-22T11:50:00Z18.45-66.127.022.01501010.030.050198VFRMETAR3.02018-07-22 11:55:084©·8({5   3EKKA 221150Z AUTO 27010KT 9999NDV BKN045/// 23/12 Q1012EKKA2018-07-22T11:50:00Z56.39.1223.012.02701029.88189TRUEMETAR52.02018-07-22 11:55:08 ²HŒŲ‚ ©·@)e5    3KNXF 221156Z AUTO 04004KT 10SM CLR 18/16 A3002 RMK AO2 SLP249 6//// 7//// T01780161 10211 20178 56003 PNO $ KNXF2018-07-22T11:56:00Z33.28-117.4517.816.140410.030.020671024.9TRUETRUETRUEVFR-0.321.117.8METAR27.02018-07-22 11:57:38A©·?)5    3LEST 221130Z 06006KT 010V110 9999 SCT025 22/16 Q1017 NOSIGLEST2018-07-22T11:30:00Z42.88-8.4222.016.06066.2130.029528TRUEVFRMETAR367.02018-07-22 11:55:086©·>(s5   3PALP 221145Z 19008KT 15SM SCT090 BKN140 15/12 A3009PALP2018-07-22T11:45:00Z70.33-150.9315.012.0190815.030.088583VFRMETAR5.02018-07-22 11:55:082©·=(e5    3LMML 221145Z 21007KT CAVOK 31/22 Q1013 NOSIGLMML2018-07-22T11:45:00Z35.8514.4731.022.021076.2129.911417TRUEVFRMETAR91.02018-07-22 11:55:08 }û$Y}V©·D)5    3CYQZ 221155Z AUTO 00000KT 9SM SCT009 BKN095 BKN130 10/10 A3025 RMK SLP256CYQZ2018-07-22T11:55:00Z53.02-122.5210.010.0009.030.2509841025.6TRUEVFRSPECI545.02018-07-22 11:57:38E©·C)5   3KIIB 221155Z AUTO 02007KT 10SM 17/16 A3001 RMK AO2 T01710160KIIB2018-07-22T11:55:00Z42.45-91.9517.116.020710.030.008858TRUETRUEMETAR298.02018-07-22 11:57:38Q©·B)5     3CYIN 221156Z AUTO 17002KT 2 1/2SM BR FEW002 02/01 A3031 RMK SLP277CYIN2018-07-22T11:56:00Z51.27-121.682.01.017022.530.310041027.7TRUEBRIFRSPECI1128.02018-07-22 11:57:38©·A)E5    3KNJK 221156Z AUTO 35005KT 10SM CLR 31/15 A2989 RMK AO2 SLP136 T03060150 10339 20294 51008 $ KNJK2018-07-22T11:56:00Z32.82-115.6730.615.0350510.029.8907471013.6TRUETRUETRUEVFR0.833.929.4METAR-13.02018-07-22 11:57:38 bó(Vbn©·H)E5      3KJNX 221155Z AUTO 09003KT 10SM -RA SCT028 SCT032 SCT044 21/21 A2976 RMK AO2 LTG DSNT E P0008KJNX2018-07-22T11:55:00Z35.53-78.3821.021.090310.029.760826TRUETRUE-RAVFR0.08METAR50.02018-07-22 11:57:38L©·G)5     3KM25 221155Z AUTO 27004KT 10SM CLR 20/18 A2985 RMK AO2 PWINOKM252018-07-22T11:55:00Z36.77-88.5820.018.0270410.029.84941TRUETRUETRUEVFRMETAR160.02018-07-22 11:57:38E©·F(}5     3KS32 221155Z AUTO 13005KT 5SM BR CLR 17/17 A3006 RMK AO2KS322018-07-22T11:55:00Z47.42-98.117.017.013055.030.059055TRUETRUEBRMVFRSPECI684.02018-07-22 11:57:38‚©·E)k5    3CYPQ 221155Z AUTO 08006KT 050V120 9SM -RA BKN023 BKN050 BKN070 OVC080 18/15 A2983 RMK SLP102 DENSITY ALT 1200FTCYPQ2018-07-22T11:55:00Z44.22-78.3718.015.08069.029.8287411010.2TRUE-RAOVC8000MVFRSPECI191.02018-07-22 11:57:38 hM…ih{©·L)I5       3KI69 221155Z AUTO 05005KT 4SM -RA OVC002 20/20 A2970 RMK AO2 60010 70050 T01960196 10205 20196KI692018-07-22T11:55:00Z39.08-84.2219.619.65054.029.698818TRUETRUE-RALIFR20.519.60.10.5METAR255.02018-07-22 11:57:38‚©·K)s5        3KIKW 221155Z AUTO 36003KT 10SM -RA SCT037 SCT042 BKN070 19/19 A2985 RMK AO2 P0001 60002 70059 T01900188 10203 20188KIKW2018-07-22T11:55:00Z43.67-84.2719.018.8360310.029.84941TRUETRUE-RAVFR20.318.80.010.020.59METAR194.02018-07-22 11:57:38B©·J(y5    3KJKJ 221155Z AUTO 13006KT 10SM CLR 18/16 A3008 RMK AO2KJKJ2018-07-22T11:55:00Z46.83-96.6718.016.0130610.030.079725TRUETRUEVFRMETAR280.02018-07-22 11:57:38-©·I(_5   3KJQF 221155Z 23003KT 10SM SKC 22/19 A2978KJQF2018-07-22T11:55:00Z35.38-80.7222.019.0230310.029.778543VFRMETAR210.02018-07-22 11:57:38 Ý;j¬ÝI©·P)5     3KHAF 221155Z AUTO 19004KT 1SM BR OVC003 15/14 A3007 RMK AO2KHAF2018-07-22T11:55:00Z37.52-122.515.014.019041.030.070866TRUETRUEBRLIFRMETAR21.02018-07-22 11:57:388©·O(w5      3KHAI 221155Z AUTO 04006KT 5SM HZ OVC007 A2980 RMK AO2KHAI2018-07-22T11:55:00Z41.97-85.64065.029.799213TRUETRUEHZIFRMETAR251.02018-07-22 11:57:38K©·N)5   3KHCO 221155Z AUTO 13007G14KT 10SM BKN046 19/17 A3008 RMK AO2KHCO2018-07-22T11:55:00Z48.75-96.9319.017.013071410.030.079725TRUETRUEVFRMETAR250.02018-07-22 11:57:38?©·M(w5    3KHZX 221155Z AUTO 00000KT 4SM CLR 15/14 A3017 RMK AO2KHZX2018-07-22T11:55:00Z46.62-93.3215.014.0004.030.171259TRUETRUEMVFRMETAR374.02018-07-22 11:57:38 ›Rc›B©·T(y5    3KFFM 221155Z AUTO 13007KT 10SM CLR 19/19 A3010 RMK AO2KFFM2018-07-22T11:55:00Z46.28-96.1519.019.0130710.030.100393TRUETRUEVFRMETAR361.02018-07-22 11:57:38i©·S)95     3KFFX 221155Z AUTO 04005KT 10SM SCT011 OVC020 20/19 A2985 RMK AO2 T02010193 10202 20196KFFX2018-07-22T11:55:00Z43.43-86.020.119.340510.029.84941TRUETRUEMVFR20.219.6METAR236.02018-07-22 11:57:38B©·R(y5    3KFSE 221155Z AUTO 13006KT 10SM CLR 17/16 A3013 RMK AO2KFSE2018-07-22T11:55:00Z47.58-95.7717.016.0130610.030.129921TRUETRUEVFRMETAR389.02018-07-22 11:57:38`©·Q)%5     3KGYL 221155Z AUTO 02005KT 10SM CLR 18/18 A3011 RMK AO2 T01770178 10201 20166KGYL2018-07-22T11:55:00Z44.77-94.0817.717.820510.030.109253TRUETRUEVFR20.116.6METAR302.02018-07-22 11:57:38 ´9B|´B©·X(5    3KCOQ 221155Z AUTO 00000KT 10SM OVC020 14/12 A3017 RMK AO2KCOQ2018-07-22T11:55:00Z46.7-92.514.012.00010.030.171259TRUETRUEMVFRMETAR390.02018-07-22 11:57:38@©·W(y5    3KCQM 221155Z AUTO 00000KT 10SM CLR 12/12 A3018 RMK AO2KCQM2018-07-22T11:55:00Z47.82-92.6812.012.00010.030.180119TRUETRUEVFRMETAR404.02018-07-22 11:57:38q©·V)G5     3KDUH 221155Z AUTO 04005KT 10SM SCT028 SCT041 SCT055 21/19 A2977 RMK AO2 T02120192 10213 20205KDUH2018-07-22T11:55:00Z41.73-83.6521.219.240510.029.769686TRUETRUEVFR21.320.5METAR204.02018-07-22 11:57:38A©·U(y5    3KFBL 221155Z AUTO 01007KT 10SM CLR 16/15 A3010 RMK AO2KFBL2018-07-22T11:55:00Z44.33-93.3216.015.010710.030.100393TRUETRUEVFRMETAR322.02018-07-22 11:57:38 • F\•A©·\(y5    3KVVV 221155Z AUTO 10007KT 10SM CLR 18/17 A3008 RMK AO2KVVV2018-07-22T11:55:00Z45.3-96.4218.017.0100710.030.079725TRUETRUEVFRMETAR335.02018-07-22 11:57:38d©·[))5      3KY63 221155Z AUTO 13007KT 5SM BR CLR 18/17 A3010 RMK AO2 T01750171 10200 20160KY632018-07-22T11:55:00Z45.98-96.017.517.113075.030.100393TRUETRUEBRMVFR20.016.0METAR367.02018-07-22 11:57:38?©·Z(y5    3K14Y 221155Z AUTO 00000KT 10SM CLR 16/15 A3014 RMK AO2K14Y2018-07-22T11:55:00Z45.9-94.8716.015.00010.030.138779TRUETRUEVFRMETAR406.02018-07-22 11:57:38o©·Y)?5    3KBAX 221155Z AUTO 08006G16KT 10SM SCT048 SCT110 19/16 A2987 RMK AO2 T01850157 10199 20185KBAX2018-07-22T11:55:00Z43.78-82.9818.515.78061610.029.870079TRUETRUEVFR19.918.5METAR234.02018-07-22 11:57:38 ¯:t¯Z©·`)!5     3KSYM 221155Z AUTO 24006KT 3SM -RA SCT008 BKN017 OVC024 20/19 A2972 RMK AO2KSYM2018-07-22T11:55:00Z38.22-83.5820.019.024063.029.719488TRUETRUE-RAMVFRMETAR313.02018-07-22 11:57:38_©·_)#5     3KTKC 221155Z AUTO 12003KT 7SM CLR 18/18 A3009 RMK AO2 T01840177 10192 20172KTKC2018-07-22T11:55:00Z44.25-95.6218.417.712037.030.088583TRUETRUEVFR19.217.2METAR408.02018-07-22 11:57:38@©·^(y5    3KTWM 221155Z AUTO 00000KT 10SM CLR 16/13 A3014 RMK AO2KTWM2018-07-22T11:55:00Z47.03-91.7516.013.00010.030.138779TRUETRUEVFRMETAR328.02018-07-22 11:57:38@©·](y5    3KULM 221155Z AUTO 06004KT 10SM CLR 18/16 A3010 RMK AO2KULM2018-07-22T11:55:00Z44.32-94.518.016.060410.030.100393TRUETRUEVFRMETAR308.02018-07-22 11:57:38 Tãï)TO©·d)#5   3KLRF 221155Z 28004KT 10SM FEW250 23/19 A2988 RMK SLPNO WND/ALSTG DATA ESTMDKLRF2018-07-22T11:55:00Z34.92-92.1523.019.0280410.029.878937VFRMETAR95.02018-07-22 11:57:38@©·c(y5    3KLBO 221155Z AUTO 00000KT 10SM CLR 20/18 A2999 RMK AO2KLBO2018-07-22T11:55:00Z37.65-92.6520.018.00010.029.991142TRUETRUEVFRMETAR403.02018-07-22 11:57:38n©·b)E5     3CYZR 221155Z AUTO 08008KT 5SM -RA BR BKN016 OVC027 17/16 A2983 RMK SLP101 DENSITY ALT 1100FTCYZR2018-07-22T11:55:00Z43.0-82.317.016.08085.029.8287411010.1TRUE-RA BRMVFRSPECI181.02018-07-22 11:57:38‚©·a)m5     3KGXA 221155Z AUTO 25001KT 10SM CLR 21/12 A3009 RMK AO2 SLP114 WND DATA ESTMD T02110121 10354 20259 52002 PWINO $KGXA2018-07-22T11:55:00Z34.57-117.6721.112.1250110.030.0885831011.4TRUETRUETRUETRUEVFR0.235.425.9METAR923.02018-07-22 11:57:38 gû0?gR©·h)5     3KC62 221155Z AUTO 02005KT 4SM BR OVC007 20/18 A2978 RMK AO2 T02000187KC622018-07-22T11:55:00Z41.47-85.2520.018.72054.029.778543TRUETRUEBRIFRSPECI306.02018-07-22 11:57:38k©·g)15      3KIFA 221155Z AUTO 35003KT 10SM CLR 17/16 A3006 RMK AO2 70002 T01720162 10183 20159KIFA2018-07-22T11:55:00Z42.47-93.2717.216.2350310.030.059055TRUETRUEVFR18.315.90.02SPECI347.02018-07-22 11:57:38E©·f)5      3K2C8 221155Z AUTO 00000KT 1 1/2SM BR BKN038 16/ A3007 RMK AO2K2C82018-07-22T11:55:00Z48.78-97.6316.0001.530.070866TRUETRUEBRIFRSPECI272.02018-07-22 11:57:38©·e)U5       3KAID 221155Z AUTO 36005KT 4SM BR SCT007 OVC013 20/20 A2975 RMK AO2 60007 70096 T02000200 10201 20197KAID2018-07-22T11:55:00Z40.12-85.6220.020.036054.029.749016TRUETRUEBRMVFR20.119.70.96SPECI280.02018-07-22 11:57:38 @þ+7@q©·l);5       3KEGV 221155Z AUTO 36006KT 5SM BR OVC005 15/15 A3009 RMK AO2 70006 T01460145 10157 20146KEGV2018-07-22T11:55:00Z45.93-89.2714.614.536065.030.088583TRUETRUEBRIFR15.714.60.06METAR500.02018-07-22 11:57:38n©·k)75      3KEZS 221155Z AUTO 36009KT 10SM OVC014 20/17 A2998 RMK AO2 70004 T01950168 10196 20192KEZS2018-07-22T11:55:00Z44.78-88.5719.516.8360910.029.97933TRUETRUEMVFR19.619.20.04METAR248.02018-07-22 11:57:38M©·j) 5    3KJSO 221155Z AUTO 22005KT 10SM CLR 24/22 A2996 RMK AO2 T02450223KJSO2018-07-22T11:55:00Z31.87-95.2224.522.3220510.029.958662TRUETRUEVFRMETAR206.02018-07-22 11:57:38|©·i)I5     3KLDJ 221155Z AUTO 18008G16KT 10SM OVC013 23/20 A2984 RMK AO2 60009 70095 T02260203 10236 20226KLDJ2018-07-22T11:55:00Z40.62-74.2522.620.318081610.029.840551TRUETRUEMVFR23.622.60.090.95METAR7.02018-07-22 11:57:38 Œ8pvŒd©·p)+5     3KVTI 221155Z AUTO 01009KT 10SM OVC012 18/16 A3001 RMK AO2 T01760162 10189 20167KVTI2018-07-22T11:55:00Z42.22-92.0217.616.210910.030.008858TRUETRUEMVFR18.916.7METAR255.02018-07-22 11:57:38t©·o)M5   3FJDG 221155Z 13013KT 9999 FEW023 BKN240 27/24 A2986 RMK SLP108 8/106 T02740239 10286 20274 55000FJDG2018-07-22T11:55:00Z-7.3272.4227.423.9130136.2129.8612211010.8VFR0.028.627.4METAR3.02018-07-22 11:57:38B©·n(}5    3KCCY 221155Z AUTO 03008KT 9SM SCT009 16/15 A3005 RMK AO2KCCY2018-07-22T11:55:00Z43.07-92.6216.015.03089.030.050198TRUETRUEVFRMETAR343.02018-07-22 11:57:38B©·m(y5    3KCXP 221155Z AUTO 00000KT 10SM CLR 17/12 A3023 RMK AO2KCXP2018-07-22T11:55:00Z39.18-119.7317.012.00010.030.230314TRUETRUEVFRMETAR1435.02018-07-22 11:57:38 kKdks©·t)A5      3KMCX 221155Z AUTO 00000KT 7SM OVC008 20/19 A2977 RMK AO2 60018 70030 T01960188 10203 20196KMCX2018-07-22T11:55:00Z40.72-86.7719.618.8007.029.769686TRUETRUEIFR20.319.60.180.3METAR206.02018-07-22 11:57:38a©·s)+5     3KPBH 221155Z AUTO 01006KT 10SM OVC005 15/15 A3010 RMK AO2 T01530153 10154 20147KPBH2018-07-22T11:55:00Z45.7-90.415.315.310610.030.100393TRUETRUEIFR15.414.7METAR449.02018-07-22 11:57:38H©·r)5     3KRID 221155Z AUTO 02006KT 5SM BR OVC006 18/18 A2974 RMK AO2KRID2018-07-22T11:55:00Z39.75-84.8518.018.02065.029.740158TRUETRUEBRIFRMETAR348.02018-07-22 11:57:38a©·q)+5     3KSUW 221155Z AUTO 00000KT 10SM OVC025 17/15 A3015 RMK AO2 T01680152 10168 20158KSUW2018-07-22T11:55:00Z46.68-92.116.815.20010.030.15059TRUETRUEMVFR16.815.8METAR206.02018-07-22 11:57:38 4Lˆ¸ö4<©·y(y5    3KRCM 221155Z AUTO 31004KT 10SM CLR 18/16 A3000 RMK AO2KRCM2018-07-22T11:55:00Z38.78-93.818.016.0310410.030.0TRUETRUEVFRSPECI244.02018-07-22 11:57:38<©·x(w5    3KVDF 221155Z AUTO 00000KT 7SM CLR 27/27 A2993 RMK AO2KVDF2018-07-22T11:55:00Z28.02-82.3327.027.0007.029.929134TRUETRUEVFRSPECI7.02018-07-22 11:57:38J©·w) 5    3KVNW 221155Z AUTO 06003KT 7SM SCT004 OVC008 20/18 A2975 RMK AO2KVNW2018-07-22T11:55:00Z40.87-84.6220.018.06037.029.749016TRUETRUEIFRMETAR239.02018-07-22 11:57:38>©·v(y5    3KCKM 221155Z AUTO 00000KT 10SM CLR 22/22 A2989 RMK A01KCKM2018-07-22T11:55:00Z34.3-90.5222.022.00010.029.890747TRUETRUEVFRSPECI53.02018-07-22 11:57:38.©·u(k5     3KDYA 221155Z AUTO 00000KT 7SM CLR A2985 RMK AO2KDYA2018-07-22T11:55:00Z32.47-87.95007.029.84941TRUETRUEVFRSPECI34.02018-07-22 11:57:38 À;t…À?©·}(y5    3KMNI 221155Z AUTO 00000KT 10SM CLR 20/20 A2978 RMK AO2KMNI2018-07-22T11:55:00Z33.58-80.2220.020.00010.029.778543TRUETRUEVFRMETAR32.02018-07-22 11:57:38i©·|)55      3KLQK 221155Z AUTO 00000KT M1/4SM FG OVC001 19/19 A2977 RMK AO2 T01910191 10203 20186KLQK2018-07-22T11:55:00Z34.82-82.719.119.1000.2529.769686TRUETRUEFGLIFR20.318.6METAR309.02018-07-22 11:57:38A©·{(y5    3K2V5 221155Z AUTO 00000KT 10SM CLR 18/16 A3009 RMK AO2K2V52018-07-22T11:55:00Z40.1-102.2518.016.00010.030.088583TRUETRUEVFRMETAR1118.02018-07-22 11:57:38?©·z(y5    3KGPH 221155Z AUTO 00000KT 10SM CLR 17/16 A3002 RMK AO2KGPH2018-07-22T11:55:00Z39.33-94.3217.016.00010.030.02067TRUETRUEVFRSPECI235.02018-07-22 11:57:38 i0gix©¸)A5    3KNFG 221155Z AUTO 05003KT 10SM CLR 17/16 A3001 RMK AO2 SLP161 T01720156 10206 20167 56002 KNFG2018-07-22T11:55:00Z33.28-117.3317.215.650310.030.0088581016.1TRUETRUEVFR-0.220.616.7METAR24.02018-07-22 11:57:38C©¸(5    3KSPA 221155Z AUTO 00000KT 10SM SCT004 21/19 A2977 RMK AO2KSPA2018-07-22T11:55:00Z34.92-81.9321.019.00010.029.769686TRUETRUEVFRMETAR303.02018-07-22 11:57:38`©·))5     3KRCX 221155Z AUTO 35007KT 7SM OVC006 16/15 A3012 RMK AO2 T01600147 10163 20152KRCX2018-07-22T11:55:00Z45.5-91.016.014.735077.030.121063TRUETRUEIFR16.315.2METAR377.02018-07-22 11:57:38d©·~)+5     3KLUM 221155Z AUTO 35005KT 10SM OVC014 17/15 A3010 RMK AO2 T01720147 10182 20168KLUM2018-07-22T11:55:00Z44.9-91.8717.214.7350510.030.100393TRUETRUEMVFR18.216.8METAR273.02018-07-22 11:57:38 Ó:džÓE©¸(5    3KSQL 221155Z AUTO 30003KT 10SM OVC014 17/14 A3005 RMK AO2KSQL2018-07-22T11:55:00Z37.52-122.2517.014.0300310.030.050198TRUETRUEMVFRMETAR1.02018-07-22 11:57:38@©¸)5   3MMCB 221155Z 29004KT 12SM FEW250 18/12 A3019 RMK 8/004 RTSMMCB2018-07-22T11:55:00Z18.83-99.2718.012.0290412.030.188976VFRMETAR1560.02018-07-22 11:57:38P©¸)#5    3EHVK 221155Z AUTO 26009KT 230V010 9999 FEW054 BKN061 BKN067 27/13 Q1015 BLUEHVK2018-07-22T11:55:00Z51.635.727.013.026096.2129.970472TRUEVFRMETAR21.02018-07-22 11:57:38@©¸)5    3EHWO 221155Z AUTO 28009KT 230V330 9999 NCD 26/14 Q1015 BLUEHWO2018-07-22T11:55:00Z51.454.3226.014.028096.2129.970472TRUEVFRMETAR17.02018-07-22 11:57:38 …HL…A©¸ (y5    3KROX 221155Z AUTO 13005KT 10SM CLR 17/14 A3013 RMK AO2KROX2018-07-22T11:55:00Z48.85-95.717.014.0130510.030.129921TRUETRUEVFRMETAR323.02018-07-22 11:57:38v©¸)C5      3KRQB 221155Z AUTO 05003KT 10SM OVC008 20/18 A2988 RMK AO2 60001 70023 T01950183 10200 20195KRQB2018-07-22T11:55:00Z43.72-85.519.518.350310.029.878937TRUETRUEIFR20.019.50.010.23METAR302.02018-07-22 11:57:38L©¸)5     3KSAZ 221155Z AUTO 10003KT 1/4SM FG OVC001 16/16 A3013 RMK AO2KSAZ2018-07-22T11:55:00Z46.37-94.816.016.010030.2530.129921TRUETRUEFGLIFRMETAR392.02018-07-22 11:57:38`©¸))5     3KSJX 221155Z AUTO 03008KT 7SM SCT100 20/19 A2997 RMK AO2 T01970192 10201 20195KSJX2018-07-22T11:55:00Z45.7-85.5719.719.23087.029.970472TRUETRUEVFR20.119.5METAR204.02018-07-22 11:57:38 žLgžC©¸ (5    3KPNM 221155Z AUTO 01005KT 10SM OVC009 17/16 A3014 RMK AO2KPNM2018-07-22T11:55:00Z45.57-93.617.016.010510.030.138779TRUETRUEIFRMETAR298.02018-07-22 11:57:38_©¸ )%5     3KPZQ 221155Z AUTO 09004KT 10SM CLR 19/16 A2996 RMK AO2 T01850157 10192 20177KPZQ2018-07-22T11:55:00Z45.4-83.8218.515.790410.029.958662TRUETRUEVFR19.217.7METAR204.02018-07-22 11:57:38E©¸ (5    3KRGK 221155Z AUTO 05004KT 10SM OVC012 17/15 A3009 RMK AO2KRGK2018-07-22T11:55:00Z44.58-92.4817.015.050410.030.088583TRUETRUEMVFRMETAR239.02018-07-22 11:57:38c©¸ )+5     3KROS 221155Z AUTO 01003KT 10SM OVC011 16/14 A3013 RMK AO2 T01620143 10172 20160KROS2018-07-22T11:55:00Z45.7-92.9516.214.310310.030.129921TRUETRUEMVFR17.216.0METAR281.02018-07-22 11:57:38 šü*cšC©¸(5    3KMZH 221155Z AUTO 04003KT 10SM SCT009 15/13 A3014 RMK AO2KMZH2018-07-22T11:55:00Z46.42-92.815.013.040310.030.138779TRUETRUEVFRMETAR328.02018-07-22 11:57:38A©¸(y5    3KONA 221155Z AUTO 33004KT 10SM CLR 17/14 A3007 RMK AO2KONA2018-07-22T11:55:00Z44.07-91.717.014.0330410.030.070866TRUETRUEVFRMETAR200.02018-07-22 11:57:38L©¸)5   3KPHN 221155Z AUTO 08011G14KT 10SM OVC014 18/15 A2984 RMK AO2KPHN2018-07-22T11:55:00Z42.92-82.5218.015.080111410.029.840551TRUETRUEMVFRMETAR198.02018-07-22 11:57:38~©¸)O5       3KPMH 221155Z AUTO 00000KT 2 1/2SM BR OVC003 17/17 A2970 RMK AO2 60001 70001 T01700170 10175 20159KPMH2018-07-22T11:55:00Z38.83-82.8517.017.0002.529.698818TRUETRUEBRLIFR17.515.90.010.01METAR202.02018-07-22 11:57:38 Î;h ÎL©¸) 5    3KLUL 221155Z AUTO 25003KT 10SM CLR 25/25 A2990 RMK AO2 T02520246KLUL2018-07-22T11:55:00Z31.67-89.1725.224.6250310.029.899607TRUETRUEVFRMETAR73.02018-07-22 11:57:38B©¸(y5    3KMDS 221155Z AUTO 12007KT 10SM CLR 17/17 A3007 RMK AO2KMDS2018-07-22T11:55:00Z44.02-97.0817.017.0120710.030.070866TRUETRUEVFRMETAR524.02018-07-22 11:57:38M©¸)5    3KMGN 221155Z AUTO 04008KT 7SM SCT120 20/19 A2995 RMK AO2 T02010195KMGN2018-07-22T11:55:00Z45.43-84.9220.119.54087.029.949802TRUETRUEVFRMETAR209.02018-07-22 11:57:38?©¸(y5    3KMWM 221155Z AUTO 05003KT 10SM CLR 17/17 A3010 RMK AO2KMWM2018-07-22T11:55:00Z43.9-95.117.017.050310.030.100393TRUETRUEVFRMETAR430.02018-07-22 11:57:38 Ù=rŸÙ@©¸(y5    3KBDN 221155Z AUTO 20006KT 10SM CLR 09/01 A3023 RMK AO2KBDN2018-07-22T11:55:00Z44.1-121.29.01.0200610.030.230314TRUETRUEVFRMETAR1055.02018-07-22 11:57:38M©¸) 5     3KBNL 221155Z AUTO 20004KT M1/4SM FG OVC002 22/22 A2978 RMK AO2KBNL2018-07-22T11:55:00Z33.25-81.3822.022.020040.2529.778543TRUETRUEFGLIFRMETAR75.02018-07-22 11:57:38E©¸(}5     3KBNW 221155Z AUTO 33007KT 6SM BR CLR 17/16 A3005 RMK AO2KBNW2018-07-22T11:55:00Z42.03-93.8317.016.033076.030.050198TRUETRUEBRVFRMETAR354.02018-07-22 11:57:38=©¸(w5    3KLRJ 221155Z AUTO 00000KT 7SM CLR 17/16 A3007 RMK AO2KLRJ2018-07-22T11:55:00Z42.77-96.217.016.0007.030.070866TRUETRUEVFRMETAR365.02018-07-22 11:57:38 –F–c©¸)+5     3KMDZ 221155Z AUTO 36007KT 10SM OVC017 15/14 A3008 RMK AO2 T01490137 10156 20145KMDZ2018-07-22T11:55:00Z45.1-90.314.913.7360710.030.079725TRUETRUEMVFR15.614.5METAR448.02018-07-22 11:57:38A©¸(y5    3KAWG 221155Z AUTO 35008KT 10SM CLR 18/17 A2998 RMK AO2KAWG2018-07-22T11:55:00Z41.27-91.6718.017.0350810.029.97933TRUETRUEVFRMETAR230.02018-07-22 11:57:38J©¸)5     3KAXA 221155Z AUTO 01004KT 9SM CLR 18/17 A3009 RMK AO2 PWINOKAXA2018-07-22T11:55:00Z43.07-94.2718.017.01049.030.088583TRUETRUETRUEVFRMETAR372.02018-07-22 11:57:38d©¸)+5     3KBCK 221155Z AUTO 32004KT 10SM OVC034 17/16 A3005 RMK AO2 T01720162 10180 20155KBCK2018-07-22T11:55:00Z44.25-90.8517.216.2320410.030.050198TRUETRUEVFR18.015.5METAR255.02018-07-22 11:57:38 0F…¼õ0?©¸"(y5    3KCCA 221155Z AUTO 00000KT 10SM CLR 18/17 A2995 RMK AO2KCCA2018-07-22T11:55:00Z35.6-92.4518.017.00010.029.949802TRUETRUEVFRMETAR157.02018-07-22 11:57:38A©¸!(y5    3KCBF 221155Z AUTO 03007KT 10SM CLR 17/17 A3005 RMK AO2KCBF2018-07-22T11:55:00Z41.27-95.7717.017.030710.030.050198TRUETRUEVFRMETAR382.02018-07-22 11:57:38C©¸ (}5     3KM40 221155Z AUTO 00000KT 4SM BR CLR 24/24 A2987 RMK AO2KM402018-07-22T11:55:00Z33.87-88.4824.024.0004.029.870079TRUETRUEBRMVFRMETAR69.02018-07-22 11:57:38;©¸(q5   3KMAN 221155Z AUTO 28008KT 10SM 17/01 A3014 RMK A01KMAN2018-07-22T11:55:00Z43.58-116.5217.01.0280810.030.138779TRUETRUEMETAR774.02018-07-22 11:57:384©¸(m5     3KMBY 221155Z AUTO 33006KT 10SM CLR A2999 RMK AO2KMBY2018-07-22T11:55:00Z39.47-92.43330610.029.991142TRUETRUEVFRMETAR264.02018-07-22 11:57:38 ¯7@w¯B©¸&(y5    3KCPT 221155Z AUTO 21005KT 10SM CLR 25/18 A2996 RMK AO2KCPT2018-07-22T11:55:00Z32.35-97.4325.018.0210510.029.958662TRUETRUEVFRMETAR260.02018-07-22 11:57:38C©¸%(5    3KCKI 221155Z AUTO 00000KT 10SM OVC004 21/20 A2978 RMK AO2KCKI2018-07-22T11:55:00Z33.72-79.8521.020.00010.029.778543TRUETRUELIFRMETAR21.02018-07-22 11:57:38q©¸$);5       3KCFJ 221155Z AUTO 33006KT 5SM BR OVC005 19/19 A2976 RMK AO2 70009 T01900190 10190 20185KCFJ2018-07-22T11:55:00Z39.98-86.9219.019.033065.029.760826TRUETRUEBRIFR19.018.50.09METAR244.02018-07-22 11:57:38C©¸#(y5    3KCBK 221155Z AUTO 12005KT 10SM CLR 18/18 A3007 RMK AO2KCBK2018-07-22T11:55:00Z39.43-101.0518.018.0120510.030.070866TRUETRUEVFRMETAR971.02018-07-22 11:57:38 Õ:q¨ÕM©¸*)5     3KEOE 221155Z AUTO 21003KT 1/4SM FG OVC002 20/20 A2980 RMK AO2KEOE2018-07-22T11:55:00Z34.32-81.6320.020.021030.2529.799213TRUETRUEFGLIFRMETAR174.02018-07-22 11:57:38C©¸)(}5    3KDYB 221155Z AUTO 20004KT 7SM OVC004 22/22 A2979 RMK AO1KDYB2018-07-22T11:55:00Z33.07-80.2822.022.020047.029.790354TRUETRUELIFRMETAR18.02018-07-22 11:57:38C©¸((}5     3KDNS 221155Z AUTO 00000KT 6SM BR CLR 16/16 A3008 RMK AO2KDNS2018-07-22T11:55:00Z41.97-95.3716.016.0006.030.079725TRUETRUEBRVFRMETAR388.02018-07-22 11:57:38@©¸'(y5    3KDNA 221155Z AUTO 00000KT 10SM CLR 24/08 A3011 RMK AO2KDNA2018-07-22T11:55:00Z31.88-106.724.08.00010.030.109253TRUETRUEVFRMETAR1253.02018-07-22 11:57:38 Ô/]›ÔA©¸.(y5    3KGGE 221155Z AUTO 25006KT 10SM CLR 24/23 A2979 RMK AO2KGGE2018-07-22T11:55:00Z33.32-79.3224.023.0250610.029.790354TRUETRUEVFRMETAR12.02018-07-22 11:57:38<©¸-(y5     3KFRH 221155Z AUTO 28005KT 7SM OVC006 19/ A2976 RMK AO1KFRH2018-07-22T11:55:00Z38.5-86.6319.028057.029.760826TRUETRUEIFRMETAR241.02018-07-22 11:57:38L©¸,)5     3KFFL 221155Z AUTO 35007KT 10SM CLR 18/17 A2998 RMK AO2 PWINOKFFL2018-07-22T11:55:00Z41.03-91.9718.017.0350710.029.97933TRUETRUETRUEVFRMETAR244.02018-07-22 11:57:38K©¸+) 5    3KEOK 221155Z AUTO 34007KT 310V010 10SM CLR 19/17 A2994 RMK AO2KEOK2018-07-22T11:55:00Z40.47-91.4219.017.0340710.029.940945TRUETRUEVFRMETAR205.02018-07-22 11:57:38 ¨>¨Q©¸2)5    3KMKS 221155Z AUTO 23005KT 7SM SCT005 SCT090 BKN100 23/22 A2978 RMK AO2KMKS2018-07-22T11:55:00Z33.18-80.0323.022.023057.029.778543TRUETRUEVFRMETAR23.02018-07-22 11:57:389©¸1(y5    3KMHL 221155Z AUTO 00000KT 10SM CLR 18/17 A3000 RMK AO2KMHL2018-07-22T11:55:00Z39.1-93.218.017.00010.030.0TRUETRUEVFRMETAR237.02018-07-22 11:57:38U©¸0)5     3KMGC 221155Z AUTO 01004KT 4SM BR BKN006 BKN060 OVC080 20/20 A2981 RMK AO2KMGC2018-07-22T11:55:00Z41.7-86.8220.020.01044.029.811024TRUETRUEBRIFRMETAR200.02018-07-22 11:57:38a©¸/)%5     3KGNT 221155Z AUTO 28004KT 10SM CLR 16/10 A3036 RMK AO2 T01580097 10245 20155KGNT2018-07-22T11:55:00Z35.17-107.915.89.7280410.030.360237TRUETRUEVFR24.515.5METAR1987.02018-07-22 11:57:38 ´8i´c©¸6)+5     3KOEO 221155Z AUTO 05004KT 10SM OVC013 17/15 A3014 RMK AO2 T01660150 10179 20155KOEO2018-07-22T11:55:00Z45.32-92.716.615.050410.030.138779TRUETRUEMVFR17.915.5METAR275.02018-07-22 11:57:38F©¸5(}5     3KMYJ 221155Z AUTO 31006KT 5SM BR CLR 18/17 A2996 RMK AO2KMYJ2018-07-22T11:55:00Z39.15-91.8218.017.031065.029.958662TRUETRUEBRMVFRMETAR251.02018-07-22 11:57:38I©¸4)5     3KMWC 221155Z AUTO 35009KT 4SM DZ OVC006 18/16 A2990 RMK AO2KMWC2018-07-22T11:55:00Z43.12-88.0318.016.035094.029.899607TRUETRUEDZIFRMETAR227.02018-07-22 11:57:38B©¸3(y5    3KMPZ 221155Z AUTO 36008KT 10SM CLR 18/18 A2997 RMK AO2KMPZ2018-07-22T11:55:00Z40.95-91.5218.018.0360810.029.970472TRUETRUEVFRMETAR224.02018-07-22 11:57:38 ‡Hr‡e©¸:)+5     3KTKV 221155Z AUTO 36004KT 10SM OVC015 16/14 A3009 RMK AO2 T01570137 10163 20153KTKV2018-07-22T11:55:00Z45.47-89.8215.713.7360410.030.088583TRUETRUEMVFR16.315.3METAR453.02018-07-22 11:57:38P©¸9)5     3KTME 221155Z AUTO 24004KT 4SM BR FEW005 FEW010 SCT017 26/25 A3000 RMK AO2KTME2018-07-22T11:55:00Z29.8-95.926.025.024044.030.0TRUETRUEBRMVFRMETAR51.02018-07-22 11:57:38C©¸8(5    3KOLG 221155Z AUTO 01003KT 10SM OVC017 15/15 A3015 RMK AO1KOLG2018-07-22T11:55:00Z46.3-91.8215.015.010310.030.15059TRUETRUEMVFRMETAR336.02018-07-22 11:57:38i©¸7)35      3KOGS 221155Z AUTO 06005KT 10SM -RA SCT005 17/15 A2994 RMK AO2 T01650154 10175 20130KOGS2018-07-22T11:55:00Z44.67-75.4716.515.460510.029.940945TRUETRUE-RAVFR17.513.0METAR91.02018-07-22 11:57:38  :u±ê D©¸?(5    3KIDI 221155Z AUTO 00000KT 10SM OVC012 16/16 A2980 RMK A01KIDI2018-07-22T11:55:00Z40.62-79.0816.016.00010.029.799213TRUETRUEMVFRSPECI429.02018-07-22 11:57:38A©¸>({5    3KUTA 221155Z AUTO 00000KT 10SM 22/20 A2989 RMK AO2 TSNOKUTA2018-07-22T11:55:00Z34.68-90.3522.020.00010.029.890747TRUETRUETRUEMETAR59.02018-07-22 11:57:38>©¸=(w5    3KUOX 221155Z AUTO 00000KT 9SM CLR 21/21 A2990 RMK AO2KUOX2018-07-22T11:55:00Z34.38-89.5321.021.0009.029.899607TRUETRUEVFRMETAR137.02018-07-22 11:57:38?©¸<(y5    3KUBE 221155Z AUTO 00000KT 10SM CLR 16/13 A3012 RMK AO2KUBE2018-07-22T11:55:00Z45.5-91.9816.013.00010.030.121063TRUETRUEVFRMETAR379.02018-07-22 11:57:38@©¸;(w5    3KTNU 221155Z AUTO 36008KT 9SM CLR 18/16 A3003 RMK AO2KTNU2018-07-22T11:55:00Z41.67-93.0218.016.036089.030.029528TRUETRUEVFRMETAR290.02018-07-22 11:57:38  :Um G©¸C) 5    3KPTS 221155Z AUTO 02005KT 10SM CLR 22/20 A3000 RMK AO2 T02170202KPTS2018-07-22T11:55:00Z37.45-94.7321.720.220510.030.0TRUETRUEVFRMETAR290.02018-07-22 11:57:38b©¸B)%5     3KPSO 221155Z AUTO 28003KT 10SM CLR 15/08 A3040 RMK AO2 T01450075 10241 20145KPSO2018-07-22T11:55:00Z37.28-107.0514.57.5280310.030.398623TRUETRUEVFR24.114.5METAR2334.02018-07-22 11:57:38_©¸A)%5     3KY23 221155Z AUTO 02005KT 10SM CLR 17/15 A3012 RMK AO2 T01670150 10176 20161KY232018-07-22T11:55:00Z45.3-91.6316.715.020510.030.121063TRUETRUEVFR17.616.1METAR322.02018-07-22 11:57:38@©¸@(w5    3KY19 221155Z AUTO 13007KT 9SM CLR 18/18 A2999 RMK AO2KY192018-07-22T11:55:00Z46.77-100.918.018.013079.029.991142TRUETRUEVFRMETAR593.02018-07-22 11:57:38 º9t‡ºG©¸G)5     3KPLD 221155Z AUTO 00000KT 4SM BR OVC005 19/19 A2975 RMK AO2KPLD2018-07-22T11:55:00Z40.45-84.9819.019.0004.029.749016TRUETRUEBRIFRSPECI282.02018-07-22 11:57:38g©¸F)15    3KY51 221155Z AUTO 01008G15KT 10SM OVC009 17/16 A3004 RMK AO1 T01660162 10176 20165KY512018-07-22T11:55:00Z43.58-90.916.616.21081510.030.041338TRUETRUEIFR17.616.5SPECI394.02018-07-22 11:57:38?©¸E(w5    3KMAO 221155Z AUTO 20004KT 7SM CLR 22/20 A2978 RMK AO2KMAO2018-07-22T11:55:00Z34.18-79.3322.020.020047.029.778543TRUETRUEVFRMETAR28.02018-07-22 11:57:38A©¸D(y5    3KRCE 221155Z AUTO 09008KT 10SM CLR 25/16 A2997 RMK AO2KRCE2018-07-22T11:55:00Z35.48-97.8225.016.090810.029.970472TRUETRUEVFRMETAR413.02018-07-22 11:57:38 k'Ok^©¸K)%5     3K1S5 221155Z AUTO 00000KT 10SM CLR 11/09 A3016 RMK AO2 T01050086 10180 20097K1S52018-07-22T11:55:00Z46.33-119.9710.58.60010.030.159449TRUETRUEVFR18.09.7METAR234.02018-07-22 11:57:38R©¸J)5   3KSDC 221155Z AUTO 08010G16KT 10SM SCT037 OVC048 17/16 A2976 RMK AO2KSDC2018-07-22T11:55:00Z43.23-77.1217.016.080101610.029.760826TRUETRUEVFRSPECI129.02018-07-22 11:57:38a©¸I)%5     3KRPD 221155Z AUTO 33003KT 10SM CLR 16/15 A3013 RMK AO2 T01590145 10170 20153KRPD2018-07-22T11:55:00Z45.42-91.7715.914.5330310.030.129921TRUETRUEVFR17.015.3SPECI338.02018-07-22 11:57:38l©¸H)55      3KRRL 221155Z AUTO 02008KT 10SM OVC015 17/15 A3006 RMK AO2 T01710154 10171 20156 TSNOKRRL2018-07-22T11:55:00Z45.2-89.7217.115.420810.030.059055TRUETRUETRUEMVFR17.115.6SPECI401.02018-07-22 11:57:38 Š5P€Šp©¸O);5       3KCLI 221155Z AUTO 01009KT 5SM DZ OVC015 19/16 A2998 RMK AO2 70003 T01850160 10191 20185KCLI2018-07-22T11:55:00Z44.62-88.7318.516.01095.029.97933TRUETRUEDZMVFR19.118.50.03METAR250.02018-07-22 11:57:38J©¸N) 5    3KBRY 221155Z AUTO 26005KT 7SM BKN008 OVC011 20/18 A2974 RMK AO1KBRY2018-07-22T11:55:00Z37.82-85.520.018.026057.029.740158TRUETRUEIFRMETAR204.02018-07-22 11:57:38_©¸M))5      3KANQ 221155Z AUTO 03004KT 4SM BR BKN008 BKN060 OVC100 20/19 A2979 RMK AO2 TSNOKANQ2018-07-22T11:55:00Z41.63-85.0820.019.03044.029.790354TRUETRUETRUEBRIFRSPECI303.02018-07-22 11:57:38E©¸L)5    3KJFX 221155Z AUTO 00000KT 6SM BR 22/22 A2985 RMK AO2 PWINOKJFX2018-07-22T11:55:00Z33.9-87.3222.022.0006.029.84941TRUETRUETRUEBRMETAR148.02018-07-22 11:57:38 Õ8aœÕA©¸S(y5    3KALM 221155Z AUTO 00000KT 10SM CLR 22/04 A3013 RMK AO2KALM2018-07-22T11:55:00Z32.82-105.9722.04.00010.030.129921TRUETRUEVFRMETAR1279.02018-07-22 11:57:38?©¸R(w5    3K96D 221155Z AUTO 11005KT 7SM CLR 16/16 A3006 RMK AO2K96D2018-07-22T11:55:00Z48.93-97.916.016.011057.030.059055TRUETRUEVFRMETAR290.02018-07-22 11:57:38Q©¸Q)#5    3EHKD 221155Z AUTO 27009KT 230V310 9999 SCT140 22/13 Q1015 BLU 27008KT CAVOKEHKD2018-07-22T11:55:00Z52.924.7722.013.027096.2129.970472TRUEVFRMETAR14.02018-07-22 11:57:38B©¸P(}5    3KD55 221155Z AUTO 13009KT 8SM FEW120 17/17 A3006 RMK AO2KD552018-07-22T11:55:00Z48.75-98.417.017.013098.030.059055TRUETRUEVFRMETAR491.02018-07-22 11:57:38 ®3k•®a©¸W)%5     3KGGI 221155Z AUTO 34005KT 10SM CLR 17/16 A3003 RMK AO2 T01700157 10196 20169KGGI2018-07-22T11:55:00Z41.72-92.7317.015.7340510.030.029528TRUETRUEVFR19.616.9METAR307.02018-07-22 11:57:38P©¸V)5     3KGAF 221155Z AUTO 00000KT 6SM BR FEW034 15/15 A3009 RMK AO2 PWINOKGAF2018-07-22T11:55:00Z48.4-97.3715.015.0006.030.088583TRUETRUETRUEBRVFRMETAR252.02018-07-22 11:57:38B©¸U(y5    3KFDW 221155Z AUTO 22004KT 10SM CLR 21/20 A2977 RMK AO1KFDW2018-07-22T11:55:00Z34.32-81.1221.020.0220410.029.769686TRUETRUEVFRSPECI176.02018-07-22 11:57:38G©¸T)5     3KDCM 221155Z AUTO 00000KT 4SM BR OVC003 20/20 A2977 RMK AO2KDCM2018-07-22T11:55:00Z34.78-81.220.020.0004.029.769686TRUETRUEBRLIFRSPECI200.02018-07-22 11:57:38 —4:h—K©¸[)5     3KMBO 221155Z AUTO 24005KT 10SM CLR 25/23 A2988 RMK AO2 PWINOKMBO2018-07-22T11:55:00Z32.43-90.125.023.0240510.029.878937TRUETRUETRUEVFRMETAR99.02018-07-22 11:57:38L©¸Z)5     3KLUX 221155Z AUTO 23003KT 3/4SM BR OVC002 20/20 A2978 RMK AO2KLUX2018-07-22T11:55:00Z34.5-81.9520.020.023030.7529.778543TRUETRUEBRLIFRMETAR213.02018-07-22 11:57:38t©¸Y)?5       3KLNL 221155Z AUTO 34007KT 1/2SM FG OVC002 14/14 A3012 RMK AO2 70004 T01400138 10157 20138KLNL2018-07-22T11:55:00Z46.15-89.2214.013.834070.530.121063TRUETRUEFGLIFR15.713.80.04METAR520.02018-07-22 11:57:38F©¸X(5    3KLKR 221155Z AUTO 22003KT 10SM BKN004 21/21 A2976 RMK AO2KLKR2018-07-22T11:55:00Z34.72-80.8521.021.0220310.029.760826TRUETRUELIFRMETAR149.02018-07-22 11:57:38 ÉYÉA©¸_(y5    3KSVE 221155Z AUTO 00000KT 10SM CLR 17/09 A3020 RMK AO2KSVE2018-07-22T11:55:00Z40.37-120.5717.09.00010.030.200787TRUETRUEVFRMETAR1263.02018-07-22 11:57:38C©¸^(5    3KSTF 221155Z AUTO 00000KT 10SM SCT075 23/23 A2987 RMK AO2KSTF2018-07-22T11:55:00Z33.43-88.8523.023.00010.029.870079TRUETRUEVFRSPECI102.02018-07-22 11:57:38=©¸](w5    3KRUG 221155Z AUTO 14012KT 9SM CLR 18/17 A3000 RMK AO2KRUG2018-07-22T11:55:00Z48.38-100.0218.017.0140129.030.0TRUETRUEVFRMETAR472.02018-07-22 11:57:38^©¸\)#5     3KPEA 221155Z AUTO 35004KT 7SM CLR 17/16 A3003 RMK AO2 T01710157 10191 20163KPEA2018-07-22T11:55:00Z41.4-92.9517.115.735047.030.029528TRUETRUEVFR19.116.3METAR270.02018-07-22 11:57:38 a0‹a‚$©¸c)‚!5    3PTKR 221155Z 21008KT 15SM SCT016CB BKN110 OVC270 26/25 A2985 RMK CB DSNT N-E-S MOV NE SLP107 60223 70230 8/378 T02560245 10289 20228 52003PTKR2018-07-22T11:55:00Z7.33134.4825.624.5210815.029.849411010.7VFR0.328.922.82.232.3METAR30.02018-07-22 11:57:38©¸b([5  3KX07 221155Z AUTO 00000KT 26/26 RMK A01KX072018-07-22T11:55:00Z27.9-81.6226.026.000TRUETRUEMETAR39.02018-07-22 11:57:38O©¸a)5   3KVNC 221155Z AUTO 27013G18KT 8SM FEW020 FEW036 30/26 A2994 RMK AO2KVNC2018-07-22T11:55:00Z27.07-82.4330.026.027013188.029.940945TRUETRUEVFRMETAR6.02018-07-22 11:57:38u©¸`)A5      3KUNU 221155Z AUTO 33009G14KT 3SM BR OVC006 18/17 A2994 RMK AO2 70029 T01750170 10188 20175KUNU2018-07-22T11:55:00Z43.42-88.717.517.03309143.029.940945TRUETRUEBRIFR18.817.50.29SPECI285.02018-07-22 11:57:38 ¯<<t¯?©¸g(y5    3KSEM 221155Z AUTO 00000KT 10SM CLR 25/23 A2983 RMK AO2KSEM2018-07-22T11:55:00Z32.35-86.9825.023.00010.029.828741TRUETRUEVFRMETAR51.02018-07-22 11:57:38B©¸f(y5    3KS25 221155Z AUTO 14006KT 10SM CLR 20/17 A2991 RMK AO2KS252018-07-22T11:55:00Z47.8-103.2520.017.0140610.029.911417TRUETRUEVFRMETAR644.02018-07-22 11:57:38z©¸e)I5      3KRYV 221155Z AUTO 35009G15KT 2 1/2SM BR OVC007 18/18 A2992 RMK AO2 70001 T01790179 10193 20179KRYV2018-07-22T11:55:00Z43.17-88.7217.917.93509152.529.920275TRUETRUEBRIFR19.317.90.01METAR254.02018-07-22 11:57:38>©¸d(w5    3KRDK 221155Z AUTO 00000KT 8SM CLR 18/17 A3005 RMK AO2KRDK2018-07-22T11:55:00Z41.02-95.2718.017.0008.030.050198TRUETRUEVFRMETAR318.02018-07-22 11:57:38 ³6Lˆ³O©¸k)5     3KSPF 221155Z AUTO 20005KT 10SM CLR 16/15 A3003 RMK AO2 PWINOKSPF2018-07-22T11:55:00Z44.47-103.7716.015.0200510.030.029528TRUETRUETRUEVFRMETAR1188.02018-07-22 11:57:38>©¸j(w5    3KSLB 221155Z AUTO 04007KT 9SM CLR 18/17 A3009 RMK AO2KSLB2018-07-22T11:55:00Z42.6-95.2218.017.04079.030.088583TRUETRUEVFRMETAR454.02018-07-22 11:57:38d©¸i)55    3KSNC 221155Z AUTO 13010G16KT 100V160 4SM BR SCT003 BKN007 OVC023 22/22 A2997 RMK AO2KSNC2018-07-22T11:55:00Z41.38-72.522.022.013010164.029.970472TRUETRUEBRIFRMETAR127.02018-07-22 11:57:38D©¸h(}5     3KSHL 221155Z AUTO 06004KT 6SM BR CLR 16/16 A3007 RMK AO2KSHL2018-07-22T11:55:00Z43.22-95.8216.016.06046.030.070866TRUETRUEBRVFRMETAR432.02018-07-22 11:57:38 ¶Ey¶=©¸o(w5    3K2J9 221155Z AUTO 27006KT 7SM CLR 28/26 A2985 RMK AO2K2J92018-07-22T11:55:00Z30.6-84.5528.026.027067.029.84941TRUETRUEVFRMETAR69.02018-07-22 11:57:38F©¸n)5     3K24J 221155Z AUTO 00000KT 4SM BR OVC011 27/27 A2987 RMK A01K24J2018-07-22T11:55:00Z30.3-83.0327.027.0004.029.870079TRUETRUEBRMVFRMETAR32.02018-07-22 11:57:38M©¸m)5     3K2D5 221155Z AUTO 12008KT 10SM CLR 18/18 A3005 RMK AO2 PWINOK2D52018-07-22T11:55:00Z46.17-98.0818.018.0120810.030.050198TRUETRUETRUEVFRMETAR407.02018-07-22 11:57:38b©¸l)+5     3K1P1 221155Z AUTO 00000KT 10SM OVC060 17/12 A3013 RMK AO2 T01700117 10170 20101K1P12018-07-22T11:55:00Z43.78-71.7517.011.70010.030.129921TRUETRUEVFR17.010.1METAR154.02018-07-22 11:57:38 ºZºM©¸s) 5     3K6L4 221155Z AUTO 00000KT 1 1/2SM -RA OVC021 19/19 A2975 RMK AO2K6L42018-07-22T11:55:00Z37.85-81.9219.019.0001.529.749016TRUETRUE-RAIFRMETAR508.02018-07-22 11:57:38G©¸r(5    3K74V 221155Z AUTO 26003KT 10SM SCT120 20/10 A3023 RMK AO2K74V2018-07-22T11:55:00Z40.28-110.0520.010.0260310.030.230314TRUETRUEVFRMETAR1576.02018-07-22 11:57:386©¸q(q5   3K7L2 221155Z AUTO 08005KT 10SM 17/17 A3000 RMK AO2K7L22018-07-22T11:55:00Z46.22-100.2517.017.080510.030.0TRUETRUEMETAR543.02018-07-22 11:57:38d©¸p)+5     3K2I0 221155Z AUTO 31006KT 10SM OVC012 21/20 A2980 RMK AO2 T02080196 10220 20198K2I02018-07-22T11:55:00Z37.35-87.420.819.6310610.029.799213TRUETRUEMVFR22.019.8METAR134.02018-07-22 11:57:38 ²6Pz²B©¸w(y5    3KAIB 221155Z AUTO 12006KT 10SM CLR 20/08 A3031 RMK AO2KAIB2018-07-22T11:55:00Z38.23-108.5720.08.0120610.030.31004TRUETRUEVFRMETAR1811.02018-07-22 11:57:38P©¸v)5    3K4R5 221155Z AUTO 06004KT 10SM OVC021 17/14 A3014 RMK AO2 T01650137K4R52018-07-22T11:55:00Z46.78-90.7716.513.760410.030.138779TRUETRUEMVFRMETAR198.02018-07-22 11:57:38`©¸u)%5     3K54J 221155Z AUTO 24004KT 10SM CLR 26/24 A2987 RMK AO2 T02550235 10275 20250K54J2018-07-22T11:55:00Z30.73-86.1525.523.5240410.029.870079TRUETRUEVFR27.525.0METAR88.02018-07-22 11:57:38D©¸t(}5   3K5H4 221155Z AUTO 14009G14KT 8SM CLR 17/17 A3002 RMK AO2K5H42018-07-22T11:55:00Z47.78-99.9317.017.01409148.030.02067TRUETRUEVFRMETAR490.02018-07-22 11:57:38 ;ŠŸ×>©¸|(w5    3KAIO 221155Z AUTO 00000KT 7SM CLR 17/17 A3005 RMK AO2KAIO2018-07-22T11:55:00Z41.38-95.0317.017.0007.030.050198TRUETRUEVFRMETAR360.02018-07-22 11:57:38B©¸{(y5    3KAIK 221155Z AUTO 24004KT 10SM CLR 21/21 A2981 RMK AO2KAIK2018-07-22T11:55:00Z33.65-81.6821.021.0240410.029.811024TRUETRUEVFRMETAR161.02018-07-22 11:57:38e©¸z)+5     3KAIG 221155Z AUTO 36009KT 10SM OVC010 16/16 A3005 RMK AO2 T01630155 10165 20156KAIG2018-07-22T11:55:00Z45.15-89.1216.315.5360910.030.050198TRUETRUEMVFR16.515.6METAR464.02018-07-22 11:57:38+©¸y(_5   3KADM 221155Z 00000KT 10SM SKC 24/20 A2993KADM2018-07-22T11:55:00Z34.28-97.0224.020.00010.029.929134VFRMETAR232.02018-07-22 11:57:38?©¸x(y5    3KADU 221155Z AUTO 00000KT 10SM CLR 17/16 A3007 RMK AO2KADU2018-07-22T11:55:00Z41.7-94.9217.016.00010.030.070866TRUETRUEVFRMETAR392.02018-07-22 11:57:38 o5^oi©¹)15    3KPCZ 221155Z AUTO 35009G14KT 10SM OVC015 20/18 A2998 RMK AO2 T02000175 10202 20192KPCZ2018-07-22T11:55:00Z44.33-89.0220.017.535091410.029.97933TRUETRUEMVFR20.219.2METAR252.02018-07-22 11:57:38Q©¸)#5    3LKTB 221155Z VRB08KT 9000 SHRA SCT030CB BKN034 23/17 Q1010 RMK REG QNH 1007LKTB2018-07-22T11:55:00Z49.1316.6823.017.0085.5929.822834SHRAVFRSPECI246.02018-07-22 11:57:38\©¸~)5     3CYIO 221155Z AUTO 23016KT 6SM -RA BR BKN023 OVC029 04/03 A2984 RMK SLP112CYIO2018-07-22T11:55:00Z72.67-77.974.03.0230166.029.8405511011.2TRUE-RA BRMVFRSPECI57.02018-07-22 11:57:38c©¸})%5     3KANK 221155Z AUTO 29004KT 10SM CLR 14/10 A3049 RMK AO1 T01420102 10186 20142KANK2018-07-22T11:55:00Z38.53-106.0514.210.2290410.030.490158TRUETRUEVFR18.614.2METAR2293.02018-07-22 11:57:38 ëâëq©¹);5    3KHWD 221154Z 33006KT 10SM OVC008 17/14 A3005 RMK AO2 SLP185 T01720139 10183 20172 51004KHWD2018-07-22T11:54:00Z37.67-122.1217.213.9330610.030.0501981018.5TRUEIFR0.418.317.2METAR21.02018-07-22 11:57:38‚©¹){5      3KILN 221154Z AUTO 03009KT 3SM BR BKN004 OVC008 19/19 A2970 RMK AO2 CIG 002V005 SLP052 70037 T01890189 10194 20183 53006KILN2018-07-22T11:54:00Z39.43-83.818.918.93093.029.6988181005.2TRUETRUEBRLIFR0.619.418.30.37METAR322.02018-07-22 11:57:38y©¹)C5    3KIMT 221154Z AUTO 35010KT 7SM OVC007 17/16 A3003 RMK AO2 SLP168 T01720156 10178 20172 53006KIMT2018-07-22T11:54:00Z45.82-88.1217.215.6350107.030.0295281016.8TRUETRUEIFR0.617.817.2METAR349.02018-07-22 11:57:38 ÕòìՂ©¹)Y5      3PHOG 221154Z AUTO 04010KT 10SM CLR 24/22 A2996 RMK AO2 SLP151 60000 T02390217 10250 20233 58016 TSNO $PHOG2018-07-22T11:54:00Z20.9-156.4323.921.7401010.029.9586621015.1TRUETRUETRUETRUEVFR-1.625.023.30.005METAR12.02018-07-22 11:57:38‚©¹)K5     3PGSN 221154Z 21004KT 10SM SCT025 28/27 A2981 RMK AO2 SLP117 70001 T02780267 10294 20278 51010 $PGSN2018-07-22T11:54:00Z15.12145.7227.826.7210410.029.8110241011.7TRUETRUEVFR1.029.427.80.01METAR65.02018-07-22 11:57:38‚©¹)_5     3KNKT 221154Z AUTO 20003KT 10SM FEW018 SCT110 26/26 A2981 RMK AO2 SLP092 70002 T02610256 10261 20228 53008KNKT2018-07-22T11:54:00Z34.9-76.8826.125.6200310.029.8110241009.2TRUETRUEVFR0.826.122.80.02METAR9.02018-07-22 11:57:38 è÷øè‚ ©¹ )c5     3KGSO 221154Z 00000KT 10SM OVC009 21/21 A2976 RMK AO2 CIG 006V011 SLP067 70127 T02110206 10211 20200 53008 $KGSO2018-07-22T11:54:00Z36.1-79.9521.120.60010.029.7608261006.7TRUETRUEIFR0.821.120.01.27METAR275.02018-07-22 11:57:38y©¹)A5      3K12N 221154Z AUTO 22/22 A2983 RMK AO1 SLP095 P0001 60048 70095 T02170217 10228 20183 53026K12N2018-07-22T11:54:00Z41.02-74.7321.721.729.8287411009.5TRUETRUE2.622.818.30.010.480.95METAR177.02018-07-22 11:57:38‚©¹)O5     3PHMK 221154Z AUTO 04008KT 10SM OVC070 25/21 A2999 RMK AO2 SLP154 T02500206 10256 20250 58011 TSNOPHMK2018-07-22T11:54:00Z21.15-157.125.020.640810.029.9911421015.4TRUETRUETRUEVFR-1.125.625.0METAR141.02018-07-22 11:57:38 øíg©¹ )15     3KMUI 221154Z AUTO 20003KT 1 5/8SM BR OVC008 18/18 A2978 RMK AO2 VIS 1 5/8V4 SLP086KMUI2018-07-22T11:54:00Z40.42-76.5718.018.020031.6329.7785431008.6TRUETRUEBRIFRSPECI149.02018-07-22 11:57:38d©¹ )+5     3KDMH 221154Z AUTO 20/18 A2982 RMK AO1 SLP098 70279 T02000178 10206 20189 53037 KDMH2018-07-22T11:54:00Z39.28-76.6220.017.829.8198811009.8TRUETRUE3.720.618.92.79METAR5.02018-07-22 11:57:38‚©¹ )Q5     3KNAK 221154Z AUTO 19005KT 10SM CLR 21/18 A2981 RMK AO2 SLP096 70550 T02060178 10206 20189 51031 $ KNAK2018-07-22T11:54:00Z38.98-76.4820.617.8190510.029.8110241009.6TRUETRUETRUEVFR3.120.618.95.5METAR2.02018-07-22 11:57:38‚©¹ )S5      3KMTP 221154Z AUTO VRB05KT 20/20 A2999 RMK AO1 SLP155 P0006 60087 70092 T02000200 10228 20194 53014 KMTP2018-07-22T11:54:00Z41.07-71.9220.020.00529.9911421015.5TRUETRUE1.422.819.40.060.870.92METAR2.02018-07-22 11:57:38 ÏÖßς ©¹)W5     3KLEX 221154Z 24007KT 10SM OVC008 20/18 A2973 RMK AO2 SLP059 60000 70010 T02000183 10211 20200 53006 $KLEX2018-07-22T11:54:00Z38.03-84.620.018.3240710.029.7312981005.9TRUETRUEIFR0.621.120.00.0050.1METAR300.02018-07-22 11:57:38q©¹)95     3KLNK 221154Z 08006KT 6SM BR CLR 19/18 A3005 RMK AO2 SLP164 T01940178 10211 20178 55009KLNK2018-07-22T11:54:00Z40.85-96.7719.417.88066.030.0501981016.4TRUEBRVFR-0.921.117.8METAR364.02018-07-22 11:57:38‚$©¹)‚5       3KLWM 221154Z 07009KT 1 1/2SM -RA OVC004 21/18 A3010 RMK AO2 RAB1057E08B54 SLP192 P0000 60000 T02060178 10206 20194 57001 $KLWM2018-07-22T11:54:00Z42.72-71.1320.617.87091.530.1003931019.2TRUETRUE-RALIFR-0.120.619.40.0050.005METAR54.02018-07-22 11:57:38Y88@HPX`hpx€ˆ˜ ¨°¸ÀÈÐØàèðø (08@HPX`hpx€ˆ˜ ¨°¸ÀÈÐØàèðø (08@HPX`hpx€ˆ˜ ¨°¸ÀÈÐØàèðø ¨°¸ÀÈÐØàèðø5©¸6©¸7©¸ 8©¸ 9©¸:©¸;©¸<©¸=©¸">©¸&?©¸*@©¸.5©¸6©¸7©¸ 8©¸ 9©¸:©¸;©¸<©¸=©¸">©¸&?©¸*@©¸.A©¸2B©¸6C©¸:D©¸?E©¸CF©¸GG©¸KH©¸OI©¸SJ©¸WK©¸[L©¸_M©¸cN©¸gO©¸kP©¸oQ©¸sR©¸wS©¸|T©¹U©¹V©¹W©¹ X©¹ Y©¹[©¹\©¹]©¹^©¹_©¹!`©¹$a©¹'b©¹*c©¹-d©¹1e©¹4f©¹7g©¹:h©¹=i©¹@j©¹Ck©¹Fl©¹Im©¹Ln©¹Oo©¹Rp©¹Vq©¹Yr©¹\s©¹_t©¹bu©¹fv©¹jw©¹mx©¹py©¹tz©¹w{©¹z|©¹~}©º~©º©º€©º ©º‚©ºƒ©º„©º…©º†©º‡©º"ˆ©º%‰©º(Š©º+‹©º.Œ©º1©º4Ž©º7  ñø/ ‚ ©¹)_5     3KAVP 221154Z VRB04KT 7SM BKN019 OVC023 23/20 A2976 RMK AO2 SLP069 60014 70053 T02280200 10228 20172 53025KAVP2018-07-22T11:54:00Z41.33-75.7222.820.0047.029.7608261006.9TRUEMVFR2.522.817.20.140.53METAR291.02018-07-22 11:57:38C©¹(y5    3KBDU 221154Z AUTO 05003KT 10SM CLR 18/13 A3014 RMK AO2KBDU2018-07-22T11:54:00Z40.03-105.2318.013.050310.030.138779TRUETRUEVFRMETAR1612.02018-07-22 11:57:38s©¹)?5    3KBFL 221154Z AUTO 33003KT 10SM CLR 26/13 A3000 RMK AO2 SLP152 T02560128 10294 20256 53009KBFL2018-07-22T11:54:00Z35.43-119.0525.612.8330310.030.01015.2TRUETRUEVFR0.929.425.6METAR151.02018-07-22 11:57:38‚ ©¹)W5     3KLBT 221154Z AUTO 20005KT 10SM CLR 23/22 A2976 RMK AO2 SLP075 60018 70018 T02330217 10244 20222 53009KLBT2018-07-22T11:54:00Z34.6-79.0723.321.7200510.029.7608261007.5TRUETRUEVFR0.924.422.20.180.18METAR37.02018-07-22 11:57:38 Î  ΂7©¹)‚5       3KBOS 221154Z 09015KT 1/4SM R04R/2600V3500FT FG VV002 21/19 A3007 RMK AO2 RAB17E48 SLP181 P0006 60011 70011 T02060194 10206 20194 55003 $KBOS2018-07-22T11:54:00Z42.37-71.0220.619.490150.2530.0708661018.1TRUETRUEFGLIFR-0.320.619.40.060.110.11200METAR6.02018-07-22 11:57:38x©¹)?5    3KLWT 221154Z AUTO 24004KT 10SM CLR 12/04 A3021 RMK AO2 SLP190 T01220039 10189 20122 53035KLWT2018-07-22T11:54:00Z47.03-109.4712.23.9240410.030.2096461019.0TRUETRUEVFR3.518.912.2METAR1270.02018-07-22 11:57:38q©¹);5    3KLYH 221154Z 14003KT 10SM OVC004 19/18 A2980 RMK AO2 SLP081 T01940183 10200 20178 53013KLYH2018-07-22T11:54:00Z37.32-79.219.418.3140310.029.7992131008.1TRUELIFR1.320.017.8METAR295.02018-07-22 11:57:38 ‘㵑‚©¹)‚5    3KBUY 221154Z AUTO 00000KT 10SM BKN004 BKN010 21/20 A2976 RMK AO2 CIG 003V007 SLP071 6//// 7//// T02110200 10211 20200 53008 $KBUY2018-07-22T11:54:00Z36.05-79.4721.120.00010.029.7608261007.1TRUETRUETRUELIFR0.821.120.0METAR180.02018-07-22 11:57:38‚(©¹)‚ 5       3KBUF 221154Z 05013KT 8SM -RA BKN008 OVC011 17/17 A2972 RMK AO2 CIG 004V009 SLP060 P0018 60087 70103 T01720167 10172 20156 58017KBUF2018-07-22T11:54:00Z42.93-78.7317.216.750138.029.7194881006.0TRUE-RAIFR-1.717.215.60.180.871.03METAR211.02018-07-22 11:57:38‚©¹)s5      3KBTV 221154Z 10008KT 10SM BKN085 OVC110 21/09 A3003 RMK AO2 RAB14E25 SLP168 P0000 60000 T02060094 10206 20189 58002KBTV2018-07-22T11:54:00Z44.47-73.1520.69.4100810.030.0295281016.8TRUEVFR-0.220.618.90.0050.005METAR105.02018-07-22 11:57:38 ã肍©¹)K5     3KCEU 221154Z AUTO 34003KT 10SM CLR 21/19 A2979 RMK AO2 SLP079 70132 T02060194 10206 20194 51013KCEU2018-07-22T11:54:00Z34.67-82.8820.619.4340310.029.7903541007.9TRUETRUEVFR1.320.619.41.32METAR268.02018-07-22 11:57:38H©¹) 5    3KCCU 221154Z AUTO 00000KT 10SM SCT095 OVC110 12/05 A3075 RMK AO2KCCU2018-07-22T11:54:00Z39.48-106.1512.05.00010.030.75TRUETRUEVFRMETAR3680.02018-07-22 11:57:38u©¹)?5    3KCAR 221154Z AUTO 00000KT 10SM CLR 21/14 A3021 RMK AO2 SLP229 T02060144 10206 20144 51009KCAR2018-07-22T11:54:00Z46.87-68.0220.614.40010.030.2096461022.9TRUETRUEVFR0.920.614.4METAR191.02018-07-22 11:57:38‚©¹)q5     3KBWI 221154Z 16003KT 10SM SCT005 SCT008 BKN140 BKN250 18/17 A2980 RMK AO2 SLP091 70479 T01830172 10189 20172 51030KBWI2018-07-22T11:54:00Z39.17-76.6818.317.2160310.029.7992131009.1TRUEBKN25000VFR3.018.917.24.79METAR59.02018-07-22 11:57:38 ² õ²‚=©¹!)‚+5       3KCRW 221154Z 00000KT 4SM -RA BR SCT000 SCT018 OVC029 19/19 A2972 RMK AO2 RAB27 SLP057 FG SCT000 P0002 60002 70002 T01940194 10200 20183 53006 $KCRW2018-07-22T11:54:00Z38.38-81.5819.419.4004.029.7194881005.7TRUETRUE-RA BRMVFR0.620.018.30.020.020.02METAR309.02018-07-22 11:57:38‚©¹ )g5     3KCOS 221154Z 02003KT 10SM FEW140 FEW180 SCT250 17/13 A3024 RMK AO2 SLP157 70008 T01670133 10211 20161 55005 $KCOS2018-07-22T11:54:00Z38.82-104.6816.713.320310.030.2391741015.7TRUETRUEVFR-0.521.116.10.08METAR1856.02018-07-22 11:57:38n©¹)55    3KCOU 221154Z 33008KT 10SM CLR 20/18 A2997 RMK AO2 SLP138 T02000178 10222 20194 53008KCOU2018-07-22T11:54:00Z38.82-92.2220.017.8330810.029.9704721013.8TRUEVFR0.822.219.4METAR271.02018-07-22 11:57:38 È̿ȁq©¹$);5    3KDSM 221154Z 33005KT 10SM BKN250 19/17 A3003 RMK AO2 SLP162 T01940167 10217 20183 53012KDSM2018-07-22T11:54:00Z41.53-93.6719.416.7330510.030.0295281016.2TRUEVFR1.221.718.3METAR295.02018-07-22 11:57:38‚©¹#)Y5    3KDEC 221154Z 35014G18KT 9SM SCT009 BKN021 20/19 A2984 RMK AO2 SLP099 70016 T02000194 10206 20200 53007KDEC2018-07-22T11:54:00Z39.83-88.8520.019.435014189.029.8405511009.9TRUEMVFR0.720.620.00.16METAR207.02018-07-22 11:57:38‚.©¹")‚ 5       3KDDH 221154Z AUTO 12008KT 10SM -RA BKN019 BKN046 OVC090 19/16 A2996 RMK AO2 SLP139 P0001 60003 70003 T01890156 10194 20178 56006KDDH2018-07-22T11:54:00Z42.9-73.2518.915.6120810.029.9586621013.9TRUETRUE-RAMVFR-0.619.417.80.010.030.03METAR244.02018-07-22 11:57:38 •Ö֕‚;©¹')‚-5      3KDYL 221154Z AUTO 19005KT 10SM BKN007 BKN012 OVC085 21/20 A2982 RMK AO2 RAE1059 CIG 005V009 SLP095 P0000 60016 70116 T02060200 10228 20206 53041KDYL2018-07-22T11:54:00Z40.33-75.1220.620.0190510.029.8198811009.5TRUETRUEIFR4.122.820.60.0050.161.16METAR117.02018-07-22 11:57:38z©¹&)G5     3KECG 221154Z 15007KT 10SM FEW012 27/26 A2981 RMK AO2 SLP094 70054 T02670256 10267 20222 53011KECG2018-07-22T11:54:00Z36.27-76.1826.725.6150710.029.8110241009.4TRUEVFR1.126.722.20.54METAR11.02018-07-22 11:57:38‚$©¹%)u5       3KDSV 221154Z AUTO 31003KT 2SM -RA BR OVC003 17/16 A2971 RMK AO2 SLP068 P0021 60103 70124 T01720161 10172 20150 56019KDSV2018-07-22T11:54:00Z42.57-77.7217.216.131032.029.710631006.8TRUETRUE-RA BRLIFR-1.917.215.00.211.031.24METAR198.02018-07-22 11:57:38 üûüy©¹*)G5     3KEWN 221154Z 17005KT 10SM SCT110 26/24 A2981 RMK AO2 SLP094 70001 T02560244 10256 20228 53009KEWN2018-07-22T11:54:00Z35.07-77.0525.624.4170510.029.8110241009.4TRUEVFR0.925.622.80.01METAR3.02018-07-22 11:57:38‚©¹))S5     3KEVV 221154Z VRB06KT 10SM OVC019 21/20 A2979 RMK AO2 SLP083 60003 70006 T02060200 10217 20206 51008KEVV2018-07-22T11:54:00Z38.05-87.5220.620.00610.029.7903541008.3TRUEMVFR0.821.720.60.030.06METAR117.02018-07-22 11:57:38u©¹()?5    3KEUG 221154Z AUTO 00000KT 10SM CLR 11/09 A3014 RMK AO2 SLP204 T01110094 10156 20106 51003KEUG2018-07-22T11:54:00Z44.13-123.2211.19.40010.030.1387791020.4TRUETRUEVFR0.315.610.6METAR114.02018-07-22 11:57:38 ÏˬρW©¹-)5    3KFTG 221154Z AUTO 23007KT 140V240 10SM CLR 20/12 A3016 RMK AO2 T02020122KFTG2018-07-22T11:54:00Z39.78-104.5520.212.2230710.030.159449TRUETRUEVFRMETAR1675.02018-07-22 11:57:38‚©¹,)s5      3KFWA 221154Z 04007KT 5SM BR OVC009 21/20 A2976 RMK AO2 CIG 007V012 SLP072 60001 70046 T02060200 10211 20206 53011 $KFWA2018-07-22T11:54:00Z40.98-85.1820.620.04075.029.7608261007.2TRUETRUEBRIFR1.121.120.60.010.46METAR248.02018-07-22 11:57:38‚/©¹+)‚5       3KFIG 221154Z AUTO 20004KT 1 1/2SM BR OVC003 16/15 A2977 RMK AO2 RAB08E30B34E53 SLP076 P0001 60073 70116 T01560150 10156 20144 53015KFIG2018-07-22T11:54:00Z41.05-78.4215.615.020041.529.7696861007.6TRUETRUEBRLIFR1.515.614.40.010.731.16METAR462.02018-07-22 11:57:38 Ý+!‚©¹1)O5     3KGCN 221154Z AUTO 00000KT 10SM CLR 10/09 A3036 RMK AO2 SLP213 70007 T01000094 10139 20100 53003 $KGCN2018-07-22T11:54:00Z35.95-112.1510.09.40010.030.3602371021.3TRUETRUETRUEVFR0.313.910.00.07METAR2016.02018-07-22 11:57:38‚©¹0)K5     3KGCK 221154Z AUTO 12011KT 10SM CLR 22/17 A3002 RMK AO2 SLP125 60000 T02220172 10244 20222 55002KGCK2018-07-22T11:54:00Z37.92-100.7222.217.21201110.030.020671012.5TRUETRUEVFR-0.224.422.20.005METAR877.02018-07-22 11:57:38,©¹/(_5   3KFWS 221154Z 19003KT 10SM SKC 26/17 A2994KFWS2018-07-22T11:54:00Z32.57-97.326.017.0190310.029.940945VFRMETAR208.02018-07-22 11:57:38‚©¹.)s5    3KFZY 221154Z AUTO 11007G21KT 070V170 10SM OVC019 21/15 A2978 RMK AO2 SLP080 60015 70015 T02060150 10222 20172 56021KFZY2018-07-22T11:54:00Z43.35-76.3820.615.011072110.029.7785431008.0TRUETRUEMVFR-2.122.217.20.150.15METAR138.02018-07-22 11:57:38 ìÙó삍©¹4)M5     3KMFI 221154Z AUTO 02010KT 9SM FEW028 18/15 A3003 RMK AO2 SLP167 T01780150 10178 20161 53004 TSNOKMFI2018-07-22T11:54:00Z44.63-90.1817.815.020109.030.0295281016.7TRUETRUETRUEVFR0.417.816.1METAR389.02018-07-22 11:57:38`©¹3)'5    3KMEM 221154Z 00000KT 10SM FEW250 25/19 A2989 RMK AO2 SLP117 T02440189 53012 $KMEM2018-07-22T11:54:00Z35.07-89.9824.418.90010.029.8907471011.7TRUETRUEVFR1.2METAR86.02018-07-22 11:57:38‚!©¹2)}5     3KGED 221154Z AUTO 18005KT 10SM FEW010 SCT016 OVC039 22/21 A2985 RMK AO2 SLP108 60000 70198 T02170206 10222 20211 53020 $KGED2018-07-22T11:54:00Z38.68-75.3721.720.6180510.029.849411010.8TRUETRUETRUEVFR2.022.221.10.0051.98METAR19.02018-07-22 11:57:38 Êνʁm©¹7)55    3KMKC 221154Z 35004KT 10SM CLR 21/18 A3001 RMK AO2 SLP156 T02110178 10250 20211 51010KMKC2018-07-22T11:54:00Z39.12-94.621.117.8350410.030.0088581015.6TRUEVFR1.025.021.1METAR227.02018-07-22 11:57:38‚ ©¹6)]5     3KMIV 221154Z AUTO VRB04KT 10SM OVC013 21/20 A2985 RMK AO2 SLP106 60006 70167 T02110200 10222 20206 51029KMIV2018-07-22T11:54:00Z39.37-75.0821.120.00410.029.849411010.6TRUETRUEMVFR2.922.220.60.061.67METAR23.02018-07-22 11:57:38‚,©¹5)‚5      3KMGJ 221154Z AUTO 13006KT 10SM FEW023 SCT027 OVC047 23/21 A2984 RMK AO2 RAE23 SLP102 P0000 60017 70030 T02330211 10233 20172 53004KMGJ2018-07-22T11:54:00Z41.52-74.2723.321.1130610.029.8405511010.2TRUETRUEVFR0.423.317.20.0050.170.3METAR108.02018-07-22 11:57:38  v©¹:)?5    3KMVL 221154Z AUTO 00000KT 10SM CLR 14/12 A3009 RMK AO2 SLP190 T01440117 10144 20100 58002KMVL2018-07-22T11:54:00Z44.53-72.6214.411.70010.030.0885831019.0TRUETRUEVFR-0.214.410.0METAR234.02018-07-22 11:57:38‚©¹9)S5     3KMOT 221154Z 12007KT 8SM BKN005 OVC013 19/17 A2998 RMK AO2 SLP145 70002 T01890172 10189 20161 55003KMOT2018-07-22T11:54:00Z48.25-101.2718.917.212078.029.979331014.5TRUEIFR-0.318.916.10.02METAR519.02018-07-22 11:57:38q©¹8);5    3KMRY 221154Z 00000KT 10SM OVC004 16/14 A3007 RMK AO2 SLP192 T01560144 10161 20150 55002KMRY2018-07-22T11:54:00Z36.58-121.8515.614.40010.030.0708661019.2TRUELIFR-0.216.115.0METAR66.02018-07-22 11:57:38 úx©¹=)?5    3KOLS 221154Z AUTO 10004KT 10SM CLR 20/17 A3015 RMK AO2 SLP138 T02000167 10250 20200 53003KOLS2018-07-22T11:54:00Z31.42-110.8520.016.7100410.030.150591013.8TRUETRUEVFR0.325.020.0METAR1184.02018-07-22 11:57:38q©¹<)?5    3KOLM 221154Z AUTO 00000KT 10SM CLR 09/09 A3019 RMK AO2 SLP225 T00940089 10172 20089 50000KOLM2018-07-22T11:54:00Z46.97-122.99.48.90010.030.1889761022.5TRUETRUEVFR0.017.28.9METAR58.02018-07-22 11:57:38‚©¹;)Q5     3KOFP 221154Z AUTO 00000KT 10SM BKN080 20/19 A2982 RMK AO2 SLP095 70154 T02000189 10200 20172 53022KOFP2018-07-22T11:54:00Z37.7-77.4320.018.90010.029.8198811009.5TRUETRUEVFR2.220.017.21.54METAR62.02018-07-22 11:57:38 Þèèނ©¹@)a5    3KPIA 221154Z 35007KT 10SM BKN009 BKN040 20/18 A2988 RMK AO2 CIG 008V012 SLP113 T02000183 10206 20194 53005KPIA2018-07-22T11:54:00Z40.67-89.6820.018.3350710.029.8789371011.3TRUEIFR0.520.619.4METAR205.02018-07-22 11:57:38z©¹?)G5     3KPHF 221154Z 11005KT 10SM OVC013 23/21 A2980 RMK AO2 SLP091 70116 T02280206 10228 20189 53006KPHF2018-07-22T11:54:00Z37.13-76.522.820.6110510.029.7992131009.1TRUEMVFR0.622.818.91.16METAR12.02018-07-22 11:57:38‚©¹>)e5     3KPHL 221154Z 19010KT 10SM BKN009 OVC012 21/20 A2983 RMK AO2 SLP102 60007 70084 T02110200 10228 20206 51047 $KPHL2018-07-22T11:54:00Z39.87-75.2321.120.01901010.029.8287411010.2TRUETRUEIFR4.722.820.60.070.84METAR18.02018-07-22 11:57:38 ÊíÔʂ©¹C)K5     3KTAD 221154Z AUTO 25012KT 10SM CLR 17/10 A3021 RMK AO2 SLP132 70003 T01720100 10206 20150 53001KTAD2018-07-22T11:54:00Z37.27-104.3317.210.02501210.030.2096461013.2TRUETRUEVFR0.120.615.00.03METAR1756.02018-07-22 11:57:38‚©¹B)g5    3KSYR 221154Z 10020G24KT 10SM BKN022 BKN250 19/17 A2978 RMK AO2 SLP077 60019 70019 T01890167 10211 20167 55014KSYR2018-07-22T11:54:00Z43.12-76.118.916.7100202410.029.7785431007.7TRUEMVFR-1.421.116.70.190.19METAR127.02018-07-22 11:57:38‚ ©¹A)[5      3KPLN 221154Z AUTO 05005KT 5SM BR CLR 20/19 A2996 RMK AO2 SLP143 60001 70035 T02000189 10206 20194 53009KPLN2018-07-22T11:54:00Z45.57-84.820.018.95055.029.9586621014.3TRUETRUEBRMVFR0.920.619.40.010.35METAR217.02018-07-22 11:57:38    y©¹F)E5    3KUZA 221154Z AUTO VRB04KT 10SM BKN004 21/21 A2976 RMK AO2 SLP064 T02110206 10217 20200 50002KUZA2018-07-22T11:54:00Z34.98-81.0521.120.60410.029.7608261006.4TRUETRUELIFR0.221.720.0METAR202.02018-07-22 11:57:38t©¹E)=5    3KUIN 221154Z AUTO 34006KT 9SM CLR 19/17 A2993 RMK AO2 SLP129 T01890172 10211 20183 53005KUIN2018-07-22T11:54:00Z39.95-91.218.917.234069.029.9291341012.9TRUETRUEVFR0.521.118.3METAR234.02018-07-22 11:57:38u©¹D)=5    3KTQE 221154Z AUTO 02003KT 8SM CLR 17/17 A3005 RMK AO2 SLP163 T01720172 10189 20167 58002KTQE2018-07-22T11:54:00Z41.77-96.1817.217.22038.030.0501981016.3TRUETRUEVFR-0.218.916.7METAR312.02018-07-22 11:57:38 ”ž”‚©¹I)Q5     3KWAL 221154Z AUTO 15005KT 10SM OVC018 24/22 A2984 RMK AO2 SLP101 70177 T02390222 10239 20211 51017KWAL2018-07-22T11:54:00Z37.93-75.4723.922.2150510.029.8405511010.1TRUETRUEMVFR1.723.921.11.77METAR14.02018-07-22 11:57:38‚©¹H)q5       3KVSF 221154Z AUTO 06007KT 10SM -RA OVC022 17/14 A3008 RMK AO2 RAB33 SLP183 P0000 60000 T01720139 10172 20144 58002KVSF2018-07-22T11:54:00Z43.35-72.5217.213.960710.030.0797251018.3TRUETRUE-RAMVFR-0.217.214.40.0050.005METAR175.02018-07-22 11:57:38‚8©¹G)‚5       3KVAY 221154Z AUTO 21006KT 5SM BR FEW008 BKN015 OVC020 21/21 A2983 RMK AO2 RAB00E29 SLP102 P0001 60022 70122 T02110211 10233 20211 53030 $KVAY2018-07-22T11:54:00Z39.93-74.8321.121.121065.029.8287411010.2TRUETRUETRUEBRMVFR3.023.321.10.010.221.22METAR15.02018-07-22 11:57:38 ê÷áêq©¹L);5    3PAKN 221154Z 05004KT 10SM BKN240 12/10 A3018 RMK AO2 SLP220 T01170100 10172 20111 58007PAKN2018-07-22T11:54:00Z58.68-156.6511.710.050410.030.1801191022.0TRUEVFR-0.717.211.1METAR17.02018-07-22 11:57:38‚©¹K)[5     3KWLD 221154Z AUTO 08008KT 10SM CLR 22/19 A3001 RMK AO2 SLP147 60001 70001 T02220189 10250 20211 51009 $KWLD2018-07-22T11:54:00Z37.17-97.0322.218.980810.030.0088581014.7TRUETRUETRUEVFR0.925.021.10.010.01METAR350.02018-07-22 11:57:38‚©¹J)Q5     3KVTA 221154Z AUTO 06005KT 10SM OVC012 18/17 A2973 RMK AO2 SLP063 70050 T01830172 10200 20183 53011KVTA2018-07-22T11:54:00Z40.02-82.4718.317.260510.029.7312981006.3TRUETRUEMVFR1.120.018.30.5METAR268.02018-07-22 11:57:38 ¤ß¡¤w©¹O)?5    3KRBL 221154Z AUTO 16003KT 10SM CLR 25/14 A2998 RMK AO2 SLP147 T02500139 10300 20250 51009KRBL2018-07-22T11:54:00Z40.15-122.2525.013.9160310.029.979331014.7TRUETRUEVFR0.930.025.0METAR104.02018-07-22 11:57:38‚8©¹N)‚5      3KPSF 221154Z AUTO 06010G18KT 3SM -RA BR SCT011 SCT017 OVC041 18/16 A2995 RMK AO2 SLP119 P0003 60006 70006 T01780156 10178 20156 55005KPSF2018-07-22T11:54:00Z42.43-73.2817.815.66010183.029.9498021011.9TRUETRUE-RA BRMVFR-0.517.815.60.030.060.06METAR355.02018-07-22 11:57:38‚©¹M)y5      3KPNE 221154Z 21006KT 10SM FEW007 OVC010 22/20 A2984 RMK AO2 RAE17 SLP105 P0002 60011 70100 T02220200 10239 20222 53044KPNE2018-07-22T11:54:00Z40.08-75.0222.220.0210610.029.8405511010.5TRUEMVFR4.423.922.20.020.111.0METAR28.02018-07-22 11:57:38 Üîç܂©¹R)W5    3KIZG 221154Z AUTO 01004KT 10SM FEW019 BKN070 16/14 A3019 RMK AO2 SLP222 T01610144 10161 20089 51005 $KIZG2018-07-22T11:54:00Z43.98-70.9516.114.410410.030.1889761022.2TRUETRUETRUEVFR0.516.18.9METAR135.02018-07-22 11:57:38‚©¹Q)U5     3KJAN 221154Z 22005KT 10SM FEW060 FEW110 26/23 A2988 RMK AO2 SLP114 70001 T02610233 10278 20250 51008KJAN2018-07-22T11:54:00Z32.32-90.0826.123.3220510.029.8789371011.4TRUEVFR0.827.825.00.01METAR91.02018-07-22 11:57:38‚ ©¹P)]5     3KPTW 221154Z AUTO VRB04KT 10SM OVC010 19/19 A2984 RMK AO2 SLP099 60007 70098 T01940189 10222 20189 51051KPTW2018-07-22T11:54:00Z40.23-75.5519.418.90410.029.8405511009.9TRUETRUEMVFR5.122.218.90.070.98METAR92.02018-07-22 11:57:38 -÷ßà--©¹V(e5   3KBBG 221154Z 00000KT 10SM FEW250 19/19 A3001KBBG2018-07-22T11:54:00Z36.53-93.219.019.00010.030.008858VFRMETAR397.02018-07-22 11:57:38y©¹U)Q5    3CYPY 221154Z AUTO 01012KT 9SM BKN012 BKN027 BKN046 OVC095 14/14 A2990 RMK SLP133 DENSITY ALT 800FTCYPY2018-07-22T11:54:00Z58.77-111.1214.014.010129.029.8996071013.3TRUEOVC9500MVFRSPECI232.02018-07-22 11:57:38‚©¹T)a5      3KJST 221154Z AUTO 23008KT 4SM BR OVC002 15/14 A2978 RMK AO2 SLP078 60001 70018 T01500139 10150 20139 50007KJST2018-07-22T11:54:00Z40.32-78.8315.013.923084.029.7785431007.8TRUETRUEBRLIFR0.715.013.90.010.18METAR694.02018-07-22 11:57:38‚©¹S)O5     3KISW 221154Z AUTO 35008KT 10SM OVC018 18/14 A3002 RMK AO2 SLP165 T01830144 10183 20172 53005 TSNOKISW2018-07-22T11:54:00Z44.37-89.8318.314.4350810.030.020671016.5TRUETRUETRUEMVFR0.518.317.2METAR307.02018-07-22 11:57:38 £ÊÄ£‚©¹Y)w5      3KIPT 221154Z 32003KT 10SM OVC013 18/16 A2973 RMK AO2 RAE21B28E37 SLP065 P0002 60114 70270 T01780161 10178 20161 53029KIPT2018-07-22T11:54:00Z41.25-76.9217.816.1320310.029.7312981006.5TRUEMVFR2.917.816.10.021.142.7METAR164.02018-07-22 11:57:38‚©¹X)K5     3KAAO 221154Z AUTO 08003KT 10SM CLR 21/19 A3002 RMK AO2 SLP152 60000 T02110189 10239 20211 51016KAAO2018-07-22T11:54:00Z37.75-97.2221.118.980310.030.020671015.2TRUETRUEVFR1.623.921.10.005METAR434.02018-07-22 11:57:38‚0©¹W)‚5       3KIND 221154Z 34008KT 4SM BR BKN008 OVC022 21/20 A2974 RMK AO2 RAE14 CIG 006V012 SLP063 P0001 60013 70057 T02060200 10206 20200 53007 $KIND2018-07-22T11:54:00Z39.72-86.320.620.034084.029.7401581006.3TRUETRUEBRIFR0.720.620.00.010.130.57METAR241.02018-07-22 11:57:38 Ë ˂3©¹\)‚5      3KRIC 221154Z 12006KT 10SM SCT048 BKN075 BKN150 20/18 A2980 RMK AO2 RAB00E11B40E49 SLP095 P0000 60000 70128 T02000183 10200 20183 53017 $KRIC2018-07-22T11:54:00Z37.52-77.3220.018.3120610.029.7992131009.5TRUETRUEVFR1.720.018.30.0050.0051.28METAR50.02018-07-22 11:57:38©¹[)U5     3KROA 221154Z 00000KT 10SM SCT021 OVC130 20/18 A2981 RMK AO2 SLP081 70020 T02000178 10200 20183 53006KROA2018-07-22T11:54:00Z37.32-79.9720.017.80010.029.8110241008.1TRUEVFR0.620.018.30.2METAR362.02018-07-22 11:57:38q©¹Z);5    3KSUS 221154Z 32005KT 10SM SCT016 22/19 A2989 RMK AO2 SLP113 T02170189 10233 20211 50007KSUS2018-07-22T11:54:00Z38.65-90.6521.718.9320510.029.8907471011.3TRUEVFR0.723.321.1METAR141.02018-07-22 11:57:38 ƒÖ¿ƒ‚6©¹_)‚#5     3KROC 221154Z 07014G20KT 10SM BKN012 OVC018 18/17 A2973 RMK AO2 PK WND 07026/1100 RAE17 SLP069 P0000 60066 70069 T01780167 10183 20178 56029KROC2018-07-22T11:54:00Z43.12-77.6817.816.770142010.029.7312981006.9TRUEMVFR-2.918.317.80.0050.660.69METAR178.02018-07-22 11:57:38‚©¹^)k5     3KRDG 221154Z 18005KT 10SM OVC009 21/20 A2978 RMK AO2 CIG 008V012 SLP089 60014 70113 T02060200 10228 20189 51031KRDG2018-07-22T11:54:00Z40.37-75.9720.620.0180510.029.7785431008.9TRUEIFR3.122.818.90.141.13METAR109.02018-07-22 11:57:38‚$©¹])}5       3KRFD 221154Z 35009KT 5SM -DZ BR BKN012 OVC025 19/18 A2991 RMK AO2 DZB34 SLP125 P0000 60000 T01940178 10206 20194 53008 $KRFD2018-07-22T11:54:00Z42.2-89.119.417.835095.029.9114171012.5TRUETRUE-DZ BRMVFR0.820.619.40.0050.005METAR221.02018-07-22 11:57:38 ëõ낍©¹b)S5     3KSBY 221154Z 14004KT 10SM OVC030 21/21 A2984 RMK AO2 SLP106 60002 70116 T02110211 10211 20206 51023KSBY2018-07-22T11:54:00Z38.33-75.521.121.1140410.029.8405511010.6TRUEMVFR2.321.120.60.021.16METAR19.02018-07-22 11:57:38‚ ©¹a)i5     3KSBN 221154Z 02008KT 5SM BR BKN007 OVC012 20/19 A2980 RMK AO2 SLP085 6//// 7//// T02000189 10200 20194 51006 $KSBN2018-07-22T11:54:00Z41.7-86.3220.018.92085.029.7992131008.5TRUETRUEBRIFR0.620.019.4METAR237.02018-07-22 11:57:38t©¹`)?5    3KRST 221154Z 02009KT 10SM OVC007 16/15 A3009 RMK AO2 SLP184 T01610150 10178 20156 52009 $KRST2018-07-22T11:54:00Z43.9-92.516.115.020910.030.0885831018.4TRUETRUEIFR0.917.815.6METAR403.02018-07-22 11:57:38 !ÿ![©¹f)#5     3K20V 221154Z AUTO 00000KT 10SM -RA SCT023 SCT044 BKN100 15/11 A3043 RMK AO2K20V2018-07-22T11:54:00Z40.05-106.3715.011.00010.030.431103TRUETRUE-RAVFRMETAR2259.02018-07-22 11:57:38z©¹e)I5    3KSLC 221154Z 13006KT 10SM FEW140 OVC180 24/16 A3013 RMK AO2 SLP139 T02390156 10256 20239 53009KSLC2018-07-22T11:54:00Z40.77-111.9723.915.6130610.030.1299211013.9TRUEVFR0.925.623.9METAR1286.02018-07-22 11:57:38w©¹d)?5    3KSJN 221154Z AUTO 00000KT 10SM CLR 20/15 A3028 RMK AO2 SLP141 T02000150 10244 20200 53004KSJN2018-07-22T11:54:00Z34.52-109.3820.015.00010.030.2805121014.1TRUETRUEVFR0.424.420.0METAR1745.02018-07-22 11:57:38{©¹c)E5    3KSET 221154Z AUTO 36009KT 10SM OVC014 21/18 A2989 RMK AO2 SLP118 T02110183 10233 20206 53010KSET2018-07-22T11:54:00Z38.93-90.4321.118.3360910.029.8907471011.8TRUETRUEMVFR1.023.320.6METAR134.02018-07-22 11:57:38 L7SL‚©¹j)Q5     3KAKQ 221154Z AUTO 00000KT 10SM OVC013 21/19 A2979 RMK AO2 SLP089 70184 T02110189 10211 20189 53009KAKQ2018-07-22T11:54:00Z36.98-77.021.118.90010.029.7903541008.9TRUETRUEMVFR0.921.118.91.84METAR34.02018-07-22 11:57:38F©¹i(5    3K4BM 221154Z AUTO 36008KT 10SM SCT120 13/02 A3070 RMK AO2K4BM2018-07-22T11:54:00Z39.05-105.5213.02.0360810.030.699802TRUETRUEVFRMETAR3438.02018-07-22 11:57:38‚©¹h)g5    3KACY 221154Z 22009G22KT 10SM BKN014 OVC019 23/21 A2986 RMK AO2 SLP109 60000 70122 T02280206 10233 20222 53037KACY2018-07-22T11:54:00Z39.45-74.5722.820.622092210.029.8612211010.9TRUEMVFR3.723.322.20.0051.22METAR23.02018-07-22 11:57:38C©¹g(y5    3K2V6 221154Z AUTO 12003KT 10SM CLR 16/15 A3009 RMK AO2K2V62018-07-22T11:54:00Z40.1-102.7216.015.0120310.030.088583TRUETRUEVFRMETAR1261.02018-07-22 11:57:38 ÷ðê÷m©¹m)95    3KALO 221154Z 03010KT 7SM OVC008 16/16 A3002 RMK AO2 SLP161 T01610161 10178 20156 53007KALO2018-07-22T11:54:00Z42.55-92.416.116.130107.030.020671016.1TRUEIFR0.717.815.6METAR264.02018-07-22 11:57:38‚©¹l)K5     3KAKR 221154Z AUTO 06005KT 10SM CLR 18/15 A2977 RMK AO2 SLP072 70001 T01830150 10200 20178 53008KAKR2018-07-22T11:54:00Z41.03-81.4718.315.060510.029.7696861007.2TRUETRUEVFR0.820.017.80.01METAR363.02018-07-22 11:57:38‚ ©¹k)]5      3KAKH 221154Z AUTO VRB03KT 1 3/4SM BR OVC002 20/19 A2975 RMK AO2 SLP068 70003 T02000194 10211 20194 51001KAKH2018-07-22T11:54:00Z35.2-81.1520.019.4031.7529.7490161006.8TRUETRUEBRLIFR0.121.119.40.03METAR243.02018-07-22 11:57:38 òúýò‚©¹p)Y5   3KAUW 221154Z AUTO 36009G15KT 10SM SCT016 BKN055 18/15 A3002 RMK AO2 SLP167 T01780150 10178 20167 53007KAUW2018-07-22T11:54:00Z44.93-89.6217.815.036091510.030.020671016.7TRUETRUEVFR0.717.816.7METAR362.02018-07-22 11:57:38w©¹o)?5    3KAPC 221154Z AUTO 27011KT 10SM CLR 16/13 A3004 RMK AO2 SLP164 T01560133 10172 20156 52005KAPC2018-07-22T11:54:00Z38.2-122.2815.613.32701110.030.0413381016.4TRUETRUEVFR0.517.215.6METAR13.02018-07-22 11:57:38‚©¹n)K5     3KAPN 221154Z AUTO 08007KT 10SM CLR 19/17 A2993 RMK AO2 SLP134 70025 T01940167 10194 20178 51008KAPN2018-07-22T11:54:00Z45.07-83.5719.416.780710.029.9291341013.4TRUETRUEVFR0.819.417.80.25METAR210.02018-07-22 11:57:38 òÿ\©¹t)5    3K1V4 221154Z AUTO 14/12 A3009 RMK AO1 SLP182 T01440122 10144 20117 58000 K1V42018-07-22T11:54:00Z44.42-72.0214.412.230.0885831018.2TRUETRUE0.014.411.7METAR210.02018-07-22 11:57:38‚ ©¹s)a5     3PGUM 221154Z 18006KT 8SM SCT028 BKN033 27/27 A2984 RMK AO2 SLP095 60004 70012 T02720272 10300 20272 51008 PGUM2018-07-22T11:54:00Z13.48144.827.227.218068.029.8405511009.5TRUEVFR0.830.027.20.040.12METAR91.02018-07-22 11:57:38^©¹r)/5    3CYYZ 221154Z 01010KT 8SM +RA OVC065 18/16 A2980 RMK NS8 SLP090 DENSITY ALT 1200FTCYYZ2018-07-22T11:54:00Z43.67-79.6218.016.010108.029.7992131009.0+RAVFRSPECI173.02018-07-22 11:57:38‚©¹q)Y5     3KAVL 221154Z 24003KT 10SM BKN036 OVC090 19/18 A2983 RMK AO2 SLP077 70013 T01940178 10200 20189 51010 $KAVL2018-07-22T11:54:00Z35.43-82.5319.417.8240310.029.8287411007.7TRUETRUEVFR1.020.018.90.13METAR670.02018-07-22 11:57:38 ÒþÊҁr©¹w)E5      3KJHW 221154Z AUTO 32003KT 2 1/2SM -RA BR BKN008 OVC025 14/14 A2977 RMK AO2 CIG 006V011 P0011KJHW2018-07-22T11:54:00Z42.13-79.2714.014.032032.529.769686TRUETRUE-RA BRIFR0.11METAR525.02018-07-22 11:57:38‚.©¹v)‚5       3KLAF 221154Z 34007KT 5SM -RA BR BKN008 BKN012 OVC060 20/20 A2976 RMK AO2 RAB13 SLP074 P0004 60007 70012 T02000200 10200 20200 53008KLAF2018-07-22T11:54:00Z40.42-86.9320.020.034075.029.7608261007.4TRUE-RA BRIFR0.820.020.00.040.070.12METAR182.02018-07-22 11:57:38|©¹u)I5     3PAHN 221154Z AUTO 00000KT 10SM CLR 13/12 A3029 RMK AO2 SLP261 T01330117 10178 20111 51006 TSNOPAHN2018-07-22T11:54:00Z59.25-135.5213.311.70010.030.289371026.1TRUETRUETRUEVFR0.617.811.1METAR5.02018-07-22 11:57:38 «óÍ«‚©¹z)y5      3PAOM 221153Z AUTO 10005KT 10SM OVC031 13/13 A3011 RMK SLP194 60003 70004 T01330133 10139 20133 58004 TSNO VIA AUTODIALPAOM2018-07-22T11:53:00Z64.5-165.4313.313.3100510.030.1092531019.4TRUETRUEVFR-0.413.913.30.030.04METAR11.02018-07-22 11:57:38‚ ©¹y)}5      3KRKS 221154Z AUTO 25009KT 10SM SCT095 SCT120 19/09 A3032 RMK AO2 RAB15E48 SLP170 P0000 60000 T01890089 10222 20189 51009KRKS2018-07-22T11:54:00Z41.6-109.0718.98.9250910.030.3188971017.0TRUETRUEVFR0.922.218.90.0050.005METAR2060.02018-07-22 11:57:38‚©¹x)_5     3KINT 221154Z 24003KT 10SM OVC006 22/20 A2977 RMK AO2 CIG 004V010 SLP070 70023 T02170200 10217 20200 53006KINT2018-07-22T11:54:00Z36.13-80.2221.720.0240310.029.7696861007.0TRUEIFR0.621.720.00.23METAR291.02018-07-22 11:57:38 ePKcex©¹~)?5    3KBRL 221153Z AUTO 36010KT 10SM CLR 19/17 A2994 RMK AO2 SLP134 T01890167 10211 20183 51009KBRL2018-07-22T11:53:00Z40.77-91.1318.916.73601010.029.9409451013.4TRUETRUEVFR0.921.118.3METAR211.02018-07-22 11:57:38b©¹})55   3MMGL 221153Z 00000KT 8SM FEW020 SCT080 BKN300 15/14 A3022 RMK SLP111 57006 951 8/577MMGL2018-07-22T11:53:00Z20.52-103.3215.014.0008.030.2214571011.1VFR-0.6METAR1528.02018-07-22 11:57:38©¹|)U5     3KVBG 221153Z AUTO 36003KT 2 3/4SM BR OVC001 15/14 A3006 RMK AO2 VIS 1 1/8V2 3/4 VIS 1 RWY12 SLP181 $KVBG2018-07-22T11:53:00Z34.73-120.5815.014.036032.7530.0590551018.1TRUETRUETRUEBRLIFRSPECI112.02018-07-22 11:57:38*©¹{(_5   3KXNA 221153Z 00000KT 10SM CLR 21/17 A2999KXNA2018-07-22T11:53:00Z36.28-94.321.017.00010.029.991142VFRMETAR392.02018-07-22 11:57:38 'ûq©º);5    3KOAK 221153Z 28009KT 10SM OVC008 16/14 A3006 RMK AO2 SLP177 T01610144 10167 20161 53003KOAK2018-07-22T11:53:00Z37.72-122.2316.114.4280910.030.0590551017.7TRUEIFR0.316.716.1METAR26.02018-07-22 11:57:38‚&©º)‚5      3KGGW 221153Z AUTO 30011KT 10SM CLR 19/18 A2995 RMK AO2 LTG DSNT E RAE35 TSE19 SLP128 P0000 60000 T01940178 10228 20194 53025KGGW2018-07-22T11:53:00Z48.22-106.6219.417.83001110.029.9498021012.8TRUETRUEVFR2.522.819.40.0050.005METAR694.02018-07-22 11:57:38S©¹)5   3KC07 221153Z AUTO 30007G14KT 240V360 10SM OVC090 12/06 A3064 RMK AO2KC072018-07-22T11:53:00Z40.35-106.712.06.030071410.030.640747TRUETRUEVFRMETAR3224.02018-07-22 11:57:38  u©º)?5    3KUAO 221153Z AUTO 06003KT 10SM CLR 15/11 A3015 RMK AO2 SLP207 T01500106 10194 20139 52000KUAO2018-07-22T11:53:00Z45.25-122.7715.010.660310.030.150591020.7TRUETRUEVFR0.019.413.9METAR59.02018-07-22 11:57:38|©º)I5    3KUIL 221153Z AUTO 00000KT 10SM SCT002 09/08 A3021 RMK AO2 SLP230 T00890078 10106 20083 58001 $KUIL2018-07-22T11:53:00Z47.93-124.558.97.80010.030.2096461023.0TRUETRUETRUEVFR-0.110.68.3METAR54.02018-07-22 11:57:38m©º)O5   3CYFO 221153Z 14009KT 15SM BKN090 OVC150 19/15 A2993 RMK AC5AC3 WND ESTD SLP139 DENSITY ALT 1800FTCYFO2018-07-22T11:53:00Z54.67-101.6719.015.0140915.029.9291341013.9VFRSPECI304.02018-07-22 11:57:38y©º)C5     3KPIL 221153Z AUTO 17005KT 5SM HZ CLR 27/24 A2996 RMK AO2 SLP144 T02670239 10278 20261 53004KPIL2018-07-22T11:53:00Z26.17-97.3326.723.917055.029.9586621014.4TRUETRUEHZMVFR0.427.826.1METAR5.02018-07-22 11:57:38 þøûþw©º)A5    3KLKV 221153Z AUTO 35008KT 10SM CLR 10/M02 A3026 RMK AO2 SLP705 T01001022 10183 20094 53008KLKV2018-07-22T11:53:00Z42.17-120.410.0-2.2350810.030.259842970.5TRUETRUEVFR0.818.39.4METAR1441.02018-07-22 11:57:38w©º)?5    3KLXT 221153Z AUTO 30004KT 10SM CLR 20/19 A3003 RMK AO2 SLP160 T02000189 10228 20183 53012KLXT2018-07-22T11:53:00Z38.97-94.3720.018.9300410.030.0295281016.0TRUETRUEVFR1.222.818.3METAR306.02018-07-22 11:57:38‚©º)U5     3KTYS 221153Z 23007KT 10SM FEW023 OVC055 21/20 A2979 RMK AO2 SLP077 70008 T02110200 10217 20206 53007KTYS2018-07-22T11:53:00Z35.82-83.9821.120.0230710.029.7903541007.7TRUEVFR0.721.720.60.08METAR302.02018-07-22 11:57:38 v©º )?5    3KUNO 221153Z AUTO 35005KT 10SM CLR 21/18 A2997 RMK AO2 SLP134 T02110178 10228 20200 53008KUNO2018-07-22T11:53:00Z36.88-91.921.117.8350510.029.9704721013.4TRUETRUEVFR0.822.820.0METAR372.02018-07-22 11:57:38x©º )C5    3KUTS 221153Z AUTO 22006KT 8SM BKN008 25/23 A2996 RMK AO2 SLP141 T02500233 10278 20250 53009KUTS2018-07-22T11:53:00Z30.75-95.5825.023.322068.029.9586621014.1TRUETRUEIFR0.927.825.0METAR104.02018-07-22 11:57:38x©º )?5    3KVCB 221153Z AUTO 22011KT 10SM CLR 19/12 A2997 RMK AO2 SLP146 T01890122 10244 20189 50006KVCB2018-07-22T11:53:00Z38.38-121.9518.912.22201110.029.9704721014.6TRUETRUEVFR0.624.418.9METAR33.02018-07-22 11:57:38 òùò‚©º)M5       3KVLD 221153Z AUTO VRB04KT 4SM BR OVC005 26/25 A2984 RMK AO2 SLP111 70044 T02560250 10256 20228 $KVLD2018-07-22T11:53:00Z30.78-83.2725.625.0044.029.8405511011.1TRUETRUETRUEBRIFR25.622.80.44METAR62.02018-07-22 11:57:38‚©º )K5     3KVEL 221153Z AUTO 28003KT 10SM CLR 22/12 A3022 RMK AO2 SLP151 60000 T02170117 10250 20200 53009KVEL2018-07-22T11:53:00Z40.45-109.5221.711.7280310.030.2214571015.1TRUETRUEVFR0.925.020.00.005METAR1604.02018-07-22 11:57:38w©º )?5    3KVGT 221153Z AUTO 33004KT 10SM CLR 26/16 A3004 RMK AO2 SLP164 T02610156 10289 20261 53007KVGT2018-07-22T11:53:00Z36.22-115.226.115.6330410.030.0413381016.4TRUETRUEVFR0.728.926.1METAR671.02018-07-22 11:57:38 öÿûö©º)M5    3KVPC 221153Z AUTO 00000KT 9SM CLR 21/21 A2983 RMK AO2 SLP090 7//// T02110211 10211 20194 53008 $KVPC2018-07-22T11:53:00Z34.13-84.8521.121.1009.029.8287411009.0TRUETRUETRUEVFR0.821.119.4METAR222.02018-07-22 11:57:38~©º)K5      3KVRB 221153Z 25008KT 4SM BR BKN003 26/26 A2993 RMK AO2 SLP134 70016 T02610256 10261 20244 51007KVRB2018-07-22T11:53:00Z27.65-80.4226.125.625084.029.9291341013.4TRUEBRLIFR0.726.124.40.16METAR10.02018-07-22 11:57:38{©º)A5    3KVIH 221153Z AUTO 33004KT 9SM CLR 19/17 A2996 RMK AO2 SLP133 T01890172 10206 20183 53006 $KVIH2018-07-22T11:53:00Z38.13-91.7718.917.233049.029.9586621013.3TRUETRUETRUEVFR0.620.618.3METAR333.02018-07-22 11:57:38 IGIx©º)?5    3KCNY 221153Z AUTO 27003KT 10SM CLR 24/09 A3013 RMK AO2 SLP131 T02390089 10278 20239 53005KCNY2018-07-22T11:53:00Z38.77-109.7523.98.9270310.030.1299211013.1TRUETRUEVFR0.527.823.9METAR1390.02018-07-22 11:57:38D©º(5    3KSOP 221153Z AUTO 14003KT 10SM FEW002 21/21 A2977 RMK AO2KSOP2018-07-22T11:53:00Z35.22-79.421.021.0140310.029.769686TRUETRUEVFRMETAR141.02018-07-22 11:57:38n©º)55    3KRVS 221153Z 36003KT 10SM CLR 23/19 A2997 RMK AO2 SLP151 T02280194 10267 20222 53013KRVS2018-07-22T11:53:00Z36.05-95.9822.819.4360310.029.9704721015.1TRUEVFR1.326.722.2METAR200.02018-07-22 11:57:38u©º)=5    3KMIW 221153Z AUTO 35007KT 7SM CLR 17/17 A3003 RMK AO2 SLP163 T01720172 10189 20167 53010KMIW2018-07-22T11:53:00Z42.12-92.9217.217.235077.030.0295281016.3TRUETRUEVFR1.018.916.7METAR296.02018-07-22 11:57:38 ðùôð~©º)E5   3KWRL 221153Z AUTO 35011G17KT 10SM CLR 20/09 A3008 RMK AO2 SLP132 T02000089 10211 20167 53021KWRL2018-07-22T11:53:00Z43.97-107.9520.08.9350111710.030.0797251013.2TRUETRUEVFR2.121.116.7METAR1271.02018-07-22 11:57:38©º)I5    3KWVI 221153Z AUTO 00000KT 10SM OVC006 14/14 A3006 RMK AO2 SLP180 T01440139 10156 20144 56001 $KWVI2018-07-22T11:53:00Z36.93-121.7814.413.90010.030.0590551018.0TRUETRUETRUEIFR-0.115.614.4METAR43.02018-07-22 11:57:38‚©º)U5     3KYIP 221153Z 03007KT 10SM FEW080 OVC100 22/19 A2980 RMK AO2 SLP083 70003 T02170189 10228 20217 53008KYIP2018-07-22T11:53:00Z42.23-83.5321.718.930710.029.7992131008.3TRUEVFR0.822.821.70.03METAR215.02018-07-22 11:57:38 ‚ ©º)c5    3KNUI 221153Z AUTO 08004KT 10SM CLR 21/20 A2981 RMK AO2 SLP093 6//// 7//// T02110200 10211 20189 53020 PNO $KNUI2018-07-22T11:53:00Z38.15-76.4321.120.080410.029.8110241009.3TRUETRUETRUEVFR2.021.118.9SPECI7.02018-07-22 11:57:38o©º);5    3KSAV 221153Z 23007KT 10SM SCT005 24/23 A2981 RMK AO2 SLP094 T02440233 10244 20233 53011KSAV2018-07-22T11:53:00Z32.12-81.224.423.3230710.029.8110241009.4TRUEVFR1.124.423.3METAR14.02018-07-22 11:57:38t©º)?5    3KVUO 221153Z AUTO 00000KT 10SM CLR 15/12 A3014 RMK AO2 SLP205 T01500122 10194 20139 58000KVUO2018-07-22T11:53:00Z45.62-122.6515.012.20010.030.1387791020.5TRUETRUEVFR0.019.413.9METAR8.02018-07-22 11:57:38 øýø‚©º)W5     3KNIP 221153Z 23009KT 7SM FEW007 SCT250 27/26 A2985 RMK AO2 SLP103 70016 T02720256 10272 20250 51003 $KNIP2018-07-22T11:53:00Z30.22-81.6727.225.623097.029.849411010.3TRUETRUEVFR0.327.225.00.16METAR7.02018-07-22 11:57:38v©º)E5     3KP68 221153Z AUTO 00000KT 16/13 A3030 RMK AO1 SLP177 60027 70069 T01560133 10161 20150 55006KP682018-07-22T11:53:00Z39.6-116.015.613.30030.3011821017.7TRUETRUE-0.616.115.00.69SPECI1809.02018-07-22 11:57:38}©º)C5    3KTCS 221153Z AUTO 00000KT 10SM CLR 24/10 A3017 RMK AO2 SLP113 T02440100 10289 20244 53010 $KTCS2018-07-22T11:53:00Z33.23-107.2724.410.00010.030.1712591011.3TRUETRUETRUEVFR1.028.924.4SPECI1469.02018-07-22 11:57:38 <÷;B<‚©º")C5    3KSDB 221153Z AUTO 34009KT 10SM CLR 21/12 A3021 RMK AO2 SLP170 T02060122 10233 20206 55002 $KSDB2018-07-22T11:53:00Z34.75-118.7220.612.2340910.030.2096461017.0TRUETRUETRUEVFR-0.223.320.6SPECI1377.02018-07-22 11:57:38s©º!)=5    3KMWT 221153Z AUTO 00000KT 8SM CLR 21/21 A2993 RMK AO2 SLP120 T02060206 10239 20206 53008KMWT2018-07-22T11:53:00Z34.55-93.5820.620.6008.029.9291341012.0TRUETRUEVFR0.823.920.6SPECI214.02018-07-22 11:57:386©º (u5     3KP92 221153Z AUTO VRB06KT A2994 RMK AO1 SLP140 52014KP922018-07-22T11:53:00Z29.57-91.530629.9409451014.0TRUETRUE1.4SPECI1.02018-07-22 11:57:38‚©º)[5    3KNQX 221153Z 26007KT 10SM FEW024 BKN250 29/24 A2997 RMK AO2 SLP147 T2 SET T02890244 10289 20278 50004 $KNQX2018-07-22T11:53:00Z24.57-81.6728.924.4260710.029.9704721014.7TRUETRUEVFR0.428.927.8METAR2.02018-07-22 11:57:38 þþ‚©º%)K5    3KAKO 221153Z AUTO 14005KT 10SM CLR 18/16 A3010 RMK AO2 SLP129 7//// T01780161 10217 20178 58001KAKO2018-07-22T11:53:00Z40.17-103.2217.816.1140510.030.1003931012.9TRUETRUEVFR-0.121.717.8METAR1421.02018-07-22 11:57:38y©º$)?5    3KAIA 221153Z AUTO 15009KT 10SM CLR 19/19 A3004 RMK AO2 SLP124 T01890189 10217 20189 55005KAIA2018-07-22T11:53:00Z42.05-102.818.918.9150910.030.0413381012.4TRUETRUEVFR-0.521.718.9METAR1196.02018-07-22 11:57:38w©º#)G5    3KACK 221153Z 13017KT 8SM BKN003 OVC016 21/21 A3007 RMK AO2 SLP182 T02110211 10211 20172 53006KACK2018-07-22T11:53:00Z41.25-70.0721.121.1130178.030.0708661018.2TRUELIFR0.621.117.2METAR16.02018-07-22 11:57:38 ôïôu©º()I5    3TISX 221153Z 10010KT 10SM SCT023 SCT060 28/24 A3002 RMK AO2 SLP165 T02780239 10283 20250 53008TISX2018-07-22T11:53:00Z17.7-64.827.823.91001010.030.020671016.5TRUEVFR0.828.325.0METAR19.02018-07-22 11:57:38‚©º')]5     3KZZV 221153Z AUTO 05003KT 10SM OVC015 18/16 A2974 RMK AO2 SLP064 60000 70025 T01830161 10200 20178 53011KZZV2018-07-22T11:53:00Z39.95-81.918.316.150310.029.7401581006.4TRUETRUEMVFR1.120.017.80.0050.25METAR268.02018-07-22 11:57:38w©º&)?5    3KYKM 221153Z AUTO 26007KT 10SM CLR 12/07 A3019 RMK AO2 SLP217 T01170067 10217 20117 53008KYKM2018-07-22T11:53:00Z46.57-120.5311.76.7260710.030.1889761021.7TRUETRUEVFR0.821.711.7METAR324.02018-07-22 11:57:38 Ú×ځw©º+)C5    3KAUG 221153Z AUTO 07003KT 8SM OVC003 15/14 A3020 RMK AO2 SLP226 T01500139 10150 20128 51005KAUG2018-07-22T11:53:00Z44.32-69.815.013.97038.030.2007871022.6TRUETRUELIFR0.515.012.8METAR109.02018-07-22 11:57:38‚%©º*)‚5       3KAZO 221153Z 03005KT 6SM BR BKN007 OVC021 22/19 A2981 RMK AO2 RAB1057E07 SLP090 P0000 60000 70002 T02170194 10217 20206 53008KAZO2018-07-22T11:53:00Z42.23-85.5521.719.43056.029.8110241009.0TRUEBRIFR0.821.720.60.0050.0050.02METAR272.02018-07-22 11:57:38x©º))G5     3TIST 221153Z 09009KT 10SM FEW030 29/22 A3002 RMK AO2 SLP167 60000 T02890222 10289 20261 53009TIST2018-07-22T11:53:00Z18.33-64.9828.922.290910.030.020671016.7TRUEVFR0.928.926.10.005METAR7.02018-07-22 11:57:38 Æ ØƂ ©º.)Y5      3KBEH 221153Z AUTO 04003KT 3SM BR OVC006 21/19 A2980 RMK AO2 SLP088 70011 T02060194 10206 20200 53006 $KBEH2018-07-22T11:53:00Z42.13-86.4220.619.44033.029.7992131008.8TRUETRUETRUEBRIFR0.620.620.00.11METAR191.02018-07-22 11:57:38‚-©º-)‚ 5      3KBAF 221153Z 07012G18KT 3SM -RA BR BKN008 BKN025 OVC033 19/19 A2996 RMK AO2 SLP142 P0028 60054 70054 T01940189 10194 20172 56010KBAF2018-07-22T11:53:00Z42.17-72.7219.418.97012183.029.9586621014.2TRUE-RA BRIFR-1.019.417.20.280.540.54METAR83.02018-07-22 11:57:38o©º,)55    3KAMA 221153Z 22007KT 10SM CLR 19/09 A3009 RMK AO2 SLP127 T01940089 10267 20189 53004KAMA2018-07-22T11:53:00Z35.22-101.7219.48.9220710.030.0885831012.7TRUEVFR0.426.718.9METAR1093.02018-07-22 11:57:38 Ùóق©º1)o5      3KBTL 221153Z 04007KT 4SM BR OVC010 21/19 A2982 RMK AO2 CIG 007V013 SLP092 60001 70009 T02060194 10206 20200 53012KBTL2018-07-22T11:53:00Z42.32-85.2320.619.44074.029.8198811009.2TRUEBRMVFR1.220.620.00.010.09METAR290.02018-07-22 11:57:38‚ ©º0)c5      3KBIV 221153Z AUTO 03006KT 6SM BR BKN008 OVC016 21/19 A2983 RMK AO2 SLP097 70138 T02110194 10211 20206 53010KBIV2018-07-22T11:53:00Z42.75-86.121.119.43066.029.8287411009.7TRUETRUEBRIFR1.021.120.61.38SPECI208.02018-07-22 11:57:38u©º/)?5    3KBGR 221153Z 12004KT 10SM BKN006 17/14 A3021 RMK AO2 SLP226 T01670139 10167 20100 50008 $KBGR2018-07-22T11:53:00Z44.8-68.8216.713.9120410.030.2096461022.6TRUETRUEIFR0.816.710.0METAR57.02018-07-22 11:57:38 ÕÕØՁ}©º4)C5    3KCEZ 221153Z AUTO 08003KT 10SM CLR 16/10 A3027 RMK AO2 SLP162 T01610100 10244 20150 53007 $KCEZ2018-07-22T11:53:00Z37.3-108.6316.110.080310.030.2687021016.2TRUETRUETRUEVFR0.724.415.0METAR1797.02018-07-22 11:57:38w©º3)?5    3KCDR 221153Z AUTO 22004KT 10SM CLR 21/18 A2998 RMK AO2 SLP121 T02060183 10233 20206 53000KCDR2018-07-22T11:53:00Z42.83-103.120.618.3220410.029.979331012.1TRUETRUEVFR0.023.320.6METAR1010.02018-07-22 11:57:38‚%©º2)5       3KBVY 221153Z 08008KT 1 3/4SM -RA BR OVC002 20/20 A3007 RMK AO2 RAB39 SLP178 P0001 60005 70005 T02000200 10200 20178 58004KBVY2018-07-22T11:53:00Z42.58-70.9220.020.08081.7530.0708661017.8TRUE-RA BRLIFR-0.420.017.80.010.050.05METAR28.02018-07-22 11:57:38 ×ÓÖׁy©º7)E5     3KDBQ 221153Z 36010KT 8SM OVC011 18/16 A2999 RMK AO2 SLP151 70008 T01830161 10189 20178 53015KDBQ2018-07-22T11:53:00Z42.4-90.718.316.1360108.029.9911421015.1TRUEMVFR1.518.917.80.08METAR326.02018-07-22 11:57:38w©º6)?5    3KCNM 221153Z AUTO 08004KT 10SM CLR 22/10 A3007 RMK AO2 SLP119 T02170100 10278 20217 53006KCNM2018-07-22T11:53:00Z32.33-104.2521.710.080410.030.0708661011.9TRUETRUEVFR0.627.821.7METAR985.02018-07-22 11:57:38‚'©º5)‚5      3KCMI 221153Z 33012KT 8SM BKN009 BKN016 20/20 A2982 RMK AO2 RAE38 CIG 007V013 SLP093 P0002 60003 70016 T02000200 10206 20194 53009KCMI2018-07-22T11:53:00Z40.03-88.2720.020.0330128.029.8198811009.3TRUEIFR0.920.619.40.020.030.16METAR228.02018-07-22 11:57:38 ‚©º:)Q5    3KEEO 221153Z AUTO 08004KT 10SM BKN110 18/11 A3033 RMK AO2 SLP168 60000 T01780106 10222 20178 53001KEEO2018-07-22T11:53:00Z40.05-107.8817.810.680410.030.330711016.8TRUETRUEVFR0.122.217.8SPECI1930.02018-07-22 11:57:38w©º9)?5    3KDMN 221153Z AUTO VRB03KT 10SM CLR 23/15 A3014 RMK AO2 SLP116 T02330150 10283 20228 53008KDMN2018-07-22T11:53:00Z32.27-107.7223.315.00310.030.1387791011.6TRUETRUEVFR0.828.322.8SPECI1311.02018-07-22 11:57:38w©º8)=5    3KDHT 221153Z AUTO 24009KT 8SM CLR 19/08 A3011 RMK AO2 SLP125 T01940083 10217 20167 55001KDHT2018-07-22T11:53:00Z36.02-102.5519.48.324098.030.1092531012.5TRUETRUEVFR-0.121.716.7SPECI1217.02018-07-22 11:57:38 rϱr‚9©º=)‚!5       3KFLD 221153Z AUTO 35009KT 1 3/4SM RA BR BKN005 OVC011 18/17 A2994 RMK AO2 CIG 004V009 SLP136 P0013 60015 70032 T01780167 10200 20178 53009KFLD2018-07-22T11:53:00Z43.77-88.4817.816.735091.7529.9409451013.6TRUETRUERA BRIFR0.920.017.80.130.150.32METAR240.02018-07-22 11:57:38‚©º<)u5    3KEWB 221153Z 13013G20KT 10SM OVC007 24/24 A3003 RMK AO2 CIG 005V012 SLP168 60004 70004 T02390239 10239 20189 53003 $KEWB2018-07-22T11:53:00Z41.68-70.9523.923.9130132010.030.0295281016.8TRUETRUEIFR0.323.918.90.04SPECI23.02018-07-22 11:57:38‚+©º;)‚5      3KENW 221153Z 36010G20KT 3SM -RA BR OVC004 19/19 A2987 RMK AO2 RAE43B48 SLP114 P0003 60004 70012 T01940194 10206 20194 53012 $KENW2018-07-22T11:53:00Z42.6-87.9319.419.436010203.029.8700791011.4TRUETRUE-RA BRLIFR1.220.619.40.030.12SPECI219.02018-07-22 11:57:38 |©º@)C5    3KFVE 221153Z AUTO 13003KT 10SM CLR 21/14 A3022 RMK AO2 SLP228 T02060139 10217 20172 51013 $KFVE2018-07-22T11:53:00Z47.28-68.320.613.9130310.030.2214571022.8TRUETRUETRUEVFR1.321.717.2METAR301.02018-07-22 11:57:38x©º?)?5    3KFST 221153Z AUTO 16009KT 10SM CLR 22/13 A3006 RMK AO2 SLP124 T02220128 10250 20217 53002KFST2018-07-22T11:53:00Z30.92-102.9222.212.8160910.030.0590551012.4TRUETRUEVFR0.225.021.7METAR918.02018-07-22 11:57:38y©º>)A5     3KFMN 221153Z 00000KT 10SM CLR 19/12 A3023 RMK AO2 SLP163 60000 T01940117 10272 20183 53013KFMN2018-07-22T11:53:00Z36.75-108.2319.411.70010.030.2303141016.3TRUEVFR1.327.218.30.005METAR1685.02018-07-22 11:57:38 ›Í·›‚©ºC)u5     3KGSH 221153Z AUTO 03007KT 2 1/2SM BR OVC010 21/21 A2978 RMK AO2 SLP080 6//// 7//// T02060206 10211 20200 51008 PNO $KGSH2018-07-22T11:53:00Z41.53-85.7820.620.63072.529.7785431008.0TRUETRUETRUEBRIFR0.821.120.0METAR252.02018-07-22 11:57:38‚©ºB)e5      3KGRR 221153Z 04006KT 4SM BR SCT009 OVC014 21/20 A2984 RMK AO2 SLP100 60000 70082 T02060200 10206 20206 53011KGRR2018-07-22T11:53:00Z42.88-85.5220.620.04064.029.8405511010.0TRUEBRMVFR1.120.620.60.0050.82METAR237.02018-07-22 11:57:38‚-©ºA)‚5      3KGFL 221153Z AUTO 02008KT 10SM FEW032 BKN050 OVC095 18/16 A2997 RMK AO2 RAE43 SLP147 P0000 60006 70006 T01780156 10194 20167 56006KGFL2018-07-22T11:53:00Z43.33-73.6217.815.620810.029.9704721014.7TRUETRUEVFR-0.619.416.70.0050.060.06METAR103.02018-07-22 11:57:38 âÞâv©ºF)?5    3KHUL 221153Z AUTO 14004KT 10SM CLR 19/14 A3021 RMK AO2 SLP229 T01940144 10194 20111 51007KHUL2018-07-22T11:53:00Z46.12-67.819.414.4140410.030.2096461022.9TRUETRUEVFR0.719.411.1METAR150.02018-07-22 11:57:38‚ ©ºE)‚5      3KHFD 221153Z 00000KT 10SM FEW018 BKN022 OVC027 22/21 A2994 RMK AO2 RAE43 SLP139 P0012 60069 70069 T02170211 10217 20194 53001KHFD2018-07-22T11:53:00Z41.73-72.6521.721.10010.029.9409451013.9TRUEMVFR0.121.719.40.120.690.69METAR4.02018-07-22 11:57:38v©ºD)?5    3KGUP 221153Z AUTO 00000KT 10SM CLR 16/10 A3035 RMK AO2 SLP079 T01560100 10228 20139 53008KGUP2018-07-22T11:53:00Z35.52-108.815.610.00010.030.3513771007.9TRUETRUEVFR0.822.813.9METAR1971.02018-07-22 11:57:38 èö÷è‚ ©ºI)O5     3KLAR 221153Z AUTO 17009KT 10SM CLR 13/10 A3032 RMK AO2 SLP171 70005 T01330100 10150 20122 53007 $KLAR2018-07-22T11:53:00Z41.32-105.6713.310.0170910.030.3188971017.1TRUETRUETRUEVFR0.715.012.20.05METAR2216.02018-07-22 11:57:38y©ºH)E5    3KIWI 221153Z AUTO 11005KT 10SM OVC009 17/15 A3020 RMK AO2 SLP227 T01720150 10172 20111 53004KIWI2018-07-22T11:53:00Z43.97-69.7217.215.0110510.030.2007871022.7TRUETRUEIFR0.417.211.1METAR20.02018-07-22 11:57:38‚©ºG)K5     3KITR 221153Z AUTO 16006KT 10SM CLR 19/18 A3009 RMK AO2 SLP129 70063 T01890178 10200 20178 56003KITR2018-07-22T11:53:00Z39.23-102.2818.917.8160610.030.0885831012.9TRUETRUEVFR-0.320.017.80.63METAR1279.02018-07-22 11:57:38 æý悍©ºL)e5     3KMDW 221153Z 34012KT 10SM BKN011 OVC021 22/20 A2982 RMK AO2 SLP090 60002 70006 T02170200 10217 20211 53010 $KMDW2018-07-22T11:53:00Z41.78-87.7521.720.03401210.029.8198811009.0TRUETRUEMVFR1.021.721.10.020.06METAR188.02018-07-22 11:57:38w©ºK)?5    3KLVS 221153Z AUTO 02004KT 10SM CLR 13/04 A3034 RMK AO2 SLP156 T01280039 10217 20128 53003KLVS2018-07-22T11:53:00Z35.65-105.1312.83.920410.030.3395671015.6TRUETRUEVFR0.321.712.8METAR2091.02018-07-22 11:57:38}©ºJ)W5    3KLEB 221153Z VRB04KT 10SM FEW026 BKN085 OVC110 19/12 A3008 RMK AO2 SLP177 T01890122 10189 20144 57001KLEB2018-07-22T11:53:00Z43.63-72.318.912.20410.030.0797251017.7TRUEVFR-0.118.914.4METAR171.02018-07-22 11:57:38 ¯è쯂7©ºO)‚5     3KMMK 221153Z AUTO 16006G15KT 10SM FEW012 BKN020 OVC039 23/21 A2993 RMK AO2 RAE52 SLP135 P0001 60062 70063 T02280206 10228 20189 53005 $KMMK2018-07-22T11:53:00Z41.52-72.8322.820.616061510.029.9291341013.5TRUETRUETRUEMVFR0.522.818.90.010.620.63METAR31.02018-07-22 11:57:38v©ºN)?5    3KMLT 221153Z AUTO 12003KT 10SM CLR 18/13 A3023 RMK AO2 SLP240 T01780128 10178 20122 53009KMLT2018-07-22T11:53:00Z45.65-68.717.812.8120310.030.2303141024.0TRUETRUEVFR0.917.812.2METAR123.02018-07-22 11:57:38‚©ºM)i5     3KMHT 221153Z 08007G17KT 8SM OVC008 18/17 A3008 RMK AO2 RAB16E45 SLP197 P0000 60000 T01780167 10178 20172 55002KMHT2018-07-22T11:53:00Z42.93-71.4317.816.7807178.030.0797251019.7TRUEIFR-0.217.817.20.0050.005METAR81.02018-07-22 11:57:38 Øüú؂©ºR)u5       3PABE 221153Z 13005KT 10SM -RA SCT075 OVC100 14/13 A3013 RMK AO2 RAB34 SLP205 P0000 60000 T01390128 10194 20139 58002PABE2018-07-22T11:53:00Z60.78-161.8313.912.8130510.030.1299211020.5TRUE-RAVFR-0.219.413.90.0050.005METAR41.02018-07-22 11:57:38|©ºQ)I5     3PAAQ 221153Z AUTO 00000KT 10SM CLR 11/09 A3032 RMK AO2 SLP269 T01110094 10211 20111 51009 TSNOPAAQ2018-07-22T11:53:00Z61.6-149.0811.19.40010.030.3188971026.9TRUETRUETRUEVFR0.921.111.1METAR73.02018-07-22 11:57:38~©ºP)U5    3KMSN 221153Z 35010KT 9SM SCT013 SCT039 BKN095 19/17 A2993 RMK AO2 SLP132 T01890167 10200 20183 50003KMSN2018-07-22T11:53:00Z43.13-89.3518.916.7350109.029.9291341013.2TRUEVFR0.320.018.3METAR261.02018-07-22 11:57:38 äýî䂍©ºU)O5     3PAKW 221153Z AUTO 18003KT 10SM OVC007 12/12 A3028 RMK AO2 SLP253 T01220117 10128 20106 55001 TSNOPAKW2018-07-22T11:53:00Z55.58-133.0712.211.7180310.030.2805121025.3TRUETRUETRUEIFR-0.112.810.6METAR15.02018-07-22 11:57:38‚ ©ºT)S5     3PADQ 221153Z AUTO 10008KT 10SM OVC018 13/11 A3031 RMK AO2 SLP264 T01330111 10144 20122 58005 TSNO $PADQ2018-07-22T11:53:00Z57.75-152.513.311.1100810.030.310041026.4TRUETRUETRUETRUEMVFR-0.514.412.2METAR34.02018-07-22 11:57:38}©ºS)I5     3PABI 221153Z AUTO 00000KT 10SM CLR 14/09 A3027 RMK AO2 SLP248 T01440094 10244 20144 51001 TSNOPABI2018-07-22T11:53:00Z64.0-145.7214.49.40010.030.2687021024.8TRUETRUETRUEVFR0.124.414.4METAR386.02018-07-22 11:57:38 ¼à¸¼v©ºX)?5    3KMTJ 221153Z AUTO 14007KT 10SM CLR 20/07 A3028 RMK AO2 SLP159 T02000067 10256 20200 53005KMTJ2018-07-22T11:53:00Z38.5-107.920.06.7140710.030.2805121015.9TRUETRUEVFR0.525.620.0METAR1750.02018-07-22 11:57:38‚"©ºW)}5       3KMSS 221153Z AUTO 06008KT 8SM -RA FEW075 OVC095 17/16 A2999 RMK AO2 SLP154 P0004 60005 70005 T01670156 10183 20133 53000KMSS2018-07-22T11:53:00Z44.93-74.8516.715.66088.029.9911421015.4TRUETRUE-RAVFR0.018.313.30.040.050.05METAR66.02018-07-22 11:57:38‚©ºV)k5       3PAPB 221153Z AUTO 15004KT 4SM BR OVC003 10/10 A2988 RMK AO2 SLP106 60031 70060 T01000100 10100 20094 58008 TSNOPAPB2018-07-22T11:53:00Z56.58-169.6710.010.015044.029.8789371010.6TRUETRUETRUEBRLIFR-0.810.09.40.310.6METAR35.02018-07-22 11:57:38 ÎÒ΁~©º[)U5    3KOVS 221153Z AUTO 35007KT 320V020 10SM OVC018 19/16 A3000 RMK AO2 SLP157 T01940156 10200 20194 53013KOVS2018-07-22T11:53:00Z43.15-90.6819.415.6350710.030.01015.7TRUETRUEMVFR1.320.019.4SPECI202.02018-07-22 11:57:38‚(©ºZ)‚ 5       3KOSH 221153Z 35012KT 2SM BR OVC009 18/17 A2994 RMK AO2 RAB19E53 CIG 006V012 SLP131 P0005 60005 70032 T01780172 10189 20178 53008KOSH2018-07-22T11:53:00Z43.97-88.5517.817.2350122.029.9409451013.1TRUEBRIFR0.818.917.80.050.050.32METAR248.02018-07-22 11:57:38z©ºY)K5   3KMVY 221153Z 14016G25KT 8SM OVC004 23/22 A3004 RMK AO2 SLP172 60000 T02280222 10228 20189 53002KMVY2018-07-22T11:53:00Z41.4-70.6222.822.214016258.030.0413381017.2TRUELIFR0.222.818.9SPECI16.02018-07-22 11:57:38 ¼Öͼ‚ ©º^)Y5    3KRME 221153Z 11013G22KT 10SM OVC021 20/17 A2985 RMK AO2 SLP103 60005 70005 T02000172 10211 20172 56017KRME2018-07-22T11:53:00Z43.22-75.420.017.2110132210.029.849411010.3TRUEMVFR-1.721.117.20.050.05METAR154.02018-07-22 11:57:38‚©º])K5     3KPUB 221153Z AUTO 22003KT 10SM CLR 19/16 A3012 RMK AO2 SLP138 70024 T01890156 10228 20189 55003KPUB2018-07-22T11:53:00Z38.28-104.518.915.6220310.030.1210631013.8TRUETRUEVFR-0.322.818.90.24METAR1420.02018-07-22 11:57:38‚$©º\)}5       3KOWD 221153Z 10007KT 4SM -RA BR OVC005 22/21 A3004 RMK AO2 RAE08B44 SLP172 P0000 60003 70003 T02170211 10217 20194 57001KOWD2018-07-22T11:53:00Z42.18-71.1721.721.110074.030.0413381017.2TRUE-RA BRIFR-0.121.719.40.0050.030.03METAR19.02018-07-22 11:57:38   u©ºa)?5    3KSAF 221153Z AUTO 01007KT 10SM CLR 18/02 A3029 RMK AO2 SLP132 T01830022 10250 20178 53008KSAF2018-07-22T11:53:00Z35.62-106.118.32.210710.030.289371013.2TRUETRUEVFR0.825.017.8SPECI1930.02018-07-22 11:57:38w©º`)?5    3KRTN 221153Z AUTO 34005KT 10SM CLR 15/04 A3028 RMK AO2 SLP152 T01500039 10211 20144 53004KRTN2018-07-22T11:53:00Z36.73-104.515.03.9340510.030.2805121015.2TRUETRUEVFR0.421.114.4SPECI1936.02018-07-22 11:57:38w©º_)?5    3KRQE 221153Z AUTO 00000KT 10SM CLR 16/11 A3035 RMK AO2 SLP136 T01560111 10222 20150 53006KRQE2018-07-22T11:53:00Z35.65-109.0715.611.10010.030.3513771013.6TRUETRUEVFR0.622.215.0METAR2055.02018-07-22 11:57:38 ÌÔḮ}©ºd)C5    3KTCC 221153Z AUTO 25007KT 10SM CLR 24/08 A3011 RMK AO2 SLP115 T02440083 10283 20233 53006 $KTCC2018-07-22T11:53:00Z35.18-103.624.48.3250710.030.1092531011.5TRUETRUETRUEVFR0.628.323.3SPECI1235.02018-07-22 11:57:38©ºc)K5     3KSDL 221153Z AUTO 00000KT 10SM CLR 29/16 A2998 RMK AO2 SLP121 70002 T02940161 10333 20294 53003KSDL2018-07-22T11:53:00Z33.62-111.9229.416.10010.029.979331012.1TRUETRUEVFR0.333.329.40.02METAR447.02018-07-22 11:57:38‚&©ºb)}5       3KSBM 221153Z AUTO 36007KT 9SM OVC005 19/18 A2991 RMK AO2 RAE02 SLP125 P0000 60004 70046 T01890183 10200 20183 53009 TSNOKSBM2018-07-22T11:53:00Z43.78-87.8518.918.336079.029.9114171012.5TRUETRUETRUEIFR0.920.018.30.0050.040.46METAR232.02018-07-22 11:57:38 Ž ͎‚9©ºg)‚5      3KWST 221153Z AUTO 16011G18KT 2 1/2SM -RA BR SCT005 BKN027 OVC055 22/22 A3001 RMK AO2 SLP163 P0035 60052 70064 T02170217 10228 20200 53010KWST2018-07-22T11:53:00Z41.35-71.821.721.716011182.530.0088581016.3TRUETRUE-RA BRIFR1.022.820.00.350.520.64METAR21.02018-07-22 11:57:38‚8©ºf)‚5      3KUUU 221153Z AUTO 18014G21KT 2 1/2SM RA BR OVC003 22/22 A3003 RMK AO2 RAB28 PRESRR SLP167 P0003 60004 70004 T02170217 10217 20194 53005KUUU2018-07-22T11:53:00Z41.53-71.2821.721.718014212.530.0295281016.7TRUETRUERA BRLIFR0.521.719.40.030.040.04METAR51.02018-07-22 11:57:38o©ºe)55    3KTUS 221153Z 25004KT 10SM CLR 27/17 A3007 RMK AO2 SLP127 T02720167 10322 20272 53000KTUS2018-07-22T11:53:00Z32.13-110.9527.216.7250410.030.0708661012.7TRUEVFR0.032.227.2SPECI776.02018-07-22 11:57:38 øüóøu©ºj)?5    3KCSM 221153Z AUTO 08008KT 10SM CLR 23/19 A2999 RMK AO2 SLP123 T02330194 10283 20233 53005KCSM2018-07-22T11:53:00Z35.35-99.223.319.480810.029.9911421012.3TRUETRUEVFR0.528.323.3METAR588.02018-07-22 11:57:38‚©ºi)Q5     3KCSV 221153Z AUTO 27006KT 10SM OVC007 19/18 A2984 RMK AO2 SLP086 70010 T01890178 10200 20183 53003KCSV2018-07-22T11:53:00Z35.95-85.0818.917.8270610.029.8405511008.6TRUETRUEIFR0.320.018.30.1METAR570.02018-07-22 11:57:38~©ºh)M5    3KHKS 221153Z 27007KT 10SM SCT070 SCT110 27/24 A2989 RMK AO2 SLP111 T02670239 10283 20261 51009 $KHKS2018-07-22T11:53:00Z32.33-90.2226.723.9270710.029.8907471011.1TRUETRUEVFR0.928.326.1METAR108.02018-07-22 11:57:38 y©ºm)C5     3KCRG 221153Z 24006KT 6SM BR SCT008 27/27 A2984 RMK AO2 SLP104 T02670267 10267 20250 51004 $KCRG2018-07-22T11:53:00Z30.33-81.5226.726.724066.029.8405511010.4TRUETRUEBRVFR0.426.725.0METAR13.02018-07-22 11:57:38v©ºl)?5    3KCRQ 221153Z AUTO 00000KT 10SM CLR 18/18 A3001 RMK AO2 SLP158 T01830178 10200 20183 57004KCRQ2018-07-22T11:53:00Z33.13-117.2818.317.80010.030.0088581015.8TRUETRUEVFR-0.420.018.3SPECI99.02018-07-22 11:57:38z©ºk)A5    3KCRS 221153Z AUTO 21007KT 9SM CLR 26/22 A2994 RMK AO2 SLP132 T02560222 10300 20256 51012 $KCRS2018-07-22T11:53:00Z32.03-96.425.622.221079.029.9409451013.2TRUETRUETRUEVFR1.230.025.6METAR133.02018-07-22 11:57:38  r©ºq)55     3KCOT 221153Z AUTO 13006KT 7SM CLR 24/23 A2997 RMK AO2 SLP138 T02390233 10289 20239 $KCOT2018-07-22T11:53:00Z28.45-99.2223.923.313067.029.9704721013.8TRUETRUETRUEVFR28.923.9METAR140.02018-07-22 11:57:38r©ºp);5    3KCPR 221153Z 24009KT 10SM SCT110 18/12 A3016 RMK AO2 SLP136 T01780122 10200 20161 53010KCPR2018-07-22T11:53:00Z42.9-106.4717.812.2240910.030.1594491013.6TRUEVFR1.020.016.1METAR1621.02018-07-22 11:57:38~©ºo)E5   3KCPS 221153Z 34011G17KT 10SM BKN015 21/18 A2989 RMK AO2 SLP116 T02110178 10239 20211 53010 $KCPS2018-07-22T11:53:00Z38.57-90.1521.117.8340111710.029.8907471011.6TRUETRUEMVFR1.023.921.1METAR126.02018-07-22 11:57:38p©ºn);5    3KCRE 221153Z 28003KT 10SM SCT055 26/23 A2978 RMK AO1 SLP084 T02560228 10272 20239 53005KCRE2018-07-22T11:53:00Z33.82-78.7225.622.8280310.029.7785431008.4TRUEVFR0.527.223.9METAR10.02018-07-22 11:57:38   u©ºt)?5    3KCLM 221153Z AUTO 21003KT 10SM CLR 11/08 A3022 RMK AO2 SLP234 T01110083 10161 20100 53001KCLM2018-07-22T11:53:00Z48.12-123.511.18.3210310.030.2214571023.4TRUETRUEVFR0.116.110.0METAR85.02018-07-22 11:57:38z©ºs)E5    3KCMX 221153Z AUTO 31004KT 10SM OVC033 16/13 A3009 RMK AO2 SLP191 T01560133 10172 20117 53005KCMX2018-07-22T11:53:00Z47.17-88.4815.613.3310410.030.0885831019.1TRUETRUEVFR0.517.211.7METAR326.02018-07-22 11:57:38q©ºr)55     3KCNO 221153Z AUTO 00000KT 9SM CLR 19/17 A3004 RMK AO2 SLP164 T01940167 10239 20194 $KCNO2018-07-22T11:53:00Z33.98-117.6219.416.7009.030.0413381016.4TRUETRUETRUEVFR23.919.4METAR207.02018-07-22 11:57:38 ‚©ºx)U5     3KCHA 221153Z 28006KT 10SM SCT017 SCT065 22/18 A2982 RMK AO2 SLP090 70013 T02220183 10233 20206 53008KCHA2018-07-22T11:53:00Z35.03-85.222.218.3280610.029.8198811009.0TRUEVFR0.823.320.60.13SPECI210.02018-07-22 11:57:38r©ºw);5    3KCHO 221153Z 16007KT 10SM BKN022 21/17 A2979 RMK AO2 SLP082 T02060167 10206 20178 53017KCHO2018-07-22T11:53:00Z38.13-78.4520.616.7160710.029.7903541008.2TRUEMVFR1.720.617.8METAR192.02018-07-22 11:57:38d©ºv)+5    3KCKB 221153Z 10SM SCT014 19/16 A2976 RMK AO2 SLP061 T01940161 10194 20161 53010KCKB2018-07-22T11:53:00Z39.3-80.2219.416.110.029.7608261006.1TRUEVFR1.019.416.1METAR360.02018-07-22 11:57:38y©ºu)C5     3KCLL 221153Z AUTO 21006KT 6SM BR CLR 24/24 A2997 RMK AO2 SLP144 T02440244 10278 20244 53009KCLL2018-07-22T11:53:00Z30.58-96.3724.424.421066.029.9704721014.4TRUETRUEBRVFR0.927.824.4SPECI96.02018-07-22 11:57:38 Û ۂ"©º{){5      3KCDW 221153Z 16012G17KT 4SM BR OVC016 22/22 A2984 RMK AO2 RAB03E48 SLP110 P0000 60057 70164 T02220222 10239 20200 53024KCDW2018-07-22T11:53:00Z40.88-74.2822.222.216012174.029.8405511011.0TRUEBRMVFR2.423.920.00.0050.571.64METAR64.02018-07-22 11:57:38‚©ºz)K5     3KCEW 221153Z AUTO 24006KT 8SM CLR 27/24 A2987 RMK AO2 SLP112 T02670239 10283 20267 53006 TSNO $KCEW2018-07-22T11:53:00Z30.78-86.5226.723.924068.029.8700791011.2TRUETRUETRUETRUEVFR0.628.326.7METAR55.02018-07-22 11:57:38n©ºy)55    3KCGI 221153Z 32007KT 10SM CLR 22/18 A2986 RMK AO2 SLP108 T02170183 10228 20194 53008KCGI2018-07-22T11:53:00Z37.23-89.5821.718.3320710.029.8612211010.8TRUEVFR0.822.819.4METAR102.02018-07-22 11:57:38  ÿ p©º~);5    3KCCR 221153Z 27006KT 10SM FEW014 17/13 A3003 RMK AO2 SLP156 T01720133 10200 20172 51005KCCR2018-07-22T11:53:00Z38.0-122.0517.213.3270610.030.0295281015.6TRUEVFR0.520.017.2METAR11.02018-07-22 11:57:38}©º})C5    3KCDC 221153Z AUTO 15005KT 10SM CLR 18/13 A3026 RMK AO2 SLP165 T01830128 10206 20161 53005 $KCDC2018-07-22T11:53:00Z37.7-113.118.312.8150510.030.2598421016.5TRUETRUETRUEVFR0.520.616.1METAR1714.02018-07-22 11:57:38x©º|)?5    3KCDS 221153Z AUTO 27007KT 10SM CLR 24/12 A2999 RMK AO2 SLP121 T02390117 10289 20239 53008KCDS2018-07-22T11:53:00Z34.43-100.2823.911.7270710.029.9911421012.1TRUETRUEVFR0.828.923.9METAR594.02018-07-22 11:57:38 íêìíy©»)A5    3KBYG 221153Z AUTO 10SM CLR 22/07 A3011 RMK AO2 PRESRR SLP125 T02170072 10261 20183 53014 $KBYG2018-07-22T11:53:00Z44.38-106.7221.77.210.030.1092531012.5TRUETRUETRUEVFR1.426.118.3METAR1497.02018-07-22 11:57:38x©»)?5    3KBYI 221153Z AUTO 27007KT 10SM CLR 19/02 A3016 RMK AO2 SLP161 T01890022 10206 20167 53020KBYI2018-07-22T11:53:00Z42.55-113.7718.92.2270710.030.1594491016.1TRUETRUEVFR2.020.616.7METAR1264.02018-07-22 11:57:38‚©º)a5     3KCAG 221153Z AUTO 08004KT 10SM BKN110 18/13 A3031 RMK AO2 SLP169 60000 7//// T01830128 10206 20172 53002 $KCAG2018-07-22T11:53:00Z40.5-107.5218.312.880410.030.310041016.9TRUETRUETRUEVFR0.220.617.20.005METAR1887.02018-07-22 11:57:38 ÿl©»)55    3KBUR 221153Z 00000KT 10SM CLR 20/17 A3002 RMK AO2 SLP153 T02000172 10217 20200 56001KBUR2018-07-22T11:53:00Z34.2-118.3720.017.20010.030.020671015.3TRUEVFR-0.121.720.0METAR217.02018-07-22 11:57:38u©»)?5    3KBVO 221153Z AUTO 00000KT 10SM CLR 21/19 A2999 RMK AO2 SLP144 T02110194 10222 20189 53006KBVO2018-07-22T11:53:00Z36.77-96.0221.119.40010.029.9911421014.4TRUETRUEVFR0.622.218.9METAR210.02018-07-22 11:57:38{©»)E5    3KBWG 221153Z AUTO 26005KT 10SM OVC018 22/19 A2979 RMK AO2 SLP080 T02170194 10228 20217 53005KBWG2018-07-22T11:53:00Z36.97-86.4221.719.4260510.029.7903541008.0TRUETRUEMVFR0.522.821.7METAR168.02018-07-22 11:57:38 ¹Âƹ‚©»)U5     3KHLC 221153Z AUTO 11007KT 10SM CLR 21/18 A3003 RMK AO2 SLP145 60000 T02110183 10250 20211 55004 TSNOKHLC2018-07-22T11:53:00Z39.37-99.8321.118.3110710.030.0295281014.5TRUETRUETRUEVFR-0.425.021.1SPECI669.02018-07-22 11:57:38v©»)A5     3KHKY 221153Z 00000KT 10SM CLR 20/20 A2976 RMK AO2 SLP058 70002 T02000200 10206 20194 50005KHKY2018-07-22T11:53:00Z35.75-81.3820.020.00010.029.7608261005.8TRUEVFR0.520.619.40.02METAR354.02018-07-22 11:57:38‚8©»)‚5       3KOQT 221153Z AUTO 23003KT 5SM -RA BR SCT047 BKN060 OVC070 21/21 A2980 RMK AO2 RAB43 SLP077 P0001 60001 70001 T02110206 10222 20211 53006KOQT2018-07-22T11:53:00Z36.02-84.2321.120.623035.029.7992131007.7TRUETRUE-RA BRMVFR0.622.221.10.010.010.01METAR277.02018-07-22 11:57:38 t©» )?5    3KHOT 221153Z AUTO 00000KT 10SM CLR 23/19 A2993 RMK AO2 SLP126 T02280189 10294 20217 53007KHOT2018-07-22T11:53:00Z34.48-93.122.818.90010.029.9291341012.6TRUETRUEVFR0.729.421.7METAR162.02018-07-22 11:57:38y©» )A5    3KHLN 221153Z AUTO 27006KT 10SM CLR 13/M01 A3022 RMK AO2 SLP216 T01331006 10239 20133 53015KHLN2018-07-22T11:53:00Z46.6-111.9813.3-0.6270610.030.2214571021.6TRUETRUEVFR1.523.913.3METAR1182.02018-07-22 11:57:38z©»)E5    3KHLG 221153Z AUTO 06003KT 10SM OVC018 17/15 A2976 RMK AO2 SLP072 T01720150 10178 20150 53010KHLG2018-07-22T11:53:00Z40.17-80.6517.215.060310.029.7608261007.2TRUETRUEMVFR1.017.815.0METAR372.02018-07-22 11:57:38 ÷úó÷v©» )?5    3KHRI 221153Z AUTO 17005KT 10SM CLR 13/03 A3015 RMK AO2 SLP203 T01280033 10194 20117 53015KHRI2018-07-22T11:53:00Z45.83-119.2712.83.3170510.030.150591020.3TRUETRUEVFR1.519.411.7METAR195.02018-07-22 11:57:38‚©» )K5     3KHQM 221153Z AUTO 00000KT 3/4SM BR VV002 12/12 A3021 RMK AO2 SLP232 T01220122 10133 20117 58001KHQM2018-07-22T11:53:00Z46.97-123.9312.212.2000.7530.2096461023.2TRUETRUEBRLIFR-0.113.311.7200METAR7.02018-07-22 11:57:38‚©» )Q5     3KHOU 221153Z 25005KT 6SM BR BKN008 BKN250 26/26 A2997 RMK AO2 SLP154 T02610261 10272 20261 53011 $KHOU2018-07-22T11:53:00Z29.63-95.2826.126.125056.029.9704721015.4TRUETRUEBRIFR1.127.226.1METAR36.02018-07-22 11:57:38 ý n©»);5    3KHSV 221153Z 00000KT 10SM FEW200 23/21 A2985 RMK AO2 SLP098 T02280211 10233 20211 53007KHSV2018-07-22T11:53:00Z34.65-86.7822.821.10010.029.849411009.8TRUEVFR0.723.321.1SPECI191.02018-07-22 11:57:38m©»)55    3KHSI 221153Z AUTO 10SM SCT100 20/18 A3007 RMK AO2 SLP167 T02000178 10233 20200 53005KHSI2018-07-22T11:53:00Z40.6-98.4320.017.810.030.0708661016.7TRUETRUEVFR0.523.320.0SPECI591.02018-07-22 11:57:38}©»)C5    3KHRO 221153Z AUTO 32004KT 10SM CLR 20/17 A2999 RMK AO2 SLP140 T02000172 10206 20178 53012 $KHRO2018-07-22T11:53:00Z36.27-93.1520.017.2320410.029.9911421014.0TRUETRUETRUEVFR1.220.617.8METAR417.02018-07-22 11:57:38 Êðäʂ©»)s5      3KHVN 221153Z 12009KT 4SM BR BKN009 BKN015 BKN044 23/22 A2993 RMK AO2 SLP135 60048 70056 T02330217 10233 20200 53012KHVN2018-07-22T11:53:00Z41.27-72.8723.321.712094.029.9291341013.5TRUEBRIFR1.223.320.00.480.56METAR4.02018-07-22 11:57:38‚©»)_5     3KHUF 221153Z 33009KT 10SM OVC007 21/19 A2977 RMK AO2 CIG 006V013 SLP077 70048 T02060194 10211 20200 53005KHUF2018-07-22T11:53:00Z39.45-87.320.619.4330910.029.7696861007.7TRUEIFR0.521.120.00.48METAR179.02018-07-22 11:57:38‚ ©»)Y5      3KHTL 221153Z AUTO 04008KT 8SM OVC110 18/17 A2991 RMK AO2 SLP126 70057 T01830172 10189 20183 53006 TSNOKHTL2018-07-22T11:53:00Z44.35-84.6718.317.24088.029.9114171012.6TRUETRUETRUEVFR0.618.918.30.57SPECI351.02018-07-22 11:57:38 þýÿþ{©»)E5    3KHYR 221153Z AUTO 04010KT 10SM OVC010 16/14 A3014 RMK AO2 SLP204 T01610144 10167 20156 53009KHYR2018-07-22T11:53:00Z46.02-91.4516.114.4401010.030.1387791020.4TRUETRUEMVFR0.916.715.6METAR370.02018-07-22 11:57:38x©»)G5     3KHWO 221153Z 26006KT 10SM FEW027 29/26 A2997 RMK AO2 SLP148 70002 T02940261 10294 20278 53009KHWO2018-07-22T11:53:00Z26.0-80.2329.426.1260610.029.9704721014.8TRUEVFR0.929.427.80.02METAR2.02018-07-22 11:57:38}©»)C5    3KHVR 221153Z AUTO 24007KT 10SM CLR 11/06 A3013 RMK AO2 SLP189 T01060056 10261 20100 51033 $KHVR2018-07-22T11:53:00Z48.55-109.7710.65.6240710.030.1299211018.9TRUETRUETRUEVFR3.326.110.0SPECI787.02018-07-22 11:57:38 ³Ò­³t©»)G5    3KIAH 221153Z 25008KT 9SM SCT012 SCT250 27/26 A2997 RMK AO2 SLP147 T02720256 10283 20267 53011KIAH2018-07-22T11:53:00Z30.0-95.3727.225.625089.029.9704721014.7TRUEVFR1.128.326.7METAR36.02018-07-22 11:57:38‚©»)m5       3KIAG 221153Z 06014KT 3SM RA BR OVC008 17/17 A2972 RMK AO2 SLP062 P0025 60074 70087 T01720167 10172 20156 56031 $KIAG2018-07-22T11:53:00Z43.12-78.9317.216.760143.029.7194881006.2TRUETRUERA BRIFR-3.117.215.60.250.740.87METAR182.02018-07-22 11:57:38‚(©»){5       3KHZY 221153Z AUTO 07003KT 3SM -RA BR FEW006 OVC014 17/17 A2977 RMK AO2 SLP075 P0000 60000 T01670167 10183 20161 55001 $KHZY2018-07-22T11:53:00Z41.78-80.716.716.77033.029.7696861007.5TRUETRUETRUE-RA BRMVFR-0.118.316.10.0050.005METAR276.02018-07-22 11:57:38 ÛîØہw©»)?5    3KIDA 221153Z AUTO 00000KT 10SM CLR 16/10 A3018 RMK AO2 SLP170 T01560100 10228 20139 53017KIDA2018-07-22T11:53:00Z43.52-112.0715.610.00010.030.1801191017.0TRUETRUEVFR1.722.813.9METAR1453.02018-07-22 11:57:38‚©»)e5     3KICT 221153Z 09007KT 10SM SCT110 BKN250 23/19 A3002 RMK AO2 SLP147 60001 70001 T02280189 10283 20228 53007 $KICT2018-07-22T11:53:00Z37.65-97.4322.818.990710.030.020671014.7TRUETRUEVFR0.728.322.80.010.01METAR407.02018-07-22 11:57:38‚ ©»)_5     3KICR 221153Z AUTO 11006KT 10SM FEW060 21/17 A3005 RMK AO2 PRESRR SLP161 60000 T02110172 10228 20211 53013KICR2018-07-22T11:53:00Z43.38-99.8521.117.2110610.030.0501981016.1TRUETRUEVFR1.322.821.10.005METAR621.02018-07-22 11:57:38 îÿî‚ ©»)W5     3KABR 221153Z AUTO 13007KT 10SM CLR 19/18 A3002 RMK AO2 SLP159 60006 70006 T01940183 10200 20189 56015KABR2018-07-22T11:53:00Z45.45-98.4219.418.3130710.030.020671015.9TRUETRUEVFR-1.520.018.90.060.06METAR397.02018-07-22 11:57:38‚ ©»)U5     3KAAF 221153Z AUTO 28011KT 10SM BKN015 29/28 A2986 RMK AO2 SLP110 70027 T02940283 10294 20289 53000 $KAAF2018-07-22T11:53:00Z29.73-85.0329.428.32801110.029.8612211011.0TRUETRUETRUEMVFR0.029.428.90.27SPECI5.02018-07-22 11:57:38k©»)55    3KILM 221153Z 18005KT 10SM CLR 27/24 A2978 RMK AO2 SLP084 T02670239 10267 20244 53005KILM2018-07-22T11:53:00Z34.27-77.926.723.9180510.029.7785431008.4TRUEVFR0.526.724.4METAR9.02018-07-22 11:57:38 éþ 邍©»")s5      3KADG 221153Z AUTO 07008KT 9SM SCT019 SCT028 21/19 A2979 RMK AO2 SLP086 60020 70025 T02060189 10206 20194 53009 TSNOKADG2018-07-22T11:53:00Z41.87-84.0820.618.97089.029.7903541008.6TRUETRUETRUEVFR0.920.619.40.20.25METAR241.02018-07-22 11:57:38o©»!)=5    3KACV 221153Z AUTO 00000KT 9SM CLR 08/08 A3004 RMK AO2 SLP176 T00830083 10106 20083 51006KACV2018-07-22T11:53:00Z40.98-124.18.38.3009.030.0413381017.6TRUETRUEVFR0.610.68.3METAR67.02018-07-22 11:57:38|©» )K5      3KABY 221153Z 26005KT 6SM BR BKN002 24/23 A2985 RMK AO2 SLP104 70172 T02440233 10244 20228 53004KABY2018-07-22T11:53:00Z31.53-84.224.423.326056.029.849411010.4TRUEBRLIFR0.424.422.81.72METAR58.02018-07-22 11:57:38  y©»%)G5     3KAGC 221153Z 00000KT 10SM FEW006 17/15 A2976 RMK AO2 SLP075 70003 T01670150 10172 20150 53013KAGC2018-07-22T11:53:00Z40.35-79.9216.715.00010.029.7608261007.5TRUEVFR1.317.215.00.03METAR389.02018-07-22 11:57:38q©»$);5    3KAFW 221153Z 22004KT 10SM SCT300 28/16 A2991 RMK AO2 SLP108 T02780161 10339 20278 53009KAFW2018-07-22T11:53:00Z32.97-97.3227.816.1220410.029.9114171010.8TRUEVFR0.933.927.8METAR233.02018-07-22 11:57:38q©»#)95     3KAEX 221153Z 25004KT 5SM BR CLR 24/23 A2992 RMK AO2 SLP133 T02440233 10267 20244 53015KAEX2018-07-22T11:53:00Z31.33-92.5724.423.325045.029.9202751013.3TRUEBRMVFR1.526.724.4METAR27.02018-07-22 11:57:38 þúùþu©»()?5    3KALW 221153Z AUTO 14004KT 10SM CLR 17/02 A3015 RMK AO2 SLP205 T01720022 10211 20156 51015KALW2018-07-22T11:53:00Z46.1-118.2817.22.2140410.030.150591020.5TRUETRUEVFR1.521.115.6METAR363.02018-07-22 11:57:38{©»')C5     3KALI 221153Z AUTO 16006KT 4SM BR CLR 23/22 A2995 RMK AO2 SLP141 T02280222 10267 20228 55002KALI2018-07-22T11:53:00Z27.73-98.0222.822.216064.029.9498021014.1TRUETRUEBRMVFR-0.226.722.8METAR53.02018-07-22 11:57:38‚©»&)M5     3KAGS 221153Z 00000KT 10SM CLR 22/22 A2977 RMK AO2 SLP079 60000 70012 T02170217 10217 20189 51007KAGS2018-07-22T11:53:00Z33.37-81.9721.721.70010.029.7696861007.9TRUEVFR0.721.718.90.0050.12METAR44.02018-07-22 11:57:38 þôþ‚©»+)K5     3KANB 221153Z AUTO 21004KT 10SM CLR 22/20 A2984 RMK AO2 SLP096 70006 T02220200 10228 20206 51005KANB2018-07-22T11:53:00Z33.58-85.8522.220.0210410.029.8405511009.6TRUETRUEVFR0.522.820.60.06METAR183.02018-07-22 11:57:38i©»*)-5    3KAMW 221153Z AUTO 8SM CLR 18/16 A3004 RMK AO2 SLP164 T01830161 10200 20172 53008KAMW2018-07-22T11:53:00Z41.98-93.6218.316.18.030.0413381016.4TRUETRUEVFR0.820.017.2METAR279.02018-07-22 11:57:38‚©»))S5      3KAMG 221153Z AUTO 22005KT 7SM CLR 26/23 A2982 RMK AO2 SLP095 70038 T02560233 10256 20239 51008 TSNOKAMG2018-07-22T11:53:00Z31.53-82.525.623.322057.029.8198811009.5TRUETRUETRUEVFR0.825.623.90.38METAR59.02018-07-22 11:57:38Y8ê8@HPX`hpx€ˆ˜ ¨°¸ÀÈÐØàèðø (08@HPX`hpx€ˆ˜ ¨°¸ÀÈÐØàèðø (08@HPX`hpx€ˆ˜ ¨°¸ÀÈÐØàèðø ¨°¸ÀÈÐØàèðø©º=‘©º@’©ºC“©ºF”©ºI•©ºL–©ºO—©ºR˜©ºU™©ºXš©º[›©º^©º=‘©º@’©ºC“©ºF”©ºI•©ºL–©ºO—©ºR˜©ºU™©ºXš©º[›©º^œ©ºa©ºdž©ºgŸ©ºj ©ºm¡©ºq¢©ºt£©ºx¤©º{¥©º~¦©»§©»¨©»©©» ª©» «©»¬©»­©»®©»¯©»°©»±©»"²©»%³©»(´©»+¶©».·©»1¸©»4¹©»7º©»;»©»>¼©»A½©»D¾©»G¿©»JÀ©»MÁ©»Q©»TÍ©»Wč©»Zō©»]ƍ©»`Ǎ©»cȍ©»fɍ©»iʍ©»lˍ©»o̍©»r͍©»u΍©»xύ©»|Ѝ©»э©¼ҍ©¼Ӎ©¼ԍ©¼ Ս©¼֍©¼׍©¼؍©¼ٍ©¼ڍ©¼ ۍ©¼#܍©¼&ݍ©¼)ލ©¼,ߍ©¼/à©¼2፩¼5⍩¼8㍩¼<䍩¼?卩¼B捩¼E獩¼H荩¼K鍩¼N ÓóÓӁz©».)I5    3KAPA 221153Z 27010KT 10SM FEW140 SCT220 22/09 A3020 RMK AO2 SLP141 T02170094 10233 20178 53001KAPA2018-07-22T11:53:00Z39.57-104.8521.79.42701010.030.2007871014.1TRUEVFR0.123.317.8METAR1775.02018-07-22 11:57:38‚©»-)u5     3KAOO 221153Z AUTO 21007KT 10SM OVC011 17/15 A2978 RMK AO2 CIG 008V012 SLP078 60024 70124 T01720150 10172 20156 51018KAOO2018-07-22T11:53:00Z40.3-78.3217.215.0210710.029.7785431007.8TRUETRUEMVFR1.817.215.60.241.24METAR455.02018-07-22 11:57:38‚©»,)S5     3KAOH 221153Z AUTO 06005KT 7SM OVC012 19/19 A2975 RMK AO2 SLP066 70024 T01940194 10194 20178 52012 $KAOH2018-07-22T11:53:00Z40.7-84.0219.419.46057.029.7490161006.6TRUETRUETRUEMVFR1.219.417.80.24METAR296.02018-07-22 11:57:38 î©»1)k5     3KARB 221153Z AUTO 02006KT 10SM BKN090 OVC110 20/19 A2979 RMK AO2 SLP084 60001 70001 T02000189 10211 20200 53009KARB2018-07-22T11:53:00Z42.22-83.7320.018.920610.029.7903541008.4TRUETRUEVFR0.921.120.00.010.01METAR251.02018-07-22 11:57:38s©»0)95    3KARA 221153Z 23004KT 10SM CLR 26/24 A2995 RMK AO2 SLP141 T02560239 10261 20244 53009 $KARA2018-07-22T11:53:00Z30.03-91.8825.623.9230410.029.9498021014.1TRUETRUEVFR0.926.124.4METAR18.02018-07-22 11:57:38y©»/)G5     3KAPF 221153Z 26007KT 10SM SCT025 31/27 A2995 RMK AO2 SLP139 70032 T03110272 10311 20294 53006KAPF2018-07-22T11:53:00Z26.15-81.7731.127.2260710.029.9498021013.9TRUEVFR0.631.129.40.32METAR3.02018-07-22 11:57:38 ûûúûy©»4)E5    3KASX 221153Z AUTO 05007KT 10SM OVC018 17/14 A3015 RMK AO2 SLP210 T01670144 10167 20150 53009KASX2018-07-22T11:53:00Z46.55-90.9216.714.450710.030.150591021.0TRUETRUEMVFR0.916.715.0METAR251.02018-07-22 11:57:38{©»3)E5    3KASE 221153Z AUTO 20005KT 10SM FEW110 14/07 A3043 RMK AO2 SLP172 T01390072 10183 20139 53004KASE2018-07-22T11:53:00Z39.23-106.8713.97.2200510.030.4311031017.2TRUETRUEVFR0.418.313.9METAR2354.02018-07-22 11:57:38©»2)O5     3KASD 221153Z AUTO VRB03KT 10SM FEW013 27/24 A2992 RMK AO2 SLP132 T02720244 10289 20272 53013 TSNOKASD2018-07-22T11:53:00Z30.35-89.8227.224.40310.029.9202751013.2TRUETRUETRUEVFR1.328.927.2METAR9.02018-07-22 11:57:38 ùðùq©»7)75     3KAWM 221153Z AUTO 00000KT 10SM CLR 23/21 A2987 RMK AO2 SLP111 T02280211 10244 20217 $KAWM2018-07-22T11:53:00Z35.13-90.2322.821.10010.029.8700791011.1TRUETRUETRUEVFR24.421.7METAR65.02018-07-22 11:57:38‚ ©»6)k5     3KAUS 221153Z 20004KT 6SM BR FEW010 FEW250 24/23 A2998 RMK AO2 SLP138 T02390233 10283 20239 53008 VISNO RWY17R $KAUS2018-07-22T11:53:00Z30.18-97.6823.923.320046.029.979331013.8TRUETRUEBRVFR0.828.323.9METAR166.02018-07-22 11:57:38w©»5)?5    3KATY 221153Z AUTO 12005KT 10SM CLR 19/17 A3008 RMK AO2 SLP176 T01890172 10189 20183 58002KATY2018-07-22T11:53:00Z44.9-97.1518.917.2120510.030.0797251017.6TRUETRUEVFR-0.218.918.3METAR532.02018-07-22 11:57:38 =7:=w©»;)?5    3KBDE 221153Z AUTO 13005KT 10SM CLR 16/15 A3016 RMK AO2 SLP216 T01560150 10156 20144 53011KBDE2018-07-22T11:53:00Z48.73-94.6215.615.0130510.030.1594491021.6TRUETRUEVFR1.115.614.4METAR329.02018-07-22 11:57:38w©»:)?5    3KBBW 221153Z AUTO 14005KT 10SM CLR 19/18 A3008 RMK AO2 SLP162 T01940183 10222 20194 53006KBBW2018-07-22T11:53:00Z41.43-99.6319.418.3140510.030.0797251016.2TRUETRUEVFR0.622.219.4METAR776.02018-07-22 11:57:38G©»9)5     3KBAZ 221153Z 23005KT 3SM BR CLR 24/23 A2998 RMK AO2 T02440233KBAZ2018-07-22T11:53:00Z29.72-98.0524.423.323053.029.97933TRUEBRMVFRMETAR195.02018-07-22 11:57:38v©»8)?5    3KAXN 221153Z AUTO 11008KT 10SM CLR 19/16 A3013 RMK AO2 SLP198 T01890161 10200 20183 50004KAXN2018-07-22T11:53:00Z45.87-95.418.916.1110810.030.1299211019.8TRUETRUEVFR0.420.018.3METAR433.02018-07-22 11:57:38 ÎùË΁w©»>)=5    3KBFF 221153Z AUTO 11006KT 8SM CLR 19/19 A3004 RMK AO2 SLP123 T01890189 10217 20189 53001KBFF2018-07-22T11:53:00Z41.87-103.5818.918.911068.030.0413381012.3TRUETRUEVFR0.121.718.9SPECI1203.02018-07-22 11:57:38‚(©»=)‚5       3KBFD 221153Z AUTO 27003KT 4SM -RA BR BKN005 OVC012 14/14 A2975 RMK AO2 SLP068 P0008 60113 70140 T01440139 10144 20133 53001KBFD2018-07-22T11:53:00Z41.8-78.6314.413.927034.029.7490161006.8TRUETRUE-RA BRIFR0.114.413.30.081.131.4METAR647.02018-07-22 11:57:38‚©»<)K5     3KBCE 221153Z AUTO 26007KT 10SM CLR 10/09 A3041 RMK AO2 SLP194 70045 T01000089 10156 20100 53002KBCE2018-07-22T11:53:00Z37.7-112.1510.08.9260710.030.4104331019.4TRUETRUEVFR0.215.610.00.45METAR2312.02018-07-22 11:57:38 èè‚$©»A)y5      3KBGM 221153Z 12016G23KT 10SM -RA OVC014 19/18 A2977 RMK AO2 RAB33 SLP070 P0000 60014 70023 T01940178 10194 20144 53006KBGM2018-07-22T11:53:00Z42.22-75.9819.417.8120162310.029.7696861007.0TRUE-RAMVFR0.619.414.40.0050.140.23METAR490.02018-07-22 11:57:38v©»@)?5    3KBFM 221153Z AUTO 27007KT 10SM CLR 28/26 A2990 RMK AO2 SLP123 T02780256 10294 20278 53008KBFM2018-07-22T11:53:00Z30.62-88.0727.825.6270710.029.8996071012.3TRUETRUEVFR0.829.427.8METAR20.02018-07-22 11:57:38l©»?)55    3KBFI 221153Z 00000KT 10SM CLR 16/10 A3020 RMK AO2 SLP226 T01560100 10200 20150 55003KBFI2018-07-22T11:53:00Z47.55-122.3215.610.00010.030.2007871022.6TRUEVFR-0.320.015.0METAR4.02018-07-22 11:57:38   t©»D)?5    3KBMQ 221153Z AUTO 00000KT 10SM CLR 24/22 A3002 RMK AO2 SLP144 T02440217 10294 20244 53005KBMQ2018-07-22T11:53:00Z30.73-98.2324.421.70010.030.020671014.4TRUETRUEVFR0.529.424.4METAR389.02018-07-22 11:57:38x©»C)I5    3KBNA 221153Z 26006KT 10SM FEW050 FEW120 22/18 A2981 RMK AO2 SLP088 T02220183 10244 20217 53001KBNA2018-07-22T11:53:00Z36.12-86.6822.218.3260610.029.8110241008.8TRUEVFR0.124.421.7METAR210.02018-07-22 11:57:38w©»B)A5    3KBNO 221153Z AUTO 26006KT 10SM CLR 06/M06 A3024 RMK AO2 SLP209 T00611061 10144 20044 51011KBNO2018-07-22T11:53:00Z43.6-118.956.1-6.1260610.030.2391741020.9TRUETRUEVFR1.114.44.4SPECI1264.02018-07-22 11:57:38 ßßæ߂©»G)U5     3KBKV 221153Z 23004KT 10SM FEW023 SCT036 27/26 A2993 RMK AO2 SLP131 70008 T02720261 10272 20244 53008KBKV2018-07-22T11:53:00Z28.47-82.4527.226.1230410.029.9291341013.1TRUEVFR0.827.224.40.08METAR20.02018-07-22 11:57:38s©»F)?5    3KBLI 221153Z AUTO 00000KT 10SM CLR 10/08 A3020 RMK AO2 SLP233 T01000083 10150 20100 55000KBLI2018-07-22T11:53:00Z48.8-122.5310.08.30010.030.2007871023.3TRUETRUEVFR0.015.010.0METAR50.02018-07-22 11:57:38‚©»E)s5     3KBMG 221153Z 32006KT 10SM SCT008 BKN013 OVC025 21/20 A2975 RMK AO2 SLP066 60000 70024 T02060200 10206 20194 53005 $KBMG2018-07-22T11:53:00Z39.15-86.6220.620.0320610.029.7490161006.6TRUETRUEMVFR0.520.619.40.0050.24METAR257.02018-07-22 11:57:38  ~©»J)M5    3KBIL 221153Z 25006KT 10SM SCT140 SCT230 17/08 A3012 RMK AO2 SLP163 T01670083 10228 20167 51037 $KBIL2018-07-22T11:53:00Z45.8-108.5516.78.3250610.030.1210631016.3TRUETRUEVFR3.722.816.7SPECI1091.02018-07-22 11:57:38t©»I)?5    3KBKE 221153Z AUTO 00000KT 10SM CLR 07/02 A3022 RMK AO2 SLP216 T00720017 10156 20061 53008KBKE2018-07-22T11:53:00Z44.85-117.827.21.70010.030.2214571021.6TRUETRUEVFR0.815.66.1METAR1024.02018-07-22 11:57:38w©»H)I5    3KBKL 221153Z 00000KT 10SM BKN025 OVC030 20/14 A2975 RMK AO2 SLP070 T02000144 10211 20194 51002KBKL2018-07-22T11:53:00Z41.53-81.6720.014.40010.029.7490161007.0TRUEMVFR0.221.119.4METAR184.02018-07-22 11:57:38  ‚©»M)K5     3KBPI 221153Z AUTO 29003KT 10SM CLR 13/09 A3035 RMK AO2 SLP171 60000 T01330094 10194 20122 53012KBPI2018-07-22T11:53:00Z42.58-110.113.39.4290310.030.3513771017.1TRUETRUEVFR1.219.412.20.005METAR2117.02018-07-22 11:57:38t©»L)95    3KBOI 221153Z 28005KT 10SM CLR 17/03 A3014 RMK AO2 SLP176 T01670028 10261 20161 53017 $KBOI2018-07-22T11:53:00Z43.57-116.2316.72.8280510.030.1387791017.6TRUETRUEVFR1.726.116.1METAR875.02018-07-22 11:57:38v©»K)I5    3KBHM 221153Z 00000KT 10SM FEW041 FEW065 23/22 A2988 RMK AO2 SLP108 T02330217 10244 20222 53007KBHM2018-07-22T11:53:00Z33.57-86.7523.321.70010.029.8789371010.8TRUEVFR0.724.422.2METAR197.02018-07-22 11:57:38   l©»Q)55    3KBRO 221153Z 15006KT 10SM CLR 26/26 A2997 RMK AO2 SLP146 T02610256 10267 20256 53003KBRO2018-07-22T11:53:00Z25.92-97.4226.125.6150610.029.9704721014.6TRUEVFR0.326.725.6METAR7.02018-07-22 11:57:38{©»P)C5    3KBPK 221153Z AUTO 00000KT 10SM CLR 21/19 A2996 RMK AO2 SLP134 T02060194 10222 20189 53016 $KBPK2018-07-22T11:53:00Z36.37-92.4720.619.40010.029.9586621013.4TRUETRUETRUEVFR1.622.218.9METAR280.02018-07-22 11:57:38p©»O)75    3KBPT 221153Z 25005KT 7SM CLR 26/25 A2996 RMK AO2 SLP144 T02610250 10272 20261 53012 $KBPT2018-07-22T11:53:00Z29.95-94.0326.125.025057.029.9586621014.4TRUETRUEVFR1.227.226.1METAR5.02018-07-22 11:57:38z©»N)G5    3KBRD 221153Z AUTO VRB06KT 8SM OVC007 17/15 A3015 RMK AO2 SLP205 T01720150 10194 20167 51013 $KBRD2018-07-22T11:53:00Z46.4-94.1317.215.0068.030.150591020.5TRUETRUETRUEIFR1.319.416.7METAR372.02018-07-22 11:57:38 ï©»T)Y5      3KCUT 221153Z AUTO 00000KT M1/4SM FG VV001 16/15 A3013 RMK AO2 SLP130 70016 T01610150 10178 20144 55004KCUT2018-07-22T11:53:00Z43.73-103.6216.115.0000.2530.1299211013.0TRUETRUEFGLIFR-0.417.814.40.16100SPECI1725.02018-07-22 11:57:38z©»S)C5     3KBTR 221153Z 25008KT 5SM BR SCT007 26/25 A2994 RMK AO2 SLP136 T02560250 10267 20256 53010 $KBTR2018-07-22T11:53:00Z30.53-91.1525.625.025085.029.9409451013.6TRUETRUEBRMVFR1.026.725.6SPECI21.02018-07-22 11:57:38v©»R)A5    3KBTM 221153Z AUTO 14003KT 10SM CLR 06/M02 A3031 RMK AO2 SLP216 T00561017 10200 20056 53016KBTM2018-07-22T11:53:00Z45.97-112.55.6-1.7140310.030.310041021.6TRUETRUEVFR1.620.05.6METAR1688.02018-07-22 11:57:38 øë÷øy©»W)A5     3KCYS 221153Z 29008KT 10SM CLR 19/11 A3019 RMK AO2 SLP133 70034 T01940111 10194 20161 55000KCYS2018-07-22T11:53:00Z41.15-104.819.411.1290810.030.1889761013.3TRUEVFR0.019.416.10.34METAR1868.02018-07-22 11:57:38n©»V)95    3KCXO 221153Z 23006KT 9SM OVC011 26/26 A2998 RMK AO2 SLP147 T02610256 10278 20256 51011KCXO2018-07-22T11:53:00Z30.35-95.4226.125.623069.029.979331014.7TRUEMVFR1.127.825.6METAR75.02018-07-22 11:57:38‚©»U)[5     3KCUB 221153Z AUTO 23003KT 10SM CLR 22/20 A2977 RMK AO2 SLP078 60007 70012 T02170200 10244 20206 51004 $KCUB2018-07-22T11:53:00Z33.97-81.021.720.0230310.029.7696861007.8TRUETRUETRUEVFR0.424.420.60.070.12METAR56.02018-07-22 11:57:38 õëôõy©»Z)I5    3KDEN 221153Z 24007KT 10SM FEW140 FEW220 21/11 A3015 RMK AO2 SLP116 T02060111 10239 20200 53001KDEN2018-07-22T11:53:00Z39.85-104.6520.611.1240710.030.150591011.6TRUEVFR0.123.920.0METAR1640.02018-07-22 11:57:38q©»Y);5    3KDAL 221153Z 23004KT 10SM BKN300 29/18 A2992 RMK AO2 SLP121 T02940183 10344 20294 53012KDAL2018-07-22T11:53:00Z32.85-96.8529.418.3230410.029.9202751012.1TRUEVFR1.234.429.4SPECI158.02018-07-22 11:57:38‚©»X)k5      3KDAB 221153Z 23008KT 6SM BR FEW007 FEW016 SCT200 26/26 A2989 RMK AO2 SLP120 70020 T02610261 10261 20244 53005 $KDAB2018-07-22T11:53:00Z29.18-81.0726.126.123086.029.8907471012.0TRUETRUEBRVFR0.526.124.40.2METAR9.02018-07-22 11:57:38 ëîë}©»])I5     3KDEQ 221153Z AUTO 00000KT 10SM CLR 23/23 A2991 RMK AO2 SLP123 T02330228 10267 20233 51017 TSNOKDEQ2018-07-22T11:53:00Z34.05-94.423.322.80010.029.9114171012.3TRUETRUETRUEVFR1.726.723.3METAR106.02018-07-22 11:57:38‚ ©»\)]5     3KDAN 221153Z AUTO 00000KT 10SM OVC009 20/20 A2977 RMK AO2 SLP070 60002 70039 T02000200 10206 20194 51006KDAN2018-07-22T11:53:00Z36.57-79.3320.020.00010.029.7696861007.0TRUETRUEIFR0.620.619.40.020.39METAR175.02018-07-22 11:57:38z©»[)C5    3KDCU 221153Z AUTO 00000KT 10SM CLR 22/20 A2985 RMK AO2 SLP101 T02170200 10228 20194 53007 $KDCU2018-07-22T11:53:00Z34.65-86.9521.720.00010.029.849411010.1TRUETRUETRUEVFR0.722.819.4METAR176.02018-07-22 11:57:38 æùþ悍©»`)m5     3KDFI 221153Z AUTO 05004KT 10SM FEW018 BKN030 BKN037 21/19 A2976 RMK AO2 SLP075 70056 T02060194 10206 20200 53011KDFI2018-07-22T11:53:00Z41.33-84.4320.619.450410.029.7608261007.5TRUETRUEMVFR1.120.620.00.56METAR219.02018-07-22 11:57:38u©»_)?5    3KDEW 221153Z AUTO 16004KT 10SM CLR 08/03 A3019 RMK AO2 SLP216 T00780033 10144 20061 53009KDEW2018-07-22T11:53:00Z47.97-117.437.83.3160410.030.1889761021.6TRUETRUEVFR0.914.46.1METAR674.02018-07-22 11:57:38‚©»^)U5     3KDET 221153Z 07009KT 10SM BKN015 OVC023 20/17 A2981 RMK AO2 SLP090 70006 T02000167 10222 20200 53012KDET2018-07-22T11:53:00Z42.4-83.0220.016.770910.029.8110241009.0TRUEMVFR1.222.220.00.06METAR190.02018-07-22 11:57:38 ð ð‚ ©»c)W5     3KDHN 221153Z AUTO 27008KT 10SM CLR 26/22 A2987 RMK AO2 SLP110 60000 70011 T02610222 10278 20250 53000KDHN2018-07-22T11:53:00Z31.32-85.4526.122.2270810.029.8700791011.0TRUETRUEVFR0.027.825.00.0050.11METAR113.02018-07-22 11:57:38‚©»b)K5     3KDGW 221153Z AUTO 33005KT 10SM CLR 14/13 A3011 RMK AO2 SLP140 70015 T01390128 10189 20139 53003KDGW2018-07-22T11:53:00Z42.8-105.3813.912.8330510.030.1092531014.0TRUETRUEVFR0.318.913.90.15METAR1499.02018-07-22 11:57:38p©»a);5    3KDFW 221153Z 20004KT 10SM BKN300 27/17 A2991 RMK AO2 SLP116 T02670172 10333 20261 53012KDFW2018-07-22T11:53:00Z32.9-97.0226.717.2200410.029.9114171011.6TRUEVFR1.233.326.1METAR174.02018-07-22 11:57:38 ÌÈÈ́v©»f)?5    3KDLS 221153Z AUTO 31005KT 10SM CLR 16/09 A3014 RMK AO2 SLP205 T01610089 10233 20161 53013KDLS2018-07-22T11:53:00Z45.62-121.1716.18.9310510.030.1387791020.5TRUETRUEVFR1.323.316.1METAR71.02018-07-22 11:57:38z©»e)A5    3KDLN 221153Z AUTO 19003KT 9SM CLR 07/01 A3027 RMK AO2 SLP204 T00720006 10183 20067 53019 $KDLN2018-07-22T11:53:00Z45.25-112.557.20.619039.030.2687021020.4TRUETRUETRUEVFR1.918.36.7METAR1591.02018-07-22 11:57:38‚2©»d)‚ 5       3KDKK 221153Z AUTO 13004KT 2 1/2SM RA BR FEW008 OVC032 16/16 A2973 RMK AO2 SLP066 P0039 60145 70147 T01610156 10161 20150 56008 $KDKK2018-07-22T11:53:00Z42.5-79.2816.115.613042.529.7312981006.6TRUETRUETRUERA BRIFR-0.816.115.00.391.451.47METAR202.02018-07-22 11:57:38 ÿüÿw©»i)?5    3KDRO 221153Z AUTO 34005KT 10SM CLR 18/09 A3033 RMK AO2 SLP162 T01780094 10250 20172 53016KDRO2018-07-22T11:53:00Z37.15-107.7717.89.4340510.030.330711016.2TRUETRUEVFR1.625.017.2METAR2035.02018-07-22 11:57:38‚©»h)K5     3KDNL 221153Z AUTO 25003KT 10SM CLR 23/22 A2979 RMK AO2 SLP080 70014 T02280217 10228 20211 51007KDNL2018-07-22T11:53:00Z33.47-82.0322.821.7250310.029.7903541008.0TRUETRUEVFR0.722.821.10.14METAR130.02018-07-22 11:57:38w©»g)?5    3KDMO 221153Z AUTO 31004KT 10SM CLR 19/18 A3001 RMK AO2 SLP153 T01890178 10217 20183 53010KDMO2018-07-22T11:53:00Z38.72-93.1718.917.8310410.030.0088581015.3TRUETRUEVFR1.021.718.3METAR274.02018-07-22 11:57:38   j©»l)55    3KDTO 221153Z 00000KT 10SM CLR 25/16 A2992 RMK AO2 SLP119 T02500156 10333 20239 53011KDTO2018-07-22T11:53:00Z33.2-97.225.015.60010.029.9202751011.9TRUEVFR1.133.323.9METAR196.02018-07-22 11:57:38m©»k)55    3KDTN 221153Z 24003KT 10SM CLR 28/22 A2992 RMK AO2 SLP129 T02780222 10311 20267 53013KDTN2018-07-22T11:53:00Z32.55-93.7527.822.2240310.029.9202751012.9TRUEVFR1.331.126.7METAR53.02018-07-22 11:57:38w©»j)?5    3KDRT 221153Z AUTO 08006KT 10SM CLR 26/22 A2996 RMK AO2 SLP127 T02610222 10328 20261 53004KDRT2018-07-22T11:53:00Z29.37-100.9226.122.280610.029.9586621012.7TRUETRUEVFR0.432.826.1SPECI313.02018-07-22 11:57:38 ¶íö¶‚:©»o)‚#5      3KRAC 221153Z AUTO 35016G28KT 6SM BR OVC003 19/19 A2989 RMK AO2 PK WND 36028/1147 RAE16 SLP118 P0001 60005 70013 T01940189 10211 20194 53012KRAC2018-07-22T11:53:00Z42.77-87.8219.418.935016286.029.8907471011.8TRUETRUEBRLIFR1.221.119.40.010.050.13METAR203.02018-07-22 11:57:38q©»n)95    3KDTS 221153Z 26006KT 10SM CLR 28/26 A2986 RMK AO2 SLP111 T02830256 10289 20278 52006 $KDTS2018-07-22T11:53:00Z30.4-86.4728.325.6260610.029.8612211011.1TRUETRUEVFR0.628.927.8METAR5.02018-07-22 11:57:38‚ ©»m)a5     3KDTW 221153Z 03010KT 10SM SCT025 OVC100 21/17 A2979 RMK AO2 SLP085 60000 70035 T02110172 10222 20211 53008KDTW2018-07-22T11:53:00Z42.23-83.3321.117.2301010.029.7903541008.5TRUEVFR0.822.221.10.0050.35METAR195.02018-07-22 11:57:38 ÷ýö÷y©»r)G5     3KFMY 221153Z 28006KT 10SM FEW020 28/26 A2994 RMK AO2 SLP140 70023 T02830261 10283 20267 53009KFMY2018-07-22T11:53:00Z26.58-81.8728.326.1280610.029.9409451014.0TRUEVFR0.928.326.70.23METAR4.02018-07-22 11:57:38‚©»q)M5     3KFLO 221153Z 20004KT 10SM CLR 23/21 A2978 RMK AO2 SLP080 60003 70003 T02280206 10250 20211 51018KFLO2018-07-22T11:53:00Z34.18-79.7322.820.6200410.029.7785431008.0TRUEVFR1.825.021.10.030.03METAR44.02018-07-22 11:57:38}©»p)W5    3KFLL 221153Z 28007KT 10SM FEW025 SCT070 SCT250 28/27 A2995 RMK AO2 SLP141 T02830272 10283 20278 53009KFLL2018-07-22T11:53:00Z26.07-80.1528.327.2280710.029.9498021014.1TRUEVFR0.928.327.8METAR3.02018-07-22 11:57:38 ún©»u)55    3KFOE 221153Z 04006KT 10SM CLR 20/18 A3001 RMK AO2 SLP150 T02000183 10222 20183 56004KFOE2018-07-22T11:53:00Z38.93-95.6520.018.340610.030.0088581015.0TRUEVFR-0.422.218.3METAR320.02018-07-22 11:57:38‚©»t)_5     3KFNT 221153Z 07007KT 8SM BKN007 OVC012 20/19 A2983 RMK AO2 SLP097 60000 70044 T02000189 10206 20200 53007KFNT2018-07-22T11:53:00Z42.97-83.7520.018.97078.029.8287411009.7TRUEIFR0.720.620.00.44SPECI233.02018-07-22 11:57:38u©»s)?5    3KFNB 221153Z AUTO 02003KT 10SM CLR 19/17 A3002 RMK AO2 SLP156 T01890172 10206 20172 50002KFNB2018-07-22T11:53:00Z40.07-95.5818.917.220310.030.020671015.6TRUETRUEVFR0.220.617.2SPECI300.02018-07-22 11:57:38 낍©»x)U5     3KFPR 221153Z 27004KT 10SM BKN003 BKN017 26/26 A2993 RMK AO2 SLP134 70091 T02560256 10256 20244 51010KFPR2018-07-22T11:53:00Z27.5-80.3825.625.6270410.029.9291341013.4TRUELIFR1.025.624.40.91METAR13.02018-07-22 11:57:38J©»w)5     3KFOZ 221153Z AUTO 00000KT 1/2SM FG OVC002 14/14 A3017 RMK AO2KFOZ2018-07-22T11:53:00Z47.77-93.6514.014.0000.530.171259TRUETRUEFGLIFRMETAR411.02018-07-22 11:57:38‚©»v)[5    3KFOK 221153Z 14011G18KT 7SM OVC012 23/21 A2995 RMK AO2 SLP141 60064 70089 T02280206 10228 20211 53020 $KFOK2018-07-22T11:53:00Z40.85-72.6222.820.614011187.029.9498021014.1TRUETRUEMVFR2.022.821.10.640.89METAR33.02018-07-22 11:57:38 øx©»|)A5     3KFTY 221153Z 25004KT 10SM CLR 23/21 A2983 RMK AO2 SLP090 70002 T02280206 10228 20211 53009KFTY2018-07-22T11:53:00Z33.78-84.5222.820.6250410.029.8287411009.0TRUEVFR0.922.821.10.02METAR263.02018-07-22 11:57:38n©»{)55    3KFTW 221153Z 20004KT 10SM CLR 26/18 A2991 RMK AO2 SLP118 T02560178 10317 20244 53008KFTW2018-07-22T11:53:00Z32.83-97.3725.617.8200410.029.9114171011.8TRUEVFR0.831.724.4METAR214.02018-07-22 11:57:38l©»z)55    3KFSM 221153Z 00000KT 10SM CLR 22/19 A2995 RMK AO2 SLP136 T02170194 10267 20211 53011KFSM2018-07-22T11:53:00Z35.33-94.3721.719.40010.029.9498021013.6TRUEVFR1.126.721.1METAR140.02018-07-22 11:57:38‚©»y)Q5     3KFRG 221153Z 16013KT 9SM OVC031 23/22 A2989 RMK AO2 SLP120 60023 70050 T02280217 10233 20222 53022KFRG2018-07-22T11:53:00Z40.73-73.4222.821.7160139.029.8907471012.0TRUEVFR2.223.322.20.230.5METAR21.02018-07-22 11:57:38 è Ùèk©»)55    3KFXE 221153Z 29006KT 10SM CLR 29/27 A2996 RMK AO2 SLP146 T02940267 10294 20267 53012KFXE2018-07-22T11:53:00Z26.2-80.1829.426.7290610.029.9586621014.6TRUEVFR1.229.426.7METAR6.02018-07-22 11:57:38‚*©»~)‚5      3KFWN 221153Z AUTO 15010G15KT 3SM BR OVC015 22/21 A2983 RMK AO2 RAB07E17 SLP097 P0000 60034 70050 T02220211 10233 20178 53019KFWN2018-07-22T11:53:00Z41.2-74.6322.221.115010153.029.8287411009.7TRUETRUEBRMVFR1.923.317.80.0050.340.5METAR133.02018-07-22 11:57:38q©»})?5    3KFUL 221153Z AUTO 00000KT 10SM CLR 21/17 A3000 RMK AO2 SLP159 T02110167 10228 20206 58001KFUL2018-07-22T11:53:00Z33.87-117.9821.116.70010.030.01015.9TRUETRUEVFR-0.122.820.6METAR35.02018-07-22 11:57:38  ‚©¼)O5     3KGCC 221153Z AUTO VRB03KT 10SM CLR 19/15 A3002 RMK AO2 SLP118 70007 T01940150 10200 20167 55000 $KGCC2018-07-22T11:53:00Z44.33-105.5519.415.00310.030.020671011.8TRUETRUETRUEVFR0.020.016.70.07SPECI1320.02018-07-22 11:57:38v©¼)?5    3KGAG 221153Z AUTO 11004KT 10SM CLR 22/19 A3001 RMK AO2 SLP127 T02220194 10283 20222 51005KGAG2018-07-22T11:53:00Z36.3-99.7722.219.4110410.030.0088581012.7TRUETRUEVFR0.528.322.2METAR668.02018-07-22 11:57:38n©¼)55    3KFYV 221153Z 19004KT 10SM CLR 17/17 A2999 RMK AO2 SLP140 T01720172 10189 20167 53006KFYV2018-07-22T11:53:00Z36.02-94.1717.217.2190410.029.9911421014.0TRUEVFR0.618.916.7METAR379.02018-07-22 11:57:38 †Ý׆‚K©¼)‚I5       3KGEZ 221153Z AUTO 36005KT 1 1/2SM +RA BR BKN006 BKN011 OVC024 21/19 A2972 RMK AO2 RAB04E13B30 CIG 003V008 SLP057 P0009 60010 70023 T02110194 10211 20206 53009KGEZ2018-07-22T11:53:00Z39.58-85.821.119.436051.529.7194881005.7TRUETRUE+RA BRIFR0.921.120.60.090.10.23METAR245.02018-07-22 11:57:38‚©¼)C5    3KGEY 221153Z AUTO 30013KT 10SM CLR 22/10 A3006 RMK AO2 SLP131 T02220100 10244 20178 53023 $KGEY2018-07-22T11:53:00Z44.52-108.0822.210.03001310.030.0590551013.1TRUETRUETRUEVFR2.324.417.8METAR1191.02018-07-22 11:57:38‚©¼)‚5    3KGEG 221153Z 27003KT 10SM FEW060 FEW090 SCT120 14/04 A3018 RMK AO2 SLP208 FU FEW060 FU FEW090 FU SCT120 T01440039 10194 20133 52009KGEG2018-07-22T11:53:00Z47.62-117.5314.43.9270310.030.1801191020.8TRUEVFR0.919.413.3SPECI735.02018-07-22 11:57:38 Ýü ݂&©¼)5       3KGKJ 221153Z AUTO 04003KT 10SM -RA BKN003 OVC021 16/16 A2977 RMK AO2 SLP073 P0005 60017 70026 T01560156 10161 20150 53002KGKJ2018-07-22T11:53:00Z41.63-80.2215.615.640310.029.7696861007.3TRUETRUE-RALIFR0.216.115.00.050.170.26METAR428.02018-07-22 11:57:38m©¼)55    3KGKY 221153Z 20003KT 10SM CLR 27/19 A2992 RMK AO2 SLP118 T02720189 10322 20272 53007KGKY2018-07-22T11:53:00Z32.67-97.127.218.9200310.029.9202751011.8TRUEVFR0.732.227.2METAR192.02018-07-22 11:57:38~©¼)M5    3KGFK 221153Z 13006KT 10SM SCT041 SCT120 18/18 A3006 RMK AO2 SLP179 T01780178 10194 20161 51003 $KGFK2018-07-22T11:53:00Z47.95-97.1817.817.8130610.030.0590551017.9TRUETRUEVFR0.319.416.1METAR258.02018-07-22 11:57:38 ýõïýl©¼ )55    3KGGG 221153Z 00000KT 10SM CLR 24/22 A2994 RMK AO2 SLP128 T02390222 10300 20239 53023KGGG2018-07-22T11:53:00Z32.38-94.7223.922.20010.029.9409451012.8TRUEVFR2.330.023.9METAR107.02018-07-22 11:57:38‚©¼ )O5      3KGIF 221153Z AUTO VRB05KT 6SM BR CLR 27/26 A2994 RMK AO2 SLP136 70070 T02670261 10267 20256 53009KGIF2018-07-22T11:53:00Z28.07-81.7526.726.1056.029.9409451013.6TRUETRUEBRVFR0.926.725.60.7METAR43.02018-07-22 11:57:38‚©¼ )M5     3KGJT 221153Z 34003KT 10SM CLR 22/14 A3017 RMK AO2 SLP134 60000 70006 T02170139 10278 20211 52006KGJT2018-07-22T11:53:00Z39.12-108.5221.713.9340310.030.1712591013.4TRUEVFR0.627.821.10.0050.06METAR1475.02018-07-22 11:57:38 EìCEx©¼)A5     3KGMU 221153Z 24003KT 10SM CLR 22/21 A2978 RMK AO2 SLP074 70009 T02170206 10217 20206 51009KGMU2018-07-22T11:53:00Z34.85-82.3521.720.6240310.029.7785431007.4TRUEVFR0.921.720.60.09METAR315.02018-07-22 11:57:38P©¼) 5     3K04V 221153Z AUTO 15006KT 10SM SCT110 13/06 A3043 RMK AO2 PWINOK04V2018-07-22T11:53:00Z38.1-106.1713.06.0150610.030.431103TRUETRUETRUEVFRMETAR2385.02018-07-22 11:57:38M©¼ )5   3K0CO 221153Z AUTO 32010G14KT 10SM SCT095 07/M01 A3079 RMK AO2K0CO2018-07-22T11:53:00Z39.8-105.777.0-1.0320101410.030.791338TRUETRUEVFRMETAR3807.02018-07-22 11:57:38‚©¼ )W5     3KGLD 221153Z AUTO 14007KT 10SM CLR 19/18 A3006 RMK AO2 SLP130 60000 70002 T01940178 10222 20194 55003KGLD2018-07-22T11:53:00Z39.37-101.719.417.8140710.030.0590551013.0TRUETRUEVFR-0.322.219.40.0050.02METAR1113.02018-07-22 11:57:38 <ì:?<}©¼)K5      3KGNV 221153Z 23006KT 5SM BR FEW007 28/26 A2989 RMK AO2 SLP120 70004 T02780256 10278 20256 50003KGNV2018-07-22T11:53:00Z29.7-82.2827.825.623065.029.8907471012.0TRUEBRMVFR0.327.825.60.04METAR45.02018-07-22 11:57:38u©¼)?5    3KGOK 221153Z AUTO 09006KT 10SM CLR 24/17 A2996 RMK AO2 SLP134 T02440172 10272 20233 53003KGOK2018-07-22T11:53:00Z35.85-97.424.417.290610.029.9586621013.4TRUETRUEVFR0.327.223.3METAR324.02018-07-22 11:57:38,©¼(i5     3KGLH 221153Z A2987 RMK AO2 SLPNO 53003 PWINO $KGLH2018-07-22T11:53:00Z33.5-90.9829.870079TRUETRUETRUE0.3METAR45.02018-07-22 11:57:38‚©¼)]5     3KGLR 221153Z AUTO 03007KT 10SM SCT110 18/17 A2995 RMK AO2 SLP138 60000 70081 T01780172 10183 20178 53007KGLR2018-07-22T11:53:00Z45.02-84.6817.817.230710.029.9498021013.8TRUETRUEVFR0.718.317.80.0050.81METAR407.02018-07-22 11:57:38  q©¼)95     3KGRI 221153Z 12007KT 6SM BR CLR 19/18 A3006 RMK AO2 SLP169 T01940178 10222 20194 50004KGRI2018-07-22T11:53:00Z40.97-98.3219.417.812076.030.0590551016.9TRUEBRVFR0.422.219.4METAR561.02018-07-22 11:57:38w©¼)A5     3KGSP 221153Z 25004KT 10SM CLR 21/21 A2978 RMK AO2 SLP072 70006 T02110206 10217 20194 51008KGSP2018-07-22T11:53:00Z34.9-82.2221.120.6250410.029.7785431007.2TRUEVFR0.821.719.40.06METAR287.02018-07-22 11:57:38x©¼)A5     3KGTF 221153Z 25008KT 10SM CLR 09/04 A3021 RMK AO2 SLP202 60000 T00890039 10217 20083 51019KGTF2018-07-22T11:53:00Z47.47-111.388.93.9250810.030.2096461020.2TRUEVFR1.921.78.30.005METAR1119.02018-07-22 11:57:38u©¼)?5    3KGUY 221153Z AUTO 00000KT 10SM CLR 20/15 A3004 RMK AO2 SLP115 T02000150 10261 20183 53004KGUY2018-07-22T11:53:00Z36.68-101.520.015.00010.030.0413381011.5TRUETRUEVFR0.426.118.3METAR948.02018-07-22 11:57:38 ÖÕÜւ©¼)K5     3KGVL 221153Z AUTO 26007KT 10SM CLR 21/20 A2985 RMK AO2 SLP091 70002 T02110200 10222 20206 53014KGVL2018-07-22T11:53:00Z34.27-83.8321.120.0260710.029.849411009.1TRUETRUEVFR1.422.220.60.02METAR386.02018-07-22 11:57:38s©¼)95    3KGPT 221153Z 28009KT 10SM CLR 27/24 A2990 RMK AO2 SLP123 T02720239 10283 20267 51010 $KGPT2018-07-22T11:53:00Z30.42-89.0827.223.9280910.029.8996071012.3TRUETRUEVFR1.028.326.7METAR14.02018-07-22 11:57:38‚%©¼)5       3KGRB 221153Z 36010KT 2 1/2SM -RA BR OVC006 18/17 A2996 RMK AO2 RAB20 SLP142 P0001 60001 70014 T01830172 10189 20183 53009KGRB2018-07-22T11:53:00Z44.48-88.1318.317.2360102.529.9586621014.2TRUE-RA BRIFR0.918.918.30.010.010.14METAR208.02018-07-22 11:57:38 ãùçã~©¼)K5     3KGZH 221153Z AUTO 00000KT 10SM CLR 26/24 A2986 RMK AO2 SLP109 70002 T02610239 10278 20250 53001KGZH2018-07-22T11:53:00Z31.42-87.0526.123.90010.029.8612211010.9TRUETRUEVFR0.127.825.00.02METAR78.02018-07-22 11:57:38‚ ©¼)[5     3KHAO 221153Z AUTO 01004KT 8SM OVC012 21/20 A2970 RMK AO2 SLP054 60003 70044 T02110200 10217 20206 53011KHAO2018-07-22T11:53:00Z39.37-84.5221.120.01048.029.6988181005.4TRUETRUEMVFR1.121.720.60.030.44METAR188.02018-07-22 11:57:38‚©¼)O5      3KGWO 221153Z AUTO 00000KT 5SM BR CLR 26/24 A2986 RMK AO2 SLP110 70014 T02560244 10256 20250 51006KGWO2018-07-22T11:53:00Z33.5-90.0825.624.4005.029.8612211011.0TRUETRUEBRMVFR0.625.625.00.14METAR44.02018-07-22 11:57:38 üþü‚©¼ )M5     3KHGR 221153Z 19007KT 10SM CLR 18/17 A2979 RMK AO2 SLP094 60003 70217 T01830167 10183 20172 51027KHGR2018-07-22T11:53:00Z39.7-77.7318.316.7190710.029.7903541009.4TRUEVFR2.718.317.20.032.17METAR224.02018-07-22 11:57:38u©¼)?5    3KHHR 221153Z AUTO 00000KT 10SM CLR 21/18 A3002 RMK AO2 SLP163 T02060178 10206 20200 56003KHHR2018-07-22T11:53:00Z33.92-118.3320.617.80010.030.020671016.3TRUETRUEVFR-0.320.620.0METAR18.02018-07-22 11:57:38|©¼)I5     3KHIB 221153Z AUTO 00000KT 5SM BR OVC016 14/14 A3017 RMK AO2 SLP214 T01440144 10144 20100 53008KHIB2018-07-22T11:53:00Z47.38-92.8314.414.4005.030.1712591021.4TRUETRUEBRMVFR0.814.410.0METAR412.02018-07-22 11:57:38 ðûõð©¼#)I5     3KHBG 221153Z AUTO 25004KT 10SM CLR 26/24 A2991 RMK AO2 SLP123 T02610244 10283 20261 51010 TSNOKHBG2018-07-22T11:53:00Z31.27-89.2526.124.4250410.029.9114171012.3TRUETRUETRUEVFR1.028.326.1METAR44.02018-07-22 11:57:38‚©¼")G5     3KHBR 221153Z AUTO 08008KT 5SM HZ CLR 24/20 A2996 RMK AO2 SLP120 T02390200 10289 20239 53006 $KHBR2018-07-22T11:53:00Z34.98-99.0523.920.08085.029.9586621012.0TRUETRUETRUEHZMVFR0.628.923.9METAR473.02018-07-22 11:57:38©¼!)E5   3KHEI 221153Z AUTO 16011G18KT 10SM CLR 17/16 A2999 RMK AO2 SLP136 T01720156 10189 20172 55005KHEI2018-07-22T11:53:00Z46.02-102.6517.215.6160111810.029.9911421013.6TRUETRUEVFR-0.518.917.2METAR828.02018-07-22 11:57:38 úú‚©¼&)o5      3KDUJ 221153Z AUTO 00000KT 5SM BR BKN003 OVC016 14/14 A2976 RMK AO2 SLP072 60104 70118 T01440139 10144 20139 51007KDUJ2018-07-22T11:53:00Z41.17-78.914.413.9005.029.7608261007.2TRUETRUEBRLIFR0.714.413.91.18SPECI554.02018-07-22 11:57:38k©¼%)55    3KHIO 221153Z 00000KT 10SM CLR 12/09 A3014 RMK AO2 SLP203 T01220094 10178 20111 50000KHIO2018-07-22T11:53:00Z45.55-122.9512.29.40010.030.1387791020.3TRUEVFR0.017.811.1METAR68.02018-07-22 11:57:38w©¼$)?5    3KHJO 221153Z AUTO 34006KT 10SM CLR 25/11 A2999 RMK AO2 SLP153 T02500106 10306 20250 53008KHJO2018-07-22T11:53:00Z36.32-119.6225.010.6340610.029.9911421015.3TRUETRUEVFR0.830.625.0METAR74.02018-07-22 11:57:38 çþ炍©¼))w5      3KDXR 221153Z 12012KT 7SM BKN006 OVC013 22/21 A2991 RMK AO2 RAE45 SLP126 P0002 60058 70072 T02170211 10217 20172 53015KDXR2018-07-22T11:53:00Z41.37-73.4821.721.1120127.029.9114171012.6TRUEIFR1.521.717.20.020.72SPECI139.02018-07-22 11:57:38t©¼()?5     3KECP 221153Z 23007KT 7SM CLR 28/26 A2986 RMK AO2 SLP120 70021 T02830261 10289 20283 53008KECP2018-07-22T11:53:00Z30.35-85.828.326.123077.029.8612211012.0TRUEVFR0.828.928.30.21SPECI21.02018-07-22 11:57:38|©¼')C5    3KHKA 221153Z AUTO 30003KT 10SM CLR 22/19 A2988 RMK AO2 SLP113 T02170194 10222 20200 53004 $KHKA2018-07-22T11:53:00Z35.93-89.8321.719.4300310.029.8789371011.3TRUETRUETRUEVFR0.422.220.0METAR78.02018-07-22 11:57:38  u©¼,)?5    3KELN 221153Z AUTO 36004KT 10SM CLR 09/06 A3021 RMK AO2 SLP226 T00890056 10183 20089 53011KELN2018-07-22T11:53:00Z47.03-120.538.95.6360410.030.2096461022.6TRUETRUEVFR1.118.38.9SPECI519.02018-07-22 11:57:38v©¼+)?5    3KDVT 221153Z AUTO 00000KT 10SM CLR 27/17 A2996 RMK AO2 SLP116 T02720167 10328 20272 53003KDVT2018-07-22T11:53:00Z33.68-112.0727.216.70010.029.9586621011.6TRUETRUEVFR0.332.827.2SPECI443.02018-07-22 11:57:38o©¼*)95    3KDWH 221153Z 23008KT 8SM OVC013 27/25 A2997 RMK AO2 SLP147 T02670250 10272 20261 53010KDWH2018-07-22T11:53:00Z30.07-95.5526.725.023088.029.9704721014.7TRUEMVFR1.027.226.1SPECI46.02018-07-22 11:57:38 ÷ãñ÷t©¼/)?5    3KEET 221153Z AUTO 00000KT 10SM CLR 24/22 A2985 RMK AO2 SLP100 T02390217 10244 20222 53005KEET2018-07-22T11:53:00Z33.18-86.7823.921.70010.029.849411010.0TRUETRUEVFR0.524.422.2SPECI173.02018-07-22 11:57:38l©¼.)/5    3KELD 221153Z AUTO 36003KT 10SM 26/23 A2991 RMK AO2 SLP124 T02610228 10278 20244 $KELD2018-07-22T11:53:00Z33.22-92.8226.122.8360310.029.9114171012.4TRUETRUETRUE27.824.4SPECI81.02018-07-22 11:57:38‚©¼-)s5       3KELM 221153Z 06009KT 2 1/2SM -RA BR OVC013 20/19 A2969 RMK AO2 SLP050 P0008 60054 70100 T02000194 10200 20144 55003KELM2018-07-22T11:53:00Z42.15-76.920.019.46092.529.689961005.0TRUE-RA BRIFR-0.320.014.40.081.0SPECI302.02018-07-22 11:57:38 þv©¼2)?5    3KEPH 221153Z AUTO 31006KT 10SM CLR 18/07 A3017 RMK AO2 SLP210 T01830067 10228 20178 53011KEPH2018-07-22T11:53:00Z47.3-119.5218.36.7310610.030.1712591021.0TRUETRUEVFR1.122.817.8SPECI383.02018-07-22 11:57:38‚©¼1)K5     3KELY 221153Z AUTO 17012KT 10SM CLR 17/11 A3032 RMK AO2 SLP162 70001 T01720111 10189 20167 55004KELY2018-07-22T11:53:00Z39.3-114.8517.211.11701210.030.3188971016.2TRUETRUEVFR-0.418.916.70.01SPECI1906.02018-07-22 11:57:38r©¼0)=5    3KEMP 221153Z AUTO 05004KT 8SM CLR 19/17 A3002 RMK AO2 SLP155 T01940172 10222 20189 53005KEMP2018-07-22T11:53:00Z38.33-96.219.417.25048.030.020671015.5TRUETRUEVFR0.522.218.9SPECI367.02018-07-22 11:57:38 Ýñö݂©¼5)k5     3KEVW 221153Z AUTO 17005KT 10SM SCT090 OVC120 17/11 A3036 RMK AO2 SLP166 60001 70001 T01670106 10189 20161 53007KEVW2018-07-22T11:53:00Z41.27-111.0316.710.6170510.030.3602371016.6TRUETRUEVFR0.718.916.10.01SPECI2177.02018-07-22 11:57:38u©¼4)?5    3KESF 221153Z AUTO 27007KT 10SM CLR 26/24 A2993 RMK AO2 SLP132 T02560244 10272 20256 53015KESF2018-07-22T11:53:00Z31.4-92.2825.624.4270710.029.9291341013.2TRUETRUEVFR1.527.225.6SPECI28.02018-07-22 11:57:38‚ ©¼3)[5     3KEQY 221153Z AUTO 22004KT 8SM OVC004 21/20 A2975 RMK AO2 SLP072 60003 70009 T02110200 10228 20200 53005KEQY2018-07-22T11:53:00Z35.02-80.6221.120.022048.029.7490161007.2TRUETRUELIFR0.522.820.00.09SPECI212.02018-07-22 11:57:38 ±Â°±y©¼8)?5    3KFAR 221153Z AUTO 13010KT 10SM CLR 19/17 A3006 RMK AO2 SLP179 T01890172 10189 20161 55008KFAR2018-07-22T11:53:00Z46.93-96.8218.917.21301010.030.0590551017.9TRUETRUEVFR-0.818.916.1SPECI277.02018-07-22 11:57:38‚ ©¼7)u5    3KEYW 221153Z 27007KT 10SM FEW026 BKN100 BKN200 31/24 A2997 RMK AO2 SLP150 TCU DSNT NW-NE T03060239 10306 20294 50004KEYW2018-07-22T11:53:00Z24.55-81.7530.623.9270710.029.9704721015.0TRUEVFR0.430.629.4SPECI5.02018-07-22 11:57:38‚8©¼6)‚'5       3KEYE 221153Z AUTO 35007KT 5SM -RA BR BKN007 OVC014 21/19 A2974 RMK AO2 RAB48 CIG 004V011 SLP063 P0000 60003 70085 T02110194 10211 20206 53009KEYE2018-07-22T11:53:00Z39.83-86.321.119.435075.029.7401581006.3TRUETRUE-RA BRIFR0.921.120.60.0050.85SPECI248.02018-07-22 11:57:38 ú u©¼<);5    3KFDR 221153Z AUTO 05008KT 10SM 24/19 A2991 RMK AO2 SLP104 T02440194 10306 20244 53005 $KFDR2018-07-22T11:53:00Z34.35-98.9824.419.450810.029.9114171010.4TRUETRUETRUE0.530.624.4SPECI386.02018-07-22 11:57:38q©¼;);5    3KFCM 221153Z 01005KT 10SM OVC013 18/16 A3010 RMK AO2 SLP187 T01780156 10211 20172 51010KFCM2018-07-22T11:53:00Z44.83-93.4717.815.610510.030.1003931018.7TRUEMVFR1.021.117.2SPECI280.02018-07-22 11:57:38q©¼:);5    3KFAT 221153Z 31007KT 10SM SCT130 24/11 A2998 RMK AO2 SLP147 T02440106 10306 20244 51008KFAT2018-07-22T11:53:00Z36.78-119.7224.410.6310710.029.979331014.7TRUEVFR0.830.624.4SPECI104.02018-07-22 11:57:38‚©¼9)S5     3KFAY 221153Z 12006KT 10SM SCT015 22/20 A2976 RMK AO2 SLP070 60056 70056 T02170200 10239 20206 51007KFAY2018-07-22T11:53:00Z34.98-78.8821.720.0120610.029.7608261007.0TRUEVFR0.723.920.60.56SPECI55.02018-07-22 11:57:38 ãéâãy©¼?)E5    3KFFT 221153Z AUTO 25005KT 10SM OVC010 21/18 A2971 RMK AO2 SLP054 T02060183 10217 20206 53004KFFT2018-07-22T11:53:00Z38.18-84.920.618.3250510.029.710631005.4TRUETRUEMVFR0.421.720.6SPECI236.02018-07-22 11:57:38‚©¼>)K5     3KFFC 221153Z AUTO 27003KT 10SM CLR 23/21 A2984 RMK AO2 SLP098 70082 T02280206 10228 20211 53008KFFC2018-07-22T11:53:00Z33.35-84.5722.820.6270310.029.8405511009.8TRUETRUEVFR0.822.821.10.82SPECI262.02018-07-22 11:57:38‚©¼=)m5     3KFDY 221153Z AUTO 06009KT 10SM SCT024 BKN045 OVC090 21/18 A2975 RMK AO2 SLP066 70017 T02060183 10211 20200 53010KFDY2018-07-22T11:53:00Z41.02-83.6720.618.360910.029.7490161006.6TRUETRUEVFR1.021.120.00.17SPECI247.02018-07-22 11:57:38 ôþô‚©¼B)]5     3KMGY 221153Z AUTO 04006KT 7SM BKN007 OVC011 21/18 A2970 RMK AO2 SLP050 70096 T02060183 10206 20200 53008KMGY2018-07-22T11:53:00Z39.6-84.2320.618.34067.029.6988181005.0TRUETRUEIFR0.820.620.00.96METAR289.02018-07-22 11:57:38w©¼A)I5    3KMGW 221153Z 00000KT 10SM BKN015 OVC021 18/16 A2977 RMK AO2 SLP072 T01780161 10183 20156 53013KMGW2018-07-22T11:53:00Z39.65-79.9217.816.10010.029.7696861007.2TRUEMVFR1.318.315.6METAR378.02018-07-22 11:57:38|©¼@)I5     3KFHR 221153Z AUTO 00000KT 10SM CLR 10/08 A3022 RMK AO2 SLP233 T01000078 10122 20094 53004 TSNOKFHR2018-07-22T11:53:00Z48.52-123.0310.07.80010.030.2214571023.3TRUETRUETRUEVFR0.412.29.4SPECI32.02018-07-22 11:57:38 ÔáËԁq©¼E);5    3KMIC 221153Z 02007KT 10SM OVC011 18/15 A3010 RMK AO2 SLP188 T01780150 10206 20172 51011KMIC2018-07-22T11:53:00Z45.07-93.3517.815.020710.030.1003931018.8TRUEMVFR1.120.617.2SPECI265.02018-07-22 11:57:38‚©¼D)s5     3KMIA 221153Z 00000KT 10SM FEW017 SCT025 BKN250 28/27 A2996 RMK AO2 SLP146 60005 70005 T02780267 10283 20267 53009 $KMIA2018-07-22T11:53:00Z25.8-80.2827.826.70010.029.9586621014.6TRUETRUEVFR0.928.326.70.05SPECI3.02018-07-22 11:57:38‚©¼C)q5      3KMHE 221153Z AUTO 18003KT 10SM -RA BKN100 19/17 A3007 RMK AO2 RAB23 SLP175 P0000 60000 T01940172 10200 20189 55004KMHE2018-07-22T11:53:00Z43.77-98.0219.417.2180310.030.0708661017.5TRUETRUE-RAVFR-0.420.018.90.005SPECI397.02018-07-22 11:57:38 ðýw©¼H)?5    3KMKO 221153Z AUTO 32003KT 10SM CLR 20/19 A2997 RMK AO2 SLP140 T02000194 10244 20194 53012KMKO2018-07-22T11:53:00Z35.65-95.3720.019.4320310.029.9704721014.0TRUETRUEVFR1.224.419.4SPECI185.02018-07-22 11:57:38m©¼G)55    3KMKL 221153Z 26003KT 10SM CLR 22/21 A2987 RMK AO2 SLP108 T02170206 10228 20194 53004KMKL2018-07-22T11:53:00Z35.6-88.9221.720.6260310.029.8700791010.8TRUEVFR0.422.819.4SPECI128.02018-07-22 11:57:38‚ ©¼F)]5      3KMIE 221153Z 04007KT 5SM BR FEW006 OVC011 21/19 A2974 RMK AO2 SLP061 70045 T02110194 10217 20211 53012 $KMIE2018-07-22T11:53:00Z40.23-85.421.119.44075.029.7401581006.1TRUETRUEBRMVFR1.221.721.10.45SPECI285.02018-07-22 11:57:38 óþù󂍩¼K)E5    3KMLP 221153Z AUTO 27003KT 10SM CLR 12/M05 A3030 RMK AO2 SLP173 T01171050 10122 20100 53005 $KMLP2018-07-22T11:53:00Z47.45-115.6711.7-5.0270310.030.3011821017.3TRUETRUETRUEVFR0.512.210.0SPECI1837.02018-07-22 11:57:38©¼J)S5    3KMLC 221153Z AUTO 00000KT 10SM FEW065 SCT075 24/19 A2995 RMK AO2 SLP129 T02440189 10278 20244 51009KMLC2018-07-22T11:53:00Z34.88-95.7824.418.90010.029.9498021012.9TRUETRUEVFR0.927.824.4SPECI232.02018-07-22 11:57:38|©¼I)K5      3KMLB 221153Z 24007KT 6SM BR SCT110 27/26 A2992 RMK AO2 SLP131 70017 T02720256 10272 20256 53011KMLB2018-07-22T11:53:00Z28.1-80.6527.225.624076.029.9202751013.1TRUEBRVFR1.127.225.60.17SPECI11.02018-07-22 11:57:38 ôìôr©¼N)?5    3KMMV 221153Z AUTO 00000KT 10SM CLR 10/09 A3013 RMK AO2 SLP203 T01000094 10183 20089 50000KMMV2018-07-22T11:53:00Z45.2-123.1310.09.40010.030.1299211020.3TRUETRUEVFR0.018.38.9SPECI48.02018-07-22 11:57:38‚©¼M)c5     3KMNN 221153Z AUTO 05006KT 10SM FEW060 BKN080 19/17 A2975 RMK AO2 SLP070 70012 T01890172 10206 20178 53011 $KMNN2018-07-22T11:53:00Z40.62-83.0718.917.250610.029.7490161007.0TRUETRUETRUEVFR1.120.617.80.12SPECI301.02018-07-22 11:57:38x©¼L)?5    3KMLS 221153Z AUTO 31003KT 10SM CLR 19/17 A2994 RMK AO2 SLP114 T01890167 10239 20189 53020KMLS2018-07-22T11:53:00Z46.43-105.8818.916.7310310.029.9409451011.4TRUETRUEVFR2.023.918.9SPECI801.02018-07-22 11:57:38 ß  ߂&©¼Q){5      3KMPO 221153Z AUTO 13013G20KT 2SM -RA BR OVC004 19/19 A2982 RMK AO2 SLP092 P0011 60073 70171 T01890189 10189 20161 53025KMPO2018-07-22T11:53:00Z41.13-75.3818.918.913013202.029.8198811009.2TRUETRUE-RA BRLIFR2.518.916.10.111.71SPECI577.02018-07-22 11:57:38|©¼P)C5    3KMOD 221153Z AUTO 33006KT 10SM CLR 22/11 A2998 RMK AO2 SLP150 T02170106 10267 20217 51001 $KMOD2018-07-22T11:53:00Z37.62-120.9521.710.6330610.029.979331015.0TRUETRUETRUEVFR0.126.721.7SPECI29.02018-07-22 11:57:38m©¼O)55    3KMLU 221153Z 25005KT 10SM CLR 27/23 A2989 RMK AO2 SLP121 T02670233 10278 20250 53008KMLU2018-07-22T11:53:00Z32.52-92.0326.723.3250510.029.8907471012.1TRUEVFR0.827.825.0SPECI29.02018-07-22 11:57:38  s©¼U)G5    3KMSY 221153Z 24008KT 7SM FEW015 SCT150 27/27 A2994 RMK AO2 SLP140 T02720267 10283 20272 53011KMSY2018-07-22T11:53:00Z30.0-90.2527.226.724087.029.9409451014.0TRUEVFR1.128.327.2SPECI5.02018-07-22 11:57:38q©¼T);5    3KMSP 221153Z 04007KT 10SM BKN014 18/16 A3010 RMK AO2 SLP190 T01830161 10211 20178 51010KMSP2018-07-22T11:53:00Z44.88-93.2318.316.140710.030.1003931019.0TRUEMVFR1.021.117.8SPECI265.02018-07-22 11:57:38r©¼S)?5    3KMSO 221153Z AUTO 00000KT 10SM CLR 08/01 A3023 RMK AO2 SLP221 T00780011 10167 20072 51015KMSO2018-07-22T11:53:00Z46.92-114.17.81.10010.030.2303141022.1TRUETRUEVFR1.516.77.2SPECI975.02018-07-22 11:57:38u©¼R)A5     3KMRB 221153Z 00000KT 10SM CLR 18/16 A2977 RMK AO2 SLP078 70144 T01780161 10178 20150 51016KMRB2018-07-22T11:53:00Z39.4-77.9817.816.10010.029.7696861007.8TRUEVFR1.617.815.01.44SPECI164.02018-07-22 11:57:38 ÕÒՁw©¼X)?5    3KMWL 221153Z AUTO 21003KT 10SM CLR 26/14 A2993 RMK AO2 SLP118 T02610144 10272 20222 53008KMWL2018-07-22T11:53:00Z32.78-98.0726.114.4210310.029.9291341011.8TRUETRUEVFR0.827.222.2SPECI284.02018-07-22 11:57:38‚-©¼W)‚5       3KMTO 221153Z AUTO 33012KT 8SM -RA OVC009 20/19 A2981 RMK AO2 RAB52 CIG 007V013 SLP088 P0000 60000 70007 T02000194 10200 20200 51006KMTO2018-07-22T11:53:00Z39.47-88.2720.019.4330128.029.8110241008.8TRUETRUE-RAIFR0.620.020.00.0050.07SPECI214.02018-07-22 11:57:38u©¼V)?5    3KMTH 221153Z AUTO 25007KT 10SM CLR 29/24 A2996 RMK AO2 SLP145 T02940239 10294 20283 50003KMTH2018-07-22T11:53:00Z24.73-81.0529.423.9250710.029.9586621014.5TRUETRUEVFR0.329.428.3SPECI2.02018-07-22 11:57:38 ôô‚ ©¼[)k5     3KLNS 221153Z 20006KT 10SM OVC006 19/19 A2979 RMK AO2 CIG 005V011 SLP087 60007 70144 T01940189 10228 20183 51043KLNS2018-07-22T11:53:00Z40.12-76.319.418.9200610.029.7903541008.7TRUEIFR4.322.818.31.44SPECI125.02018-07-22 11:57:38v©¼Z)?5    3KMYV 221153Z AUTO 16007KT 10SM CLR 20/13 A2997 RMK AO2 SLP153 T02000128 10261 20200 53007KMYV2018-07-22T11:53:00Z39.1-121.5720.012.8160710.029.9704721015.3TRUETRUEVFR0.726.120.0SPECI21.02018-07-22 11:57:38x©¼Y)?5    3KMYF 221153Z AUTO 36005KT 10SM CLR 21/18 A3002 RMK AO2 SLP161 T02060178 10217 20206 55002KMYF2018-07-22T11:53:00Z32.82-117.1320.617.8360510.030.020671016.1TRUETRUEVFR-0.221.720.6SPECI136.02018-07-22 11:57:38 ÝÞ݁{©¼^)I5     3KLOU 221153Z 28007KT 10SM OVC013 29/20 A2973 RMK AO2 SLPNO 70001 T02890200 10294 20267 53002 $KLOU2018-07-22T11:53:00Z38.22-85.6728.920.0280710.029.731298TRUETRUEMVFR0.229.426.70.01SPECI164.02018-07-22 11:57:38‚©¼])‚5     3KLOZ 221153Z AUTO 25008KT 10SM BKN010 BKN065 OVC100 20/19 A2977 RMK AO2 CIG 006V013 SLP069 70007 T02000194 10206 20200 51005KLOZ2018-07-22T11:53:00Z37.08-84.0720.019.4250810.029.7696861006.9TRUETRUEMVFR0.520.620.00.07SPECI362.02018-07-22 11:57:38w©¼\)?5    3KLOL 221153Z AUTO 05005KT 10SM CLR 17/09 A3014 RMK AO2 SLP164 T01670089 10272 20156 53005KLOL2018-07-22T11:53:00Z40.07-118.5716.78.950510.030.1387791016.4TRUETRUEVFR0.527.215.6SPECI1189.02018-07-22 11:57:38 åö傍©¼a)‚5      3KLUK 221153Z 02006KT 8SM OVC008 21/21 A2969 RMK AO2 RAE41 CIG 006V012 SLP049 P0008 60048 70080 T02060206 10217 20206 51012KLUK2018-07-22T11:53:00Z39.1-84.4220.620.62068.029.689961004.9TRUEIFR1.221.720.60.080.8SPECI155.02018-07-22 11:57:38n©¼`)55    3KLSE 221153Z 34008KT 10SM CLR 17/15 A3005 RMK AO2 SLP167 T01720150 10194 20172 53013KLSE2018-07-22T11:53:00Z43.88-91.2517.215.0340810.030.0501981016.7TRUEVFR1.319.417.2SPECI199.02018-07-22 11:57:38‚©¼_)Q5     3KLPR 221153Z AUTO 05006KT 10SM OVC026 18/14 A2978 RMK AO2 SLP078 70002 T01830139 10194 20172 53009KLPR2018-07-22T11:53:00Z41.35-82.1818.313.950610.029.7785431007.8TRUETRUEMVFR0.919.417.20.02SPECI241.02018-07-22 11:57:38 üü‚©¼d)K5     3KLVM 221153Z AUTO 22011KT 10SM CLR 13/02 A3022 RMK AO2 SLP188 70010 T01330022 10178 20117 51027KLVM2018-07-22T11:53:00Z45.7-110.4313.32.22201110.030.2214571018.8TRUETRUEVFR2.717.811.70.1SPECI1418.02018-07-22 11:57:38w©¼c)?5    3KLVK 221153Z AUTO 30007KT 10SM CLR 16/14 A3003 RMK AO2 SLP167 T01610139 10172 20161 51004KLVK2018-07-22T11:53:00Z37.7-121.8216.113.9300710.030.0295281016.7TRUETRUEVFR0.417.216.1SPECI117.02018-07-22 11:57:38z©¼b)I5     3KLVJ 221153Z AUTO 00000KT 6SM BR SCT014 25/25 A2999 RMK AO2 SLP155 T02500250 10261 20250 53011KLVJ2018-07-22T11:53:00Z29.52-95.2525.025.0006.029.9911421015.5TRUETRUEBRVFR1.126.125.0SPECI12.02018-07-22 11:57:38   u©¼g)?5    3KLXV 221153Z AUTO 00000KT 10SM CLR 10/06 A3058 RMK AO2 SLP186 T01000056 10117 20078 55000KLXV2018-07-22T11:53:00Z39.23-106.3210.05.60010.030.5787411018.6TRUETRUEVFR0.011.77.8SPECI3028.02018-07-22 11:57:38z©¼f)E5    3KLWV 221153Z AUTO 32007KT 10SM OVC017 22/19 A2978 RMK AO2 SLP079 T02170189 10222 20206 53004KLWV2018-07-22T11:53:00Z38.77-87.621.718.9320710.029.7785431007.9TRUETRUEMVFR0.422.220.6SPECI131.02018-07-22 11:57:38t©¼e)=5    3KLWD 221153Z AUTO 36008KT 7SM CLR 18/17 A3003 RMK AO2 SLP161 T01780167 10200 20172 50008KLWD2018-07-22T11:53:00Z40.63-93.917.816.736087.030.0295281016.1TRUETRUEVFR0.820.017.2SPECI346.02018-07-22 11:57:38 ‚ ©¼j)W5     3KMAI 221153Z AUTO 25006KT 10SM CLR 27/26 A2983 RMK AO2 SLP099 60018 70019 T02720256 10278 20233 53002KMAI2018-07-22T11:53:00Z30.83-85.1827.225.6250610.029.8287411009.9TRUETRUEVFR0.227.823.30.180.19METAR32.02018-07-22 11:57:38l©¼i)55    3KMAF 221153Z 00000KT 10SM CLR 24/11 A3006 RMK AO2 SLP124 T02390111 10300 20239 53002KMAF2018-07-22T11:53:00Z31.95-102.223.911.10010.030.0590551012.4TRUEVFR0.230.023.9METAR874.02018-07-22 11:57:38v©¼h)?5    3KMAE 221153Z AUTO 30006KT 10SM CLR 22/11 A2998 RMK AO2 SLP150 T02220111 10278 20222 52006KMAE2018-07-22T11:53:00Z36.98-120.1222.211.1300610.029.979331015.0TRUETRUEVFR0.627.822.2METAR77.02018-07-22 11:57:38 ÞáØށt©¼m)?5    3KMCE 221153Z AUTO 31005KT 10SM CLR 22/09 A2998 RMK AO2 SLP148 T02170094 10267 20206 52005KMCE2018-07-22T11:53:00Z37.28-120.521.79.4310510.029.979331014.8TRUETRUEVFR0.526.720.6METAR47.02018-07-22 11:57:38‚©¼l)O5     3KMCB 221153Z AUTO 27005KT 10SM FEW120 26/24 A2993 RMK AO2 SLP129 T02610239 10267 20256 53013 TSNOKMCB2018-07-22T11:53:00Z31.18-90.4726.123.9270510.029.9291341012.9TRUETRUETRUEVFR1.326.725.6METAR124.02018-07-22 11:57:38‚©¼k)w5      3KMBS 221153Z 05005KT 8SM SCT039 OVC050 21/20 A2985 RMK AO2 RAE39 SLP104 P0000 60000 70020 T02110200 10211 20206 53006KMBS2018-07-22T11:53:00Z43.53-84.0821.120.05058.029.849411010.4TRUEVFR0.621.120.60.0050.0050.2METAR202.02018-07-22 11:57:38    ~©¼p)M5     3KMCN 221153Z 29006KT 10SM CLR 23/22 A2981 RMK AO2 SLP089 60001 70034 T02280217 10228 20211 51010KMCN2018-07-22T11:53:00Z32.68-83.6522.821.7290610.029.8110241008.9TRUEVFR1.022.821.10.34SPECI109.02018-07-22 11:57:38v©¼o)?5    3KMCK 221153Z AUTO 08007KT 10SM CLR 21/19 A3006 RMK AO2 SLP154 T02060189 10244 20206 53014KMCK2018-07-22T11:53:00Z40.2-100.5820.618.980710.030.0590551015.4TRUETRUEVFR1.424.420.6METAR782.02018-07-22 11:57:38m©¼n)95    3KMCI 221153Z 01003KT 9SM BKN200 20/18 A3003 RMK AO2 SLP158 T02000178 10211 20183 50009KMCI2018-07-22T11:53:00Z39.3-94.7320.017.81039.030.0295281015.8TRUEVFR0.921.118.3METAR320.02018-07-22 11:57:38 õûp©¼s)95     3KMFE 221153Z 16009KT 6SM BR CLR 27/25 A2995 RMK AO2 SLP141 T02670250 10283 20267 53000KMFE2018-07-22T11:53:00Z26.18-98.2526.725.016096.029.9498021014.1TRUEBRVFR0.028.326.7METAR38.02018-07-22 11:57:38t©¼r)=5    3KMCW 221153Z AUTO 01007KT 8SM CLR 17/16 A3008 RMK AO2 SLP175 T01670161 10178 20156 53008KMCW2018-07-22T11:53:00Z43.15-93.3316.716.11078.030.0797251017.5TRUETRUEVFR0.817.815.6METAR369.02018-07-22 11:57:38‚©¼q)W5     3KMCO 221153Z 23005KT 7SM FEW030 BKN110 26/26 A2992 RMK AO2 SLP129 70026 T02610261 10261 20244 53005 $KMCO2018-07-22T11:53:00Z28.42-81.3326.126.123057.029.9202751012.9TRUETRUEVFR0.526.124.40.26METAR29.02018-07-22 11:57:38 ûþþû}©¼v)G5    3KNEW 221153Z AUTO 26016KT 9SM SCT014 28/26 A2993 RMK AO2 SLP130 T02830261 10289 20283 53013 $KNEW2018-07-22T11:53:00Z30.05-90.0328.326.1260169.029.9291341013.0TRUETRUETRUEVFR1.328.928.3METAR3.02018-07-22 11:57:38z©¼u)I5     3KMGM 221153Z AUTO 00000KT 8SM CLR 25/24 A2984 RMK AO2 SLP101 70003 T02500239 10261 20233 53001KMGM2018-07-22T11:53:00Z32.3-86.425.023.9008.029.8405511010.1TRUETRUEVFR0.126.123.30.03SPECI63.02018-07-22 11:57:38|©¼t)I5     3KMFR 221153Z AUTO 00000KT 5SM HZ OVC038 14/06 A3010 RMK AO2 SLP183 T01440061 10228 20139 51007KMFR2018-07-22T11:53:00Z42.38-122.8714.46.1005.030.1003931018.3TRUETRUEHZMVFR0.722.813.9METAR396.02018-07-22 11:57:38 áႍ©¼y)}5     3KOGB 221153Z AUTO 24003KT 4SM BR OVC002 22/21 A2977 RMK AO2 CIG 002V005 SLP078 6//// 7//// T02170206 10233 20194 50003 $KOGB2018-07-22T11:53:00Z33.47-80.8521.720.624034.029.7696861007.8TRUETRUETRUEBRLIFR0.323.319.4METAR59.02018-07-22 11:57:38{©¼x)A5    3KODX 221153Z AUTO 13006KT 7SM CLR 19/18 A3005 RMK AO2 SLP166 T01940183 10217 20194 50001 $KODX2018-07-22T11:53:00Z41.62-98.9519.418.313067.030.0501981016.6TRUETRUETRUEVFR0.121.719.4SPECI631.02018-07-22 11:57:38w©¼w)?5    3KODO 221153Z AUTO 17003KT 10SM CLR 24/12 A3008 RMK AO2 SLP129 T02440117 10300 20239 53003KODO2018-07-22T11:53:00Z31.92-102.424.411.7170310.030.0797251012.9TRUETRUEVFR0.330.023.9METAR902.02018-07-22 11:57:38   ‚©¼|)O5     3KOLF 221153Z AUTO 01004KT 10SM FEW120 21/16 A2993 RMK AO2 SLP125 T02110156 10244 20200 53023 TSNOKOLF2018-07-22T11:53:00Z48.1-105.5821.115.610410.029.9291341012.5TRUETRUETRUEVFR2.324.420.0METAR604.02018-07-22 11:57:38l©¼{)55    3KOJC 221153Z 02004KT 10SM CLR 21/18 A3002 RMK AO2 SLP154 T02060183 10239 20194 50005KOJC2018-07-22T11:53:00Z38.85-94.7320.618.320410.030.020671015.4TRUEVFR0.523.919.4METAR326.02018-07-22 11:57:38w©¼z)?5    3KOGD 221153Z AUTO 16006KT 10SM CLR 23/11 A3015 RMK AO2 SLP137 T02330106 10267 20233 53009KOGD2018-07-22T11:53:00Z41.2-112.0223.310.6160610.030.150591013.7TRUETRUEVFR0.926.723.3METAR1353.02018-07-22 11:57:38  m©½)55    3KOPF 221153Z 29006KT 10SM CLR 28/26 A2996 RMK AO2 SLP146 T02830261 10283 20267 52009KOPF2018-07-22T11:53:00Z25.92-80.2828.326.1290610.029.9586621014.6TRUEVFR0.928.326.7METAR16.02018-07-22 11:57:38v©¼)?5    3KONT 221153Z 00000KT 10SM FEW250 20/14 A3003 RMK AO2 SLP151 T02000144 10233 20200 50000 $KONT2018-07-22T11:53:00Z34.05-117.5820.014.40010.030.0295281015.1TRUETRUEVFR0.023.320.0METAR274.02018-07-22 11:57:38v©¼~)A5    3KONO 221153Z AUTO 00000KT 10SM CLR 18/M01 A3015 RMK AO2 SLP193 T01781006 10244 20178 53015KONO2018-07-22T11:53:00Z44.02-117.0217.8-0.60010.030.150591019.3TRUETRUEVFR1.524.417.8METAR667.02018-07-22 11:57:38w©¼})?5    3KOMK 221153Z AUTO 31007KT 10SM CLR 14/08 A3021 RMK AO2 SLP226 T01390083 10200 20133 53011KOMK2018-07-22T11:53:00Z48.47-119.5213.98.3310710.030.2096461022.6TRUETRUEVFR1.120.013.3METAR395.02018-07-22 11:57:38 @02=@w©½)?5    3KOVE 221153Z AUTO 16010KT 10SM CLR 22/12 A2999 RMK AO2 SLP155 T02220117 10294 20222 53012KOVE2018-07-22T11:53:00Z39.5-121.6222.211.71601010.029.9911421015.5TRUETRUEVFR1.229.422.2METAR58.02018-07-22 11:57:38o©½)=5    3KOTM 221153Z AUTO 33008KT 8SM CLR 18/17 A3000 RMK AO2 SLP153 T01780167 10194 20172 53012KOTM2018-07-22T11:53:00Z41.1-92.4517.816.733088.030.01015.3TRUETRUEVFR1.219.417.2METAR256.02018-07-22 11:57:38x©½)E5     3KOSU 221153Z 07005KT 8SM OVC008 19/18 A2973 RMK AO2 SLP062 70009 T01890183 10194 20172 53011KOSU2018-07-22T11:53:00Z40.08-83.0818.918.37058.029.7312981006.2TRUEIFR1.119.417.20.09METAR280.02018-07-22 11:57:38J©½)5     3KORB 221153Z AUTO 00000KT 3/4SM BR OVC001 12/11 A3015 RMK AO2KORB2018-07-22T11:53:00Z48.02-92.8712.011.0000.7530.15059TRUETRUEBRLIFRMETAR397.02018-07-22 11:57:38 ;613;r©½)75    3KPAH 221153Z 29005KT 9SM CLR 22/19 A2983 RMK AO2 SLP095 T02170189 10228 20200 53005 $KPAH2018-07-22T11:53:00Z37.07-88.7721.718.929059.029.8287411009.5TRUETRUEVFR0.522.820.0METAR119.02018-07-22 11:57:38x©½)?5    3KPAE 221153Z AUTO 35004KT 10SM CLR 14/10 A3021 RMK AO2 SLP230 T01390100 10156 20139 53002KPAE2018-07-22T11:53:00Z47.92-122.2813.910.0350410.030.2096461023.0TRUETRUEVFR0.215.613.9METAR180.02018-07-22 11:57:38©½)Q5     3KOXB 221153Z AUTO VRB04KT 10SM SCT026 24/21 A2985 RMK AO2 SLP107 70149 T02390211 10239 20217 51021KOXB2018-07-22T11:53:00Z38.32-75.1223.921.10410.029.849411010.7TRUETRUEVFR2.123.921.71.49METAR3.02018-07-22 11:57:38D©½(5    3KOWA 221153Z AUTO 02008KT 10SM SCT008 17/15 A3009 RMK AO2KOWA2018-07-22T11:53:00Z44.12-93.2517.015.020810.030.088583TRUETRUEVFRMETAR350.02018-07-22 11:57:38 üþü~©½ )K5     3KPBI 221153Z 23004KT 10SM SCT250 27/26 A2996 RMK AO2 SLP145 70004 T02670256 10267 20244 53014 $KPBI2018-07-22T11:53:00Z26.68-80.126.725.6230410.029.9586621014.5TRUETRUEVFR1.426.724.40.04METAR6.02018-07-22 11:57:38x©½ )E5    3KPBG 221153Z AUTO 00000KT 10SM SCT050 19/14 A3003 RMK AO2 SLP167 T01940139 10206 20156 58001KPBG2018-07-22T11:53:00Z44.65-73.4719.413.90010.030.0295281016.7TRUETRUEVFR-0.120.615.6METAR72.02018-07-22 11:57:38|©½ )C5    3KPBF 221153Z AUTO 34003KT 10SM CLR 24/19 A2991 RMK AO2 SLP124 T02390189 10267 20222 53006 $KPBF2018-07-22T11:53:00Z34.18-91.9323.918.9340310.029.9114171012.4TRUETRUETRUEVFR0.626.722.2METAR62.02018-07-22 11:57:38 k©½)55    3KPDX 221153Z 00000KT 10SM CLR 16/12 A3014 RMK AO2 SLP205 T01560117 10200 20150 58001KPDX2018-07-22T11:53:00Z45.6-122.6215.611.70010.030.1387791020.5TRUEVFR-0.120.015.0SPECI7.02018-07-22 11:57:38v©½ )?5    3KPDT 221153Z AUTO 17007KT 10SM CLR 12/00 A3017 RMK AO2 SLP203 T01170000 10178 20106 53013KPDT2018-07-22T11:53:00Z45.7-118.8311.70.0170710.030.1712591020.3TRUETRUEVFR1.317.810.6METAR462.02018-07-22 11:57:38w©½ )A5     3KPDK 221153Z 29004KT 10SM CLR 22/19 A2983 RMK AO2 SLP084 70005 T02220194 10228 20211 53011KPDK2018-07-22T11:53:00Z33.88-84.322.219.4290410.029.8287411008.4TRUEVFR1.122.821.10.05METAR302.02018-07-22 11:57:38 ¯¼­¯x©½)G5     3KPGD 221153Z 27004KT 10SM FEW027 29/25 A2996 RMK AO2 SLP144 70068 T02890250 10289 20267 53011KPGD2018-07-22T11:53:00Z26.92-82.028.925.0270410.029.9586621014.4TRUEVFR1.128.926.70.68METAR7.02018-07-22 11:57:38‚ ©½)U5      3KPGA 221153Z AUTO 00000KT 10SM CLR 22/16 A3017 RMK AO2 SLP149 70030 T02220156 10267 20222 53008 TSNOKPGA2018-07-22T11:53:00Z36.92-111.4522.215.60010.030.1712591014.9TRUETRUETRUEVFR0.826.722.20.3SPECI1307.02018-07-22 11:57:38‚>©½)‚'5       3KPEO 221153Z AUTO VRB03KT 2SM RA BR OVC012 18/17 A2972 RMK AO2 VIS 1 1/4V3 RAB10E19B38 SLP059 P0003 60063 70077 T01780167 10178 20161 55005 $KPEO2018-07-22T11:53:00Z42.65-77.0517.816.7032.029.7194881005.9TRUETRUETRUERA BRIFR-0.517.816.10.030.630.77METAR256.02018-07-22 11:57:38  p©½)55    3KPIH 221153Z 22009KT 10SM CLR 18/11 A3017 RMK AO2 SLP157 T01780106 10233 20156 53016KPIH2018-07-22T11:53:00Z42.92-112.5717.810.6220910.030.1712591015.7TRUEVFR1.623.315.6METAR1359.02018-07-22 11:57:38v©½)A5     3KPIE 221153Z 26009KT 10SM CLR 29/26 A2992 RMK AO2 SLP131 70002 T02890261 10289 20278 53008KPIE2018-07-22T11:53:00Z27.92-82.6828.926.1260910.029.9202751013.1TRUEVFR0.828.927.80.02METAR4.02018-07-22 11:57:38u©½)?5    3KPHD 221153Z AUTO 00000KT 10SM CLR 18/16 A2976 RMK AO2 SLP073 T01830156 10189 20156 53012KPHD2018-07-22T11:53:00Z40.47-81.4218.315.60010.029.7608261007.3TRUETRUEVFR1.218.915.6METAR272.02018-07-22 11:57:38 äàâäx©½)?5    3KPMD 221153Z AUTO 22007KT 10SM CLR 25/12 A3008 RMK AO2 SLP152 T02500122 10278 20239 53002KPMD2018-07-22T11:53:00Z34.63-118.0825.012.2220710.030.0797251015.2TRUETRUEVFR0.227.823.9METAR780.02018-07-22 11:57:38x©½)C5    3KPKD 221153Z AUTO 12006KT 7SM OVC003 17/16 A3013 RMK AO2 SLP201 T01720161 10189 20167 50007KPKD2018-07-22T11:53:00Z46.9-95.0717.216.112067.030.1299211020.1TRUETRUELIFR0.718.916.7METAR442.02018-07-22 11:57:38‚©½)}5   3KPIR 221153Z AUTO 13022G32KT 10SM FEW033 SCT120 21/18 A2998 RMK AO2 PK WND 13032/1149 SLP136 T02110178 10228 20211 58005KPIR2018-07-22T11:53:00Z44.38-100.2821.117.8130223210.029.979331013.6TRUETRUEVFR-0.522.821.1METAR526.02018-07-22 11:57:38